Lista över flygplatser/mätplatser, sorterad på ICAO-kod.

Kolumner:   Temp är temperatur, Land är ISO 3166-1 -kod, Reg är region-kod enligt ISO 3166-2,
            sist på raden efter METAR står ## följt av ort och flygplatsnamn.
            Om IATA-kod saknas står --- men om uppgift om flygplatsen saknas är det fältet tomt.

Nr     Datum, sv. tid  Temp Land Reg IATA ICAO METAR
------ ---------------- --- -- ------ --- ---- ----------...

------ Antarktis:
000622 2022-10-27 14:00  14 AQ AQ-U-A --- AAXX 271200Z 23011G21KT 200V260 BKN012 14/12 Q1005 RMK PP///=  ## [A] Rothera Point, Rothera Point Airport
000664 2022-05-28 15:00  -1               AAZN 281300Z 29009KT CAVOK M01/M05 Q1016=  ## [A]
003152 2022-07-13 16:00  15               AERF 131400Z 09012KT CAVOK 15/09 Q1017=  ## [A]
------ Salomonöarna:
004213 2022-11-16 22:00  27 SB SB-ML  AKS AGGA 162100Z 00000KT 9999 FEW016 SCT030 27/25 Q1007 SH TO E=  ## [A] Auki, Gwaunaru'u Airport
004215 2022-10-19 02:00 XXX SB SB-CH  CHY AGGC 190000Z 00000KT 9999 FEW =  ## [A] , Choiseul Bay Airport
004219 2022-01-01 18:00  24 SB            AGGG 011700Z 14003KT 9999 FEW014 FEW015CB BKN100 24/24 Q1005=  ## [A] Honiara, Honiara Airport
004220 2022-11-27 18:00  23 SB SB-CT  HIR AGGH 271700Z 18002KT 9999 FEW013 23/23 Q1007=  ## [A] Honiara, Honiara International Airport
004224 2022-11-11 22:00  29 SB SB-TE  SCZ AGGL 112100Z 05008KT 9999 SCT016 BKN300 29/26 Q1010 RMKS:SHRS TO E=  ## [A] Santa Cruz/Graciosa Bay/Luova, Santa Cruz/Graciosa Bay/Luova Airport
004225 2022-11-26 22:00  28 SB SB-WE  MUA AGGM 262100Z 00000KT 9999 FEW018CB 28/25 Q1008=  ## [A] , Munda Airport
004226 2019-10-02 04:00  30 SB SB-WE  GZO AGGN 020200Z 07016KT 9999 FEW018 FEW019CB BKN100 30/25 Q1010=  ## [A] Gizo, Nusatupe Airport
004232 2019-09-22 00:00  25 SB SB-MK  NNB AGGT 212200Z 02009KT 9999 -RA SCT014 FEW015CB BKN028 OVC100 25/24 Q1014=  ## [A] Santa Ana Island, Santa Ana Airport
005513 2019-12-15 02:00  -5               AIEA 150100Z VRB02KT 0200 R31/0650N FZFG VV001 NSC M05/M06 Q1027 R31/CLRD70 NOSIG=  ## [A]
005775 2022-09-02 13:00   5               AIOC 021100Z 23005KT CAVOK 05/00 Q1027=  ## [A]
------ Nauru:
009426 2022-11-27 17:00  27 NR NR-14  INU ANYN 271600Z VRB03KT 9999 FEW020 27/24 Q1009=  ## [A] Yaren District, Nauru International Airport
009518 2019-11-14 05:30  28               AOCB 140430Z 04006KT 4000 HZ FEW015 28/19 Q1016 BECMG 5000 HZ=  ## [A]
011887 2022-04-23 16:00  18               ARPE 231400Z 11004KT 9999 FEW020 18/14 Q1012=  ## [A]
012616 2022-05-18 14:00   9               ASRF 181200Z 25011KT CAVOK 09/06 Q1025=  ## [A]
012747 2022-08-28 02:00   4               ASWG 280000Z 25014KT CAVOK 04/M02 Q1018=  ## [A]
012831 2022-06-28 09:00   2               ASZM 280700Z 28004KT CAVOK 02/01 Q1013 RMK PP///=  ## [A]
014029 2022-06-20 15:00  23               AUTO 201300Z 26803KT //// ////// 23/22 Q1011=  ## [A]
014235 2019-09-22 14:00  23               AVBM 221200Z 25002KT 9999 FEW016 BKN080 23/20 Q1015=  ## [A]
014237 2022-04-12 06:00  29               AVBO 120400Z 19003KT 4000 FU NSC 29/20 Q1008 NOSIG=  ## [A]
014685 2020-09-27 11:30  34               AVSU 270930Z 21005KT 6000 FEW025 34/25 Q1007 NOSIG=  ## [A]
014983 2022-08-08 23:00   5               AWEG 082100Z 36010KT CAVOK 05/M02 Q1014=  ## [A]
015451 2022-11-13 20:00  18               AWWG 131900Z 09011KT 9999 SCT030 18/02 Q1001=  ## [A]
------ Papua Nya Guinea:
016544 2022-11-27 09:00  19 PG PG-WHM HGU AYMH 270800Z 27010KT 9999 FEW010 SCT050 19/17 Q1019=  ## [A] Mount Hagen, Mount Hagen Kagamuga Airport
016551 2022-07-01 02:00  27 PG PG-MRL MAS AYMO 010000Z 14012KT 9999 SCT018 BKN140 27/24 Q1009=  ## [A] Manus Island, Momote Airport
016588 2022-11-27 09:00  34 PG PG-MPL LAE AYNZ 270800Z 07010G15KT 9999 HZ SCT060 34/20 Q1005 RMK: CB IN AREA=  ## [A] Lae, Nadzab Airport
016639 2022-11-27 18:00  23 PG PG-NCD POM AYPY 271700Z VRB03KT 9999 FEW050 23/22 Q1007=  ## [A] Port Moresby, Port Moresby Jacksons International Airport
017223 2022-05-09 12:00  13               AZMK 091000Z 16008KT 9000 BKN017 13/11 Q1021 RMK PP///=  ## [A]
------ Azerbajdzjan:
017428 2022-11-27 17:55   7 AZ            AZUH 271655Z 00000KT CAVOK 07/04 Q1020=  ## [A] Nakhchivan, Nakhchivan Airport
017563 2022-10-18 11:00  12               AZZM 180900Z 08007KT CAVOK 12/11 Q1029 RMK PP///=  ## [A]
018029 2019-07-03 11:00  37               BARK 030900Z 32008KT 6000 SCT020 BKN080 37/23 Q1001 NOSIG=  ## [A]
018065 2019-08-08 04:30  28               BASU 080230Z 24006KT 4000 HZ SCT012 SCT018 OVC070 28/26 Q0999 NOSIG=  ## [A]
018266 2022-01-17 22:52   9               BBAN 172152Z AUTO VRB03KT 10SM CLR 09/M08 A3002 RMK AO2 SLP161 T00941078 $ =  ## [A]
018514 2021-04-12 06:54  14               BBKB 120454Z AUTO 00000KT 10SM CLR 14/09 A2979 RMK AO2 SLP113 T01390089 =  ## [A]
019247 2019-07-15 07:30 XXX               BCMG 150530Z 8000 SHRA RMK CB OVR HD/ E/ SE=  ## [A]
021462 2021-09-01 19:00  23               BFTL 011700Z 100004KT 9999 FEW017 23/21 Q1014=  ## [A]
------ Grönland:
021681 2022-11-27 17:50   0 GL GL-U-A UAK BGBW 271650Z AUTO 23007KT 9999NDV -SHSN FEW010/// SCT016/// BKN025/// M00/M02 Q1008=  ## [A] Narsarsuaq, Narsarsuaq Airport
021692 2019-11-03 00:50  -7 GL GL-U-A JCH BGCH 022350Z AUTO 06004KT //// ///////// M07/M09 Q1010=  ## [A] Qasigiannguit, Qasigiannguit Heliport
021796 2022-11-26 22:50  -2 GL GL-U-A GOH BGGH 262150Z VRB02KT 9999 FEW005 SCT020 BKN034 M02/M04 Q1001=  ## [A] Nuuk, Godthaab / Nuuk Airport
021802 2022-02-15 00:50 -18 GL GL-U-A JGO BGGN 142350Z AUTO 04013KT //// ///////// M18/M24 Q0995=  ## [A] Qeqertarsuaq Airport, Qeqertarsuaq Heliport
021880 2022-11-27 17:50  -6 GL GL-U-A JAV BGJN 271650Z AUTO 09008KT 9999NDV OVC043/// M06/M10 Q1007=  ## [A] Ilulissat, Ilulissat Airport
021903 2022-11-26 23:50   0 GL GL-U-A KUS BGKK 262250Z AUTO 22001KT 9999NDV OVC084/// 00/M07 Q1003=  ## [A] Kulusuk, Kulusuk Airport
022065 2021-08-26 16:50 XXX GL GL-U-A NAQ BGQQ 261450Z 2615/2619 08015KT 9999 SCT030 BKN060 TEMPO 2615/2619 BKN030=  ## [A] Qaanaaq, Qaanaaq Airport
022106 2022-11-27 17:50 -15 GL GL-U-A SFJ BGSF 271650Z AUTO 04004KT 9999NDV SCT060/// BKN075/// M15/M17 Q1007=  ## [A] Kangerlussuaq, Kangerlussuaq Airport
022138 2022-11-27 18:15 -15 GL GL-U-A THU BGTL 271715Z AUTO 00000KT 9999 FEW010 BKN018 OVC025 M15/M18 A2975 RMK AO2 CIG 015V025 CIG 007 RWY26 SLP064 TSNO $  ## [A] Thule, Thule Air Base
022163 2021-08-26 16:50 XXX GL GL-U-A JUV BGUK 261450Z 2615/2620 18008KT 9999 SCT012 BKN050 TEMPO 2615/2620 4000 RADZ BKN012=  ## [A] Upernavik, Upernavik Airport
022169 2021-08-26 16:50 XXX GL GL-U-A JQA BGUQ 261450Z 2615/2619 10018KT 9999 FEW030 BKN070 TEMPO 2615/2619 BKN030=  ## [A] Uummannaq, Qaarsut Airport
------ Island:
023002 2022-11-27 18:00   3 IS IS-6   AEY BIAR 271700Z 35021KT 9999 FEW009 OVC039 03/01 Q0986=  ## [N] Akureyri, Akureyri Airport
023014 2022-11-27 17:00   3 IS IS-4   BIU BIBD 271600Z 02009KT 9999 FEW025 03/M02 Q0992=  ## [A] Bildudalur, Bildudalur Airport
023095 2022-11-27 18:00   2 IS IS-7   EGS BIEG 271700Z 17005KT 8000 -RA OVC019 02/01 Q0981=  ## [A] Egilsstaðir, Egilsstaðir Airport
023150 2022-11-25 14:42   4 IS IS-4   GJR BIGJ 251342Z 04027KT 5000 BR OVC008 04/02 Q1000=  ## [A] Gjögur, Gjögur Airport
023158 2022-11-27 17:00   2 IS IS-6   GRY BIGR 271600Z 35025KT 9999 -DZ OVC006 02/01 Q0986=  ## [A] Grímsey, Grímsey Airport
023180 2022-11-27 17:00   6 IS IS-8   HFN BIHN 271600Z 35007KT 9999 BKN025 OVC035 06/00 Q0980=  ## [M] Höfn, Hornafjörður Airport
023187 2022-11-27 17:00   3 IS IS-6   HZK BIHU 271600Z 34015G29KT 2000 RA OVC004 03/02 Q0985=  ## [M] Húsavík, Húsavík Airport
023211 2022-11-27 18:00   2 IS IS-4   IFJ BIIS 271700Z 03017KT 8000 RASN FEW012 OVC018 02/M00 Q0993=  ## [M] Ísafjörður, Ísafjörður Airport
023250 2022-11-27 18:00   3 IS IS-2   KEF BIKF 271700Z 36016KT 9999 FEW019 BKN200 03/00 Q0990=  ## [N] Reykjavík, Keflavik International Airport
023437 2022-11-27 18:00   3 IS IS-1   RKV BIRK 271700Z 34017KT 9999 BKN027 03/M01 Q0990=  ## [N] Reykjavik, Reykjavik Airport
023492 2022-11-27 18:00   4 IS IS-6   THO BITN 271700Z 32014KT 4000 +RA BR OVC005 04/04 Q0982=  ## [A] Thorshofn, Thorshofn Airport
023543 2022-11-27 18:00   4 IS IS-8   VEY BIVM 271700Z 35028G40KT 9999 BKN028 04/M01 Q0984=  ## [A] Vestmannaeyjar, Vestmannaeyjar Airport
023545 2022-11-27 16:00   3 IS IS-7   VPN BIVO 271500Z 18010KT 8000 RA HZ OVC020 03/03 Q0982=  ## [A] Vopnafjörður, Vopnafjörður Airport
------ Kosovo:
024744 2022-11-27 18:00   2 XK XK-01  PRN BKPR 271700Z 02010KT 9999 -RASN SCT010 BKN025 02/01 Q1024 NOSIG=  ## [A] Prishtina, Pri?tina International Airport
025800 2021-11-16 21:56   1               BMEH 162056Z AUTO VRB03KT 10SM SCT033 BKN043 01/M04 A3023 RMK AO2 SLP261 T00111044 58006 $ =  ## [A]
025889 2022-03-10 15:56  -3               BMHS 101456Z AUTO 00000KT 10SM CLR M03/M11 A3022 RMK AO2 SLP266 T10331106 51019 =  ## [A]
026514 2021-03-15 15:00  30               BNFT 151400Z 08004KT 030V140 9999 BKN030 30/17 Q1013=  ## [A]
026576 2022-01-28 14:56  -3               BNID 281356Z 21005KT 10SM FEW250 M03/M13 A3043 RMK AO2 SLP317 T10281133 $ =  ## [A]
026841 2022-01-18 18:30  13               BNSI 181730Z 32007KT 10SM FEW008 SCT015 SCT080 13/12 A3010 RMK AO2 T01330117 $ =  ## [A]
026862 2021-11-07 18:52  13               BNTD 071752Z 04003KT 3SM HZ OVC007 13/10 A3008 RMK AO2 SLP186 T01330100 10133 20117 50013 CHINO N VISNO N $ =  ## [A]
026887 2021-12-13 08:22  11               BNUC 130722Z AUTO 25003KT 10SM BKN024 BKN030 11/M02 A3009 RMK AO2 T01111022 $ =  ## [A]
028042 2021-04-28 08:00  18               BPMN 280600Z VRB01KT CAVOK 18/07 Q1019=  ## [A]
029824 2021-10-21 05:53  14               BSDB 210353Z AUTO 30006KT 10SM CLR 14/M04 A3021 RMK AO2 SLP190 T01441039 $ =  ## [A]
031477 2020-05-18 03:00  21               BUOQ 180100Z 00000KT 9999 TS SCT012 FEW014CB BKN080 21/20 Q1017=  ## [A]
033880 2020-07-15 22:00  28               BYDB 152000Z VRB03KT 9999 TS SCT012 FEW019CB BKN130 28/2T 9999 TS SCT012 FEW019CB BKN130 28/24 Q1010 CB SE-S=  ## [A]
033891 2020-10-13 19:00  27               BYDM 131700Z 36010KT 9999 SCT012 FEW018CB BKN120 27/26 Q1010 RMK CBE-SE=  ## [A]
033892 2020-03-25 15:00  33               BYDN 251400Z 04010KT CAVOK 33/09 Q1010=  ## [A]
033904 2020-09-10 17:00  31               BYDZ 101500Z 09009KT 9999 BKN012 SCT120 31/26 Q1008=  ## [A]
035352 2022-11-27 18:00   5               CAHR 271700Z AUTO 22008KT 05/M00 RMK AO1 SLP055 T00451002 57005=  ## [A]
035744 2019-10-01 16:36   2               CAWT 011436Z 23012KT 9000 SN OVC025 02/M06 Q1011=  ## [A]
035846 2022-11-27 18:00 -25               CBAR 271700Z AUTO 33009KT ////SM NCD M25/M27 A3058=  ## [A]
------ Kanada:
035857 2022-11-27 18:00 XXX CA CA-BC  ZEL CBBC 271700Z AUTO /////KT RMK WIND MISG CLD MISG WX MISG VIS MISG PCPN MISG PRES MISG T MISG DP MISG ICE MISG DENSITY ALT MISG=  ## [A] Bella Bella, Bella Bella (Campbell Island) Airport
036726 2019-10-15 18:15  13               CCIN 151615Z 14016KT 9999 FEW010 SCT020 BKN070 13/08 Q1028=  ## [A]
038032 2019-05-28 12:00  32               CEGT 281000Z 01007KT 5000 BR FEW018 SCT100 32/27 Q1003 NOSIG=  ## [A]
038311 2022-11-27 18:00   6               CERM 271700Z AUTO 21003KT 06/M00 RMK AO1 SOG 25 8020 SLP025 T00551001=  ## [A]
038920 2022-11-27 18:00 -27               CFOX 271700Z AUTO ///// ////SM ////// M27/M30 A2991=  ## [A]
040938 2019-09-23 21:00  20               CION 231900Z 03009KT CAVOK 20/05 Q1022=  ## [A]
042590 2021-07-06 11:00   5               CLAB 060900Z AUTO 32029KT ////SM OVC002 05/05 A2937=  ## [A]
043407 2022-11-27 18:00   2               CMFM 271700Z AUTO 29003KT 02/M01 RMK AO1 SOG 17 8012 SLP024 T00241009=  ## [A]
043422 2022-11-27 18:00  10               CMGB 271700Z AUTO 24008KT 10/M02 RMK AO1 SLP042 T01041023 58021=  ## [A]
044000 2022-03-27 17:00  29               CNCH 271500Z 18004KT 9999 FEW025 SCT300 29/20 Q1012=  ## [A]
044330 2021-08-20 19:59  34               CNOZ 201759Z AUTO 14013G26KT 10SM CLR 34/16 A2979 RMK AO2 PK WND 15026/1751 SLP038 6//// T03390156 10339 20267 53002 =  ## [A]
044463 2021-11-02 15:56  16               CNUC 021456Z 34008KT 10SM SCT009 BKN013 BKN016 16/14 A3019 RMK AO2 SLP222 T015601C44 53009=  ## [A]
045076 2022-09-12 00:00  20               CORR 112200Z VRB03KT 6000 -RA FEW008 SCT016 BKN080 20/18 Q1021 A3015 BR=  ## [A]
045338 2022-11-27 18:00   2               CPBT 271700Z AUTO 24018KT 02/M03 RMK AO1 PK WND 24021/1656 T00161034=  ## [A]
045404 2022-11-27 18:00   2               CPEH 271700Z AUTO 00000KT 02/M04 RMK AO1 T00181039=  ## [A]
045431 2022-11-27 18:00   4               CPFI 271700Z AUTO 26019KT 04/M04 RMK AO1 PK WND 25035/1603 T00391043=  ## [A]
045514 2022-11-27 18:00 XXX               CPIN 271700Z AUTO 33010KT ////SM OVC007 ///// A////=  ## [A]
045518 2022-11-27 18:00   2               CPIR 271700Z AUTO 24023KT 02/M03 RMK AO1 PK WND 24037/1604 T00201030=  ## [A]
045749 2022-11-27 18:00   1               CPRO 271700Z AUTO 27011KT 01/M03 RMK AO1 T00101031=  ## [A]
045759 2022-11-27 18:00   2               CPRY 271700Z AUTO 01015KT 02/M04 RMK AO1 PK WND 01030/1625 T00231036=  ## [A]
045780 2022-11-27 18:00  -2               CPST 271700Z AUTO 35016KT M02/M06 RMK AO1 PK WND 35023/1658 T10171056=  ## [A]
045782 2022-11-27 18:00   2               CPSV 271700Z AUTO 22008KT 02/M03 RMK AO1 T00171027=  ## [A]
045902 2022-08-19 01:00  30               CPXL 182300Z AUTO 03005KT 30/06 RMK AO1 T03020055=  ## [A]
048059 2022-11-27 18:00   9               CTCK 271700Z AUTO 24004KT 09/01 RMK AO1 SLP028 T00900006 58027=  ## [A]
048336 2019-08-20 11:39  21               CTNB 200939Z AUTO 09003KT 10SM SCT041 BKN050 21/19 A2986 RMK AO2 LTG DSNT SE T0210 A2986 RMK AO2 LTG DSNT SE T02100191=  ## [A]
048345 2022-11-27 18:00   5               CTNK 271700Z AUTO 13002KT 05/M01 RMK AO1 SLP016 T00471007 58028=  ## [A]
048439 2022-11-27 17:00  -2               CTRA 271600Z AUTO 05003KT M02/M06 RMK AO1 SOG 03 3003 SLP114 T10171056 50002=  ## [A]
050029 2022-11-27 18:00  -3               CWAE 271700Z 00000KT 15SM FEW057 M03/M04 A2984 RMK SC1 WIND ESTD SLP125=  ## [A]
050030 2022-11-27 18:00   3               CWAF 271700Z AUTO 21017KT 03/02 RMK AO1 PK WND 19022/1638 T00330015=  ## [A]
050034 2022-11-27 18:00 XXX               CWAJ 271700Z AUTO 05010KT RMK AO1 PK WND 05017/1639 58056=  ## [A]
050041 2022-11-27 18:00   1               CWAQ 271700Z AUTO 20011KT 01/M02 RMK AO1 SLP031 T00051018 58017=  ## [A]
050042 2022-11-27 18:00   6               CWAR 271700Z AUTO 34021G26KT 06/05 RMK AO1 PK WND 33029/1605 SLP937 T00560048 53011=  ## [A]
050046 2022-11-27 18:00  -2               CWAV 271700Z AUTO 30011G18KT M02/M07 RMK AO1 PK WND 29018/1659 SLP998 T10151072 53009=  ## [A]
050051 2022-11-27 18:00   5               CWBA 271700Z AUTO 36004KT 05/01 RMK AO1 T00450011=  ## [A]
050055 2022-10-05 15:00 XXX               CWBE 051300Z AUTO 00000KT RMK AO1 58003=  ## [A]
050061 2022-11-27 18:00   6               CWBK 271700Z AUTO 30012KT 06/01 RMK AO1 SLP064 T00580008 56008=  ## [A]
050065 2022-11-27 18:00   3               CWBO 271700Z AUTO 27009KT 03/M04 RMK AO1 SOG 05 8020 SLP959 T00261041=  ## [A]
050069 2022-11-27 18:00   5               CWBS 271700Z AUTO 22009KT 05/01 RMK AO1 T00450011=  ## [A]
050070 2022-11-27 18:00   1               CWBT 271700Z AUTO 21005KT 01/00 RMK AO1 SLP994 T00110000 57015=  ## [A]
050071 2022-11-27 18:00  -5               CWBU 271700Z AUTO 09007KT M05/M07 RMK AO1 SOG 13 6016 SLP016 T10491074=  ## [A]
050072 2022-11-27 18:00   7               CWBV 271700Z AUTO 30013KT 07/01 RMK AO1 SLP054 T00680005 56002=  ## [A]
050075 2022-11-27 18:00   1               CWBY 271700Z AUTO 20005KT 01/M01 RMK AO1 SOG 27 8013 SLP999 T00091012=  ## [A]
050076 2022-11-27 18:00  10               CWBZ 271700Z AUTO 27005KT 10/M00 RMK AO1 SLP029 T01021001 58027=  ## [A]
050082 2022-11-27 18:00 XXX               CWCF 271700Z AUTO 13007KT M03/ RMK AO1 SOG 14 8005 SLP114 T1029=  ## [A]
050085 2022-11-27 17:00   3               CWCI 271600Z AUTO 01011KT 03/M00 RMK AO1 SLP060 T00341002 53002=  ## [A]
050086 2022-11-27 18:00   2               CWCJ 271700Z AUTO 03004KT 02/M03 RMK AO1 SOG 08 8002 SLP077 T00161034=  ## [A]
050091 2022-11-27 18:00   5               CWCO 271700Z AUTO 14002KT 05/03 RMK AO1 0PAST HR 8035 SLP999 P0004 T00530030 50014=  ## [A]
050096 2022-11-27 18:00   0               CWCT 271700Z AUTO 33015KT M00/M05 RMK AO1 SOG 12 5000 PK WND 34022/1644 SLP973 T10031047=  ## [A]
050103 2022-11-27 18:00 XXX               CWDA 271700Z AUTO 11003KT 02/ RMK AO1 T0016=  ## [A]
050105 2022-11-27 18:00  -7               CWDC 271700Z AUTO 07006KT M07/M09 RMK AO1 2PAST HR SOG 16 1009 SLP061 P0001 T10671087 50012=  ## [A]
050112 2022-11-27 18:00   1               CWDJ 271700Z AUTO 21016KT 01/M03 RMK AO1 PK WND 21019/1658 SLP006 T00091030 56021=  ## [A]
050113 2022-11-27 18:00   2               CWDK 271700Z AUTO 24010KT 02/M04 RMK AO1 PK WND 24018/1604 SLP970 T00241043 56008=  ## [A]
050115 2022-11-27 18:00   2               CWDM 271700Z AUTO 25010KT 02/M01 RMK AO1 SOG 22 6012 SLP995 T00171006=  ## [A]
050117 2022-11-15 22:00   1               CWDO 152100Z AUTO 32010G17KT 01/M03 RMK AO1 PK WND 33021/2040 SLP192 T00051027 51016=  ## [A]
050119 2022-11-27 18:00   3               CWDQ 271700Z AUTO 18001KT 03/M01 RMK AO1 SOG 12 7016 SLP036 T00331009=  ## [A]
050122 2022-11-27 17:00 XXX               CWDT 271600Z AUTO 25002KT RMK AO1 0006 50001=  ## [A]
050124 2022-11-27 18:00  -2               CWDV 271700Z AUTO 36003KT M02/M04 RMK AO1 SOG 11 0004 SLP098 T10181038=  ## [A]
050128 2022-11-27 18:00   1               CWDZ 271700Z AUTO 36011G17KT 01/M05 RMK AO1 PK WND 00017/1653 SLP976 T00141054 53013=  ## [A]
050130 2022-11-27 18:00   3               CWEB 271700Z AUTO 00005KT 03/02 RMK AO1 3001 SLP163 T00260017 50002=  ## [A]
050133 2022-11-27 17:00   1               CWEE 271600Z AUTO 01/01 RMK AO1 SLP010 T00080005 50009=  ## [A]
050134 2022-11-27 18:00   3               CWEF 271700Z AUTO 29022G28KT 03/02 RMK AO1 PK WND 29028/1655 SLP011 T00310016 58009=  ## [A]
050136 2022-11-27 18:00   0               CWEH 271700Z AUTO 23020KT M00/M05 RMK AO1 PK WND 23027/1634 SLP001 T10031049 58015=  ## [A]
050139 2022-11-27 18:00 XXX               CWEK 271700Z AUTO 01011KT 03/ RMK AO1 PK WND 35017/1607 SLP118 T0033 53010=  ## [A]
050140 2022-11-27 18:00   5               CWEL 271700Z AUTO 21007KT 05/01 RMK AO1 SLP144 T00520014 53006=  ## [A]
050144 2022-11-27 18:00   4               CWEP 271700Z AUTO 29011KT 04/M00 RMK AO1 SLP054 T00351003 56008=  ## [A]
050145 2022-11-27 18:00  -5               CWEQ 271700Z AUTO 35005KT M05/M07 RMK AO1 SOG 04 8022 SLP044 T10491066=  ## [A]
050146 2022-11-27 18:00 XXX               CWER 271700Z AUTO 23018KT RMK AO1 PK WND 22026/1604=  ## [A]
050149 2022-11-27 18:00 -41               CWEU 271700Z 07003KT 10SM IC SCT130 M41/M45 A2993 RMK AC4 SLP156=  ## [A]
050151 2022-11-27 18:00   7               CWEW 271700Z AUTO 23004KT 07/01 RMK AO1 SLP047 T00730014 57016=  ## [A]
050154 2022-11-27 18:00   6               CWEZ 271700Z AUTO 24003KT 06/01 RMK AO1 SLP144 T00610014 51008=  ## [A]
050158 2022-11-27 18:00 -22               CWFD 271700Z AUTO ///// ////SM ////// M22/M25 A////=  ## [A]
050160 2022-11-27 18:00  -3               CWFF 271700Z AUTO 13010KT M03/M07 RMK AO1 SOG 03 6021 SLP997 T10251067=  ## [A]
050164 2022-11-27 18:00   0               CWFJ 271700Z AUTO 20010KT M00/M03 RMK AO1 PK WND 21018/1602 T10041033=  ## [A]
050171 2022-11-27 18:00  10               CWFQ 271700Z AUTO 05004KT 10/M04 RMK AO1 SLP042 T00991041 58020=  ## [A]
050182 2022-11-27 18:00 XXX               CWGB 271700Z AUTO 26006KT 05/ RMK AO1 SLP144 T0048 52004=  ## [A]
050184 2022-11-27 18:00   5               CWGD 271700Z AUTO 08006KT 05/04 RMK AO1 9PAST HR 6049 SLP985 P0004 T00490036 50025=  ## [A]
050188 2022-11-27 18:00   9               CWGH 271700Z AUTO 17002KT 09/01 RMK AO1 SLP031 T00940014 58034=  ## [A]
050192 2022-11-27 18:00   4               CWGL 271700Z AUTO 10004KT 04/02 RMK AO1 SLP992 T00410023 58034=  ## [A]
050193 2022-11-26 23:00   2               CWGM 262200Z AUTO 24018G26KT 02/M08 RMK AO1 PK WND 24034/2114 T00191078 55016=  ## [A]
050198 2022-11-27 18:00   4               CWGR 271700Z AUTO 26012KT 04/M00 RMK AO1 SLP036 T00381001 56015=  ## [A]
050200 2022-11-27 18:00   8               CWGT 271700Z AUTO 28004KT 08/03 RMK AO1 SLP151 T00790026 53004=  ## [A]
050203 2022-11-27 18:00  -1               CWGW 271700Z AUTO 23001KT M01/M02 RMK AO1 6PAST HR SOG 10 6026 SLP995 P0002 T10121021 50021=  ## [A]
050204 2021-03-25 23:00  -8               CWGX 252200Z AUTO 12010G15KT M08/M24 RMK AO1 SOG 23 7019 PK WND 10019/2144 SLP240 T10841242=  ## [A]
050205 2022-11-27 18:00  -2               CWGY 271700Z AUTO 26012KT M02/M06 RMK AO1 SOG 07 6012 PK WND 26017/1629 SLP954 T10181063=  ## [A]
050206 2022-11-25 22:00 -24               CWGZ 252100Z 00000KT 15SM FEW003 FEW017 FEW130 M24/M30 A2986 RMK ST1SC1AC1 ST TR SC TR AC TR LAST STFD OBS/NXT OBS 281300Z SLP121=  ## [A]
050215 2022-11-27 18:00  -1               CWHI 271700Z AUTO 33011KT M01/M07 RMK AO1 T10051074=  ## [A]
050218 2022-11-27 18:00   2               CWHL 271700Z AUTO 05003KT 02/01 RMK AO1 2PAST HR 3012 SLP134 P0001 T00230013 50002=  ## [A]
050220 2022-01-06 14:00 -36               CWHN 061300Z AUTO 26003KT 9SM CLR M36/M41 A3021 RMK SLP324=  ## [A]
050221 2022-11-27 18:00  -2               CWHO 271700Z AUTO 00019KT M02/M05 RMK AO1 SLP951 T10181048 56019=  ## [A]
050222 2022-11-27 17:00   2               CWHP 271600Z AUTO 24015G21KT 02/M02 RMK AO1 PK WND 23021/1556 SLP016 T00221017 58010=  ## [A]
050223 2022-11-27 18:00   3               CWHQ 271700Z AUTO 25002KT 03/M00 RMK AO1 T00291001=  ## [A]
050226 2022-11-27 18:00  -8               CWHT 271700Z AUTO 33008G16KT M08/M15 RMK AO1 PK WND 31017/1601 SLP266 T10831146 53022=  ## [A]
050228 2022-11-27 18:00   7               CWHV 271700Z AUTO 21004KT 07/M02 RMK AO1 SLP037 T00731020 58018=  ## [A]
050236 2022-11-27 18:00 -12               CWID 271700Z AUTO 33005KT M12/M14 RMK AO1 SLP182 T11221143 53019=  ## [A]
050239 2022-11-27 18:00 XXX               CWIG 271700Z AUTO 23014G20KT RMK AO1 PK WND 22021/1638=  ## [A]
050241 2022-11-27 18:00  -2               CWII 271700Z AUTO 12003KT M02/M05 RMK AO1 SLP116 T10231047 58008=  ## [A]
050242 2022-11-27 18:00 -17               CWIJ 271700Z AUTO 00000KT M17/M19 RMK AO1 SOG 26 2020 SLP217 T11701191=  ## [A]
050243 2022-11-27 18:00   0               CWIK 271700Z AUTO 20014G23KT M00/M04 RMK AO1 PK WND 21023/1656 SLP031 T10011041 58020=  ## [A]
050244 2022-11-09 04:00 XXX               CWIL 090300Z AUTO ///// ////SM //// ////// ///// A////=  ## [A]
050248 2022-11-27 18:00   0               CWIP 271700Z AUTO 31003KT M00/M02 RMK AO1 T10031017=  ## [A]
050251 2022-11-27 18:00   4               CWIS 271700Z AUTO 23004KT 04/M01 RMK AO1 SOG 19 8005 SLP018 T00351008=  ## [A]
050252 2022-11-27 18:00  10               CWIT 271700Z AUTO 17005KT 10/M00 RMK AO1 SLP037 T00961001 58022=  ## [A]
050255 2022-11-27 18:00  -2               CWIW 271700Z AUTO 17008KT M02/M03 RMK AO1 SOG 01 6022 SLP987 T10171033=  ## [A]
050256 2022-11-27 17:00   3               CWIX 271600Z AUTO 26010KT 03/01 RMK AO1 SLP017 T00290006 50000=  ## [A]
050258 2022-11-27 18:00   9               CWIZ 271700Z AUTO 18008KT 09/03 RMK AO1 T00880028=  ## [A]
050260 2022-11-27 18:00   4               CWJB 271700Z AUTO 04/01 RMK AO1 SOG 07 T00370005=  ## [A]
050261 2022-11-27 18:00 -14 CA CA-NU  --- CWJC 271700Z AUTO 00000KT M14/M15 RMK AO1 SOG 01 1007 T11371154=  ## [A] Ennadai, Ennadai Lake Airport
050262 2022-11-27 18:00  -5               CWJD 271700Z AUTO 00013KT M05/M06 RMK AO1 SOG 18 8010 SLP093 T10461058=  ## [A]
050266 2022-11-26 03:00  -1               CWJH 260200Z AUTO 25004KT M01/M02 RMK AO1 SOG 20 0002 SLP968 T10111015=  ## [A]
050267 2022-11-27 18:00   1               CWJI 271700Z AUTO 21013G19KT 01/M03 RMK AO1 SOG 01 8019 PK WND 22020/1646 SLP010 T00071029=  ## [A]
050273 2022-11-27 17:00   3               CWJO 271600Z AUTO 05002KT 03/M01 RMK AO1 SLP025 T00301010 50001=  ## [A]
050276 2022-11-27 18:00   2               CWJR 271700Z AUTO 08002KT 02/M02 RMK AO1 2PAST HR SOG 04 6005 PK WND 21018/1601 SLP034 P0001 T00151017 50011=  ## [A]
050278 2022-11-27 18:00   6               CWJT 271700Z AUTO 19001KT 06/01 RMK AO1 SLP033 T00640012 58023=  ## [A]
050279 2022-11-27 18:00   4               CWJU 271700Z AUTO 34009KT 04/01 RMK AO1 SLP157 T00380012 53002=  ## [A]
050280 2022-11-27 18:00  -1               CWJV 271700Z AUTO 05001KT M01/M02 RMK AO1 1020 SLP099 T10111023 50003=  ## [A]
050281 2022-11-27 18:00  -7               CWJW 271700Z AUTO 34002KT M07/M09 RMK AO1 SOG 14 1020 SLP036 T10711092=  ## [A]
050282 2022-11-27 18:00   1               CWJX 271700Z AUTO 22015G20KT 01/M04 RMK AO1 PK WND 21022/1643 SLP952 T00051042 56024=  ## [A]
050288 2022-11-27 17:00   1               CWKD 271600Z AUTO 01/M01 RMK AO1 0009 SLP993 T00111010 50001=  ## [A]
050291 2022-11-27 18:00  12               CWKG 271700Z AUTO 26004KT 12/01 RMK AO1 SLP070 T01170011 58016=  ## [A]
050292 2022-11-27 18:00   2               CWKH 271700Z AUTO 02/M04 RMK AO1 SLP137 T00201040 52007=  ## [A]
050295 2022-11-27 18:00 XXX               CWKK 271700Z AUTO 04014KT M00/ RMK AO1 PK WND 04020/1648 SLP099 T1004 51007=  ## [A]
050297 2022-11-27 18:00 -25               CWKM 271700Z AUTO 26008KT ////SM OVC015 M25/M27 A3072=  ## [A]
050299 2022-11-27 18:00   0               CWKO 271700Z AUTO 22012KT M00/M04 RMK AO1 PK WND 22017/1635 SLP029 T10011037 58017=  ## [A]
050300 2022-11-27 18:00 -27               CWKP 271700Z AUTO 26011KT ////SM BKN010 OVC013 M27/M30 A3033=  ## [A]
050308 2022-11-27 18:00 -12               CWKX 271700Z AUTO 04002KT M12/M14 RMK AO1 SOG 10 3013 SLP202 T11151135=  ## [A]
050312 2022-11-27 18:00 XXX               CWLB 271700Z AUTO 32010G17KT 01/ RMK AO1 SOG 03 3008 PK WND 31021/1640 SLP979 T0006=  ## [A]
050313 2022-11-27 18:00   3               CWLC 271700Z AUTO 31010KT 03/00 RMK AO1 T00340000=  ## [A]
050315 2022-11-27 18:00   1               CWLE 271700Z AUTO 23015KT 01/M04 RMK AO1 PK WND 23019/1601 SLP973 T00081040 58017=  ## [A]
050319 2022-11-27 18:00 -27               CWLI 271700Z AUTO 35006KT ////SM SCT006 M27/M30 A3060=  ## [A]
050323 2022-11-27 18:00   6               CWLM 271700Z AUTO 28009G15KT 06/M00 RMK AO1 PK WND 27024/1618 SLP150 T00551003 52006=  ## [A]
050326 2022-10-09 11:00  10               CWLP 090900Z AUTO 35002KT 10/10 RMK AO1 6003 SLP240 T01010100 50002=  ## [A]
050329 2022-11-27 18:00   4               CWLS 271700Z AUTO 10003KT 04/02 RMK AO1 1PAST HR 8037 SLP993 P0004 T00380020 50022=  ## [A]
050334 2022-11-27 18:00 -28               CWLX 271700Z AUTO ///// ////SM ////// M28/M31 A2987=  ## [A]
050335 2022-11-27 18:16   1               CWLY 271716Z AUTO 00000KT 3/8SM -SN -UP FEW003 OVC012 01/00 A2984 RMK SLP116=  ## [A]
050341 2022-11-27 18:00   1               CWME 271700Z AUTO 20005KT 01/M00 RMK AO1 6PAST HR 5002 SLP125 P0006 T00091003 50042=  ## [A]
050346 2022-11-27 18:00   7               CWMJ 271700Z AUTO 24002KT 07/M01 RMK AO1 SLP031 T00701008 58014=  ## [A]
050349 2022-11-27 18:00   4               CWMM 271700Z AUTO 06003KT 04/M02 RMK AO1 SLP140 T00411018 51015=  ## [A]
050353 2022-11-27 18:00   5               CWMQ 271700Z AUTO 23018G26KT 05/M06 RMK AO1 PK WND 23026/1650 SLP976 T00511060 58024=  ## [A]
050356 2022-11-27 18:00 -15               CWMT 271700Z AUTO 35007KT M15/M17 RMK AO1 SOG 18 3023 SLP196 T11491169=  ## [A]
050362 2022-11-27 17:00   7               CWMZ 271600Z AUTO 15006KT 07/02 RMK AO1 SLP023 T00690018 58016=  ## [A]
050365 2022-11-27 18:00   6               CWNC 271700Z AUTO 07005KT 06/04 RMK AO1 0PAST HR PRESFR 8041 SLP008 P0004 T00610043 50013=  ## [A]
050366 2022-11-27 17:00 -26               CWND 271600Z AUTO 35001KT M26/M28 RMK AO1 SLP357 T12561283 51021=  ## [A]
050367 2022-11-27 18:00   4               CWNE 271700Z AUTO 22018KT 04/01 RMK AO1 PK WND 22022/1646 SLP035 T00410006 58014=  ## [A]
050370 2022-11-27 18:00   4               CWNH 271700Z AUTO 19005KT 04/M01 RMK AO1 SOG 10 8013 SLP020 T00431008=  ## [A]
050373 2022-11-27 18:00  -2               CWNK 271700Z AUTO 18007KT M02/M05 RMK AO1 SLP116 T10231050 56010=  ## [A]
050374 2021-05-12 15:00   5               CWNL 121300Z AUTO 32006KT 05/02 RMK AO1 SLP295 T00530023 51017=  ## [A]
050375 2022-11-27 18:00   2               CWNM 271700Z AUTO 28010KT 02/M02 RMK AO1 9PAST HR SOG 07 3008 SLP053 P0004 T00151015 50058=  ## [A]
050378 2022-11-27 18:00   1               CWNP 271700Z AUTO 00000KT 01/M03 RMK AO1 SOG 09 1024 SLP063 T00091030 50019=  ## [A]
050379 2022-11-27 18:00   6               CWNQ 271700Z AUTO 23004KT 06/01 RMK AO1 SLP040 T00580013 58016=  ## [A]
050388 2022-11-27 18:00  -2               CWNZ 271700Z AUTO 35005KT M02/M03 RMK AO1 SOG 06 3003 SLP079 T10181027=  ## [A]
050390 2022-11-27 18:00 -16               CWOB 271700Z AUTO 03040G51KT ////SM OVC003 M16/M17 A2935=  ## [A]
050391 2022-11-27 18:00   2               CWOC 271700Z AUTO 28005KT 02/M02 RMK AO1 SOG 09 8017 SLP018 T00241018=  ## [A]
050392 2022-11-27 18:00   4               CWOD 271700Z AUTO 27008KT 04/M00 RMK AO1 SOG 08 8004 SLP019 T00401004=  ## [A]
050393 2022-11-27 18:00   5               CWOE 271700Z AUTO 20010G17KT 05/M07 RMK AO1 PK WND 28022/1602 SLP992 T00481066 58017=  ## [A]
050413 2022-11-27 18:00  -1               CWOY 271700Z AUTO 17013KT M01/M04 RMK AO1 SOG 03 8020 SLP996 T10061035=  ## [A]
050417 2022-11-27 18:00   6               CWPC 271700Z AUTO 11011KT 06/04 RMK AO1 PK WND 15019/1634 SLP003 T00550039 58036=  ## [A]
050418 2022-11-27 18:00   0               CWPD 271700Z AUTO 12004KT M00/M01 RMK AO1 SLP016 T10011009 57011=  ## [A]
050419 2022-11-27 18:00  11               CWPE 271700Z AUTO 21008KT 11/07 RMK AO1 SLP056 T01080066 58022=  ## [A]
050420 2022-11-27 18:00   6               CWPF 271700Z AUTO 30006KT 06/M01 RMK AO1 SLP152 T00611010 51010=  ## [A]
050425 2022-11-27 18:00   1               CWPK 271700Z AUTO 24002KT 01/M00 RMK AO1 SOG 14 5004 SLP033 T00131002=  ## [A]
050429 2022-11-27 18:00  -5               CWPO 271700Z AUTO 17011KT M05/M06 RMK AO1 SOG 08 6016 SLP115 T10541058=  ## [A]
050432 2022-11-27 18:00  -2               CWPR 271700Z AUTO 14001KT M02/M03 RMK AO1 6PAST HR SOG 29 1008 SLP116 P0010 T10151029 50119=  ## [A]
050433 2019-10-16 10:00  17               CWPS 160800Z AUTO 14027KT 17/10 RMK AO1 PK WND 14033/0733 SLP021 T01700096 56035=  ## [A]
050438 2022-11-27 18:00 -29               CWPX 271700Z AUTO 35015KT ////SM //// NCD M29/M32 A3015=  ## [A]
050440 2022-11-27 18:00 -11               CWPZ 271700Z AUTO 00000KT M11/M13 RMK AO1 SOG 13 3016 SLP128 T11141128=  ## [A]
050448 2022-11-27 18:00   8               CWQH 271700Z AUTO 22007KT 08/M01 RMK AO1 SLP046 T00811012 56029=  ## [A]
050451 2022-11-27 18:00 XXX               CWQK 271700Z AUTO 25030KT RMK AO1 PK WND 25035/1630 52009=  ## [A]
050455 2022-11-27 18:00   4               CWQO 271700Z AUTO 24014KT 04/01 RMK AO1 PK WND 24017/1637 T00390011=  ## [A]
050456 2022-11-27 18:00   9               CWQP 271700Z AUTO 15011KT 09/04 RMK AO1 PK WND 15022/1614 SLP018 T00880041 58045=  ## [A]
050458 2022-11-27 18:00   2               CWQR 271700Z AUTO 20014KT 02/M00 RMK AO1 PK WND 22018/1628 T00211004=  ## [A]
050459 2022-11-27 18:00   5               CWQS 271700Z AUTO 34001KT 05/01 RMK AO1 SLP154 T00480010 51012=  ## [A]
050462 2022-11-27 18:00   2               CWQV 271700Z AUTO 25001KT 02/00 RMK AO1 T00170000=  ## [A]
050467 2022-11-27 18:00   7               CWRA 271700Z AUTO 00036KT 07/06 RMK AO1 3009 SLP893 T00700063 50002=  ## [A]
050472 2022-03-08 18:00 -31               CWRF 081700Z AUTO 34013KT ////SM NCD M31/M34 A2957=  ## [A]
050474 2022-11-27 18:00 XXX               CWRH 271700Z AUTO 35022KT ////SM ////// ///// A2926=  ## [A]
050476 2022-11-27 18:00   1               CWRJ 271700Z AUTO 23008KT 01/M04 RMK AO1 SLP958 T00111040 56019=  ## [A]
050477 2022-11-27 18:00   5               CWRK 271700Z AUTO 17002KT 05/M01 RMK AO1 SLP021 T00471014 58030=  ## [A]
050479 2022-11-27 18:00  -2               CWRM 271700Z AUTO 33007KT M02/M08 RMK AO1 SOG 14 3009 SLP990 T10161084=  ## [A]
050480 2022-11-27 18:00   5               CWRN 271700Z AUTO 31019G24KT 05/02 RMK AO1 PK WND 30024/1634 SLP047 T00490022 50000=  ## [A]
050481 2022-11-27 16:00 XXX               CWRO 271500Z AUTO 33013KT 03/ RMK AO1 PK WND 32017/1435 SLP140 T0032 51017=  ## [A]
050486 2022-11-27 18:00  -2               CWRT 271700Z AUTO 00000KT M02/M03 RMK AO1 SLP984 T10171031 56026=  ## [A]
050487 2022-11-27 18:00 XXX               CWRU 271700Z AUTO 28011KT 05/ RMK AO1 8PAST HR 6001 PK WND 31025/1608 SLP148 P0003 T0049 50012=  ## [A]
050490 2022-11-27 18:00 -20               CWRX 271700Z AUTO ///// ////SM ////// M20/M22 A////=  ## [A]
050491 2022-11-27 18:00   2               CWRY 271700Z AUTO 23022G30KT 02/M05 RMK AO1 SOG 18 6007 PK WND 23038/1618 SLP981 T00231046=  ## [A]
050492 2022-11-27 18:00   1               CWRZ 271700Z AUTO 25006KT 01/M02 RMK AO1 SLP016 T00091016 58016=  ## [A]
050493 2022-11-27 18:00   7               CWSA 271700Z AUTO 30015G22KT 9SM OVC012 07/05 A2968 RMK SLP051=  ## [A]
050496 2022-11-27 15:00   2               CWSD 271400Z AUTO 22008KT 02/M00 RMK AO1 SLP061 T00221003 50007=  ## [A]
050498 2022-11-27 18:00   2               CWSF 271700Z AUTO 16008KT 02/M02 RMK AO1 SOG 17 6010 SLP997 T00171015=  ## [A]
050499 2022-11-27 18:00   3               CWSG 271700Z AUTO 20008KT 03/M00 RMK AO1 SLP007 T00311003 58003=  ## [A]
050503 2022-11-27 18:00   0               CWSK 271700Z AUTO 25001KT M00/M00 RMK AO1 SLP137 T10021004 51012=  ## [A]
050504 2022-11-27 18:00   1               CWSL 271700Z AUTO 13002KT 01/M07 RMK AO1 SLP094 T00051070 51020=  ## [A]
050508 2022-11-27 18:00   6               CWSP 271700Z AUTO 29012KT 06/01 RMK AO1 PK WND 29019/1628 SLP158 T00560011 51004=  ## [A]
050510 2022-11-27 18:00  -5               CWSR 271700Z AUTO 10005KT M05/M06 RMK AO1 SLP965 T10461055 56012=  ## [A]
050511 2022-11-27 18:00  10               CWSS 271700Z AUTO 21004KT 10/M01 RMK AO1 SLP052 T00981010 58029=  ## [A]
050512 2022-11-27 18:00   4               CWST 271700Z AUTO 24011KT 04/M00 RMK AO1 SLP019 T00411002 58008=  ## [A]
050515 2022-11-27 18:00  -1               CWSW 271700Z VRB02KT 2 1/2SM -SN VV016 M01/M01 A2940 RMK SN8 /S02 AFT 1400Z/ SLP996=  ## [A]
050519 2022-11-24 14:00  -2               CWTA 241300Z AUTO 20003KT M02/M06 RMK AO1 SOG 05 8003 SLP286 T10201063=  ## [A]
050525 2022-11-27 18:00   3               CWTG 271700Z AUTO 25023KT 03/01 RMK AO1 PK WND 24027/1651 SLP998 T00260013 58009=  ## [A]
050532 2022-11-27 18:00   5               CWTN 271700Z AUTO 27008G16KT 05/00 RMK AO1 SLP030 T00470000 56011=  ## [A]
050538 2022-11-27 18:00   9               CWTT 271700Z AUTO 20006KT 09/M03 RMK AO1 T00891026=  ## [A]
050543 2022-11-27 18:00   5               CWTY 271700Z AUTO 22011KT 05/01 RMK AO1 SLP045 T00490012 57014=  ## [A]
050560 2022-03-29 08:00 -18               CWUP 290600Z AUTO 36010KT ////SM NCD M18/// A2997=  ## [A]
050563 2022-11-27 18:00   0               CWUS 271700Z AUTO 00000KT M00/M03 RMK AO1 SOG 04 3013 SLP116 T10031026 50004=  ## [A]
050567 2022-11-27 18:00 -23               CWUW 271700Z AUTO 06004KT 010V090 ////SM OVC005 M23/M26 A2966=  ## [A]
050568 2022-11-27 18:00   2               CWUX 271700Z AUTO 06002KT 02/M01 RMK AO1 8PAST HR 8004 SLP024 P0003 T00241010=  ## [A]
050574 2022-08-14 07:00   7               CWVD 140500Z AUTO 18004KT ////SM FEW065 BKN075 OVC090 07/01 A2948=  ## [A]
050576 2022-11-27 18:00   6               CWVF 271700Z AUTO 30018KT 06/01 RMK AO1 PK WND 30022/1608 T00630012=  ## [A]
050578 2022-11-27 18:00 XXX               CWVH 271700Z AUTO 32008KT ////SM FEW070 SCT180 BKN200 ///// A////=  ## [A]
050579 2022-11-27 18:00   1               CWVI 271700Z AUTO 31015KT 01/M03 RMK AO1 SOG 19 3015 PK WND 31019/1655 SLP989 T00051034=  ## [A]
050584 2022-11-25 23:00   2               CWVN 252200Z AUTO 18001KT 02/M01 RMK AO1 SLP105 T00201008 58019=  ## [A]
050586 2022-11-27 18:00  -2               CWVP 271700Z AUTO 22011G17KT M02/M06 RMK AO1 PK WND 22019/1614 SLP991 T10181062 56010=  ## [A]
050587 2022-11-27 18:00   9               CWVQ 271700Z AUTO 25005KT 09/01 RMK AO1 SLP038 T00890008 58023=  ## [A]
050590 2022-11-27 18:00  -3               CWVT 271700Z AUTO 13005KT M03/M05 RMK AO1 2PAST HR 5001 SLP991 P0001 T10341048 50002=  ## [A]
050591 2022-11-27 18:00  11               CWVU 271700Z AUTO 17010G15KT 11/06 RMK AO1 SLP063 T01130062 58017=  ## [A]
050597 2022-11-27 18:00   4               CWWA 271700Z AUTO 32003KT 04/M04 RMK AO1 SLP134 T00401036 53004=  ## [A]
050598 2022-11-27 18:00   6               CWWB 271700Z AUTO 02011KT 06/05 RMK AO1 SLP002 T00590052 58034=  ## [A]
050601 2022-11-27 18:00   9               CWWE 271700Z AUTO 20013KT 09/03 RMK AO1 SLP077 T00870033 56015=  ## [A]
050602 2022-11-27 18:00  -1               CWWF 271700Z AUTO 22009KT M01/M03 RMK AO1 SOG 08 6020 SLP031 T10051033=  ## [A]
050607 2022-11-27 18:00   6               CWWK 271700Z AUTO 27002KT 06/M01 RMK AO1 SLP148 T00631013 53013=  ## [A]
050608 2022-11-27 18:00   4               CWWL 271700Z AUTO 36015KT 04/01 RMK AO1 3011 PK WND 35023/1644 SLP135 T00420013 50012=  ## [A]
050615 2022-11-27 18:00  -3               CWWS 271700Z AUTO 11006KT M03/M05 RMK AO1 SOG 23 8008 SLP104 T10271048=  ## [A]
050617 2022-11-26 19:36   4               CWWU 261836Z 12015G27KT 12SM -SHRA FEW010 BKN030 OVC110 04/01 A2957 RMK SF2SC3AS3 SLP015=  ## [A]
050620 2021-05-11 16:00   5               CWWX 111400Z AUTO 33016KT 05/02 RMK AO1 PK WND 34021/1308 SLP196 T00470019 51010=  ## [A]
050622 2022-11-27 18:00   6               CWWZ 271700Z AUTO 09006KT 06/03 RMK AO1 1PAST HR 8033 SLP998 P0000 T00630026 50017=  ## [A]
050623 2022-11-27 18:00  -3               CWXA 271700Z AUTO 00006KT M03/M08 RMK AO1 SLP012 T10261080 53016=  ## [A]
050625 2022-11-27 18:00   1               CWXC 271700Z AUTO 13002KT 01/M00 RMK AO1 SLP012 T00051002 58005=  ## [A]
050631 2022-11-27 18:00   2               CWXI 271700Z AUTO 20011KT 02/02 RMK AO1 SLP976 T00220021 58012=  ## [A]
050634 2022-11-27 18:00   2               CWXL 271700Z AUTO 32004KT 02/M04 RMK AO1 SLP989 T00211038 55011=  ## [A]
050640 2022-09-26 06:00 XXX               CWXR 260400Z AUTO ///// ////SM ////// ///// A////=  ## [A]
050658 2022-11-27 17:00   4               CWYJ 271600Z AUTO 25006KT 04/M01 RMK AO1 SLP149 T00411012 51002=  ## [A]
050660 2022-11-27 18:00  -5               CWYL 271700Z AUTO 26012KT M05/M06 RMK AO1 6PAST HR SOG 31 3004 PK WND 27017/1618 SLP998 P0002 T10501063 50024=  ## [A]
050673 2022-11-27 18:00   3               CWYY 271700Z AUTO 19002KT 03/M02 RMK AO1 1020 SLP111 T00321021 50006=  ## [A]
050675 2022-11-27 18:00   5               CWZA 271700Z AUTO 25003KT 05/M01 RMK AO1 SLP140 T00471012 53012=  ## [A]
050681 2022-11-27 18:00  -3               CWZG 271700Z AUTO 22003KT M03/M05 RMK AO1 SOG 11 6009 SLP977 T10341051 50003=  ## [A]
050686 2022-11-27 18:00   3               CWZL 271700Z AUTO 30009KT 03/01 RMK AO1 SLP159 T00250011 51017=  ## [A]
050688 2022-11-27 18:00   5               CWZN 271700Z AUTO 35018KT 05/04 RMK AO1 PK WND 35024/1619 SLP969 T00540040 53012=  ## [A]
050689 2022-11-27 18:00 XXX               CWZO 271700Z AUTO 29007KT RMK AO1=  ## [A]
050691 2022-11-27 18:00   4               CWZQ 271700Z AUTO 27011KT 04/02 RMK AO1 SLP049 T00390015 56008=  ## [A]
050693 2019-07-09 00:00  15               CWZS 082200Z AUTO 20004KT 15/13 RMK AO1 SLP080 T01490131 50015=  ## [A]
050696 2022-10-23 09:00 XXX               CWZV 230700Z AUTO 00000KT RMK AO1 58002=  ## [A]
050697 2022-11-27 18:00  -9               CWZW 271700Z AUTO 00000KT M09/M10 RMK AO1 SOG 20 2016 SLP214 T10871099=  ## [A]
050700 2022-11-27 18:00 XXX               CWZZ 271700Z AUTO 29008KT ////SM ////// ///// A2916=  ## [A]
050706 2022-11-27 18:00  -1               CXAF 271700Z AUTO 31011KT M01/M07 RMK AO1 PK WND 32020/1617 T10061069=  ## [A]
050707 2022-11-27 18:00  -1               CXAG 271700Z AUTO 32012KT M01/M04 RMK AO1 PK WND 33017/1632 T10141037=  ## [A]
050710 2022-11-27 18:00   0               CXAJ 271700Z AUTO 31015KT M00/M05 RMK AO1 SOG 05 PK WND 31021/1650 T10021050=  ## [A]
050711 2022-11-27 18:00   0               CXAK 271700Z AUTO 33021KT M00/M04 RMK AO1 PK WND 33027/1658 T10041038=  ## [A]
050720 2022-11-27 18:00 -19               CXAT 271700Z AUTO 10002KT M19/M22 RMK AO1 SOG 09 2008 SLP109 T11871221=  ## [A]
050727 2022-11-27 18:00  -4               CXBA 271700Z AUTO 31003KT M04/M06 RMK AO1 T10391055=  ## [A]
050735 2022-11-27 18:00   4               CXBI 271700Z AUTO 04/02 RMK AO1 5PAST HR 8035 SLP008 P0002 T00400015 50008=  ## [A]
050737 2022-11-27 18:00   1               CXBK 271700Z AUTO 21015KT 01/M01 RMK AO1 SOG 01 8017 PK WND 21019/1657 SLP011 T00061012=  ## [A]
050741 2022-11-27 18:00   4               CXBO 271700Z AUTO 24006KT 04/M00 RMK AO1 T00421004=  ## [A]
050744 2022-11-27 18:00 XXX               CXBR 271700Z AUTO 22010KT RMK AO1=  ## [A]
050749 2022-11-27 18:00   3               CXBW 271700Z AUTO 24021KT 03/M04 RMK AO1 PK WND 23037/1600 T00311038=  ## [A]
050753 2022-11-27 18:00   0               CXCA 271700Z AUTO 27001KT 00/M02 RMK AO1 SOG 06 1003 SLP089 T00001020 50001=  ## [A]
050756 2022-11-27 18:00 -10               CXCD 271700Z AUTO 34010KT M10/M14 RMK AO1 PK WND 00017/1628 T10991135 50014=  ## [A]
050763 2022-11-27 18:00  -9               CXCK 271700Z AUTO 32003KT M09/M12 RMK AO1 SOG 26 2017 SLP255 T10901117 50002=  ## [A]
050768 2022-11-27 18:00   1               CXCP 271700Z AUTO 30006KT 01/M05 RMK AO1 PK WND 24023/1607 T00051046=  ## [A]
050771 2022-11-27 18:00  -2               CXCS 271700Z AUTO 29012KT M02/M06 RMK AO1 T10211059=  ## [A]
050780 2022-11-27 18:00   0               CXDB 271700Z AUTO 23016KT 00/M04 RMK AO1 PK WND 21027/1621 T00001044=  ## [A]
050783 2022-11-27 18:00 -21               CXDE 271700Z AUTO 34014KT M21/M24 RMK AO1 SOG 21 1023 PK WND 34019/1625 SLP297 T12091239=  ## [A]
050787 2022-11-27 18:00   7               CXDI 271700Z AUTO 10002KT 07/04 RMK AO1 3PAST HR PRESFR 8051 SLP974 P0001 T00710035 50022=  ## [A]
050789 2022-11-27 18:00 -13               CXDK 271700Z AUTO 00000KT M13/M15 RMK AO1 SOG 16 3024 SLP246 T11321149=  ## [A]
050794 2021-11-08 19:00  -2               CXDP 081800Z AUTO 24002KT M02/M04 RMK AO1 T10201039 50010=  ## [A]
050801 2022-11-27 18:00  -2               CXDW 271700Z AUTO 18009KT M02/M06 RMK AO1 SLP114 T10191055 56011=  ## [A]
050805 2022-11-27 18:00  -2               CXEA 271700Z AUTO 34004KT M02/M06 RMK AO1 SOG 13 3002 SLP104 T10181062=  ## [A]
050807 2022-11-27 18:00   0               CXEC 271700Z AUTO 33010G16KT 00/M09 RMK AO1 SLP002 T00001088 53018=  ## [A]
050811 2022-11-27 18:00   0               CXEG 271700Z AUTO 33014KT M00/M08 RMK AO1 SOG 18 2013 PK WND 33020/1641 SLP001 T10041084=  ## [A]
050824 2022-11-27 18:00   4               CXET 271700Z AUTO 12005KT 04/03 RMK AO1 5PAST HR PRESFR 8035 SLP002 P0002 T00440028 50010=  ## [A]
050843 2022-11-27 18:00   3               CXFM 271700Z AUTO 22024KT 03/M04 RMK AO1 PK WND 21033/1637 T00251043=  ## [A]
050848 2022-11-27 18:00 -10               CXFR 271700Z AUTO 36014KT M10/M12 RMK AO1 6PAST HR M PK WND 34023/1648 P0002 T11021115 50006=  ## [A]
050864 2022-11-27 18:00  -3               CXGH 271700Z AUTO 15002KT M03/M05 RMK AO1 SLP111 T10321048 58013=  ## [A]
050883 2022-11-27 18:00   7               CXHA 271700Z AUTO 05008KT 07/06 RMK AO1 8PAST HR PRESFR 8058 SLP942 P0003 T00660061 50097=  ## [A]
050886 2022-11-27 18:00  -1               CXHD 271700Z AUTO 32020KT M01/M03 RMK AO1 PK WND 32026/1655 T10081034=  ## [A]
050888 2022-10-04 17:00   8               CXHF 041500Z AUTO 08/08 RMK AO1 T00750075=  ## [A]
050895 2022-11-27 18:00   6               CXHM 271700Z AUTO 06002KT 06/04 RMK AO1 0PAST HR 8034 SLP002 P0004 T00580041 50023=  ## [A]
050898 2022-11-27 18:00  -7               CXHP 271700Z AUTO 27008KT M07/M11 RMK AO1 T10671107=  ## [A]
050900 2022-11-27 18:00  -2               CXHR 271700Z AUTO 30016KT M02/M06 RMK AO1 PK WND 31019/1657 T10181057=  ## [A]
050910 2022-11-27 18:00   6               CXIB 271700Z AUTO 23002KT 06/02 RMK AO1 8010 SLP019 T00570020 50002=  ## [A]
050961 2022-11-27 18:00   0               CXKA 271700Z AUTO 00000KT M00/M05 RMK AO1 SOG 07 3001 SLP073 T10041051=  ## [A]
050965 2022-11-27 18:00  10               CXKE 271700Z AUTO 22004KT 10/01 RMK AO1 SLP026 T00950009 58033=  ## [A]
050969 2022-11-25 02:00   2               CXKI 250100Z AUTO 17002KT 02/02 RMK AO1 SOG 09 6022 T00240020=  ## [A]
050973 2022-11-27 18:00   1               CXKM 271700Z AUTO 34023KT 01/M02 RMK AO1 PK WND 35031/1646 T00051019=  ## [A]
050980 2022-11-27 18:00   9               CXKT 271700Z AUTO 24006KT 09/M00 RMK AO1 SLP062 T00901002 58014=  ## [A]
050988 2022-11-27 18:00   9               CXLB 271700Z AUTO 28003KT 09/01 RMK AO1 SLP070 T00900012 58016=  ## [A]
050989 2022-09-30 18:00   7               CXLC 301600Z AUTO 17018G23KT 07/02 RMK AO1 PK WND 16028/1540 SLP191 T00670015 57021=  ## [A]
050998 2022-11-27 17:00  -8               CXLL 271600Z AUTO 00000KT M08/M12 RMK AO1 SOG 24 1025 SLP239 T10801118=  ## [A]
051016 2022-11-27 18:00  -1               CXMD 271700Z AUTO 19004KT M01/M05 RMK AO1 SLP115 T10101050 56009=  ## [A]
051019 2022-11-27 18:00 -10               CXMG 271700Z AUTO 01019KT M10/M12 RMK AO1 PK WND 01025/1659 T10961121=  ## [A]
051021 2022-11-27 18:00   7               CXMI 271700Z AUTO 31009KT 07/01 RMK AO1 SLP070 T00690009 58007=  ## [A]
051025 2022-11-27 18:00  -7               CXMM 271700Z AUTO 33011KT M07/M08 RMK AO1 3PAST HR SOG 01 3025 PK WND 34017/1609 SLP008 P0001 T10671082 50015=  ## [A]
051027 2022-11-27 18:00  -1               CXMO 271700Z AUTO 01013KT M01/M04 RMK AO1 PK WND 01017/1656 T10061043=  ## [A]
051037 2022-11-27 18:00   7               CXMY 271700Z AUTO 07/M01 RMK AO1 T00691007=  ## [A]
051051 2022-11-27 18:00   0               CXNM 271700Z AUTO 29013G20KT M00/00 RMK AO1 SOG 17 PK WND 27020/1658 T10010000 50020=  ## [A]
051054 2022-11-27 18:00   8               CXNP 271700Z AUTO 23008KT 08/M00 RMK AO1 8011 SLP054 T00771003 50002=  ## [A]
051076 2022-11-27 18:00  -2               CXOL 271700Z AUTO 32012KT M02/M07 RMK AO1 PK WND 33021/1619 T10191068=  ## [A]
051088 2022-11-27 18:00  -4               CXOX 271700Z AUTO 10010KT M04/M08 RMK AO1 SOG 12 7014 SLP010 T10351081=  ## [A]
051089 2022-11-27 18:00  -2               CXOY 271700Z AUTO 25011KT M02/M05 RMK AO1 T10211053=  ## [A]
051091 2022-11-27 18:00  -9               CXPA 271700Z AUTO 35018KT M09/M11 RMK AO1 4PAST HR M PK WND 01025/1639 P0002 T10881108=  ## [A]
051093 2022-11-27 18:00   8               CXPC 271700Z AUTO 08/02 RMK AO1 SLP001 T00760022 58035=  ## [A]
051102 2022-11-27 18:00  -2               CXPL 271700Z AUTO 26006KT M02/M02 RMK AO1 T10151020=  ## [A]
051136 2022-05-18 16:00   8               CXQT 181400Z AUTO 04001KT 08/02 RMK AO1 T00770017=  ## [A]
051144 2022-11-27 18:00 -33               CXRB 271700Z AUTO 32016KT M33/M36 RMK AO1 SOG 04 1013 PK WND 32018/1650 SLP166 T13271360=  ## [A]
051150 2022-11-27 18:00   3               CXRH 271700Z AUTO 16002KT 03/03 RMK AO1 1PAST HR 6007 SLP998 P0000 T00250030 50005=  ## [A]
051154 2022-11-27 18:00  -2               CXRL 271700Z AUTO 30005KT M02/M02 RMK AO1 6PAST HR M P0002 T10201024 50015=  ## [A]
051171 2022-11-27 18:00   3               CXSC 271700Z AUTO 23019KT 03/M04 RMK AO1 PK WND 23027/1620 T00261035=  ## [A]
051173 2022-11-27 18:00 -31               CXSE 271700Z AUTO 30010KT M31/M34 RMK AO1 SOG 03 1012 SLP239 T13091341=  ## [A]
051176 2022-11-27 18:00   3               CXSH 271700Z AUTO 20005KT 03/M00 RMK AO1 SLP041 T00271003 58010=  ## [A]
051180 2022-11-27 18:00  -1               CXSL 271700Z AUTO 32008KT M01/M03 RMK AO1 T10141030 50004=  ## [A]
051184 2022-11-27 18:00  -2               CXSP 271700Z AUTO 31014KT M02/M04 RMK AO1 PK WND 32019/1650 T10211037=  ## [A]
051198 2022-11-27 18:00   4               CXTD 271700Z AUTO 31007KT 04/M00 RMK AO1 SLP069 T00361004 55005=  ## [A]
051202 2022-11-27 18:00  -1               CXTH 271700Z AUTO 32015KT M01/M03 RMK AO1 PK WND 33020/1622 T10091030=  ## [A]
051208 2022-11-27 18:00 -27               CXTN 271700Z AUTO 00000KT M27/M30 RMK AO1 SOG 53 1021 SLP324 T12671297=  ## [A]
051209 2022-11-27 18:00   6               CXTO 271700Z AUTO 06/03 RMK AO1 3PAST HR 8034 SLP003 P0001 T00590026 50013=  ## [A]
051210 2022-11-27 18:00   3               CXTP 271700Z AUTO 01004KT 03/03 RMK AO1 SLP963 T00340034 57005=  ## [A]
051216 2022-11-27 17:00 -26               CXTV 271600Z AUTO 00000KT M26/M29 RMK AO1 SOG 17 3020 SLP378 T12641293=  ## [A]
051259 2022-11-27 18:00  -7               CXVM 271700Z AUTO 23002KT M07/M07 RMK AO1 T10721073=  ## [A]
051260 2022-11-27 18:00   6               CXVN 271700Z AUTO 10003KT 06/04 RMK AO1 2PAST HR 8033 SLP999 P0001 T00630036 50020=  ## [A]
051269 2022-11-27 18:00  -8               CXVW 271700Z AUTO 26007KT M08/M11 RMK AO1 SLP048 T10811112 51028=  ## [A]
051274 2022-11-27 17:00 -23               CXWB 271600Z AUTO 32001KT M23/M26 RMK AO1 SOG 03 1003 SLP192 T12281256=  ## [A]
051285 2022-11-27 18:00   3               CXWM 271700Z AUTO 24020KT 03/M04 RMK AO1 PK WND 25032/1606 T00281042=  ## [A]
051286 2022-11-27 18:00  -2               CXWN 271700Z AUTO 10003KT M02/M06 RMK AO1 SLP115 T10161061 56012=  ## [A]
051332 2022-11-27 18:00 -10               CXYH 271700Z AUTO 35002KT M10/M12 RMK AO1 SLP237 T10991120 52024=  ## [A]
051353 2022-11-27 18:00  -1               CXZC 271700Z AUTO 32005KT M01/M04 RMK AO1 SOG 09 0004 SLP065 T10091042 50004=  ## [A]
051372 2022-11-27 18:00   0               CXZV 271700Z AUTO 03002KT M00/M01 RMK AO1 SOG 32 6008 SLP990 T10031008=  ## [A]
051378 2022-11-27 00:00 -17 CA CA-NU  YAB CYAB 262300Z 07008KT 5SM -SN OVC020 M17/M19 A2982 RMK NS8 LAST STFD OBS/NXT 281200Z CIG EST SLP103=  ## [A] Arctic Bay, Arctic Bay Airport
051384 2022-11-27 18:00  -3 CA CA-QC  YAH CYAH 271700Z AUTO 29010G16KT 9SM -SN OVC011 M03/M05 A2946 RMK SLP997=  ## [A] La Grande-4, La Grande-4 Airport
051389 2022-11-27 18:00   4 CA CA-ON  YAM CYAM 271700Z 01006KT 15SM OVC017 04/01 A2959 RMK SC8 SLP029=  ## [A] Sault Ste Marie, Sault Ste Marie Airport
051395 2022-11-27 14:00  -5 CA CA-QC  YKG CYAS 271300Z 04016KT 2SM -SN DRSN OVC009 M05/M06 A2933 RMK ST8 SN COV/MUCH LOOSE LAST STFD OBS/NEXT 281300UTC SLP944=  ## [A] Kangirsuk, Kangirsuk Airport
051396 2022-11-27 18:00  -2 CA CA-ON  YAT CYAT 271700Z AUTO 32009KT 9SM CLR M02/M05 A2974 RMK SLP073=  ## [A] Attawapiskat, Attawapiskat Airport
051399 2022-11-26 12:46   5 CA CA-NS  --- CYAW 261146Z 30018G30KT 15SM OVC013 05/03 A2925 RMK SC8 DENSITY ALT -220FT LAST OBS /NEXT 281000 UTC SLP905=  ## [A] Halifax, Halifax / CFB Shearwater Heliport
051401 2022-11-27 18:09   1 CA CA-NL  YAY CYAY 271709Z AUTO 15007KT 3/8SM -RA FG VV003 01/01 A2949 RMK SLP990=  ## [A] St. Anthony, St. Anthony Airport
051402 2022-11-27 18:00   2 CA CA-BC  YAZ CYAZ 271700Z 36003KT 15SM FEW050 02/02 A2999 RMK SC1 SLP158=  ## [A] Tofino, Tofino / Long Beach Airport
051404 2022-11-27 18:00 -16 CA CA-NU  YBB CYBB 271700Z 24011KT 3SM -SN OVC030 M16/M18 A2999 RMK SC8 SLP159=  ## [A] Kugaaruk, Kugaaruk Airport
051405 2022-11-27 18:00   2 CA CA-QC  YBC CYBC 271700Z AUTO 25018G24KT 7SM OVC007 02/02 A2952 RMK SLP001=  ## [A] Baie-Comeau, Baie Comeau Airport
051406 2022-11-27 18:00   0 CA CA-BC  QBC CYBD 271700Z 00000KT 1/2SM SN VV008 00/M00 A2991 RMK SN8 CIG VRB 5-11 SLP134=  ## [A] Bella Coola, Bella Coola Airport
051409 2022-11-27 18:00   3 CA CA-QC  YBG CYBG 271700Z 01003KT 25SM BKN028 BKN038 03/00 A2957 RMK SC6SC1 SLP020=  ## [A] Bagotville, CFB Bagotville
051413 2022-11-27 18:00 -19 CA CA-NU  YBK CYBK 271700Z 25009KT 5SM -SN OVC012 M19/M22 A3005 RMK SC8 SLP181=  ## [A] Baker Lake, Baker Lake Airport
051414 2022-11-27 18:00  -1 CA CA-BC  YBL CYBL 271700Z 00000KT 30SM FEW050 SCT250 M01/M01 A2995 RMK SC2CI1 SLP149=  ## [A] Campbell River, Campbell River Airport
051416 2022-01-06 13:00  -6 CA CA-ON  --- CYBN 061200Z AUTO 23008KT 6SM -SN OVC019 M06/M09 A2976 RMK SLP091=  ## [A] Borden, CFB Borden
051419 2022-11-06 09:53  -6 CA CA-MB  XTL CYBQ 060853Z AUTO /////KT 9SM OVC010 M06/M07 A2966 RMK WIND MISG SLP068=  ## [A] Tadoule Lake, Tadoule Lake Airport
051420 2022-11-27 18:00  -3 CA CA-MB  YBR CYBR 271700Z 12006KT 15SM BKN070 OVC230 M03/M04 A2971 RMK AC7CI1 SLP090=  ## [A] Brandon, Brandon Municipal Airport
051423 2022-11-27 18:22  -5 CA CA-SK  --- CYBU 271722Z AUTO 06007KT 9SM BKN071 M05/M06 A2950 RMK SLP016=  ## [A] Nipawin, Nipawin Airport
051424 2022-11-25 23:00   3 CA CA-MB  YBV CYBV 252200Z 24009KT 15SM SCT140 OVC210 03/M01 A2947 RMK AS2CI6 CC ASOCTD SNW CVR/MEDIUM PACK LAST STFD OBS/NEXT 281300UTC SLP992=  ## [A] Berens River, Berens River Airport
051425 2022-11-27 18:21  -2 CA CA-AB  --- CYBW 271721Z AUTO 33019G24KT 9SM -SN FEW035 OVC066 M02/M08 A2940 RMK SLP003=  ## [A] Calgary, Calgary / Springbank Airport
051426 2022-11-27 18:00   1 CA CA-QC  YBX CYBX 271700Z 11006KT 1 1/2SM -DZ BR OVC003 01/01 A2947 RMK FG4ST4 SLP983=  ## [A] Lourdes-De-Blanc-Sablon, Lourdes de Blanc Sablon Airport
051429 2022-11-27 18:00   0 CA CA-NL  YRF CYCA 271700Z AUTO 21004KT 2 1/4SM -SN OVC019 M00/M00 A2944 RMK VIS VRB 1 3/4-3 ICE PAST HR SLP971=  ## [A] Cartwright, Cartwright Airport
051430 2022-11-27 18:00 -27 CA CA-NU  YCB CYCB 271700Z 02015KT 15SM DRSN FEW025 SCT090 M27/M30 A3022 RMK SC1AC2 SLP239=  ## [A] Cambridge Bay, Cambridge Bay Airport
051432 2022-11-27 18:00   0 CA CA-BC  YCD CYCD 271700Z 18003KT 150V250 25SM FEW015 FEW070 00/M02 A2997 RMK SF1AC1 SF TR AC TR SLP151=  ## [A] Nanaimo, Nanaimo Airport
051435 2022-11-27 18:00   2 CA CA-BC  YCG CYCG 271700Z 35005KT 320V090 15SM FEW050 FEW120 02/M03 A2967 RMK SC1AC2 PRESRR SLP067=  ## [A] Castlegar, Castlegar/West Kootenay Regional Airport
051439 2022-11-27 18:00   6 CA CA-ON  XCM CYCK 271700Z AUTO 07011KT 4SM -RA BR OVC006 06/06 A2937 RMK PRESFR PCPN 0.5MM PAST HR SLP952=  ## [A] Chatham-Kent, Chatham Kent Airport
051443 2022-11-27 18:00 -21 CA CA-NU  YCO CYCO 271700Z 35018KT 3SM IC BLSN FEW008 OVC017 M21/M24 A3037 RMK SF1SC7 SLP291=  ## [A] Kugluktuk, Kugluktuk Airport
051444 2022-11-27 18:00  -4 CA CA-BC  --- CYCP 271700Z 00000KT 15SM FEW042 SCT050 BKN075 M04/M05 A2967 RMK CF1CU4AC2 CF TR SLP082=  ## [A] Blue River, Blue River Airport
051445 2022-11-27 18:10  -9 CA CA-BC  YCQ CYCQ 271710Z 06004KT 320V110 3/4SM -SN DRSN VV006 M09/M12 A2984 RMK SN8 PRESRR SLP144=  ## [A] Chetwynd, Chetwynd Airport
051447 2022-11-27 18:00 -14 CA CA-NU  YCS CYCS 271700Z 11008KT 15SM -SN FEW025 OVC030 M14/M16 A3007 RMK SC1SC7 SLP185=  ## [A] Chesterfield Inlet, Chesterfield Inlet Airport
051452 2022-11-25 19:32   5 CA CA-NB  --- CYCX 251832Z 14006KT 8SM -RA FEW010 FEW014 BKN024 OVC044 05/05 A2968 RMK SF1SC1SC3SC3 DENSITY ALT -647FT LAST OBS /NEXT 281300 UTC SLP051=  ## [A] Gagetown, CFB Gagetown Heliport
051453 2022-11-27 18:00 -27 CA CA-NU  YCY CYCY 271700Z AUTO 33002KT 9SM CLR M27/M30 A2987 RMK SLP121=  ## [A] Clyde River, Clyde River Airport
051455 2022-11-27 18:00 -10 CA CA-YT  YDA CYDA 271700Z 15004KT 100V250 15SM FEW060 BKN150 M10/M14 A3028 RMK SC1AC6 SLP292=  ## [A] Dawson City, Dawson City Airport
051456 2022-11-27 18:00 -14 CA CA-YT  YDB CYDB 271700Z 28006KT 10SM OVC027 M14/M17 A3019 RMK SC8 SLP293=  ## [A] Burwash, Burwash Airport
051457 2022-11-27 18:21  -3 CA CA-BC  --- CYDC 271721Z VRB02KT 1/2SM SN VV013 M03/M03 A2980 RMK SN8 FROIN SLP121=  ## [A] Town of Princeton, Princeton Airport
051460 2022-11-27 18:00   2 CA CA-NL  YDF CYDF 271700Z 21005KT 8SM FEW004 OVC008 02/02 A2954 RMK SF2ST6 SLP007=  ## [A] Deer Lake, Deer Lake Airport
051466 2022-11-27 18:00 -12 CA CA-BC  YDL CYDL 271700Z AUTO VRB02KT 9SM BKN011 OVC081 M12/M14 A2994 RMK SLP186=  ## [A] Dease Lake, Dease Lake Airport
051468 2022-11-27 18:00  -1 CA CA-MB  YDN CYDN 271700Z AUTO 11005KT 9SM OVC071 M01/M04 A2968 RMK SLP070=  ## [A] Dauphin, Dauphin Barker Airport
051470 2022-11-27 18:00  -1 CA CA-NL  YDP CYDP 271700Z 22007KT 15SM SCT026 BKN070 BKN220 M01/M04 A2933 RMK SC3AC4CI1 CI TR SLP934=  ## [A] Nain, Nain Airport
051471 2022-11-27 18:00 -10 CA CA-BC  YDQ CYDQ 271700Z AUTO 33017G25KT 1 1/2SM -SN OVC014 M10/M13 A2975 RMK PRESRR SLP113=  ## [A] Dawson Creek, Dawson Creek Airport
051484 2022-11-26 00:00   2 CA CA-AB  --- CYED 252300Z 27009KT 15SM BKN110 02/M01 A2971 RMK AC7 DENSITY ALT 1459FT LAST OBS /NEXT 281400 UTC SLP091=  ## [A] Edmonton, Edmonton (CFB Namao) Heliport
051487 2022-11-27 18:00   0 CA CA-AB  YEG CYEG 271700Z 33016G23KT 20SM BKN042 BKN120 OVC250 M00/M08 A2945 RMK SC5AC2CI1 VIRGA NE-SE-SW SLP005=  ## [A] Edmonton, Edmonton International Airport
051491 2022-11-27 18:00 -11 CA CA-NU  YEK CYEK 271700Z 36005KT 15SM OVC014 M11/M14 RMK ST8 ALTM 3008 WND ESTD VIA CYQB DENSITY ALT MISG=  ## [A] Arviat, Arviat Airport
051494 2022-11-27 18:00   1 CA CA-SK  YEN CYEN 271700Z AUTO 20016G25KT 9SM FEW071 01/M05 A2958 RMK SLP048=  ## [A] Estevan, Estevan Airport
051498 2022-11-27 18:08  -3 CA CA-ON  YER CYER 271708Z AUTO 04009KT 9SM OVC031 M03/M07 A2989 RMK SLP123=  ## [A] Fort Severn, Fort Severn Airport
051500 2022-11-27 18:00  -2 CA CA-AB  YET CYET 271700Z AUTO 29008G15KT 9SM CLR M02/M10 A2949 RMK SLP030=  ## [A] Edson, Edson Airport
051502 2022-11-27 18:00 -27 CA CA-NT  YEV CYEV 271700Z CCA 00000KT 10SM -SN FEW001 FEW084 BKN140 M27/M30 A3064 RMK ST1AC2AC5 ST TR FROIN SLP389=  ## [A] Inuvik, Inuvik Mike Zubko Airport
051508 2022-11-27 18:00 -12 CA CA-NU  YFB CYFB 271700Z 05018G23KT 30SM -SN DRSN SCT032 OVC051 M12/M17 A2957 RMK SC4SC4 VIS SE-SW LWR SLP018=  ## [A] Iqaluit, Iqaluit Airport
051509 2022-11-27 18:00  10 CA CA-NB  YFC CYFC 271700Z AUTO 22006KT 9SM CLR 10/M01 A2965 RMK SLP044=  ## [A] Fredericton, Fredericton Airport
051521 2022-11-27 18:00  -6 CA CA-MB  YFO CYFO 271700Z 11006KT 080V150 15SM -SN FEW015 SCT050 OVC090 M06/M08 A2970 RMK SC1SC3AC5 SC TR SLP082=  ## [A] Flin Flon, Flin Flon Airport
051524 2022-11-22 00:00  -2 CA CA-NT  YFR CYFR 212300Z 30003KT 15SM FEW013 FEW040 M02/M04 A2954 RMK SF1SC1 SF TR SC TR LAST STFD OBS/NEXT281500Z SLP018=  ## [A] Fort Resolution, Fort Resolution Airport
051525 2022-11-27 18:07  -9 CA CA-NT  YFS CYFS 271707Z 33016G23KT 2 1/2SM -SN BLSN BKN015 OVC032 M09/M11 A3015 RMK SC7SC1 CIG RAG VIS VRB 1-6 SLP228=  ## [A] Fort Simpson, Fort Simpson Airport
051526 2022-11-27 18:00  -1 CA CA-NL  YMN CYFT 271700Z 04003KT 15SM BKN035 M01/M04 A2937 RMK SC7 SLP954=  ## [A] Makkovik, Makkovik Airport
051537 2022-11-27 18:00  -1 CA CA-BC  --- CYGE 271700Z VRB02KT 20SM FEW009 SCT050 OVC130 M01/M02 A2952 RMK ST1SC2AS5 VIS E 10 SLP029=  ## [A] Golden, Golden Airport
051540 2022-11-27 18:00 -20 CA CA-NT  YGH CYGH 271700Z 34002KT 3SM -SN VV060 M20/M22 A3054 RMK SN8 SLP355=  ## [A] Fort Good Hope, Fort Good Hope Airport
051543 2022-11-27 18:00   8 CA CA-ON  YGK CYGK 271700Z 17010KT 15SM BKN110 BKN160 OVC200 08/02 A2961 RMK AC5AC2CI1 PRESFR SLP031=  ## [A] Kingston, Kingston Norman Rogers Airport
051544 2022-11-27 18:00  -3 CA CA-QC  YGL CYGL 271700Z 31007KT 15SM FEW009 SCT019 BKN031 M03/M05 A2958 RMK SF1SC2SC4 SLP032=  ## [A] La Grande Rivière, La Grande Rivière Airport
051548 2022-11-27 18:00  -2 CA CA-QC  YGP CYGP 271700Z 00000KT 15SM OVC050 M02/M04 A2957 RMK SC8 SLP016=  ## [A] Gaspé, Gaspé (Michel-Pouliot) Airport
051549 2022-04-11 21:13   2 CA CA-ON  YGQ CYGQ 111913Z AUTO 22013G18KT 8SM -RA BKN009 OVC014 02/01 A2932 RMK SLP944=  ## [A] Geraldton, Geraldton Greenstone Regional Airport
051550 2022-11-27 18:00   4 CA CA-QC  YGR CYGR 271700Z 27013KT 20SM FEW018 BKN033 04/00 A2963 RMK SC1SC5 SLP037=  ## [A] Îles-de-la-Madeleine, Îles-de-la-Madeleine Airport
051552 2022-11-27 18:12 -20 CA CA-NU  YGT CYGT 271712Z 26012KT 6SM -SN BKN035 OVC063 M20/M22 A2993 RMK SC5SC3 SLP145=  ## [A] Igloolik, Igloolik Airport
051554 2022-11-27 18:00   1 CA CA-QC  YGV CYGV 271700Z AUTO 22008G15KT 9SM BKN016 OVC049 01/M00 A2949 RMK SLP991=  ## [A] Havre St-Pierre, Havre St Pierre Airport
051555 2022-11-27 18:00  -2 CA CA-QC  YGW CYGW 271700Z AUTO 33012G17KT 9SM -SN OVC036 M02/M06 A2959 RMK SLP023=  ## [A] Kuujjuarapik, Kuujjuarapik Airport
051556 2022-11-27 18:17  -7 CA CA-MB  YGX CYGX 271717Z 07004KT 020V110 15SM OVC017 M07/M09 A2992 RMK SC8 SLP148=  ## [A] Gillam, Gillam Airport
051559 2022-11-27 18:12  -6 CA CA-QC  YQC CYHA 271712Z 03009KT 1SM -SN VV015 M06/M07 A2942 RMK SN8 SLP966=  ## [A] Quaqtaq, Quaqtaq Airport
051562 2022-11-27 18:00  -1 CA CA-ON  YHD CYHD 271700Z AUTO 06006KT 040V100 9SM BKN018 BKN035 M01/M05 A2980 RMK SLP116=  ## [A] Dryden, Dryden Regional Airport
051563 2022-11-27 12:00   8 CA CA-BC  YHE CYHE 271100Z AUTO /////KT 08/M01 A2976 RMK WIND MISG CLD MISG WX MISG VIS MISG ICE MISG SLP081=  ## [A] Hope, Hope Airport
051567 2022-11-27 18:00 -27 CA CA-NT  YHI CYHI 271700Z 36009KT 15SM IC DRSN FEW006 SCT220 M27/M31 A3042 RMK ST2CI2 FROIN SLP308=  ## [A] Ulukhaktok, Ulukhaktok Holman Airport
051569 2022-11-27 18:00 -19 CA CA-NU  YHK CYHK 271700Z 02010KT 8SM -SN BKN042 OVC110 M19/M21 A3001 RMK SC5AC3 SLP171=  ## [A] Gjoa Haven, Gjoa Haven Airport
051571 2022-11-27 18:15   5 CA CA-ON  YHM CYHM 271715Z 05011KT 15SM -RA FEW005 FEW016 BKN030 OVC045 05/04 A2947 RMK SF1SC1SC4SC2 PRESFR SLP987=  ## [A] Hamilton, John C. Munro Hamilton International Airport
051579 2022-11-27 18:00   9 CA CA-QC  YHU CYHU 271700Z AUTO 22009KT 9SM BKN200 09/01 A2964 RMK SLP040=  ## [A] Montréal, Montréal / Saint-Hubert Airport
051583 2022-11-27 18:00 -13 CA CA-NT  YHY CYHY 271700Z 32015G26KT 2 1/4SM -SN DRSN BKN010 BKN030 M13/M16 A2993 RMK ST5SC2 SLP152=  ## [A] Hay River, Hay River / Merlyn Carter Airport
051584 2022-11-27 18:00   7 CA CA-NS  YHZ CYHZ 271700Z 30009KT 15SM FEW020 FEW180 BKN250 07/M01 A2971 RMK SC1AC1CI5 SC TR AC TR SLP068=  ## [A] Halifax, Halifax / Stanfield International Airport
051595 2022-11-27 14:00  -9 CA CA-QC  YIK CYIK 271300Z 02026G32KT 7SM -SN DRSN FEW009 SCT012 BKN014 BKN017 BKN020 M09/M12 A2973 RMK ST2ST2ST1SC1SC1 LASTSTFD OB/NEXT 301300UTC SLP073=  ## [A] Ivujivik, Ivujivik Airport
051598 2022-11-27 18:20  -7               CYIN 271720Z AUTO 30004KT 9SM -SN OVC060 M07/M11 A2970 RMK SLP112=  ## [A]
051599 2022-11-27 18:19 -21 CA CA-NU  YIO CYIO 271719Z AUTO 18003KT 5SM -SN OVC086 M21/M23 A2985 RMK SLP119=  ## [A] Pond Inlet, Pond Inlet Airport
051606 2022-11-27 17:57  -8 CA CA-MB  YIV CYIV 271657Z AUTO VRB02KT 5SM BR BKN003 OVC042 M08/M09 A2987 RMK SLP137=  ## [A] Island Lake, Island Lake Airport
051616 2022-11-26 00:00  -8 CA CA-NT  YJF CYJF 252300Z 06005KT 15SM FEW150 SCT190 BKN220 BKN240 M08/M11 A2969 RMK AC1AC2CI2CI1 LAST STFD OBS/NXT 281500Z SLP068=  ## [A] Fort Liard, Fort Liard Airport
051630 2022-11-27 18:17   4 CA CA-NL  YJT CYJT 271717Z 26006KT 1SM BR OVC003 04/03 A2956 RMK SF8 SLP013=  ## [A] Stephenville, Stephenville Airport
051637 2022-11-27 18:00   1 CA CA-BC  YKA CYKA 271700Z 22006KT 40SM FEW100 SCT150 01/M06 A2980 RMK AC1AC2 SLP109=  ## [A] Kamloops, Kamloops Airport
051640 2022-11-27 18:00 -23 CA CA-NT  LAK CYKD 271700Z 34005KT 15SM -SN OVC065 M23/M26 A3068 RMK SC8 SLP394=  ## [A] Aklavik, Aklavik/Freddie Carmichael Airport
051642 2022-11-27 18:21   5 CA CA-ON  YKF CYKF 271721Z AUTO 07012KT 3SM -RA BR FEW030 SCT038 BKN048 OVC071 05/04 A2945 RMK PRESFR PCPN 0.5MM PAST HR SLP982=  ## [A] Kitchener, Waterloo Airport
051643 2022-11-27 18:00  -9 CA CA-QC  YWB CYKG 271700Z 33030G36KT 6SM -SN DRSN VCBLSN SCT012 OVC018 M09/M12 A2944 RMK ST3SC5 SLP986=  ## [A] Kangiqsujuaq, Kangiqsujuaq (Wakeham Bay) Airport
051646 2022-11-27 18:00  -7 CA CA-SK  YKJ CYKJ 271700Z AUTO 11012G20KT 2 1/4SM -SN OVC022 M07/M09 A2953 RMK SLP040=  ## [A] Key Lake, Key Lake Airport
051648 2022-11-27 18:13  -2 CA CA-QC  YKL CYKL 271713Z AUTO 23005KT 2SM -SN OVC016 M02/M03 A2926 RMK SLP939=  ## [A] Schefferville, Schefferville Airport
051651 2022-11-27 18:00  -9 CA CA-QC  AKV CYKO 271700Z 03020G26KT 15SM DRSN BKN018 BKN075 OVC220 M09/M12 A2971 RMK SC6AC1CS2 AC TR SLP066=  ## [A] Akulivik, Akulivik Airport
051652 2022-11-27 18:00  -3               CYKP 271700Z AUTO 35009KT 320V040 9SM OVC023 M03/M06 A2979 RMK ICE SLP102=  ## [A]
051653 2022-11-23 23:00  -6 CA CA-QC  YKQ CYKQ 232200Z 13006KT 15SM BKN120 BKN160 M06/M10 A3023 RMK AC7AS1 AS TR LAST STFD OBS/NEXT 281400UTC SLP240=  ## [A] Waskaganish, Waskaganish Airport
051661 2022-11-27 18:00  -1 CA CA-SK  YKY CYKY 271700Z CCA 17009KT 15SM SCT060 BKN180 M01/M04 A2931 RMK SC3AC4 SLP955=  ## [A] Kindersley, Kindersley Airport
051663 2022-11-27 15:12  -4 CA CA-QC  YPJ CYLA 271412Z 03017KT 1 1/2SM -SN BR OVC012 M04/M04 A2931 RMK SN5ST3 SNW CVR/ MUCH LOOSE/ LAST STFD OBS/ NXT 281300Z SLP932=  ## [A] Aupaluk, Aupaluk Airport
051665 2022-11-25 21:00 -16 CA CA-NU  YLC CYLC 252000Z 01010KT 15SM SCT090 BKN250 M16/M22 A2978 RMK AS3CS2 LASTSTFD OBS/NXT 281200Z SLP094=  ## [A] Kimmirut, Kimmirut Airport
051666 2022-11-27 18:00   0 CA CA-ON  YLD CYLD 271700Z 02008KT 6SM -SN OVC012 M00/M01 A2963 RMK SC8 SLP058=  ## [A] Chapleau, Chapleau Airport
051670 2022-11-27 18:00  -3 CA CA-ON  YLH CYLH 271700Z AUTO 02007KT 9SM BKN016 OVC030 M03/M06 A2982 RMK SLP117=  ## [A] Lansdowne House, Lansdowne House Airport
051672 2022-11-27 18:00  -5 CA CA-SK  YLJ CYLJ 271700Z 32004KT 15SM OVC090 M05/M06 A2936 RMK AC8 SLP972=  ## [A] Meadow Lake, Meadow Lake Airport
051673 2022-11-27 18:00  -8 CA CA-NT  YSG CYLK 271700Z 06013KT 10SM -SN SCT010 BKN033 OVC050 M08/M10 A2983 RMK SC4SC3SC1 VIS 6 W CIG RAG SLP120=  ## [A] Lutselk'e, Lutselk'e Airport
051674 2022-11-27 18:00  -4 CA CA-AB  YLL CYLL 271700Z 30008KT 15SM BKN060 OVC140 M04/M07 A2932 RMK SC6AC2 SLP967=  ## [A] Lloydminster, Lloydminster Airport
051682 2022-11-27 04:00 -29 CA CA-NU  YLT CYLT 270300Z 00000KT 7SM -SN FEW060 M29/M33 A2982 RMK SC2 LAST OBS /NEXT 281200 UTC SLP104=  ## [A] Alert, Alert Airport
051683 2022-11-27 18:00  -4 CA CA-QC  XGR CYLU 271700Z 21012KT 6SM -SN FEW007 BKN013 OVC017 M04/M06 A2930 RMK SN2SC2ST2SC2 SLP930=  ## [A] Kangiqsualujjuaq, Kangiqsualujjuaq (Georges River) Airport
051685 2022-11-27 18:00  -1 CA CA-BC  YLW CYLW 271700Z AUTO VRB02KT 9SM CLR M01/M03 A2979 RMK SLP107=  ## [A] Kelowna, Kelowna International Airport
051689 2022-11-27 18:00 -13 CA CA-YT  YMA CYMA 271700Z 26002KT 20SM OVC059 M13/M16 A3017 RMK SC8 SLP270=  ## [A] Mayo, Mayo Airport
051696 2022-11-27 18:18   1 CA CA-NL  YMH CYMH 271718Z AUTO 17008KT 5SM BR SCT006 OVC034 01/01 A2946 RMK SLP978=  ## [A] Mary's Harbour, Mary's Harbour Airport
051698 2022-11-26 02:00   5 CA CA-SK  YMJ CYMJ 260100Z 27014G19KT 15SM FEW180 OVC240 05/00 A2963 RMK AC2CI6 SLP051=  ## [A] Moose Jaw, Moose Jaw Air Vice Marshal C. M. McEwen Airport
051701 2022-11-27 18:05  -7 CA CA-AB  YMM CYMM 271705Z AUTO 33012G17KT 3SM -SN BKN012 OVC031 M07/M08 A2948 RMK SLP012=  ## [A] Fort McMurray, Fort McMurray Airport
051703 2022-11-27 18:01  -1 CA CA-ON  YMO CYMO 271701Z AUTO 30007KT 9SM -SN OVC037 M01/M04 A2970 RMK SLP059=  ## [A] Moosonee, Moosonee Airport
051708 2022-11-27 18:22   0 CA CA-QC  YMT CYMT 271722Z AUTO 31006KT 280V350 9SM -SN FEW009 SCT015 OVC029 00/M01 A2955 RMK SLP028=  ## [A] Chibougamau, Chapais Airport
051709 2022-11-11 21:00  -7 CA CA-QC  YUD CYMU 112000Z 08011KT 15SM DRSN OVC044 M07/M11 A3032 RMK SC8 LAST STFD OBS/NEXT 20/1300Z SLP277=  ## [A] Umiujaq, Umiujaq Airport
051712 2022-11-27 18:00   7 CA CA-QC  YMX CYMX 271700Z 24003KT 190V280 45SM BKN190 BKN250 07/02 A2962 RMK AC5CI2 PRESFR SLP035=  ## [A] Montréal, Montreal International (Mirabel) Airport
051715 2022-11-27 18:00   2 CA CA-QC  YNA CYNA 271700Z AUTO 24011G17KT 9SM SCT018 SCT023 BKN029 OVC034 02/M01 A2952 RMK SLP998=  ## [A] Natashquan, Natashquan Airport
051717 2022-10-14 22:00  11 CA CA-QC  YNC CYNC 142000Z 17006KT 120V220 15SM FEW016 SCT035TCU BKN057 11/09 A2971 RMK SF1TCU2SC2 LAST STFD OBS/NEXT 171300UTC SLP062=  ## [A] Wemindji, Wemindji Airport
051718 2022-11-27 18:00   8 CA CA-QC  YND CYND 271700Z VRB02KT 15SM SCT180 BKN220 08/M00 A2961 RMK AC4CI2 PRESFR SLP032=  ## [A] Gatineau, Ottawa / Gatineau Airport
051719 2022-11-27 18:06  -6 CA CA-MB  YNE CYNE 271706Z AUTO 10005KT 6SM BR OVC005 M06/M06 A2984 RMK SLP124=  ## [A] Norway House, Norway House Airport
051727 2022-11-27 18:00  -2 CA CA-QC  YNM CYNM 271700Z AUTO 33008KT 9SM OVC023 M02/M06 A2965 RMK SLP057=  ## [A] Matagami, Matagami Airport
051741 2020-03-26 17:15 -21 CA CA-NT  YOA CYOA 261615Z 31014KT 5SM HZ FEW025 M21/M23 A2927 RMK SC2=  ## [A] Ekati, Ekati Airport
051743 2022-11-27 18:00 -27 CA CA-YT  YOC CYOC 271700Z 24002KT 25SM IC FEW017 FEW030 BKN064 M27/M30 A3054 RMK ST1SC2SC3 ST TR FROIN SLP381=  ## [A] Old Crow, Old Crow Airport
051744 2022-11-27 18:10  -3 CA CA-AB  YOD CYOD 271710Z 32004KT 7SM -SN BKN030 OVC070 M03/M05 A2937 RMK SN2SC3AC3 DENSITY ALT 506FT SLP974=  ## [A] Cold Lake, CFB Cold Lake
051750 2022-11-27 18:00 -10 CA CA-AB  YOJ CYOJ 271700Z 35013G22KT 6SM -SN DRSN OVC018 M10/M12 A2983 RMK SC8 SLP132=  ## [A] High Level, High Level Airport
051755 2022-11-27 18:00   5 CA CA-ON  YOO CYOO 271700Z AUTO 09008KT 9SM -RA BKN045 OVC086 05/04 A2954 RMK PRESFR SLP009=  ## [A] Oshawa, Toronto/Oshawa Executive Airport
051763 2022-11-27 18:00   8 CA CA-ON  YOW CYOW 271700Z 26003KT 200V290 15SM FEW190 BKN240 08/01 A2961 RMK AC2CI5 SLP031=  ## [A] Ottawa, Ottawa Macdonald-Cartier International Airport
051765 2022-11-25 19:07   0 CA CA-QC  YOY CYOY 251807Z 01002KT 1/2SM SN FZFG VV004 M00/M00 A2953 RMK SN8 DENSITY ALT -681FT LAST OBS /NEXT 281200 UTC SLP008=  ## [A] Valcartier, C J.H.L.(Joe) Lecomte) Heliport
051767 2022-11-27 18:00  -6 CA CA-SK  YPA CYPA 271700Z 08009KT 15SM OVC110 M06/M07 A2945 RMK AC8 SLP004=  ## [A] Prince Albert, Prince Albert Glass Field
051769 2022-11-27 18:00 -28 CA CA-NT  YPC CYPC 271700Z 24003KT 15SM FEW015 FEW100 FEW200 M28/M31 A3057 RMK SC1AC1CI1 SC TR SLP355=  ## [A] Paulatuk, Paulatuk (Nora Aliqatchialuk Ruben) Airport
051770 2022-11-27 18:00   4 CA CA-NS  YPS CYPD 271700Z AUTO 29012G19KT 9SM OVC014 04/01 A2966 RMK SLP048=  ## [A] Port Hawkesbury, Port Hawkesbury Airport
051771 2022-11-27 18:00 -10 CA CA-AB  YPE CYPE 271700Z 36016G24KT 6SM -SN DRSN OVC038 M10/M13 A2964 RMK SC8 SLP074=  ## [A] Peace River, Peace River Airport
051773 2022-11-27 13:00  -6 CA CA-MB  YPG CYPG 271200Z CCA 21004KT 15SM BKN180 M06/M07 A2987 RMK AC5 LAST OBS /NEXT 281200 UTC SLP132=  ## [A] Portage la Prairie, Southport Airport
051774 2022-11-27 18:00  -7 CA CA-QC  YPH CYPH 271700Z AUTO 01018G23KT 9SM -SN BKN040 M07/M10 A2961 RMK SLP033=  ## [A] Inukjuak, Inukjuak Airport
051778 2022-11-27 18:00  -6 CA CA-ON  YPL CYPL 271700Z AUTO 03005KT 360V080 9SM OVC014 M06/M09 A2981 RMK SLP121=  ## [A] Pickle Lake, Pickle Lake Airport
051781 2022-11-27 18:00  -4 CA CA-ON  YPO CYPO 271700Z AUTO 32006KT 9SM CLR M04/M07 A2982 RMK SLP103=  ## [A] Peawanuck, Peawanuck Airport
051783 2022-11-27 18:00   4 CA CA-ON  YPQ CYPQ 271700Z AUTO 02003KT 5SM -RA BR SCT071 OVC085 04/04 A2955 RMK PRESFR SLP016=  ## [A] Peterborough, Peterborough Airport
051784 2022-11-27 18:04   1 CA CA-BC  YPR CYPR 271704Z AUTO 06005KT 9SM SCT028 BKN035 OVC042 01/00 A2993 RMK SLP140=  ## [A] Prince Rupert, Prince Rupert Airport
051789 2022-11-27 18:00   3 CA CA-BC  YPW CYPW 271700Z 29007KT 25SM SCT050 SCT061 03/M01 A2995 RMK SC2SC2 SLP148=  ## [A] Powell River, Powell River Airport
051790 2022-11-27 18:00 -10 CA CA-QC  YPX CYPX 271700Z AUTO 34015KT 9SM BKN071 M10/M13 A2965 RMK SLP044=  ## [A] Puvirnituq, Puvirnituq Airport
051791 2022-11-27 18:05  -7 CA CA-AB  YPY CYPY 271705Z AUTO 36013G18KT 2 1/4SM -SN OVC027 M07/M09 A2961 RMK SLP047=  ## [A] Fort Chipewyan, Fort Chipewyan Airport
051793 2022-11-27 18:00   5 CA CA-ON  YQA CYQA 271700Z AUTO 14006KT 9SM BKN076 BKN120 OVC140 05/M00 A2953 RMK SLP011=  ## [A] Muskoka, Muskoka Airport
051794 2022-11-27 18:00   3 CA CA-QC  YQB CYQB 271700Z 25008KT 30SM FEW030 BKN180 BKN240 03/00 A2963 RMK SC1AC5CI2 SC TR SLP040=  ## [A] Quebec, Quebec Jean Lesage International Airport
051796 2022-11-27 18:00  -6 CA CA-MB  YQD CYQD 271700Z AUTO 11013G18KT 9SM OVC055 M06/M08 A2969 RMK SLP076=  ## [A] The Pas, The Pas Airport
051798 2022-11-27 18:00  -1 CA CA-AB  YQF CYQF 271700Z AUTO 32010G16KT 9SM OVC066 M01/M08 A2943 RMK SLP003=  ## [A] Red Deer, Red Deer Regional Airport
051799 2022-11-27 18:21   6 CA CA-ON  YQG CYQG 271721Z AUTO 04012G19KT 2SM -RA BR OVC004 06/06 A2935 RMK PRESFR PCPN 0.8MM PAST HR SLP943=  ## [A] Windsor, Windsor Airport
051800 2022-11-27 18:00 -11 CA CA-YT  YQH CYQH 271700Z 00000KT 30SM OVC095 M11/M12 A3003 RMK AC8 SLP225=  ## [A] Watson Lake, Watson Lake Airport
051801 2022-11-27 18:00  10 CA CA-NS  YQI CYQI 271700Z 19008KT 15SM FEW012 OVC240 10/08 A2975 RMK CF1CS8 CF TR CONTRAILS SLP076=  ## [A] Yarmouth, Yarmouth Airport
051803 2022-11-27 18:00  -2 CA CA-ON  YQK CYQK 271700Z 04005KT 20SM SCT010 BKN037 M02/M05 A2981 RMK SF3SC4 SLP118=  ## [A] Kenora, Kenora Airport
051804 2022-11-27 18:00   3 CA CA-AB  YQL CYQL 271700Z 23019G25KT 60SM FEW050 BKN180 03/M04 A2939 RMK SC1AC5 SLP980=  ## [A] Lethbridge, Lethbridge County Airport
051805 2022-11-27 18:00   8 CA CA-NB  YQM CYQM 271700Z 24009KT 15SM FEW180 SCT260 08/M01 A2966 RMK AC1CI3 AC TR SLP050=  ## [A] Moncton, Greater Moncton International Airport
051809 2022-11-27 18:00   1 CA CA-BC  YQQ CYQQ 271700Z 27004KT 20SM FEW030 FEW070 01/M00 A2997 RMK CF1AC1 SLP151=  ## [A] Comox, Comox Airport
051810 2022-11-27 18:00   1 CA CA-SK  YQR CYQR 271700Z 20015KT 15SM BKN045 OVC075 01/M02 A2947 WS RWY13 RMK SC6AC2 SLP009=  ## [A] Regina, Regina International Airport
051812 2022-11-27 18:00   1 CA CA-ON  YQT CYQT 271700Z 35005KT 330V030 20SM FEW015 OVC055 01/M05 A2978 RMK SC1SC8 SC TR SLP095=  ## [A] Thunder Bay, Thunder Bay Airport
051813 2022-11-27 18:00  -7 CA CA-AB  YQU CYQU 271700Z 34016G22KT 1SM -SN DRSN VV011 M07/M09 A2963 RMK SN8 SLP070=  ## [A] Grande Prairie, Grande Prairie Airport
051814 2022-11-27 18:18  -1 CA CA-SK  YQV CYQV 271718Z AUTO 17010KT 9SM OVC016 M01/M03 A2952 RMK SLP025=  ## [A] Yorkton, Yorkton Municipal Airport
051815 2022-11-27 18:00  -5 CA CA-SK  YQW CYQW 271700Z AUTO 08006KT 9SM OVC091 M05/M07 A2937 RMK SLP976=  ## [A] North Battleford, North Battleford Airport
051816 2022-11-27 18:07   2 CA CA-NL  YQX CYQX 271707Z 34011KT 1/8SM R13/1000V1100FT/N R03/1400V1600FT/N -DZ FG VV002 02/02 A2948 RMK FG8 CIG VRB 1 - 3 PRESRR SLP992=  ## [A] Gander, Gander International Airport
051817 2022-11-27 18:00   6 CA CA-NS  YQY CYQY 271700Z 33007KT 15SM BKN020 06/03 A2962 RMK SC6 CIG ESTD SLP033=  ## [A] Sydney, Sydney / J.A. Douglas McCurdy Airport
051818 2022-11-27 18:00  -4 CA CA-BC  YQZ CYQZ 271700Z AUTO VRB02KT 9SM OVC055 M04/M06 A2973 RMK SLP097=  ## [A] Quesnel, Quesnel Airport
051819 2022-11-26 22:00 -12 CA CA-NT  YRA CYRA 262100Z 15002KT 15SM BKN073 M12/M14 A2973 RMK AS7 LAST STFD OBS/NEXT 271500 Z SLP093=  ## [A] Gamètì, Rae Lakes Airport
051820 2022-11-27 18:00 -33 CA CA-NU  YRB CYRB 271700Z 31016KT 15SM DRSN SKC M33/M36 A2999 RMK SLP171=  ## [A] Resolute Bay, Resolute Bay Airport
051828 2022-11-27 18:00   3 CA CA-QC  YRJ CYRJ 271700Z 24009KT 40SM BKN041 03/00 A2956 RMK SC7 SLP018=  ## [A] Roberval, Roberval Airport
051830 2022-11-27 18:00  -2 CA CA-ON  YRL CYRL 271700Z 00000KT 15SM BKN020 OVC025 M02/M08 A2980 RMK SC5SC3 SLP113=  ## [A] Red Lake, Red Lake Airport
051835 2022-11-27 18:00   4 CA CA-QC  YRQ CYRQ 271700Z AUTO 22009KT 9SM BKN240 04/01 A2964 RMK SLP042=  ## [A] Trois-Rivières, Trois-Rivières Airport
051838 2022-11-27 18:00 -12 CA CA-NU  YRT CYRT 271700Z 11005KT 8SM -SN OVC011 M12/M14 A3003 RMK SC8 SLP174=  ## [A] Rankin Inlet, Rankin Inlet Airport
051840 2022-11-27 18:00   0 CA CA-BC  YRV CYRV 271700Z AUTO VRB09G15KT 9SM FEW012 SCT040 SCT050 BKN160 00/M03 A2968 RMK SLP069=  ## [A] Revelstoke, Revelstoke Airport
051846 2022-11-27 18:00   2 CA CA-ON  YSB CYSB 271700Z 02015G22KT 20SM SCT010 OVC015 02/00 A2953 RMK SC4SC4 PRESFR SLP016=  ## [A] Sudbury, Sudbury Airport
051847 2022-11-27 18:00   8 CA CA-QC  YSC CYSC 271700Z AUTO 21007KT 9SM SCT190 08/M03 A2965 RMK SLP050=  ## [A] Sherbrooke, Sherbrooke Airport
051848 2020-10-01 05:44   8 CA CA-AB  YSD CYSD 010344Z 10004KT 15SM FEW100 FEW220 08/M04 A3043 RMK AC1CI1 DA1679FT LAST OB END EX SLP319=  ## [A] Suffield, Suffield Heliport
051850 2022-11-27 18:22  -8 CA CA-SK  YSF CYSF 271722Z AUTO 09012G17KT 3SM -SN OVC028 M08/M09 A2971 RMK SLP083=  ## [A] Stony Rapids, Stony Rapids Airport
051854 2022-11-27 18:00  10 CA CA-NB  YSJ CYSJ 271700Z 20014G19KT 15SM FEW020 BKN250 10/03 A2969 RMK SC1CI6 SC TR SLP060=  ## [A] Saint John, Saint John Airport
051855 2022-11-27 18:00  -3 CA CA-NU  YSK CYSK 271700Z 34018KT 4SM -SN DRSN BKN014 M03/M05 A2964 RMK SC6 CALL OUT SLP041=  ## [A] Sanikiluaq, Sanikiluaq Airport
051857 2022-11-27 18:00  -9 CA CA-NT  YSM CYSM 271700Z 33004KT 15SM -SN OVC035 M09/M11 A2975 RMK SC8 SLP093=  ## [A] Fort Smith, Fort Smith Airport
051858 2022-11-27 18:00   6 CA CA-ON  YCM CYSN 271700Z 09002KT 8SM -RA OVC038 06/03 A2951 RMK SC8 SLP997=  ## [A] St Catharines, Niagara District Airport
051860 2022-11-27 18:00   0 CA CA-ON  YSP CYSP 271700Z 01007KT 350V060 15SM SCT015 BKN020 OVC058 M00/M03 A2971 RMK SC3SC3SC2 SLP077=  ## [A] Marathon, Marathon Airport
051869 2022-11-25 01:00 -19 CA CA-NT  YSY CYSY 250000Z 08017KT 15SM -SN DRSN FEW051 SCT088 BKN110 BKN140 M19/M22 A2978 RMK SC2AC2AC2AC1 LAST STFD OBS/NEXT 251400Z SLP098=  ## [A] Sachs Harbour, Sachs Harbour (David Nasogaluak Jr. Saaryuaq) Airport
051875 2022-11-27 18:21 -19 CA CA-NU  YTE CYTE 271721Z AUTO 35012KT 6SM BR BKN007 BKN010 M19/M21 A2985 RMK SLP118=  ## [A] Cape Dorset, Cape Dorset Airport
051878 2022-11-27 18:09  -9 CA CA-MB  YTH CYTH 271709Z 00000KT 3/4SM R06/3500V4000FT/N BR OVC003 M09/M10 A2987 RMK ST8 SLP138=  ## [A] Thompson, Thompson Airport
051882 2022-11-27 18:00  -4 CA CA-ON  YTL CYTL 271700Z AUTO /////KT 9SM OVC011 M04/M06 A2985 RMK WIND MISG SLP128=  ## [A] Big Trout Lake, Big Trout Lake Airport
051887 2022-11-27 18:00 -10 CA CA-QC  YTQ CYTQ 271700Z 26010KT 1 1/4SM -SN OVC010 M10/M12 A2935 RMK SC8 SLP946=  ## [A] Tasiujaq, Tasiujaq Airport
051888 2022-11-27 18:00   7 CA CA-ON  YTR CYTR 271700Z 04003KT 6SM -SHRA BKN055 OVC075 07/04 A2959 RMK SC6AC2 DENSITY ALT -150FT VIS VRB 4-8 SLP023=  ## [A] Trenton, CFB Trenton
051889 2022-11-27 18:00   0 CA CA-ON  YTS CYTS 271700Z 35007KT 15SM FEW015 BKN025 OVC180 00/M03 A2968 RMK SC2SC5CI1 SLP065=  ## [A] Timmins, Timmins/Victor M. Power
051896 2022-11-27 18:00   6 CA CA-ON  YTZ CYTZ 271700Z AUTO 06014G19KT 9SM -RA BKN044 OVC050 06/04 A2953 RMK PRESFR SLP005=  ## [A] Toronto, Billy Bishop Toronto City Centre Airport
051897 2022-11-27 18:00 -24               CYUA 271700Z AUTO 25004KT 240V310 ////SM OVC050 M24/M27 A3066=  ## [A]
051898 2022-11-27 18:00 -31 CA CA-NT  YUB CYUB 271700Z 27004KT 15SM FEW090 M31/M34 A3066 RMK AC1 SLP387=  ## [A] Tuktoyaktuk, Tuktoyaktuk Airport
051908 2022-11-27 18:00   9 CA CA-QC  YUL CYUL 271700Z 25005KT 30SM OVC190 09/00 A2963 RMK AC7 PRESFR SLP037=  ## [A] Montréal, Montreal / Pierre Elliott Trudeau International Airport
051915 2022-11-27 18:07 -18               CYUS 271707Z AUTO 32007KT ////SM //// SCT013 BKN020 OVC060 M18/M21 A2998=  ## [A]
051916 2022-11-27 18:00 -25 CA CA-NU  YUT CYUT 271700Z 31006KT 15SM SKC M25/M28 A3006 RMK SLP186=  ## [A] Repulse Bay, Repulse Bay Airport
051920 2022-11-27 18:00 -25 CA CA-NU  YUX CYUX 271700Z 27007KT 10SM BKN070 M25/M27 A2998 RMK AC6 SLP155=  ## [A] Hall Beach, Hall Beach Airport
051921 2022-11-27 18:10   1 CA CA-QC  YUY CYUY 271710Z CCA 01008KT 12SM -SHSN OVC013 01/M01 A2962 RMK SC8 CVCTV CLDS EMBD VIS E 3 SLP048=  ## [A] Rouyn-Noranda, Rouyn Noranda Airport
051925 2022-11-27 18:00  -5 CA CA-SK  YVC CYVC 271700Z 09010KT 15SM FEW025 BKN110 M05/M08 A2950 RMK SC1AS5 SLP018=  ## [A] La Ronge, La Ronge Airport
051934 2022-11-27 18:21 -23 CA CA-NT  YCK CYVL 271721Z AUTO 03007KT 5SM -SN BKN036 OVC076 M23/M25 A3042 RMK SLP344=  ## [A] Colville Lake, Tommy Kochon Airport
051935 2022-11-27 18:00 -17 CA CA-NU  YVM CYVM 271700Z 20005KT 15SM -SN OVC014 M17/M20 A2988 RMK ST8 SLP123=  ## [A] Qikiqtarjuaq, Qikiqtarjuaq Airport
051937 2022-11-27 18:12   2 CA CA-QC  YVO CYVO 271712Z 02009KT 15SM SCT004 OVC011 02/00 A2960 RMK SF3SC5 SLP042=  ## [A] Val-d'Or, Val-d'Or Airport
051938 2022-11-27 18:00  -7 CA CA-QC  YVP CYVP 271700Z VRB02KT 4SM -SN FEW016 SCT041 BKN260 M07/M09 A2935 RMK SC1SC4CS3 SC TR VIS S 10 SLP944=  ## [A] Kuujjuaq, Kuujjuaq Airport
051939 2022-11-27 18:00 -16 CA CA-NT  YVQ CYVQ 271700Z 29014KT 6SM -SN DRSN OVC045 M16/M19 A3049 RMK SC8 /S01/ SLP334=  ## [A] Norman Wells, Norman Wells Airport
051940 2022-11-27 18:00   6 CA CA-BC  YVR CYVR 271700Z 28020G26KT 30SM FEW080 06/00 A2993 RMK AC1 SLP138=  ## [A] Vancouver, Vancouver International Airport
051942 2022-11-27 18:18  -3 CA CA-SK  YVT CYVT 271718Z AUTO 13006KT 2SM -SN OVC030 M03/M04 A2938 RMK SLP978=  ## [A] Buffalo Narrows, Buffalo Narrows Airport
051944 2022-11-27 18:00   5 CA CA-ON  YVV CYVV 271700Z 15004KT 15SM BKN100 OVC150 05/M01 A2950 RMK AS5AC3 SLP997=  ## [A] Wiarton, Wiarton Airport
051949 2022-11-25 19:39   4 CA CA-ON  YWA CYWA 251839Z 29009G18KT 10SM FEW020 OVC035 04/00 A2977 RMK SC2SC6 DENSITY ALT -595FT LAST OBS/NEXT 281300 UTC SLP081=  ## [A] Petawawa, Petawawa Airport
051953 2022-11-27 18:21 -17               CYWE 271721Z AUTO 03008KT 9SM SCT011 BKN110 BKN150 M17/M19 A2998 RMK ICE MISG SLP197=  ## [A]
051955 2022-11-27 18:00  -2 CA CA-MB  YWG CYWG 271700Z 14008KT 15SM FEW140 BKN180 BKN250 M02/M05 A2982 RMK AC1AC6CI1 AC TR SLP113=  ## [A] Winnipeg, Winnipeg / James Armstrong Richardson International Airport
051956 2022-11-27 18:00   6 CA CA-BC  YWH CYWH 271700Z 27016G22KT 15SM FEW030 FEW120 06/00 A2998 RMK CU1AC1 AC TR SLP153=  ## [A] Victoria, Victoria Harbour Seaplane Base
051958 2022-11-27 01:00 -13 CA CA-NT  YWJ CYWJ 270000Z 30007KT 10SM -SN BKN060 BKN130 M13/M15 A2986 RMK SC5AC2 LAST STFD OBS/NXT 271800 UTC SLP137=  ## [A] Déline, Déline Airport
051959 2022-11-27 18:00  -2 CA CA-NL  YWK CYWK 271700Z 26007KT 15SM -SHSN BKN017 BKN140 M02/M04 A2929 RMK CU5AC2 SLP950=  ## [A] Wabush, Wabush Airport
051960 2022-11-27 18:00  -5 CA CA-BC  YWL CYWL 271700Z 25007KT 15SM BKN090 M05/M10 A2970 RMK AC6 SLP101=  ## [A] Williams Lake, Williams Lake Airport
051973 2022-11-26 00:00 -11 CA CA-NT  YWY CYWY 252300Z 31003KT 15SM SCT062 BKN070 M11/M13 A2970 RMK SC3AC4 LAST STFD OBS / NXT 281500Z SLP075=  ## [A] Wrigley, Wrigley Airport
051977 2022-11-27 18:17  -1 CA CA-BC  YXC CYXC 271717Z 28003KT 240V300 10SM SCT005 BKN020 BKN040 M01/M02 A2947 RMK ST3SC2SC2 SLP013=  ## [A] Cranbrook, Cranbrook/Canadian Rockies International Airport
051979 2022-11-27 18:00  -2 CA CA-SK  YXE CYXE 271700Z 15004KT 15SM BKN120 M02/M04 A2936 RMK AC7 SLP973=  ## [A] Saskatoon, Saskatoon John G. Diefenbaker International Airport
051982 2022-11-27 18:00   3 CA CA-AB  YXH CYXH 271700Z 21011KT 30SM BKN070 OVC250 03/M04 A2941 RMK AC7CI1 SLP980=  ## [A] Medicine Hat, Medicine Hat Airport
051984 2022-11-27 18:00 -10 CA CA-BC  YXJ CYXJ 271700Z 34021G29KT 3/4SM R30/P6000FT/N -SN DRSN VV007 M10/M13 A2977 RMK SN8 /S02/ PRESRR SLP130=  ## [A] Fort St.John, Fort St John Airport
051986 2022-11-27 18:00  -2 CA CA-ON  YXL CYXL 271700Z 04003KT 350V090 15SM FEW015 OVC041 M02/M06 A2980 RMK CU2SC6 SLP116=  ## [A] Sioux Lookout, Sioux Lookout Airport
051988 2022-11-27 18:02 -20 CA CA-NU  YXN CYXN 271702Z 05005KT 15SM BKN048 M20/M23 A3005 RMK SC5 WIND ESTD SN CVR/HARD PACK SLP181=  ## [A] Whale Cove, Whale Cove Airport
051990 2022-11-26 21:00 -14 CA CA-NU  YXP CYXP 262000Z 00000KT 15SM FEW025 BKN120 BKN210 M14/M20 A2976 RMK SC1AC5CI2 SC TR LAST STFD OBS/NEXT 271700Z SLP083=  ## [A] Pangnirtung, Pangnirtung Airport
051991 2022-11-27 18:00 -11 CA CA-YT  YXQ CYXQ 271700Z 30008G15KT 3SM -SN OVC035 M11/M13 A3027 RMK SN4SC4 SLP307=  ## [A] Beaver Creek, Beaver Creek Airport
051992 2022-11-27 18:00   2 CA CA-ON  YXR CYXR 271700Z AUTO 01010KT 9SM OVC015 02/M01 A2962 RMK SLP042=  ## [A] Earlton, Earlton (Timiskaming Regional) Airport
051993 2022-11-27 18:20  -6 CA CA-BC  YXS CYXS 271720Z AUTO 35015KT 2SM -SN SCT016 OVC022 M06/M09 A2971 RMK VIS VRB 1-2 1/2 SLP103=  ## [A] Prince George, Prince George Airport
051994 2022-11-27 18:00  -2 CA CA-BC  YXT CYXT 271700Z 28002KT 7SM FEW004 FEW010 SCT020 BKN080 M02/M03 A2992 RMK SF1SC1SC2AC3 SLP146=  ## [A] Terrace, Northwest Regional Airport Terrace-Kitimat
051995 2022-11-27 18:00   6 CA CA-ON  YXU CYXU 271700Z 08009KT 12SM -RA OVC022 06/04 A2943 RMK SC8 SLP974=  ## [A] London, London Airport
051998 2022-11-27 18:00   4 CA CA-BC  YXX CYXX 271700Z 18010KT 25SM FEW025TCU FEW045 FEW200 04/01 A2993 RMK TCU1SC1CC2 TCU TR CONTRAILS SLP140=  ## [A] Abbotsford, Abbotsford Airport
051999 2022-11-27 18:00  -9 CA CA-YT  YXY CYXY 271700Z 35005KT 3SM -SN BKN038 OVC100 M09/M11 A3008 RMK SN4SC2AC2 /S01/ SLP241=  ## [A] Whitehorse, Whitehorse / Erik Nielsen International Airport
052000 2022-11-27 18:00   1 CA CA-ON  YXZ CYXZ 271700Z 02006KT 330V050 15SM FEW015 SCT030 BKN160 01/M03 A2967 RMK ST2SC2AC3 SLP065=  ## [A] Wawa, Wawa Airport
052002 2022-11-27 18:00   4 CA CA-ON  YYB CYYB 271700Z 03006KT 010V090 30SM BKN150 OVC200 04/00 A2953 RMK AC7CI1 PRESFR SLP014=  ## [A] North Bay, North Bay Jack Garland Airport
052003 2022-11-27 18:00  -1 CA CA-AB  YYC CYYC 271700Z 35015G21KT 15SM BKN080 BKN150 M01/M09 A2939 RMK AC6AC1 SLP994=  ## [A] Calgary, Calgary International Airport
052004 2022-11-27 18:00  -3 CA CA-BC  YYD CYYD 271700Z 29003KT 280V030 20SM FEW009 SCT035 BKN090 M03/M05 A2983 RMK SF1SC2AC3 SLP127=  ## [A] Smithers, Smithers Airport
052005 2022-11-27 18:00 -10 CA CA-BC  YYE CYYE 271700Z 32013G21KT 6SM -SN DRSN BKN026 OVC049 M10/M13 A3007 RMK SC5SC3 SLP214=  ## [A] Fort Nelson, Fort Nelson Airport
052006 2022-11-27 18:00   0 CA CA-BC  YYF CYYF 271700Z 00000KT 15SM FEW035 SCT060 BKN090 00/M01 A2982 RMK SC1SC2AC4 SLP115=  ## [A] Penticton, Penticton Airport
052007 2022-11-27 18:00   5 CA CA-PE  YYG CYYG 271700Z 23010KT 15SM FEW015 FEW100 FEW250 05/M01 A2969 RMK SC1AC1CI1 SC TR AC TR CI TR SLP057=  ## [A] Charlottetown, Charlottetown Airport
052008 2022-11-27 05:00 -23 CA CA-NU  YYH CYYH 270400Z 19010KT 15SM -SN FEW032 OVC076 M23/M26 A2992 RMK SC1AC8 SC TR LAST STFD OBS/NXT STFD OBS 271430Z SLP138=  ## [A] Taloyoak, Taloyoak Airport
052010 2022-11-27 18:00   4 CA CA-BC  YYJ CYYJ 271700Z 25006KT 30SM FEW030 04/M00 A2997 RMK SC1 SC TR SLP151=  ## [A] Victoria, Victoria International Airport
052012 2022-11-27 18:07  -8 CA CA-MB  YYL CYYL 271707Z AUTO 11009G16KT 9SM BKN008 OVC034 M08/M08 A2977 RMK SLP110=  ## [A] Lynn Lake, Lynn Lake Airport
052014 2022-11-27 18:00   1 CA CA-SK  YYN CYYN 271700Z AUTO 23021G27KT 9SM CLR 01/M04 A2939 RMK ICE MISG SLP980=  ## [A] Swift Current, Swift Current Airport
052017 2022-11-27 18:14  -6 CA CA-MB  YYQ CYYQ 271714Z 10006KT 15SM OVC065 M06/M09 A3000 RMK SC8 SLP165=  ## [A] Churchill, Churchill Airport
052018 2022-11-27 18:18  -1 CA CA-NL  YYR CYYR 271718Z 00000KT 1 3/4SM -SN OVC031 M01/M03 A2941 RMK SN4SC4 SLP961=  ## [A] Goose Bay, Goose Bay Airport
052020 2022-11-27 18:00   4 CA CA-NL  YYT CYYT 271700Z 03019G26KT 1/2SM R16/2800V3500FT/D -RA FG VV002 04/04 A2928 RMK FG8 SLP923=  ## [A] St. John's, St. John's International Airport
052021 2022-11-27 18:00   0 CA CA-ON  YYU CYYU 271700Z 19002KT 15SM BKN026 OVC170 M00/M05 A2970 RMK SC7AC1 SLP072=  ## [A] Kapuskasing, Kapuskasing Airport
052023 2022-11-27 18:05  -3 CA CA-ON  YYW CYYW 271705Z AUTO 04004KT 310V100 9SM -SN BKN022 OVC045 M03/M07 A2979 RMK SLP111=  ## [A] Armstrong, Armstrong Airport
052025 2022-11-27 18:00   4 CA CA-QC  YYY CYYY 271700Z 22010KT 15SM BKN051 04/00 A2956 RMK SC7 SLP013=  ## [A] Mont-Joli, Mont Joli Airport
052026 2022-11-27 18:00   6 CA CA-ON  YYZ CYYZ 271700Z 09007KT 5SM -RA BR BKN033 OVC045 06/06 A2952 RMK SC6SC2 PRESFR SLP003  ## [A] Toronto, Lester B. Pearson International Airport
052031 2022-11-27 18:00   4 CA CA-ON  YZE CYZE 271700Z AUTO 05020KT 9SM SCT015 BKN081 04/01 A2954 RMK SLP010=  ## [A] Gore Bay, Gore Bay Manitoulin Airport
052032 2022-11-27 18:00 -12 CA CA-NT  YZF CYZF 271700Z 35009KT 3SM -SN BKN020 OVC040 M12/M14 A2990 RMK SC5SC3 SLP148=  ## [A] Yellowknife, Yellowknife Airport
052033 2022-11-27 18:00 -11 CA CA-QC  YZG CYZG 271700Z 03031KT 10SM DRSN BKN012 OVC020 M11/M13 A2964 RMK SC6SC2 SLP061=  ## [A] Salluit, Salluit Airport
052034 2022-11-27 18:00  -5 CA CA-AB  YZH CYZH 271700Z AUTO 28019G26KT 9SM BKN022 OVC110 M05/M09 A2952 RMK SLP025=  ## [A] Slave Lake, Slave Lake Airport
052042 2022-11-27 18:00   3 CA CA-BC  YZP CYZP 271700Z AUTO 30012G18KT 9SM CLR 03/00 A2998 RMK SLP153=  ## [A] Sandspit, Sandspit Airport
052044 2022-11-27 18:03   6 CA CA-ON  YZR CYZR 271703Z AUTO 04012G17KT 8SM OVC029 06/05 A2940 RMK PRESFR SLP963=  ## [A] Sarnia, Chris Hadfield Airport
052045 2022-11-27 18:00 -26 CA CA-NU  YZS CYZS 271700Z 35011KT 15SM FEW030 M26/M29 A3000 RMK SC1 SC TR SLP171=  ## [A] Coral Harbour, Coral Harbour Airport
052046 2022-11-27 18:00   3 CA CA-BC  YZT CYZT 271700Z 21004KT 12SM -SHRA FEW018 BKN041 03/02 A2994 RMK SC2SC5 CVCTV CLD EMBD SLP141=  ## [A] Port Hardy, Port Hardy Airport
052047 2022-11-27 18:00  -4 CA CA-AB  YZU CYZU 271700Z 33020G28KT 15SM FEW028 BKN130 BKN220 M04/M10 A2952 RMK SC2AC4CI1 SLP034=  ## [A] Whitecourt, Whitecourt Airport
052048 2022-11-27 18:00   0 CA CA-QC  YZV CYZV 271700Z 05004KT 15SM -SN FEW007 BKN035 OVC078 00/00 A2950 RMK ST2SC3AC3 SLP995=  ## [A] Sept-Îles, Sept-Îles Airport
052049 2022-11-27 18:00  -9 CA CA-YT  YZW CYZW 271700Z 00000KT 2SM -SN OVC039 M09/M10 A3000 RMK SN4SC4 SLP211=  ## [A] Teslin, Teslin Airport
052050 2022-11-27 18:00  10 CA CA-NS  YZX CYZX 271700Z 23007KT 15SM BKN250 10/M01 A2972 RMK CI6 CIG PDMTLY TRANSPARENT SLP065=  ## [A] Greenwood, CFB Greenwood
052051 2022-11-27 18:11  -6 CA CA-BC  --- CYZY 271711Z AUTO 33008KT 300V010 9SM BKN055 M06/M10 A2977 RMK SLP127=  ## [A] Mackenzie, Mackenzie Airport
052084 2022-11-27 18:00   6 CA CA-NB  ZBF CZBF 271700Z AUTO 27009KT 250V310 9SM CLR 06/M00 A2960 RMK SLP029=  ## [A] Bathurst, Bathurst Airport
052120 2022-11-27 18:00 -27               CZCP 271700Z AUTO 31009KT ////SM //// ////// M27/M29 A3051=  ## [A]
052122 2022-11-27 18:00   2               CZCR 271700Z AUTO 33005KT 02/M01 RMK AO1 SOG 12 8015 SLP022 T00181014 50006=  ## [A]
052132 2022-11-27 18:00 XXX               CZDB 271700Z AUTO 24009KT 06/ RMK AO1 SLP069 T0057 58007=  ## [A]
052168 2022-11-27 18:00   4               CZEL 271700Z AUTO 12005KT 04/03 RMK AO1 4PAST HR 8035 SLP998 P0002 T00390027 50014=  ## [A]
052169 2022-11-25 22:00   0 CA CA-QC  ZEM CZEM 252100Z 28008KT 12SM -SN SCT015 OVC027 M00/M01 A2968 RMK SC3SC5 LAST STFD OBS/NEXT 271500 UTC SLP052=  ## [A] Eastmain River, Eastmain River Airport
052178 2022-11-27 18:00 -28               CZEV 271700Z AUTO 00000KT M28/M31 RMK AO1 SOG 25 1021 SLP386 T12781308=  ## [A]
052183 2022-11-27 18:00 -10 CA CA-YT  ZFA CZFA 271700Z 31005KT 2SM -SN OVC040 M10/M12 A3005 RMK SC8 SLP235=  ## [A] Faro, Faro Airport
052195 2022-11-27 18:00 -21 CA CA-NT  ZFM CZFM 271700Z 33004KT 10SM -SN OVC081 M21/M24 A3066 RMK AS8 SLP391=  ## [A] Fort Mcpherson, Fort Mcpherson Airport
052196 2022-11-27 03:24 -10 CA CA-NT  ZFN CZFN 270224Z 29013KT 5SM -SN SCT034 OVC050 M10/M12 A3002 RMK SC3SC5 LAST STFD OBS NEXT 281600 SLP177=  ## [A] Tulita, Tulita Airport
052201 2022-11-27 18:00  -9               CZFS 271700Z AUTO 31016G22KT M09/M11 RMK AO1 SOG 19 3024 PK WND 32025/1621 SLP226 T10871113=  ## [A]
052259 2022-11-27 18:00 -13               CZHY 271700Z AUTO 33013G19KT M13/M15 RMK AO1 SOG 06 3015 PK WND 34021/1629 SLP148 T11301153=  ## [A]
052316 2022-11-27 18:00  -8               CZKD 271700Z AUTO 07004KT M08/M09 RMK AO1 SOG 23 3003 SLP144 T10791093=  ## [A]
052368 2022-11-27 18:00  -6 CA CA-ON  MSA CZMD 271700Z AUTO 20002KT 9SM OVC012 M06/M07 A2986 RMK SLP133=  ## [A] Muskrat Dam, Muskrat Dam Airport
052374 2022-11-27 18:00   2               CZMJ 271700Z AUTO 21018KT 02/M02 RMK AO1 PK WND 21023/1637 SLP004 T00191018 56020=  ## [A]
052384 2022-11-27 18:00   3 CA CA-BC  ZMT CZMT 271700Z 35008G17KT 15SM SCT030 03/M01 A2997 RMK CU4 SLP151=  ## [A] Masset, Masset Airport
052385 2022-04-25 17:00   5               CZMU 251500Z AUTO 14019KT 05/M02 RMK AO1 PK WND 14026/1456 T00451016=  ## [A]
052428 2022-11-27 18:00   0               CZOL 271700Z AUTO 33011KT M00/M06 RMK AO1 PK WND 34017/1655 T10011055=  ## [A]
052445 2022-11-27 18:00  -1 CA CA-AB  WPC CZPC 271700Z AUTO 14004KT 120V180 9SM FEW033 SCT100 M01/M02 A2939 RMK SLP989=  ## [A] Pincher Creek, Pincher Creek Airport
052461 2022-11-27 17:00  -1               CZPS 271600Z AUTO 35018KT M01/M09 RMK AO1 T10111089=  ## [A]
052510 2022-11-27 18:00 -34               CZRP 271700Z AUTO 29019KT M34/M37 RMK AO1 SOG 68 3014 PK WND 29022/1601 SLP221 T13361369 50002=  ## [A]
052530 2022-11-27 18:00  -6 CA CA-ON  ZSJ CZSJ 271700Z AUTO 02003KT 320V080 9SM OVC012 M06/M08 A2985 RMK SLP132=  ## [A] Sandy Lake, Sandy Lake Airport
052533 2022-11-27 18:00  -9               CZSM 271700Z AUTO 33003KT M09/M11 RMK AO1 SOG 11 1010 SLP092 T10941110=  ## [A]
052536 2022-11-27 18:00   6               CZSP 271700Z AUTO 27007KT 06/M01 RMK AO1 SLP052 T00571011 56007=  ## [A]
052540 2022-11-27 18:00  -1 CA CA-BC  ZST CZST 271700Z 00000KT 12SM OVC015 M01/M01 A2998 RMK SC8 SLP156=  ## [A] Stewart, Stewart Airport
052548 2022-11-27 18:00   1               CZTB 271700Z AUTO 01005KT 01/M04 RMK AO1 SOG 01 8001 SLP096 T00081042=  ## [A]
052585 2022-11-27 18:00  -3 CA CA-NL  ZUM CZUM 271700Z AUTO 21003KT 160V250 1/2SM SN VV014 M03/M04 A2931 RMK SLP954=  ## [A] Churchill Falls, Churchill Falls Airport
052610 2022-11-27 18:00   0 CA CA-AB  --- CZVL 271700Z AUTO 31012G20KT 9SM BKN096 BKN110 M00/M08 A2945 RMK SLP000=  ## [A] Edmonton, Edmonton / Villeneuve Airport
052712 2022-11-27 18:00  -3               CZZJ 271700Z AUTO 30010G15KT M03/M11 RMK AO1 SOG 13 2020 SLP030 T10261111=  ## [A]
------ Algeriet:
052732 2022-11-27 18:00  15 DZ DZ-28  BUJ DAAD 271700Z 32008KT CAVOK 15/02 Q1024=  ## [A] , Bou Saada Airport
052733 2022-11-27 18:00  14 DZ DZ-06  BJA DAAE 271700Z 20004KT 9999 SCT020 SCT233 14/10 Q1024=  ## [A] Béjaïa, Soummam Airport
052735 2022-11-27 18:00  15 DZ DZ-35  ALG DAAG 271700Z 06004KT 9999 FEW026 SCT200 15/10 Q1024=  ## [A] Algiers, Houari Boumediene Airport
052738 2022-11-27 18:00  18 DZ DZ-33  DJG DAAJ 271700Z 01007KT CAVOK 18/M05 Q1016=  ## [A] Djanet, Djanet Inedbirene Airport
052744 2022-11-27 18:00  17 DZ DZ-33  VVZ DAAP 271700Z 34005KT CAVOK 17/M03 Q1018=  ## [A] Illizi, Illizi Takhamalt Airport
052747 2022-11-27 18:00   9 DZ DZ-19  QSF DAAS 271700Z 04005KT 9999 FEW023 SCT100 09/01 Q1024=  ## [A] Sétif, Ain Arnat Airport
052748 2022-11-27 18:00  22 DZ DZ-11  TMR DAAT 271700Z 28006KT CAVOK 22/M07 Q1017=  ## [A] Tamanrasset, Aguenar ? Hadj Bey Akhamok Airport
052750 2022-11-27 18:00  17 DZ DZ-18  GJL DAAV 271700Z 29005KT 9999 FEW020 FEW023TCU SCT030 17/09 Q1023=  ## [A] Jijel, Jijel Ferhat Abbas Airport
052753 2022-11-27 18:00  14 DZ DZ-45  MZW DAAY 271700Z 01008KT CAVOK 14/M14 Q1026=  ## [A] Mecheria, Mecheria Airport
052756 2022-11-27 18:00  14 DZ DZ-36  AAE DABB 271700Z 28004KT 9999 FEW023 SCT200 14/09 Q1023=  ## [A] Annaba, Rabah Bitat Airport
052757 2022-11-27 18:00  10 DZ DZ-25  CZL DABC 271700Z 02006KT 9999 SCT013 FEW023TCU SCT030 10/05 Q1024=  ## [A] Constantine, Mohamed Boudiaf International Airport
052773 2022-11-27 18:00   9 DZ DZ-12  TEE DABS 271700Z 29008KT 9999 FEW033 BKN200 09/02 Q1023=  ## [A] Tébessi, Cheikh Larbi Tébessi Airport
052774 2022-11-27 18:00  10 DZ DZ-05  BLJ DABT 271700Z 02008KT 9999 SCT016 10/05 Q1013=  ## [A] Batna, Batna Airport
052866 2022-11-27 18:00  14 DZ DZ-03  HRM DAFH 271700Z 04005KT CAVOK 14/M03 Q1023=  ## [A] , Hassi R'Mel Airport
053094 2022-11-27 18:00  13 DZ DZ-14  TID DAOB 271700Z VRB02KT CAVOK 13/M10 Q1025=  ## [A] Tiaret, Bou Chekif Airport
053098 2022-11-27 18:00  24 DZ DZ-37  TIN DAOF 271700Z 09010KT 7000 NSC 24/M03 Q1021=  ## [A] Tindouf, Tindouf Airport
053101 2022-11-27 18:00  16 DZ DZ-02  CFK DAOI 271700Z 03005KT CAVOK 16/00 Q1023=  ## [A] , Ech Cheliff Airport
053104 2022-11-27 18:00  19 DZ DZ-31  TAF DAOL 271700Z 08004KT CAVOK 19/03 Q1022=  ## [A] , Tafaraoui Airport
053106 2022-11-27 18:00  19 DZ DZ-13  TLM DAON 271700Z 00000KT CAVOK 19/01 Q1022=  ## [A] Tlemcen, Zenata ? Messali El Hadj Airport
053107 2022-11-27 18:00  16 DZ DZ-31  ORN DAOO 271700Z 34006KT CAVOK 16/10 Q1022=  ## [A] Oran, Es Senia Airport
053110 2022-11-27 18:00  21 DZ DZ-08  CBH DAOR 271700Z 22006KT CAVOK 21/M08 Q1023=  ## [A] Béchar, Béchar Boudghene Ben Ali Lotfi Airport
053114 2022-11-27 18:00  17 DZ DZ-29  MUW DAOV 271700Z VRB02KT CAVOK 17/M15 Q1023=  ## [A] , Ghriss Airport
053117 2022-11-27 18:00  10 DZ DZ-32  EBH DAOY 271700Z 02006KT CAVOK 10/M09 Q1024=  ## [A] El Bayadh, El Bayadh Airport
053235 2022-11-27 18:00  29 DZ DZ-01  BMW DATM 271700Z 02007KT 9999 FEW046 SCT100 29/M02 Q1012=  ## [A] Bordj Badji Mokhtar, Bordj Badji Mokhtar Airport
053249 2022-11-27 18:00  21 DZ DZ-01  AZR DAUA 271700Z 02013KT CAVOK 21/M04 Q1019=  ## [A] , Touat Cheikh Sidi Mohamed Belkebir Airport
053250 2022-11-27 18:00  20 DZ DZ-07  BSK DAUB 271700Z 01011KT 9999 FEW033 SCT200 20/02 Q1019=  ## [A] Biskra, Biskra Airport
053253 2022-11-27 18:00  17 DZ DZ-47  ELG DAUE 271700Z 05004KT CAVOK 17/M01 Q1022=  ## [A] , El Golea Airport
053255 2022-11-27 18:00  17 DZ DZ-47  GHA DAUG 271700Z 01007KT CAVOK 17/M01 Q1022=  ## [A] Ghardaïa, Noumérat - Moufdi Zakaria Airport
053256 2022-11-27 18:00  18 DZ DZ-30  HME DAUH 271700Z 01004KT 350V060 6000 NSC 18/02 Q1020=  ## [A] Hassi Messaoud, Oued Irara Airport
053257 2022-11-27 18:00  20 DZ DZ-11  INZ DAUI 271700Z 04013KT CAVOK 20/M06 Q1018=  ## [A] In Salah, In Salah Airport
053259 2022-11-27 18:00  17 DZ DZ-30  TGR DAUK 271700Z 34003KT CAVOK 17/03 Q1020=  ## [A] Touggourt, Touggourt Sidi Madhi Airport
053260 2022-11-27 18:00  15 DZ DZ-03  LOO DAUL 271700Z 01012KT CAVOK 15/03 Q1022=  ## [A] Laghouat, Laghouat Airport
053263 2022-11-27 18:00  19 DZ DZ-39  ELU DAUO 271700Z 04009KT 2500 SA NSC 19/02 Q1019=  ## [A] Guemar, Guemar Airport
053268 2022-11-27 18:00  18 DZ DZ-01  TMX DAUT 271700Z 05006KT CAVOK 18/M04 Q1021=  ## [A] Timimoun, Timimoun Airport
053269 2022-11-27 18:00  18 DZ DZ-30  OGX DAUU 271700Z 01004KT 7000 NSC 18/M01 Q1019=  ## [A] Ouargla, Ain el Beida Airport
053274 2022-11-27 18:00  15 DZ DZ-33  IAM DAUZ 271700Z 34014KT 8000 NSC 15/01 Q1018=  ## [A] Aménas, In Aménas Airport
053391 2022-05-24 17:00   9               DAZM 241500Z VRB02KT 9000 -RA SCT005 OVC050 09/09 Q1015 RMK PP///=  ## [A]
------ Benin:
053432 2022-11-27 18:00  29 BJ BJ-AQ  COO DBBB 271700Z 22011KT 9999 SCT012 29/24 Q1006 NOSIG=  ## [A] Cotonou, Cadjehoun Airport
054706 2021-06-26 16:00  26               DCYB 261400Z 00000KT 9999 FEW018 SCT300 26/24 Q1016=  ## [A]
------ Burkina Faso:
056242 2022-11-27 18:00  33 BF BF-KAD OUA DFFD 271700Z 35003KT 8000 NSC 33/05 Q1008 TEMPO 4000 HZ=  ## [A] Ouagadougou, Ouagadougou Airport
056454 2019-09-23 06:30  24               DFNH 230430Z AUTO 01006KT CAVOK 24/23 Q1015=  ## [A]
056487 2022-11-27 18:00  31 BF BF-HOU BOY DFOO 271700Z 01004KT CAVOK 31/06 Q1009=  ## [A] Bobo Dioulasso, Bobo Dioulasso Airport
056604 2019-06-16 18:00  26               DFTB 161600Z 33012KT 9999 FEW020 26/18 Q1015=  ## [A]
056612 2019-10-16 01:30  24               DFTJ 152330Z 03009KT 8000 TS SCT020 FEW023CB 24/20 Q1018 NOSIG=  ## [A]
056613 2019-05-18 19:00  22               DFTK 181700Z 06007KT 9999 BKN023 22/12 Q1006=  ## [A]
056626 2019-12-04 08:00  16               DFTX 040700Z 03004KT 0100 FG FEW023 16/15 Q1010=  ## [A]
------ Ghana:
056785 2022-11-27 18:00  28 GH GH-AA  ACC DGAA 271700Z 20015KT 9999 FEW016 FEW030CB 28/25 Q1007 NOSIG=  ## [A] Accra, Kotoka International Airport
057075 2022-08-08 13:00  30 GH GH-NP  TML DGLE 081100Z 23009KT 9999 SCT012 SCT015 30/23 Q1013 NOSIG=  ## [A] Tamale, Tamale Airport
057261 2022-07-29 20:00  29 GH GH-AH  KMS DGSI 291800Z 32003KT 9999 FEW016 29/19 Q1014 NOSIG=  ## [A] Kumasi, Kumasi Airport
057289 2022-10-07 09:00  25 GH GH-WP  TKD DGTK 070700Z 27002KT 9999 BKN008 25/25 Q1013 NOSIG=  ## [A] Sekondi-Takoradi, Takoradi Airport
057958 2019-07-31 06:00  24               DHTD 310400Z AUTO 07004KT 020V100 NCD 24/19 Q1014=  ## [A]
057968 2019-07-18 02:00  23               DHTN 180000Z 05004KT 030V100 8000 FEW020 23/14 Q1013=  ## [A]
058140 2020-09-17 12:00  27               DIAD 171000Z /////KT 8000 BKN013 27/23 Q1013 NOSIG=  ## [A]
------ Elfenbenskusten:
058152 2022-11-27 18:00  28 CI CI-01  ABJ DIAP 271700Z 22008KT 9999 FEW012 28/25 Q1007 NOSIG=  ## [A] Abidjan, Port Bouet Airport
058173 2022-11-27 18:00  29 CI CI-04  BYK DIBK 271700Z 34008KT 9999 FEW015 29/21 Q1009 NOSIG=  ## [A] , Bouaké Airport
058183 2019-11-21 08:00  23 CI CI-08  BDK DIBU 210700Z 00000KT 8000 NSC 23/21 Q1013 NOSIG=  ## [A] Bondoukou, Soko Airport
058411 2021-09-19 07:00  22 CI CI-03  HGO DIKO 190500Z 20002KT CAVOK 22/22 Q1012 NOSIG=  ## [A] Korhogo, Korhogo Airport
058462 2019-11-12 18:00  32 CI CI-06  MJC DIMN 121700Z VRB02KT 9999 FEW015 BKN260 32/23 Q1007 NOSIG=  ## [A] , Man Airport
058504 2021-09-07 13:00  28 CI CI-10  KEO DIOD 071100Z 14002KT 9999 BKN013 28/21 Q1016 NOSIG=  ## [A] Odienne, Odienne Airport
058620 2020-12-25 15:00  31 CI CI-09  SPY DISP 251400Z 18008KT 9999 FEW015TCU 31/25 Q1007 NOSIG=  ## [A] , San Pedro Airport
058623 2019-11-21 08:00  24 CI CI-09  ZSS DISS 210700Z 32002KT 9999 TS FEW013 FEW020CB BKN260 24/22 Q1010 NOSIG=  ## [A] Sassandra, Sassandra Airport
058775 2022-11-27 18:00  31 CI CI-07  ASK DIYO 271700Z 00000KT 9999 FEW015 31/22 Q1007 NOSIG=  ## [A] Yamoussoukro, Yamoussoukro Airport
059126 2019-08-14 04:30  28               DJMB 140230Z 31009KT 290V350 8000 NSC 28/18 Q1013 NOSIG=  ## [A]
060917 2020-04-29 23:00  28               DMCY 292100Z 09015KT 9999 BKN019 28/24 Q1015=  ## [A]
------ Nigeria:
061517 2022-11-27 18:00  31 NG NG-FC  ABV DNAA 271700Z 25005KT 9999 FEW013 31/20 Q1008 NOSIG=  ## [A] Abuja, Nnamdi Azikiwe International Airport
061520 2020-05-19 13:00  29               DNAD 191100Z 34004KT 9999 BKN011 29/25 Q1015=  ## [A]
061527 2022-11-26 18:00  31 NG NG-ON  AKR DNAK 261700Z 00000KT 9999 FEW013 31/20 Q1010=  ## [A] Akure, Akure Airport
061535 2021-03-19 08:00  25 NG NG-DE  ABB DNAS 190700Z 18002KT 2500 BR 0VC006 25/24 Q1012=  ## [A] Asaba, Asaba International Airport
061543 2022-01-13 10:00  26               DNBA 130900Z 02005KT 7000 NSW NSC 26/06 Q1021=  ## [A]
061545 2022-03-16 11:00  28 NG NG-BA  BCU DNBC 161000Z 02005KT 1000 DU NSC 28/09 Q1019=  ## [A] Bauchi, Sir Abubakar Tafawa Balewa International Airport
061547 2022-11-26 11:00  31 NG NG-ED  BNI DNBE 261000Z 28006KT 9999 SCT010 31/25 Q1012=  ## [A] Benin, Benin Airport
061569 2022-11-18 11:00  30 NG NG-CR  CBQ DNCA 181000Z 09004KT 7000 BKN011 30/25 Q1012=  ## [A] Calabar, Margaret Ekpo International Airport
061634 2022-11-27 17:00  33 NG NG-EN  ENU DNEN 271600Z 12005KT 9999 FEW014 33/18 Q1006 NOSIG=  ## [A] Enegu, Akanu Ibiam International Airport
061687 2022-11-27 18:00  29               DNGO 271700Z 00000KT 9000 NSC 29/15 Q1008=  ## [A]
061726 2022-11-27 17:00  32 NG NG-OY  IBA DNIB 271600Z 20003KT 9999 FEW013 FEW020CB 32/22 Q1006=  ## [A] Ibadan, Ibadan Airport
061736 2022-11-27 18:00  32 NG NG-KW  ILR DNIL 271700Z 09003KT 9999 FEW012 32/18 Q1007=  ## [A] Ilorin, Ilorin International Airport
061737 2022-11-26 18:00  29 NG NG-IM  QOW DNIM 261700Z 24006KT 9999 BKN011 29/25 Q1009 NOSIG=  ## [A] Owerri, Sam Mbakwe International Airport
061765 2022-11-27 17:00  27 NG NG-PL  JOS DNJO 271600Z 28004KT CAVOK 27/07 Q1014=  ## [A] Jos, Yakubu Gowon Airport
061777 2022-11-27 17:00  32 NG NG-KD  KAD DNKA 271600Z 01004KT CAVOK 32/10 Q1010 NOSIG=  ## [A] Kaduna, Kaduna Airport
061790 2022-11-27 17:00  29 NG NG-KN  KAN DNKN 271600Z 03007KT 6000 NSC 29/08 Q1011 NOSIG=  ## [A] Kano, Mallam Aminu International Airport
061796 2022-11-27 17:00  30               DNKT 271600Z 09006KT 5000 HZ NSC 30/09 Q1010=  ## [A]
061829 2022-11-24 14:00  34 NG NG-BO  MIU DNMA 241300Z 06007KT CAVOK 34/09 Q1011=  ## [A] Maiduguri, Maiduguri International Airport
061839 2022-09-22 15:00  30 NG NG-BE  MDI DNMK 221300Z 29004KT 9999 BKN014 30/25 Q1009=  ## [A] Makurdi, Makurdi Airport
061841 2022-11-27 18:00  29 NG NG-LA  LOS DNMM 271700Z 18006KT 9999 FEW013 FEW020CB 29/25 Q1007 NOSIG=  ## [A] Lagos, Murtala Muhammed International Airport
061842 2022-11-27 18:00  31 NG NG-NI  MXJ DNMN 271700Z 21004KT CAVOK 31/12 Q1006=  ## [A] Minna, Minna Airport
061921 2022-11-27 18:00  29 NG NG-RI  PHC DNPO 271700Z 16008KT 9999 BKN010 FEW020CB 29/25 Q1006 NOSIG=  ## [A] Port Harcourt, Port Harcourt International Airport
061999 2022-11-27 12:00  32 NG NG-SO  SKO DNSO 271100Z 10005KT CAVOK 32/07 Q1012=  ## [A] Sokoto, Sadiq Abubakar III International Airport
062005 2021-02-22 02:00 XXX               DNSU 220100Z N19 Q1011 NOSIG=  ## [A]
062155 2022-11-27 17:00  34 NG NG-AD  YOL DNYO 271600Z 00000KT CAVOK 34/13 Q1007=  ## [A] Yola, Yola Airport
062167 2022-11-27 08:00  19 NG NG-KD  ZAR DNZA 270700Z 06006KT 5000 HZ NSC 19/04 Q1015=  ## [A] Zaria, Zaria Airport
062573 2019-10-21 02:00  20               DOOQ 210000Z 10012KT 9999 FEW018 20/19 Q1017 NOSIG=  ## [A]
064040 2019-06-25 00:00  22               DQTB 242200Z 10003KT CAVOK 22/20 Q1017=  ## [A]
------ Niger:
064664 2022-11-23 17:00  34 NE NE-5   --- DRRB 231600Z 36008KT 320V070 CAVOK 34/04 Q////=  ## [A] Birni-N'Konni, Birni-N'Konni Airport
064675 2022-11-27 18:00  39 NE NE-4   MFQ DRRM 271700Z 07004KT 6000 NSC 39/02 Q1008=  ## [A] Maradi, Maradi Airport
064676 2022-11-27 18:00  32 NE NE-8   NIM DRRN 271700Z 04005KT 7000 NSC 32/M05 Q1008 NOSIG=  ## [A] Niamey, Diori Hamani International Airport
064682 2022-11-27 18:00  31 NE NE-5   THZ DRRT 271700Z 10002KT 9000 NSC 31/01 Q1009=  ## [A] Tahoua, Tahoua Airport
064871 2022-11-27 18:00  28 NE NE-1   AJY DRZA 271700Z 12004KT CAVOK 28/04 Q1010=  ## [A] Agadez, Mano Dayak International Airport
064876 2021-12-18 18:00  23 NE NE-2   --- DRZF 181700Z 04008KT 6000 NSC 23/M01 Q1015 NOSING=  ## [A] Diffa, Diffa Airport
064888 2022-11-27 18:00  29 NE NE-7   ZND DRZR 271700Z VRB03KT 2800 DU NSC 29/02 Q1010=  ## [A] Zinder, Zinder Airport
064978 2021-04-03 06:00  24               DSDD 030400Z 00000KT 9999 FEW018 24/24 Q1015=  ## [A]
065171 2020-03-09 07:00  23               DSKO 090600Z 36005KT 9999 FEW035 23/18 Q1018 NOSIG=  ## [A]
065368 2022-02-06 19:15  24               DSSD 061815Z 10015G30KT 5000 RA SCT018 BKN070 24/21 Q1016=  ## [A]
065616 2019-06-29 12:00  33               DTBR 291000Z 27010KT CAVOK 33/13 Q1014=  ## [A]
065651 2019-12-15 16:00  18               DTDA 151500Z VRB02KT 9999 FEW026 18/13 Q1018=  ## [A]
065664 2019-07-05 08:00  28               DTDN 050600Z 05002KT CAVOK 28/17 Q1015=  ## [A]
065668 2019-11-10 13:00  19               DTDR 101200Z 18012KT CAVOK 19/M01 Q1016=  ## [A]
065709 2019-09-02 14:00  30               DTFG 021200Z VRB06KT 8000 SCT020 30/17 Q1014 NOSIG=  ## [A]
065764 2019-11-17 05:30  14               DTHJ 170430Z 26018KT 8000 SCT030 14/04 Q1011=  ## [A]
------ Tunisien:
065833 2022-11-27 18:00  15 TN TN-32  TBJ DTKA 271700Z 36006KT 320V030 9999 SCT020 SCT030 15/08 Q1022 NOSIG=  ## [A] Tabarka, Tabarka 7 Novembre Airport
065851 2019-08-27 22:00  26               DTKS 272000Z AUTO 06003KT 020V110 NCD 26/26 Q1015=  ## [A]
065852 2019-06-12 06:00  20               DTKT 120400Z AUTO 28008KT NCD 20/20 Q1012=  ## [A]
065886 2022-11-27 18:00  17 TN TN-52  MIR DTMB 271700Z 36022G32KT 8000 SCT023 BKN030 17/13 Q1019 NOSIG=  ## [A] Monastir, Monastir Habib Bourguiba International Airport
065918 2022-11-27 18:00  16               DTNH 271700Z 34014KT 8000 SCT026 BKN033 16/11 Q1019=  ## [A]
065936 2019-07-15 18:30  34               DTNZ 151630Z 33016KT 9999 FEW026 34/12 Q1007 NOSIG=  ## [A]
065978 2019-10-12 05:00  15               DTPP 120300Z /////KT 8000 NSC 15/12 Q1021=  ## [A]
066046 2019-06-03 17:30  27               DTSF 031530Z 09014KT CAVOK 27/09 Q1017=  ## [A]
066067 2022-11-27 18:00  16 TN TN-11  TUN DTTA 271700Z 34016KT 9999 SCT023TCU SCT030 16/09 Q1020=  ## [A] Tunis, Tunis Carthage International Airport
066068 2022-11-27 18:00 XXX TN TN-23  --- DTTB 271700Z /////KT 9999 BKN016TCU SCT030 Q////=  ## [A] Sidi Ahmed, Sidi Ahmed Air Base
066070 2022-11-27 18:00  16 TN TN-83  --- DTTD 271700Z 36014KT 330V030 5000 BKN026 16/06 Q1017=  ## [A] Remada, Remada Air Base
066071 2019-10-27 21:00  19               DTTE 272000Z 33004KT 9999 SCT026TCU SCT040 19/15 Q1019=  ## [A]
066072 2022-11-27 18:00  16 TN TN-71  GAF DTTF 271700Z 03027KT 7000 SCT026 16/03 Q1019=  ## [A] Gafsa, Gafsa Ksar International Airport
066073 2022-11-27 18:00  18 TN TN-81  GAE DTTG 271700Z 01021G31KT 4000 SA FEW020 SCT030 18/06 Q1018 NOSIG=  ## [A] Gabès, Gabès Matmata International Airport
066074 2019-10-14 02:00  22               DTTH 140000Z 13003KT 9999 FEW026 22/19 Q1020=  ## [A]
066076 2022-11-27 18:00  18 TN TN-82  DJE DTTJ 271700Z 35027KT 8000 FEW023 SCT030 18/12 Q1016 NOSIG=  ## [A] Djerba, Djerba Zarzis International Airport
066077 2022-11-27 18:00  17               DTTK 271700Z 34011G21KT 9999 BKN023 SCT030 17/09 Q1020=  ## [A]
066078 2022-11-27 18:00  17               DTTL 271700Z 34006KT 9999 SCT020 SCT030 17/12 Q1019=  ## [A]
066079 2019-06-04 22:00  21               DTTM 042000Z AUTO 12004KT 060V180 NCD 21/18 Q1013=  ## [A]
066080 2022-11-27 18:00  14               DTTN 271700Z 30003KT 240V030 8000 SCT020 14/08 Q1022=  ## [A]
066084 2022-11-27 17:00  18 TN TN-83  EBM DTTR 271600Z 34019KT 5000 SCT023 18/03 Q1018=  ## [A] El Borma, El Borma Airport
066089 2019-05-30 01:00  20               DTTW 292300Z 07015KT 7000 NSC 20/10 Q1019 NOSIG=  ## [A]
066090 2022-11-27 18:00  17 TN TN-61  SFA DTTX 271700Z 34019KT 6000 FEW020 SCT030 17/09 Q1017=  ## [A] Sfax, Sfax Thyna International Airport
066091 2019-05-06 13:00  20               DTTY 061100Z 12012KT 080V150 CAVOK 20/06 Q1018 NOSIG=  ## [A]
066092 2022-11-27 18:00  18 TN TN-72  TOE DTTZ 271700Z 03018G29KT 5000 NSC 18/01 Q1019=  ## [A] Tozeur, Tozeur Nefta International Airport
066097 2019-06-18 05:00  20               DTUE 180300Z 29007KT 260V320 9999 FEW026 20/16 Q1014=  ## [A]
066102 2019-05-16 01:00  24               DTUJ 152300Z 22008KT 9999 FEW030 24/04 Q1009 NOSIG=  ## [A]
066109 2019-12-11 20:00  13               DTUQ 111900Z 27004KT 240V300 9999 FEW033 13/06 Q1015=  ## [A]
066120 2019-09-29 23:00  20               DTVB 292100Z 33003KT CAVOK 20/18 Q1017=  ## [A]
066125 2019-06-19 23:00  30               DTVG 192100Z 07004KT 9999 FEW030 30/13 Q1013 NOSIG=  ## [A]
066128 2019-08-01 23:00  28               DTVJ 012100Z 12006KT CAVOK 28/22 Q1015 NOSIG=  ## [A]
066132 2019-08-11 20:00  37               DTVN 111800Z 06014KT CAVOK 37/11 Q1011 SIROCCO=  ## [A]
066142 2019-10-18 12:00  27               DTVX 181000Z 16010KT 9999 FEW020 27/19 Q1018 NOSIG=  ## [A]
066327 2019-07-06 18:30  34               DUDA 061630Z 36007KT CAVOK 34/12 Q1013=  ## [A]
066328 2019-12-16 15:00  19               DUDB 161400Z 15012KT CAVOK 19/09 Q1015=  ## [A]
066336 2019-09-13 23:00  26               DUDJ 132100Z 08004KT CAVOK 26/21 Q1023 NOSIG=  ## [A]
066340 2019-09-03 13:00  27               DUDN 031100Z 32008KT 9999 SCT020 SCT030 27/20 Q1019 NOSIG=  ## [A]
067006 2019-06-11 11:00  38               DVDD 110900Z 23020G32KT 200V260 3000 SA SCT026 38/M02 Q1008 RMK SIROCCO=  ## [A]
------ Togo:
068621 2022-11-27 18:00  32 TG TG-K   LRL DXNG 271700Z 06003KT 030V090 CAVOK 32/03 Q1010=  ## [A] Niamtougou, Niamtougou International Airport
068755 2022-11-27 16:00  35 TG TG-C   --- DXSK 271500Z 28002KT 9999 FEW016 BKN260 35/15 Q////=  ## [A] Sokodé, Sokodé Airport
068898 2022-11-27 18:00  29 TG TG-M   LFW DXXX 271700Z 21010KT 9999 FEW014 FEW020CB 29/25 Q1007 NOSIG=  ## [A] Lomé, Lomé-Tokoin Airport
------ Belgien:
071003 2022-11-27 17:50   7 BE BE-VAN ANR EBAW 271650Z 14006KT 9999 -RA OVC026 07/05 Q1014 NOSIG=  ## [A] Antwerp, Antwerp International Airport (Deurne)
071011 2022-11-27 17:55   7 BE BE-WBR --- EBBE 271655Z AUTO 17008KT 9999 -DZ FEW047/// OVC065/// 07/04 Q1013 BLU=  ## [A] Beauvechain, Beauvechain Air Base
071018 2022-11-27 17:55   8 BE BE-VLI --- EBBL 271655Z AUTO 15003KT 9999 -DZ OVC033/// 08/05 Q1014 BLU=  ## [A] Kleine Brogel, Kleine Brogel Air Base
071024 2022-11-27 17:50   7 BE BE-BRU BRU EBBR 271650Z 16006KT 9999 -RA OVC028 07/04 Q1013 NOSIG=  ## [N] Brussels, Brussels Airport
071041 2022-11-27 17:50   7 BE BE-WHT CRL EBCI 271650Z 17010KT 140V200 9999 -RA SCT035 BKN049 07/03 Q1013 NOSIG=  ## [A] Brussels, Brussels South Charleroi Airport
071054 2022-11-23 13:55   8 BE BE-WHT --- EBCV 231255Z AUTO 19011KT 9999 -RA OVC014/// 08/06 Q0995 GRN=  ## [A] Chièvres, Chièvres Air Base
071078 2022-11-27 17:55   7 BE BE-VBR --- EBDT 271655Z AUTO 16009KT 9999 -RA OVC039/// 07/05 Q1014 BLU=  ## [A] Diest, Schaffen Airport
071124 2022-11-27 17:55   8 BE BE-VWV --- EBFN 271655Z AUTO 17008KT 8000 -RA OVC005/// 08/07 Q1011 YLO=  ## [A] Koksijde, Koksijde Air Base
071129 2022-11-27 17:55   7 BE BE-WNA --- EBFS 271655Z AUTO 18012KT 9999 FEW037/// BKN075/// 07/03 Q1014 BLU=  ## [A] Florennes, Florennes Air Base
071268 2022-11-27 17:55   4 BE BE-WLG --- EBLB 271655Z AUTO 17008KT 9999 FEW057/// OVC068/// 04/01 Q1015 BLU=  ## [A] Bütgenbach, Elsenborn Air Base
071273 2022-11-27 17:50   7 BE BE-WLG LGG EBLG 271650Z 17014KT 9999 -RA FEW032 07/03 Q1015 NOSIG=  ## [A] Liège, Liège Airport
071320 2019-10-04 11:00  30               EBNB 040900Z 36009KT 4000 HZ FEW025 SCT100 30/23 Q1007 BECMG 5000 HZ=  ## [A]
071332 2021-04-30 18:00  30               EBNN 301600Z 11004KT 3000 HZ NSC 30/17 Q1005 NOSIG=  ## [A]
071363 2022-11-27 17:50   7 BE BE-VWV OST EBOS 271650Z 17010KT 6000 -RA SCT004 BKN006 07/06 Q1012 TEMPO 4000 -RA BKN004=  ## [A] Ostend, Ostend-Bruges International Airport
071869 2022-03-30 18:24  24               ECIE 301624Z 06008KT 7000 -RA BKN018 24/21 Q1018=  ## [A]
071883 2019-10-29 04:00 XXX               ECIS 290300Z SPECI =  ## [A]
072274 2021-05-23 06:08 XXX               ECXT 231300Z SLP161=  ## [A]
------ Tyskland:
072335 2022-11-27 17:50   2 DE DE-TH  AOC EDAC 271650Z AUTO 15003KT 9999 // OVC180/// 02/01 Q1022=  ## [A] Altenburg, Altenburg-Nobitz Airport
072340 2022-11-27 17:50   5 DE DE-MV  HDF EDAH 271650Z AUTO 13008KT 5000 // SCT210/// 05/05 Q1024=  ## [A] Heringsdorf, Heringsdorf Airport
072361 2022-11-27 17:50   4 DE DE-ST  CSO EDBC 271650Z AUTO 14011KT 9999 // FEW120/// OVC150/// 04/03 Q1021=  ## [A] Magdeburg, Cochstedt Airport
072412 2022-11-27 18:20   5 DE DE-BR  SXF EDDB 271720Z AUTO 13007KT CAVOK 05/03 Q1023 NOSIG=  ## [A] Berlin, Berlin-Schönefeld Airport
072413 2022-11-27 18:20   3 DE DE-SN  DRS EDDC 271720Z AUTO 15009KT CAVOK 03/00 Q1023 NOSIG=  ## [A] Dresden, Dresden Airport
072415 2022-11-27 18:20   5 DE DE-TH  ERF EDDE 271720Z AUTO 17007KT CAVOK 05/00 Q1020=  ## [A] Erfurt, Erfurt Airport
072416 2022-11-27 18:20   6 DE DE-HE  FRA EDDF 271720Z AUTO 07005KT CAVOK 06/04 Q1020 NOSIG=  ## [A] Frankfurt am Main, Frankfurt am Main Airport
072417 2022-11-27 18:20   7 DE DE-NW  FMO EDDG 271720Z AUTO 13005KT 100V160 9999 -RA NSC 07/04 Q1016 NOSIG=  ## [A] Münster, Münster Osnabrück Airport
072418 2022-11-27 18:20   5 DE DE-HH  HAM EDDH 271720Z AUTO 12007KT 090V150 CAVOK 05/03 Q1019 NOSIG=  ## [A] Hamburg, Hamburg Airport
072421 2022-11-27 18:20   6 DE DE-NW  CGN EDDK 271720Z AUTO 13009KT 9999 -RA NSC 06/04 Q1017 NOSIG=  ## [A] Cologne, Cologne Bonn Airport
072422 2022-11-27 18:20   8 DE DE-NW  DUS EDDL 271720Z AUTO 15014KT 9999 BKN049 08/03 Q1015 TEMPO 15015G25KT=  ## [A] Düsseldorf, Düsseldorf Airport
072423 2022-11-27 18:20   1 DE DE-BY  MUC EDDM 271720Z AUTO 12009KT 9999 OVC005 01/00 Q1022 BECMG 10005KT OVC004=  ## [A] Munich, Munich Airport
072424 2022-11-27 18:20   3 DE DE-BY  NUE EDDN 271720Z AUTO 13009KT 9999 BKN011 03/01 Q1022 NOSIG=  ## [A] Nuremberg, Nuremberg Airport
072426 2022-11-27 18:20   5 DE DE-SN  LEJ EDDP 271720Z AUTO 16008KT CAVOK 05/01 Q1021=  ## [A] Leipzig, Leipzig/Halle Airport
072428 2022-11-27 18:20   6 DE DE-SL  SCN EDDR 271720Z AUTO 10004KT CAVOK 06/03 Q1017 NOSIG=  ## [A] Saarbrücken, Saarbrücken Airport
072429 2022-11-27 18:20   5 DE DE-BW  STR EDDS 271720Z AUTO 14006KT CAVOK 05/00 Q1019 NOSIG=  ## [A] Stuttgart, Stuttgart Airport
072430 2020-11-09 07:50   6 DE DE-BE  TXL EDDT 090650Z 09006KT 050V120 3000 BR OVC003 06/05 Q1027=  ## [A] Berlin, Berlin-Tegel Airport
072432 2022-11-27 18:20   7 DE DE-NI  HAJ EDDV 271720Z AUTO 10005KT 080V140 CAVOK 07/02 Q1018 NOSIG=  ## [A] Hannover, Hannover Airport
072433 2022-11-27 18:20   6 DE DE-HB  BRE EDDW 271720Z AUTO 13006KT 9999 -RA FEW040 06/04 Q1017 NOSIG=  ## [A] Bremen, Bremen Airport
072470 2022-11-27 17:50   4 DE DE-RP  HHN EDFH 271650Z 14012KT 9999 -DZ FEW036 04/03 Q1017=  ## [A] Frankfurt am Main, Frankfurt-Hahn Airport
072475 2022-11-27 17:50   6 DE DE-BW  MHG EDFM 271650Z 18002KT CAVOK 06/04 Q1020=  ## [A] Mannheim, Mannheim-City Airport
072507 2022-11-27 17:50   4 DE DE-NW  SGE EDGS 271650Z AUTO 15008KT 9999 // OVC066/// 04/01 Q1018=  ## [A] , Siegerland Airport
072523 2022-11-27 17:50   6 DE DE-HH  XFW EDHI 271650Z AUTO 11004KT 060V160 9999 // SCT097/// OVC110/// 06/05 Q1019=  ## [A] Hamburg, Hamburg-Finkenwerder Airport
072525 2022-11-27 17:50   5 DE DE-SH  KEL EDHK 271650Z AUTO 18007KT 140V200 9999 OVC094/// 05/04 Q1020=  ## [A] Kiel, Kiel-Holtenau Airport
072526 2022-11-27 17:50   5 DE DE-SH  LBC EDHL 271650Z 16005KT 100V220 CAVOK 05/03 Q1020=  ## [A] Lübeck, Lübeck Blankensee Airport
072567 2022-11-27 17:50   2 DE DE-BY  FMM EDJA 271650Z 05004KT CAVOK 02/M01 Q1020=  ## [A] Memmingen, Memmingen Allgau Airport
072593 2019-08-14 07:00  21 DE DE-NW  AAH EDKA 140500Z AUTO 22007KT NCD 21/21 Q1017=  ## [A] Aachen, Aachen-Merzbrück Airport
072632 2022-11-27 17:50   8 DE DE-NW  MGL EDLN 271650Z 14007KT CAVOK 08/04 Q1016=  ## [A] Mönchengladbach, Mönchengladbach Airport
072634 2022-11-27 17:50   8 DE DE-NW  PAD EDLP 271650Z 17016KT CAVOK 08/M00 Q1017=  ## [A] Paderborn, Paderborn Lippstadt Airport
072640 2022-11-27 17:50   8 DE DE-NW  NRN EDLV 271650Z 15008KT 9999 -RA OVC040 08/05 Q1015=  ## [A] Weeze, Weeze Airport
072641 2022-11-27 17:50   8 DE DE-NW  DTM EDLW 271650Z 16010KT 9999 FEW029 08/02 Q1017=  ## [A] Dortmund, Dortmund Airport
072645 2022-11-27 17:50   0 DE DE-BY  AGB EDMA 271650Z 11007KT 080V140 1100 R25/1700D BR VV/// 00/00 Q1022=  ## [A] Augsburg, Augsburg Airport
072659 2022-11-27 17:50   1 DE DE-BY  OBF EDMO 271650Z 08005KT 0600 R22/1000D FG OVC002 01/00 Q1022=  ## [A] , Oberpfaffenhofen Airport
072695 2022-11-27 17:50   2 DE DE-BW  FDH EDNY 271650Z 05004KT 360V080 CAVOK 02/01 Q1021=  ## [A] Friedrichshafen, Friedrichshafen Airport
072761 2022-11-27 17:50   1 DE DE-BY  HOQ EDQM 271650Z 14008KT 6000 SCT003 OVC004 01/00 Q1022=  ## [A] Hof, Hof-Plauen Airport
072802 2022-11-27 17:50   5 DE DE-BW  FKB EDSB 271650Z VRB02KT CAVOK 05/03 Q1020=  ## [A] Baden-Baden, Karlsruhe Baden-Baden Airport
072830 2019-11-18 10:00  15 DE DE-BW  ZQL EDTD 180900Z 19004KT 140V260 CAV?O 15/M00 Q1020=  ## [A] Donaueschingen, Donaueschingen-Villingen Airport
072832 2019-07-05 21:00  37 DE DE-BW  --- EDTF 051900Z 15011KT 8000 NSC 37/10 Q1011=  ## [A] Freiburg im Breisgau, Freiburg i. Br. Airport
072837 2019-10-27 03:00  17 DE DE-BW  --- EDTK 270200Z VRB02KT 8000 SCT023 BKN030 17/14 Q1019=  ## [A] Karlsruhe, Karlsruhe-Forchheim Airport
072838 2022-11-27 17:50   6 DE DE-BW  LHA EDTL 271650Z 12003KT CAVOK 06/05 Q1019=  ## [A] , Lahr Airport
072851 2022-11-27 17:50   3 DE DE-BW  --- EDTY 271650Z 10004KT 060V150 CAVOK 03/M00 Q1020=  ## [A] Schwäbisch Hall, Adolf Würth Airport
072883 2022-11-27 17:20   5 DE DE-NI  BWE EDVE 271620Z 11005KT CAVOK 05/03 Q1020=  ## [A] Braunschweig, Braunschweig-Wolfsburg Airport
072889 2022-11-27 17:50   6 DE DE-HE  KSF EDVK 271650Z 14015KT CAVOK 06/03 Q1019=  ## [A] Kassel, Kassel-Calden Airport
072909 2022-11-27 17:50   6 DE DE-NI  EME EDWE 271650Z AUTO 14011KT 9999 // SCT031/// OVC038/// 06/04 Q1016=  ## [A] Emden, Emden Airport
072953 2022-11-27 17:50   5 DE DE-SH  GWT EDXW 271650Z AUTO 15014KT 8000 // BKN030/// OVC038/// 05/04 Q1017=  ## [A] Westerland, Westerland Sylt Airport
073076 2021-08-03 14:00  39               EECP 031200Z 04006KT CAVOK 39/08 Q1006 NOSIG=  ## [A]
------ Estland:
073121 2022-11-27 17:50  -3 EE EE-37  --- EEEI 271650Z 12005KT 9999 FEW009 M03/M05 Q1030 NOSIG=  ## [A] Keila, Ämari Air Base
073269 2022-11-27 17:20  -2 EE EE-39  KDL EEKA 271620Z 12006KT 9999 BKN008 M02/M03 Q1029=  ## [A] Kärdla, Kärdla Airport
073273 2022-11-27 18:20   0 EE EE-74  URE EEKE 271720Z 04004KT 8000 -SN OVC014 M00/M00 Q1028=  ## [A] Kuressaare, Kuressaare Airport
073419 2022-11-27 18:20  -3 EE EE-67  EPU EEPU 271720Z AUTO 11004KT 9999 FEW007/// OVC039/// M03/M04 Q1030=  ## [A] Pärnu, Pärnu Airport
073516 2022-11-27 18:20  -3 EE EE-37  TLL EETN 271720Z 12007KT CAVOK M03/M04 Q1030 NOSIG=  ## [A] Tallinn, Lennart Meri Tallinn Airport
073523 2022-11-27 18:20  -3 EE EE-7B  TAY EETU 271720Z AUTO 10007KT 9999 OVC005/// M03/M04 Q1030=  ## [A] Tartu, Tartu Airport
------ Finland:
073808 2022-11-27 18:20  -2 FI FI-LL  ENF EFET 271720Z AUTO 20011KT 9000 -SN OVC009 M02/M03 Q1022=  ## [A] Enontekio, Enontekio Airport
073867 2022-11-27 18:20  -4 FI FI-LS  KEV EFHA 271720Z AUTO 13005KT 100V160 9999 OVC007 M04/M05 Q1030=  ## [A] Halli / Kuorevesi, Halli Airport
073877 2022-11-27 18:20  -4 FI FI-ES  HEL EFHK 271720Z 05008KT 9999 BKN004 BKN010 M04/M04 Q1030 TEMPO BKN005=  ## [A] Helsinki, Helsinki Vantaa Airport
073914 2022-11-27 18:20  -1 FI FI-LL  IVL EFIV 271720Z 20011KT 170V230 9999 -SN OVC010 M01/M03 Q1024=  ## [A] Ivalo, Ivalo Airport
073933 2022-11-27 18:20  -8 FI FI-IS  JOE EFJO 271720Z AUTO 13005KT 9999 -FZDZSN OVC002 M08/M09 Q1033=  ## [A] Joensuu / Liperi, Joensuu Airport
073943 2022-11-27 18:20  -3 FI FI-LS  JYV EFJY 271720Z AUTO 14006KT 9999 -SN FEW007 BKN023 BKN049 M03/M05 Q1031=  ## [A] Jyväskylän Maalaiskunta, Jyvaskyla Airport
073949 2022-11-27 18:20  -2 FI FI-LL  KEM EFKE 271720Z AUTO 16006KT 130V200 9999 OVC005 M02/M03 Q1030=  ## [A] Kemi / Tornio, Kemi-Tornio Airport
073953 2022-11-27 18:20  -8 FI FI-OL  KAJ EFKI 271720Z AUTO 14005KT 110V180 9999 OVC005 M08/M09 Q1032=  ## [A] Kajaani, Kajaani Airport
073955 2022-11-27 18:20  -1 FI FI-LS  KOK EFKK 271720Z 15006KT 9999 BKN029 OVC047 M01/M04 Q1030=  ## [A] Kokkola / Kruunupyy, Kokkola-Pietarsaari Airport
073963 2022-11-27 18:20  -8 FI FI-OL  KAO EFKS 271720Z AUTO 19008KT 9999 OVC005 M08/M08 Q1030=  ## [A] Kuusamo, Kuusamo Airport
073964 2022-11-27 18:20  -2 FI FI-LL  KTT EFKT 271720Z 19012KT 6000 -SN OVC017 M02/M02 Q1024=  ## [A] Kittilä, Kittilä Airport
073965 2022-11-27 18:20  -6 FI FI-IS  KUO EFKU 271720Z AUTO 13006KT 100V160 9999 OVC004 M06/M07 Q1033=  ## [A] Kuopio / Siilinjärvi, Kuopio Airport
073986 2022-11-27 18:20  -6 FI FI-ES  LPP EFLP 271720Z AUTO 10004KT 080V140 8000 -SHSN OVC004 M06/M07 Q1032=  ## [A] Lappeenranta, Lappeenranta Airport
073997 2022-11-27 18:20   2 FI FI-AL  MHQ EFMA 271720Z AUTO 12003KT 9999 OVC013 02/00 Q1028=  ## [A] , Mariehamn Airport
074005 2022-11-27 18:20  -3 FI FI-IS  MIK EFMI 271720Z AUTO 10004KT 9999 -SN OVC007 M03/M05 Q1032=  ## [A] Mikkeli, Mikkeli Airport
074069 2022-11-27 18:20  -3 FI FI-OL  OUL EFOU 271720Z AUTO 14008KT 9999 OVC003 M03/M04 Q1031=  ## [A] Oulu / Oulunsalo, Oulu Airport
074089 2022-11-27 18:20  -2 FI FI-LS  POR EFPO 271720Z AUTO 11007KT 8000 -SN FEW005 OVC025 M02/M03 Q1029=  ## [A] Pori, Pori Airport
074141 2022-11-27 18:20  -4 FI FI-LL  RVN EFRO 271720Z AUTO 18010KT 9000 -SN OVC002 M04/M05 Q1028=  ## [A] Rovaniemi, Rovaniemi Airport
074153 2022-11-27 18:20  -5 FI FI-IS  SVL EFSA 271720Z 09004KT 9999 -SN OVC004 M05/M06 Q1033=  ## [A] Savonlinna, Savonlinna Airport
074161 2022-11-27 18:20  -2 FI FI-LS  SJY EFSI 271720Z AUTO 15005KT 9999 -SN FEW009 OVC023 M02/M04 Q1030=  ## [A] Seinäjoki / Ilmajoki, Seinäjoki Airport
074194 2022-11-27 18:20  -3 FI FI-LS  TMP EFTP 271720Z AUTO 11004KT 080V140 9999 -SN OVC004 M03/M04 Q1030=  ## [A] Tampere / Pirkkala, Tampere-Pirkkala Airport
074199 2022-11-27 18:20  -3 FI FI-LS  TKU EFTU 271720Z AUTO 08005KT 5000 -SN FEW007 SCT008 OVC016 M03/M04 Q1029=  ## [A] Turku, Turku Airport
074224 2022-11-27 18:20  -5 FI FI-ES  UTI EFUT 271720Z AUTO 10008KT 8000 -SN OVC006 M05/M07 Q1031=  ## [A] Utti / Valkeala, Utti Air Base
074231 2022-11-27 18:20  -2 FI FI-LS  VAA EFVA 271720Z AUTO 14007KT 9999 BKN028 OVC044 M02/M03 Q1030=  ## [A] Vaasa, Vaasa Airport
------ Storbritannien:
074361 2022-11-27 17:50   8 GB GB-NIR BFS EGAA 271650Z AUTO 18008KT 150V210 9999 NCD 08/05 Q1001=  ## [A] Belfast, Belfast International Airport
074363 2022-11-27 17:50   9 GB GB-NIR BHD EGAC 271650Z AUTO 19012KT 9999 NCD 09/05 Q1001=  ## [A] Belfast, George Best Belfast City Airport
074365 2022-11-27 17:50  10 GB GB-NIR LDY EGAE 271650Z 16014KT 9999 FEW032 10/06 Q0998=  ## [A] Derry, City of Derry Airport
074388 2022-11-27 17:50   9 GB GB-ENG BHX EGBB 271650Z 16003KT 8000 SCT025 09/08 Q1009=  ## [A] Birmingham, Birmingham International Airport
074396 2022-11-27 17:50  10 GB GB-ENG GLO EGBJ 271650Z 19004KT 8000 FEW008 BKN045 10/09 Q1009=  ## [A] Staverton, Gloucestershire Airport
074415 2022-11-27 17:50   9 GB GB-ENG MAN EGCC 271650Z AUTO 15003KT 090V190 9999 NCD 09/07 Q1008 NOSIG=  ## [A] Manchester, Manchester Airport
074423 2022-11-27 17:50  11 GB GB-WLS --- EGCK 271650Z 17016KT 9000 -RA FEW007 SCT018 BKN041 11/09 Q1006=  ## [A] Caernarfon, Caernarfon Airport
074426 2022-11-27 17:50   7 GB GB-ENG DSA EGCN 271650Z 17005KT CAVOK 07/06 Q1009=  ## [A] Doncaster, Robin Hood Doncaster Sheffield Airport
074447 2019-06-13 13:00  12               EGDI 131100Z 21006KT 4000 -RA FEW006 BKN010 OVC020 12/11 Q1004 GRN=  ## [A]
074451 2022-11-27 17:50  10 GB GB-ENG --- EGDM 271650Z AUTO 19004KT 5000 // FEW004/// 10/10 Q1009=  ## [A] Amesbury, MoD Boscombe Down Airport
074456 2022-11-27 17:50  11 GB GB-ENG --- EGDR 271650Z AUTO 21008KT 9999 FEW015/// SCT029/// 11/09 Q1009=  ## [A] Helston, RNAS Culdrose
074463 2022-11-27 17:50   9 GB GB-ENG YEO EGDY 271650Z AUTO 18003KT 8000 BR FEW031/// 09/08 Q1009=  ## [A] Yeovil, RNAS Yeovilton
074467 2022-11-25 18:20  10 GB GB-SCT CAL EGEC 251720Z 24017KT 9999 FEW044 10/07 Q1010=  ## [A] Campbeltown, Campbeltown Airport
074479 2022-11-27 16:20  10 GB GB-SCT OBN EGEO 271520Z 18011KT 9999 VCSH BKN025 BKN053 10/07 Q1000=  ## [A] North Connel, Oban Airport
074496 2022-11-27 17:50  11 GB GB-WLS CWL EGFF 271650Z AUTO 22004KT 190V260 9999 SCT034 11/08 Q1009=  ## [A] Cardiff, Cardiff International Airport
074520 2022-11-27 17:50   9 GB GB-ENG BRS EGGD 271650Z AUTO 19004KT 180V250 9999 NCD 09/07 Q1009=  ## [A] Bristol, Bristol Airport
074532 2022-11-27 17:50  10 GB GB-ENG LPL EGGP 271650Z 16008KT 120V230 9000 SCT024 BKN036 10/08 Q1007=  ## [A] Liverpool, Liverpool John Lennon Airport
074539 2022-11-27 17:50  10 GB GB-ENG LTN EGGW 271650Z 21003KT 9000 NSC 10/10 Q1010=  ## [A] London, London Luton Airport
074545 2022-11-26 11:50  12 GB GB-ENG LEQ EGHC 261050Z 17026KT 6000 -RADZ FEW006 BKN013 12/11 Q1017=  ## [A] Land's End, Land's End Airport
074547 2022-11-26 11:50  12 GB GB-ENG ISC EGHE 261050Z 18032G42KT 2000 RA BR BKN007 OVC020 12/12 Q1016=  ## [A] St. Mary's, St. Mary's Airport
074550 2022-11-27 17:50  11 GB GB-ENG BOH EGHH 271650Z 19003KT 8000 FEW011 SCT022 BKN045 11/11 Q1009=  ## [A] Bournemouth, Bournemouth Airport
074551 2022-11-27 17:50  11 GB GB-ENG SOU EGHI 271650Z 00000KT 7000 -RA FEW009 SCT040 11/10 Q1010=  ## [A] Southampton, Southampton Airport
074559 2022-11-27 17:50  10 GB GB-ENG NQY EGHQ 271650Z 18007KT 9999 VCSH FEW030CB 10/08 Q1009=  ## [A] Newquay, Newquay Cornwall Airport
------ Guernsey:
074595 2022-11-27 17:50  10 GG GG-U-A ACI EGJA 271650Z 20005KT 160V220 9999 VCSH FEW003 BKN018 10/10 Q1011=  ## [A] Saint Anne, Alderney Airport
074596 2022-11-27 17:50  11 GG GG-U-A GCI EGJB 271650Z 23005KT 9999 FEW006 11/11 Q1011=  ## [A] Saint Peter Port, Guernsey Airport
------ Jersey:
074604 2022-11-27 17:50  12 JE JE-U-A JER EGJJ 271650Z 25009KT 9999 -RA FEW004 SCT005 12/12 Q1011=  ## [A] Saint Helier, Jersey Airport
------ Storbritannien:
074621 2022-11-27 17:50  11 GB GB-ENG ESH EGKA 271650Z 00000KT 6000 -RA FEW011 BKN040 11/11 Q1010 RERA REDZ=  ## [A] Brighton, Shoreham Airport
074622 2022-11-27 17:50  11 GB GB-ENG BQH EGKB 271650Z 23005KT 9999 -RADZ FEW015 SCT045 11/10 Q1010=  ## [A] London, London Biggin Hill Airport
074631 2022-11-27 17:50  12 GB GB-ENG LGW EGKK 271650Z 24004KT 9999 -RA FEW007 SCT015 12/11 Q1010=  ## [N] London, London Gatwick Airport
074649 2022-11-27 17:50  12 GB GB-ENG LCY EGLC 271650Z AUTO 24007KT 9999 -RA FEW013 12/10 Q1010=  ## [A] London, London City Airport
074652 2022-11-27 17:50  11 GB GB-ENG FAB EGLF 271650Z 13006KT 100V170 9000 -RA SCT045 11/10 Q1009=  ## [A] Farnborough, Farnborough Airport
074658 2022-11-27 17:50  11 GB GB-ENG LHR EGLL 271650Z AUTO 22007KT 9999 -RA NCD 11/10 Q1010=  ## [A] London, London Heathrow Airport
074675 2022-11-27 17:50  12 GB GB-ENG SEN EGMC 271650Z 23005KT 6000 -RA FEW008 BKN024 12/11 Q1010=  ## [A] Southend, Southend Airport
074676 2022-11-27 17:50  13 GB GB-ENG LYX EGMD 271650Z 24006KT 8000 RA SCT005 BKN017 BKN039 13/12 Q1010=  ## [A] Lydd,  Ashford, Lydd Airport
074701 2020-03-27 15:50  11 GB GB-ENG CAX EGNC 271450Z 07008KT 050V110 9000 FEW035 BKN045 11/04 Q1029=  ## [A] Carlisle, Carlisle Airport
074706 2022-11-27 17:50   9 GB GB-ENG BLK EGNH 271650Z 18013KT 9000 SCT021 09/07 Q1006 WS R10=  ## [A] Blackpool, Blackpool International Airport
074708 2022-11-27 17:50  10 GB GB-ENG HUY EGNJ 271650Z 20006KT 9000 FEW030 10/09 Q1009=  ## [A] Grimsby, Humberside Airport
074711 2022-11-27 17:50   7 GB GB-ENG LBA EGNM 271650Z 19007KT 9999 FEW008 07/05 Q1007=  ## [A] Leeds, Leeds Bradford Airport
074713 2022-11-25 17:50   9 GB GB-ENG WRT EGNO 251650Z 24008KT 9999 SCT028 09/06 Q1015=  ## [A] Warton, Warton Airport
074716 2022-11-27 17:50   9 GB GB-WLS CEG EGNR 271650Z 16012KT 9000 SCT027 09/07 Q1008=  ## [A] Hawarden, Hawarden Airport
------ Isle of Man:
074717 2022-11-27 17:50  11 IM IM-U-A IOM EGNS 271650Z 20021KT 9999 SCT017 BKN022 11/08 Q1003 NOSIG=  ## [A] Castletown, Isle of Man Airport
------ Storbritannien:
074718 2022-11-27 17:20   8 GB GB-ENG NCL EGNT 271620Z 17003KT 120V210 9000 FEW038 08/06 Q1006=  ## [A] Newcastle, Newcastle Airport
074720 2022-11-27 17:50   8 GB GB-ENG MME EGNV 271650Z 18008KT 9000 NSC 08/06 Q1007=  ## [A] Durham, Durham Tees Valley Airport
074722 2022-11-27 17:50   9 GB GB-ENG EMA EGNX 271650Z 19005KT 9000 SCT024 09/08 Q1009=  ## [A] Nottingham, East Midlands Airport
074737 2022-11-27 17:50   7 GB GB-ENG --- EGOM 271650Z AUTO 17009KT 9999 FEW036/// 07/05 Q1005=  ## [A] Spadeadam, RAF Spadeadam
074740 2022-11-27 17:50 XXX               EGOP 271650Z AUTO 21018KT //// VV/// ///// Q////=  ## [A]
074743 2022-11-27 17:50   9 GB GB-ENG --- EGOS 271650Z AUTO 16007KT 9000 BR FEW024/// BKN035/// 09/07 Q1008=  ## [A] Shawbury, RAF Shawbury
074746 2022-11-27 17:50  11 GB GB-WLS VLY EGOV 271650Z AUTO 18019KT 9999 RA OVC015/// 11/09 Q1005=  ## [A] Angelsey, Anglesey Airport
074747 2022-11-25 15:50  13 GB GB-ENG --- EGOW 251450Z 24015KT 9999 FEW020 13/08 Q1014 RMK BLU=  ## [A] Southport, RAF Woodvale
074751 2022-11-27 17:50   9 GB GB-SCT KOI EGPA 271650Z 18012KT CAVOK 09/05 Q1001=  ## [A] Orkney Islands, Kirkwall Airport
074752 2022-11-27 17:50  10 GB GB-SCT LSI EGPB 271650Z 21013KT CAVOK 10/06 Q1002=  ## [A] Lerwick, Sumburgh Airport
074753 2022-11-27 17:50  10 GB GB-SCT WIC EGPC 271650Z AUTO 15013KT 9999 NCD 10/05 Q1001=  ## [A] Wick, Wick Airport
074754 2022-11-27 17:50   5 GB GB-SCT ABZ EGPD 271650Z AUTO 16005KT 9999 FEW027 SCT031 05/03 Q1003 NOSIG=  ## [A] Aberdeen, Aberdeen Dyce Airport
074755 2022-11-27 17:50   9 GB GB-SCT INV EGPE 271650Z 11008KT 9999 FEW030 09/04 Q1000=  ## [A] Inverness, Inverness Airport
074756 2022-11-27 17:50   9 GB GB-SCT GLA EGPF 271650Z AUTO 16008KT 9999 BKN030/// //////CB 09/07 Q1002=  ## [A] Glasgow, Glasgow International Airport
074758 2022-11-27 17:50  10 GB GB-SCT EDI EGPH 271650Z 18005KT 9999 FEW031 SCT041 10/06 Q1003=  ## [A] Edinburgh, Edinburgh Airport
074759 2022-11-27 16:20  10 GB GB-SCT ILY EGPI 271520Z 17014KT 9999 FEW020 10/06 Q1000=  ## [A] Port Ellen, Islay Airport
074761 2022-11-27 17:50   9 GB GB-SCT PIK EGPK 271650Z 17012KT 9999 FEW024 SCT036 BKN045 09/07 Q1002=  ## [A] Glasgow, Glasgow Prestwick Airport
074762 2022-11-27 17:50   9 GB GB-SCT BEB EGPL 271650Z AUTO 18024KT 9999 FEW009/// 09/06 Q0995=  ## [A] Balivanich, Benbecula Airport
074763 2020-07-01 20:20   9 GB GB-SCT SCS EGPM 011820Z AUTO 35011KT 9999 BKN023/// BKN035/// 09/04 Q1006=  ## [A] Shetland Islands, Scatsta Airport
074764 2022-11-27 17:50   9 GB GB-SCT DND EGPN 271650Z 16005KT 9999 FEW035 09/06 Q1003=  ## [A] Dundee, Dundee Airport
074765 2022-11-27 17:50   9 GB GB-SCT SYY EGPO 271650Z 19023KT 9999 VCSH FEW019 SCT033 09/07 Q0996=  ## [A] Stornoway, Stornoway Airport
074771 2022-11-27 17:50  10 GB GB-SCT TRE EGPU 271650Z AUTO 18028KT 9999 SCT021/// SCT027/// 10/07 Q0997=  ## [A] Balemartine, Tiree Airport
074777 2022-11-24 14:50   9               EGQA 241350Z 11014KT 9999 VCSH FEW018 SCT040 BKN100 09/// Q0988 RMK BLU=  ## [A]
074779 2022-10-26 16:20 XXX               EGQC 261420Z 16016KT 9999 7000N -SHRA FEW015 SCT023 BKN200 ///// Q0991 RMK WHT=  ## [A]
074787 2022-11-27 17:50   9 GB GB-SCT FSS EGQK 271650Z AUTO 13009KT 9999 NCD 09/03 Q1001=  ## [A] Kinloss, RAF Kinloss
074788 2022-11-27 17:50   9 GB GB-SCT ADX EGQL 271650Z 17010KT CAVOK 09/06 Q1003 RMK BLU=  ## [A] St. Andrews, RAF Leuchars
074789 2022-11-27 17:50   8               EGQM 271650Z AUTO 17008KT 8000 HZ NCD 08/07 Q1006=  ## [A]
074795 2022-11-27 17:50   8 GB GB-SCT LMO EGQS 271650Z 15011KT CAVOK 08/03 Q1001 RMK BLU=  ## [A] Lossiemouth, RAF Lossiemouth
074807 2020-05-05 15:50   8               EGRE 051350Z AUTO 23026KT 9999 BKN026/// 08/03 Q1020=  ## [A]
074808 2020-05-05 15:50   9               EGRF 051350Z AUTO 25028KT 9999 SCT021/// 09/05 Q1021=  ## [A]
074809 2020-05-05 15:50   9               EGRG 051350Z AUTO 27022KT 9999 FEW021/// SCT024/// BKN034/// 09/03 Q1021=  ## [A]
074813 2020-05-05 15:50   7               EGRK 051350Z AUTO 24019KT 9999 FEW022/// 07/03 Q1024=  ## [A]
074814 2020-05-05 15:50   8               EGRL 051350Z AUTO 25015KT CAVOK 08/02 Q1025=  ## [A]
074816 2020-05-05 15:50   7               EGRN 051350Z AUTO 28005KT 260V360 CAVOK 07/M01 Q1026=  ## [A]
074817 2020-05-05 15:50   8               EGRO 051350Z AUTO 25008KT CAVOK 08/02 Q1026=  ## [A]
074821 2020-05-05 15:50   8               EGRS 051350Z AUTO 31005KT 290V350 CAVOK 08/00 Q1026=  ## [A]
074824 2020-05-05 15:50  11               EGRV 051350Z AUTO 12009KT //// // NCD 11/03 Q1026=  ## [A]
074825 2020-05-05 15:50   9               EGRW 051350Z AUTO 06010KT CAVOK 09/02 Q1026=  ## [A]
074831 2022-11-25 17:50   8 GB GB-ENG CBG EGSC 251650Z 22007KT CAVOK 08/05 Q1019=  ## [A] Cambridge, Cambridge Airport
074836 2022-11-27 17:50  11 GB GB-ENG NWI EGSH 271650Z 17004KT 140V200 CAVOK 11/10 Q1010 TEMPO RA=  ## [A] Norwich, Norwich International Airport
074847 2022-11-27 17:50  11 GB GB-ENG STN EGSS 271650Z AUTO 19003KT 6000 BKN007 BKN039 11/11 Q1010=  ## [A] London, London Stansted Airport
074853 2022-11-27 17:50  10 GB GB-ENG --- EGSY 271650Z AUTO 22004KT 8000 NCD 10/08 Q1009=  ## [A] Sheffield, Sheffield City Heliport
074857 2022-11-27 17:50   9 GB GB-ENG --- EGTC 271650Z 20004KT 9000 FEW024 09/08 Q1009=  ## [A] Cranfield, Cranfield Airport
074859 2022-11-27 17:50   9 GB GB-ENG EXT EGTE 271650Z 19005KT 9999 FEW025 09/09 Q1010=  ## [A] Exeter, Exeter International Airport
074865 2022-11-27 17:50   9 GB GB-ENG OXF EGTK 271650Z VRB01KT 7000 NSC 09/09 Q1009=  ## [A] Kidlington, Oxford (Kidlington) Airport
074882 2022-11-27 17:50  10 GB GB-ENG BEX EGUB 271650Z AUTO 15003KT 9000 BR FEW048/// OVC100/// 10/09 Q1009=  ## [A] Benson, RAF Benson
074892 2022-11-27 18:17  11 GB GB-ENG LKZ EGUL 271717Z AUTO 00000KT 9999 FEW007 SCT010 BKN018 11/11 A2979 RMK AO2 BKN V SCT SLP091 $  ## [A] Lakenheath, RAF Lakenheath
074894 2022-11-27 17:55  11 GB GB-ENG MHZ EGUN 271655Z 18002KT 9000 BR SCT011 BKN020 11/11 A2980 RMK AO2A RAE25 SLP095 P0006 T01120112 $  ## [A] Mildenhall, RAF Mildenhall
074903 2022-11-27 17:50  11 GB GB-ENG --- EGUW 271650Z AUTO 16004KT 4800 -RA BKN034/// BKN041/// 11/10 Q1010=  ## [A] Stowmarket, RAF Wattisham
074907 2022-11-27 16:55  10 GB GB-ENG FFD EGVA 271555Z AUTO 00000KT 9999 CLR 10/09 A2979 RMK AO2 SLP092 T00960094 $  ## [A] Fairford, RAF Fairford
074920 2022-11-27 17:50  10 GB GB-ENG BZZ EGVN 271650Z 19002KT CAVOK 10/09 Q1009 TEMPO 7000 BR=  ## [A] Brize Norton, RAF Brize Norton
074921 2022-11-27 17:50  10 GB GB-ENG ODH EGVO 271650Z AUTO 19004KT 8000 // FEW060/// BKN077/// 10/09 Q1009=  ## [A] Odiham, RAF Odiham
074922 2022-11-27 17:50  11 GB GB-ENG --- EGVP 271650Z AUTO 18003KT 5000 BR FEW006/// OVC029/// 11/10 Q1009=  ## [A] Middle Wallop, Middle Wallop Airfield
074935 2022-11-27 16:50   9 GB GB-ENG --- EGWC 271550Z 15005KT 7000 BR FEW038 BKN150 09/09 Q1009 RMK WHT=  ## [A] Cosford, DCAE Cosford Air Base
074953 2022-11-27 17:50  12 GB GB-ENG NHT EGWU 271650Z 22005KT 9999 FEW010 BKN060 12/10 Q1010 NOSIG RMK BLU BLU=  ## [A] London, RAF Northolt
074961 2022-11-27 17:50   9 GB GB-ENG QCY EGXC 271650Z 19004KT 6000 BR BKN180 09/08 Q1009 RMK WHT=  ## [A] Coningsby, RAF Coningsby
074963 2022-11-27 17:50   8 GB GB-ENG --- EGXE 271650Z AUTO 15009KT 9999 NCD 08/07 Q1007=  ## [A] Leeming, Leeming Airport
074966 2019-07-31 10:32  16 GB GB-ENG BEQ EGXH 310832Z 25014KT 3000 RA BKN015 16/15 Q1008 RMK YLO1=  ## [A] Thetford, RAF Honington
074974 2022-11-01 11:50  14 GB GB-ENG SQZ EGXP 011050Z AUTO 22019KT //// // ///////// 14/10 Q1001=  ## [A] Scampton, RAF Scampton
074977 2022-11-27 17:50   9 GB GB-ENG --- EGXS 271650Z AUTO 17004KT 6000 BR OVC170/// 09/08 Q1009=  ## [A] Swinderby, RAF Swinderby
074978 2022-11-27 17:50   9 GB GB-ENG --- EGXT 271650Z AUTO 18003KT 5000 BR OVC160/// 09/08 Q1009=  ## [A] Wittering, RAF Wittering
074979 2022-07-04 12:50  17 GB GB-ENG HRT EGXU 041050Z 28012KT 9999 OVC032 17/09 Q1020 RMK BLU=  ## [A] Linton-On-Ouse, RAF Linton-On-Ouse
074980 2022-11-27 17:50   9 GB GB-ENG --- EGXV 271650Z AUTO 18004KT 9000 BR FEW200/// 09/08 Q1008=  ## [A] Leconfield, RAF Leconfield
074981 2022-11-27 17:50   9 GB GB-ENG WTN EGXW 271650Z AUTO 20006KT 9999 SCT190/// 09/08 Q1009=  ## [A] Waddington, RAF Waddington
074984 2022-11-27 17:50   7 GB GB-ENG --- EGXZ 271650Z AUTO 13008KT 9999 FEW230/// 07/06 Q1007=  ## [A] Topcliffe, RAF Topcliffe
074988 2022-11-27 17:50   8 GB GB-ENG --- EGYD 271650Z AUTO 21004KT 9999 FEW170/// 08/07 Q1009=  ## [A] Cranwell, RAF Cranwell
074989 2022-11-27 17:50 XXX GB GB-ENG --- EGYE 271650Z AUTO 18006KT //// VV/// ///// Q////=  ## [A] Grantham, RAF Barkston Heath
074992 2022-11-27 17:50  10               EGYH 271650Z AUTO 20004KT 4200 FG OVC150/// 10/09 Q1009=  ## [A]
074997 2022-11-27 17:50  10 GB GB-ENG KNF EGYM 271650Z AUTO 12003KT 9999 // FEW035/// BKN058/// 10/10 Q1009=  ## [A] Marham, RAF Marham
------ Falklandsöarna:
075000 2022-11-27 17:50  18 FK FK-U-A MPN EGYP 271650Z 30029KT CAVOK 18/01 Q1021 NOSIG=  ## [C] Mount Pleasant, Mount Pleasant Airport
075047 2022-11-27 17:55  11               EHAK 271655Z AUTO 20010KT 9999 FEW005/// OVC015/// 11/11 Q1010=  ## [L]
------ Nederländerna:
075049 2022-11-27 17:55   7 NL NL-NH  AMS EHAM 271655Z 16009KT 9999 -RADZ FEW008 SCT010 BKN014 07/06 Q1013 TEMPO 6000 BKN008=  ## [N] Amsterdam, Amsterdam Airport Schiphol
075073 2022-11-27 17:55   8 NL NL-LI  MST EHBK 271655Z AUTO 15005KT 120V180 9999 DZ OVC044 08/04 Q1015 NOSIG=  ## [L] Maastricht, Maastricht Aachen Airport
075126 2022-11-27 17:55   7 NL NL-GE  --- EHDL 271655Z AUTO 15010KT 100V210 9999 BKN029 OVC041 07/05 Q1014 BLU=  ## [L] Arnhem, Deelen Air Base
075136 2022-11-27 17:55  11               EHDV 271655Z AUTO 18009KT 160V220 2300 HZ BKN000/// OVC003/// 11/// Q1010=  ## [L]
075148 2022-11-27 17:55   8 NL NL-NB  EIN EHEH 271655Z AUTO 15007KT 100V200 9999 DZ BKN026 OVC029 08/05 Q1014 BLU NOSIG=  ## [A] Eindhoven, Eindhoven Airport
075170 2022-11-27 17:55  11               EHFD 271655Z AUTO 17024KT 9999 FEW002/// BKN003/// BKN005/// 11/10 Q1011=  ## [L]
075185 2022-11-27 17:55   8               EHFS 271655Z AUTO 17014KT 8000 -SHRA FEW005/// SCT006/// BKN007/// 08/07 Q1012=  ## [A]
075192 2021-12-27 10:55 XXX               EHFZ 220955Z NIL=  ## [L]
075199 2022-11-27 17:55   6 NL NL-DR  GRQ EHGG 271655Z AUTO 15009KT 110V190 9999 -DZ BKN032 OVC043 06/04 Q1015 REDZ NOSIG=  ## [L] Groningen, Eelde Airport
075210 2022-11-27 18:07   8 NL NL-NB  GLZ EHGR 271707Z AUTO 16007KT 120V190 9999 DZ SCT021 OVC025 08/05 Q1014 WHT=  ## [A] Breda, Gilze Rijen Air Base
075241 2022-11-27 17:55   8 NL NL-U-A --- EHHW 271655Z AUTO 18020KT 9999 SCT007/// OVC008/// 08/06 Q1014=  ## [L] , Buitengaats / BG-OHVS2
075271 2022-11-27 17:55  12               EHJA 271655Z AUTO 21011KT 9999 BKN007/// OVC008/// 12/10 Q1010=  ## [L]
075288 2022-11-27 17:55  12               EHJR 271655Z AUTO 19018KT //// // ///////// 12/10 Q1011 RE// W14/H17=  ## [L]
075300 2022-11-27 17:55   7 NL NL-NH  DHR EHKD 271655Z AUTO 17010KT 9000 BR BKN004 OVC006 07/06 Q1013 YLO TEMPO 3000 DZRA FEW003 BKN004 OVC006=  ## [L] Den Helder, De Kooy Airport
075318 2022-11-27 17:55  11               EHKV 271655Z AUTO 19017KT 9999 -DZ FEW005 SCT006 BKN008 11/09 Q1011 REDZ=  ## [L]
075327 2022-11-27 17:55   7 NL NL-FL  LEY EHLE 271655Z AUTO 16008KT 140V200 9999 OVC018 07/05 Q1014 TEMPO -RADZ BKN014=  ## [L] Lelystad, Lelystad Airport
075345 2022-11-27 18:13   7 NL NL-FR  LWR EHLW 271713Z AUTO 15006KT 120V190 9999 -DZ BKN015 OVC018 07/05 Q1014 WHT=  ## [A] Leeuwarden, Leeuwarden Air Base
075349 2022-11-27 17:55   7               EHMA 271655Z AUTO 17018KT 9999 BKN012 OVC014 07/05 Q1014=  ## [L]
075355 2022-11-27 17:55   8               EHMG 271655Z AUTO 18023KT 9999 BKN004 OVC005 08/06 Q1014=  ## [L]
075433 2022-11-27 17:55  10               EHPG 271655Z AUTO 19018KT 130V290 7000 -RA SCT004 BKN006 BKN009 10/09 Q1011=  ## [L]
075457 2022-11-27 17:55   9               EHQE 271655Z AUTO /////KT 9999 BKN005 OVC006 09/08 Q1012=  ## [L]
075482 2022-11-27 17:55   7 NL NL-ZH  RTM EHRD 271655Z AUTO 18008KT 130V280 9999 -RADZ FEW008 OVC015 07/07 Q1013 TEMPO 6000 BKN008=  ## [L] Rotterdam, Rotterdam The Hague Airport
075505 2022-11-27 17:55   9               EHSA 271655Z AUTO /////KT 9999 -RA ///////// 09/08 Q1011 W13/H///=  ## [L]
075507 2022-11-27 17:55   8               EHSC 271655Z AUTO 18020KT 9999 -UP ///////// 08/08 Q1013 W12/H12=  ## [L]
075511 2022-11-27 17:25   9               EHSG 271625Z AUTO 17014KT 9999 DZRA SCT003/// BKN004/// OVC006/// 09/08 Q1012=  ## [L]
075535 2020-09-11 16:00  26 NL NL-GE  --- EHTE 111400Z 00000KT 9999 SCT024TCU FEW028CB BKN080 26/24 Q1010 CB N E NW=  ## [A] Deventer, Teuge Airport
075593 2022-11-27 17:55   8 NL NL-NB  --- EHVK 271655Z AUTO 14008KT 110V180 9999 DZ OVC031 08/05 Q1014 BLU=  ## [L] Uden, Volkel Air Base
075594 2022-11-27 18:19   7 NL NL-FR  --- EHVL 271719Z AUTO 17012KT 9999 -DZ OVC006 07/06 Q1013 YLO=  ## [A] Vlieland, Vlieland Heliport
075623 2022-11-27 17:55   7 NL NL-NB  WOE EHWO 271655Z AUTO 15003KT 100V170 8000 -RA OVC021 07/06 Q1013 WHT=  ## [L] Bergen Op Zoom, Woensdrecht Air Base
------ Irland:
075775 2022-11-27 18:00   8 IE IE-C   ORK EICK 271700Z 21014KT 9999 BKN018CB SCT040 08/06 Q1003 NOSIG=  ## [N] Cork, Cork Airport
075792 2019-05-10 10:00 XXX               EIDB 100800Z VRB02KT FEW025 ///// Q1007=  ## [A]
075802 2022-11-27 18:00   8 IE IE-DL  CFN EIDL 271700Z 18016KT 9999 FEW018 08/06 Q0996=  ## [A] Donegal, Donegal Airport
075813 2022-11-27 18:00   9 IE IE-D   DUB EIDW 271700Z 19010KT 9999 FEW018 09/05 Q1002 NOSIG=  ## [N] Dublin, Dublin Airport
075986 2022-11-27 17:30   5 IE IE-MO  NOC EIKN 271630Z 19010KT 160V220 9999 SCT010 FEW018CB BKN025 05/05 Q0997 TEMPO BKN010=  ## [A] Charleston, Ireland West Knock Airport
075997 2022-11-27 17:30   8 IE IE-KY  KIR EIKY 271630Z 18013KT 9999 FEW037 08/06 Q1000=  ## [A] Killarney, Kerry Airport
076029 2022-11-27 18:00   9 IE IE-D   --- EIME 271700Z 20015KT 9999 FEW022 09/06 Q1002=  ## [A] Baldonnel, Casement Air Base
076064 2022-11-27 18:00   8 IE IE-CE  SNN EINN 271700Z 20015KT 9999 FEW018CB SCT180 08/05 Q1000 NOSIG=  ## [N] Shannon, Shannon Airport
076187 2022-11-27 18:00   7 IE IE-SO  SXL EISG 271700Z 16007KT 120V200 9999 FEW043 07/04 Q0997=  ## [A] Sligo, Sligo Airport
076290 2022-11-27 18:00  10 IE IE-WD  WAT EIWF 271700Z 23018KT 200V260 9999 SCT020 SCT044 10/08 Q1004=  ## [A] Waterford, Waterford Airport
------ Danmark:
077072 2022-11-27 18:20   7 DK DK-82  AAR EKAH 271720Z AUTO 16004KT 090V230 9999 OVC011/// 07/05 Q1020=  ## [A] Aarhus, Aarhus Airport
077099 2022-11-27 18:20   5 DK DK-83  BLL EKBI 271720Z AUTO 13007KT 100V160 9999 BKN055/// OVC079/// 05/04 Q1018=  ## [A] Billund, Billund Airport
077124 2022-11-27 18:20   8 DK DK-84  CPH EKCH 271720Z 14013KT 9999 OVC012 08/06 Q1022 TEMPO BKN008=  ## [A] Copenhagen, Copenhagen Kastrup Airport
077170 2022-11-27 18:20   4 DK DK-83  EBJ EKEB 271720Z AUTO 11011KT 9000 -DZ BKN035/// OVC057/// 04/03 Q1017=  ## [A] Esbjerg, Esbjerg Airport
077226 2019-12-06 09:50  10               EKGF 060850Z 24025KT 6000 OVC006 10/09 Q0996=  ## [A]
077325 2022-11-27 18:20   6 DK DK-82  KRP EKKA 271720Z AUTO 15006KT 9999 BKN009/// 06/04 Q1017=  ## [A] Karup, Karup Airport
077432 2022-11-27 14:50   7 DK DK-83  ODE EKOD 271350Z 15007KT 9999 FEW010 SCT110 BKN150 07/05 Q1021=  ## [N] Odense, Odense Airport
077517 2022-11-27 18:20   6 DK DK-85  RKE EKRK 271720Z AUTO 14009KT 9999 SCT140/// 06/05 Q1021=  ## [A] Copenhagen, Copenhagen Roskilde Airport
077520 2022-11-27 18:20   8 DK DK-84  RNN EKRN 271720Z AUTO 14011KT 9999 OVC008/// 08/06 Q1024=  ## [A] Rønne, Bornholm Airport
077525 2022-11-27 18:20   6 DK DK-85  --- EKRS 271720Z AUTO VRB05KT 9999 NCD 06/06 Q1020=  ## [A] Ringsted, Ringsted Airport
077534 2022-11-27 18:20   6 DK DK-83  SGD EKSB 271720Z AUTO 15006KT 9999 OVC068/// 06/04 Q1018=  ## [A] Sønderborg, Sønderborg Airport
077546 2021-12-30 14:50   7 DK DK-81  CNL EKSN 301350Z 23014KT 4500 BR SCT006 BKN008 07/07 Q0999=  ## [A] Sindal, Sindal Airport
077548 2022-11-27 18:20   5 DK DK-83  SKS EKSP 271720Z 14007KT CAVOK 05/03 Q1018=  ## [A] Vojens, Skrydstrup Air Base
077614 2022-11-27 18:20   5 DK DK-83  --- EKVD 271720Z AUTO 14007KT 100V160 //// ///////// 05/04 Q1018=  ## [A] Kolding / Vamdrup, Kolding Vamdrup Airfield
------ Färöarna:
077617 2022-11-27 18:20   9 FO FO-U-A FAE EKVG 271720Z AUTO 18018G28KT 9999 OVC019/// 09/06 Q0991 RMK OVC021/// WIND SKEID VRB09G45KT=  ## [A] Vagar, Vagar Airport
------ Danmark:
077620 2022-11-23 16:50   5 DK DK-82  STA EKVJ 231550Z 12012KT 6000 SCT006 BKN008 05/05 Q1000=  ## [A] Skjern / Ringkøbing, Stauning Airport
077708 2022-11-27 18:20   7 DK DK-81  AAL EKYT 271720Z AUTO 14014KT 9999 OVC081/// 07/05 Q1018=  ## [A] Aalborg, Aalborg Airport
------ Luxemburg:
078050 2022-11-27 17:50   5 LU LU-L   LUX ELLX 271650Z 15007KT 120V180 CAVOK 05/03 Q1017 NOSIG=  ## [A] Luxembourg, Luxembourg-Findel International Airport
078821 2022-03-25 10:00 XXX               EMPO 250900Z 5000=  ## [A]
------ Norge:
079104 2022-11-27 18:20  11 NO NO-15  AES ENAL 271720Z 16013KT 9999 FEW015 SCT066 11/03 Q1008=  ## [A] Ålesund, Ålesund Airport
079106 2022-11-27 18:20   4 NO NO-18  ANX ENAN 271720Z 16012KT 9999 BKN034 04/01 Q1016=  ## [A] Andenes, Andøya Airport
079112 2022-11-27 17:50   0 NO NO-20  ALF ENAT 271650Z 14008KT CAVOK 00/M04 Q1020 RMK WIND 700FT 16015KT=  ## [N] Alta, Alta Airport
079128 2022-11-27 17:50   1 NO NO-21  --- ENBJ 271650Z 12007KT 9999 BKN024 01/M00 Q1017 =  ## [N] Herwighamna, Bjørnøya Heliport
079130 2022-11-27 17:50   7 NO NO-14  FDE ENBL 271650Z 16009KT 080V210 9999 -RA FEW020 SCT030 BKN037 07/03 Q1010=  ## [N] Førde, Førde Airport
079132 2022-11-27 17:50   7 NO NO-18  BNN ENBN 271650Z 14014KT 100V190 CAVOK 07/01 Q1013=  ## [N] Brønnøy, Brønnøysund Airport
079133 2022-11-27 18:20   5 NO NO-18  BOO ENBO 271720Z 10019KT CAVOK 05/M04 Q1015 NOSIG=  ## [A] Bodø, Bodø Airport
079136 2022-11-27 18:20   9 NO NO-12  BGO ENBR 271720Z 16016KT 9999 -SHRA SCT017 BKN032 09/05 Q1010 NOSIG RMK WIND 1200FT 14028G40KT=  ## [A] Bergen, Bergen Airport Flesland
079137 2022-11-27 17:50  -2 NO NO-20  BJF ENBS 271650Z 19015KT 9999 BKN011 M02/M04 Q1020=  ## [A] Båtsfjord, Båtsfjord Airport
079140 2022-11-27 17:50  -1 NO NO-20  BVG ENBV 271650Z AUTO 24017KT 9999 NCD M01/M04 Q1020=  ## [A] Berlevåg, Berlevåg Airport
079158 2022-11-27 18:20   8 NO NO-10  KRS ENCN 271720Z 13010KT 5000 -RADZ SCT008 BKN013 08/07 Q1017=  ## [A] Kjevik, Kristiansand Airport
079188 2022-11-27 17:50  10               ENDR 271650Z AUTO 20014KT 9999NDV -SHRA OVC054/// 10/04 Q1009 W///S5=  ## [A]
079191 2022-11-27 18:20  -4 NO NO-19  BDU ENDU 271720Z 00000KT 9999 SCT045 BKN120 M04/M05 Q1018 RMK WIND 1100FT 13007KT WIND 2200FT 16011KT=  ## [A] Målselv, Bardufoss Airport
079218 2022-11-27 17:50   3 NO NO-18  EVE ENEV 271650Z 15008KT CAVOK 03/M03 Q1016 RMK WIND 1400FT 12013KT=  ## [N] Evenes, Harstad/Narvik Airport,  Evenes
079224 2022-11-27 17:50  10 NO NO-03  FBU ENFB 271650Z AUTO /////KT 8000NDV NCD 10/08 Q1004 W///S/=  ## [M] Oslo, Oslo,  Fornebu Airport
079234 2022-11-27 17:50   9 NO NO-14  FRO ENFL 271650Z 13017KT 9999 FEW020 SCT025 BKN030 09/05 Q1009=  ## [N] Florø, Florø Airport
079251 2022-11-27 17:50  10               ENGC 271650Z 19024KT 9999 FEW015 10/08 Q1004 W09/S6=  ## [A]
079259 2021-02-24 15:20   6 NO NO-09  --- ENGK 241420Z 21004KT 170V260 4500 BR BKN003 06/06 Q1015=  ## [A] , Gullknapp Flpl Airport
079261 2022-11-27 18:20   2 NO NO-02  OSL ENGM 271720Z 12004KT 090V160 9999 -RA OVC003 02/01 Q1021 NOSIG=  ## [A] Oslo, Oslo Gardermoen Airport
079278 2022-11-27 18:20   9 NO NO-11  HAU ENHD 271720Z 13018KT 5000 -RA OVC025 09/07 Q1010=  ## [A] Karmøy, Haugesund Airport
079279 2022-11-27 17:50   9               ENHE 271650Z 18020KT 9999 -RA BKN040 09/06 Q1008=  ## [A]
079280 2022-11-27 17:50  -1 NO NO-20  HFT ENHF 271650Z VRB02KT CAVOK M01/M06 Q1018 RMK WIND 1254FT 20009KT=  ## [N] Hammerfest, Hammerfest Airport
079285 2022-11-27 17:50   3 NO NO-20  HAA ENHK 271650Z AUTO 10011KT 9999 OVC041 03/M01 Q1018=  ## [A] Hasvik, Hasvik Airport
079287 2022-11-27 17:50  10               ENHM 271650Z AUTO /////KT 9999NDV FEW057/// 10/09 Q1007 W10/S/=  ## [A]
079296 2022-11-27 17:50   1 NO NO-20  HVG ENHV 271650Z 17017KT 140V200 CAVOK 01/M03 Q1019=  ## [A] Honningsvåg, Valan Airport
079345 2022-11-27 17:50   9               ENJS 271650Z 18021KT CAVOK 09/08 Q1008 W09/S/=  ## [A]
079354 2022-11-27 17:50  11 NO NO-15  KSU ENKB 271650Z VRB06KT 9999 FEW050 BKN069 11/M01 Q1009 RMK WIND 745FT 16014KT=  ## [N] Kvernberget, Kristiansund Airport (Kvernberget)
079370 2022-11-27 17:50  -1 NO NO-20  KKN ENKR 271650Z 20011KT 9999 BKN014 M01/M03 Q1023 RMK WIND 731FT 22020KT=  ## [N] Kirkenes, Kirkenes Airport (Høybuktmoen)
079379 2022-11-27 17:50   9 NO NO-U-A --- ENLA 271650Z AUTO 16014KT 3000NDV BR BKN240/// 09/09 Q1008 W///S5=  ## [A] , Ula Platform
079383 2022-11-27 17:50   9               ENLE 271650Z 16011KT 9999 SCT002 SCT060 09/09 Q1010 W10/S3=  ## [A]
079389 2022-11-27 17:50   5 NO NO-18  LKN ENLK 271650Z 12009KT 9999 FEW022 05/M01 Q1015=  ## [N] Leknes, Leknes Airport
079412 2022-11-27 17:50  -1 NO NO-20  MEH ENMH 271650Z 20016KT CAVOK M01/M04 Q1020=  ## [A] Mehamn, Mehamn Airport
079416 2022-11-27 17:50  11 NO NO-15  MOL ENML 271650Z 02008KT 9999 FEW047 BKN062 11/02 Q1008=  ## [N] Årø, Molde Airport
079417 2021-03-16 14:20  18               ENMM 161320Z 00000KT 2SM RA BR FEW006 BKN050 OVC080 18/18 A2994 RMK AO2 OCNL LTGICCG DSNT E-S CB DSNT E-S P04 T01780178 =  ## [A]
079423 2022-11-27 17:50   2 NO NO-18  MJF ENMS 271650Z 20006KT 9999 FEW043 02/M03 Q1016 RMK WIND 412FT 16007KT=  ## [N] , Mosjøen Airport (Kjærstad)
079431 2022-11-27 17:50   1 NO NO-20  LKL ENNA 271650Z 17013KT 9999 BKN024 OVC100 01/M03 Q1020 RMK WIND 1800FT 18013KT=  ## [N] Lakselv, Banak Airport
079435 2022-11-27 17:50   9               ENNE 271650Z 17027KT CAVOK 09/06 Q1008=  ## [A]
079443 2022-11-27 17:50   7 NO NO-17  OSY ENNM 271650Z AUTO 09013KT 060V130 9999 NCD 07/M00 Q1014=  ## [M] Namsos, Namsos Høknesøra Airport
079445 2022-11-27 16:20   7 NO NO-08  NTB ENNO 271520Z 10005KT 6000 RA SCT010 BKN029 07/06 Q1018=  ## [N] Notodden, Notodden Airport
079457 2022-11-27 17:50  10 NO NO-U-A --- ENOA 271650Z 18026KT 9999 FEW015 10/08 Q1006=  ## [A] , Oseberg A Platform
079468 2022-11-27 18:20   9 NO NO-16  OLA ENOL 271720Z 14021KT 9999 -RA NSC 09/02 Q1011 NOSIG=  ## [A] Ørland, Ørland Airport
079478 2022-11-27 17:50  10 NO NO-15  HOV ENOV 271650Z VRB04KT 9999 -RA FEW023 BKN045 10/03 Q1008 RMK WIND RWY24 03011KT WIND 2090FT 15026KT=  ## [N] Ørsta, Ørsta-Volda Airport,  Hovden
079509 2022-11-27 17:50  10 NO NO-U-A --- ENQA 271650Z AUTO /////KT 8000NDV BKN011/// 10/08 Q1007 W///S/=  ## [A] , Troll A Platform
079511 2022-11-27 17:50  10 NO NO-U-A --- ENQC 271650Z AUTO /////KT 9999NDV BKN012/// 10/09 Q1007 W///S/=  ## [A] , Troll C Platform
079526 2022-11-27 17:50  10               ENQR 271650Z AUTO /////KT 9000NDV NCD 10/08 Q1004 W10/S/=  ## [A]
079535 2022-11-27 17:50   4 NO NO-18  MQN ENRA 271650Z 08014G24KT CAVOK 04/M03 Q1018=  ## [N] Mo i Rana, Mo i Rana Airport,  Røssvoll
079547 2022-11-27 17:50   8 NO NO-17  RVK ENRM 271650Z 13013KT 100V170 CAVOK 08/00 Q1012=  ## [M] Rørvik, Rørvik Airport,  Ryum
079549 2022-11-27 18:20   2 NO NO-16  RRS ENRO 271720Z 15007KT 120V190 9999 SCT026 SCT049 02/M01 Q1016=  ## [A] Røros, Røros Airport
079553 2022-11-27 17:50   7 NO NO-18  RET ENRS 271650Z 14012KT CAVOK 07/02 Q1013=  ## [N] , Røst Airport
079559 2022-11-27 18:20   5 NO NO-01  RYG ENRY 271720Z AUTO 11011KT 3400NDV BR OVC003/// 05/05 Q1020 REUP=  ## [A] Oslo, Moss Airport,  Rygge
079562 2022-11-27 17:20  -2 NO NO-21  LYR ENSB 271620Z 22003KT 9999 FEW025 BKN070 M02/M05 Q1017 RMK WIND 1400FT VRB03KT=  ## [N] Longyearbyen, Svalbard Airport,  Longyear
079564 2022-11-27 17:50   8 NO NO-14  SDN ENSD 271650Z 10005KT 050V120 9999 -RA FEW035 BKN045 08/05 Q1010 RMK WIND RWY26 VRB03KT WIND 1140FT 14004KT=  ## [N] Sandane, Sandane Airport (Anda)
079565 2022-11-27 17:50  10               ENSE 271650Z AUTO /////KT 9000NDV FEW011/// 10/08 Q1004 W///S/=  ## [A]
079566 2022-11-27 17:50  11               ENSF 271650Z AUTO 19026KT 9000NDV NCD 11/10 Q1004 W///S/=  ## [A]
079567 2022-11-27 17:50   7 NO NO-14  SOG ENSG 271650Z VRB05G15KT 9999 VCSH FEW020 SCT030 BKN040 07/00 Q1012 RMK WIND 3806FT 15024G35KT=  ## [N] Sogndal, Sogndal Airport
079568 2022-11-27 17:50   6 NO NO-18  SVJ ENSH 271650Z 05016G26KT CAVOK 06/M01 Q1015 RMK WIND 150FT 06026KT=  ## [N] Svolvær, Svolvær Helle Airport
079571 2022-11-27 17:50   4 NO NO-18  SKN ENSK 271650Z 10005KT 050V140 CAVOK 04/M01 Q1015=  ## [N] Hadsel, Stokmarknes Skagen Airport
079572 2022-11-27 17:50  10 NO NO-U-A --- ENSL 271650Z AUTO /////KT 9000NDV NCD 10/08 Q1007 W06/S5=  ## [A] , Sleipner A Platform
079575 2022-11-27 17:50   8 NO NO-12  SRP ENSO 271650Z 13011KT 9999 -RA FEW013 BKN024 08/08 Q1010=  ## [N] Leirvik, Stord Airport
079578 2022-11-27 17:50   2 NO NO-19  SOJ ENSR 271650Z AUTO 16009KT 9999 FEW078/// SCT120/// BKN170/// 02/M03 Q1018 RMK WIND RWY32 15010KT WIND 1118FT 14013KT=  ## [M] Sørkjosen, Sørkjosen Airport
079579 2022-11-27 17:50  -1 NO NO-20  VAW ENSS 271650Z AUTO 23020KT 9999 NCD M01/M03 Q1022 RMK WIND 0500FT 24029KT=  ## [A] Vardø, Vardø Airport,  Svartnes
079580 2022-11-27 17:50   7 NO NO-18  SSJ ENST 271650Z 19013KT 100V230 CAVOK 07/M02 Q1013 RMK WIND 300FT 14024G34KT=  ## [N] Alstahaug, Sandnessjøen Airport (Stokka)
079589 2022-11-27 18:20   4 NO NO-19  TOS ENTC 271720Z 25006KT 9999 SCT033 BKN098 04/M00 Q1017 NOSIG RMK WIND 2600FT 18016KT=  ## [A] Tromsø, Tromsø Airport
079601 2022-11-27 18:20   7 NO NO-07  TRF ENTO 271720Z 17010KT 9999 BKN004 OVC009 07/07 Q1019 NOSIG=  ## [A] Torp, Sandefjord Airport,  Torp
079615 2020-04-13 16:56 XXX               ENUC 131456Z 320)U10SM FEW018 BKN024 R &HLSHP14`_H(JS203 TSK&L9 51013 =  ## [A]
079619 2022-11-27 17:50   5               ENUG 271650Z AUTO VRB04KT 9999NDV SCT036/// 05/00 Q1017 W07/S4=  ## [A]
079626 2022-11-27 17:50   8               ENUN 271650Z AUTO 16028KT 9999NDV FEW079/// SCT120/// BKN160/// 08/04 Q1007 W08/S5=  ## [A]
079639 2022-11-27 18:20   8 NO NO-17  TRD ENVA 271720Z 10012G24KT 360V130 CAVOK 08/M00 Q1014 RMK WIND 670FT VRB12G28KT=  ## [A] Trondheim, Trondheim Airport Værnes
079642 2022-11-27 17:50   0 NO NO-20  VDS ENVD 271650Z 24020KT 9999 BKN015 00/M03 Q1022=  ## [M] Vadsø, Vadsø Airport
079656 2022-11-27 15:50   7 NO NO-18  VRY ENVR 271450Z 13017KT CAVOK 07/02 Q1015=  ## [A] Værøy, Værøy Heliport
079686 2022-11-27 17:50  10               ENWV 271650Z AUTO 18011KT 9999NDV BKN016/// 10/10 Q1010 W///S4=  ## [A]
079764 2022-11-27 18:20   9 NO NO-11  SVG ENZV 271720Z 14015KT 6000 RA FEW005 SCT010 BKN015 09/08 Q1011=  ## [A] Stavanger, Stavanger Airport Sola
------ Polen:
080495 2022-11-27 18:00   3 PL PL-KP  BZG EPBY 271700Z 12003KT 090V150 4000 BR FEW003 OVC006 03/03 Q1027=  ## [A] Bydgoszcz, Bydgoszcz Ignacy Jan Paderewski Airport
080500 2021-01-19 04:12  29 PL PL-LU  --- EPCD 191000Z 34010KT 9999 SCT015 SCT220 29/24 Q1008 RMK A2977=  ## [A] , Depu?tycze Królewskie Airport
080604 2022-11-27 18:00   3 PL PL-PM  GDN EPGD 271700Z 16002KT 5000 BR FEW019 BKN038 03/03 Q1026=  ## [A] Gda?sk, Gda?sk Lech Wa??sa Airport
080715 2022-11-27 18:00   3 PL PL-MA  KRK EPKK 271700Z 04005KT 9999 BKN041 03/01 Q1027=  ## [A] Kraków, Kraków John Paul II International Airport
080723 2022-08-20 22:00 XXX PL PL-WP  --- EPKS 202000Z 2021/2106 35008KT 9999 BKN020 TEMPO 2021/2024 SHRA BKN006 BKN020CB PROB30 TEMPO 2021/2024 3000 TSRA BKN015CB PROB30 2100/2106 3000 BR BKN004=  ## [A] , Krzesiny Military Air Base
080724 2022-11-27 18:00   2 PL PL-SL  KTW EPKT 271700Z 09005KT 7000 FEW034 BKN039 02/01 Q1027=  ## [A] Katowice, Katowice International Airport
080732 2022-11-27 18:00   1               EPLB 271700Z 20003KT 8000 BKN007 OVC009 01/01 Q1028=  ## [A]
080742 2022-11-27 18:00   2 PL PL-LD  LCJ EPLL 271700Z VRB01KT 3000 MIFG BR NSC 02/01 Q1027=  ## [A] ?ód?, ?ód? W?adys?aw Reymont Airport
080760 2020-09-12 16:00  28               EPMD 121400Z VRB02KT 9999 -TS FEW015CB BKN090 BKN260 28/24 Q1012 RESH RMK A2988 OCNL TSSW=  ## [A]
080771 2022-11-27 18:00   3 PL PL-MZ  WMI EPMO 271700Z 21005KT 4000 -DZ BR SCT005 BKN026 03/03 Q1028=  ## [A] Warsaw, Modlin Airport
080849 2022-11-27 18:00   4 PL PL-WP  POZ EPPO 271700Z 14006KT 8000 SCT012 04/04 Q1026=  ## [A] Pozna?, Pozna?-?awica Airport
080887 2022-11-25 16:00   0 PL PL-MZ  RDO EPRA 251500Z 19003KT 1200 BR OVC002 00/00 Q1019=  ## [A] Radom, Radom Airport
080912 2022-11-27 18:00   2 PL PL-PK  RZE EPRZ 271700Z VRB02KT 9999 BKN012 BKN044 02/01 Q1028=  ## [A] Rzeszów, Rzeszów-Jasionka Airport
080915 2022-11-27 18:00   6 PL PL-ZP  SZZ EPSC 271700Z 14010KT 8000 SCT005 BKN007 06/06 Q1025=  ## [A] Goleniow, Szczecin-Goleniów "Solidarno??" Airport
080937 2022-11-27 18:00   1 PL PL-WN  SZY EPSY 271700Z 22003KT 0150 R01/0550N FG OVC001 01/01 Q1027=  ## [A] Olsztyn, Olsztyn-Mazury Airport
081017 2022-11-27 18:00   3 PL PL-MZ  WAW EPWA 271700Z 21003KT 7000 FEW024 BKN028 03/02 Q1028 BECMG 4000 BR=  ## [A] Warsaw, Warsaw Chopin Airport
081034 2022-11-27 18:00   5 PL PL-DS  WRO EPWR 271700Z 11007KT 6000 NSC 05/04 Q1027=  ## [A] Wroc?aw, Copernicus Wroc?aw Airport
081101 2022-11-27 18:00   4 PL PL-LB  IEG EPZG 271700Z 12003KT 2000 0750SW BCFG BR SCT010 04/04 Q1026=  ## [A] Babimost, Zielona Góra-Babimost Airport
081518 2022-03-13 13:17  15               EQPH 131217Z AUTO 28017G27KT 230V310 9999 FEW060/// 15/M03 Q1017=  ## [A]
081745 2022-02-11 09:30   0               EQYA 110830Z AUTO 26008KT 9999 -SN BKN006 BKN011 BKN022 OVC028 M00/M00 A3023 RMK AO2 SNB10 CIG 006V011 BKN006 V SCT SLP246 $  ## [A]
081747 2021-10-26 13:41   9               EQYC 261141Z AUTO 00000KT 9999 BKN015 09/09 A3024 RMK AO2 CIG 011V015 SLP246 $  ## [A]
081749 2022-02-11 09:29   1               EQYE 110829Z AUTO 28003KT 9999 -SN SCT014 BKN020 OVC030 01/00 A3024 RMK AO2 RAB21E29SNB29 SLP273 $  ## [A]
081750 2022-02-11 09:31   2               EQYF 110831Z AUTO 29008G15KT 9999 -RA SCT018 BKN024 02/M01 A3023 RMK AO2 RAB31 SLP230 $  ## [A]
081751 2020-06-18 16:57 XXX               EQYG 181457Z AUTO A2992 RMK AO2 SLPNO 56007 PWINO TSNO $ =  ## [A]
081762 2022-07-05 13:59  26               EQYR 051159Z AUTO 22010KT 10SM BKN015 26/18 A3007 RMK AO2 T02610178 $  ## [A]
081763 2022-05-27 18:46 XXX               EQYS 271646Z AUTO A2987 RMK AO2 SLPNO PWINO TSNO $ =  ## [A]
------ Sverige:
082530 2022-11-27 17:50   0 SE SE-E   --- ESCF 271650Z AUTO 11003KT 0800 0750// R01/P2000N R19/1800U FZFG OVC002/// M00/M00 Q1026=  ## [M] Linköping, Malmen Air Base
082537 2022-11-27 17:50   0 SE SE-C   --- ESCM 271650Z AUTO 07003KT 1700 1400// R03/P2000N R21/P2000N BR VV001 00/00 Q1027=  ## [M] , Uppsala Airport
082556 2022-11-27 17:50   5 SE SE-K   RNB ESDF 271650Z 10007KT 9999 -SHRA SCT005 BKN025 05/05 Q1025=  ## [M] , Ronneby Airport
082635 2022-11-27 18:20   5 SE SE-Q   GOT ESGG 271720Z 14009KT 9999 BKN006 05/05 Q1021=  ## [A] Gothenburg, Gothenburg-Landvetter Airport
082638 2022-11-27 18:20   4 SE SE-F   JKG ESGJ 271720Z AUTO 14008KT 6000 BR OVC004/// 04/04 Q1022=  ## [A] Jönköping, Jönköping Airport
082644 2022-11-27 18:20   7 SE SE-Q   GSE ESGP 271720Z 13007KT 090V150 6000 BKN005 BKN007 OVC010 07/06 Q1021=  ## [A] Gothenburg, Gothenburg City Airport
082646 2022-03-31 14:50   3 SE SE-Q   KVB ESGR 311250Z AUTO /////KT 9999 -RA OVC055/// 03/M08 Q1011 REUP=  ## [A] Skövde, Skövde Airport
082648 2022-11-27 18:20   6 SE SE-Q   THN ESGT 271720Z 13009KT 9999 BKN014 06/04 Q1022=  ## [A] Trollhättan, Trollhättan-Vänersborg Airport
082681 2022-11-27 17:50   2 SE SE-Q   --- ESIA 271650Z AUTO 10007KT 9999 OVC002/// 02/02 Q1025=  ## [M] Karlsborg, Karlsborg Air Base
082682 2022-11-27 17:50   5 SE SE-Q   --- ESIB 271650Z AUTO 13009KT 9999 BKN015/// OVC050/// 05/04 Q1022=  ## [M] Såtenäs, Såtenäs Air Base
082745 2022-11-27 17:50   0 SE SE-W   MXX ESKM 271650Z AUTO 12007KT 9999 OVC005/// M00/M00 Q1025=  ## [M] Mora, Mora Airport
082746 2022-11-27 17:50   1 SE SE-D   NYO ESKN 271650Z 00000KT 5000 FEW003 BKN011 01/00 Q1026=  ## [M] Stockholm / Nyköping, Stockholm Skavsta Airport
082751 2022-11-27 17:50  -1 SE SE-W   SCR ESKS 271650Z AUTO 12007KT 9999 BKN004/// BKN034/// OVC043/// M01/M01 Q1021=  ## [M] Sälen - Trysil Airport
082795 2022-11-27 18:20   7 SE SE-M   KID ESMK 271720Z 14008KT 8000 OVC006 07/07 Q1023=  ## [A] Kristianstad, Kristianstad Airport
082801 2022-11-27 18:20   2 SE SE-H   KLR ESMQ 271720Z 36003KT 7000 OVC005 02/02 Q1026=  ## [A] , Kalmar Airport
082803 2022-11-27 18:20   7 SE SE-M   MMX ESMS 271720Z 12010KT 8000 OVC007 07/06 Q1022=  ## [A] Malmö, Malmö Sturup Airport
082804 2022-11-27 18:20   7 SE SE-N   HAD ESMT 271720Z 14009KT 9999 BKN010 07/06 Q1022=  ## [A] Halmstad, Halmstad Airport
082806 2022-10-31 15:20  12 SE SE-F   --- ESMV 311420Z AUTO 20003KT 170V230 9999 FEW015/// SCT021/// 12/12 Q1019=  ## [A] , Hagshult Air Base
082808 2022-11-27 18:20   4 SE SE-G   VXO ESMX 271720Z AUTO 11005KT 070V150 9999 OVC003/// 04/04 Q1024=  ## [A] Växjö, Växjö Kronoberg Airport
082814 2022-11-27 17:50  -1 SE SE-Z   EVG ESND 271650Z AUTO 11006KT 9999 OVC005/// M01/M02 Q1023=  ## [M] , Sveg Airport
082817 2022-11-27 17:50  -1 SE SE-BD  GEV ESNG 271650Z 18010KT 9999 BKN016 M01/// Q1023=  ## [M] Gällivare, Gällivare Airport
082821 2022-11-27 17:50  -1 SE SE-Y   KRF ESNK 271650Z VRB01KT 6000 BKN013 OVC016 M01/M01 Q1027=  ## [M] Kramfors / Sollefteå, Kramfors Sollefteå Airport
082822 2022-11-27 17:50   1 SE SE-AC  LYC ESNL 271650Z 16009KT 9999 BKN010 OVC015 01/M01 Q1025=  ## [M] , Lycksele Airport
082824 2022-11-27 17:50  -1 SE SE-Y   SDL ESNN 271650Z AUTO 32002KT 8000 FEW007/// OVC012/// M01/M01 Q1027=  ## [M] Sundsvall/ Härnösand, Sundsvall-Härnösand Airport
082825 2022-11-27 17:50   1 SE SE-Y   OER ESNO 271650Z 13005KT 0300 R12/1000D R30/1100U FG OVC002 01/01 Q1027=  ## [M] Örnsköldsvik, Örnsköldsvik Airport
082827 2022-11-27 17:50  -2 SE SE-BD  KRN ESNQ 271650Z 21016KT 9999 -SN BKN009 M02/M03 Q1019=  ## [M] Kiruna, Kiruna Airport
082829 2022-11-27 17:50   0 SE SE-AC  SFT ESNS 271650Z 16004KT 130V220 8000 OVC004 00/00 Q1028=  ## [M] Skellefteå, Skellefteå Airport
082831 2022-11-27 17:50   1 SE SE-AC  UME ESNU 271650Z 14009KT 9999 OVC006 01/M00 Q1028=  ## [M] Umeå, Umeå Airport
082832 2022-11-27 17:50  -1 SE SE-AC  VHM ESNV 271650Z 16006KT 130V200 5000 BR OVC004 M01/M02 Q1023=  ## [M] , Vilhelmina Airport
082834 2022-11-27 17:50 XXX SE SE-BD  AJR ESNX 271650Z AUTO 16007KT 8000 OVC004/// ///// Q1023=  ## [A] Arvidsjaur, Arvidsjaur Airport
082836 2022-11-27 17:50   0 SE SE-Z   OSD ESNZ 271650Z 16013KT 9999 OVC006 00/00 Q1021=  ## [M] Östersund, Åre Östersund Airport
082841 2022-11-27 17:50   1 SE SE-T   ORB ESOE 271650Z AUTO 10005KT 1800 BR VV002 01/M00 Q1026=  ## [M] Örebro, Örebro Airport
082844 2022-11-27 17:50   0 SE SE-S   HFS ESOH 271650Z AUTO 12007KT 070V150 9999 OVC007/// 00/M01 Q1024=  ## [M] , Hagfors Airport
082847 2022-11-27 17:50   0 SE SE-S   KSD ESOK 271650Z AUTO 10007KT 7000 OVC002/// 00/M00 Q1024=  ## [M] Karlstad, Karlstad Airport
082859 2022-11-27 17:50   1 SE SE-U   VST ESOW 271650Z AUTO 06003KT 9999 OVC016/// 01/M01 Q1027=  ## [M] Stockholm / Västerås, Stockholm Västerås Airport
082863 2022-11-27 17:50   1 SE SE-BD  LLA ESPA 271650Z 18009KT 9999 FEW011 BKN016 OVC025 01/00 Q1028=  ## [M] Luleå, Luleå Airport
082867 2022-11-27 17:50  -1 SE SE-BD  --- ESPE 271650Z AUTO 12004KT 9999 -SG BKN013/// OVC015/// M01/M01 Q1025=  ## [M] Vidsel, Vidsel Air Base
082941 2022-11-27 17:50   0 SE SE-AB  ARN ESSA 271650Z 00000KT 0350 R01L/1900N R19R/1200N R01R/1100N R19L/1200U FZFG VV002 M00/M00 Q1026 TEMPO 2000 BR=  ## [M] Stockholm, Stockholm-Arlanda Airport
082942 2022-11-27 17:50   1 SE SE-AB  BMA ESSB 271650Z 01002KT 9999 BKN004 01/01 Q1027=  ## [M] Stockholm, Stockholm-Bromma Airport
082944 2022-11-27 17:50  -1 SE SE-W   BLE ESSD 271650Z AUTO 15005KT 3400 -SN SCT005/// BKN009/// OVC012/// M01/M02 Q1026 REFZUP RESG=  ## [M] , Borlange Airport
082952 2022-11-27 17:50   0 SE SE-E   LPI ESSL 271650Z 12004KT 2100 OVC002 M00/M00 Q1026=  ## [M] Linköping, Linköping City Airport
082956 2022-11-25 15:20   2 SE SE-E   NRK ESSP 251420Z 01002KT 9999 SCT005 BKN025 02/01 Q1021=  ## [M] Norrköping, Norrköping Airport
082959 2019-08-21 12:30 XXX               ESSS 211030Z 220077 Q1011 NHECAYMYX =  ## [A]
082960 2022-11-27 17:50   0 SE SE-S   TYF ESST 271650Z AUTO 09005KT 050V130 5000 BR OVC005/// 00/M01 Q1024=  ## [M] , Torsby Airport
082962 2022-11-27 17:50   1 SE SE-I   VBY ESSV 271650Z 18002KT 9999 BKN024 01/00 Q1026=  ## [M] Visby, Visby Airport
082967 2022-11-27 18:20   7 SE SE-M   AGH ESTA 271720Z 13010KT 9999 FEW013 07/06 Q1021=  ## [A] Ängelholm, Ängelholm-Helsingborg Airport
082978 2022-11-27 18:20   7 SE SE-M   --- ESTL 271720Z AUTO 13008KT 9999 FEW007/// SCT009/// BKN010/// 07/07 Q1022=  ## [A] Ljungbyhed, Ljungbyhed Airport
083008 2022-11-27 17:50   0 SE SE-BD  PJA ESUP 271650Z AUTO 19011KT 3900 -SN BKN007/// OVC017/// M00/M00 Q1025=  ## [M] , Pajala Airport
083012 2022-11-27 17:50   0 SE SE-AC  HMV ESUT 271650Z 15012KT 9999 OVC019 M00/M03 Q1019=  ## [M] , Hemavan Airport
083090 2022-09-27 06:08 XXX               ESXT 271300Z SLP116 DENSITY ALT 1600FT=  ## [A]
------ Tyskland:
083152 2022-11-27 17:55   5 DE DE-RP  SPM ETAD 271655Z AUTO 11003KT 9999 BKN065 05/02 A3002 RMK AO2 RAB06E32 SLP169 P0000 T00480022 $  ## [A] Trier, Spangdahlem Air Base
083166 2022-11-27 17:55   6 DE DE-RP  RMS ETAR 271655Z AUTO 07003KT 9999 SCT090 06/03 A3007 RMK AO2 SLP195 T00570029 $  ## [A] Ramstein, Ramstein Air Base
083254 2022-11-27 17:55   1 DE DE-BY  --- ETEB 271655Z AUTO 14007KT 9999 OVC007 01/01 A3014 RMK AO2 OVC V BKN SLP249 T00140007 $  ## [A] , Ansbach Army Heliport
083263 2022-02-05 16:08   2 DE DE-RP  --- ETEK 051508Z AUTO 26011G20KT 9999 BKN016 02/M01 A3020 RMK AO2 SLP130 $  ## [A] , Baumholder Army Air Field
083270 2022-01-25 08:30  26               ETER 250730Z 27006KT NSC 26/16 Q1016=  ## [A]
083311 2022-11-27 17:20   5               ETGG 271620Z AUTO 16007KT 9999 // ////// 05/03 Q1019 ///=  ## [A]
083331 2022-11-27 17:20   2 DE DE-BY  --- ETHA 271620Z AUTO VRB01KT 9999 // ////// 02/00 Q1021 ///=  ## [A] Altenstadt, Altenstadt Army Airfield
083332 2022-11-27 17:20   9 DE DE-NI  --- ETHB 271620Z 17011KT 9999 FEW050 OVC075 09/01 Q1018 BLU=  ## [A] , Bückeburg Air Base
083333 2022-11-27 17:20   6 DE DE-NI  ZCN ETHC 271620Z AUTO 11005KT 9999 // ////// 06/03 Q1020 ///=  ## [A] , Celle Airport
083336 2022-11-27 17:20   7 DE DE-HE  FRZ ETHF 271620Z 21001KT 9999 BKN080 OVC140 07/02 Q1020 BLU=  ## [A] Fritzlar, Fritzlar Airport
083342 2022-11-27 17:20   0 DE DE-BW  --- ETHL 271620Z 06002KT 0300 FZFG VV000 M00/M00 Q1021 RED=  ## [A] , Laupheim Air Base
083344 2022-11-27 17:20   2 DE DE-BW  --- ETHN 271620Z 14013KT 9999 OVC100 02/M00 Q1020 BLU=  ## [A] Niederstetten, Niederstetten Army Air Base
083349 2022-11-27 17:20   5 DE DE-NI  --- ETHS 271620Z AUTO 13005KT 7000 // ////// 05/03 Q1019 ///=  ## [A] , Fassberg Air Base
083359 2022-11-27 17:55   2 DE DE-BY  --- ETIC 271655Z AUTO 12004KT 9999 OVC008 02/01 A3019 RMK AO2 PRESFR SLP246 T00180008 FZRANO $  ## [A] , Grafenwohr Army Air Field
083364 2022-11-27 17:55   2 DE DE-BY  --- ETIH 271655Z AUTO 12004KT 9999 OVC007 02/M00 A3021 RMK AO2 DZB03E19 SLP256 P0000 T00151004 $  ## [A] , Hohenfels Army Air Field
083367 2022-11-27 17:55   3 DE DE-BY  ILH ETIK 271655Z AUTO 12004KT 9999 SCT100 OVC190 03/01 A3017 RMK AO2 SLP237 T00280013=  ## [A] Storck Barracks, Illesheim Air Base
083472 2021-08-01 01:20  16               ETML 312320Z AUTO 26010KT //// // ////// 16/14 Q1004 ///=  ## [A]
083474 2022-11-27 17:20   5 DE DE-NI  FCN ETMN 271620Z 13008KT 9000 -RA SCT035 OVC040 05/04 Q1018 RERA BLU=  ## [A] Cuxhaven, Nordholz Naval Airbase
083490 2022-11-25 11:20   9 DE DE-NI  --- ETND 251020Z 18007KT 9999 FEW016 BKN046 09/08 Q1013 BLU=  ## [A] Diepholz, Diepholz Air Base
083493 2022-11-25 16:50  11 DE DE-NW  GKE ETNG 251550Z 24006KT 9999 SCT025 BKN040 11/07 Q1019 TEMPO -SHRA=  ## [A] , Geilenkirchen Air Base
083494 2022-11-27 17:20   5 DE DE-SH  --- ETNH 271620Z AUTO 14003KT 9999 // ////// 05/03 Q1019 ///=  ## [A] , Hohn Air Base
083498 2022-11-27 17:20   5 DE DE-MV  RLG ETNL 271620Z 13004KT 9999 BKN130 05/03 Q1022 BLU=  ## [A] Rostock, Rostock-Laage Airport
083500 2022-11-27 17:20   7 DE DE-NW  --- ETNN 271620Z 12006KT 9999 -RA BKN050 07/04 Q1017 BLU=  ## [A] , Nörvenich Air Base
083505 2022-11-27 17:20   5 DE DE-SH  WBG ETNS 271620Z AUTO 15007KT 9999 // ////// 05/03 Q1019 ///=  ## [A] Jagel, Schleswig Air Base
083506 2022-11-27 17:20   6 DE DE-NI  --- ETNT 271620Z AUTO 16006KT //// // ////// 06/04 Q1016 ///=  ## [A] , Wittmundhafen Airport
083509 2022-11-27 17:20   7 DE DE-NI  --- ETNW 271620Z 13008KT 9999 OVC110 07/03 Q1018 BLU=  ## [A] , Wunstorf Air Base
083533 2022-11-27 17:55   6 DE DE-HE  WIE ETOU 271655Z AUTO 00000KT 9999 BKN090 06/06 A3013 RMK AO2 SLP211 T00600059 FZRANO $  ## [A] Wiesbaden, Wiesbaden Army Airfield
083618 2022-11-27 17:20   4 DE DE-RP  --- ETSB 271620Z AUTO 14005KT //// // ////// 04/03 Q1017 ///=  ## [A] , Büchel Air Base
083624 2022-11-27 17:20   2 DE DE-BR  --- ETSH 271620Z 11003KT 9999 SCT170 SCT280 02/01 Q1023 BLU+=  ## [A] , Holzdorf Air Base
083625 2022-11-27 17:20   3 DE DE-BY  IGS ETSI 271620Z AUTO 11005KT 9999 // ////// 03/01 Q1023 ///=  ## [A] Manching, Ingolstadt Manching Airport
083628 2022-11-27 17:20  -1 DE DE-BY  --- ETSL 271620Z AUTO 08007KT 0150 // ////// M01/M01 Q1022 ///=  ## [A] Lagerlechfeld, Lechfeld Air Base
083630 2022-11-27 17:20   2 DE DE-BY  --- ETSN 271620Z 15004KT 9000 BKN008 02/01 Q1023 GRN=  ## [A] Neuburg (Donau), Neuburg AFB
083643 2019-06-26 13:00  31               ETTA 261100Z 01009KT 340V050 CAVOK 31/16 Q1019=  ## [A]
083733 2022-11-27 17:20   6 DE DE-NI  --- ETWM 271620Z AUTO 12005KT //// // ////// 06/04 Q1016 ///=  ## [A] , Meppen Air Base
------ Lettland:
084657 2022-11-27 18:20  -3 LV LV-OG  --- EVGA 271720Z 13005KT 100V160 9999 OVC005 M03/M04 Q1029 NOSIG=  ## [A] Lielvarde, Lielvarde Air Base
084787 2022-11-27 18:20   1 LV LV-LE  LPX EVLA 271720Z AUTO 10006KT 9000 BKN003/// 01/00 Q1026=  ## [A] Liep?ja, Liep?ja International Airport
084943 2022-11-27 18:20  -3 LV LV-RIX RIX EVRA 271720Z 12005KT 100V160 9999 OVC005 M03/M04 Q1029 NOSIG=  ## [A] Riga, Riga International Airport
084995 2019-06-15 15:00  29 LV LV-TU  --- EVTA 151300Z 03006KT 340V070 9999 FEW046 29/18 Q1016=  ## [A] Tukums, J?rmala Airport
085047 2022-11-27 18:20  -1 LV LV-VEN VNT EVVA 271720Z AUTO 11006KT 9999 SCT006 OVC055 M01/M01 Q1027=  ## [A] Ventspils, Ventspils International Airport
085656 2019-08-21 13:00  29               EWSL 211100Z 24008KT 210V280 9999 FEW010 BKN040 29/25 Q1015 NOSIG=  ## [A]
------ Litauen:
086789 2022-11-27 18:20   0 LT LT-KU  KUN EYKA 271720Z VRB02KT 0550 R08/1500N FZFG OVC002 M00/M01 Q1028=  ## [A] Kaunas, Kaunas International Airport
086919 2022-11-27 18:20   1 LT LT-KL  PLQ EYPA 271720Z 15004KT 3800 BR BKN002 BKN016 01/01 Q1027=  ## [A] Palanga, Palanga International Airport
086997 2022-11-27 18:20  -2 LT LT-SA  SQQ EYSA 271720Z 13004KT 1700 1000NW BR OVC002 M02/M02 Q1028 NOSIG=  ## [A] ?iauliai, ?iauliai International Airport
087083 2022-11-27 18:20  -2 LT LT-VL  VNO EYVI 271720Z 14004KT 4200 -FZDZ BR OVC003 M02/M02 Q1027 TEMPO 1500 FZDZ BR=  ## [A] Vilnius, Vilnius International Airport
------ Sydafrika:
087918 2022-11-27 18:09  17 ZA ZA-FS  BFN FABL 271709Z 34024G34KT 320V020 7000 TS FEW030TCU FEW035CB BKN070 17/10 Q1014 TEMPO 5000 TSRA=  ## [A] Bloemfontain, Bram Fischer International Airport
087919 2022-11-18 15:28  13 ZA ZA-FS  --- FABM 181428Z AUTO 22019G37KT //// // ////// 13/11 Q1018=  ## [A] Bethlehem, Bethlehem Airport
087924 2020-04-25 08:00  25 ZA ZA-MP  --- FABR 250600Z 27007KT 9999 FEW020 25/23 Q1015=  ## [A] Umjindi (Barberton), Barberton Airport
087952 2022-11-27 18:00  24 ZA ZA-WC  CPT FACT 271700Z 15018KT CAVOK 24/12 Q1011 NOSIG=  ## [A] Cape Town, Cape Town International Airport
087954 2022-11-27 07:45  21 ZA ZA-NC  --- FACV 270645Z 08014KT CAVOK 21/05 Q1017=  ## [A] Calvinia, Calvinia Airport
087983 2022-11-16 07:45  21 ZA ZA-NC  --- FADY 160645Z 12005KT CAVOK 21/09 Q1016=  ## [A] De Aar, De Aar Military Airport
087996 2022-11-27 18:00  18 ZA ZA-EC  ELS FAEL 271700Z 04003KT 9999 SCT043 18/17 Q1018=  ## [A] East London, Ben Schoeman Airport
087999 2022-11-19 18:20  20 ZA ZA-MP  --- FAEO 191720Z 32005KT 9999 TS FEW030CB SCT070 20/12 Q1021=  ## [A] Ermelo, Ermelo Airport
088043 2022-11-27 18:00  18 ZA ZA-WC  GRJ FAGG 271700Z 12015KT 9999 FEW017 SCT033 18/15 Q1017=  ## [A] George, George Airport
088049 2022-11-27 09:00  21 ZA ZA-GT  QRA FAGM 270800Z VRB02KT CAVOK 21/10 Q1020=  ## [A] Johannesburg, Rand Airport
088081 2022-11-27 18:00  23 ZA ZA-NP  HDS FAHS 271700Z AUTO 14008KT //// // ////// 23/19 Q1014=  ## [A] Hoedspruit, Hoedspruit Air Force Base Airport
088106 2022-11-26 23:26  13               FAIR 262226Z 18008KT 9999 RA OVC020 13/11 Q1022=  ## [A]
088116 2022-11-27 18:00  18               FAJB 271700Z AUTO 00000KT //// // ////// 18/12 Q1016=  ## [A]
088153 2022-11-27 18:00  27 ZA ZA-NC  KIM FAKM 271700Z 11002KT 9999 SCT050 27/08 Q1011=  ## [A] Kimberley, Kimberley Airport
088154 2022-11-27 18:00  19 ZA ZA-MP  MQP FAKN 271700Z 08004KT 9999 BKN015 19/17 Q1016 NOSIG=  ## [A] Mpumalanga, Kruger Mpumalanga International Airport
088167 2022-11-27 18:00  21 ZA ZA-GT  HLA FALA 271700Z 10005KT 9999 FEW040 21/12 Q1016 NOSIG=  ## [A] Johannesburg, Lanseria Airport
088171 2022-11-27 18:00  21 ZA ZA-NL  DUR FALE 271700Z 12006KT 070V190 9999 -RA FEW015 BKN024 BKN035 21/17 Q1015 NOSIG=  ## [A] Durban, King Shaka International Airport
088179 2020-01-30 06:00  21 ZA ZA-NP  --- FALM 300500Z 09010KT 8000 NSC 21/// Q1022=  ## [A] Louis Trichardt Southwest, Makhado Air Force Base Airport
088189 2022-11-27 18:00  25 ZA ZA-WC  SDB FALW 271700Z AUTO 19015KT //// // ////// 25/11 Q1008=  ## [A] Langebaanweg, Langebaanweg Airport
088193 2019-05-19 15:00  29 ZA ZA-NL  --- FAMA 191300Z 07011KT 9999 FEW025 29/18 Q1017 NOSIG=  ## [A] Matatiele, Matatiele Airport
088203 2021-03-12 07:43 XXX ZA ZA-NW  --- FAMK 120643Z AUTO 06007KT //// // ////// ///// Q1021=  ## [A] Mafeking, Mafeking Airport
088205 2022-11-27 18:00  20 ZA ZA-NW  MBD FAMM 271700Z 02005KT 9999 FEW030 20/14 Q1014 NOSIG=  ## [A] Mafeking, Mmabatho International Airport
088221 2020-03-03 08:00  28 ZA ZA-NL  NCS FANC 030700Z 24014KT 200V250 9999 FEW020 28/22 Q1014=  ## [A] Newcastle, Newcastle Airport
088246 2022-08-30 08:00   9 ZA ZA-WC  OVG FAOB 300600Z AUTO 09003KT //// // ////// 09/06 Q1036=  ## [A] Overberg, Overberg Airport
088262 2022-11-27 18:00  17 ZA ZA-GT  JNB FAOR 271700Z 17003KT 100V200 CAVOK 17/13 Q1017 NOSIG=  ## [N] Johannesburg, OR Tambo International Airport
088272 2019-07-09 00:00  22               FAPB 082200Z 21005KT 9999 SCT020 22/20 Q1018=  ## [A]
088275 2022-11-27 18:00  19 ZA ZA-EC  PLZ FAPE 271700Z 10008KT 070V130 9999 FEW017 19/16 Q1018 NOSIG=  ## [A] Port Elizabeth, Port Elizabeth Airport
088283 2022-08-24 07:00   9 ZA ZA-NL  PZB FAPM 240500Z 13002KT 0800 FG OVC001 09/09 Q1025=  ## [A] Pietermaritzburg, Pietermaritzburg Airport
088284 2022-02-25 07:00  23 ZA ZA-NW  NTY FAPN 250600Z AUTO 14002KT //// // ////// 23/16 Q////=  ## [A] Pilanesberg, Pilanesberg International Airport
088286 2022-11-27 18:00  20 ZA ZA-NP  PTG FAPP 271700Z 06006KT 9999 FEW025 SCT120 20/16 Q1017 NOSIG=  ## [A] Polokwane, Polokwane International Airport
088288 2019-05-13 16:00  23               FAPR 131400Z VRB03KT CAVOK 23/02 Q1026 NOSIG=  ## [A]
088350 2022-11-27 10:44  28 ZA ZA-NC  SBU FASB 270944Z 14008KT CAVOK 28/00 Q1014=  ## [A] Springbok, Springbok Airport
088357 2022-11-27 18:00  16 ZA ZA-GT  --- FASI 271700Z AUTO 09001KT //// // ////// 16/14 Q1020=  ## [A] Del Fouche, Springs Airfield
088394 2021-10-05 11:00  30 ZA ZA-MP  --- FATT 050900Z 13010KT 9999 BKN020 30/18 Q1017=  ## [A] Standerton, Tutuka Power Station Airport
088416 2022-11-27 18:00  33 ZA ZA-NC  UTN FAUP 271700Z 22007KT CAVOK 33/M00 Q1008 NOSIG=  ## [A] Upington, Pierre Van Ryneveld Airport
088420 2022-11-27 18:00  15 ZA ZA-EC  UTT FAUT 271700Z 13008KT 9999 BKN015 15/13 Q1017=  ## [A] Mthatha, K. D. Matanzima Airport
088448 2022-11-27 18:00  19 ZA ZA-GT  --- FAVV 271700Z AUTO 10004KT //// // ////// 19/13 Q1017=  ## [A] Vereeniging, Vereeniging Airport
088454 2022-11-27 18:00  21 ZA ZA-GT  PRY FAWB 271700Z AUTO 00000KT //// // ////// 21/13 Q1013=  ## [A] Pretoria, Wonderboom Airport
088463 2022-11-24 16:00  28 ZA ZA-GT  WKF FAWK 241500Z AUTO 30007KT //// // ////// 28/12 Q1019=  ## [A] Pretoria, Waterkloof Air Force Base
088520 2021-12-13 07:00  18 ZA ZA-WC  --- FAYP 130600Z 33008KT 3000 BR OVC015 18/// Q1013=  ## [A] Cape Town, Ysterplaat Air Force Base
------ Botswana:
088706 2022-09-13 08:00  17 BW BW-NE  FRW FBFT 130600Z 07014KT 9999 OVC010 17/11 Q1025 NOSIG=  ## [A] Francistown, Francistown Airport
088821 2022-11-27 18:00  18 BW BW-NW  BBK FBKE 271700Z 21007KT 180V250 9999 TSRA SCT020 FEW030CB SCT065 18/18 Q1015=  ## [A] Kasane, Kasane Airport
088882 2022-11-27 18:00  22 BW BW-NW  MUB FBMN 271700Z 04008KT CAVOK 22/09 Q1011=  ## [A] Maun, Maun Airport
088884 2022-06-11 10:00  17               FBMP 110800Z 09011KT 060V130 9999 SCT020 17/09 Q1030=  ## [A]
088959 2022-11-27 18:00  19               FBPM 271700Z 04003KT 9999 FEW025 19/18 Q1013=  ## [A]
089035 2022-11-27 18:00  23 BW BW-SE  GBE FBSK 271700Z VRB01KT 9999 SCT030 23/16 Q1012 NOSIG=  ## [A] Gaborone, Sir Seretse Khama International Airport
089040 2022-09-27 06:00  18 BW BW-CE  PKW FBSP 270400Z 10003KT CAVOK 18/01 Q1018 NOSIG=  ## [A] , Selebi Phikwe Airport
------ Kongo-Brazzaville:
089260 2022-11-27 16:00  28 CG CG-12  BZV FCBB 271500Z 06008KT 9999 FEW023 FEW030CB 28/21 Q1007 TEMPO TS=  ## [A] Brazzaville, Maya-Maya Airport
089605 2020-07-17 08:20  24 CG CG-7   ION FCOI 170620Z 000000KT 9999 TS SCT010 FEW026CB 24/23 Q1015=  ## [A] Impfondo, Impfondo Airport
089623 2021-08-02 14:00  28 CG CG-9   KMK FCPA 021200Z VRB02KT 9999 BKN016 28/20 Q////=  ## [A] Makabana, Makabana Airport
089638 2022-11-27 16:00  29 CG CG-5   PNR FCPP 271500Z 24006KT 200V280 9999 SCT013 FEW030CB 29/24 Q1006 NOSIG=  ## [A] Pointe Noire, Pointe Noire Airport
089936 2022-11-27 18:00  23               FDBB 271700Z AUTO 18005KT //// // ////// 23/20 Q1011=  ## [A]
------ Swaziland:
090239 2022-11-27 15:00  23 SZ SZ-MA  MTS FDMS 271400Z 10003KT 9999 BKN035 23/17 Q1013 NOSIG=  ## [A] Manzini, Matsapha Airport
090245 2022-11-27 18:00  21               FDMY 271700Z AUTO 00000KT //// // ////// 21/18 Q1023=  ## [A]
090292 2022-10-31 08:00  21               FDOT 310700Z AUTO 12013KT //// // ////// 21/16 Q1020=  ## [A]
090314 2022-11-27 18:00  17               FDPP 271700Z AUTO /////KT //// // ////// 17/M02 Q1013=  ## [A]
090387 2022-11-27 17:00  23 SZ SZ-LU  SHO FDSK 271600Z 18012KT 9999 FEW025 BKN030 23/17 Q1013 NOSIG=  ## [A] Manzini, King Mswati III International Airport
090396 2022-11-27 18:00  21 SZ SZ-LU  --- FDST 271700Z AUTO 36008KT //// // ////// 21/19 Q1012=  ## [A] Siteki, Siteki Airport
------ Centralafrikanska republiken:
090720 2022-11-27 11:00  29 CF CF-MP  BGF FEFF 271000Z 23007KT 8000 SCT016 29/23 Q1010 NOSIG=  ## [A] Bangui, Bangui M'Poko International Airport
090729 2022-07-24 12:00  26 CF CF-NM  BOP FEFO 241000Z 04006KT 9999 BKN020TCU 26/20 Q1018=  ## [A] Bouar, Bouar Airport
090734 2022-11-27 11:00  24 CF CF-HS  BBT FEFT 271000Z 32012KT 9999 FEW016 24/22 Q1011=  ## [A] Berbérati, Berbérati Airport
------ Ekvatorialguinea:
091982 2022-11-27 04:00  25 GQ GQ-LI  BSG FGBT 270300Z 15004KT 9999 SCT010 25/25 Q1009=  ## [A] , Bata Airport
092416 2022-11-27 11:00  29 GQ GQ-BN  SSG FGSL 271000Z 28008KT 240V320 9999 SCT010 FEW020CB 29/24 Q1011 RETS NOSIG=  ## [A] Malabo, Malabo Airport
------ Sankta Helena:
092635 2022-11-25 14:50  27 SH SH-AC  ASI FHAW 251350Z 14015KT 9999 FEW025 27/18 Q1013 RMK BLU=  ## [A] Ascension Island, RAF Ascension Island
093601 2022-11-11 04:00  23               FIMA 110300Z 9999 FEW017 23/22 Q1013=  ## [A]
------ Mauritius:
093616 2022-11-27 18:00  23 MU MU-GP  MRU FIMP 271700Z 06003KT 9999 FEW018 23/19 Q1014=  ## [A] Port Louis, Sir Seewoosagur Ramgoolam International Airport
093618 2022-11-11 02:00  23 MU MU-VP  RRG FIMR 110100Z 12011KT 9999 FEW020 23/19 Q1015=  ## [A] Port Mathurin, Sir Charles Gaetan Duval Airport
------ Brittiska territoriet i Indiska Oceanen:
094049 2022-11-27 17:55  26 IO IO-U-A NKW FJDG 271655Z 16004KT 9999 FEW022 SCT220 26/25 A2980 RMK SLP088 T02650253=  ## [A] Diego Garcia, Diego Garcia Naval Support Facility
------ Kamerun:
094904 2022-11-27 11:00  29 CM CM-LT  DLA FKKD 271000Z VRB02KT 9999 BKN016 FEW020CB 29/24 Q1010 NOSIG=  ## [A] Douala, Douala International Airport
094912 2022-11-27 11:00  30 CM CM-EN  MVR FKKL 271000Z /////KT CAVOK 30/03 Q1012=  ## [A] Maroua, Salak Airport
094914 2022-11-27 11:00  29 CM CM-AD  NGE FKKN 271000Z 02006KT CAVOK 29/08 Q1016=  ## [A] N'Gaoundéré, N'Gaoundéré Airport
094918 2022-11-27 11:00  31 CM CM-NO  GOU FKKR 271000Z 28005KT 190V330 CAVOK 31/06 Q1011 NOSIG=  ## [A] Garoua, Garoua International Airport
095283 2022-11-27 15:00  30 CM CM-CE  NSI FKYS 271400Z 02006KT 330V050 9999 BKN020 FEW023TCU 30/19 Q1010 NOSIG=  ## [A] Yaoundé, Yaoundé Nsimalen International Airport
095512 2022-11-18 16:00  35               FLHN 181500Z 10008KT CAVOK 35/13 Q1013=  ## [A]
095587 2022-11-26 13:00  29               FLKK 261200Z 07012KT 9999 BKN035 29/14 Q1015 TEMPO FEW035TCU=  ## [A]
------ Zambia:
095613 2020-09-10 14:00  26 ZM ZM-01  LXU FLLK 101200Z 10008KT CAVOK 26/M03 Q1021=  ## [A] Lukulu, Lukulu Airport
095634 2022-07-02 12:00 XXX ZM ZM-03  MFU FLMF 021000Z 0212/0318 13010KT 9999 BKN030 BECMG 0215/0217 15005KT CAVOK BECMG 0304/0306 9999 SCT006 BECMG 0308/0310 BKN020=  ## [A] Mfuwe, Mfuwe Airport
095658 2021-01-05 17:00 XXX ZM ZM-08  NLA FLND 051600Z 0518/0624 VRB03KT 9000 -SHRA FEW///CB BKN090 PROB40 TEMPO 0520/0601 34005KT -RA PROB40 TEMPO 0603/0707 33005KT -RADZ BKN009 BECMG 0608/0610 BKN035=  ## [A] Ndola, Simon Mwansa Kapwepwe International Airport
095784 2022-07-02 12:00 XXX ZM ZM-09  --- FLRZ 021000Z 0212/0318 08010G15KT 9999 BKN030 BECMG 0215/0217 09005KT CAVOK BECMG 0305/0307 9999 BKN007 BECMG 0308/0310 09010KT BKN020=  ## [A] , Royal Zambesi Lodge Airstrip
------ Komorerna:
096052 2022-11-27 16:00  28 KM KM-G   HAH FMCH 271500Z 22011KT 9999 SCT025 28/22 Q1010 NOSIG=  ## [A] Moroni, Prince Said Ibrahim International Airport
096066 2020-06-19 11:00  31 KM KM-A   AJN FMCV 190900Z 36006KT 9999 SCT020 31/18 Q1015=  ## [A] Ouani, Ouani Airport
------ Mayotte:
096070 2022-11-27 18:00  27 YT YT-U-A DZA FMCZ 271700Z AUTO 34007KT 9999 FEW034 BKN046 OVC056 27/23 Q1010 NOSIG=  ## [A] Dzaoudzi, Dzaoudzi Pamandzi International Airport
------ Réunion:
096101 2022-11-27 18:00  23 RE RE-U-A RUN FMEE 271700Z AUTO 14010KT 9999 NCD 23/17 Q1014 NOSIG=  ## [A] St Denis, Roland Garros Airport
096112 2022-11-27 18:00  24 RE RE-U-A ZSE FMEP 271700Z AUTO VRB03KT CAVOK 24/18 Q1014=  ## [A] St Pierre, Pierrefonds Airport
------ Madagaskar:
096313 2022-11-27 18:00  20 MG MG-T   TNR FMMI 271700Z 10011KT 9999 FEW020CB 20/13 Q1017 NOSIG=  ## [A] Antananarivo, Ivato Airport
096323 2022-11-27 16:00  26 MG MG-A   SMS FMMS 271500Z 14006KT 9999 FEW020 26/21 Q1013=  ## [A] , Sainte Marie Airport
096324 2022-11-27 18:00  25 MG MG-A   TMM FMMT 271700Z VRB03KT 9999 SCT017 SCT033 25/20 Q1013 NOSIG=  ## [A] , Toamasina Airport
096331 2022-11-27 16:00  26 MG MG-D   DIE FMNA 271500Z 14010KT 9999 FEW020 26/18 Q1010=  ## [A] , Arrachart Airport
096343 2022-11-27 18:00  27 MG MG-M   MJN FMNM 271700Z 32005KT 280V350 9999 FEW020 27/21 Q1009 NOSIG=  ## [A] , Amborovy Airport
096344 2022-11-27 16:00  28 MG MG-D   NOS FMNN 271500Z 24006KT 9999 SCT020 SCT100 28/// Q1009=  ## [A] Nosy Be, Fascene Airport
096464 2022-11-27 18:00  26 MG MG-U   FTU FMSD 271700Z 08023KT 9999 FEW020 26/21 Q1008=  ## [A] Tôlanaro, Tôlanaro Airport
------ Angola:
096697 2020-03-02 17:00  32 AO AO-ZAI SSY FNBC 021600Z 26005KT 9999 FEW013 FEW017CB 32/24 Q1008=  ## [A] Mbanza Congo, Mbanza Congo Airport
096701 2020-08-30 16:00  23 AO AO-BGU BUG FNBG 301400Z 27004KT 9999 BKN020 23/17 Q1013=  ## [A] Benguela, Benguela Airport
096712 2019-06-09 10:00  21               FNBR 090800Z 300 BR 09005KT BR OVC010 21/20 Q1017=  ## [A]
096721 2022-11-27 18:00  28 AO AO-CAB CAB FNCA 271700Z 19008KT 9999 FEW010 FEW030CB BKN080 28/24 Q1007=  ## [A] Cabinda, Cabinda Airport
096722 2020-01-05 17:00  33 AO AO-BGO --- FNCB 051600Z VRB03KT 9999 TS FEW015 FEW018CB 33/24 Q1007=  ## [A] Camembe, Camembe Airport
096740 2022-11-27 08:00  24 AO AO-BGU CBT FNCT 270700Z 00000KT 9999 OVC015 24/22 Q1011=  ## [A] Catumbela, Catumbela Airport
096767 2022-11-27 12:00 XXX AO AO-LNO DUE FNDU 271100Z 00000KT 9999 SCT020 FEW032CB ///// Q////=  ## [A] Chitato, Dundo Airport
096799 2019-12-11 18:00  29               FNFA 111700Z 25008KT 9999 FEW016 29/23 Q1009=  ## [A]
096833 2022-11-27 16:00  35 AO AO-CNN VPE FNGI 271500Z 36005KT 9999 SCT019 35/12 Q1008=  ## [A] Ngiva, Ngjiva Pereira Airport
096845 2019-10-05 15:00  23               FNGU 051300Z 15004KT 9999 TS SCT020 FEW024CB BKN080 23/17 Q1012=  ## [A]
096871 2022-11-27 16:00  15 AO AO-HUA NOV FNHU 271500Z 35012KT 5000 +DZ BKN018 FEW026CB SCT070 15/14 Q1015=  ## [A] Huambo, Nova Lisboa Airport
096881 2019-11-30 07:00  18               FNIE 300600Z 07005KT 9999 SCT025 OVC056 18/17 Q1020=  ## [A]
096949 2022-11-27 13:00  21 AO AO-BIE SVP FNKU 271200Z 26005KT 5000 TSRA FEW010CB OVC017 21/16 Q1015=  ## [A] Kuito, Kuito Airport
096963 2019-09-16 03:00  22               FNLI 160100Z 15006KT 9999 BKN020 22/20 Q1011 NOSIG=  ## [A]
096975 2022-11-27 18:00  26 AO AO-LUA LAD FNLU 271700Z VRB02KT 9000 FEW019 BKN070 26/23 Q1006=  ## [A] Luanda, Quatro de Fevereiro Airport
096981 2022-11-24 11:00  25 AO AO-MAL MEG FNMA 241000Z 16004KT 9999 BKN008 25/22 Q1016=  ## [A] Malanje, Malanje Airport
096985 2020-05-18 13:00 XXX AO AO-CCU SPP FNME 181100Z 1812/1824 08008KT CAVOK=  ## [A] Menongue, Menongue Airport
096994 2020-10-24 07:00  23               FNMN 240500Z 06006KT CAVOK 23/08 Q1018=  ## [A]
096995 2022-11-25 09:00  25 AO AO-NAM MSZ FNMO 250800Z 00000KT 9999 BKN026 25/21 Q1009=  ## [A] Namibe, Namibe Airport
097021 2019-11-20 12:00  27               FNNO 201100Z 24012KT CAVOK 27/16 Q1010=  ## [A]
097137 2022-11-27 16:00  26 AO AO-LSU VHC FNSA 271500Z 33007KT 9999 BKN023 26/19 Q1016=  ## [A] Saurimo, Saurimo Airport
097151 2022-11-27 16:00  29 AO AO-ZAI SZA FNSO 271500Z 25010KT 9999 SCT012 BKN050 29/25 Q////=  ## [A] Soyo, Soyo Airport
097152 2020-03-06 07:00  21               FNSP 060600Z 11004KT CAVOK 21/15 Q1023=  ## [A]
097157 2022-05-25 17:00  25 AO AO-CUS NDD FNSU 251500Z 21004KT CAVOK 25/19 Q1012=  ## [A] Sumbe, Sumbe Airport
097165 2021-01-03 17:00  27               FNTC 031600Z 26006KT 9999 BKN015 27/23 Q1009=  ## [A]
097190 2022-11-27 15:00  26 AO AO-HUI SDD FNUB 271400Z 36008KT 9999 SCT025 26/16 Q1017=  ## [A] Lubango, Lubango Airport
097193 2022-11-22 15:00  18 AO AO-MOX LUO FNUE 221400Z 09008KT 7000 TSRA SCT010 FEW030CB 18/16 Q1019=  ## [A] Luena, Luena Airport
097195 2022-11-27 17:00  23 AO AO-UIG UGO FNUG 271600Z 18006KT 9999 SCT020 BKN080 23/20 Q1010=  ## [A] Uige, Uige Airport
097199 2019-10-20 11:00  27               FNUK 200900Z 18005KT CAVOK 27/10 Q1022=  ## [A]
097215 2019-11-26 16:00  29               FNVA 261500Z 20010KT 9999 FEW016 BKN080 29/24 Q1009=  ## [A]
------ Gabon:
097511 2021-09-23 11:00  20 GA GA-7   KOU FOGK 230900Z 20/20 Q1017=  ## [A] Koulamoutou, Koulamoutou Mabimbi Airport
097513 2022-11-27 16:00  30 GA GA-4   MJL FOGM 271500Z 10004KT 9999 BKN015 30/24 Q////=  ## [A] Mouila, Mouilla Ville Airport
097515 2022-11-27 16:00  29 GA GA-9   OYE FOGO 271500Z /////KT 9999 SCT015TCU FEW020CB 29/21 Q////=  ## [A] Oyem, Oyem Airport
097518 2022-11-27 16:00  28 GA GA-3   LBQ FOGR 271500Z /////KT 9999 SCT008 OVC026 28/24 Q////=  ## [A] Lambarene, Lambarene Airport
097710 2022-11-27 16:00  31 GA GA-9   BMM FOOB 271500Z /////KT 9999 SCT016TCU 31/21 Q1003=  ## [A] Bitam, Bitam Airport
097715 2022-11-27 18:00  27 GA GA-8   POG FOOG 271700Z 21008KT 9999 FEW010 27/24 Q1007=  ## [A] Port Gentil, Port Gentil Airport
097719 2022-11-26 16:00  28 GA GA-6   MKU FOOK 261500Z /////KT 9999 SCT012 BKN018 28/23 Q////=  ## [A] Makokou, Makokou Airport
097720 2022-11-27 16:00  29 GA GA-1   LBV FOOL 271500Z 25006KT 200V270 9999 FEW015 FEW020CB 29/24 Q1006 NOSIG=  ## [A] Libreville, Libreville Leon M'ba International Airport
097722 2022-11-27 16:00  27 GA GA-2   MVB FOON 271500Z VRB02KT 9999 SCT013TCU 27/22 Q1008=  ## [A] Franceville, M'Vengue El Hadj Omar Bongo Ondimba International Airport
097726 2022-11-25 12:00  23 GA GA-7   LTL FOOR 251100Z /////KT 0800 FG SCT003 BKN005 FEW010CB 23/21 Q//// RERA=  ## [A] Lastourville, Lastourville Airport
097728 2022-11-27 10:00  27 GA GA-5   TCH FOOT 270900Z 00000KT 9999 SCT010 OVC023 27/23 Q////=  ## [A] Tchibanga, Tchibanga Airport
097733 2022-07-14 14:00  28 GA GA-5   MYB FOOY 141200Z /////KT 9999 BKN011 28/21 Q////=  ## [A] Mayumba, Mayumba Airport
------ São Tomé och Príncipe:
098508 2022-11-27 10:00  27 ST ST-S   TMS FPST 270900Z 36002KT 9999 FEW025 BKN110 27/24 Q1011 NOSIG=  ## [A] São Tomé, São Tomé International Airport
098738 2020-09-08 04:00  20               FQBP 080200Z 22007KT 9999 FEW020 20/18 Q1017=  ## [A]
------ Moçambique:
098740 2022-11-27 18:00  27 MZ MZ-S   BEW FQBR 271700Z 13016KT 9999 SCT018 BKN070 27/23 Q1007=  ## [A] Beira, Beira Airport
098750 2021-12-10 13:00  37 MZ MZ-A   FXO FQCB 101200Z 04005KT 9999 SCT019 37/11 Q////=  ## [A] Cuamba, Cuamba Airport
098756 2022-11-27 18:00  20 MZ MZ-B   VPY FQCH 271700Z /////KT 4000 TSRA SCT009 BKN015 FEW020CB 20/20 Q1013 RMK CB TO E/SE/S=  ## [A] Chimoio, Chimoio Airport
098760 2020-05-22 06:00  13               FQCL 220400Z 12009KT 6000 BR OVC002 13/13 Q1027 NOSIG=  ## [A]
098918 2022-11-27 18:00  23 MZ MZ-I   INH FQIN 271700Z 00000KT 9999 SCT020 BKN025 23/22 Q1010=  ## [A] Inhambabe, Inhambane Airport
098985 2022-11-27 18:00  24 MZ MZ-A   VXC FQLC 271700Z 08011KT 9999 SCT020 24/14 Q1015=  ## [A] Lichinga, Lichinga Airport
099004 2020-09-11 11:00  24               FQLV 110900Z 13008KT 9999 BKN020 24/20 Q1021=  ## [A]
099009 2022-11-27 18:00  24 MZ MZ-MPM MPM FQMA 271700Z 20009KT 9999 BKN020 24/19 Q1011 NOSIG=  ## [A] Maputo, Maputo Airport
099024 2022-10-28 06:00  23 MZ MZ-P   MZB FQMP 280400Z 24009KT 9999 -DZ BKN020 23/21 Q1015 NOSIG=  ## [A] Mocímboa da Praia, Mocímboa da Praia Airport
099037 2022-11-27 14:00  30 MZ MZ-N   MNC FQNC 271300Z 34008KT 9999 FEW020 30/22 Q1011=  ## [A] Nacala, Nacala Airport
099050 2022-11-27 18:00  30 MZ MZ-N   APL FQNP 271700Z 06016KT CAVOK 30/15 Q1009=  ## [A] Nampula, Nampula Airport
099088 2022-11-27 18:00  26 MZ MZ-P   POL FQPB 271700Z 06011KT 9999 FEW020 26/23 Q1009=  ## [A] Pemba / Porto Amelia, Pemba Airport
099100 2019-05-16 06:00  21               FQPN 160400Z 22007KT 9999 FEW020 21/20 Q1016=  ## [A]
099124 2022-11-27 18:00  27 MZ MZ-Q   UEL FQQL 271700Z 10013KT 9999 FEW020 27/22 Q1006=  ## [A] Quelimane, Quelimane Airport
099195 2020-09-14 08:00  25               FQTE 140600Z 12006KT 9999 BKN020 BKN100 25/17 Q////=  ## [A]
099210 2022-11-27 18:00  33 MZ MZ-T   TET FQTT 271700Z 00000KT 9999 SCT020 FEW025CB 33/22 Q1003 RMK CB TO N/E=  ## [A] Tete, Chingozi Airport
099254 2022-11-27 16:00  27 MZ MZ-I   VNX FQVL 271500Z 14004KT 9000 RA FEW010 BKN020 BKN025 27/25 Q1009=  ## [A] Vilanculo, Vilankulo Airport
099295 2022-11-27 18:00  22 MZ MZ-G   VJB FQXA 271700Z 32005KT 270V030 1000 RA SCT010 OVC020 22/22 Q1011=  ## [A] Xai-Xai, Xai-Xai Airport
100090 2021-02-20 13:00  32               FSBP 201200Z 34007KT 9999 SCT030 32/22 Q1012=  ## [A]
------ Seychellerna:
100257 2022-11-27 18:00  28 SC SC-20  SEZ FSIA 271700Z VRB06KT 9999 SCT023 28/23 Q1008 NOSIG=  ## [A] Mahe Island, Seychelles International Airport
100364 2019-10-29 08:00  29               FSMD 290700Z 18004KT CAVOK 29/24 Q1012=  ## [A]
100846 2019-11-04 15:08 XXX               FTER 042000Z SLP150=  ## [A]
------ Tchad:
101219 2022-11-27 18:00  28 TD TD-MC  SRH FTTA 271700Z 00000KT CAVOK 28/15 Q1006=  ## [A] Sarh, Sarh Airport
101220 2020-05-22 08:00  25 TD TD-MK  OGR FTTB 220600Z 18006KT CAVOK 25/21 Q////=  ## [A] Bongor, Bongor Airport
101221 2022-11-27 16:00  33 TD TD-OD  AEH FTTC 271500Z 18004KT CAVOK 33/// Q1007=  ## [A] , Abeche Airport
101222 2022-11-27 16:00  36 TD TD-LO  MQQ FTTD 271500Z 00000KT CAVOK 36/07 Q1007=  ## [A] , Moundou Airport
101226 2022-02-09 07:00  15 TD TD-TA  LTC FTTH 090600Z 00000KT 8000 NSC 15/04 Q////=  ## [A] Lai, Lai Airport
101228 2022-11-27 17:00  31 TD TD-CB  NDJ FTTJ 271600Z 29005KT 8000 NSC 31/04 Q1006 NOSIG=  ## [A] N'Djamena, N'Djamena International Airport
101243 2022-11-27 10:00  31 TD TD-BET FYT FTTY 270900Z 04006KT CAVOK 31/00 Q1014=  ## [A] , Faya Largeau Airport
101565 2019-08-18 11:00  19               FUGI 180900Z 18006KT 5000 BR OCV055 19/16 Q1017=  ## [A]
------ Zimbabwe:
102154 2022-11-27 10:00  23 ZW ZW-MV  BFO FVCZ 270900Z 00000KT 9999 RA FEW015 OVC120 23/21 Q1017=  ## [A] Chiredzi, Buffalo Range Airport
102207 2022-11-27 11:00  21 ZW ZW-MN  VFA FVFA 271000Z 08008KT 040V100 8000 -RA SCT010 BKN080 21/20 Q1015 NOSIG=  ## [A] Victoria Falls, Victoria Falls International Airport
102324 2022-11-27 11:00  23               FVJN 271000Z 35011KT 9999 SCT020 BKN080 23/17 Q1017 NOSIG=  ## [A]
102338 2022-11-27 07:00  29 ZW ZW-MW  KAB FVKB 270600Z 26006KT CAVOK 29/20 Q1012=  ## [A] Kariba, Kariba International Airport
102410 2022-11-27 11:00  23 ZW ZW-MV  MVZ FVMV 271000Z 03002KT 9999 OVC100 23/18 Q1016 RERA=  ## [A] Masvingo, Masvingo International Airport
102525 2022-11-27 18:00  17               FVRG 271700Z 18005KT 9999 FEW030CB BKN090 17/16 Q1017 NOSIG=  ## [A]
102662 2022-09-16 14:00  32 ZW ZW-MN  HWN FVWN 161200Z 06008KT CAVOK 32/03 Q1021=  ## [A] Hwange, Hwange National Park Airport
------ Malawi:
102816 2022-11-27 14:00  35 MW MW-BL  BLZ FWCL 271300Z 08006KT 9999 FEW030CB SCT035 35/13 Q1009 NOSIG=  ## [A] Blantyre, Chileka International Airport
103021 2022-11-27 16:45  27 MW MW-LI  LLW FWKI 271545Z 06013KT 9999 FEW030CB 27/14 Q1012 NOSIG=  ## [A] Lilongwe, Lilongwe International Airport
103293 2022-05-02 08:00  17 MW MW-MZ  ZZU FWUU 020600Z 16008KT 7000 -RA SCT006 SCT013 BKN080 17/16 NOSIG=  ## [A] Mzuzu, Mzuzu Airport
------ Lesotho:
103753 2022-11-25 13:00  27 LS LS-A   MSU FXMM 251200Z 27015KT 9999 FEW035 27/09 Q1020 NOSIG=  ## [A] Maseru, Moshoeshoe I International Airport
------ Namibia:
104262 2021-08-24 14:00  29 NA NA-OH  GOG FYGB 241200Z AUTO /////KT //// // ////// 29/M02 Q1021=  ## [A] Gobabis, Gobabis Airport
104266 2022-11-27 18:00  27 NA NA-OD  GFY FYGF 271700Z AUTO 05005KT //// // ////// 27/15 Q1011=  ## [A] Grootfontein, Grootfontein Airport
104377 2022-11-27 15:00  19 NA NA-CA  MPA FYKM 271400Z 25006KT 9999 TSRA SCT010 OVC060 19/18 Q1011=  ## [A] Mpacha, Katima Mulilo Airport
104384 2022-09-02 09:00 XXX NA NA-KA  KMP FYKT 020700Z /////KT CAVOK ///// Q////=  ## [A] Keetmanshoop, Keetmanshoop Airport
104416 2022-11-27 18:00  19 NA NA-KA  LUD FYLZ 271700Z AUTO 23006KT //// // ////// 19/13 Q1007=  ## [A] Luderitz, Luderitz Airport
104428 2021-08-24 14:00  29 NA NA-HA  --- FYML 241200Z AUTO 11005KT //// // ////// 29/M07 Q1020=  ## [A] Mariental, Mariental Airport
104432 2020-02-13 13:00  31               FYMP 131200Z /////KT 9999 SCT040 31/19 Q1014 NOSIG=  ## [A]
104469 2022-11-27 06:00  23 NA NA-ON  OND FYOA 270500Z AUTO 19003KT //// // ////// 23/03 Q1010=  ## [A] Ondangwa, Ondangwa Airport
104483 2021-08-24 16:00  33 NA NA-KU  OKF FYOO 241400Z AUTO 36006KT //// // ////// 33/04 Q1014=  ## [A] Okaukuejo, Okaukuejo Airport
104491 2021-08-24 16:00  31 NA NA-OH  OTJ FYOW 241400Z AUTO 32005KT //// // ////// 31/06 Q1015=  ## [A] Otjiwarongo, Otjiwarongo Airport
104560 2020-03-14 16:00  25               FYRN 141500Z 18010KT 9999 TS FEW035CB SCT040TCU FEW080 25/19 Q1015=  ## [A]
104567 2022-11-27 18:00  26 NA NA-KE  NDU FYRU 271700Z AUTO 11011KT //// // ////// 26/18 Q1012=  ## [A] Rundu, Rundu Airport
104678 2022-11-27 15:00  17 NA NA-ER  WVB FYWB 271400Z 31008KT 9999 BKN024 17/12 Q1009=  ## [A] Walvis Bay, Walvis Bay Airport
104681 2022-11-27 17:00  31 NA NA-KH  ERS FYWE 271600Z 26010KT 250V320 CAVOK 31/M12 Q1013=  ## [A] Windhoek, Eros Airport
104684 2022-11-27 18:00  31 NA NA-KH  WDH FYWH 271700Z 29013KT CAVOK 31/M06 Q1013 NOSIG=  ## [A] Windhoek, Hosea Kutako International Airport
104699 2022-11-27 18:00  29               FYWW 271700Z AUTO 26009KT //// // ////// 29/M04 Q1013=  ## [A]
------ Kongo-Kinshasa:
104781 2022-11-27 15:00  31 CD CD-KN  FIH FZAA 271400Z 09010KT 8000 SCT022 FEW030CB 31/21 Q1007 TEMPO TS=  ## [A] Kinshasa, Ndjili International Airport
104991 2022-11-27 16:00  28 CD CD-OR  FKI FZIC 271500Z 21006KT 8000 SCT020 FEW028CB 28/23 Q1007 NOSIG=  ## [A] Kisangani, Bangoka International Airport
105119 2022-11-27 18:00  20 CD CD-NK  GOM FZNA 271700Z 05006KT 6000 SCT018 FEW020CB BKN100 20/16 Q1015 NOSIG=  ## [A] Goma, Goma International Airport
105197 2022-11-27 18:00  21 CD CD-KA  FBM FZQA 271700Z 34006KT 9999 TS SCT014 FEW028CB BKN080 21/18 Q1014 BECMG TSRA=  ## [A] Lubumbashi, Lubumbashi International Airport
105209 2020-12-17 10:10  26 CD CD-KA  KWZ FZQM 170910Z 29007KT 9999 BKN017TCU 26/18 Q1021 NOSIG=  ## [A] , Kolwezi Airport
105228 2022-11-26 14:00  29 CD CD-KA  FMI FZRF 261300Z 17009KT 9999 FEW021 BKN300 29/18 Q1010 NOSIG=  ## [A] , Kalemie Airport
105353 2022-02-11 12:00  28 CD CD-KE  MJM FZWA 111100Z 25004KT 9999 FEW022 BKN110 28/21 Q1012 NOSIG=  ## [A] Mbuji Mayi, Mbuji Mayi Airport
------ Mali:
105489 2020-10-01 19:27  32 ML ML-3   --- GABG 011727Z 00000KT TS SCT020 FEW030CB 32/23 Q1007=  ## [A] Bougouni, Bougouni Airport
105501 2022-11-27 18:00  30 ML ML-2   BKO GABS 271700Z 10003KT CAVOK 30/09 Q1009 NOSIG=  ## [A] Bamako, Modibo Keita International Airport
105627 2022-04-09 08:00 XXX ML ML-7   GAQ GAGO 090600Z N=  ## [A] , Gao Airport
105720 2022-11-27 16:00  36               GAKD 271500Z 16006KT CAVOK 36/06 Q1008=  ## [A]
105728 2022-09-10 03:30 XXX ML ML-8   --- GAKL 100130Z NI130Z NIL=  ## [A] Kidal, Kidal Airport
105731 2021-04-25 05:00  31 ML ML-3   KTX GAKO 250300Z 22008KT CAVOK 31/19 Q1004=  ## [A] Koutiala, Koutiala Airport
105736 2021-02-17 22:00  30 ML ML-1   --- GAKT 172100Z 36004KT 2000 HZ NSC 30/09 Q1013=  ## [A] Kita, Kita Airport
105770 2022-11-27 18:00  29 ML ML-5   MZI GAMB 271700Z 34008KT CAVOK 29/11 Q1008=  ## [A] , Mopti Airport
105805 2021-06-21 23:00  34 ML ML-2   NRM GANK 212100Z 00000KT CAVOK 34/21 Q////=  ## [A] Nara, Nara Airport
105812 2022-11-27 16:00  33 ML ML-1   NIX GANR 271500Z 12004KT CAVOK 33/02 Q1010=  ## [A] Nioro du Sahel, Nioro du Sahel Airport
105931 2019-09-10 22:34  29               GASG 102034Z 00000KT 9999 TSRA FEW020 FEW030CB 29/26 Q////=  ## [A]
105935 2020-10-17 23:45  25 ML ML-3   KSS GASK 172145Z 13035KT 2000 TSRA FEW013 FEW026CB 25/22 Q1015=  ## [A] Sikasso, Sikasso Airport
105938 2021-07-05 01:25  27               GASN 042325Z 04014KT 9000 TSRA FEW030CB 27/23 Q1018=  ## [A]
105952 2022-09-06 13:00  34 ML ML-7   TOM GATB 061100Z 24012G18KT CAVOK 34/26 Q1012=  ## [A] Timbuktu, Timbuktu Airport
106085 2020-10-11 15:05  27 ML ML-1   EYL GAYE 111305Z 14008KT 6000 TSRA FEW030 FEW040CB 27/24 Q1012=  ## [A] Yélimané, Yélimané Airport
106177 2019-07-28 19:10  29               GBBS 281710Z 00000KT 9999 TS SCT013 FEW018CB SCT130 29/25 CB E-SE=  ## [A]
106282 2020-07-13 22:08  29               GBFT 132008Z 06024KT 8000 TSSQ BKN010 FEW016CB 29/25 Q//// CB(NE-S)=  ## [A]
------ Gambia:
106760 2022-11-27 18:00  31 GM GM-W   BJL GBYD 271700Z VRB03KT CAVOK 31/16 Q1008=  ## [A] Banjul, Banjul International Airport
------ Spanien:
106960 2022-11-27 18:00  22 ES ES-CN  FUE GCFV 271700Z 03013KT 9999 FEW015 22/20 Q1021=  ## [A] Fuerteventura Island, Fuerteventura Airport
106977 2022-11-27 18:00  23 ES ES-CN  GMZ GCGM 271700Z 23005KT 200V260 CAVOK 23/17 Q1021 RMK R09/24003KT 200V290 ARP/23004KT 160V300=  ## [A] Alajero,  La Gomera Island, La Gomera Airport
106999 2022-11-27 18:00  22 ES ES-CN  VDE GCHI 271700Z 01012KT 330V040 9999 FEW020 22/17 Q1021=  ## [A] El Hierro Island, Hierro Airport
107095 2022-11-27 18:00  23 ES ES-CN  SPC GCLA 271700Z 02010KT 350V050 9999 FEW020 23/17 Q1022=  ## [A] Sta Cruz de la Palma,  La Palma Island, La Palma Airport
107110 2022-11-27 18:00  23 ES ES-CN  LPA GCLP 271700Z 02018KT 9999 FEW020 23/18 Q1021 NOSIG=  ## [N] Gran Canaria Island, Gran Canaria Airport
107268 2022-11-27 18:00  24 ES ES-CN  ACE GCRR 271700Z 05012KT 9999 FEW025 24/19 Q1021=  ## [A] Lanzarote Island, Lanzarote Airport
107321 2022-11-27 18:00  23 ES ES-CN  TFS GCTS 271700Z 07019KT CAVOK 23/17 Q1020 NOSIG=  ## [N] Tenerife Island, Tenerife South Airport
107421 2022-11-27 18:00  18 ES ES-CN  TFN GCXO 271700Z 12006KT CAVOK 18/15 Q1023 NOSIG=  ## [A] Tenerife Island, Tenerife Norte Airport
108217 2022-11-27 18:00  17 ES ES-CE  JCU GECE 271700Z AUTO 07003KT 030V120 9999 SCT015/// BKN017/// 17/14 Q1022=  ## [A] Ceuta, Ceuta Heliport
108484 2022-11-27 18:00  17 ES ES-ML  MLN GEML 271700Z 33005KT CAVOK 17/12 Q1022=  ## [A] Melilla, Melilla Airport
------ Sierra Leone:
109134 2022-11-25 16:00  30 SL SL-N   FNA GFLL 251500Z 30004KT 9999 BKN013 30/26 Q1010=  ## [A] Freetown, Lungi International Airport
109676 2020-04-01 10:00  28               GGGH 010800Z 02002KT 9999 FEW017 FEW018CB SCT026 OVC300 28/26 Q1007=  ## [A]
109681 2021-12-18 04:00  26               GGGM 180300Z 00000KT 9999 -SH FEW016 SCT027 OVC100 26/24 Q1007=  ## [A]
------ Guinea-Bissau:
109898 2022-11-27 18:00  27 GW GW-BS  OXB GGOV 271700Z 34003KT 8000 NSC 27/18 Q1008 NOSIG=  ## [A] Bissau, Osvaldo Vieira International Airport
110026 2020-04-04 05:25 XXX               GGTT 040325Z 18004KT 5000 HZ BKN014=  ## [A]
------ Liberia:
113336 2022-11-14 13:00  31 LR LR-MG  ROB GLRB 141200Z 08004KT 9999 BKN018 FEW027CB 31/24 Q1013 NOSIG RMK CB-SW=  ## [A] Monrovia, Roberts International Airport
------ Marocko:
113569 2020-07-24 12:00  23 MA MA-AGD --- GMAA 241000Z 26007KT 5000 SCT013 SCT016 23/21 Q1013 NOSIG B2+3=  ## [A] , Inezgane Airport
113572 2022-11-27 18:00  27 MA MA-AGD AGA GMAD 271700Z 24012KT CAVOK 27/03 Q1018 NOSIG=  ## [A] Agadir, Al Massira Airport
113575 2022-11-26 21:00  22               GMAG 262000Z 05009KT CAVOK 22/M06 Q1022=  ## [A]
113588 2022-11-27 18:00  22 MA MA-TNT TTA GMAT 271700Z 02014KT CAVOK 22/15 Q1020 NOSIG=  ## [A] Tan Tan, Tan Tan Airport
113594 2022-11-27 10:00  14 MA MA-TIZ OZG GMAZ 270900Z 26002KT CAVOK 14/M03 Q1027 NOSIG=  ## [A] Zagora, Zagora Airport
113700 2022-11-27 18:00  18 MA MA-FIG UAR GMFB 271700Z 04008KT CAVOK 18/M12 Q1025 NOSIG=  ## [A] Bouarfa, Bouarfa Airport
113704 2022-11-27 18:00  22 MA MA-FES FEZ GMFF 271700Z 34002KT CAVOK 22/M03 Q1023 NOSIG=  ## [A] Fes, Saïss Airport
113709 2022-11-27 18:00  22 MA MA-ERR ERH GMFK 271700Z 12004KT CAVOK 22/M18 Q1025 NOSIG=  ## [A] Errachidia, Moulay Ali Cherif Airport
113711 2022-11-27 18:00  21 MA MA-MEK MEK GMFM 271700Z 30005KT CAVOK 21/05 Q1023 NOSIG=  ## [A] Meknes, Bassatine Airport
113713 2022-11-27 18:00  19 MA MA-OUJ OUD GMFO 271700Z 09003KT 060V120 CAVOK 19/M06 Q1023 NOSIG=  ## [A] Oujda, Angads Airport
113724 2022-03-14 13:00  13 MA MA-TAZ --- GMFZ 141200Z 23010KT 9999 SCT020TCU 13/05 Q1004 B1=  ## [A] Taza, Taza Airport
113882 2022-11-27 18:00  19 MA MA-CAS GMD GMMB 271700Z 31004KT 290V350 CAVOK 19/19 Q1023 NOSIG=  ## [A] Ben Slimane, Ben Slimane Airport
113883 2022-11-27 18:00  20 MA MA-CAS CAS GMMC 271700Z 36004KT 8000 NSC 20/17 Q1022=  ## [A] Casablanca, Anfa Airport
113884 2022-11-27 18:00  26 MA MA-BEM BEM GMMD 271700Z 24004KT CAVOK 26/M04 Q1022 NOSIG=  ## [A] Beni Mellal, Beni Mellal Airport
113885 2022-11-27 18:00  18 MA MA-RBA RBA GMME 271700Z 26004KT 230V290 5000 BKN004 OVC007 18/18 Q1021 BECMG 3000 BR BKN002 OVC007=  ## [A] Rabat, Rabat-Salé Airport
------ Västsahara:
113888 2022-11-27 18:00  23 EH EH-U-A VIL GMMH 271700Z 03017KT 8000 NSC 23/14 Q1015 NOSIG=  ## [A] Dakhla, Dakhla Airport
------ Marocko:
113889 2022-11-27 18:00  24 MA MA-ESI ESU GMMI 271700Z 31006KT 8000 NSC 24/14 Q1021 NOSIG=  ## [A] Essaouira, Mogador Airport
------ Västsahara:
113892 2022-11-27 18:00  26 EH EH-U-A EUN GMML 271700Z 03019KT 8000 NSC 26/14 Q1019 NOSIG=  ## [A] El Aaiún, Hassan I Airport
------ Marocko:
113894 2022-11-27 18:00  20 MA MA-CAS CMN GMMN 271700Z 34009KT CAVOK 20/14 Q1022 NOSIG=  ## [A] Casablanca, Mohammed V International Airport
113896 2020-07-24 09:47  25               GMMP 240747Z 27007KT 5000 FEW010 SCT016 25/23 Q1013 NOSIG=  ## [A]
113900 2021-07-06 18:00  21 MA MA-CAS --- GMMT 061600Z 22060KT 9999 OVC008 21/19 Q1015 NOSIG=  ## [A] Casablanca, Tit Mellil Airport
113903 2022-11-27 18:00  16 MA MA-NAD NDR GMMW 271700Z 06005KT CAVOK 16/09 Q1022 NOSIG=  ## [A] Nador, Nador International Airport
113904 2022-11-27 18:00  27 MA MA-MAR RAK GMMX 271700Z 25005KT CAVOK 27/03 Q1022 NOSIG=  ## [A] Marrakech, Menara Airport
113906 2022-11-27 18:00  23 MA MA-OUA OZZ GMMZ 271700Z VRB02KT CAVOK 23/M15 Q1024 NOSIG=  ## [A] Ouarzazate, Ouarzazate Airport
114048 2020-07-23 07:46  20 MA MA-KEN --- GMSL 230546Z 00000KT 4000 BR FEW010 SCT016 20/20 Q1016 NOSIG=  ## [A] Sidi Slimane, Sidi Slimane Airport
114063 2022-11-27 18:00  16 MA MA-HOC AHU GMTA 271700Z 01003KT CAVOK 16/11 Q1022 NOSIG=  ## [A] Al Hoceima, Cherif Al Idrissi Airport
114076 2022-11-27 18:00  17 MA MA-TET TTU GMTN 271700Z 09004KT 9999 SCT016 SCT200 17/13 Q1022 NOSIG=  ## [A] Tétouan, Saniat R'mel Airport
114082 2022-11-27 18:00  18 MA MA-TNG TNG GMTT 271700Z 04004KT CAVOK 18/16 Q1021 NOSIG=  ## [A] Tangier, Ibn Batouta Airport
114739 2020-04-02 09:00  29               GNTA 020700Z 08005KT 9999 FEW019 29/25 Q1006=  ## [A]
------ Senegal:
114950 2022-11-27 18:00  32 SN SN-DK  DSS GOBD 271700Z 36013KT CAVOK 32/07 Q1009 NOSIG=  ## [A] Dakar, Blaise Diagne International Airport
115083 2022-11-27 18:00  29 SN SN-ZG  ZIG GOGG 271700Z 02004KT CAVOK 29/20 Q1009=  ## [A] Ziguinchor, Ziguinchor Airport
115087 2022-11-27 18:00  29               GOGK 271700Z 04004KT CAVOK 29/17 Q1006=  ## [A]
115095 2022-11-27 18:00  31 SN SN-ZG  CSK GOGS 271700Z 24004KT 190V300 CAVOK 31/19 Q1009=  ## [A] Cap Skirring, Cap Skirring Airport
115288 2022-11-27 18:00  37               GOOD 271700Z 02006KT CAVOK 37/08 Q1008=  ## [A]
115291 2022-11-27 18:00  36               GOOG 271700Z 06006KT CAVOK 36/13 Q1006=  ## [A]
115295 2022-11-27 18:00  36 SN SN-FK  KLC GOOK 271700Z 04006KT CAVOK 36/09 Q1008=  ## [A] Kaolack, Kaolack Airport
115309 2022-11-27 18:00  29 SN SN-DK  DKR GOOY 271700Z 36006KT CAVOK 29/18 Q1009=  ## [A] Dakar, Léopold Sédar Senghor International Airport
115401 2022-11-27 18:00  32 SN SN-SL  MAX GOSM 271700Z 04002KT BCAVOK 32/11 Q1008=  ## [A] Matam, Ouro Sogui Airport
115404 2022-11-27 18:00  33 SN SN-SL  POD GOSP 271700Z 04002KT CAVOK 33/13 Q1009=  ## [A] Podor, Podor Airport
115407 2022-11-27 18:00  31 SN SN-SL  XLS GOSS 271700Z 36004KT 280V060 CAVOK 31/14 Q1009=  ## [A] Saint Louis, Saint Louis Airport
115425 2022-11-27 18:00  35 SN SN-TC  KGG GOTK 271700Z 04004KT CAVOK 35/09 Q1007=  ## [A] Kédougou, Kédougou Airport
115434 2022-11-27 16:00  35 SN SN-TC  TUD GOTT 271500Z 36004KT CAVOK 35/07 Q1008=  ## [A] Tambacounda, Tambacounda Airport
------ Mauretanien:
116619 2022-09-24 17:00  33 MR MR-01  EMN GQNI 241500Z N015 33/25 Q1009=  ## [A] Néma, Néma Airport
116625 2022-11-27 18:00  33 MR MR-NKC NKC GQNO 271700Z 05011KT CAVOK 33/M01 Q1010 NOSIG=  ## [A] Nouakchott, Nouakchott?Oumtounsy International Airport
116663 2022-11-27 16:00  32 MR MR-07  ATR GQPA 271500Z 04010KT 8000 NSC 32/M03 Q1017=  ## [A] Atar, Atar International Airport
116678 2022-11-27 18:00  23 MR MR-08  NDB GQPP 271700Z 34015KT 7000 NSC 23/15 Q1013 NOSIG=  ## [A] Nouadhibou, Nouadhibou International Airport
116688 2022-11-09 14:00  34 MR MR-11  OUZ GQPZ 091300Z 10016KT CAVOK 34/M04 Q1018=  ## [A] Zouérate, Tazadit Airport
117643 2022-04-11 21:00  33               GSAS 111900Z 02010KT 9999 SCT033 33/24 Q1003 RETS=  ## [A]
118301 2022-06-23 19:00  27               GTAA 231700Z 08005KT 9999 FEW020 27/24 Q1009=  ## [A]
------ Guinea:
119053 2022-11-14 13:00  31 GN GN-C   CKY GUCY 141200Z 14006KT 9999 FEW015 31/23 Q1014 NOSIG=  ## [A] Conakry, Conakry International Airport
119264 2021-11-17 10:00  21 GN GN-L   LEK GULB 170900Z 00000KT CAVOK 21/20 Q1009 NOSIG=  ## [A] Labé, Tata Airport
119340 2022-11-12 10:00  24 GN GN-N   NZE GUNZ 120900Z 00000KT 5000 HZ BKN011 24/22 Q1007 NOSIG=  ## [A] Nzérékoré, Nzérékoré Airport
119578 2022-04-21 20:00  38               GUXD 211800Z VRB02KT CAVOK 38/18 Q//// NOSIG=  ## [A]
119588 2022-10-17 20:00  31 GN GN-K   KNN GUXN 171800Z VRB02KT CAVOK 31/20 Q//// NOSIG=  ## [A] Kankan, Kankan Airport
------ Kap Verde:
119655 2022-11-27 18:00  27 CV CV-B   SID GVAC 271700Z 05017KT CAVOK 27/19 Q1013 NOSIG=  ## [A] Espargos, Amílcar Cabral International Airport
119671 2019-11-19 01:00  23               GVAS 190000Z 04014KT 9999 BKN014 SCT100 23/18 Q1017 NOSIG=  ## [A]
119674 2019-11-15 16:00  27               GVAV 151500Z 04012KT 9999 BKN014 SCT200 27/18 Q1010 NOSIG=  ## [A]
119679 2022-11-27 18:00  27 CV CV-B   BVC GVBA 271700Z 03017KT CAVOK 27/20 Q1012 NOSIG=  ## [A] Rabil, Rabil Airport
120006 2022-11-27 18:00  28 CV CV-S   RAI GVNP 271700Z 01021KT CAVOK 28/18 Q1011 NOSIG=  ## [A] Praia, Praia International Airport
120007 2020-08-04 10:00  26               GVNQ 040800Z 36010KT 9999 FEW015 26/21 Q1014 NOSIG=  ## [A]
120142 2022-11-27 18:00  27 CV CV-B   VXE GVSV 271700Z 04022KT 9999 FEW020 27/19 Q1013 NOSIG=  ## [A] São Pedro, São Pedro Airport
------ Etiopien:
123034 2022-11-27 18:00  15 ET ET-AA  ADD HAAB 271700Z 08008KT 9999 FEW025 15/05 Q1024 NOSIG=  ## [A] Addis Ababa, Addis Ababa Bole International Airport
123045 2019-12-06 05:00  11 ET ET-SN  AMH HAAM 060400Z 32002KT 9999 FEW025 11/08 Q1026=  ## [A] , Arba Minch Airport
123060 2022-04-13 20:00  19               HABB 131800Z 10006KT 9999 BKN024 SCT056 19/12 Q1023=  ## [A]
123062 2022-06-22 09:00  18 ET ET-AM  BJR HABD 220700Z /////KT CAVOK 18/10 Q1021 NOSIG=  ## [A] Bahir Dar, Bahir Dar Airport
123128 2022-06-22 09:00  18 ET ET-DD  DIR HADR 220700Z 04010KT 9999 BKN025 18/10 Q1021 NOSIG=  ## [A] Dire Dawa, Aba Tenna Dejazmach Yilma International Airport
123216 2019-05-23 14:00  21               HAHB 231200Z 09018KT 9999 BKN025 21/12 Q1025=  ## [A]
123276 2020-03-17 05:30  35 ET ET-SO  JIJ HAJJ 170430Z 09010KT 5000 FU NSC 35/09 Q1013 NOSIG=  ## [A] Jijiga, Wilwal International Airport
123355 2020-02-22 13:00  16 ET ET-TI  MQX HAMK 221200Z 08010KT 9999 SCT025 16/11 Q1028=  ## [A] , Mekele Airport
------ Burundi:
123735 2022-11-27 18:00 XXX BI BI-BJ  BJM HBBA 271700Z 00000KT 9999 FEW025 BKN10023/21 Q1009 NOSIG=  ## [A] Bujumbura, Bujumbura International Airport
124558 2022-09-25 10:00  31               HCGR 250800Z 19012KT CAVOK 31/17 Q1012=  ## [A]
124567 2021-02-14 01:00  27               HCHA 140000Z VRB02KT 9999 SCT028 27/18=  ## [A]
------ Somalia:
124702 2022-11-27 14:00  29 SO SO-BR  BSA HCMF 271300Z 02004KT 9999 FEW035 29/23 Q1008=  ## [A] Bosaso, Bosaso Airport
124704 2021-11-21 09:00  27 SO SO-WO  HGA HCMH 210800Z 09004KT CAVOK 27/09 Q1015=  ## [A] Hargeisa, Egal International Airport
124709 2022-11-27 15:00  29 SO SO-BN  MGQ HCMM 271400Z 08012KT 9999 FEW022 29/24 1007=  ## [A] Mogadishu, Aden Adde International Airport
124710 2019-05-02 13:00  33 SO SO-HI  BLW HCMN 021100Z 18010KT 9999 BKN022 33/25 Q1009=  ## [A] Beledweyne, Beletwene Airport
------ Djibouti:
125073 2022-11-27 17:00  28 DJ DJ-DJ  JIB HDAM 271600Z 110/07KT CAVOK 28/22 Q1012=  ## [A] Djibouti City, Djibouti-Ambouli Airport
125074 2021-08-16 13:00  39               HDAN 161100Z 31087KT 8000 HZ SKC 39/22 Q1003=  ## [A]
------ Egypten:
125748 2022-03-28 13:00  21 EG EG-MT  DBB HEAL 281100Z 02008KT 4000 HZ NSC 21/06 Q1025 NOSIG=  ## [A] El Alamein, El Alamein International Airport
125754 2022-09-03 16:00  38 EG EG-SIN AAC HEAR 031400Z 36019KT 6000 NSC 38/22 Q1013 NOSIG=  ## [A] El Arish, El Arish International Airport
125756 2022-11-27 18:00  17 EG EG-WAD ATZ HEAT 271700Z 04005KT CAVOK 17/09 Q1013 NOSIG=  ## [A] Assiut, Assiut International Airport
125760 2022-11-27 18:00  19 EG EG-ALX ALY HEAX 271700Z 08006KT 9999 SCT020 19/12 Q1012 NOSIG=  ## [A] Alexandria, El Nouzha Airport
125763 2022-11-27 18:00  17 EG EG-ALX HBE HEBA 271700Z 06004KT 9999 SCT020 17/11 Q1013 NOSIG=  ## [A] Alexandria, Borg El Arab International Airport
125774 2022-11-27 18:00  24 EG EG-ASN ABS HEBL 271700Z 35008KT CAVOK 24/06 Q1011 NOSIG=  ## [A] Abu Simbel, Abu Simbel Airport
125789 2022-11-27 18:00  19 EG EG-C   CAI HECA 271700Z 05006KT 6000 FEW025 BKN070 19/12 Q1013=  ## [A] Cairo, Cairo International Airport
125804 2022-11-27 18:00  18               HECP 271700Z 01007KT 9999 SCT025 18/10 Q1013 NOSIG=  ## [A]
125820 2019-09-07 08:00  24               HEDF 070600Z 02006KT CAVOK 24/21 Q1014=  ## [A]
125864 2019-07-08 09:00  29               HEEX 080700Z 31012KT CAVOK 29/20 Q1009 NOSIG=  ## [A]
125906 2022-11-27 18:00  21 EG EG-BA  HRG HEGN 271700Z 00000KT CAVOK 21/09 Q1011 NOSIG=  ## [A] Hurghada, Hurghada International Airport
125911 2022-09-24 13:00  40 EG EG-BH  --- HEGS 241100Z 15006KT CAVOK 40/09 Q1009 NOSIG=  ## [A] Jiyanklis, Jiyanklis Air Base
125963 2022-11-27 17:00  19               HEIS 271600Z 03009KT CAVOK 19/08 Q1013=  ## [A]
126046 2022-11-27 18:00  22 EG EG-KN  LXR HELX 271700Z 03003KT 6000 NSC 22/10 Q1011 NOSIG=  ## [A] Luxor, Luxor International Airport
126049 2022-11-27 18:00  22 EG EG-BA  RMF HEMA 271700Z 36006KT CAVOK 22/15 Q1011 NOSIG=  ## [A] Marsa Alam, Marsa Alam International Airport
126061 2022-11-27 18:00  17 EG EG-MT  MUH HEMM 271700Z 09006KT CAVOK 17/09 Q1013 NOSIG=  ## [A] Mersa Matruh, Mersa Matruh Airport
126103 2022-11-27 16:00  18 EG EG-C   --- HEOC 271500Z 02005KT 3000 HZ SCT025 18/10 Q1014 NOSIG=  ## [A] , October Airport
126119 2021-12-26 14:00  18               HEOS 261300Z 03013KT 9999 FEW025 18/07 Q1021=  ## [A]
126123 2020-10-01 11:00  28 EG EG-WAD GSQ HEOW 010900Z 03005KT 8000 NSC 28/15 Q1011 NOSIG=  ## [A] , Shark El Oweinat International Airport
126129 2022-11-03 08:00  20               HEPC 030700Z 30005KT 3000 BR NSC 20/15 Q1020 NOSIG=  ## [A]
126145 2022-11-27 18:00  19 EG EG-SHR PSD HEPS 271700Z 04004KT 6000 SCT030 19/15 Q1014 NOSIG=  ## [A] Port Said, Port Said Airport
126198 2022-11-03 10:00  26               HERT 030900Z 28017KT 9999 FEW025 SCT200 26/14 Q1016=  ## [A]
126207 2022-11-03 22:00 XXX EG EG-JS  SKV HESC 032100Z ?NIL=  ## [A] , St Catherine International Airport
126211 2022-11-27 18:00  20               HESG 271700Z 35004KT CAVOK 20/09 Q1010 NOSIG=  ## [A]
126212 2022-11-27 18:00  22 EG EG-JS  SSH HESH 271700Z 19005KT CAVOK 22/14 Q1010 NOSIG=  ## [A] Sharm el-Sheikh, Sharm El Sheikh International Airport
126213 2021-03-17 12:00  23               HESI 171100Z 28016KT 9999 SCT025 23/09 Q1014=  ## [A]
126218 2022-11-27 18:00  24 EG EG-ASN ASW HESN 271700Z 01004KT CAVOK 24/10 Q1011 NOSIG=  ## [A] Aswan, Aswan International Airport
126227 2022-11-27 18:00  17               HESW 271700Z 12006KT CAVOK 17/06 Q1011=  ## [A]
126232 2022-10-19 17:00  28 EG EG-SIN TCP HETB 191500Z 32010KT CAVOK 28/11 Q1015 NOSIG=  ## [A] Taba, Taba International Airport
126248 2022-11-27 18:00  21 EG EG-JS  ELT HETR 271700Z 03008KT 9999 FEW025 BKN100 21/10 Q1011=  ## [A] , El Tor Airport
126335 2021-09-28 09:00  28               HEXA 280700Z 29008KT 9999 SCT020 28/18 Q1013 NOSIG=  ## [A]
127621 2021-12-23 07:54  28               HGUM 230654Z COR 04013KT 10SM FEW036 28/22 A2982 RMK AO2 SLP089 T02780222 $ =  ## [A]
127766 2022-04-24 03:00  16               HHAB 240100Z 09002KT 9/9 BKN025 16/08 Q1023=  ## [A]
128260 2020-09-14 18:00  28               HHTB 141600Z 13010KT 9999 FEW022 28/13 Q1015 NOSIG=  ## [A]
129804 2020-06-10 10:12  22               HKAL 100812Z AUTO VRB02MPS 22/// Q1019 A30.09=  ## [A]
129831 2020-06-10 10:12  22               HKBM 100812Z AUTO VRB01MPS 22/// Q1019 A30.10=  ## [A]
129833 2020-06-10 10:12 XXX               HKBO 100812Z AUTO /////MPS ///// Q//// A////=  ## [A]
------ Kenya:
129836 2020-06-10 10:12  30 KE KE-300 --- HKBR 100812Z AUTO VRB04MPS 30/// Q1013 A29.92=  ## [A] Bura, Bura East Airport
129852 2020-06-10 10:12  23               HKCH 100812Z AUTO VRB01MPS 23/// Q0622 A18.36=  ## [A]
129898 2020-06-10 10:12  17               HKEB 100812Z AUTO VRB01MPS 17/// Q1021 A30.14=  ## [A]
129908 2022-11-27 18:00  18 KE KE-700 EDL HKEL 271700Z 15005KT 9999 FEW020CB BKN270 18/08 Q1020=  ## [A] Eldoret, Eldoret International Airport
129909 2022-11-27 17:00  20 KE KE-400 --- HKEM 271600Z 07004KT 9999 SCT020 BKN230 20/16=  ## [A] Embu, Embu Airport
129949 2022-11-27 17:00  30 KE KE-500 GAS HKGA 271600Z 16008KT CAVOK 30/21 Q1007=  ## [A] Garissa, Garissa Airport
129963 2022-11-21 17:00  18               HKGO 211600Z AUTO 06006KT 18/09 Q1020 A30.13=  ## [A]
129968 2020-06-10 10:12  28 KE KE-400 --- HKGT 100812Z AUTO /////MPS 28/// Q1026 A30.30=  ## [A] Garba Tula, Garba Tula Airport
130037 2022-11-27 17:30  20 KE KE-110 NBO HKJK 271630Z 07010KT 9999 FEW021 20/13 Q1017 NOSIG=  ## [A] Nairobi, Jomo Kenyatta International Airport
130061 2022-11-27 18:00  24 KE KE-600 KIS HKKI 271700Z 30002KT CAVOK 24/17 Q1012=  ## [A] Kisumu, Kisumu Airport
130063 2020-06-10 10:12  19               HKKK 100812Z AUTO VRB01MPS 19/// Q1021 A30.15=  ## [A]
130067 2020-06-10 10:12  29               HKKO 100812Z AUTO VRB02MPS 29/// Q1035 A30.55=  ## [A]
130072 2022-11-27 14:00  24 KE KE-700 KTL HKKT 271300Z 07003KT 9999 BKN023 24/11=  ## [A] Kitale, Kitale Airport
130093 2022-11-27 17:00  32 KE KE-700 LOK HKLO 271600Z 09008KT CAVOK 32/15 Q1003=  ## [A] Lodwar, Lodwar Airport
130099 2022-11-27 16:00  29 KE KE-300 LAU HKLU 271500Z 18003KT 9999 FEW025 29/23 Q1007=  ## [A] Lamu, Manda Airstrip
130109 2022-11-27 17:00  20               HKME 271600Z 00000KT 9999 SCT015 FEW020CB BKN230 20/16=  ## [A]
130116 2022-11-27 18:00  27 KE KE-300 MYD HKML 271700Z 16007KT 9999 SCT023 27/23 Q1009=  ## [A] Malindi, Malindi Airport
130119 2022-11-27 18:00  27 KE KE-300 MBA HKMO 271700Z 14005KT 9999 FEW023 27/23 Q1009 NOSIG=  ## [A] Mombasa, Mombasa Moi International Airport
130139 2022-11-27 17:00  19 KE KE-200 NYE HKNI 271600Z 13003KT 9999 FEW021 BKN260 19/15=  ## [A] Nyeri, Nyeri Airport
130141 2022-11-27 17:00  21 KE KE-700 NUU HKNK 271600Z 00000KT 9999 BKN021 21/10=  ## [A] Nakuru, Nakuru Airport
130153 2022-11-27 17:00  21 KE KE-110 WIL HKNW 271600Z 09010KT 9999 SCT024 21/13 Q1017=  ## [A] Nairobi, Nairobi Wilson Airport
130251 2021-12-10 14:00  24               HKRQ 101300Z 36012KT 9999 SCT025 24/12 Q1018 A30.07=  ## [A]
130268 2020-06-10 10:12  27               HKSH 100812Z AUTO VRB04MPS 27/// Q1015 A29.98=  ## [A]
130374 2022-11-27 16:00  33 KE KE-500 WJR HKWJ 271500Z 14003KT 9999 FEW032 BKN300 33/17 Q1005=  ## [A] Wajir, Wajir Airport
130521 2019-11-16 09:00  23               HLCA 160800Z 35007KT 6000 SCT025 23/15 Q1017 NOSIG=  ## [A]
------ Libyen:
130756 2022-09-22 23:30  23 LY LY-BA  BEN HLLB 222130Z 06010KT 9999 SCT020 23/15 Q1014=  ## [A] Benghazi, Benina International Airport
130767 2022-09-22 12:50  28 LY LY-TB  MJI HLLM 221050Z 05012KT 6000 -RA BKN025 28/19 Q1014=  ## [A] Tripoli, Mitiga Airport
131443 2019-11-23 16:00  27               HMLM 231500Z 23004KT 9999 FEW026 SCT080 27/22 Q1015 A2997 NOSIG=  ## [A]
------ Rwanda:
135166 2022-11-27 18:00  20 RW RW-01  KGL HRYR 271700Z 19004KT 160V240 9999 FEW023CB BKN025 20/16 Q1016 NOSIG=  ## [A] Kigali, Kigali International Airport
135175 2022-11-27 16:00  17 RW RW-04  KME HRZA 271500Z 11004KT 9000 -RA FEW020CB BKN023 17/13 Q1015 NOSIG=  ## [A] Kamembe, Kamembe Airport
------ Sudan:
135292 2022-11-27 14:00  31 SD SD-01  DOG HSDN 271300Z 02006KT CAVOK 31/10 Q1008=  ## [A] Dongola, Dongola Airport
135349 2022-11-27 14:00  31 SD SD-02  ELF HSFS 271300Z 32003KT CAVOK 31/07 Q1009=  ## [A] El Fasher, El Fasher Airport
135550 2022-08-16 16:00  28               HSNL 161400Z 15008KT 9999 BKN040 28/22 Q1012=  ## [A]
135552 2022-10-15 09:00  27 SD SD-11  UYL HSNN 150700Z 16003KT 8000 27/13 Q1013=  ## [A] Nyala, Nyala Airport
135566 2022-11-27 14:00  33 SD SD-09  EBD HSOB 271300Z 02004KT CAVOK 33/07 Q1008=  ## [A] Al-Ubayyid, El Obeid Airport
135604 2022-11-27 14:00  29 SD SD-26  PZU HSPN 271300Z 04011KT 9999 SCT030 29/22 Q1010=  ## [A] Port Sudan, Port Sudan New International Airport
------ Sydsudan:
135678 2022-01-28 11:00  29 SS SS-17  JUB HSSJ 281000Z 06009KT 8000 HZ 29/07 Q1012=  ## [A] Juba, Juba International Airport
135679 2022-11-27 18:00  30               HSSK 271700Z 33003KT 6000 30/07 Q1007 NOSIG=  ## [A]
------ Sudan:
135687 2022-10-08 04:00  31 SD SD-03  KRT HSSS 080200Z 19008KT CAVOK 31/17 Q1007 NOSIG=  ## [A] Khartoum, Khartoum International Airport
------ Sydsudan:
135715 2020-01-05 08:00  23 SS SS-16  --- HSTU 050700Z 00000KT 9999 FEW018 FEW020CB SCT200 23/15 Q020=  ## [A] Tumbura, Tumbura Airport
------ Tanzania:
135894 2022-11-27 18:00  23 TZ TZ-01  ARK HTAR 271700Z 09010KT 9999 SCT034 23/14 Q1016 NOSIG=  ## [A] Arusha, Arusha Airport
135910 2021-07-17 19:00  19               HTBH 171700Z AUTO VRB03KT //// 19/10 Q1016=  ## [A]
135923 2022-11-27 18:00  22 TZ TZ-05  BKZ HTBU 271700Z 00000KT 9999 FEW020 FEW022CB 22/17 Q1012=  ## [A] Bukoba, Bukoba Airport
135955 2022-11-27 18:00  26 TZ TZ-02  DAR HTDA 271700Z 09004KT 9999 FEW012 26/23 Q1010 NOSIG=  ## [A] Dar es Salaam, Julius Nyerere International Airport
135969 2022-11-27 18:00  24 TZ TZ-03  DOD HTDO 271700Z 10020KT 9999 FEW029 24/16 Q1013 NOSIG=  ## [A] Dodoma, Dodoma Airport
136055 2022-11-09 07:00  22 TZ TZ-14  MBI HTGW 090600Z 00000KT CAVOK 22/13 Q1021 NOSIG=  ## [A] Mbeya, Songwe Airport
136059 2022-11-09 07:00  23               HTHA 090600Z 00000KT 9999 BKN019 23/19 Q////=  ## [A]
136085 2019-12-01 04:00  20               HTIA 010300Z 00000KT 9999 FEW018 FEW019CB SCT080 20/20 Q1015 NOSIG=  ## [A]
136086 2022-11-27 18:00  27               HTIB 271700Z 00000KT 9999 FEW028 FEW029CB 27/12 Q1009=  ## [A]
136102 2022-11-27 18:00  22 TZ TZ-04  IRI HTIR 271700Z 00000KT 9999 FEW024 22/13 Q1015=  ## [A] Nduli, Iringa Airport
136124 2022-11-27 18:00  26               HTJN 271700Z AUTO 02106KT //// 26/13 Q1014=  ## [A]
136137 2022-11-27 18:00  24 TZ TZ-08  TKQ HTKA 271700Z 00000KT 9999 FEW021 FEW022CB 24/21 Q1009 NOSIG=  ## [A] Kigoma, Kigoma Airport
136138 2022-11-09 07:00  28 TZ TZ-08  --- HTKB 090600Z 08009KT 9999 BKN023 28/22 Q1016=  ## [A] Kibondo, Kibondo Airport
136145 2022-11-09 07:00  29 TZ TZ-12  KIY HTKI 090600Z 09007KT 9999 SCT021 29/23 Q1016=  ## [A] Kilwa Masoko, Kilwa Masoko Airport
136146 2022-11-27 18:00  27 TZ TZ-26  JRO HTKJ 271700Z 09010KT 9999 FEW034CB 27/15 Q1012 NOSIG=  ## [A] Arusha, Kilimanjaro International Airport
136152 2021-07-17 14:00 XXX               HTKP 171200Z AUTO 19314KT //// ///// Q////=  ## [A]
136175 2020-06-08 17:00  33 TZ TZ-26  LKY HTLM 081500Z 19008KT 9999 SKC 33/23 Q1010 A2983=  ## [A] Lake Manyara National Park, Lake Manyara Airport
136190 2022-03-12 16:00  24 TZ TZ-14  --- HTMB 121500Z 23005KT 9999 FEW018 FEW020CB SCT090 24/20 Q1012=  ## [A] Mbeya, Mbeya Airport
136193 2020-10-07 10:00  29               HTME 070800Z 02006KT 999 SCT023 29/21 Q1015 NOSIG=  ## [A]
136195 2022-11-27 18:00  24 TZ TZ-16  --- HTMG 271700Z 00000KT 9999 FEW022 SCT070 24/20 Q1011=  ## [A] Morogoro, Morogoro Airport
136196 2022-11-09 07:00  20               HTMH 090600Z 12006KT 9999 BKN160 20/19 Q1029=  ## [A]
136204 2022-11-27 16:00  31 TZ TZ-20  --- HTMP 271500Z 00000KT 9999 SCT025 FEW027CB BKN130 31/15 Q1011=  ## [A] Mpanda, Mpanda Airport
136207 2022-11-09 07:00  24 TZ TZ-09  QSI HTMS 090600Z 12010KT 9999 BKN022 24/17 Q1019=  ## [A] Moshi, Moshi Airport
136208 2022-11-27 18:00  26 TZ TZ-17  MYW HTMT 271700Z 06008KT 9999 FEW023 26/22 Q1010=  ## [A] Mtwara, Mtwara Airport
136209 2022-11-27 18:00  24 TZ TZ-13  MUZ HTMU 271700Z 00000KT 9999 FEW022 FEW024CB 24/19 Q1013=  ## [A] Musoma, Musoma Airport
136211 2022-11-27 18:00  23 TZ TZ-18  MWZ HTMW 271700Z 33008KT 9999 FEW020 FEW021CB 23/18 Q1011 NOSIG=  ## [A] Mwanza, Mwanza Airport
136221 2021-07-17 19:00  23 TZ TZ-16  --- HTNG 171700Z AUTO //KT //// 23/21 Q1015=  ## [A] Ngerengere, Ngerengere Air Force Base
136222 2019-09-22 00:00  27               HTNH 212200Z 10020KT 7000 RA BKN030 27/24 Q1016 NOSIG=  ## [A]
136256 2019-09-30 17:00  27               HTOP 301500Z 08005KT 9999 SCT014 27/24 Q1010 NOSIG=  ## [A]
136271 2022-11-09 07:00  29 TZ TZ-25  PMA HTPE 090600Z 11004KT 9999 SCT017 29/26 Q1016=  ## [A] Chake, Pemba Airport
136319 2020-04-05 20:00  21               HTRA 051800Z 00000KT 9999 SCT022 21/18 Q1021 NOSIG=  ## [A]
136333 2020-06-19 15:00  29               HTRO 191300Z 09015KT CAVOK 29/236 Q1012 A2989=  ## [A]
136349 2022-11-09 07:00  24 TZ TZ-09  --- HTSE 090600Z 09004KT 9999 FEW022 24/17 Q1019=  ## [A] Same, Same Airport
136353 2022-11-09 07:00  22               HTSI 090600Z 06014KT 9999 FEW021 22/16 Q1023=  ## [A]
136359 2022-11-27 18:00  26 TZ TZ-21  SGX HTSO 271700Z 01006KT 9999 FEW022 26/13 Q1014=  ## [A] Songea, Songea Airport
136365 2022-11-27 18:00  21 TZ TZ-20  SUT HTSU 271700Z 00000KT 9999 FEW021 FEW023CB 21/12 Q1018=  ## [A] Sumbawanga, Sumbawanga Airport
136369 2022-02-02 18:00  23 TZ TZ-22  SHY HTSY 021700Z 00000KT 9999 FEW021 FEW022CB 23/20 Q1014=  ## [A] Shinyanga, Shinyanga Airport
136371 2019-10-12 16:30  27               HTTA 121430Z 11008KT 060V150 9999 FEW026 27/16 Q1019=  ## [A]
136372 2022-11-27 18:00  26 TZ TZ-24  TBO HTTB 271700Z 10010KT 9999 FEW024 26/13 Q1012 NOSIG=  ## [A] Tabora, Tabora Airport
136374 2019-11-09 15:00  21               HTTD 091400Z AUTO 30009KT 270V350 NCD 21/02 Q1016=  ## [A]
136376 2019-11-24 09:00  10               HTTF 240800Z 24005KT 200V290 2000 BR BKN016 10/09 Q1010=  ## [A]
136377 2022-11-09 07:00  29 TZ TZ-25  TGT HTTG 090600Z 09006KT 9999 SCT020 29/23 Q1015=  ## [A] Tanga, Tanga Airport
136380 2019-11-10 09:00  18               HTTJ 100800Z 23010KT 9999 FEW020 18/04 Q1016 NOSOG=  ## [A]
136381 2019-09-20 12:00  30               HTTK 201000Z 16004KT 100V250 8000 BKN023 30/22 Q1017=  ## [A]
136382 2019-11-21 03:00  12               HTTL 210200Z AUTO 17003KT 130V240 NCD 12/07 Q1014=  ## [A]
136384 2019-10-20 22:00  25               HTTN 202000Z 21010KT 9999 FEW020 25/07 Q1015=  ## [A]
136388 2019-09-09 12:00  33               HTTR 091000Z 13012KT 9999 SCT026 33/15 Q1016=  ## [A]
136394 2019-10-02 19:00  29               HTTX 021700Z 05007KT 9999 FEW020 29/21 Q1005 NOSIG=  ## [A]
136396 2019-11-23 15:00  19               HTTZ 231400Z 12008KT 9999 BKN033 19/M02 Q1005 NOSIG=  ## [A]
136527 2022-11-27 18:00  27 TZ TZ-07  ZNZ HTZA 271700Z 00000KT 9999 FEW018 27/24 Q1009 NOSIG=  ## [A] Zanzibar, Abeid Amani Karume International Airport
------ Uganda:
136570 2022-11-12 13:00  23 UG UG-303 RUA HUAR 121200Z 34006KT 9999 BKN019 FEW023CB 23/18 Q1017=  ## [A] Arua, Arua Airport
136670 2022-11-27 18:00  21 UG UG-102 EBB HUEN 271700Z 28010KT 9999 FEW022 FEW024CB 21/19 Q1013 NOSIG=  ## [A] Kampala, Entebbe International Airport
136729 2022-11-12 13:00  24 UG UG-304 ULU HUGU 121200Z 16006KT 9999 TS BKN020 FEW022CB 24/19 Q////=  ## [A] Gulu, Gulu Airport
136795 2022-11-12 13:00  25 UG UG-204 JIN HUJI 121200Z 29003KT 9999 FEW020 FEW023CB 25/18 Q1016=  ## [A] Jinja, Jinja Airport
136813 2022-11-12 13:00  23               HUKA 121200Z 09004KT 9999 SCT019 FEW021CB BKN100 23/18 Q/////=  ## [A]
136814 2022-11-12 13:00  21 UG UG-404 --- HUKB 121200Z 09003KT 9999 FEW018 OVC120 21/16=  ## [A] , Kabale Airport
136831 2022-11-12 13:00  28 UG UG-406 KSE HUKS 121200Z 09008KT 9999 SCT027 FEW030CB 28/19 Q1014=  ## [A] Kasese, Kasese Airport
136847 2022-09-22 11:00  28 UG UG-307 --- HULI 220900Z 10003KT 9999 SCT020 28/18=  ## [A] Lira, Lira Airport
136865 2022-11-12 13:00  24 UG UG-410 MBQ HUMA 121200Z 1114KT 9999 TS BKN020 FEW023CB 24/18 Q////=  ## [A] Mbarara, Mbarara Airport
136873 2022-11-16 14:00  22 UG UG-409 KCU HUMI 161300Z 36003KT 9999 BKN020 FEE022CB 22/19=  ## [A] Masindi, Masindi Airport
137035 2022-11-12 13:00  24 UG UG-211 SRT HUSO 121200Z 26005KT 9999 BKN020 FEW022CB 24/17 Q1015=  ## [A] Soroti, Soroti Airport
137041 2022-01-26 08:00  19               HUSU 260700Z 00000KT 9999 FEW018 BKN070 19/13 Q1023=  ## [A]
137061 2022-11-12 13:00  22 UG UG-212 TRY HUTO 121200Z 31012KT 9999 BKN014 FEW016CB 22/20 Q1016=  ## [A] Tororo, Tororo Airport
138395 2022-10-04 10:00  25               HWSW 040800Z 35003KT 9999 FEW025 25/17 Q1014=  ## [A]
------ USA:
175761 2022-11-27 18:15   6 US US-IL  --- KAAA 271715Z AUTO 32006G15KT 5SM BR BKN007 OVC013 06/06 A2954 RMK AO2 T00610061=  ## [A] Lincoln, Logan County Airport
175766 2022-11-27 17:53  21 US US-FL  AAF KAAF 271653Z AUTO 30013KT 10SM CLR 21/15 A2998 RMK AO2 SLP153 T02060150 $  ## [A] Apalachicola, Apalachicola Regional Airport
175769 2020-04-10 21:53   3               KAAI 101953Z AUTO 19004KT 10SM CLR 03/M12 A3055 RMK SLP345 T00281122 TSNO $ VIA AUTODIAL=  ## [A]
175775 2022-11-27 17:54   5 US US-KS  --- KAAO 271654Z AUTO 33017G24KT 10SM CLR 05/M01 A2991 RMK AO2 SLP135 T00501006=  ## [A] Wichita, Colonel James Jabara Airport
175779 2022-11-27 18:15  14 US US-KY  --- KAAS 271715Z AUTO 24020G28KT 10SM BKN038 14/06 A2962 RMK AO1=  ## [A] Campbellsville, Taylor County Airport
175780 2022-11-27 17:55  -6 US US-CA  --- KAAT 271655Z AUTO 00000KT 8SM CLR M06/M07 A3017 RMK AO2 SLP252 T10611072=  ## [A] Alturas, Alturas Municipal Airport
175791 2022-11-27 18:13   7 US US-PA  ABE KABE 271713Z 15004KT 3SM -RA BR OVC019 07/05 A2971 RMK AO2 P0002 T00720050 $  ## [A] Allentown, Lehigh Valley International Airport
175794 2022-11-27 18:15   0               KABH 271715Z AUTO 22007KT 10SM OVC007 00/M01 A2997 RMK AO2 CIG 005V007 SLP175=  ## [A]
175795 2022-11-27 17:52  12 US US-TX  ABI KABI 271652Z 34004KT 10SM CLR 12/06 A2999 RMK AO2 SLP149 T01220061=  ## [A] Abilene, Abilene Regional Airport
175803 2022-11-27 17:52   7 US US-NM  ABQ KABQ 271652Z 32004KT 10SM SCT070 07/M06 A3008 RMK AO2 SLP171 T00671061=  ## [A] Albuquerque, Albuquerque International Sunport
175804 2022-11-27 17:53   0 US US-SD  ABR KABR 271653Z AUTO 24005KT 10SM CLR 00/M03 A2991 RMK AO2 SLP144 T00001028=  ## [A] Aberdeen, Aberdeen Regional Airport
175811 2022-11-27 17:53  21 US US-GA  ABY KABY 271653Z 26012G21KT 10SM CLR 21/05 A2992 RMK AO2 PK WND 25027/1623 SLP129 T02110050=  ## [A] Albany, Southwest Georgia Regional Airport
175814 2022-11-27 18:15   5 US US-MI  ACB KACB 271715Z AUTO 31005KT 10SM OVC014 05/02 A2952 RMK AO2 T00500021=  ## [A] Bellaire, Antrim County Airport
175822 2022-11-27 18:15  21 US US-GA  --- KACJ 271715Z AUTO 24014G22KT 10SM CLR 21/06 A2987 RMK AO2 T02070061=  ## [A] Americus, Jimmy Carter Regional Airport
175823 2022-11-27 17:53  14 US US-MA  ACK KACK 271653Z 23010KT 10SM CLR 14/10 A2982 RMK AO2 SLP097 T01440100=  ## [A] Nantucket, Nantucket Memorial Airport
175828 2022-11-27 18:15  20 US US-LA  --- KACP 271715Z AUTO 24007G17KT 210V270 10SM CLR 20/11 A2993 RMK AO2=  ## [A] Oakdale, Allen Parish Airport
175829 2022-11-27 18:15   2 US US-MN  --- KACQ 271715Z AUTO 34011KT 10SM CLR 02/M01 A2983 RMK AO2=  ## [A] Waseca, Waseca Municipal Airport
175832 2022-11-27 17:51  14 US US-TX  ACT KACT 271651Z 36006KT 10SM CLR 14/07 A2996 RMK AO2 SLP143 T01390072=  ## [A] Waco, Waco Regional Airport
175834 2022-11-27 17:53   7 US US-CA  ACV KACV 271653Z AUTO 09003KT 10SM CLR 07/06 A3023 RMK AO2 SLP246 T00670056 $  ## [A] Arcata/Eureka, California Redwood Coast-Humboldt County Airport
175837 2022-11-27 17:54  13 US US-NJ  ACY KACY 271654Z 19012G21KT 10SM SCT028 SCT032 BKN043 13/05 A2978 RMK AO2 PRESFR SLP082 T01280050 $  ## [A] Atlantic City, Atlantic City International Airport
175840 2022-04-03 05:53  12               KADB 030353Z AUTO CLR 12/03 A3003 RMK AO2 SLP134 T01220028 $ =  ## [A]
175841 2022-11-27 18:17  -1 US US-MN  --- KADC 271717Z AUTO 28004KT 10SM CLR M01/M03 A2986 RMK AO2=  ## [A] Wadena, Wadena Municipal Airport
175844 2022-11-27 17:56  12               KADF 271656Z AUTO 26008KT 230V290 10SM OVC019 12/08 A2984 RMK AO2 SLP105 T01220083=  ## [A]
175845 2022-11-27 18:09   6 US US-MI  ADG KADG 271709Z AUTO 07006KT 2 1/2SM RA BR OVC005 06/04 A2937 RMK AO2 P0005 T00560044 $  ## [A] Adrian, Lenawee County Airport
175846 2022-11-27 18:10  11 US US-OK  ADT KADH 271710Z AUTO 32010KT 10SM SCT021 11/05 A2992 RMK AO2=  ## [A] Ada, Ada Regional Airport
175851 2022-11-27 17:50  13 US US-OK  ADM KADM 271650Z 33010KT 10SM CLR 13/07 A2991=  ## [A] Ardmore, Ardmore Municipal Airport
175857 2022-11-27 17:47  13 US US-TX  ADS KADS 271647Z 32009KT 10SM SKC 13/07 A2994=  ## [A] Dallas, Addison Airport
175858 2022-11-27 18:10   5 US US-KS  --- KADT 271710Z AUTO 26003KT 10SM CLR 05/M05 A3003 RMK AO2 T00501050=  ## [A] Atwood, Atwood-Rawlins County City Airport
175859 2022-11-27 18:15   4 US US-IA  --- KADU 271715Z AUTO 32013KT 10SM SCT008 SCT032 BKN070 04/M02 A2984 RMK AO2=  ## [A] Audubon, Audubon County Airport
175861 2022-11-27 18:12   9 US US-MD  ADW KADW 271712Z 18010KT 5SM -RA OVC005 09/09 A2967 RMK CIG 004 RWY19L SLP055 $  ## [A] Camp Springs, Joint Base Andrews
175871 2022-11-27 17:47   7 US US-NM  --- KAEG 271647Z 29012G17KT 10SM FEW060 07/M06 A3008=  ## [A] Albuquerque, Double Eagle II Airport
175874 2022-11-27 18:15  -2 US US-CO  --- KAEJ 271715Z AUTO 00000KT 10SM M02/M04 A2997 RMK AO2 T10251044=  ## [A] Buena Vista, Central Colorado Regional Airport
175876 2022-11-27 18:15   2 US US-MN  AEL KAEL 271715Z AUTO 36010G16KT 10SM CLR 02/M01 A2979 RMK AO2=  ## [A] Albert Lea, Albert Lea Municipal Airport
175888 2022-11-27 17:53  18 US US-LA  AEX KAEX 271653Z 28012KT 10SM CLR 18/10 A2991 RMK AO2 SLP131 T01780100=  ## [A] Alexandria, Alexandria International Airport
175896 2022-11-27 18:10   0 US US-CO  AFF KAFF 271710Z 15008KT 10SM OVC011 M00/M02 A2992 RMK AO2A SLP145=  ## [A] Colorado Springs, USAF Academy Airfield
175900 2022-11-27 17:56  13 US US-PA  WSG KAFJ 271656Z AUTO 19008KT 10SM RA FEW017 BKN070 OVC090 13/12 A2948 RMK AO2 RAB43 SLP984 P0003 T01280117=  ## [A] Washington, Washington County Airport
175901 2022-11-27 18:15   4 US US-NE  --- KAFK 271715Z AUTO 33016KT 10SM CLR 04/M01 A2987 RMK AO2 T00441013=  ## [A] Nebraska City, Nebraska City Municipal Airport
175904 2022-11-27 17:52   9 US US-NH  AFN KAFN 271652Z AUTO 00000KT 10SM CLR 09/M04 A2972 RMK AO2 SLP075 T00891039=  ## [A] Jaffrey, Jaffrey Airport Silver Ranch Airport
175905 2022-11-27 18:15  -2 US US-WY  AFO KAFO 271715Z AUTO 17006KT 10SM OVC060 M02/M08 A3002 RMK AO2=  ## [A] Afton, Afton Municipal Airport
175906 2022-11-27 18:15  21 US US-NC  --- KAFP 271715Z AUTO 18009G16KT 10SM SCT009 OVC015 21/19 A2968 RMK AO2 T02050193=  ## [A] Wadesboro, Anson County Airport - Jeff Cloud Field
175913 2022-11-27 17:53  14 US US-TX  AFW KAFW 271653Z 36008KT 10SM FEW040 14/07 A2993 RMK AO2 SLP136 T01390072=  ## [A] Fort Worth, Fort Worth Alliance Airport
175919 2022-11-27 18:18  13 US US-PA  AGC KAGC 271718Z 19010G17KT 3SM -RA BR FEW027 BKN065 OVC080 13/11 A2944 RMK AO2 P0002 T01280111=  ## [A] Pittsburgh, Allegheny County Airport
175925 2022-11-27 18:15  26               KAGI 271715Z AUTO 19007KT 10SM CLR 26/11 A2998 RMK AO2 T02570111=  ## [A]
175931 2022-11-27 18:15  12 US US-AR  AGO KAGO 271715Z AUTO 26010G15KT 230V290 10SM OVC018 12/08 A2987 RMK A01=  ## [A] Magnolia, Ralph C Weiser Field
175934 2021-08-26 07:09 XXX US US-FL  --- KAGR 260509Z AUTO 03005KT 4SM RA FEW003 OVC075 M A3007 RMK AO2 LTG DSNT SE-NW SLPNO 50013 $  ## [A] Avon Park, MacDill Air Force Base Auxiliary Field
175935 2022-11-27 17:53  24 US US-GA  AGS KAGS 271653Z 24017G26KT 10SM FEW024 FEW029 SCT038 24/18 A2975 RMK AO2 PK WND 24026/1650 SLP074 T02390183 $  ## [A] Augusta, Augusta Regional At Bush Field
175956 2022-11-27 17:51  21 US US-GA  AHN KAHN 271651Z 24008G20KT 190V280 10SM CLR 21/11 A2976 RMK AO2 PK WND 22027/1608 SLP074 T02110106=  ## [A] Athens, Athens Ben Epps Airport
175959 2022-11-27 18:15   4 US US-NE  --- KAHQ 271715Z AUTO 34014G19KT 10SM CLR 04/M05 A2991 RMK AO2 T00441046=  ## [A] Wahoo, Wahoo Municipal Airport
175969 2022-11-27 17:53   2 US US-NE  AIA KAIA 271653Z AUTO 22008KT 10SM CLR 02/M02 A2989 RMK AO2 SLP139 T00221017=  ## [A] Alliance, Alliance Municipal Airport
175970 2022-04-24 18:00  25 US US-CO  --- KAIB 241600Z 15007KT 9999 SCT022 SCT090 25/20 Q1018 RMK A3008=  ## [A] Nucla, Hopkins Field
175972 2022-11-27 17:35  11 US US-IN  AID KAID 271635Z AUTO 21007G15KT 10SM SCT023 BKN028 OVC050 11/07 A2938 RMK AO2 T01110073=  ## [A] Anderson, Anderson Municipal Darlington Field
175975 2022-11-27 18:15   3 US US-WI  --- KAIG 271715Z AUTO 35016KT 10SM CLR 03/M03 A2964 RMK AO2 T00281035=  ## [A] Antigo, Langlade County Airport
175979 2022-11-27 18:15  24 US US-SC  AIK KAIK 271715Z AUTO 23016G23KT 10SM SCT021 SCT027 SCT033 24/19 A2975 RMK AO2 T02420186=  ## [A] Aiken, Aiken Regional Airport
175983 2022-11-27 18:15   4 US US-IA  AIO KAIO 271715Z AUTO 33015G21KT 10SM CLR 04/01 A2983 RMK AO2=  ## [A] Atlantic, Atlantic Municipal Airport
175988 2022-11-27 18:15   1 US US-MN  --- KAIT 271715Z AUTO 33006KT 10SM CLR 01/M03 A2984 RMK AO2=  ## [A] Aitkin, Aitkin Municipal Steve Kurtz Field
175994 2022-11-27 17:56   8 US US-MO  AIZ KAIZ 271656Z AUTO 30009G15KT 270V330 10SM OVC015 08/05 RMK AO2 SLPNO T00780050 $  ## [A] Kaiser Lake Ozark, Lee C Fine Memorial Airport
176001 2022-11-27 18:15  12 US US-IL  --- KAJG 271715Z AUTO 21020G26KT 5SM BR OVC015 12/10 A2946 RMK AO2 T01210101=  ## [A] Mount Carmel, Mount Carmel Municipal Airport
176006 2019-11-29 14:35 -11               KAJL 291335Z AUTO OVC003 M11/M12 A2952 RMK AO2 T11141121 PWINO=  ## [A]
176009 2022-11-27 17:56  10 US US-CA  --- KAJO 271656Z AUTO 00000KT 10SM CLR 10/03 A3011 RMK AO2 SLP194 T01000028=  ## [A] Corona, Corona Municipal Airport
176012 2022-11-27 18:15  19 US US-GA  --- KAJR 271715Z AUTO 25019G27KT 7SM SCT023 SCT030 SCT034 19/10 A2974 RMK AO2 T01850095=  ## [A] Cornelia, Habersham County Airport
176020 2022-11-27 18:15   3 US US-CO  --- KAJZ 271715Z AUTO 16003KT 10SM BKN007 OVC017 03/00 A3013 RMK AO2 T00330003=  ## [A] Delta, Blake Field
176028 2022-11-27 18:01  18 US US-NC  --- KAKH 271701Z AUTO 22012G19KT 180V270 10SM BKN012 OVC019 18/16 A2969 RMK AO2 T01830161=  ## [A] Gastonia, Gastonia Municipal Airport
176035 2022-11-27 17:53   2 US US-CO  AKO KAKO 271653Z AUTO 25009KT 10SM OVC026 02/00 A2994 RMK AO2 SLP152 T00220000 $  ## [A] Akron, Colorado Plains Regional Airport
176037 2022-11-27 18:10  15 US US-VA  --- KAKQ 271710Z AUTO 16006KT 3SM -RA BR BKN006 BKN010 OVC027 15/14 A2972 RMK AO2 PRESFR P0007 T01500144 $  ## [A] Wakefield, Wakefield Municipal Airport
176038 2022-11-27 17:54  13 US US-OH  AKC KAKR 271654Z AUTO 19006KT 9SM 13/11 A2939 RMK AO2 SLP952 T01280106=  ## [A] Akron, Akron Fulton International Airport
176048 2022-11-27 17:51   8 US US-NY  ALB KALB 271651Z 16006KT 10SM BKN110 BKN150 OVC180 08/M02 A2971 RMK AO2 SLP062 T00831022=  ## [A] Albany, Albany International Airport
176055 2022-11-27 17:53  22 US US-TX  ALI KALI 271653Z AUTO 21004KT 10SM CLR 22/14 A2994 RMK AO2 SLP135 T02170144 $  ## [A] Alice, Alice International Airport
176057 2022-11-27 17:56  12               KALK 271656Z AUTO 28007KT 10SM CLR 12/M11 A3018 RMK AO2 SLP174 T01171111=  ## [A]
176059 2022-11-27 18:15  11 US US-NM  ALM KALM 271715Z AUTO 15003KT 10SM CLR 11/M10 A3008 RMK AO2=  ## [A] Alamogordo, Alamogordo White Sands Regional Airport
176060 2022-11-27 17:50   7 US US-IL  ALN KALN 271650Z 32013KT 10SM OVC011 07/06 A2956=  ## [A] Alton/St Louis, St Louis Regional Airport
176061 2022-11-27 17:54   5 US US-IA  ALO KALO 271654Z 35013KT 10SM BKN110 05/M01 A2972 RMK AO2 SLP070 T00501011=  ## [A] Waterloo, Waterloo Regional Airport
176065 2022-11-27 18:22   1 US US-CO  ALS KALS 271722Z AUTO 19005KT 10SM SCT010 BKN019 01/M02 A3000 RMK AO2 T00061022=  ## [A] Alamosa, San Luis Valley Regional Bergman Field
176069 2022-11-27 17:53   8 US US-WA  ALW KALW 271653Z 22019G34KT 10SM OVC046 08/00 A2988 RMK AO2 PK WND 25034/1635 SLP123 T00830000=  ## [A] Walla Walla, Walla Walla Regional Airport
176070 2022-11-27 18:15  17 US US-AL  ALX KALX 271715Z AUTO 26014G20KT 10SM SCT036 SCT043 17/09 A2988 RMK AO2 T01660085=  ## [A] Alexander City, Thomas C Russell Field
176073 2022-11-27 17:53   4 US US-TX  AMA KAMA 271653Z 01016G23KT 10SM FEW120 04/M03 A2999 RMK AO2 SLP158 T00391028=  ## [A] Amarillo, Rick Husband Amarillo International Airport
176079 2022-11-27 17:53  24 US US-GA  --- KAMG 271653Z AUTO 25012G26KT 10SM SCT016 BKN025 OVC110 24/21 A2987 RMK AO2 PK WND 22030/1601 RAB1559E23 SLP112 P0003 T02390206=  ## [A] Alma, Bacon County Airport
176086 2022-11-27 18:15   6 US US-MI  AMN KAMN 271715Z AUTO 04006KT 10SM SCT010 OVC060 06/03 A2943 RMK AO2 T00590032=  ## [A] Alma, Gratiot Community Airport
176095 2022-11-27 17:53   4 US US-IA  AMW KAMW 271653Z AUTO 35013KT 10SM FEW015 04/00 A2977 RMK AO2 SLP083 T00390000=  ## [A] Ames, Ames Municipal Airport
176100 2022-11-27 17:53  16 US US-AL  ANB KANB 271653Z AUTO 24017G23KT 10SM BKN036 BKN043 16/08 A2985 RMK AO2 SLP107 T01610083=  ## [A] Anniston, Anniston Regional Airport
176102 2022-11-27 17:56  20 US US-SC  AND KAND 271656Z AUTO 24011KT 10SM CLR 20/16 A2972 RMK AO2 SLP059 T02000156=  ## [A] Anderson, Anderson Regional Airport
176103 2022-11-27 17:45   3 US US-MN  --- KANE 271645Z 35009KT 10SM SCT250 03/M02 A2982=  ## [A] Minneapolis, Anoka County-Blaine (Janes Field) Airport
176108 2022-11-27 17:55   4 US US-MI  --- KANJ 271655Z AUTO 03007KT 10SM OVC015 04/01 A2958 RMK AO2 SLP020 T00390011=  ## [A] Sault Ste Marie, Sault Ste Marie Municipal Sanderson Field
176109 2022-11-27 18:10   1 US US-CO  SLT KANK 271710Z AUTO 02003KT 10SM SCT014 01/M03 A3004 RMK AO1 T00101026=  ## [A] Salida, Harriet Alexander Field
176115 2022-11-27 18:15   6 US US-IN  ANQ KANQ 271715Z AUTO 08004KT 1 3/4SM RA BR OVC005 06/06 A2934 RMK AO2=  ## [A] Angola, Tri State Steuben County Airport
176121 2022-11-27 18:15   2 US US-NE  ANW KANW 271715Z AUTO 00000KT 10SM CLR 02/M05 A2993 RMK AO2 T00181051=  ## [A] Ainsworth, Ainsworth Regional Airport
176132 2022-11-27 18:14  13 US US-OH  AOH KAOH 271714Z AUTO 21014G20KT 10SM SCT013 BKN019 BKN026 13/11 A2933 RMK AO2 T01330106 $  ## [A] Lima, Lima Allen County Airport
176139 2022-11-27 18:11   7 US US-PA  AOO KAOO 271711Z AUTO 00000KT 10SM -RA BKN013 BKN022 OVC044 07/06 A2956 RMK AO2 P0000 T00720056=  ## [A] Altoona, Altoona Blair County Airport
176151 2022-11-27 17:53   3 US US-CO  APA KAPA 271653Z 18006KT 10SM FEW050 FEW110 FEW150 03/M03 A2990 RMK AO2 SLP133 T00331033=  ## [A] Denver, Centennial Airport
176153 2022-11-27 17:54   9 US US-CA  APC KAPC 271654Z 34003KT 10SM CLR 09/03 A3016 RMK AO2 SLP202 T00890028 $  ## [A] Napa, Napa County Airport
176156 2022-11-27 17:53  29 US US-FL  APF KAPF 271653Z 20012KT 10SM CLR 29/24 A3003 RMK AO2 SLP168 T02890239 $  ## [A] Naples, Naples Municipal Airport
176157 2022-11-25 20:54  14 US US-MD  APG KAPG 251954Z 28007KT 10SM BKN050 14/05 A2984 RMK LAST SLP108=  ## [A] Aberdeen Proving Grounds(Aberdeen), Phillips Army Air Field
176164 2022-11-27 17:54   6 US US-MI  APN KAPN 271654Z AUTO 36006KT 10SM CLR 06/01 A2951 RMK AO2 SLP997 T00560006=  ## [A] Alpena, Alpena County Regional Airport
176169 2022-11-27 17:58  21               KAPS 271658Z AUTO 24007KT 10SM CLR 21/11 A2997 RMK AO2=  ## [A]
176175 2022-11-27 17:00  19 US US-TX  --- KAPY 271600Z AUTO 12003KT 10SM 19/13 A2995 RMK AO2 T01850133 TSNO=  ## [A] Zapata, Zapata County Airport
176191 2022-11-27 18:15  16 US US-TX  --- KAQO 271715Z AUTO 01004KT 10SM CLR 16/04 A2996 RMK AO2=  ## [A] Llano, Llano Municipal Airport
176192 2022-11-27 18:13   1 US US-MN  --- KAQP 271713Z AUTO 35007KT 10SM SCT090 01/M02 A2989 RMK AO=  ## [A] Appleton, Appleton Municipal Airport
176194 2021-05-29 00:15  26 US US-OK  --- KAQR 282215Z AUTO 04004KT 10SM 26/08 A3001 RMK AO2 T02580078 PNO=  ## [A] Atoka, Atoka Municipal Airport
176198 2022-11-27 17:57  16               KAQV 271657Z AUTO VRB04KT 10SM CLR 16/07 A2990 RMK AO2 SLP125 T01610072=  ## [A]
176199 2022-11-27 17:52   8 US US-MA  --- KAQW 271652Z AUTO 12006KT 10SM FEW120 08/M02 A2971 RMK AO2 SLP065 T00781022=  ## [A] North Adams, Harriman and West Airport
176200 2022-11-27 18:15  22               KAQX 271715Z AUTO 23007G13KT 200V260 10SM BKN025 BKN032 OVC038 22/22 A2978 RMK AO2 TSNO=  ## [A]
176203 2022-11-27 17:53  22 US US-LA  ARA KARA 271653Z 25015G22KT 10SM CLR 22/13 A2994 RMK AO2 SLP139 T02220128=  ## [A] New Iberia, Acadiana Regional Airport
176204 2022-11-27 17:53   5 US US-MI  ARB KARB 271653Z 06009KT 3SM BR OVC005 05/03 A2937 RMK AO2 RAB33E42 SLP952 P0000 T00500033=  ## [A] Ann Arbor, Ann Arbor Municipal Airport
176209 2022-11-27 17:56  11 US US-AR  ARG KARG 271656Z AUTO 24013G19KT 7SM -RA BKN019 OVC024 11/10 A2968 RMK AO2 RAB46 SLP053 P0000 T01110100=  ## [A] Walnut Ridge, Walnut Ridge Regional Airport
176215 2022-11-27 18:15  19 US US-TX  WHT KARM 271715Z AUTO 23007KT 10SM CLR 19/14 A2996 RMK AO2 T01860144 TSNO=  ## [A] Wharton, Wharton Regional Airport
176220 2022-11-27 18:07   7 US US-IL  AUZ KARR 271707Z 35011KT 6SM HZ SCT019 OVC100 07/02 A2951 RMK AO2 T00670022=  ## [A] Chicago/Aurora, Aurora Municipal Airport
176222 2022-11-27 17:56  10 US US-NY  ART KART 271656Z AUTO 00000KT 10SM SCT120 10/M04 A2961 RMK AO2 SLP028 T01001044=  ## [A] Watertown, Watertown International Airport
176224 2022-11-27 18:15   1 US US-WI  ARV KARV 271715Z AUTO 01011G16KT 10SM OVC022 01/M04 A2970 RMK AO2 T00081041=  ## [A] Minocqua-Woodruff, Lakeland-Noble F. Lee Memorial field
176225 2022-11-27 18:15  21 US US-SC  BFT KARW 271715Z AUTO 19010G16KT 10SM OVC007 21/19 A2983 RMK AO2=  ## [A] Beaufort, Beaufort County Airport
176232 2022-11-27 17:53  21 US US-LA  --- KASD 271653Z AUTO VRB05KT 10SM CLR 21/09 A2997 RMK AO2 SLP148 T02060094=  ## [A] Slidell, Slidell Airport
176233 2022-11-27 17:53  -2 US US-CO  ASE KASE 271653Z 00000KT 10SM SCT016 BKN027 OVC041 M02/M06 A3003 RMK AO2 SLP153 T10221061=  ## [A] Aspen, Aspen-Pitkin Co/Sardy Field
176235 2022-11-27 17:48   8 US US-AR  SPZ KASG 271648Z 30011KT 10SM OVC016 08/08 A2982=  ## [A] Springdale, Springdale Municipal Airport
176236 2022-11-27 17:56  12 US US-NH  ASH KASH 271656Z 00000KT 10SM CLR 12/M02 A2973 RMK AO2 PRESFR SLP072 T01171022 $  ## [A] Nashua, Boire Field
176238 2022-11-27 18:15  17 US US-NC  --- KASJ 271715Z AUTO 17012G18KT 10SM SCT019 SCT038 BKN100 17/17 A2973 RMK AO2 T01720172=  ## [A] Ahoskie, Tri County Airport
176240 2022-11-27 18:15  15 US US-TX  ASL KASL 271715Z AUTO 33009KT 10SM CLR 15/08 A2988 RMK AO2 T01500076 $  ## [A] Marshall, Harrison County Airport
176242 2022-11-27 18:15  17 US US-AL  ASN KASN 271715Z AUTO 23014G23KT 10SM SCT040 17/07 A2986 RMK AO2 T01690070=  ## [A] Talladega, Talladega Municipal Airport
176248 2022-11-27 17:55   7 US US-OR  AST KAST 271655Z AUTO 32005KT 9SM FEW028 BKN038 BKN055 07/04 A3010 RMK AO2 RAB18E35 SLP191 P0003 T00720039=  ## [A] Astoria, Astoria Regional Airport
176251 2022-11-27 18:15   6 US US-IN  --- KASW 271715Z AUTO 04004KT 10SM -RA BKN004 BKN009 OVC014 06/06 A2932 RMK AO2 T00630058=  ## [A] Warsaw, Warsaw Municipal Airport
176252 2022-11-27 17:53   3 US US-WI  ASX KASX 271653Z AUTO 03010KT 10SM FEW019 03/M02 A2980 RMK AO2 SLP101 T00331017=  ## [A] Ashland, John F Kennedy Memorial Airport
176255 2022-11-27 18:15  12 US US-TX  --- KATA 271715Z AUTO 26007KT 10SM OVC017 12/08 A2990 RMK AO2 SLP023 T01170081=  ## [A] Atlanta, Hall Miller Municipal Airport
176266 2022-11-27 17:52  18 US US-GA  ATL KATL 271652Z 26014G27KT 10SM SCT033 18/09 A2981 RMK AO2 PK WND 28027/1652 SLP092 T01830094=  ## [A] Atlanta, Hartsfield Jackson Atlanta International Airport
176270 2022-11-27 18:20  24               KATP 271720Z AUTO 00000KT 10SM CLR 24/15 A3002 RMK A01=  ## [A]
176273 2022-11-27 18:15  10 US US-NM  ATS KATS 271715Z AUTO 00000KT 10SM CLR 10/M01 A3007 RMK AO2=  ## [A] Artesia, Artesia Municipal Airport
176274 2022-11-27 17:51  18               KATT 271651Z AUTO VRB04KT 10SM CLR 18/06 A2997 RMK AO2 SLP148 T01780056 =  ## [A]
176277 2022-11-27 17:45   3 US US-WI  ATW KATW 271645Z 01010G15KT 10SM BKN016 03/M01 A2961=  ## [A] Appleton, Appleton International Airport
176279 2022-11-27 17:53  -1 US US-SD  ATY KATY 271653Z AUTO 27003KT 10SM CLR M01/M03 A2988 RMK AO2 SLP139 T10111028=  ## [A] Watertown, Watertown Regional Airport
176287 2022-11-27 17:53   8 US US-ME  AUG KAUG 271653Z AUTO 00000KT 10SM CLR 08/00 A2967 RMK AO2 SLP051 T00830000=  ## [A] Augusta, Augusta State Airport
176288 2022-11-27 18:15   2 US US-NE  --- KAUH 271715Z AUTO 32013KT 10SM CLR 02/M04 A2995 RMK AO2 T00201038=  ## [A] Aurora, Aurora Municipal Al Potter Field
176293 2022-11-27 18:16   2 US US-MN  AUM KAUM 271716Z AUTO 36011G16KT 10SM CLR 02/M01 A2977 RMK AO2=  ## [A] Austin, Austin Municipal Airport
176294 2022-11-27 18:15  13 US US-CA  AUN KAUN 271715Z AUTO 10007KT 10SM CLR 13/M02 A3015 RMK A01=  ## [A] Auburn, Auburn Municipal Airport
176295 2022-11-27 18:17  17 US US-AL  AUO KAUO 271717Z AUTO 25006G21KT 10SM BKN032 BKN039 17/10 A2990 RMK AO2=  ## [A] Auburn, Auburn University Regional Airport
176299 2022-11-27 17:53  18 US US-TX  AUS KAUS 271653Z 32007KT 10SM CLR 18/07 A2996 RMK AO2 SLP145 T01780067=  ## [A] Austin, Austin Bergstrom International Airport
176303 2022-11-27 17:54   4 US US-WI  AUW KAUW 271654Z AUTO 33008G19KT 10SM CLR 04/M04 A2965 RMK AO2 SLP054 T00441039=  ## [A] Wausau, Wausau Downtown Airport
176309 2022-11-27 18:15  16 US US-VA  --- KAVC 271715Z AUTO 17011G18KT 5SM OVC004 16/16 A2972 RMK AO2 P0002 T01620160=  ## [A] South Hill, Mecklenburg Brunswick Regional Airport
176317 2022-11-27 18:15   7 US US-OK  --- KAVK 271715Z AUTO 35014KT 10SM CLR 07/01 A2997 RMK AO2 PWINO=  ## [A] Alva, Alva Regional Airport
176318 2022-11-27 17:54  17 US US-NC  AVL KAVL 271654Z 21014G23KT 10SM CLR 17/11 A2967 RMK AO2 PK WND 19028/1600 SLP032 T01720106=  ## [A] Asheville, Asheville Regional Airport
176322 2022-11-27 17:54   7 US US-PA  AVP KAVP 271654Z 34004KT 10SM -RA BKN070 BKN080 OVC095 07/02 A2967 RMK AO2 RAE1555B19 PRESFR SLPNO P0000 T00670022=  ## [A] Wilkes-Barre/Scranton, Wilkes Barre Scranton International Airport
176323 2022-11-27 18:15  14 US US-AZ  AVW KAVQ 271715Z AUTO 10007KT 10SM CLR 14/M11 A3013 RMK AO2 T01421106=  ## [A] Tucson, Marana Regional Airport
176330 2022-11-25 03:51  18 US US-CA  AVX KAVX 250251Z AUTO 10015G22KT 10SM CLR 18/M08 A3022 RMK AO2 SLP217 T01831083 52012 $  ## [A] Avalon, Catalina Airport
176339 2022-11-27 18:15   6 US US-IA  --- KAWG 271715Z AUTO 33011G17KT 10SM CLR 06/04 A2966 RMK AO2=  ## [A] Washington, Washington Municipal Airport
176345 2022-11-27 17:53  12 US US-AR  AWM KAWM 271653Z AUTO 23009KT 10SM BKN020 OVC025 12/07 A2975 RMK AO2 SLP073 T01170072=  ## [A] West Memphis, West Memphis Municipal Airport
176347 2022-11-27 17:56   6 US US-WA  --- KAWO 271656Z AUTO 28009G16KT 10SM SCT039 06/01 A2999 RMK AO2 SLP160 T00610006=  ## [A] Arlington, Arlington Municipal Airport
176359 2022-11-27 18:15   2 US US-IA  AXG KAXA 271715Z AUTO 36014G20KT 10SM CLR 02/02 A2980 RMK A01=  ## [A] Algona, Algona Municipal Airport
176366 2022-11-27 18:15  22 US US-TX  --- KAXH 271715Z AUTO 26005KT 10SM CLR 22/13 A2995 RMK AO2 T02150132=  ## [A] Houston, Houston Southwest Airport
176372 2022-11-27 18:09  -2 US US-MN  AXN KAXN 271709Z AUTO 32005KT 10SM BKN005 M02/M04 A2987 RMK AO2 T10221039=  ## [A] Alexandria, Chandler Field
176377 2022-11-27 18:15   9 US US-OK  AXS KAXS 271715Z AUTO 36013G16KT 10SM CLR 09/02 A3001 RMK AO2 T00900019=  ## [A] Altus, Altus Quartz Mountain Regional Airport
176380 2022-11-27 18:15  12 US US-OH  AXV KAXV 271715Z AUTO 21014G20KT 10SM BKN017 BKN023 12/10 A2935 RMK AO2=  ## [A] Wapakoneta, Neil Armstrong Airport
176382 2022-11-27 18:15  -1 US US-NM  AXX KAXX 271715Z AUTO 16007G14KT 10SM OVC019 M01/M05 A3001 RMK AO2 T10151048=  ## [A] Angel Fire, Angel Fire Airport
176403 2022-11-27 18:15  24 US US-GA  AYS KAYS 271715Z AUTO 27011G21KT 10SM SCT016 BKN060 OVC120 24/23 A2988 RMK AO2 T02370230=  ## [A] Waycross, Waycross Ware County Airport
176413 2022-11-27 18:15   5 US US-AZ  --- KAZC 271715Z AUTO 14009KT 10SM CLR 05/M04 A3019 RMK AO2=  ## [A] Colorado City, Colorado City Municipal Airport
176415 2022-11-27 18:15  23 US US-GA  --- KAZE 271715Z AUTO 24013G22KT SCT028 23/15 A2985 RMK AO2 T02300150 PWINO=  ## [A] Hazlehurst, Hazlehurst Airport
176425 2022-11-27 18:09   4 US US-MI  AZO KAZO 271709Z 02010KT 3SM RA BR FEW008 OVC030 04/02 A2940 RMK AO2 P0004 T00440022 $  ## [A] Kalamazoo, Kalamazoo Battle Creek International Airport
176438 2022-11-27 17:55   8 US US-CA  BAB KBAB 271655Z AUTO 00000KT 10SM CLR 08/04 A3015 RMK AO2 SLP213 T00830043 $  ## [A] Marysville, Beale Air Force Base
176439 2022-11-27 18:15  -3               KBAC 271715Z AUTO 22004KT 10SM CLR M03/M04 A2986 RMK AO2=  ## [A]
176440 2022-11-27 17:55  15 US US-LA  BAD KBAD 271655Z AUTO 26009KT 10SM CLR 15/07 A2989 RMK AO2 SLP126 T01470065 $  ## [A] Bossier City, Barksdale Air Force Base
176442 2022-11-27 17:53   7 US US-MA  BAF KBAF 271653Z 00000KT 10SM CLR 07/M01 A2973 RMK AO2 SLP072 T00721011=  ## [A] Westfield/Springfield, Westfield-Barnes Regional Airport
176447 2022-11-27 17:45  10 US US-IN  CLU KBAK 271645Z 22020G35KT 10SM OVC023 10/07 A2943=  ## [A] Columbus, Columbus Municipal Airport
176449 2022-11-27 18:15  -3 US US-NV  BAM KBAM 271715Z AUTO 00000KT 10SM OVC110 M03/M04 A3017 RMK AO1=  ## [A] Battle Mountain, Battle Mountain Airport
176450 2022-11-27 17:52  -3               KBAN 271652Z AUTO 00000KT 10SM CLR M03/M08 A3013 RMK AO2 SLP222 T10281083 $  ## [A]
176460 2022-11-27 18:15   5 US US-MI  --- KBAX 271715Z AUTO 10003KT 10SM -RA OVC048 05/05 A2944 RMK AO2 T00500050=  ## [A] Bad Axe, Huron County Memorial Airport
176462 2022-11-27 17:51  20 US US-TX  --- KBAZ 271651Z 00000KT 10SM CLR 20/09 A2994 RMK AO2 SLP136 T02000094=  ## [A] New Braunfels, New Braunfels Municipal Airport
176464 2022-11-27 18:17   0 US US-MN  BBB KBBB 271717Z AUTO 35006KT 10SM SCT008 00/M02 A2989 RMK AO2=  ## [A] Benson, Benson Municipal Airport
176466 2022-11-27 18:15  12 US US-TX  BBD KBBD 271715Z AUTO 36007KT 10SM CLR 12/05 A2997 RMK AO2=  ## [A] Brady, Curtis Field
176468 2020-07-25 11:45  27               KBBF 250945Z AUTO 09048G59KT 1SM HZ SCT003 OVC015 27/25 A2947 RMK A01=  ## [A]
176469 2022-11-27 17:45   8               KBBG 271645Z 30010KT 10SM BKN021 08/05 A2976=  ## [A]
176478 2022-11-27 18:15  21 US US-SC  BTN KBBP 271715Z AUTO 19012G21KT 10SM BKN013 OVC021 21/21 A2971 RMK AO2=  ## [A] Bennettsville, Marlboro County Jetport H.E. Avent Field
176485 2022-11-27 17:53   2 US US-NE  BBW KBBW 271653Z AUTO 36007KT 10SM CLR 02/M04 A2995 RMK AO2 SLP161 T00221044=  ## [A] Broken Bow, Broken Bow Municipal Airport
176490 2022-11-27 18:15  14 US US-VA  BCB KBCB 271715Z AUTO 14005KT 10SM BKN017 14/14 A2964 RMK AO2 T01400140=  ## [A] Blacksburg, Virginia Tech Montgomery Executive Airport
176493 2022-11-27 17:53  -2 US US-UT  BCE KBCE 271653Z AUTO 36010KT 10SM CLR M02/M08 A3012 RMK AO2 SLP183 T10221078=  ## [A] Bryce Canyon, Bryce Canyon Airport
176499 2022-11-27 18:15   6 US US-WI  --- KBCK 271715Z AUTO 34008G16KT 10SM CLR 06/M02 A2971 RMK AO2 T00611021=  ## [A] Black River Falls, Black River Falls Area Airport
176506 2022-11-27 17:58  21               KBCR 271658Z AUTO 24009KT 10SM CLR 21/10 A2997 RMK AO2 SLP105 T02060100=  ## [A]
176508 2022-11-27 17:53  31 US US-FL  BCT KBCT 271653Z 19008KT 10SM SCT030 31/22 A3003=  ## [A] Boca Raton, Boca Raton Airport
176519 2022-11-27 17:53  -1 US US-MN  BDE KBDE 271653Z AUTO 00000KT 10SM SCT040 M01/M04 A2983 RMK AO2 SLP119 T10061039=  ## [A] Baudette, Baudette International Airport
176521 2022-11-27 18:15   5 US US-UT  BDG KBDG 271715Z AUTO 15004KT 10SM 05/M05 A3018 RMK AO1 T00481050=  ## [A] Blanding, Blanding Municipal Airport
176522 2022-11-27 18:15   1               KBDH 271715Z AUTO 30007KT 10SM CLR 01/M02 A2990 RMK AO2=  ## [A]
176526 2022-11-27 17:51  10 US US-CT  BDL KBDL 271651Z 17005KT 10SM OVC130 10/M02 A2974 RMK AO2 SLP070 T01001017=  ## [A] Hartford, Bradley International Airport
176528 2022-11-27 18:15   7 US US-OR  --- KBDN 271715Z AUTO 21012G17KT 10SM CLR 07/M03 A3002 RMK AO2=  ## [A] Bend, Bend Municipal Airport
176532 2022-11-27 17:52  11 US US-CT  BDR KBDR 271652Z 23004KT 10SM BKN120 11/05 A2977 RMK AO2 SLP082 T01060050=  ## [A] Bridgeport, Igor I Sikorsky Memorial Airport
176535 2022-11-27 18:15   2 US US-CO  WBU KBDU 271715Z AUTO 00000KT 10SM BKN011 02/00 A2990 RMK AO2=  ## [A] Boulder, Boulder Municipal Airport
176541 2022-11-27 18:15  21 US US-TX  --- KBEA 271715Z AUTO 26006KT 10SM 21/12 A2995 RMK AO2 T02140117=  ## [A] Beeville, Beeville Municipal Airport
176543 2022-11-27 18:15   5 US US-KS  BEC KBEC 271715Z AUTO 34014G18KT 10SM CLR 05/M01 A2991 RMK AO2 T00491006=  ## [A] Wichita, Beech Factory Airport
176544 2022-11-27 17:51  12 US US-MA  BED KBED 271651Z 19007KT 10SM CLR 12/M02 A2974 RMK AO2 SLP084 T01171017=  ## [A] Bedford, Laurence G Hanscom Field
176548 2022-11-27 18:15   5 US US-MI  BEH KBEH 271715Z AUTO VRB03KT 2SM -RA BR FEW005 BKN030 OVC045 05/04 A2940 RMK AO2 P0002 T00500039=  ## [A] Benton Harbor, Southwest Michigan Regional Airport
176570 2022-11-27 17:53   6 US US-PA  BFD KBFD 271653Z AUTO 14013KT 4SM RA BKN021 OVC026 06/03 A2950 RMK AO2 PRESFR SLP995 P0011 T00610033 TSNO $  ## [A] Bradford, Bradford Regional Airport
176572 2022-11-27 17:53   2 US US-NE  BFF KBFF 271653Z AUTO 12005KT 10SM FEW044 02/M01 A2990 RMK AO2 SLP140 T00221011 $  ## [A] Scottsbluff, Western Neb. Rgnl/William B. Heilig Airport
176575 2022-11-27 17:53   5 US US-WA  BFI KBFI 271653Z 13006KT 10SM SCT037 BKN110 05/03 A3001 RMK AO2 SLP161 T00500028 $  ## [A] Seattle, Boeing Field King County International Airport
176578 2022-11-27 17:54  10 US US-CA  BFL KBFL 271654Z 17004KT 5SM HZ CLR 10/M02 A3015 RMK AO2 SLP209 T01001022=  ## [A] Bakersfield, Meadows Field
176579 2022-11-27 17:53  21 US US-AL  BFM KBFM 271653Z 24006KT 10SM CLR 21/07 A2999 RMK AO2 SLP155 T02110067=  ## [A] Mobile, Mobile Downtown Airport
176584 2022-11-27 18:15  10 US US-IN  BFR KBFR 271715Z AUTO 22018G26KT 4SM HZ OVC013 10/07 A2946 RMK AO2=  ## [A] Bedford, Virgil I Grissom Municipal Airport
176589 2021-07-09 17:55  23 US US-MN  --- KBFW 091555Z AUTO 00000KT 10SM 23/08 A3006 RMK AO2=  ## [A] Silver Bay, Silver Bay Municipal Airport
176596 2022-11-27 17:51   4 US US-TX  BGD KBGD 271651Z AUTO 34008KT 10SM BKN120 04/M04 A3004 RMK AO2 SLP176 T00441039=  ## [A] Borger, Hutchinson County Airport
176597 2022-11-27 18:15  21 US US-GA  BGE KBGE 271715Z AUTO 26014G20KT 10SM CLR 21/07 A2995 RMK AO2 T02120066=  ## [A] Bainbridge, Decatur County Industrial Air Park
176598 2022-11-27 18:15  12 US US-TN  --- KBGF 271715Z AUTO 25013G22KT 230V290 10SM OVC033 12/05 A2975 RMK A01=  ## [A] Winchester, Winchester Municipal Airport
176605 2022-11-27 17:53   6 US US-NY  BGM KBGM 271653Z 20006KT 10SM OVC080 06/01 A2965 RMK AO2 RAE44 SLP050 P0003 T00560011=  ## [A] Binghamton, Greater Binghamton/Edwin A Link field
176610 2022-11-27 17:53  12 US US-ME  BGR KBGR 271653Z 00000KT 10SM SCT150 SCT250 12/00 A2967 RMK AO2 SLP048 T01170000=  ## [A] Bangor, Bangor International Airport
176620 2022-11-27 17:56   8 US US-ME  BHB KBHB 271656Z AUTO 12006KT 10SM CLR 08/05 A2968 RMK AO2 SLP052 T00830050=  ## [A] Bar Harbor, Hancock County-Bar Harbor Airport
176621 2022-11-27 18:15  22 US US-GA  --- KBHC 271715Z AUTO 26012G22KT 10SM BKN019 OVC029 22/18 A2986 RMK AO2=  ## [A] Baxley, Baxley Municipal Airport
176629 2022-11-27 17:51   1 US US-MT  --- KBHK 271651Z AUTO 20007KT 10SM CLR 01/M03 A2971 RMK AO2 SLP084 T00111028=  ## [A] Baker, Baker Municipal Airport
176631 2022-11-27 17:53  16 US US-AL  BHM KBHM 271653Z 25016G22KT 10SM FEW037 16/06 A2988 RMK AO2 PK WND 24026/1626 SLP114 T01560061=  ## [A] Birmingham, Birmingham-Shuttlesworth International Airport
176648 2022-11-27 17:56  12 US US-RI  BID KBID 271656Z AUTO 23014KT 10SM CLR 12/09 A2980 RMK AO2 SLP091 T01220089=  ## [A] Block Island, Block Island State Airport
176649 2022-11-27 18:15   5 US US-NE  BIE KBIE 271715Z AUTO 33014KT 10SM CLR 05/M02 A2991 RMK AO2 T00451023=  ## [A] Beatrice, Beatrice Municipal Airport
176650 2022-11-27 17:55  14 US US-TX  BIF KBIF 271655Z AUTO 00000KT 10SM CLR 14/M14 A3007 RMK AO2 SLP145 T01401140 $  ## [A] Fort Bliss/El Paso, Biggs Army Air Field (Fort Bliss)
176652 2022-11-27 17:56   4 US US-CA  BIH KBIH 271656Z AUTO 00000KT 10SM CLR 04/M05 A3018 RMK AO2 SLP212 T00391050=  ## [A] Bishop, Eastern Sierra Regional Airport
176654 2022-11-27 18:15  20 US US-GA  --- KBIJ 271715Z AUTO 26009G20KT 10SM CLR 20/07 A2993 RMK AO2=  ## [A] Blakely, Early County Airport
176656 2022-11-27 17:53   4 US US-MT  BIL KBIL 271653Z 25011KT 10SM FEW100 BKN220 04/M04 A2970 RMK AO2 SLP076 ACSL DSNT ALQDS T00391039 $  ## [A] Billings, Billings Logan International Airport
176663 2022-11-27 17:52  -7 US US-ND  BIS KBIS 271652Z 11006KT 10SM CLR M07/M09 A2982 RMK AO2 SLP125 T10671089=  ## [A] Bismarck, Bismarck Municipal Airport
176666 2022-11-27 18:00   6 US US-MI  --- KBIV 271700Z AUTO 04006KT 10SM BKN014 OVC090 06/03 A2943 RMK AO2 T00560028=  ## [A] Holland, Tulip City Airport
176668 2022-11-27 17:55  18 US US-MS  BIX KBIX 271655Z AUTO 23008KT 10SM CLR 18/11 A2996 RMK AO2 SLP148 T01750108=  ## [A] Biloxi, Keesler Air Force Base
176673 2022-11-27 18:10   5 US US-CO  BJC KBJC 271710Z 14011KT 10SM FEW010 05/M02 A2990=  ## [A] Denver, Rocky Mountain Metropolitan Airport
176679 2022-11-27 18:15  -2 US US-MN  BJI KBJI 271715Z AUTO 00000KT 10SM CLR M02/M04 A2985 RMK AO2 T10161037=  ## [A] Bemidji, Bemidji Regional Airport
176680 2022-11-27 17:56  12 US US-OH  BJJ KBJJ 271656Z AUTO 20013G18KT 10SM OVC007 12/11 A2938 RMK AO2 RAB03E16 CIG 006V011 SLP951 P0000 T01170106=  ## [A] Wooster, Wayne County Airport
176698 2022-11-27 17:52  17               KBKB 271652Z AUTO VRB06KT 10SM CLR 17/09 A2990 RMK AO2 SLP154 T01720089 TSNO $  ## [A]
176700 2022-11-27 18:15  13 US US-TX  BKD KBKD 271715Z AUTO 00000KT 7SM CLR 13/07 A2997 RMK AO2 T01340067=  ## [A] Breckenridge, Stephens County Airport
176701 2022-11-27 17:53  -2 US US-OR  BKE KBKE 271653Z AUTO 17005KT 10SM OVC060 M02/M04 A2995 RMK AO2 SLP179 T10221044=  ## [A] Baker City, Baker City Municipal Airport
176702 2022-11-27 17:58   5 US US-CO  BFK KBKF 271658Z 19007KT 10SM FEW100 FEW150 05/M04 A2989 RMK AO2A SLP112 T00461037=  ## [A] Aurora, Buckley Air Force Base
176708 2022-11-27 18:19  13 US US-OH  BKL KBKL 271719Z 15012KT 10SM -RA SCT017 BKN055 OVC090 13/11 A2932 RMK AO2 RAB12 PRESFR P0000 T01330106=  ## [A] Cleveland, Burke Lakefront Airport
176710 2022-09-09 01:15  32 US US-OK  --- KBKN 082315Z AUTO 12010KT CLR 32/12 A2981 RMK AO2=  ## [A] Blackwell, Blackwell Tonkawa Municipal Airport
176715 2022-11-27 18:15  23 US US-TX  --- KBKS 271715Z AUTO 18008KT 10SM CLR 23/16 A2992 RMK AO2 SLP093 T02280157 $  ## [A] Falfurrias, Brooks County Airport
176716 2022-11-27 18:15  16 US US-VA  BKT KBKT 271715Z AUTO 17015G23KT 10SM OVC005 16/16 A2965 RMK AO1 P0006 T01560156=  ## [A] Blackstone, Allen C Perkinson Blackstone Army Air Field
176718 2022-11-27 17:53  27 US US-FL  --- KBKV 271653Z 21014KT 10SM FEW020 BKN027 OVC046 27/22 A3000 RMK AO2 SLP157 T02720222=  ## [A] Brooksville, Hernando County Airport
176719 2022-11-27 17:51  18 US US-WV  BKW KBKW 271651Z AUTO 21013G21KT 10SM FEW029 SCT036 18/12 A2953 RMK AO2 SLP985 T01830122 $  ## [A] Beckley, Raleigh County Memorial Airport
176720 2022-11-27 17:56   1 US US-SD  BKX KBKX 271656Z AUTO 32005KT 10SM CLR 01/M03 A2990 RMK AO2 SLP157 T00061033 FZRANO=  ## [A] Brookings, Brookings Regional Airport
176728 2022-11-27 17:52  18 US US-WV  BLF KBLF 271652Z AUTO 20013G24KT 10SM CLR 18/09 A2957 RMK AO2 SLP990 T01830089=  ## [A] Bluefield, Mercer County Airport
176730 2022-11-27 17:52  13 US US-CA  BLH KBLH 271652Z AUTO 09003KT 10SM CLR 13/M06 A3014 RMK AO2 SLP204 T01331061 TSNO $ =  ## [A] Blythe, Blythe Airport
176731 2022-11-27 17:53   5 US US-WA  BLI KBLI 271653Z VRB03KT 10SM FEW030 BKN060 05/02 A2996 RMK AO2 SLP154 T00500022=  ## [A] Bellingham, Bellingham International Airport
176735 2022-11-27 17:56  12 US US-NJ  BLM KBLM 271656Z AUTO 18005KT 10SM OVC110 12/07 A2978 RMK AO2 RAB00E15 SLP084 P0000 T01170067=  ## [A] Belmar/Farmingdale, Monmouth Executive Airport
176743 2022-11-27 17:52   8 US US-CA  BLU KBLU 271652Z AUTO 00000KT 10SM CLR 08/M04 A3018 RMK AO2 SLP190 T00831039=  ## [A] Emigrant Gap, Blue Canyon Nyack Airport
176744 2022-11-27 17:55   8 US US-IL  BLV KBLV 271655Z 29011G17KT 10SM BKN009 OVC014 08/07 A2955 RMK AO2A DZE39 CIG 010V012 BKN V OVC SLPNO RVRNO TSNO P0001 T00820073 ALTSTG ESTMD $  ## [A] Belleville, Scott AFB/Midamerica Airport
176751 2022-11-27 18:10   1 US US-UT  BMC KBMC 271710Z AUTO 7SM SCT007 BKN017 OVC100 01/00 A3016 RMK AO1 T00120000=  ## [A] Brigham City, Brigham City Regional Airport
176755 2022-11-27 17:53  10 US US-IN  BMG KBMG 271653Z 22015G32KT 10SM OVC010 10/08 A2943 RMK AO2 PK WND 22032/1648 RAE27 SLP965 P0002 T01000078=  ## [A] Bloomington, Monroe County Airport
176757 2022-11-27 17:56   5 US US-IL  BMI KBMI 271656Z 34018G22KT 3SM -RA BR OVC006 05/04 A2949 RMK AO2 RAB08 SLP988 P0001 T00500044=  ## [A] Bloomington/Normal, Central Illinois Regional Airport at Bloomington-Normal
176760 2022-11-27 17:52   6 US US-NH  BML KBML 271652Z AUTO 00000KT 10SM CLR 06/M01 A2967 RMK AO2 SLP061 T00561011=  ## [A] Berlin, Berlin Regional Airport
176765 2022-11-27 17:53  14 US US-TX  --- KBMQ 271653Z AUTO VRB05KT 10SM CLR 14/06 A2998 RMK AO2 SLP149 T01440061 $  ## [A] Burnet, Burnet Municipal Kate Craddock Field
176768 2022-11-27 18:10  21 US US-TX  BMT KBMT 271710Z AUTO 26010KT 10SM CLR 21/10 A2994 RMK AO2 T02100104=  ## [A] Beaumont, Beaumont Municipal Airport
176775 2022-11-27 17:53  14 US US-TN  BNA KBNA 271653Z 22017G27KT 10SM BKN036 14/06 A2970 RMK AO2 PK WND 20031/1631 SLP054 T01390056=  ## [A] Nashville, Nashville International Airport
176786 2022-11-27 18:15  23 US US-SC  BNL KBNL 271715Z AUTO 21012G18KT 10SM FEW009 BKN014 OVC030 23/20 A2978 RMK AO2=  ## [A] Barnwell, Barnwell Regional Airport
176789 2022-11-27 17:53  -5 US US-OR  BNO KBNO 271653Z AUTO 00000KT 10SM CLR M05/M07 A3007 RMK AO2 SLP219 T10501072=  ## [A] Burns, Burns Municipal Airport
176797 2022-11-27 18:15   3 US US-IA  BNW KBNW 271715Z AUTO 35015G20KT 10SM CLR 03/M00 A2979 RMK AO2=  ## [A] Boone, Boone Municipal Airport
176809 2022-11-27 17:53   2 US US-ID  BOI KBOI 271653Z 14009KT 10SM OVC075 02/M03 A3005 RMK AO2 SLP190 T00221033=  ## [A] Boise, Boise Air Terminal/Gowen Field
176811 2022-11-27 17:56   7               KBOK 271656Z AUTO 00000KT 10SM OVC100 07/02 A3024 RMK AO2 SLP242 T00670022 $  ## [A]
176819 2022-11-27 17:54  12 US US-MA  BOS KBOS 271654Z 22008KT 10SM BKN220 BKN250 12/M03 A2976 RMK AO2 SLP075 T01171033  ## [A] Boston, General Edward Lawrence Logan International Airport
176821 2020-05-26 22:30 XXX               KBOU 262030Z AUTO / /CLR / / RMK A02 TSNO=  ## [A]
176823 2022-11-27 17:50  29 US US-FL  BOW KBOW 271650Z 23012G22KT 10SM BKN025 29/22 A3002=  ## [A] Bartow, Bartow Municipal Airport
176829 2022-11-24 08:10   3               KBPC 240710Z AUTO 34004KT 10SM CLR 03/02 A2989 RMK AO2 PNO=  ## [A]
176833 2022-11-27 18:15  11 US US-TX  HCA KBPG 271715Z AUTO 03006KT 10SM CLR 11/03 A3000 RMK AO2 T01100033=  ## [A] Big Spring, Big Spring Mc Mahon-Wrinkle Airport
176835 2022-11-27 17:53  -9 US US-WY  BPI KBPI 271653Z AUTO 10003KT 10SM OVC070 M09/M11 A2997 RMK AO2 SLP187 T10891111=  ## [A] Big Piney, Miley Memorial Field
176837 2022-11-27 17:53   9 US US-AR  WMH KBPK 271653Z AUTO 34007KT 300V360 10SM OVC020 09/05 A2973 RMK AO2 SLP066 T00890050=  ## [A] Mountain Home, Ozark Regional Airport
176846 2022-11-27 17:53  22 US US-TX  BPT KBPT 271653Z 25012G20KT 10SM CLR 22/13 A2994 RMK AO2 SLP139 T02170133=  ## [A] Beaumont/Port Arthur, Southeast Texas Regional Airport
176863 2022-11-27 18:15  26 US US-GA  BQK KBQK 271715Z AUTO 21013KT 10SM BKN019 BKN031 BKN042 26/21 A2986 RMK AO2 T02640210=  ## [A] Brunswick, Brunswick Golden Isles Airport
176868 2022-11-27 18:15  16 US US-LA  --- KBQP 271715Z AUTO 26008KT 240V300 10SM CLR 16/08 A2988 RMK AO2 T01550076=  ## [A] Bastrop, Morehouse Memorial Airport
176876 2022-11-27 18:15  21               KBQX 271715Z AUTO 27012KT 9SM CLR 21/17 A2996 RMK A01=  ## [A]
176882 2022-11-27 17:53   1 US US-MN  BRD KBRD 271653Z AUTO 35006KT 10SM CLR 01/M04 A2985 RMK AO2 SLP122 T00111039=  ## [A] Brainerd, Brainerd Lakes Regional Airport
176885 2022-11-27 18:15   9               KBRG 271715Z AUTO 31006KT 10SM CLR 09/M08 A3009 RMK AO2 T00881084=  ## [A]
176890 2022-11-27 17:53   6 US US-IA  BRL KBRL 271653Z AUTO 34013G22KT 10SM -RA SCT034 BKN048 OVC070 06/04 A2963 RMK AO2 SLP037 P0000 T00610039=  ## [A] Burlington, Southeast Iowa Regional Airport
176893 2022-11-27 17:53  24 US US-TX  BRO KBRO 271653Z 17011KT 10SM CLR 24/17 A2994 RMK AO2 SLP139 T02390167=  ## [A] Brownsville, Brownsville South Padre Island International Airport
176903 2022-11-27 18:15  12 US US-KY  BRY KBRY 271715Z AUTO 23016G29KT 10SM BKN030 OVC036 12/06 A2954 RMK AO2 PK WND 24029/1707 T01250065=  ## [A] Bardstown, Samuels Field
176931 2022-11-27 18:15   3 US US-NE  --- KBTA 271715Z AUTO 34013G19KT 10SM CLR 03/M03 A2989 RMK AO2 T00301035=  ## [A] Blair, Blair Municipal Airport
176942 2022-11-27 18:09   7 US US-MI  BTL KBTL 271709Z 02011KT 1 3/4SM +RA OVC028 07/02 A2939 RMK AO2 P0011 T00720022 $  ## [A] Battle Creek, W K Kellogg Airport
176943 2022-11-27 17:53   1 US US-MT  BTM KBTM 271653Z AUTO 22007G26KT 10SM OVC075 01/M09 A2976 RMK AO2 PK WND 20026/1644 SLP125 T00061094=  ## [A] Butte, Bert Mooney Airport
176944 2022-11-27 18:15  -3 US US-SD  TTO KBTN 271715Z AUTO 20006KT 10SM FEW004 M03/M03 A2989 RMK AO2=  ## [A] Britton, Britton Municipal Airport
176946 2022-11-27 18:06   9 US US-PA  BTP KBTP 271706Z AUTO 12005KT 10SM BKN004 BKN037 09/08 A2946 RMK AO2 CIG 003V008 TSNO=  ## [A] Butler, Pittsburgh/Butler Regional Airport
176948 2022-11-27 17:53  21 US US-LA  BTR KBTR 271653Z 24012KT 10SM CLR 21/13 A2995 RMK AO2 SLP141 T02060128=  ## [A] Baton Rouge, Baton Rouge Metropolitan Airport
176952 2022-11-27 17:54  12 US US-VT  BTV KBTV 271654Z 19014G19KT 10SM BKN150 12/M05 A2966 RMK AO2 SLP046 T01171050=  ## [A] Burlington, Burlington International Airport
176962 2022-11-27 18:20   5 US US-NY  BUF KBUF 271720Z 10006KT 2 1/2SM +RA BR SCT016 SCT021 OVC027 05/04 A2949 RMK AO2 PRESFR P0004 T00500039=  ## [A] Buffalo, Buffalo Niagara International Airport
176974 2022-11-27 17:53  12 US US-CA  BUR KBUR 271653Z 00000KT 10SM CLR 12/02 A3010 RMK AO2 SLP185 T01220017 $  ## [A] Burbank, Bob Hope Airport
176977 2022-11-27 18:15   6 US US-WI  --- KBUU 271715Z AUTO 36010G16KT 10SM OVC014 06/03 A2954 RMK AO2 T00550030 PWINO=  ## [A] Burlington, Burlington Municipal Airport
176981 2022-11-27 18:15  18 US US-NC  --- KBUY 271715Z AUTO 21008KT 3SM -RA BR FEW015 OVC022 18/17 A2965 RMK AO2 PRESFR P0007 T01780172=  ## [A] Burlington, Burlington Alamance Regional Airport
176987 2019-12-02 17:51  11               KBVE 021651Z AUTO 34014G21KT 10SM CLR 11/01 A3018 RMK AO2 SLP218 T01110006=  ## [A]
176991 2022-11-27 18:15  11 US US-PA  BFP KBVI 271715Z AUTO 15007KT 7SM OVC003 11/09 A2943 RMK AO2 T01100091=  ## [A] Beaver Falls, Beaver County Airport
176996 2022-11-27 18:15   0 US US-NE  --- KBVN 271715Z AUTO 32008KT 10SM CLR 00/M03 A2995 RMK AO2 T00031035=  ## [A] Albion, Albion Municipal Airport
176997 2022-11-27 17:53   8 US US-OK  BVO KBVO 271653Z AUTO VRB04KT 10SM OVC021 08/04 A2991 RMK AO2 SLP125 T00780039=  ## [A] Bartlesville, Bartlesville Municipal Airport
177001 2022-11-27 18:15   3 US US-WA  MVW KBVS 271715Z AUTO 00000KT 10SM CLR 03/03 A2998 RMK A01=  ## [A] Burlington/Mount Vernon, Skagit Regional Airport
177003 2022-11-27 18:15  12               KBVU 271715Z AUTO 34006KT 10SM CLR 12/M04 A3018 RMK AO2=  ## [A]
177006 2022-11-27 17:56  11 US US-AR  BVX KBVX 271656Z AUTO 28012G17KT 10SM OVC021 11/08 A2973 RMK AO2 SLP067 T01110078=  ## [A] Batesville, Batesville Regional Airport
177007 2022-11-27 17:53  13 US US-MA  BVY KBVY 271653Z 22007KT 10SM CLR 13/M04 A2974 RMK AO2 SLP066 T01281044=  ## [A] Beverly, Beverly Municipal Airport
177012 2022-11-26 20:35   8 US US-TX  BWD KBWD 261935Z AUTO 28014G17KT 10SM OVC024 08/04 A2982 RMK AO1=  ## [A] Brownwood, Brownwood Regional Airport
177015 2022-11-27 17:53  13 US US-KY  BWG KBWG 271653Z AUTO 23017G29KT 10SM OVC033 13/06 A2963 RMK AO2 PK WND 23029/1630 SLP032 T01330061=  ## [A] Bowling Green, Bowling Green Warren County Regional Airport
177017 2022-11-27 17:54  10 US US-MD  BWI KBWI 271654Z VRB04KT 7SM -RA OVC012 10/08 A2970 RMK AO2 PRESFR SLP059 P0003 T01000083=  ## [A] Baltimore, Baltimore/Washington International Thurgood Marshall Airport
177024 2022-11-27 18:15  -1 US US-ND  WAH KBWP 271715Z AUTO 00000KT 10SM CLR M01/M03 A2989 RMK AO2=  ## [A] Wahpeton, Harry Stern Airport
177031 2022-11-27 18:15  -1 US US-ND  BWM KBWW 271715Z AUTO 19017KT 10SM CLR M01/M03 A2971 RMK AO2=  ## [A] Bowman, Bowman Regional Airport
177035 2022-11-27 18:15  22 US US-LA  BXA KBXA 271715Z AUTO 24015G19KT 10SM CLR 22/09 A2995 RMK AO2 T02150086=  ## [A] Bogalusa, George R Carr Memorial Air Field
177045 2022-11-27 18:15  12 US US-AZ  BXK KBXK 271715Z AUTO 00000KT 10SM CLR 12/M02 A3014 RMK A01=  ## [A] Buckeye, Buckeye Municipal Airport
177067 2022-11-27 17:53   5 US US-WY  BYG KBYG 271653Z AUTO 23004KT 10SM CLR 05/M06 A2967 RMK AO2 SLP040 T00501056=  ## [A] Buffalo, Johnson County Airport
177068 2022-11-03 18:52  24 US US-AR  BYH KBYH 031752Z 18008KT 10SM SKC 24/12 A3018=  ## [A] Blytheville, Arkansas International Airport
177069 2022-11-27 17:53   3 US US-ID  BYI KBYI 271653Z AUTO 21013G21KT 10SM FEW070 FEW085 03/M04 A3005 RMK AO2 SLP190 T00281044=  ## [A] Burley, Burley Municipal Airport
177072 2022-11-27 18:15  17               KBYL 271715Z AUTO 22011G23KT 10SM FEW048 17/05 A2962 RMK AO1=  ## [A]
177079 2022-11-27 17:55   7 US US-CA  BYS KBYS 271655Z AUTO 00000KT 10SM CLR 07/M06 A3014 RMK AO2 SLP207 T00671063 $  ## [A] Fort Irwin/Barstow, Bicycle Lake Army Air Field
177085 2022-11-27 18:15  21 US US-TX  BBC KBYY 271715Z AUTO 24010G15KT 10SM CLR 21/14 A2996 RMK AO2 T02150140=  ## [A] Bay City, Bay City Municipal Airport
177100 2022-11-27 17:56   3 US US-MT  BZN KBZN 271656Z 24009KT 10SM SCT070 OVC080 03/M07 A2977 RMK AO2 SLP115 T00281067=  ## [A] Bozeman, Gallatin Field
177116 2022-11-27 18:15   5 US US-MI  CAD KCAD 271715Z AUTO 36008KT 10SM OVC120 05/00 A2945 RMK AO2 T00470000=  ## [A] Cadillac, Wexford County Airport
177117 2022-11-27 17:56  23 US US-SC  CAE KCAE 271656Z 22012G19KT 10SM BKN016 BKN025 BKN060 23/21 A2973 RMK AO2 PK WND 23026/1642 RAE20B43E52 SLP064 P0000 T02330206=  ## [A] Columbia, Columbia Metropolitan Airport
177119 2022-11-27 17:53  -1 US US-CO  CIG KCAG 271653Z AUTO 26003KT 9SM OVC049 M01/M05 A3007 RMK AO2 SNB39E49 SLP207 P0000 T10111050=  ## [A] Craig, Craig Moffat Airport
177123 2022-11-27 17:51  12 US US-OH  CAK KCAK 271651Z 19009KT 7SM BKN005 OVC013 12/11 A2940 RMK AO2 RAE24 SLP957 P0000 T01220106=  ## [A] Akron, Akron Canton Regional Airport
177127 2022-11-27 17:55   3 US US-NM  CAO KCAO 271655Z AUTO 36003KT 10SM -SN BKN023 BKN055 OVC070 03/M03 A3001 RMK AO2 SNB54 SLP158 P0000 T00281028 $  ## [A] Clayton, Clayton Municipal Airpark
177130 2022-11-27 17:54   5 US US-ME  CAR KCAR 271654Z AUTO 24006KT 10SM CLR 05/M02 A2960 RMK AO2 SLP034 T00501017=  ## [A] Caribou, Caribou Municipal Airport
177134 2022-11-27 18:15   3 US US-IA  --- KCAV 271715Z AUTO 36013G20KT 10SM CLR 03/01 A2979 RMK A01=  ## [A] Clarion, Clarion Municipal Airport
177143 2022-11-27 18:15   6 US US-MD  CBE KCBE 271715Z AUTO 00000KT 10SM -RA OVC030 06/05 A2961 RMK AO2 T00590047=  ## [A] Cumberland, Greater Cumberland Regional Airport
177144 2022-11-27 18:15   4 US US-IA  CBF KCBF 271715Z AUTO 33013KT 10SM CLR 04/M03 A2985 RMK AO2=  ## [A] Council Bluffs, Council Bluffs Municipal Airport
177145 2022-11-27 18:15   3 US US-MN  --- KCBG 271715Z AUTO 31006KT 10SM CLR 03/M06 A2983 RMK AO2=  ## [A] Cambridge, Cambridge Municipal Airport
177149 2022-11-27 18:15   4 US US-KS  CBK KCBK 271715Z AUTO 35006KT 10SM SCT100 04/M06 A2999 RMK AO2 T00441063=  ## [A] Colby, Shalz Field
177151 2022-11-27 17:55  16 US US-MS  CBM KCBM 271655Z AUTO 25015G21KT 10SM FEW040 16/07 A2981 RMK AO2 SLP096 T01600070 TSNO $  ## [A] Columbus, Columbus Air Force Base
177165 2022-11-27 18:15  12 US US-AR  --- KCCA 271715Z AUTO 30008G17KT 250V350 10SM OVC028 12/06 A2977 RMK AO2=  ## [A] Clinton, Clinton Municipal Airport
177166 2022-11-27 18:15  17 US US-CA  CCB KCCB 271715Z AUTO 00000KT 10SM CLR 17/M04 A3010 RMK AO2=  ## [A] Upland, Cable Airport
177179 2022-11-27 18:15  18 US US-GA  --- KCCO 271715Z AUTO 26009G20KT 230V300 10SM SCT036 18/08 A2984 RMK AO2 T01750076=  ## [A] Atlanta, Newnan Coweta County Airport
177182 2022-11-27 17:53   9 US US-CA  CCR KCCR 271653Z 00000KT 10SM CLR 09/02 A3015 RMK AO2 SLP196 T00890022=  ## [A] Concord, Buchanan Field
177185 2022-11-27 18:15  -8               KCCU 271715Z AUTO 27011G14KT 1 1/4SM -SN OVC005 M08/M11 A2999 RMK AO2=  ## [A]
177189 2022-11-27 18:15   4 US US-IA  CCY KCCY 271715Z AUTO 34017KT 10SM CLR 04/00 A2973 RMK AO2=  ## [A] Charles City, Northeast Iowa Regional Airport
177191 2022-11-27 18:15   3 US US-VT  LLX KCDA 271715Z AUTO 00000KT 10SM 03/M02 A2969 RMK AO2 T00321025=  ## [A] Lyndonville, Caledonia County Airport
177193 2022-11-27 17:53  -1 US US-UT  CDC KCDC 271653Z AUTO 00000KT 10SM CLR M01/M04 A3016 RMK AO2 SLP227 T10111044=  ## [A] Cedar City, Cedar City Regional Airport
177194 2022-11-27 18:14  -2               KCDD 271714Z AUTO 00000KT 10SM OVC044 M02/M03 A2984 RMK AO2=  ## [A]
177198 2022-11-27 18:15  12 US US-AR  CDH KCDH 271715Z AUTO 25006G13KT 10SM OVC020 12/10 A2986 RMK AO2=  ## [A] Camden, Harrell Field
177199 2022-11-27 18:15  17 US US-OH  --- KCDI 271715Z AUTO 21013G18KT 10SM SCT026 SCT037 BKN050 17/13 A2941 RMK AO2 T01690131=  ## [A] Cambridge, Cambridge Municipal Airport
177200 2022-11-27 17:51   7               KCDJ 271651Z AUTO 32007KT 07/03 A2977 RMK AO1 SLP084 T00670033=  ## [A]
177204 2022-11-27 18:15  21 US US-SC  CDN KCDN 271715Z AUTO 20013G19KT BKN015 OVC022 21/21 A2973 RMK AO2=  ## [A] Camden, Woodward Field
177208 2022-11-27 17:53   3 US US-NE  CDR KCDR 271653Z AUTO 21010KT 10SM CLR 03/M02 A2986 RMK AO2 SLP136 T00331017=  ## [A] Chadron, Chadron Municipal Airport
177209 2022-11-27 17:53   6 US US-TX  CDS KCDS 271653Z AUTO 35013KT 10SM CLR 06/01 A3002 RMK AO2 SLP168 T00610011=  ## [A] Childress, Childress Municipal Airport
177213 2022-11-27 17:53   9 US US-NJ  CDW KCDW 271653Z 21004KT 10SM OVC100 09/02 A2976 RMK AO2 PRESFR SLP082 T00940017=  ## [A] Caldwell, Essex County Airport
177219 2022-11-27 17:56   8 US US-CA  CEC KCEC 271656Z AUTO 07005KT 9SM OVC100 08/03 A3024 RMK AO2 SLP241 T00830033 $  ## [A] Crescent City, Jack Mc Namara Field Airport
177222 2022-11-27 17:56   8 US US-MA  CEF KCEF 271656Z 00000KT 10SM BKN130 BKN170 08/M02 A2971 RMK AO2A SLP069 T00821016=  ## [A] Springfield/Chicopee, Westover ARB/Metropolitan Airport
177237 2022-11-27 18:01  17 US US-SC  CEU KCEU 271701Z AUTO 26010G15KT 10SM SCT017 17/14 A2973 RMK AO2 T01720139=  ## [A] Clemson, Oconee County Regional Airport
177239 2022-11-27 17:53  19 US US-FL  CEW KCEW 271653Z AUTO 29007KT 10SM CLR 19/08 A2998 RMK AO2 SLP150 T01940083 $  ## [A] Crestview, Bob Sikes Airport
177241 2022-11-27 18:15  10 US US-KY  CEY KCEY 271715Z AUTO 20013G20KT 10SM OVC017 10/08 A2965 RMK A01=  ## [A] Murray, Kyle Oakley Field
177242 2022-11-27 17:53   4 US US-CO  CEZ KCEZ 271653Z AUTO 27010KT 10SM CLR 04/M06 A3008 RMK AO2 SLP172 T00391056=  ## [A] Cortez, Cortez Municipal Airport
177246 2022-11-27 18:15  16 US US-TX  CFD KCFD 271715Z AUTO 29004KT 10SM CLR 16/08 A2997 RMK AO2 T01600077=  ## [A] Bryan, Coulter Field
177247 2022-11-27 18:15   2 US US-MN  --- KCFE 271715Z AUTO 34006KT 10SM CLR 02/M02 A2984 RMK AO2=  ## [A] Buffalo, Buffalo Municipal Airport
177252 2022-11-27 18:15   9 US US-IN  --- KCFJ 271715Z AUTO 22015G19KT 10SM -RA OVC010 09/06 A2935 RMK AO2 P0001 T00910061=  ## [A] Crawfordsville, Crawfordsville Regional Airport
177257 2022-11-27 17:47   6               KCFO 271647Z 17006KT 10SM SKC 06/M03 A2992=  ## [A]
177261 2022-11-27 18:15   6 US US-MI  TZC KCFS 271715Z AUTO 07005KT 4SM BR OVC046 06/04 A2943 RMK AO2 T00550038=  ## [A] Caro, Tuscola Area Airport
177264 2022-11-27 17:52   7 US US-KS  CFV KCFV 271652Z AUTO 33014KT 10SM OVC019 07/03 A2987 RMK AO2 SLP115 T00720033=  ## [A] Coffeyville, Coffeyville Municipal Airport
177271 2022-11-27 18:15  26 US US-FL  --- KCGC 271715Z AUTO 21009G15KT 180V250 10SM BKN012 OVC031 26/23 A2998 RMK AO2=  ## [A] Crystal River, Crystal River Airport
177273 2022-11-27 18:15  11 US US-MD  CGE KCGE 271715Z AUTO 18008G16KT 150V220 3SM BR FEW010 SCT021 BKN025 11/11 A2973 RMK A01=  ## [A] Cambridge, Cambridge Dorchester Airport
177274 2022-11-27 17:45  11 US US-OH  CGF KCGF 271645Z COR 16009KT 8SM OVC010 11/10 A2938=  ## [A] Cleveland, Cuyahoga County Airport
177277 2022-11-27 18:19  12 US US-MO  CGI KCGI 271719Z 25013KT 8SM FEW010 SCT014 OVC028 12/10 A2960 RMK AO2 PK WND 23031/1705 RAB00E19 P0001 T01170100=  ## [A] Cape Girardeau, Cape Girardeau Regional Airport
177287 2022-11-26 20:55  15 US US-MD  CGS KCGS 261955Z AUTO 22005KT 10SM CLR 15/M01 A3009 RMK AO2 T01531015=  ## [A] College Park, College Park Airport
177294 2022-11-27 17:56  10 US US-AZ  CGZ KCGZ 271656Z AUTO 10005KT 10SM CLR 10/M08 A3014 RMK AO2 SLP207 T01001078 $  ## [A] Casa Grande, Casa Grande Municipal Airport
177295 2022-11-27 17:53  17 US US-TN  CHA KCHA 271653Z 23020G29KT 10SM FEW025 SCT042 SCT050 SCT250 17/07 A2975 RMK AO2 PK WND 23031/1626 SLP070 T01720067 $  ## [A] Chattanooga, Lovell Field
177298 2022-11-27 17:47  10 US US-AZ  --- KCHD 271647Z 00000KT 10SM CLR 10/M05 A3014=  ## [A] Chandler, Chandler Municipal Airport
177305 2022-11-27 18:10   8 US US-OK  CHK KCHK 271710Z AUTO 35014KT 10SM CLR 08/02 A2994 RMK AO2 T00810022=  ## [A] Chickasha, Chickasha Municipal Airport
177309 2022-11-27 17:58   9 US US-VA  CHO KCHO 271658Z VRB04KT 3SM -RA BR OVC002 09/08 A2965 RMK AO2 P0001 T00940083 $  ## [A] Charlottesville, Charlottesville Albemarle Airport
177313 2022-11-27 17:56  23 US US-SC  CHS KCHS 271656Z 21015G24KT 10SM BKN009 BKN020 BKN200 23/20 A2984 RMK AO2 SLP103 T02280200=  ## [A] Charleston, Charleston Air Force Base-International Airport
177323 2022-11-27 17:47   6 US US-CA  CIC KCIC 271647Z 32006KT 10SM CLR 06/01 A3017=  ## [A] Chico, Chico Municipal Airport
177324 2022-11-27 17:52   6 US US-IA  CID KCID 271652Z 34013G21KT 10SM BKN100 06/02 A2966 RMK AO2 SLP048 T00560022=  ## [A] Cedar Rapids, The Eastern Iowa Airport
177329 2022-11-27 18:10   4 US US-MT  --- KCII 271710Z AUTO 24025KT 10SM 04/M07 A2949 RMK A01 =  ## [A] Choteau, Choteau Airport
177334 2022-11-27 18:15   4 US US-IA  CIN KCIN 271715Z AUTO 34015KT 10SM CLR 04/M00 A2983 RMK AO2=  ## [A] Carroll, Arthur N Neu Airport
177338 2022-11-27 18:15  11 US US-IL  CIR KCIR 271715Z AUTO 25014G23KT 10SM OVC015 11/09 A2961 RMK AO2 T01130091=  ## [A] Cairo, Cairo Regional Airport
177341 2022-11-27 17:56   3 US US-MI  CIU KCIU 271656Z AUTO 02006KT 10SM OVC013 03/01 A2959 RMK AO2 SLP025 T00280006=  ## [A] Sault Ste Marie, Chippewa County International Airport
177364 2022-11-27 18:15   9 US US-VA  --- KCJR 271715Z AUTO 13006KT 7SM -DZ SCT004 OVC014 09/09 A2962 RMK AO2 T00940086=  ## [A] Culpeper, Culpeper Regional Airport
177374 2022-11-27 17:53  16 US US-WV  CKB KCKB 271653Z 00000KT 10SM BKN055 BKN070 16/13 A2947 RMK AO2 RAB10E20 SLP974 P0001 T01610128 $  ## [A] Clarksburg, North Central West Virginia Airport
177375 2022-11-27 18:15  -2 US US-MN  GRM KCKC 271715Z AUTO 32007KT 10SM SCT025 SCT029 OVC046 M02/M05 A2973 RMK AO2=  ## [A] Grand Marais, Grand Marais Cook County Airport
177378 2022-11-27 18:15  21 US US-GA  --- KCKF 271715Z AUTO 26015G23KT 10SM CLR 21/06 A2988 RMK AO2 T02110060=  ## [A] Cordele, Crisp County Cordele Airport
177381 2022-11-27 18:15  23 US US-SC  --- KCKI 271715Z AUTO 21009G17KT 10SM SCT017 BKN021 OVC041 23/19 A2977 RMK AO2=  ## [A] Kingstree, Williamsburg Regional Airport
177385 2022-11-27 18:15  12 US US-MS  CKM KCKM 271715Z AUTO 24013KT 10SM OVC020 12/09 A2982 RMK A01=  ## [A] Clarksdale, Fletcher Field
177386 2022-11-27 18:15  -4 US US-MN  CKN KCKN 271715Z 00000KT 10SM M04/M06 A2988 RMK AO2=  ## [A] Crookston, Crookston Municipal Kirkwood Field
177388 2022-11-27 18:15   3 US US-IA  --- KCKP 271715Z AUTO 35008KT 10SM CLR 03/M02 A2988 RMK AO2 T00311020=  ## [A] Cherokee, Cherokee County Regional Airport
177394 2022-11-27 17:52  12 US US-TN  CKV KCKV 271652Z AUTO 22013G27KT 10SM OVC026 12/06 A2964 RMK AO2 PK WND 23032/1641 SLP035 T01220056=  ## [A] Clarksville, Clarksville?Montgomery County Regional Airport
177398 2022-11-27 18:15   7 US US-PA  --- KCKZ 271715Z AUTO 00000KT 3SM -RA OVC018 07/07 A2972 RMK AO2=  ## [A] Perkasie, Pennridge Airport
177403 2022-11-27 18:19  13 US US-OH  CLE KCLE 271719Z 19012G17KT 10SM SCT015 SCT036 BKN080 13/11 A2932 RMK AO2 RAB1652E09 PRESFR P0000 T01330106=  ## [A] Cleveland, Cleveland Hopkins International Airport
177407 2022-11-27 18:15   4 US US-WI  CLI KCLI 271715Z AUTO 01010KT 10SM SCT120 04/M02 A2965 RMK AO2 T00371019=  ## [A] Clintonville, Clintonville Municipal Airport
177409 2022-11-27 18:15   6 US US-OK  CLK KCLK 271715Z AUTO 36012KT 10SM CLR 06/00 A2998 RMK AO2=  ## [A] Clinton, Clinton Regional Airport
177410 2022-11-27 17:53  17 US US-TX  CLL KCLL 271653Z VRB03KT 10SM CLR 17/07 A2995 RMK AO2 SLP139 T01670072=  ## [A] College Station, Easterwood Field
177411 2022-11-27 17:53   6 US US-WA  CLM KCLM 271653Z AUTO 27011G18KT 10SM CLR 06/M02 A3000 RMK AO2 SLP160 T00611017=  ## [A] Port Angeles, William R Fairchild International Airport
177417 2022-11-27 18:15   5 US US-WA  CLS KCLS 271715Z AUTO 00000KT 10SM FEW041 05/04 A3008 RMK AO2=  ## [A] Chehalis, Chehalis Centralia Airport
177418 2022-11-27 17:52  19 US US-NC  CLT KCLT 271652Z 21013G21KT 10SM FEW007 BKN012 BKN050 19/18 A2970 RMK RAE00 SLP051 P0001 T01940178 $  ## [A] Charlotte, Charlotte Douglas International Airport
177421 2022-11-27 18:15  26 US US-FL  CLW KCLW 271715Z AUTO 19009G17KT 10SM OVC014 26/22 A3000 RMK AO2=  ## [A] Clearwater, Clearwater Air Park
177425 2022-11-27 17:55  12 US US-CA  --- KCMA 271655Z 23004KT 10SM CLR 12/05 A3009 RMK AO2 SLP197 T01220050=  ## [A] Camarillo, Camarillo Airport
177428 2022-11-27 18:15  13               KCMD 271715Z AUTO 22009G16KT 190V270 10SM OVC035 13/07 A2983 RMK AO2=  ## [A]
177432 2022-11-27 17:51  13 US US-OH  CMH KCMH 271651Z 22021G27KT 5SM -RA BR SCT020 BKN029 OVC055 13/12 A2941 RMK AO2 PK WND 20029/1641 SLP959 P0001 T01330117 $  ## [A] Columbus, John Glenn Columbus International Airport
177433 2022-11-27 18:14   7 US US-IL  CMI KCMI 271714Z 35014G22KT 2 1/2SM -RA BR OVC006 07/06 A2941 RMK AO2 CIG 004V009 P0000 T00670056=  ## [A] Champaign/Urbana, University of Illinois Willard Airport
177442 2022-11-27 18:15   5 US US-AZ  --- KCMR 271715Z AUTO 10003KT 10SM CLR 05/M12 A3017 RMK AO2=  ## [A] Williams, H.A. Clark Memorial Field
177448 2022-11-27 18:01   3 US US-MI  CMX KCMX 271701Z AUTO 35011KT 10SM SCT021 03/M02 A2972 RMK AO2 T00331022=  ## [A] Hancock, Houghton County Memorial Airport
177449 2022-11-17 14:58 XXX US US-WI  CMY KCMY 171358Z AUTO M M M M M M RMK AO2 SLPNO PWINO PNO FZRANO TSNO $  ## [A] Sparta, Sparta Fort Mc Coy Airport
177452 2022-11-27 18:15   2 US US-MN  --- KCNB 271715Z AUTO 29005KT 10SM CLR 02/M02 A2991 RMK AO2 T00151019=  ## [A] Canby, Myers Field
177453 2022-11-27 18:15   5 US US-IA  --- KCNC 271715Z AUTO 33012G18KT 10SM SCT020 05/02 A2974 RMK AO2=  ## [A] Chariton, Chariton Municipal Airport
177459 2022-11-27 18:15  17               KCNI 271715Z AUTO 27020G27KT 10SM BKN038 BKN044 BKN050 17/08 A2980 RMK AO2 T01650077=  ## [A]
177461 2022-11-27 17:55   5 US US-KS  CNK KCNK 271655Z AUTO 35014G20KT 10SM CLR 05/M03 A2994 RMK AO2 PK WND 34027/1604 SLP144 T00501033=  ## [A] Concordia, Blosser Municipal Airport
177463 2022-11-27 17:53  11 US US-NM  CNM KCNM 271653Z AUTO 35008KT 10SM CLR 11/M02 A3005 RMK AO2 SLP151 T01061017=  ## [A] Carlsbad, Cavern City Air Terminal
177465 2022-11-27 17:53  12 US US-CA  CNO KCNO 271653Z 00000KT 7SM FEW200 12/03 A3011 RMK AO2 SLP194 T01220028=  ## [A] Chino, Chino Airport
177471 2022-11-27 17:52   6 US US-KS  CNU KCNU 271652Z AUTO 32013KT 10SM OVC016 06/02 A2986 RMK AO2 SLP113 T00610022=  ## [A] Chanute, Chanute Martin Johnson Airport
177473 2022-11-27 17:55  14 US US-TX  CNW KCNW 271655Z 35006KT 10SM SKC 14/07 A2996=  ## [A] Waco, TSTC Waco Airport
177475 2022-11-27 17:53   3 US US-UT  CNY KCNY 271653Z AUTO 01004KT 10SM CLR 03/M04 A3011 RMK AO2 SLP206 T00331044=  ## [A] Moab, Canyonlands Field
177480 2022-11-27 17:56   4 US US-WY  COD KCOD 271656Z AUTO 26019G29KT 10SM OVC080 04/M09 A2974 RMK AO2 PK WND 23034/1633 SLP091 T00391094=  ## [A] Cody, Yellowstone Regional Airport
177481 2022-11-27 18:16   3 US US-ID  COE KCOE 271716Z AUTO 25016G26KT 10SM SCT014 BKN055 OVC100 03/00 A2972 RMK AO2 PK WND 24026/1709=  ## [A] Coeur d'Alene, Coeur D'Alene - Pappy Boyington Field
177482 2022-11-27 17:55  29 US US-FL  COF KCOF 271655Z AUTO 24014G23KT 10SM CLR 29/21 A2998 RMK AO2 SLP157 T02860213 $  ## [A] Cocoa Beach, Patrick Air Force Base
177489 2022-11-27 18:15  13 US US-TX  COM KCOM 271715Z AUTO 01007KT 10SM CLR 13/07 A2998 RMK AO2 T01340066=  ## [A] Coleman, Coleman Municipal Airport
177490 2022-11-27 17:51  10 US US-NH  CON KCON 271651Z AUTO VRB03KT 10SM CLR 10/M03 A2973 RMK AO2 SLP069 T01001028=  ## [A] Concord, Concord Municipal Airport
177493 2022-11-24 19:15   1 US US-MN  --- KCOQ 241815Z AUTO 30011G14KT 5SM BR SCT009 SCT014 BKN031 01/00 A3000 RMK AO2 TSNO=  ## [A] Cloquet, Cloquet Carlton County Airport
177495 2022-11-27 17:54   2 US US-CO  COS KCOS 271654Z 15009KT 10SM SCT005 BKN013 BKN050 02/M02 A2996 RMK AO2 SLP147 T00221017 $  ## [A] Colorado Springs, City of Colorado Springs Municipal Airport
177496 2022-11-27 17:53  21 US US-TX  COT KCOT 271653Z AUTO 33008KT 10SM CLR 21/10 A2996 RMK AO2 SLP142 T02060100 $  ## [A] Cotulla, Cotulla-La Salle County Airport
177497 2022-11-27 17:54   8 US US-MO  COU KCOU 271654Z 31012KT 10SM BKN013 OVC019 08/05 A2968 RMK AO2 SLP053 T00780050=  ## [A] Columbia, Columbia Regional Airport
177505 2022-11-27 18:15  23 US US-NC  --- KCPC 271715Z AUTO 19011G16KT 7SM OVC013 23/21 A2977 RMK AO2 T02300207=  ## [A] Whiteville, Columbus County Municipal Airport
177508 2022-11-27 18:15  19               KCPF 271715Z AUTO 21012G26KT 160V220 10SM SCT045 SCT050 BKN060 19/07 A2954 RMK AO2=  ## [A]
177513 2022-11-27 18:15  16 US US-VA  --- KCPK 271715Z AUTO 16010KT 10SM BKN055 OVC070 16/15 A2976 RMK AO2 T01580145=  ## [A] Norfolk, Chesapeake Regional Airport
177520 2022-11-27 17:53  -2 US US-WY  CPR KCPR 271653Z 21022G30KT 10SM CLR M02/M06 A2980 RMK AO2 PK WND 20037/1627 SLP119 T10221061=  ## [A] Casper, Casper-Natrona County International Airport
177521 2022-11-27 18:18   8 US US-IL  CPS KCPS 271718Z 31012KT 10SM OVC015 08/06 A2960 RMK AO2 T00780056 $  ## [A] Cahokia/St Louis, St Louis Downtown Airport
177522 2022-11-27 18:15  14 US US-TX  --- KCPT 271715Z AUTO 35010KT 10SM CLR 14/07 A2995 RMK A01=  ## [A] Cleburne, Cleburne Municipal Airport
177523 2022-11-27 18:15   9 US US-CA  --- KCPU 271715Z AUTO 00000KT 10SM CLR 09/M02 A3015 RMK AO2 T00931020=  ## [A] San Andreas, Calaveras Co Maury Rasmussen Field
177525 2022-11-27 18:15  -7               KCPW 271715Z AUTO 27005KT 10SM CLR M07/M13 A3007 RMK AO2=  ## [A]
177530 2022-11-27 18:15   9 US US-OK  --- KCQB 271715Z AUTO 31011KT 10SM BKN022 09/03 A2993 RMK AO2 T00870034=  ## [A] Chandler, Chandler Regional Airport
177531 2022-11-27 17:53   4               KCQC 271653Z AUTO 27017G25KT 10SM FEW041 04/M06 A3003 RMK AO2 PK WND 29027/1631 SLP154 T00441061 $  ## [A]
177534 2022-11-27 18:15  17               KCQF 271715Z AUTO 19007KT 130V230 10SM CLR 17/09 A2998 RMK AO2=  ## [A]
177541 2022-11-27 18:15  -2 US US-MN  --- KCQM 271715Z AUTO 30003KT 10SM OVC046 M02/M04 A2981 RMK AO2=  ## [A] Cook, Cook Municipal Airport
177548 2022-11-27 17:47  16               KCQT 271647Z AUTO 00000KT 10SM CLR 16/04 A3009 RMK AO2 SLP190 T01560044=  ## [A]
177551 2022-11-27 18:15  22 US US-SC  HCW KCQW 271715Z AUTO 20014G22KT 9SM SCT018 OVC024 22/20 A2969 RMK AO2=  ## [A] Cheraw, Cheraw Municipal Airport/Lynch Bellinger Field
177552 2022-11-27 17:52  13 US US-MA  --- KCQX 271652Z AUTO 24007G15KT 200V290 10SM CLR 13/06 A2980 RMK AO2 SLP093 T01330056=  ## [A] Chatham, Chatham Municipal Airport
177559 2022-11-27 18:04  21 US US-SC  CRE KCRE 271704Z 22014G19KT 9SM SCT009 BKN015 OVC021 21/20 A2981 RMK AO1 T02110200=  ## [A] North Myrtle Beach, Grand Strand Airport
177561 2022-11-27 17:53  27 US US-FL  CRG KCRG 271653Z 22013KT 10SM BKN020 OVC028 27/22 A2992 RMK AO2 PK WND 20026/1611 SLP130 T02670217=  ## [A] Jacksonville, Jacksonville Executive at Craig Airport
177570 2022-11-27 17:51  18 US US-TX  CRP KCRP 271651Z 20005KT 10SM CLR 18/16 A2995 RMK AO2 SLP140 T01830156=  ## [A] Corpus Christi, Corpus Christi International Airport
177571 2022-11-27 17:53  15 US US-CA  CLD KCRQ 271653Z 00000KT 10SM CLR 15/07 A3008 RMK AO2 SLP184 T01500067=  ## [A] Carlsbad, Mc Clellan-Palomar Airport
177573 2022-11-27 17:53  14 US US-TX  CRS KCRS 271653Z AUTO 30007KT 10SM CLR 14/06 A2995 RMK AO2 SLP141 T01440061=  ## [A] Corsicana, C David Campbell Field Corsicana Municipal Airport
177577 2022-11-27 17:54  21 US US-WV  CRW KCRW 271654Z 20013G35KT 10SM SCT055 21/12 A2944 RMK AO2 PK WND 20035/1646 SLP967 T02110122 $  ## [A] Charleston, Yeager Airport
177578 2022-11-27 18:15  11 US US-MS  CRX KCRX 271715Z AUTO 23011KT 10SM OVC020 11/06 A2979 RMK AO2=  ## [A] Corinth, Roscoe Turner Airport
177587 2022-11-27 17:51  18 US US-GA  CSG KCSG 271651Z 27014G22KT 10SM CLR 18/09 A2988 RMK AO2 SLP116 T01830089=  ## [A] Columbus, Columbus Metropolitan Airport
177593 2022-11-27 17:53   6 US US-OK  CSM KCSM 271653Z AUTO 35017G21KT 10SM CLR 06/01 A2996 RMK AO2 SLP150 T00560006 $  ## [A] Clinton, Clinton Sherman Airport
177597 2022-11-27 18:15   4 US US-IA  CSQ KCSQ 271715Z AUTO 34015G20KT 10SM FEW017 04/01 A2979 RMK AO2=  ## [A] Creston, Creston Municipal Airport
177602 2022-11-27 17:53  13 US US-TN  CSV KCSV 271653Z AUTO 24009G26KT 10SM FEW039 13/06 A2970 RMK AO2 PK WND 25026/1645 SLP050 T01280061 $  ## [A] Crossville, Crossville Memorial Whitson Field
177608 2022-11-27 17:56   2 US US-MT  CTB KCTB 271656Z AUTO 24025G32KT 10SM CLR 02/M06 A2945 RMK AO2 PK WND 24035/1638 SLP990 T00221056=  ## [A] Cut Bank, Cut Bank International Airport
177616 2022-11-27 18:15  15 US US-GA  --- KCTJ 271715Z AUTO 26009G14KT 170V320 10SM SCT034 BKN041 OVC047 15/07 A2987 RMK AO2 T01470071=  ## [A] Carrollton, West Georgia Regional O V Gray Field
177631 2022-11-27 18:15  24 US US-FL  CTY KCTY 271715Z AUTO 27013G19KT 10SM BKN015 OVC020 24/20 A2996 RMK AO2 T02440204=  ## [A] Cross City, Cross City Airport
177632 2022-11-27 18:15  21 US US-NC  CTZ KCTZ 271715Z AUTO 17010G18KT 140V230 7SM BKN011 OVC015 21/21 A2975 RMK AO2 T02110211=  ## [A] Clinton, Sampson County Airport
177634 2022-11-27 18:19  29 US US-SC  CUB KCUB 271719Z AUTO 21007G22KT 10SM FEW018 SCT025 BKN033 29/20 A2973 RMK AO2 T02940200=  ## [A] Columbia, Jim Hamilton L.B. Owens Airport
177640 2022-11-27 18:15   8 US US-OK  CUH KCUH 271715Z AUTO 31012G15KT 10SM BKN023 08/02 A2992 RMK AO2 T00830019=  ## [A] Cushing, Cushing Municipal Airport
177644 2022-11-27 18:16  12 US US-IL  --- KCUL 271716Z AUTO 21019G27KT 5SM OVC013 12/09 A2951 RMK AO2=  ## [A] Carmi, Carmi Municipal Airport
177652 2022-11-27 17:53  -2 US US-SD  --- KCUT 271653Z AUTO 25008KT 7SM OVC003 M02/M03 A2977 RMK AO2 SLP111 T10221033=  ## [A] Custer, Custer County Airport
177660 2022-11-27 18:02  19 US US-TX  --- KCVB 271702Z AUTO 23004KT 10SM CLR 19/08 A2999 RMK AO2=  ## [A] Castroville, Castroville Municipal Airport
177661 2022-11-27 18:15  20 US US-GA  --- KCVC 271715Z AUTO 25007KT 230V290 10SM CLR 20/08 A2980 RMK AO2=  ## [A] Covington, Duplicate - Covington Municipal Airport
177665 2022-11-27 18:12  12 US US-KY  CVG KCVG 271712Z 22019G29KT 10SM SCT021 BKN027 OVC046 12/08 A2946 RMK AO2 PK WND 23033/1658 T01170083=  ## [A] Cincinnati, Cincinnati Northern Kentucky International Airport
177666 2022-11-27 18:15   7               KCVH 271715Z AUTO 00000KT 10SM FEW100 FEW120 07/01 A3017 RMK A01=  ## [A]
177672 2022-11-27 17:56   5 US US-NM  CVN KCVN 271656Z AUTO 04008KT 10SM FEW100 05/M02 A3004 RMK AO2 SLP181 T00501022=  ## [A] Clovis, Clovis Municipal Airport
177673 2022-11-27 17:56   6 US US-OR  CVO KCVO 271656Z AUTO 18014KT 10SM -RA BKN034 OVC042 06/05 A3015 RMK AO2 RAB31 SLP211 P0000 T00610050=  ## [A] Corvallis, Corvallis Municipal Airport
177677 2022-11-27 17:55   6 US US-NM  CVS KCVS 271655Z AUTO 04007KT 10SM FEW100 06/M00 A3002 RMK AO2 SLP167 T00571004 $  ## [A] Clovis, Cannon Air Force Base
177682 2022-11-27 18:15   4 US US-MI  --- KCVX 271715Z AUTO 03008KT 10SM OVC013 04/03 A2954 RMK AO2 T00400026=  ## [A] Charlevoix, Charlevoix Municipal Airport
177685 2022-11-27 17:47   3 US US-WI  CWA KCWA 271647Z 35010KT 10SM SCT120 03/M03 A2967=  ## [A] Mosinee, Central Wisconsin Airport
177687 2022-11-27 18:15  11 US US-TX  KIP KCWC 271715Z AUTO 01012G15KT 10SM CLR 11/04 A2997 RMK AO2 T01130039=  ## [A] Wichita Falls, Kickapoo Downtown Airport
177690 2022-11-27 17:48  21 US US-LA  CWF KCWF 271648Z 27014G20KT 10SM CLR 21/13 A2995=  ## [A] Lake Charles, Chennault International Airport
177693 2022-11-27 17:56   4 US US-IA  CWI KCWI 271656Z AUTO 36008KT 10SM -RA OVC044 04/03 A2962 RMK AO2 SLP039 P0002 T00440033=  ## [A] Clinton, Clinton Municipal Airport
177698 2022-11-27 18:10  -2 US US-NH  --- KCWN 271710Z AUTO 00000KT 10SM OVC005 M02/M02 A2934 RMK AO2 SLP856=  ## [A] North Conway, White Mountain Airport
177706 2022-11-27 18:15  26 US US-GA  --- KCWV 271715Z AUTO 27013G21KT 220V300 7SM SCT024 SCT046 BKN100 26/20 A2982 RMK AO2 T02550204=  ## [A] Claxton, Claxton Evans County Airport
177715 2022-11-27 18:15  16 US US-VA  --- KCXE 271715Z AUTO 16011G18KT 5SM OVC005 16/16 A2965 RMK AO1 P0003 T01600160=  ## [A] Chase City, Chase City Municipal Airport
177725 2022-11-27 17:53  18 US US-TX  CXO KCXO 271653Z 24008KT 10SM CLR 18/09 A2995 RMK AO2 SLP142 T01780094=  ## [A] Houston, Conroe-North Houston Regional Airport
177726 2022-11-27 18:15   0 US US-NV  CSN KCXP 271715Z AUTO 00000KT 10SM CLR 00/M04 A3017 RMK AO2=  ## [A] Carson City, Carson Airport
177731 2022-11-27 18:15  22 US US-GA  --- KCXU 271715Z AUTO 26012KT 10SM CLR 22/08 A2993 RMK AO1 T02160079=  ## [A] Camilla, Camilla Mitchell County Airport
177733 2022-11-27 18:15 XXX US US-AR  --- KCXW 271715Z AUTO 28011G17KT 10SM BKN023 BKN031 OVC037 13/ A2978 RMK A01=  ## [A] Conway, Cantrell Field Airport
177735 2022-11-27 18:14   7 US US-PA  HAR KCXY 271714Z 11006KT 1 1/4SM R08/5000VP6000FT -RA BR OVC014 07/05 A2967 RMK AO2 P0003 T00670050=  ## [A] Harrisburg, Capital City Airport
177740 2022-11-27 18:12  23               KCYD 271712Z AUTO 20006KT 7SM CLR 23/14 A3002 RMK A02 T02300138=  ## [A]
177755 2022-11-27 17:53  -1 US US-WY  CYS KCYS 271653Z 22010KT 10SM CLR M01/M03 A2987 RMK AO2 SLP132 T10061028=  ## [A] Cheyenne, Cheyenne Regional Jerry Olson Field
177774 2022-11-27 18:15  17 US US-GA  --- KCZL 271715Z AUTO 23014G22KT 10SM SCT035 BKN043 17/09 A2982 RMK AO2=  ## [A] Calhoun, Tom B. David Field
177782 2022-11-27 18:15  19 US US-TX  CZT KCZT 271715Z AUTO 00000KT 2 1/2SM HZ CLR 19/08 A2997 RMK AO2=  ## [A] Carrizo Springs, Dimmit County Airport
177788 2020-10-26 16:52   9               KCZZ 261552Z AUTO 05012G17KT 09/M03 A2999 RMK AO1 SLP140 T00891028=  ## [A]
177789 2022-11-27 18:00   9 US US-VA  DAA KDAA 271700Z AUTO 00000KT 5SM -RA BR OVC005 09/08 A2969 RMK AO2 SLP057 $  ## [A] Fort Belvoir, Davison Army Air Field
177790 2022-11-27 17:53  28 US US-FL  DAB KDAB 271653Z 21012G21KT 10SM FEW032 SCT055 BKN150 28/21 A2997 RMK AO2 SLP146 T02780206=  ## [A] Daytona Beach, Daytona Beach International Airport
177795 2022-11-27 17:50   8 US US-CA  DAG KDAG 271650Z AUTO 00000KT 10SM CLR 08/M08 A3018 RMK AO2 SLP216 T00781083=  ## [A] Daggett, Barstow Daggett Airport
177800 2022-11-27 17:53  14 US US-TX  DAL KDAL 271653Z 34011G23KT 10SM FEW080 FEW250 14/07 A2993 RMK AO2 SLP133 T01390067=  ## [A] Dallas, Dallas Love Field
177802 2022-11-27 18:13  11 US US-VA  DAN KDAN 271713Z AUTO 00000KT 7SM -RA FEW008 BKN014 OVC022 11/11 A2965 RMK AO2 P0000 T01110106=  ## [A] Danville, Danville Regional Airport
177811 2022-11-27 17:51  13 US US-NH  --- KDAW 271651Z AUTO 00000KT 10SM CLR 13/M04 A2970 RMK AO2 SLP057 T01281044=  ## [A] Rochester, Skyhaven Airport
177813 2022-11-27 17:56  13 US US-OH  DAY KDAY 271656Z 22015G26KT 10SM FEW025 SCT055 BKN070 13/08 A2939 RMK AO2 PK WND 23028/1641 RAB47E56 SLP953 P0000 T01280083=  ## [A] Dayton, James M Cox Dayton International Airport
177828 2022-11-27 18:15  24 US US-GA  DBN KDBN 271715Z AUTO 26013G24KT 10SM CLR 24/06 A2984 RMK AO2=  ## [A] Dublin, W H 'Bud' Barron Airport
177831 2022-11-27 17:53   6 US US-IA  DBQ KDBQ 271653Z 01012G21KT 10SM OVC110 06/00 A2962 RMK AO2 SLP036 T00610000=  ## [A] Dubuque, Dubuque Regional Airport
177841 2022-11-27 18:09   9 US US-DC  DCA KDCA 271709Z 19005KT 3SM RA BR FEW008 OVC012 09/08 A2970 RMK AO2 P0004 T00940083 $  ## [A] Washington, Ronald Reagan Washington National Airport
177853 2022-11-27 18:15  18 US US-SC  --- KDCM 271715Z AUTO 20005KT 10SM OVC010 18/18 A2971 RMK AO2 LTG DSNT SE=  ## [A] Chester, Chester Catawba Regional Airport
177861 2022-11-27 17:53  13 US US-AL  DCU KDCU 271653Z AUTO 22011KT 10SM OVC035 13/06 A2980 RMK AO2 SLP087 T01330061=  ## [A] Decatur, Pryor Field Regional Airport
177865 2022-11-27 18:10  10 US US-IN  --- KDCY 271710Z AUTO 21017G23KT 5SM BR OVC012 10/09 A2947 RMK AO2 T01000092=  ## [A] Washington, Daviess County Airport
177869 2022-11-27 17:52   4 US US-KS  DDC KDDC 271652Z AUTO 36017KT 10SM SCT100 04/M05 A2998 RMK AO2 SLP158 T00391050=  ## [A] Dodge City, Dodge City Regional Airport
177874 2022-11-27 17:54   7 US US-VT  --- KDDH 271654Z AUTO 33003KT 10SM FEW120 07/M03 A2968 RMK AO2 PRESFR SLP055 T00721028=  ## [A] Bennington, William H. Morse State Airport
177895 2022-11-27 18:09   6 US US-IL  DEC KDEC 271709Z 32013G27KT 1 1/2SM -RA BR BKN008 OVC014 06/06 A2950 RMK AO2 PK WND 33027/1703 PRESRR P0001 T00610056 $  ## [A] Decatur, Decatur Airport
177896 2022-11-27 18:10  27 US US-FL  --- KDED 271710Z AUTO 21012G18KT 10SM BKN028 BKN035 BKN041 27/21 A2998 RMK AO2 T02740208=  ## [A] Deland, Deland Municipal Sidney H Taylor Field
177900 2022-11-27 18:15   4 US US-IA  DEH KDEH 271715Z AUTO 34010G15KT 10SM CLR 04/M01 A2969 RMK AO2=  ## [A] Decorah, Decorah Municipal Airport
177906 2022-11-27 17:53   4 US US-CO  DEN KDEN 271653Z 20007KT 10SM FEW060 FEW150 04/M03 A2991 RMK AO2 SLP120 T00441028=  ## [A] Denver, Denver International Airport
177909 2022-11-27 18:01  13 US US-AR  --- KDEQ 271701Z AUTO 13/07 A2985 RMK AO2 T01280072 PWINO $  ## [A] De Queen, J Lynn Helms Sevier County Airport
177912 2022-11-27 18:14   7 US US-MI  DET KDET 271714Z 06008KT 1 1/4SM -RA BR OVC007 07/04 A2937 RMK AO2 RAB06 CIG 005V011 PRESFR P0001 T00670044=  ## [A] Detroit, Coleman A. Young Municipal Airport
177915 2022-11-27 17:53   3 US US-WA  --- KDEW 271653Z AUTO 23012G21KT 10SM FEW026 BKN035 OVC044 03/M01 A2971 RMK AO2 SLP076 T00281011=  ## [A] Deer Park, Deer Park Airport
177927 2022-11-27 18:13   7 US US-OH  DFI KDFI 271713Z AUTO 35004KT 2SM +RA BR BKN005 BKN010 OVC023 07/06 A2934 RMK AO2 P0010 T00670061=  ## [A] Defiance, Defiance Memorial Airport
177941 2022-11-27 17:53  13 US US-TX  DFW KDFW 271653Z 33009KT 10SM FEW040 13/07 A2992 RMK AO2 SLP128 T01330072=  ## [A] Dallas-Fort Worth, Dallas Fort Worth International Airport
177967 2022-11-27 17:51  -2 US US-WY  DGW KDGW 271651Z AUTO 14004KT 10SM SCT002 M02/M02 A2981 RMK AO2 SLP116 T10171017=  ## [A] Douglas, Converse County Airport
177984 2022-11-27 17:53  19 US US-AL  DHN KDHN 271653Z 25012G17KT 10SM CLR 19/09 A2997 RMK AO2 SLP145 T01890094=  ## [A] Dothan, Dothan Regional Airport
177989 2021-12-26 23:06  -1               KDHS 262206Z AUTO 10006KT 3/4SM -SN BR BKN020 OVC030 M01/M03 A2969 RMK AO2 P0000 T10111033 =  ## [A]
177990 2022-11-27 17:53   4 US US-TX  DHT KDHT 271653Z AUTO 02010KT 10SM OVC095 04/M07 A3005 RMK AO2 SLP170 T00391067=  ## [A] Dalhart, Dalhart Municipal Airport
178006 2022-11-27 11:56  -4 US US-ID  --- KDIJ 271056Z AUTO 18010KT 10SM BKN028 OVC034 M04/M06 A3005 RMK AO2 SLP217 T10391056=  ## [A] Driggs, Driggs Reed Memorial Airport
178007 2022-11-27 17:56  -1 US US-ND  DIK KDIK 271656Z AUTO 19017G25KT 10SM CLR M01/M06 A2968 RMK AO2 SLP079 T10061056=  ## [A] Dickinson, Dickinson Theodore Roosevelt Regional Airport
178050 2022-11-27 18:15   6 US US-IL  --- KDKB 271715Z AUTO 01006KT 10SM SCT060 SCT070 OVC100 06/02 A2954 RMK AO2 T00620021=  ## [A] De Kalb, De Kalb Taylor Municipal Airport
178059 2022-11-27 17:53   7 US US-NY  DKK KDKK 271653Z AUTO 04008KT 10SM -RA SCT022 BKN029 OVC042 07/04 A2947 RMK AO2 SLP981 P0001 T00670039 $  ## [A] Dunkirk, Chautauqua County-Dunkirk Airport
178066 2022-11-21 10:50   7 US US-TX  --- KDKR 210950Z AUTO 00000KT 10SM BKN048 OVC060 07/05 A3038 RMK AO2=  ## [A] Crockett, Houston County Airport
178072 2022-11-27 18:15  19 US US-TN  --- KDKX 271715Z AUTO 25015G28KT 230V300 10SM CLR 19/08 A2966 RMK A01=  ## [A] Knoxville, Knoxville Downtown Island Airport
178080 2022-11-27 17:55  17 US US-TX  DLF KDLF 271655Z AUTO 00000KT 10SM CLR 17/06 A2996 RMK AO2 SLP144 T01650060 $  ## [A] Del Rio, DLF Airport
178082 2022-11-27 17:55   1 US US-MN  DLH KDLH 271655Z 36008KT 10SM SCT015 01/M03 A2979 RMK AO2 SLP106 T00061028=  ## [A] Duluth, Duluth International Airport
178086 2022-11-27 17:55   4 US US-WI  --- KDLL 271655Z AUTO 36009G14KT 10SM SCT090 BKN110 04/00 A2963 RMK AO2 T00361004=  ## [A] Baraboo, Baraboo Wisconsin Dells Airport
178088 2022-11-27 17:53  -1 US US-MT  DLN KDLN 271653Z AUTO 19013KT 10SM OVC060 M01/M07 A2981 RMK AO2 SLP127 T10061067 $  ## [A] Dillon, Dillon Airport
178089 2022-11-27 18:15   9 US US-CA  --- KDLO 271715Z AUTO 26005KT 10SM CLR 09/M01 A3016 RMK AO2 T00871009=  ## [A] Delano, Delano Municipal Airport
178090 2022-11-27 18:15  25               KDLP 271715Z AUTO 23006KT CLR 25/10 A2990 RMK A01=  ## [A]
178093 2022-11-27 17:53   9 US US-OR  DLS KDLS 271653Z AUTO 28010KT 10SM -RA SCT055 BKN070 OVC085 09/05 A2997 RMK AO2 SLP151 P0000 T00940050=  ## [A] The Dalles, Columbia Gorge Regional the Dalles Municipal Airport
178100 2022-11-27 18:15  12 US US-OH  --- KDLZ 271715Z AUTO 21013G21KT 10SM SCT025 SCT065 OVC085 12/10 A2938 RMK AO2=  ## [A] Delaware, Delaware Municipal Airport
178101 2022-11-27 17:55  13 US US-AZ  DMA KDMA 271655Z 14005KT 10SM CLR 13/M09 A3013 RMK AO2A SLP236 T01321093 $  ## [A] Tucson, Davis Monthan Air Force Base
178108 2022-11-21 18:54   7               KDMH 211754Z AUTO 07/M09 A3041 RMK AO1 SLP296 T00721094 10072 21022 58036 $  ## [A]
178114 2022-11-27 17:53  11 US US-NM  DMN KDMN 271653Z AUTO 27008KT 10SM CLR 11/M13 A3012 RMK AO2 SLP173 T01111128 $  ## [A] Deming, Deming Municipal Airport
178115 2022-11-27 17:53   6 US US-MO  DMO KDMO 271653Z AUTO 32011G18KT 10SM OVC011 06/04 A2975 RMK AO2 SLP078 T00610039=  ## [A] Sedalia, Sedalia Memorial Airport
178123 2022-11-27 18:15   9 US US-MD  --- KDMW 271715Z AUTO 17005KT 2 1/2SM RA BKN010 OVC013 09/08 A2966 RMK AO2=  ## [A] Westminster, Carroll County Regional Jack B Poage Field
178127 2022-11-27 18:15  14               KDNA 271715Z AUTO 27007KT 10SM CLR 14/M13 A3011 RMK AO2=  ## [A]
178138 2022-11-27 17:53  24 US US-GA  DNL KDNL 271653Z AUTO 22013G23KT 10SM FEW023 SCT030 24/18 A2976 RMK AO2 PK WND 20028/1612 SLP074 T02440178=  ## [A] Augusta, Daniel Field
178140 2022-11-27 18:15  17 US US-GA  DNN KDNN 271715Z AUTO 22012G19KT 190V250 10SM BKN044 17/07 A2978 RMK AO2 T01710074=  ## [A] Dalton, Dalton Municipal Airport
178145 2022-11-27 18:15   4 US US-IA  DNS KDNS 271715Z AUTO 34011G16KT 10SM CLR 04/00 A2988 RMK AO2=  ## [A] Denison, Denison Municipal Airport
178148 2022-11-27 18:15   7 US US-IL  DNV KDNV 271715Z AUTO 35014G19KT 1 1/2SM -RA OVC004 07/07 A2937 RMK AO2 T00710065=  ## [A] Danville, Vermilion Regional Airport
178157 2019-09-02 11:00  30               KDOE 020900Z 00000MPS CAVOK 30/11 Q1015 R02OR/////// NOSIG=  ## [A]
178174 2022-11-27 18:13  11 US US-DE  DOV KDOV 271713Z AUTO 17010KT 10SM -RA BKN027 OVC044 11/05 A2972 RMK AO2 CIG 027V044 BKN V SCT SLP068 $  ## [A] Dover, Dover Air Force Base
178179 2022-11-27 17:52   7 US US-IL  DPA KDPA 271652Z 35008KT 8SM BKN020 BKN025 OVC090 07/04 A2950 RMK AO2 SLP991 T00670039=  ## [A] Chicago/West Chicago, Dupage Airport
178185 2022-11-24 00:07   7 US US-UT  DPG KDPG 232307Z 31015KT 8SM FEW060 FEW120 07/M07 A3028 RMK BLDU DSNT W SLP255 T00721073 LAST=  ## [A] Dugway Proving Ground, Michael AAF (Dugway Proving Ground) Airport
178190 2022-11-27 18:15  21 US US-NC  --- KDPL 271715Z AUTO 18010G18KT 7SM -RA BR OVC011 21/20 A2976 RMK AO2=  ## [A] Kenansville, Duplin County Airport
178212 2022-11-27 18:15  21 US US-GA  --- KDQH 271715Z AUTO 24016G25KT 10SM OVC026 21/14 A2990 RMK AO2 T02100144=  ## [A] Douglas, Douglas Municipal Airport
178231 2022-11-26 09:53   2 US US-NV  DRA KDRA 260853Z AUTO 00000KT 10SM CLR 02/M14 A3020 RMK AO2 SLP212 T00171144 58016=  ## [A] Mercury, Desert Rock Airport
178239 2022-11-27 18:15  18 US US-LA  DRI KDRI 271715Z AUTO 28009KT 10SM CLR 18/11 A2995 RMK AO2 T01790109 $  ## [A] De Ridder, Beauregard Regional Airport
178243 2022-11-27 18:15   4 US US-MI  DRE KDRM 271715Z AUTO 03004KT 10SM OVC017 04/01 A2955 RMK AO2 T00350005=  ## [A] Drummond Island, Drummond Island Airport
178245 2022-11-27 17:53   2 US US-CO  DRO KDRO 271653Z AUTO VRB03KT 10SM CLR 02/M05 A3004 RMK AO2 SLP184 T00171050=  ## [A] Durango, Durango La Plata County Airport
178250 2022-11-27 17:53  17 US US-TX  DRT KDRT 271653Z AUTO VRB03KT 10SM CLR 17/07 A2998 RMK AO2 SLP152 T01720072=  ## [A] Del Rio, Del Rio International Airport
178262 2022-11-27 18:15  22               KDSF 271715Z AUTO 26008KT 10SM CLR 22/14 A3001 RMK A01=  ## [A]
178269 2022-11-27 17:54   4 US US-IA  DSM KDSM 271654Z 34013G24KT 10SM SCT017 SCT160 BKN250 04/M01 A2977 RMK AO2 SLP085 T00391006 $  ## [A] Des Moines, Des Moines International Airport
178278 2022-11-27 17:54   6 US US-NY  DSV KDSV 271654Z AUTO 14007KT 7SM -RA FEW045 BKN070 OVC085 06/03 A2956 RMK AO2 PRESFR SLP021 P0002 T00560028=  ## [A] Dansville, Dansville Municipal Airport
178283 2022-11-27 18:15   0 US US-UT  DTA KDTA 271715Z AUTO 17006KT 10SM CLR 00/M03 A3018 RMK AO1=  ## [A] Delta, Delta Municipal Airport
178294 2022-11-27 18:15  -5 US US-MN  DTL KDTL 271715Z AUTO 00000KT 1/4SM FZFG OVC003 M05/M05 A2988 RMK AO2=  ## [A] Detroit Lakes, Detroit Lakes Airport - Wething Field
178296 2022-11-27 17:53  15 US US-LA  DTN KDTN 271653Z AUTO 26005KT 10SM CLR 15/08 A2990 RMK AO2 SLP122 T01500078=  ## [A] Shreveport, Shreveport Downtown Airport
178297 2022-11-27 17:53  14 US US-TX  --- KDTO 271653Z 01009KT 10SM CLR 14/07 A2994 RMK AO2 SLP134 T01390072=  ## [A] Denton, Denton Municipal Airport
178301 2022-11-27 17:53  21 US US-FL  DSI KDTS 271653Z 27007G16KT 10SM CLR 21/08 A2998 RMK AO2 SLP152 T02110083=  ## [A] Destin, Destin Executive Airport
178305 2022-11-27 18:19   6 US US-MI  DTW KDTW 271719Z 05009KT 2SM -RA BR OVC006 06/05 A2934 RMK AO2 TWR VIS 2 1/2 PRESFR P0002 T00610050 $  ## [A] Detroit, Detroit Metropolitan Wayne County Airport
178309 2022-11-27 18:15  14 US US-OK  DUA KDUA 271715Z AUTO 31006KT 10SM CLR 14/09 A2993 RMK AO2=  ## [A] Durant, Eaker Field
178310 2022-11-27 17:59  -2               KDUB 271659Z AUTO 30023G32KT 10SM SCT048 OVC060 M02/M11 A2981 RMK AO2=  ## [A]
178311 2022-11-27 18:15  10 US US-OK  DUC KDUC 271715Z AUTO 34011KT 10SM CLR 10/05 A2996 RMK AO2 T01050046=  ## [A] Duncan, Halliburton Field
178315 2022-11-27 17:56  11 US US-AZ  DUG KDUG 271656Z AUTO 00000KT 10SM CLR 11/M11 A3017 RMK AO2 SLP197 T01111106 TSNO=  ## [A] Douglas Bisbee, Bisbee Douglas International Airport
178316 2022-11-27 18:15   6 US US-MI  --- KDUH 271715Z AUTO 00000KT 1 3/4SM UP OVC005 06/05 A2936 RMK AO2 T00620053=  ## [A] Lambertville, Toledo Suburban Airport
178318 2022-11-27 18:20   6 US US-PA  DUJ KDUJ 271720Z AUTO 11009KT 2SM -RA BR FEW003 SCT013 OVC020 06/04 A2946 RMK AO2 PRESFR P0009 T00610044=  ## [A] Dubois, DuBois Regional Airport
178332 2022-11-27 18:15   4 US US-TX  --- KDUX 271715Z AUTO 35009KT 10SM CLR 04/M08 A3004 RMK AO2 T00401081=  ## [A] Dumas, Moore County Airport
178345 2022-11-27 18:15  15 US US-KY  --- KDVK 271715Z AUTO 25017G28KT 10SM BKN040 BKN046 15/06 A2958 RMK AO2=  ## [A] Danville, Stuart Powell Field
178346 2022-11-27 17:56  -4 US US-ND  DVL KDVL 271656Z AUTO 15006KT 10SM CLR M04/M06 A2982 RMK AO2 SLP135 T10391056 FZRANO=  ## [A] Devils Lake, Devils Lake Regional Airport
178348 2022-11-27 17:52   6 US US-IA  DVN KDVN 271652Z AUTO 34010KT 9SM -RA BKN042 OVC050 06/04 A2963 RMK AO2 SLP035 P0002 T00560039=  ## [A] Davenport, Davenport Municipal Airport
178349 2022-11-27 18:15   7 US US-CA  NOT KDVO 271715Z AUTO 00000KT 10SM CLR 07/05 A3016 RMK AO2=  ## [A] Novato, Marin County Airport - Gnoss Field
178350 2022-11-27 18:13   1 US US-MN  NSL KDVP 271713Z AUTO 32010KT 10SM CLR 01/M02 A2988 RMK AO2 T00091025=  ## [A] Slayton, Slayton Municipal Airport
178354 2022-11-27 17:53  13 US US-AZ  DVT KDVT 271653Z 00000KT 10SM CLR 13/M06 A3013 RMK AO2 SLP194 T01281056=  ## [A] Phoenix, Phoenix Deer Valley Airport
178361 2022-11-27 18:15   9 US US-CA  --- KDWA 271715Z AUTO 00000KT 10SM CLR 09/00 A3016 RMK AO2=  ## [A] Davis/Woodland/Winters, Yolo County Davis Woodland Winters Airport
178368 2022-11-27 17:53  19 US US-TX  DWH KDWH 271653Z 24009KT 10SM CLR 19/11 A2995 RMK AO2 SLP140 T01940111=  ## [A] Houston, David Wayne Hooks Memorial Airport
178381 2022-11-27 17:56  17 US US-KY  --- KDWU 271656Z AUTO 24012G21KT 10SM FEW025 SCT036 BKN065 17/14 A2946 RMK AO2 RAB32E54 SLP975 P0003 T01670144=  ## [A] Ashland, Ashland Regional Airport
178384 2022-11-27 18:10  -3               KDWX 271710Z AUTO 10SM BKN030 OVC040 M03/M06 A3009 RMK AO2 T10281061=  ## [A]
178404 2022-11-27 17:53  12 US US-CT  DXR KDXR 271653Z 20007KT 10SM OVC110 12/01 A2976 RMK AO2 SLP078 T01170006=  ## [A] Danbury, Danbury Municipal Airport
178410 2022-11-27 18:15   2 US US-MN  --- KDXX 271715Z AUTO 32006KT 10SM CLR 02/M01 A2991 RMK AO2=  ## [A] Madison, Lac Qui Parle County Airport
178413 2022-11-27 18:15  18 US US-AL  --- KDYA 271715Z AUTO 25011G16KT 10SM CLR 18/08 A2990 RMK AO2 T01840081=  ## [A] Demopolis, Demopolis Municipal Airport
178414 2022-11-27 18:15  23 US US-SC  --- KDYB 271715Z AUTO 19009G17KT 10SM BKN019 OVC024 23/21 A2979 RMK AO2=  ## [A] Summerville, Summerville Airport
178424 2022-11-27 17:54   9 US US-PA  DYL KDYL 271654Z AUTO 16003KT 10SM OVC024 09/06 A2974 RMK AO2 RAB1559E51 SLP074 P0003 T00890056=  ## [A] Doylestown, Doylestown Airport
178430 2022-11-27 17:56  12 US US-TN  --- KDYR 271656Z AUTO 23020G26KT 10SM OVC020 12/08 A2970 RMK AO2 PK WND 21027/1622 SLP062 T01170083=  ## [A] Dyersburg, Dyersburg Regional Airport
178431 2022-11-27 17:55  11 US US-TX  DYS KDYS 271655Z AUTO 35005KT 10SM CLR 11/04 A2997 RMK AO2 SLP148 T01090044=  ## [A] Abilene, Dyess Air Force Base
178432 2022-11-27 18:15   2 US US-MN  --- KDYT 271715Z AUTO 00000KT 10SM BKN047 02/M02 A2982 RMK AO2=  ## [A] Duluth, Sky Harbor Airport
178440 2022-11-27 18:15  16 US US-TX  --- KDZB 271715Z AUTO 33007KT 10SM CLR 16/04 A2997 RMK AO2 T01610039=  ## [A] Horseshoe Bay, Horseshoe Bay Resort Airpark
178448 2022-11-27 18:15  15 US US-GA  --- KDZJ 271715Z AUTO 24015G21KT 10SM SCT039 15/07 A2978 RMK AO2 T01530075=  ## [A] Blairsville, Blairsville Airport
178478 2022-11-27 18:10   4 US US-WY  EAN KEAN 271710Z AUTO 27014G22KT 10SM CLR 04/M03 A2983 RMK AO2 T00431029=  ## [A] Wheatland, Phifer Airfield
178482 2022-11-27 17:56   2 US US-NE  EAR KEAR 271656Z AUTO 33011KT 10SM CLR 02/M04 A2998 RMK AO2 SLP163 T00221039 FZRANO=  ## [A] Kearney, Kearney Regional Airport
178484 2022-11-27 17:55   3 US US-WA  EAT KEAT 271655Z AUTO 29013KT 10SM CLR 03/M04 A2984 RMK AO2 SLP118 T00281039=  ## [A] Wenatchee, Pangborn Memorial Airport
178485 2022-11-27 17:56   4 US US-WI  EAU KEAU 271656Z 01007G17KT 10SM CLR 04/M02 A2975 RMK AO2 SLP084 T00391022=  ## [A] Eau Claire, Chippewa Valley Regional Airport
178491 2022-11-27 18:15  22               KEBA 271715Z AUTO 23011G21KT 10SM CLR 22/11 A2973 RMK AO2 T02230107=  ## [A]
178497 2022-11-27 18:15  23 US US-TX  --- KEBG 271715Z AUTO 19009KT 10SM CLR 23/15 A2994 RMK AO2 T02340151 PWINO=  ## [A] Edinburg, South Texas International At Edinburg Airport
178509 2022-11-27 18:15   3 US US-IA  EBS KEBS 271715Z AUTO 35016KT 10SM CLR 03/M00 A2978 RMK AO2=  ## [A] Webster City, Webster City Municipal Airport
178523 2022-11-27 17:54  18 US US-NC  ECG KECG 271654Z 16008G21KT 10SM BKN065 OVC080 18/16 A2981 RMK AO2 RAE51 SLP094 P0000 T01780156 $  ## [A] Elizabeth City, Elizabeth City Regional Airport & Coast Guard Air Station
178532 2022-11-27 17:53  20 US US-FL  ECP KECP 271653Z 25008KT 10SM CLR 20/09 A2997 RMK AO1 SLP159 T02000094=  ## [A] Panama City Beach, Northwest Florida Beaches International Airport
178535 2022-11-27 18:15  -2 US US-WY  ECS KECS 271715Z AUTO 13009KT 3SM BR OVC003 M02/M02 A2984 RMK AO2=  ## [A] Newcastle, Mondell Field
178537 2022-11-27 18:15  19 US US-TX  --- KECU 271715Z AUTO 29012KT 10SM CLR 19/M00 A3002 RMK AO2=  ## [A] Rocksprings, Edwards County Airport
178545 2022-11-27 18:15  18 US US-TX  --- KEDC 271715Z AUTO 02004KT 10SM CLR 18/07 A2995 RMK AO2=  ## [A] Austin, Austin Executive Airport
178547 2022-11-27 18:15  19 US US-NC  EDE KEDE 271715Z AUTO 18014G20KT 10SM BKN050 OVC055 19/18 A2978 RMK AO2 T01930182=  ## [A] Edenton, Northeastern Regional Airport
178552 2022-11-27 18:15  13 US US-OH  --- KEDJ 271715Z AUTO 24020G26KT 10SM 13/10 A2936 RMK A01 P0003=  ## [A] Bellefontaine, Bellefontaine Regional Airport
178556 2022-11-27 18:15  18 US US-AL  ETS KEDN 271715Z AUTO 26007KT 10SM CLR 18/08 A2994 RMK AO2 T01780083=  ## [A] Enterprise, Enterprise Municipal Airport
178563 2022-11-24 05:25   9 US US-CA  --- KEDU 240425Z AUTO 00000KT 10SM CLR 09/03 A3017 RMK AO1=  ## [A] Davis, University Airport
178565 2022-11-27 17:55   4 US US-CA  EDW KEDW 271655Z AUTO 00000KT 10SM CLR 04/M10 A3015 RMK AO2 SLP219 T00421099=  ## [A] Edwards, Edwards Air Force Base
178572 2022-11-27 17:56  14 US US-CA  EED KEED 271656Z AUTO 00000KT 10SM CLR 14/M04 A3016 RMK AO2 SLP202 T01441039 $  ## [A] Needles, Needles Airport
178582 2022-11-27 17:56   6 US US-NH  EEN KEEN 271656Z AUTO 02003KT 10SM CLR 06/M01 RMK AO2 SLPNO T00561011 $  ## [A] Keene, Dillant Hopkins Airport
178583 2022-11-27 17:53  -2 US US-CO  --- KEEO 271653Z AUTO 00000KT 10SM OVC044 M02/M03 A3008 RMK AO2 SLP198 T10171033 $  ## [A] Meeker, Meeker Airport
178588 2022-11-27 17:53  16 US US-AL  --- KEET 271653Z AUTO 26007G22KT 220V280 10SM FEW041 16/07 A2987 RMK AO2 SLP111 T01610067=  ## [A] Alabaster, Shelby County Airport
178598 2022-11-27 16:54  19 US US-TX  EFD KEFD 271554Z 23012G19KT 10SM CLR 19/12 A2995=  ## [A] Houston, Ellington Airport
178605 2022-11-27 18:15   8 US US-VT  EFK KEFK 271715Z AUTO 13003KT 10SM CLR 08/M01 A2967 RMK AO2 T00751015=  ## [A] Newport, Northeast Kingdom International Airport
178614 2022-11-27 18:15   4 US US-WI  --- KEFT 271715Z AUTO 02014G18KT 10SM -RA SCT018 BKN027 OVC033 04/02 A2958 RMK AO2 T00370016=  ## [A] Monroe, Monroe Municipal Airport
178625 2022-11-27 17:56   2 US US-CO  EGE KEGE 271656Z 06003KT 10SM OVC050 02/00 A3007 RMK AO2 SLP094 T00170000=  ## [A] Eagle, Eagle County Regional Airport
178629 2022-11-27 17:55  19 US US-FL  EGI KEGI 271655Z AUTO 25007KT 10SM CLR 19/07 A2996 RMK AO2 SLP145 T01930074 $  ## [A] Crestview, Duke Field
178640 2022-11-27 18:15   6 US US-KS  --- KEGT 271715Z AUTO 34018KT 10SM CLR 06/00 A2992 RMK AO2 T00570004=  ## [A] Wellington, Wellington Municipal Airport
178642 2022-11-27 18:15   1 US US-WI  EGV KEGV 271715Z AUTO 01008KT 10SM OVC021 01/M04 A2969 RMK AO2 T00121041=  ## [A] Eagle River, Eagle River Union Airport
178647 2022-11-27 18:15   3 US US-KS  --- KEHA 271715Z AUTO 01011G15KT 5SM HZ SCT036 OVC046 03/M05 A3005 RMK AO2 T00291050=  ## [A] Elkhart, Elkhart Morton County Airport
178661 2022-11-27 18:15  13 US US-NC  --- KEHO 271715Z AUTO 20007KT 10SM OVC006 13/13 A2970 RMK AO2 T01330128=  ## [A] Shelby, Shelby-Cleveland County Regional Airport
178664 2022-11-27 17:56  10 US US-KY  --- KEHR 271656Z AUTO 22019KT 10SM OVC011 10/09 A2954 RMK AO2 RAB06E24 SLP005 P0000 T01000089=  ## [A] Henderson, Henderson City County Airport
178671 2022-09-09 12:15   8               KEHY 091015Z AUTO 10SM OVC008 08/03 A3008 RMK AO2 PWINO=  ## [A]
178683 2022-11-27 18:15   5 US US-CO  --- KEIK 271715Z AUTO 08003KT 10SM CLR 05/M02 A2991 RMK AO2 T00501016 PWINO=  ## [A] Erie, Erie Municipal Airport
178690 2021-09-11 17:15 XXX               KEIR 111515Z AUTO A3010 RMK A01=  ## [A]
178725 2022-03-15 01:00 XXX US US-CA  EKA KEKA 150000Z 21005KT 7SM OVC/// 16/ A3011 RMK AO2 T0156 10200 20117 NOSPECI=  ## [A] Eureka, Murray Field
178729 2022-11-17 20:15  13               KEKE 171915Z AUTO 35017KT 10SM CLR 13/04 A3028 RMK A01=  ## [A]
178737 2022-11-27 18:15   4 US US-IN  EKI KEKM 271715Z AUTO 03007KT 3SM RA BR BKN009 OVC013 04/04 A2938 RMK AO2 CIG 007V012 P0002 T00440044 $  ## [A] Elkhart, Elkhart Municipal Airport
178738 2022-11-27 17:51  17 US US-WV  EKN KEKN 271651Z AUTO 15007KT 10SM BKN035 BKN065 OVC080 17/12 A2952 RMK AO2 RAE1556 SLP003 P0000 T01720122 $  ## [A] Elkins, Elkins-Randolph Co-Jennings Randolph Field
178739 2022-11-27 18:20  -4 US US-NV  EKO KEKO 271720Z AUTO 22004KT 1 3/4SM BR OVC001 M04/M06 A3014 RMK AO2 VIS 3/4V4 I1000 T10441061=  ## [A] Elko, Elko Regional Airport
178741 2022-11-27 17:56  16 US US-KY  --- KEKQ 271656Z AUTO 22020G28KT 10SM BKN043 OVC050 16/07 A2964 RMK AO2 PK WND 23032/1609 SLP030 T01610072=  ## [A] Monticello, Wayne County Airport
178743 2022-11-27 18:10  -1 US US-MT  --- KEKS 271710Z AUTO 19025KT 10SM FEW050 BKN060 OVC070 M01/M06 A2984 RMK AO2=  ## [A] Ennis, Ennis Big Sky Airport
178748 2022-11-27 18:15  11 US US-KY  EKX KEKX 271715Z AUTO 23014G22KT 10SM OVC028 11/06 A2958 RMK AO2 T01090060=  ## [A] Elizabethtown, Addington Field
178749 2022-11-27 17:56  17 US US-AL  --- KEKY 271656Z AUTO 24013G23KT 10SM SCT039 17/07 A2987 RMK AO2 SLP964 T01670072=  ## [A] Bessemer, Bessemer Airport
178751 2022-11-27 18:15  21 US US-TX  ELA KELA 271715Z AUTO 27008G14KT 10SM CLR 21/12 A2995 RMK AO2 T02090116=  ## [A] Eagle Lake, Eagle Lake Airport
178754 2022-11-27 17:53  12 US US-AR  ELD KELD 271653Z AUTO 27011G18KT 10SM OVC018 12/08 A2988 RMK AO2 SLP117 T01170078=  ## [A] El Dorado, South Arkansas Regional At Goodwin Field
178761 2022-11-27 18:15   7 US US-OK  ELK KELK 271715Z AUTO 34013KT 10SM FEW150 07/M00 A2998 RMK AO2 SLP437 T00701000 $  ## [A] Elk City, Elk City Regional Business Airport
178763 2022-11-27 17:53   6 US US-NY  ELM KELM 271653Z 02005KT 10SM -RA OVC070 06/02 A2962 RMK AO2 SLP036 P0005 T00560022=  ## [A] Elmira/Corning, Elmira Corning Regional Airport
178764 2022-11-27 17:53   3 US US-WA  ELN KELN 271653Z AUTO 30022G34KT 10SM CLR 03/M03 A2987 RMK AO2 PK WND 30036/1607 SNE1555 SLP126 P0000 T00281028=  ## [A] Ellensburg, Bowers Field
178765 2022-11-27 18:15  -1 US US-MN  LYU KELO 271715Z AUTO 31004KT 10SM BKN013 OVC045 M01/M03 A2979 RMK AO2=  ## [A] Ely, Ely Municipal Airport
178766 2022-11-27 17:51  15 US US-TX  ELP KELP 271651Z 33009G16KT 10SM FEW150 15/M14 A3009 RMK AO2 SLP147 T01501139=  ## [A] El Paso, El Paso International Airport
178775 2022-11-27 17:53  -2 US US-NV  ELY KELY 271653Z AUTO 18010KT 10SM CLR M02/M05 A3014 RMK AO2 SLP226 T10221050=  ## [A] Ely, Ely Airport Yelland Field
178776 2022-11-27 17:56   7 US US-NY  ELZ KELZ 271656Z AUTO 16013G25KT 4SM RA FEW032 BKN060 OVC085 07/04 A2954 RMK AO2 PK WND 15027/1642 PRESFR SLP011 P0007 T00720039=  ## [A] Wellsville, Wellsville Municipal Arpt, Tarantine Field
178787 2022-04-16 14:05  23               KEMK 161205Z AUTO 4SM BR 23/22 A2993 RMK A01=  ## [A]
178789 2022-11-27 18:15  -3 US US-WY  EMM KEMM 271715Z AUTO 10SM BKN021 M03/M07 A3001 RMK AO2=  ## [A] Kemmerer, Kemmerer Municipal Airport
178792 2022-11-27 17:53   4 US US-KS  EMP KEMP 271653Z AUTO 32012G21KT 10SM OVC017 04/00 A2988 RMK AO2 SLP125 T00440000 $  ## [A] Emporia, Emporia Municipal Airport
178796 2022-11-27 17:50  12 US US-CA  EMT KEMT 271650Z 00000KT 10SM CLR 12/03 A3010=  ## [A] El Monte, San Gabriel Valley Airport
178798 2022-11-27 18:15  15 US US-VA  --- KEMV 271715Z AUTO 13007KT 10SM OVC008 15/15 A2973 RMK AO2 T01450145=  ## [A] Emporia, Emporia Greensville Regional Airport
178806 2022-11-27 17:55   7 US US-OK  END KEND 271655Z AUTO 35015KT 10SM SCT150 07/00 A2991 RMK AO2 SLP134 T00650004 $  ## [A] Enid, Vance Air Force Base
178814 2022-10-20 22:30  20 US US-IL  ENL KENL 202030Z AUTO 22009G17KT 10SM 20/00 A2986 RMK AO2 T02021003=  ## [A] Centralia, Centralia Municipal Airport
178824 2022-11-27 17:56  -3 US US-UT  ENV KENV 271656Z AUTO 08004KT 10SM SCT090 M03/M06 A3016 RMK AO2 SLP244 T10281056 FZRANO PNO $  ## [A] Wendover, Wendover Airport
178825 2022-11-27 17:53   8 US US-WI  ENW KENW 271653Z 01018G27KT 10SM BKN018 OVC100 08/03 A2951 RMK AO2 PK WND 01027/1651 SLP994 T00830028=  ## [A] Kenosha, Kenosha Regional Airport
178832 2021-08-22 00:04  26               KEOD 212204Z AUTO 14003KT 5SM -RA BKN021 26/23 A2984 RMK AO2 LTG DSNT S-NW RAB2158 BKN V SCT SLP102 $  ## [A]
178833 2022-11-27 17:35  21 US US-SC  --- KEOE 271635Z AUTO 24011G19KT 10SM SCT010 BKN019 BKN042 21/20 A2977 RMK AO2=  ## [A] Newberry, Newberry County Airport
178839 2022-11-27 18:15   6 US US-IA  EOK KEOK 271715Z AUTO 33009KT 10SM BKN012 BKN047 OVC090 06/05 A2966 RMK A01=  ## [A] Keokuk, Keokuk Municipal Airport
178862 2022-11-27 17:53   5 US US-WA  EPH KEPH 271653Z AUTO 31017G22KT 10SM CLR 05/M07 A2980 RMK AO2 SLP103 T00501072=  ## [A] Ephrata, Ephrata Municipal Airport
178881 2022-11-27 18:15   6 US US-KS  EDK KEQA 271715Z AUTO 33015G21KT 10SM BKN018 06/01 A2990 RMK AO2=  ## [A] El Dorado, Captain Jack Thomas El Dorado Airport
178905 2022-11-27 17:53  19 US US-NC  --- KEQY 271653Z AUTO 23009KT 10SM SCT007 BKN012 OVC018 19/18 A2970 RMK AO2 PK WND 21033/1615 RAE28 SLP065 P0002 T01890178=  ## [A] Monroe, Charlotte-Monroe Executive Airport
178915 2022-11-27 17:51   8 US US-PA  ERI KERI 271651Z VRB04KT 6SM -RA BR FEW015 OVC027 08/07 A2942 RMK AO2 RAB1554 PRESFR SLP964 P0006 T00830067=  ## [A] Erie, Erie International Tom Ridge Field
178928 2022-11-27 18:15  20 US US-TX  ERV KERV 271715Z AUTO 30007KT 10SM CLR 20/03 A2997 RMK AO2 T01990029=  ## [A] Kerrville, Kerrville Municipal Louis Schreiner Field
178931 2022-11-27 18:15   4 US US-MI  --- KERY 271715Z AUTO 01011G18KT 10SM OVC021 04/00 A2959 RMK AO2 T00351001=  ## [A] Newberry, Luce County Airport
178935 2022-11-27 17:56   4 US US-MI  ESC KESC 271656Z AUTO 36008KT 10SM CLR 04/M01 A2963 RMK AO2 SLP040 T00441011=  ## [A] Escanaba, Delta County Airport
178938 2022-11-27 17:53  18 US US-LA  ESF KESF 271653Z AUTO 26011G18KT 10SM CLR 18/10 A2992 RMK AO2 PK WND 26026/1615 SLP129 T01830100 $  ## [A] Alexandria, Esler Regional Airport
178946 2022-11-27 17:45  11 US US-MD  ESN KESN 271645Z 18009KT 7SM -RA SCT009 BKN012 BKN022 11/09 A2978=  ## [A] Easton, Easton Newnam Field
178952 2022-11-27 17:52   3 US US-IA  EST KEST 271652Z AUTO 35015KT 10SM CLR 03/M02 A2984 RMK AO2 SLP114 T00281022=  ## [A] Estherville, Estherville Municipal Airport
178960 2022-11-27 18:15   4 US US-WI  ETB KETB 271715Z AUTO 02009G16KT 10SM -DZ OVC015 04/02 A2956 RMK AO2=  ## [A] West Bend, West Bend Municipal Airport
178961 2022-11-27 18:15  20 US US-NC  --- KETC 271715Z AUTO 17009G17KT 7SM HZ OVC019 20/18 A2972 RMK AO2 T02040179=  ## [A] Tarboro, Tarboro Edgecombe Airport
178966 2022-11-27 18:13  -1 US US-MN  --- KETH 271713Z AUTO 32005KT 10SM M01/M03 A2992 RMK AO2=  ## [A] Wheaton, Wheaton Municipal Airport
178972 2022-11-27 18:10  12 US US-TX  ETN KETN 271710Z AUTO 03006KT 10SM CLR 12/05 A2997 RMK AO2 T01210053=  ## [A] Eastland, Eastland Municipal Airport
178990 2022-11-27 17:58  19 US US-AL  EUF KEUF 271658Z AUTO 25008G19KT 10SM CLR 19/09 A2992 RMK AO2 SLP127 I1000 T01940089=  ## [A] Eufaula, Weedon Field
178991 2022-11-27 17:54   7 US US-OR  EUG KEUG 271654Z 18011KT 10SM FEW011 BKN041 BKN060 07/05 A3019 RMK AO2 DZE04B37E52 SLP225 P0000 T00670050=  ## [A] Eugene, Mahlon Sweet Field
178996 2022-11-27 17:56   1 US US-ID  --- KEUL 271656Z AUTO 11008KT 10SM BKN075 OVC090 01/M02 A3007 RMK AO2 SLP202 T00061017 FZRANO=  ## [A] Caldwell, Caldwell Industrial Airport
179012 2022-11-27 17:47  27 US US-FL  --- KEVB 271647Z 21015G25KT 10SM SCT025 27/22 A2997=  ## [A] New Smyrna Beach, New Smyrna Beach Municipal Airport
179023 2022-11-27 18:22  -1 US US-MN  EVM KEVM 271722Z AUTO 03004KT 10SM BKN015 OVC043 M01/M04 A2982 RMK AO2=  ## [A] Eveleth, Eveleth Virginia Municipal Airport
179031 2022-11-27 18:15   5 US US-MO  --- KEVU 271715Z AUTO 33013G19KT 10SM CLR 05/00 A2982 RMK AO2 T00540003=  ## [A] Maryville, Northwest Missouri Regional Airport
179032 2022-11-27 17:54  10 US US-IN  EVV KEVV 271654Z 21017G25KT 5SM BR OVC011 10/09 A2952 RMK AO2 PK WND 20029/1612 RAB15E33 SLP997 P0000 T01000089 $  ## [A] Evansville, Evansville Regional Airport
179033 2022-11-27 17:53  -4 US US-WY  EVW KEVW 271653Z AUTO 22013KT 10SM SCT024 BKN110 M04/M08 A3005 RMK AO2 SLP197 T10391078 $  ## [A] Evanston, Evanston-Uinta County Airport-Burns Field
179038 2022-11-27 17:53  12 US US-MA  EWB KEWB 271653Z 21007KT 10SM CLR 12/04 A2977 RMK AO2 SLP081 T01220044=  ## [A] New Bedford, New Bedford Regional Airport
179047 2022-11-27 17:56   5 US US-KS  EWK KEWK 271656Z AUTO 34019G23KT 10SM CLR 05/00 A2992 RMK AO2 SLP135 T00500000=  ## [A] Newton, Newton City-County Airport
179050 2022-11-27 17:54  21 US US-NC  EWN KEWN 271654Z 18013G25KT 10SM -RA BKN013 BKN035 BKN048 21/18 A2983 RMK AO2 PK WND 18030/1600 RAE10B43 SLP100 P0000 T02060183=  ## [A] New Bern, Coastal Carolina Regional Airport
179054 2022-11-27 17:51  11 US US-NJ  EWR KEWR 271651Z 17005KT 10SM BKN110 BKN160 OVC250 11/04 A2976 RMK AO2 SLP076 T01110039=  ## [A] Newark, Newark Liberty International Airport
179086 2022-11-27 18:15  16 US US-NC  --- KEXX 271715Z AUTO 22004KT 10SM OVC005 16/16 A2968 RMK AO2 T01620162=  ## [A] Lexington, Davidson County Airport
179093 2022-11-27 18:11  10 US US-IN  --- KEYE 271711Z AUTO 21015G23KT 5SM -RA BR BKN011 OVC020 10/09 A2937 RMK AO2 P0000 T01000089=  ## [A] Indianapolis, Eagle Creek Airpark
179094 2022-11-27 18:15  22 US US-NC  --- KEYF 271715Z AUTO 18015KT 10SM OVC010 22/21 A2977 RMK AO2 T02200207=  ## [A] Elizabethtown, Curtis L Brown Jr Field
179111 2022-11-27 17:53  28 US US-FL  EYW KEYW 271653Z 18009KT 10SM CLR 28/24 A3005 RMK AO2 SLP174 T02780239=  ## [A] Key West, Key West International Airport
179120 2022-11-27 18:15   9 US US-VA  --- KEZF 271715Z AUTO 00000KT 10SM RA OVC005 09/09 A2968 RMK AO2 P0003 T00860086=  ## [A] Fredericksburg, Shannon Airport
179127 2022-11-27 18:15  23 US US-GA  --- KEZM 271715Z AUTO 26011G20KT 10SM CLR 23/10 A2985 RMK AO2=  ## [A] Eastman, Heart of Georgia Regional Airport
179130 2022-11-27 18:20  23               KEZP 271720Z AUTO 24012KT 10SM CLR 23/14 A2998 RMK A01=  ## [A]
179133 2022-11-27 17:55   4 US US-WI  --- KEZS 271655Z AUTO 01008KT 10SM OVC120 04/00 A2964 RMK AO2 T00440000=  ## [A] Shawano, Shawano Municipal Airport
179140 2022-11-27 18:15   5 US US-MO  --- KEZZ 271715Z AUTO 32013G16KT 10SM SCT018 05/01 A2980 RMK AO2 T00490011=  ## [A] Cameron, Cameron Memorial Airport
179146 2022-11-27 17:55  13 US US-VA  FAF KFAF 271655Z AUTO 16005KT 4SM RA BR SCT008 SCT019 OVC027 13/12 A2975 RMK AO2 OVC V BKN PRESFR SLP078 P0004 T01310118 $  ## [A] Fort Eustis, Felker Army Air Field
179153 2022-11-27 18:17   7 US US-MO  FAM KFAM 271717Z AUTO 31014G20KT 3SM -RA BR BKN009 OVC019 07/06 A2962 RMK AO2 CIG 007V014 P0000=  ## [A] Farmington, Farmington Regional Airport
179158 2022-11-27 17:53  -4 US US-ND  FAR KFAR 271653Z 00000KT 10SM CLR M04/M06 A2990 RMK AO2 SLP138 T10391061=  ## [A] Fargo, Hector International Airport
179160 2022-11-27 17:53   9 US US-CA  FAT KFAT 271653Z 00000KT 7SM BKN200 09/02 A3015 RMK AO2 SLP208 T00940017=  ## [A] Fresno, Fresno Yosemite International Airport
179165 2022-11-27 18:00  22 US US-NC  FAY KFAY 271700Z 19013G21KT 10SM -RA BKN013 OVC020 22/21 A2972 RMK AO2 P0000 T02170206=  ## [A] Fayetteville, Fayetteville Regional Grannis Field
179173 2022-11-27 18:19  22 US US-NC  FBG KFBG 271719Z AUTO 19009G19KT 10SM OVC012 22/21 A2967 RMK AO2 DZE1655RAB1655E08 PRESFR SLP050 $  ## [A] Fort Bragg, Simmons Army Air Field
179178 2022-11-27 18:15   3 US US-MN  FBL KFBL 271715Z AUTO 33007KT 10SM CLR 03/M01 A2981 RMK AO2=  ## [A] Faribault, Faribault Municipal Airport-Liz Wall Strohfus Field
179184 2022-09-20 18:55  21 US US-WY  FBR KFBR 201655Z AUTO 16006G12KT 10SM CLR 21/01 A3025 RMK AO2 T02130011=  ## [A] Fort Bridger, Fort Bridger Airport
179200 2022-03-06 23:40  14 US US-CA  FCH KFCH 062240Z AUTO 00000KT 10SM SCT050 14/02 A3026 RMK A01=  ## [A] Fresno, Fresno Chandler Executive Airport
179201 2022-11-27 17:56 XXX US US-VA  --- KFCI 271656Z AUTO 16014G21KT 4SM RA OVC006 14/ A2971 RMK AO2 SLP070 P0028 T0139=  ## [A] Richmond, Chesterfield County Airport
179205 2022-11-27 17:53   3 US US-MN  FCM KFCM 271653Z 33007KT 10SM CLR 03/M02 A2981 RMK AO2 SLP102 T00281022=  ## [A] Minneapolis, Flying Cloud Airport
179211 2022-11-27 17:55   3 US US-CO  FCS KFCS 271655Z AUTO 19012KT 10SM CLR 03/M02 A2993 RMK AO2 SLP155 T00311024 $  ## [A] Fort Carson, Butts AAF (Fort Carson) Air Field
179229 2022-11-27 17:47   8 US US-MD  FDK KFDK 271647Z 00000KT 4SM OVC012 08/08 A2969=  ## [A] Frederick, Frederick Municipal Airport
179236 2022-11-27 17:53   9 US US-OK  FDR KFDR 271653Z AUTO 35016KT 10SM CLR 09/03 A2995 RMK AO2 SLP140 T00890028=  ## [A] Frederick, Frederick Regional Airport
179241 2022-11-27 18:15  20 US US-SC  --- KFDW 271715Z AUTO 21010G16KT 10SM BKN007 OVC029 20/19 A2973 RMK AO1=  ## [A] Winnsboro, Fairfield County Airport
179243 2022-11-27 17:53  13 US US-OH  FDY KFDY 271653Z AUTO 22014G26KT 6SM -RA BR BKN060 OVC080 13/11 A2935 RMK AO2 PK WND 20031/1617 SLP934 P0017 T01280106 $  ## [A] Findlay, Findlay Airport
179260 2022-11-27 18:15   4 US US-IL  FEP KFEP 271715Z AUTO 36011G16KT 5SM -RA OVC050 04/04 A2961 RMK AO2 T00440043=  ## [A] Freeport, Albertus Airport
179264 2022-11-27 18:15   5 US US-NE  FET KFET 271715Z AUTO 33013KT 10SM CLR 05/M03 A2991 RMK AO2 T00451035=  ## [A] Fremont, Fremont Municipal Airport
179267 2022-11-27 17:55  -1               KFEW 271655Z AUTO 22009KT 9SM M M01/M02 A2989 RMK AO2 SLP149 T10121020 RVRNO PWINO $  ## [A]
179271 2022-11-27 17:55  16 US US-NC  FFA KFFA 271655Z AUTO 17004KT 10SM SCT027 SCT037 BKN080 16/15 A2984 RMK AO2 P0002 T01580147=  ## [A] Kill Devil Hills, First Flight Airport
179273 2022-11-27 17:53  18 US US-GA  --- KFFC 271653Z AUTO 26016G26KT 10SM CLR 18/08 A2984 RMK AO2 PK WND 24026/1653 SLP101 T01830078=  ## [A] Atlanta, Peachtree City Falcon Field
179282 2022-11-27 18:15   5 US US-IA  FFL KFFL 271715Z AUTO 34012G18KT 10SM 05/04 A2967 RMK A01=  ## [A] Fairfield, Fairfield Municipal Airport
179283 2022-11-27 18:15  -2 US US-MN  FFM KFFM 271715Z AUTO 32003KT 10SM CLR M02/M03 A2988 RMK AO2=  ## [A] Fergus Falls, Fergus Falls Municipal Airport - Einar Mickelson Field
179285 2022-11-27 18:13  12 US US-OH  FFO KFFO 271713Z 22015G24KT 10SM SCT019 BKN025 OVC037 12/10 A2936 RMK AO2A SCT V BKN SLP946=  ## [A] Dayton, Wright-Patterson Air Force Base
179290 2022-11-27 17:53  13 US US-KY  FFT KFFT 271653Z AUTO 24023G31KT 10SM FEW036 SCT045 OVC050 13/07 A2953 RMK AO2 PK WND 22040/1607 SLP997 T01330067=  ## [A] Frankfort, Capital City Airport
179294 2022-11-27 18:15   8 US US-MI  --- KFFX 271715Z AUTO 05005KT 10SM OVC100 08/00 A2946 RMK AO2 T00830000=  ## [A] Fremont, Fremont Municipal Airport
179296 2022-11-27 17:54  13 US US-AZ  MSC KFFZ 271654Z 04003KT 10SM CLR 13/M06 A3013 RMK AO2 SLP192 T01331056=  ## [A] Mesa, Falcon Field
179310 2022-11-27 18:15  -2               KFGN 271715Z AUTO 00000KT 10SM M02/M05 A2983 RMK AO2 PW=  ## [A]
179320 2022-11-27 18:15  15 US US-KY  --- KFGX 271715Z AUTO 26026G43KT 10SM SCT042 BKN048 OVC060 15/07 A2952 RMK AO2 T01450070=  ## [A] Flemingsburg, Fleming Mason Airport
179324 2022-11-27 18:15  25               KFHB 271715Z AUTO 22013KT 10SM BKN023 OVC029 25/21 A2990 RMK AO2=  ## [A]
179340 2022-11-27 17:53   3 US US-WA  FRD KFHR 271653Z AUTO 00000KT 10SM CLR 03/02 A2999 RMK AO2 SLP155 T00280017 $  ## [A] Friday Harbor, Friday Harbor Airport
179343 2022-11-27 17:55  12 US US-AZ  FHU KFHU 271655Z AUTO 28003KT 10SM CLR 12/M12 A3018 RMK AO2 SLP204 T01241120=  ## [A] Fort Huachuca Sierra Vista, Sierra Vista Municipal Libby Army Air Field
179355 2022-11-27 17:54   4 US US-PA  --- KFIG 271654Z AUTO 03005KT 7SM -RA SCT019 OVC025 04/03 A2956 RMK AO2 SLP021 P0001 T00440028=  ## [A] Clearfield, Clearfield Lawrence Airport
179362 2022-11-27 17:50  27               KFIN 271650Z 21011G16KT 10SM BKN017 27/21 A2996=  ## [A]
179368 2022-11-27 17:52  11 US US-MA  --- KFIT 271652Z AUTO 30007KT 10SM CLR 11/M05 A2974 RMK AO2 SLP072 T01061050=  ## [A] Fitchburg, Fitchburg Municipal Airport
179401 2022-11-27 18:15   2 US US-MN  --- KFKA 271715Z AUTO 35012KT 10SM CLR 02/M02 A2974 RMK AO2 T00211018=  ## [A] Preston, Fillmore County Airport
179412 2022-11-27 18:16   7 US US-PA  FKL KFKL 271716Z AUTO 15007KT 10SM -RA OVC003 07/07 A2945 RMK AO2 P0002=  ## [A] Franklin, Venango Regional Airport
179414 2022-11-27 18:15  15 US US-VA  FKN KFKN 271715Z AUTO 16009KT 7SM BKN009 BKN039 OVC045 15/15 A2974 RMK AO2 P0001 T01530150=  ## [A] Franklin, Franklin Municipal-John Beverly Rose Airport
179418 2022-11-27 18:15  10 US US-IN  --- KFKR 271715Z AUTO 21014G20KT 6SM -RA BR OVC010 10/10 A2933 RMK AO2=  ## [A] Frankfort, Frankfort Municipal Airport
179419 2022-11-27 18:15   6 US US-MI  --- KFKS 271715Z AUTO 01010G15KT 340V050 10SM -DZ BKN012 OVC018 06/04 A2952 RMK AO2 T00570035=  ## [A] Frankfort, Frankfort Dow Memorial Field
179430 2022-11-27 17:53   4 US US-WI  FLD KFLD 271653Z AUTO 01014KT 10SM OVC015 04/01 A2960 RMK AO2 SLP030 T00390006=  ## [A] Fond du Lac, Fond du Lac County Airport
179433 2022-11-27 17:57   4 US US-AZ  FLG KFLG 271657Z 00000KT 10SM CLR 04/M08 A3015 RMK AO2 SLP183 T00441078=  ## [A] Flagstaff, Flagstaff Pulliam Airport
179438 2022-11-27 17:53  29 US US-FL  FLL KFLL 271653Z 21009KT 180V240 10SM SCT031CB BKN037 BKN250 29/22 A3002 RMK AO2 SLP165 CB SE MOV NE T02940222 $  ## [A] Fort Lauderdale, Fort Lauderdale Hollywood International Airport
179441 2022-11-27 18:08  23 US US-SC  FLO KFLO 271708Z 19013KT 10SM SCT018 BKN080 OVC110 23/21 A2974 RMK AO2 RAE08 P0001 T02280211=  ## [A] Florence, Florence Regional Airport
179442 2022-11-27 17:56   9 US US-AR  FLP KFLP 271656Z AUTO 32010G16KT 10SM OVC022 09/06 A2975 RMK AO2 SLP074 T00940056=  ## [A] Flippin, Marion County Regional Airport
179451 2022-11-27 18:15  -1               KFLY 271715Z AUTO 19009G14KT 10SM OVC003 M01/M01 A2995 RMK AO2 T10101015=  ## [A]
179457 2022-11-27 18:18   8 US US-MD  FME KFME 271718Z AUTO 00000KT 1SM OVC005 08/08 A2971 RMK AO1=  ## [A] Fort Meade(Odenton), Tipton Airport
179460 2022-11-27 17:55  13 US US-MA  FMH KFMH 271655Z 24016KT 10SM CLR 13/04 A2980=  ## [A] Falmouth, Cape Cod Coast Guard Air Station
179465 2022-11-27 18:15   4 US US-CO  --- KFMM 271715Z AUTO 18007KT 10SM FEW017 04/M01 A2993 RMK AO2=  ## [A] Fort Morgan, Fort Morgan Municipal Airport
179466 2022-11-27 17:53   5 US US-NM  FMN KFMN 271653Z 26015G27KT 10SM CLR 05/M07 A3006 RMK AO2 PK WND 28027/1629 SLP177 T00501067=  ## [A] Farmington, Four Corners Regional Airport
179477 2022-11-27 18:02  28 US US-FL  FMY KFMY 271702Z 23012G16KT 10SM SCT021 SCT026 BKN033 28/23 A3002 RMK AO2 T02830228=  ## [A] Fort Myers, Page Field
179480 2022-11-27 17:53   4 US US-NE  --- KFNB 271653Z AUTO 33013G21KT 10SM CLR 04/00 A2986 RMK AO2 SLP115 T00440000=  ## [A] Falls City, Brenner Field
179490 2022-11-27 17:56   2 US US-CO  FNL KFNL 271656Z VRB06KT 10SM OVC012 02/01 A2992 RMK AO2 SLP135 T00170011 FZRANO=  ## [A] Fort Collins/Loveland, Northern Colorado Regional Airport
179498 2022-11-27 18:19   5 US US-MI  FNT KFNT 271719Z 08009KT 4SM -RA FEW027 OVC033 05/02 A2942 RMK AO2 RAB14 P0000 T00500022=  ## [A] Flint, Bishop International Airport
179505 2022-11-27 18:15  10 US US-IL  --- KFOA 271715Z AUTO 26021G26KT 10SM BKN015 OVC020 10/08 A2950 RMK AO2=  ## [A] Flora, Flora Municipal Airport
179508 2022-11-27 17:56   3 US US-IA  FOD KFOD 271656Z AUTO 35012G15KT 10SM CLR 03/M02 A2981 RMK AO2 SLP118 T00281017=  ## [A] Fort Dodge, Fort Dodge Regional Airport
179509 2022-11-27 17:53   4 US US-KS  FOE KFOE 271653Z 32016KT 10SM OVC016 04/01 A2986 RMK AO2 SLP114 T00390011 PNO $  ## [A] Topeka, Topeka Regional Airport - Forbes Field
179515 2022-11-27 17:53  13 US US-NY  FOK KFOK 271653Z 22007G14KT 10SM SCT120 13/09 A2980 RMK AO2 SLP092 T01280089=  ## [A] Westhampton Beach, Francis S Gabreski Airport
179524 2022-11-27 18:15   7 US US-CA  --- KFOT 271715Z AUTO 00000KT 10SM CLR 07/07 A3024 RMK AO1=  ## [A] Fortuna, Rohnerville Airport
179530 2022-11-27 18:13  -1 US US-MN  --- KFOZ 271713Z AUTO 34003KT 10SM OVC043 M01/M04 A2988 RMK AO2=  ## [A] Bigfork, Bigfork Municipal Airport
179541 2022-11-27 18:15   4 US US-MI  --- KFPK 271715Z AUTO 04007KT 10SM OVC030 04/02 A2939 RMK AO2 T00370020=  ## [A] Charlotte, Fitch H Beach Airport
179548 2022-11-27 17:53  28 US US-FL  FPR KFPR 271653Z 24010KT 10SM SCT029 BKN036 28/22 A3001 RMK AO2 SLP162 T02830217=  ## [A] Fort Pierce, St Lucie County International Airport
179555 2022-11-27 18:15  25               KFPY 271715Z AUTO 27011G18KT 10SM BKN020 OVC060 25/20 A2995 RMK AO2 T02490195 TSNO=  ## [A]
179560 2022-11-27 18:15  12 US US-NC  --- KFQD 271715Z AUTO 18008KT 10SM OVC004 12/12 A2968 RMK AO2=  ## [A] Rutherfordton, Rutherford County Marchman Field
179589 2022-11-27 17:53  12 US US-NY  FRG KFRG 271653Z 22011KT 10SM FEW095 BKN120 12/06 A2978 RMK AO2 PRESFR SLP084 T01220061=  ## [A] Farmingdale, Republic Airport
179590 2022-11-27 18:15   9 US US-IN  FRH KFRH 271715Z AUTO 22013G21KT 4SM OVC009 09/09 A2949 RMK AO1=  ## [A] French Lick, French Lick Municipal Airport
179591 2022-11-27 17:55   6 US US-KS  FRI KFRI 271655Z AUTO 34013KT 10SM CLR 06/M01 A2992 RMK AO2 SLP135 T00601012 FZRANO $  ## [A] Fort Riley(Junction City), Marshall Army Air Field
179595 2022-11-22 19:56   7 US US-MN  FRM KFRM 221856Z AUTO 22010KT 10SM CLR 07/M03 A3005 RMK AO2 SLP192 T00671028=  ## [A] Fairmont, Fairmont Municipal Airport
179600 2022-11-27 18:15   8 US US-VA  FRR KFRR 271715Z AUTO 36004KT 10SM BKN021 OVC028 08/08 A2959 RMK AO1=  ## [A] Front Royal, Front Royal Warren County Airport
179612 2022-11-27 17:56   3 US US-SD  FSD KFSD 271656Z 33004KT 10SM FEW250 03/M04 A2991 RMK AO2 SLP144 T00281039=  ## [A] Sioux Falls, Joe Foss Field Airport
179613 2022-11-27 18:15  -6 US US-MN  --- KFSE 271715Z AUTO 00000KT 1/4SM FZFG OVC001 M06/M06 A2987 RMK AO2=  ## [A] Fosston, Fosston Municipal Airport-Anderson Field
179617 2022-11-27 17:55  10 US US-OK  FSI KFSI 271655Z AUTO 34012KT 10SM FEW170 FEW190 10/04 A2993 RMK AO2 SLP135 T00950037=  ## [A] Fort Sill, Henry Post Army Air Field (Fort Sill)
179619 2022-11-27 18:15   6 US US-KS  FSK KFSK 271715Z AUTO 32008KT 10SM OVC016 06/03 A2983 RMK AO2 T00610031=  ## [A] Fort Scott, Fort Scott Municipal Airport
179621 2022-11-27 18:06  12 US US-AR  FSM KFSM 271706Z 29011G19KT 10SM SCT024 SCT070 12/08 A2985 RMK AO2 T01170078=  ## [A] Fort Smith, Fort Smith Regional Airport
179623 2022-11-27 18:15  11 US US-VT  --- KFSO 271715Z AUTO 22003KT 10SM CLR 11/M01 A2964 RMK AO2 T01101012=  ## [A] Highgate, Franklin County State Airport
179628 2022-11-27 17:53  14 US US-TX  FST KFST 271653Z AUTO 30013KT CLR 14/M03 A3003 RMK AO2 SLP141 T01391033=  ## [A] Fort Stockton, Fort Stockton Pecos County Airport
179631 2022-11-27 18:15   6 US US-IA  FMS KFSW 271715Z AUTO 33009KT 7SM 06/05 A2965 RMK AO2=  ## [A] Fort Madison, Fort Madison Municipal Airport
179641 2020-01-30 05:55  -1 US US-CO  --- KFTG 300455Z AUTO 26006KT 10SM SCT013 BKN023 OVC060 M01/M02 A3006 RMK AO2 T10111023=  ## [A] Denver, Front Range Airport
179645 2022-11-27 18:19  10 US US-KY  FTK KFTK 271719Z AUTO 20017G23KT 10SM OVC015 10/09 A2954 RMK AO2 SLP006 FZRANO $  ## [A] Fort Knox, Godman Army Air Field
179648 2022-11-27 18:15  19               KFTN 271715Z AUTO VRB04KT 10SM CLR 19/10 A2998 RMK A01=  ## [A]
179657 2022-11-27 17:53  13 US US-TX  FTW KFTW 271653Z 35008KT 10SM CLR 13/08 A2993 RMK AO2 SLP135 T01330078=  ## [A] Fort Worth, Fort Worth Meacham International Airport
179659 2022-11-27 17:53  18 US US-GA  FTY KFTY 271653Z 26014G26KT 10SM CLR 18/08 A2981 RMK AO2 PK WND 28030/1559 SLP091 T01780078 $  ## [A] Atlanta, Fulton County Airport Brown Field
179672 2022-11-27 17:53  14 US US-CA  FUL KFUL 271653Z VRB04KT 10SM FEW250 14/03 A3008 RMK AO2 SLP186 T01440028=  ## [A] Fullerton, Fullerton Municipal Airport
179691 2022-11-27 17:53   4 US US-ME  WFK KFVE 271653Z AUTO 26009KT 10SM CLR 04/M01 A2957 RMK AO2 SLP022 T00391011=  ## [A] Frenchville, Northern Aroostook Regional Airport
179710 2022-11-27 18:15   9 US US-VA  --- KFVX 271715Z AUTO 00000KT 1 1/2SM RA OVC003 09/09 A2965 RMK AO2 P0012 T00890089=  ## [A] Farmville, Farmville Regional Airport
179713 2022-11-27 18:06   7 US US-IN  FWA KFWA 271706Z 00000KT 5SM -RA BR FEW009 SCT015 OVC044 07/07 A2933 RMK AO2 P0001 T00720067 $  ## [A] Fort Wayne, Fort Wayne International Airport
179714 2022-11-27 18:15  10               KFWB 271715Z AUTO 30011G18KT 260V330 10SM BKN020 OVC024 10/05 A2977 RMK AO2=  ## [A]
179715 2022-11-27 18:15  11 US US-IL  --- KFWC 271715Z AUTO 24011G20KT 10SM OVC013 11/09 A2950 RMK AO1 T01140090=  ## [A] Fairfield, Fairfield Municipal Airport
179726 2022-11-27 17:53   8 US US-NJ  --- KFWN 271653Z AUTO 21003KT 7SM -RA 08/02 A2973 RMK AO2 RAB49 SLP072 P0000 T00830017 $  ## [A] Sussex, Sussex Airport
179731 2022-11-27 16:50  12 US US-TX  --- KFWS 271550Z 31008KT 10SM CLR 12/07 A2995=  ## [A] Fort Worth, Fort Worth Spinks Airport
179738 2022-11-27 18:15 -10               KFWZ 271715Z AUTO 20005KT 1 1/2SM -SN BKN001 M10/M11 A2982 RMK AO2=  ## [A]
179743 2022-11-27 17:53  30 US US-FL  FXE KFXE 271653Z 23010KT 10SM SCT030 30/22 A3002 RMK AO2 SLP168 T03000222=  ## [A] Fort Lauderdale, Fort Lauderdale Executive Airport
179763 2022-11-27 18:15   2 US US-IA  FXY KFXY 271715Z AUTO 34012G18KT 10SM CLR 02/M01 A2979 RMK AO2=  ## [A] Forest City, Forest City Municipal Airport
179769 2022-11-27 18:15  12 US US-TN  --- KFYE 271715Z AUTO 22011G20KT 10SM OVC021 12/07 A2975 RMK A01=  ## [A] Somerville, Fayette County Airport
179771 2022-11-27 18:15   7               KFYG 271715Z AUTO 31008G13KT 10SM BKN014 07/07 A2965 RMK AO2=  ## [A]
179774 2022-11-27 18:15  14 US US-VA  --- KFYJ 271715Z AUTO 15013G16KT 3SM SCT010 BKN021 OVC034 14/14 A2973 RMK AO1 P0008 T01400135=  ## [A] West Point, Middle Peninsula Regional Airport
179777 2022-11-27 18:15  11 US US-TN  FYM KFYM 271715Z AUTO 22016G23KT 10SM OVC027 11/06 A2978 RMK A01=  ## [A] Fayetteville, Fayetteville Municipal Airport
179786 2022-11-27 17:53   9 US US-AR  FYV KFYV 271653Z 30008KT 9SM OVC018 09/06 A2981 RMK AO2 SLP093 T00940056=  ## [A] Fayetteville, Drake Field
179797 2022-11-27 18:15  23 US US-GA  --- KFZG 271715Z AUTO 24014G24KT 10SM CLR 23/10 A2988 RMK AO2 T02310101=  ## [A] Fitzgerald, Fitzgerald Municipal Airport
179815 2022-11-27 16:54   7 US US-NY  --- KFZY 271554Z AUTO VRB03KT 10SM OVC100 07/M02 A2967 RMK AO2 SLP049 T00671017=  ## [A] Fulton, Oswego County Airport
179820 2022-11-27 17:56  16 US US-AL  GAD KGAD 271656Z AUTO 25013G22KT 10SM FEW042 16/07 A2984 RMK AO2 PK WND 26026/1628 SLP107 P0001 T01610072 $  ## [A] Gadsden, Northeast Alabama Regional Airport
179822 2022-11-27 18:15  -4 US US-ND  --- KGAF 271715Z AUTO 22006KT 9SM CLR M04/M06 A2987 RMK AO2=  ## [A] Grafton, Hutson Field
179823 2022-11-27 17:53   5 US US-OK  GAG KGAG 271653Z AUTO 36013G18KT 10SM SCT090 05/M03 A2999 RMK AO2 SLP159 T00501028=  ## [A] Gage, Gage Airport
179825 2022-11-27 17:56   9 US US-MD  GAI KGAI 271656Z AUTO 17009KT 6SM -RA BR BKN006 OVC011 09/08 A2970 RMK AO2 RAE00B19 CIG 005V009 SLP073 P0005 T00890083=  ## [A] Gaithersburg, Montgomery County Airpark
179831 2022-11-27 18:15  23 US US-LA  --- KGAO 271715Z AUTO 23006KT 10SM CLR 23/13 A2999 RMK AO2 T02250125=  ## [A] Galliano, South Lafourche Leonard Miller Jr Airport
179846 2022-11-27 17:56   5 US US-KS  GBD KGBD 271656Z AUTO 35019G25KT 10SM FEW100 05/M03 A2998 RMK AO2 PK WND 34026/1612 SLP157 T00501028=  ## [A] Great Bend, Great Bend Municipal Airport
179849 2022-11-27 18:15   6 US US-IL  GBG KGBG 271715Z AUTO 32012G16KT 10SM -DZ SCT038 SCT048 BKN070 06/04 A2961 RMK AO2 T00620043=  ## [A] Galesburg, Galesburg Municipal Airport
179853 2022-11-27 18:15  24               KGBK 271715Z AUTO 16007KT 10SM CLR 24/11 A2998 RMK A01=  ## [A]
179856 2019-12-04 16:55  13 US US-AZ  --- KGBN 041555Z 00000KT 10SM BKN100 BKN140 13/12 A3002 RMK AO2A SLP162=  ## [A] Gila Bend, Gila Bend Af Aux Airport
179871 2022-11-27 17:53   1 US US-WY  GCC KGCC 271653Z AUTO 18010G17KT 10SM CLR 01/M02 A2970 RMK AO2 SLP080 T00111022=  ## [A] Gillette, Gillette Campbell County Airport
179872 2022-11-27 18:15   4 US US-OR  JDA KGCD 271715Z AUTO 23011G18KT 10SM BKN065 04/M08 A2998 RMK AO2 T00431076=  ## [A] John Day, Grant Co Regional/Ogilvie Field
179879 2022-11-27 17:54   4 US US-KS  GCK KGCK 271654Z 36015KT 10SM SCT110 04/M07 A3000 RMK AO2 SLP166 T00441067=  ## [A] Garden City, Garden City Regional Airport
179881 2022-11-27 18:15   9 US US-OK  --- KGCM 271715Z AUTO 32010KT 10SM OVC018 09/05 A2988 RMK AO2=  ## [A] Claremore, Claremore Regional Airport
179882 2022-11-27 18:14   4 US US-AZ  GCN KGCN 271714Z 22005KT 10SM CLR 04/M09 A3016 RMK AO2 T00391094=  ## [A] Grand Canyon, Grand Canyon National Park Airport
179893 2022-11-27 18:15  19 US US-TN  GCY KGCY 271715Z AUTO 26019G32KT 10SM FEW041 SCT049 BKN065 19/09 A2962 RMK A01=  ## [A] Greeneville, Greeneville-Greene County Municipal Airport
179895 2022-11-27 18:15  10               KGDA 271715Z AUTO 23015G22KT 10SM OVC015 10/07 A2958 RMK AO2 T01010070=  ## [A]
179896 2022-11-27 18:15   2 US US-MN  --- KGDB 271715Z AUTO 30009KT 10SM CLR 02/M01 A2991 RMK AO2 T00161006=  ## [A] Granite Falls, Granite Falls Municipal-Lenzen-Roe Memorial Field
179904 2022-11-27 18:15  13 US US-TX  --- KGDJ 271715Z AUTO 33003KT 10SM CLR 13/06 A2997 RMK AO2 T01270064=  ## [A] Granbury, Granbury Regional Airport
179910 2022-11-04 17:51   8               KGDP 041651Z AUTO 25039G54KT 9SM CLR 08/M06 A3001 RMK AO2 PK WND 26057/1603 SLP121 T00781056=  ## [A]
179916 2022-11-27 17:56   0 US US-MT  GDV KGDV 271656Z AUTO 21014KT 10SM CLR 00/M01 A2967 RMK AO2 SLP073 T00001011 FZRANO=  ## [A] Glendive, Dawson Community Airport
179924 2022-11-27 17:54  14 US US-DE  GED KGED 271654Z AUTO 20011KT 10SM FEW030 BKN038 BKN110 14/06 A2977 RMK AO2 SLP082 T01390056=  ## [A] Georgetown, Sussex County Airport
179927 2022-11-27 17:53   2 US US-WA  GEG KGEG 271653Z 25023G29KT 10SM FEW015 SCT036 BKN180 02/M01 A2972 RMK AO2 PK WND 23034/1607 SLP082 T00221011 $  ## [A] Spokane, Spokane International Airport
179941 2022-11-27 17:56  12 US US-AZ  --- KGEU 271656Z 00000KT 10SM SKC 12/M04 A3013=  ## [A] Glendale, Glendale Municipal Airport
179942 2022-11-27 18:15  14 US US-NC  --- KGEV 271715Z AUTO 17008G19KT 120V200 10SM SCT022 SCT027 14/11 A2963 RMK AO2 T01440105=  ## [A] Jefferson, Ashe County Airport
179945 2022-11-27 17:53  -4 US US-WY  GEY KGEY 271653Z AUTO 11005KT 10SM FEW001 M04/M06 A2979 RMK AO2 SLP124 T10441056 $  ## [A] Greybull, South Big Horn County Airport
179946 2022-11-27 18:16  12 US US-IN  --- KGEZ 271716Z AUTO 21019G30KT 10SM -RA BKN018 OVC055 12/08 A2940 RMK AO2 PK WND 21030/1710 P0000 T01170083=  ## [A] Shelbyville, Shelbyville Municipal Airport
179947 2022-11-27 17:55   3 US US-MT  GFA KGFA 271655Z AUTO 22017G24KT 10SM CLR 03/M07 A2957 RMK AO2 PK WND 23027/35 SLP038 T00341066 $  ## [A] Great Falls, Malmstrom Air Force Base
179957 2022-11-27 17:53  -4 US US-ND  GFK KGFK 271653Z 21004KT 10SM FEW130 M04/M06 A2987 RMK AO2 SLP128 T10391061=  ## [A] Grand Forks, Grand Forks International Airport
179958 2022-11-27 17:53   8 US US-NY  GFL KGFL 271653Z AUTO 22005KT 10SM FEW120 08/M02 A2972 RMK AO2 SLP070 T00831022=  ## [A] Glens Falls, Floyd Bennett Memorial Airport
179977 2022-11-27 18:15  23 US US-SC  GGE KGGE 271715Z AUTO 21013G24KT 10SM SCT090 23/20 A2981 RMK AO2=  ## [A] Georgetown, Georgetown County Airport
179978 2022-11-27 18:15   4 US US-NE  --- KGGF 271715Z AUTO 30009KT 10SM CLR 04/M04 A2994 RMK AO2=  ## [A] Grant, Grant Municipal Airport
179979 2022-11-27 17:53  14 US US-TX  GGG KGGG 271653Z 29006KT 10SM CLR 14/07 A2990 RMK AO2 SLP125 T01440072 $  ## [A] Longview, East Texas Regional Airport
179981 2022-11-23 16:15   6 US US-IA  --- KGGI 231515Z AUTO 20007KT 10SM CLR 06/04 A3010 RMK AO2 T00600038=  ## [A] Grinnell, Grinnell Regional Airport
179988 2022-11-27 18:15   7 US US-IN  --- KGGP 271715Z AUTO 00000KT 3SM RA SCT002 BKN007 OVC016 07/07 A2933 RMK AO2 P0002=  ## [A] Logansport, Logansport Cass County Airport
179995 2022-11-27 17:53   1 US US-MT  GGW KGGW 271653Z AUTO 18003KT 10SM FEW065 OVC090 01/M02 A2959 RMK AO2 SLP045 T00111022=  ## [A] Glasgow, Wokal Field Glasgow International Airport
180000 2022-11-22 00:20  18               KGHB 212320Z AUTO 03028KT 6SM HZ SCT050 18/12 A3026 RMK A01=  ## [A]
180005 2022-11-27 18:15  12 US US-MA  --- KGHG 271715Z AUTO 22006KT 10SM 12/M02 A2975 RMK AO2=  ## [A] Marshfield, Marshfield Municipal George Harlow Field
180021 2022-11-27 18:15  -1 US US-MN  --- KGHW 271715Z AUTO 30007KT 10SM CLR M01/M02 A2987 RMK AO2=  ## [A] Glenwood, Glenwood Municipal Airport
180027 2022-11-27 18:15   2               KGIC 271715Z AUTO 22019G32KT 10SM SCT021 BKN041 OVC060 02/M03 A2980 RMK AO1=  ## [A]
180028 2021-11-10 02:56  19               KGID 100156Z 22015G24KT 10SM FEW080 SCT250 19/05 A3004 RMK AO2 PK WND 24030/0114 PRESRR SLP161 T01940050 $ =  ## [A]
180030 2022-11-27 17:53  28 US US-FL  GIF KGIF 271653Z AUTO 23009G19KT 10SM FEW023 SCT036 BKN046 28/21 A3002 RMK AO2 SLP163 T02780211=  ## [A] Winter Haven, Winter Haven Regional Airport - Gilbert Field
180070 2022-11-27 17:53   2 US US-CO  GJT KGJT 271653Z 00000KT 10SM CLR 02/01 A3012 RMK AO2 SLP200 T00220006=  ## [A] Grand Junction, Grand Junction Regional Airport
180086 2022-11-27 18:11   7 US US-PA  MEJ KGKJ 271711Z AUTO VRB04KT 5SM -RA BR OVC004 07/07 A2942 RMK AO2 CIG 003V008 P0001 T00720067=  ## [A] Meadville, Port Meadville Airport
180096 2022-11-27 18:15  19 US US-TN  GKT KGKT 271715Z AUTO 27018G26KT 10SM FEW060 BKN070 BKN075 19/09 A2965 RMK A01=  ## [A] Sevierville, Gatlinburg-Pigeon Forge Airport
180101 2022-11-27 17:53  14 US US-TX  --- KGKY 271653Z 31010KT 10SM CLR 14/07 A2994 RMK AO2 SLP134 T01390067=  ## [A] Arlington, Arlington Municipal Airport
180106 2022-11-27 17:53 XXX US US-KS  GLD KGLD 271653Z AUTO A2998 RMK AO2 SLPNO PWINO FZRANO $  ## [A] Goodland, Renner Field-Goodland Municipal Airport
180107 2022-11-27 18:15  13 US US-TX  GLE KGLE 271715Z AUTO 32006KT 10SM CLR 13/07 A2995 RMK AO2 T01320066 PWINO=  ## [A] Gainesville, Gainesville Municipal Airport
180110 2022-11-27 17:53  15 US US-MS  GLH KGLH 271653Z 26010KT 10SM CLR 15/08 A2983 RMK AO2 SLP109 T01500083=  ## [A] Greenville, Mid Delta Regional Airport
180120 2022-11-27 17:53   4 US US-MI  GLR KGLR 271653Z AUTO VRB06KT 9SM -RA OVC007 04/01 A2950 RMK AO2 RAB48 SLP998 P0000 T00390011=  ## [A] Gaylord, Gaylord Regional Airport
180121 2022-11-27 17:52  28 US US-TX  GLS KGLS 271652Z 23015G22KT 10SM CLR 28/16 A2995 RMK AO2 SLP143 T02780156 $  ## [A] Galveston, Scholes International At Galveston Airport
180125 2022-11-27 18:15  14 US US-KY  GLW KGLW 271715Z AUTO 23021G28KT 10SM BKN035 OVC042 14/07 A2962 RMK AO2 T01430067=  ## [A] Glasgow, Glasgow Municipal Airport
180126 2022-11-27 18:15  23               KGLX 271715Z AUTO VRB06KT 10SM CLR 23/12 A3001 RMK A01=  ## [A]
180127 2022-11-27 18:15   7 US US-MO  --- KGLY 271715Z AUTO 31011KT 10SM OVC015 07/04 A2978 RMK AO2=  ## [A] Clinton, Clinton Memorial Airport
180138 2022-11-27 18:15   8 US US-OK  --- KGMJ 271715Z AUTO 30009G15KT 10SM OVC016 08/05 A2985 RMK AO2=  ## [A] Grove, Grove Municipal Airport
180149 2022-11-27 18:08  17 US US-SC  GMU KGMU 271708Z 23015G21KT 10SM BKN010 OVC015 17/14 A2972 RMK AO2 CIG 007V011 T01720144=  ## [A] Greenville, Greenville Downtown Airport
180155 2022-11-27 17:56   3               KGNA 271656Z AUTO 16004KT 03/M03 A2978 RMK AO1 SLP093 T00281028=  ## [A]
180156 2022-11-27 18:15  -3 US US-CO  --- KGNB 271715Z AUTO 00000KT 10SM SCT031 SCT037 OVC044 M03/M07 A3001 RMK AO2 T10301074=  ## [A] Granby, Granby Grand County Airport
180157 2022-11-27 18:10   8 US US-TX  --- KGNC 271710Z AUTO 03008KT 10SM CLR 08/01 A3007 RMK AO2 T00810011=  ## [A] Seminole, Gaines County Airport
180161 2022-11-27 18:15   1 US US-ID  GNG KGNG 271715Z AUTO 08004KT 10SM OVC080 01/01 A3009 RMK AO2=  ## [A] Gooding, Gooding Municipal Airport
180172 2022-11-27 17:56   9               KGNR 271656Z AUTO 25003KT 09/M04 A2961 RMK AO1 SLP035 T00941044=  ## [A]
180174 2022-11-27 18:15   6 US US-NM  GNT KGNT 271715Z AUTO 32017G23KT 10SM CLR 06/M10 A3012 RMK AO2 T00621101=  ## [A] Grants, Grants-Milan Municipal Airport
180176 2022-11-27 18:13  24 US US-FL  GNV KGNV 271713Z 24016G23KT 4SM -RA BR FEW019 SCT030 BKN050 24/22 A2996 RMK AO2 PK WND 22032/1703 RAB1655 P0013 T02390222=  ## [A] Gainesville, Gainesville Regional Airport
180191 2022-11-27 17:53   7 US US-OK  GOK KGOK 271653Z AUTO 34008G16KT 310V010 10SM FEW023 07/01 A2995 RMK AO2 SLP146 T00670011=  ## [A] Guthrie, Guthrie-Edmond Regional Airport
180194 2022-11-27 17:56  13 US US-CT  GON KGON 271656Z 22006KT 10SM CLR 13/07 A2978 RMK AO2 SLP083 T01280067 $  ## [A] Groton (New London), Groton New London Airport
180195 2022-11-27 18:15  12 US US-CA  --- KGOO 271715Z AUTO VRB05KT 10SM CLR 12/M03 A3014 RMK A01=  ## [A] Grass Valley, Nevada County Airport
180196 2022-11-27 18:15  14 US US-TX  --- KGOP 271715Z AUTO 10SM CLR 14/06 A2998 RMK AO2=  ## [A] Gatesville, Gatesville Municipal Airport
180202 2022-11-27 17:58   5 US US-MI  --- KGOV 271658Z AUTO 04008KT 9SM BKN090 OVC130 05/01 A2947 RMK AO2 SLP994 T00490005 $  ## [A] Grayling, Grayling Army Air Field
180206 2021-10-27 22:59  28               KGOZ 272059Z AUTO 33008G19KT 10SM CLR 28/00 A3011 RMK AO2 SLP144 T02780000 58028 =  ## [A]
180209 2022-11-27 18:15  10               KGPC 271715Z AUTO 21012G22KT 4SM BR OVC007 10/09 A2939 RMK AO2 T00980090=  ## [A]
180214 2022-11-27 17:55   5 US US-MO  --- KGPH 271655Z AUTO 30009G17KT 10SM OVC020 05/01 A2981 RMK AO2=  ## [A] Mosby, Midwest National Air Center Airport
180215 2022-11-27 17:55   1 US US-MT  FCA KGPI 271655Z 18014KT 3SM -SN BKN017 OVC026 01/M02 A2954 RMK AO2 PK WND 17028/1628 SNB10 SLP023 P0000 T00111017=  ## [A] Kalispell, Glacier Park International Airport
180219 2022-11-27 17:50  13 US US-TX  --- KGPM 271650Z 31006KT 10SM SKC 13/06 A2995=  ## [A] Grand Prairie, Grand Prairie Municipal Airport
180226 2022-11-27 17:53  19 US US-MS  GPT KGPT 271653Z VRB03KT 10SM CLR 19/12 A2997 RMK AO2 SLP147 T01940117=  ## [A] Gulfport, Gulfport Biloxi International Airport
180232 2022-11-27 17:56   0 US US-MN  GPZ KGPZ 271656Z AUTO 34006KT 10SM CLR 00/M03 A2985 RMK AO2 SLP127 T00001033 FZRANO=  ## [A] Grand Rapids, Grand Rapids Itasca Co-Gordon Newstrom field
180260 2022-11-27 17:53   4 US US-WI  GRB KGRB 271653Z 01013KT 10SM FEW023 OVC075 04/M01 A2962 RMK AO2 PK WND 03029/1556 SLP035 T00441006=  ## [A] Green Bay, Austin Straubel International Airport
180262 2022-11-27 18:06  22 US US-SC  GRD KGRD 271706Z AUTO 22012KT 10SM SCT015 22/18 A2973 RMK AO2 T02170178 $  ## [A] Greenwood, Greenwood County Airport
180264 2022-11-27 17:55   5 US US-WA  GRF KGRF 271655Z 00000KT 10SM FEW050 SCT200 05/M00 A3000 RMK AO2A SLP164 T00451005 $  ## [A] Fort Lewis/Tacoma, Gray Army Air Field
180267 2022-11-27 17:53   2 US US-NE  GRI KGRI 271653Z 32010KT 10SM CLR 02/M04 A2997 RMK AO2 SLP165 T00221039 $  ## [A] Grand Island, Central Nebraska Regional Airport
180269 2022-11-27 17:55  14 US US-TX  GRK KGRK 271655Z AUTO 33007KT 8SM CLR 14/07 A2993 RMK AO2 SLP135 T01430066=  ## [A] Fort Hood/Killeen, Robert Gray  Army Air Field Airport
180272 2022-11-27 18:15   2 US US-NE  GRN KGRN 271715Z AUTO 23013G18KT 10SM CLR 02/M03 A2986 RMK AO2 T00181034=  ## [A] Gordon, Gordon Municipal Airport
180276 2022-11-27 18:06   4 US US-MI  GRR KGRR 271706Z 05008KT 8SM -DZ BKN009 OVC060 04/03 A2942 RMK AO2 P0000 T00440033=  ## [A] Grand Rapids, Gerald R. Ford International Airport
180283 2022-11-27 18:15  23               KGRY 271715Z AUTO 17004KT 10SM CLR 23/11 A3001 RMK A01=  ## [A]
180286 2022-11-27 17:56  22 US US-NC  GSB KGSB 271656Z AUTO 14008G20KT 10SM -RA OVC016 22/19 A2972 RMK AO2 RAB56 SLP067 $  ## [A] Goldsboro, Seymour Johnson Air Force Base
180292 2022-11-27 18:01   6 US US-IN  GSH KGSH 271701Z AUTO 04007KT 2SM RA BR OVC006 06/04 A2935 RMK AO2 P0002 T00560044=  ## [A] Goshen, Goshen Municipal Airport
180299 2022-11-27 18:12  17 US US-NC  GSO KGSO 271712Z 23014KT 10SM OVC010 17/17 A2966 RMK AO2 PK WND 21027/1700 RAE1655 CIG 008V014 P0000 T01720167=  ## [A] Greensboro, Piedmont Triad International Airport
180300 2022-11-27 17:53  16 US US-SC  GSP KGSP 271653Z 22006KT 10SM BKN010 BKN014 16/13 A2972 RMK AO2 SLP058 T01610133=  ## [A] Greenville, Greenville Spartanburg International Airport
180312 2022-11-27 17:55   5 US US-NY  --- KGTB 271655Z AUTO 15009KT 10SM BKN110 OVC140 05/M03 A2960 RMK AO2 SLP028 T00541034=  ## [A] Fort Drum, Wheeler Sack Army Air Field
180316 2022-11-27 17:53   3 US US-MT  GTF KGTF 271653Z 21026G34KT 10SM CLR 03/M07 A2957 RMK AO2 PK WND 20034/1622 PRESFR SLP041 T00331072 $  ## [A] Great Falls, Great Falls International Airport
180328 2022-11-27 17:56  16 US US-MS  GTR KGTR 271656Z 25011G16KT 10SM FEW041 16/08 A2985 RMK AO2 SLP116 T01560078=  ## [A] Columbus/W Point/Starkville, Golden Triangle Regional Airport
180331 2022-11-27 17:56  15 US US-TX  --- KGTU 271656Z VRB05KT 10SM CLR 15/05 A2998 RMK AO2 SLPNO T01500050 $  ## [A] Georgetown, Georgetown Municipal Airport
180339 2022-11-27 17:56  -1 US US-CO  GUC KGUC 271656Z AUTO 25013KT 10SM FEW018 SCT048 M01/M04 A3004 RMK AO2 SLP176 T10061044 FZRANO=  ## [A] Gunnison, Gunnison Crested Butte Regional Airport
180348 2022-11-27 18:10  24               KGUL 271710Z AUTO 23006KT 10SM CLR 24/15 A2998 RMK A01=  ## [A]
180352 2022-11-27 17:53   4 US US-NM  GUP KGUP 271653Z AUTO 30011KT 10SM -RA CLR 04/M07 A3013 RMK AO2 RAB34SNB39E49 SLP178 P0000 T00391067=  ## [A] Gallup, Gallup Municipal Airport
180354 2022-11-27 17:55   1               KGUR 271655Z AUTO 13004KT 10SM CLR 01/01 A2983 RMK AO2 SLP126 T00100009=  ## [A]
180355 2022-11-27 17:55   9 US US-IN  GUS KGUS 271655Z 20004KT 6SM -RA BR OVC006 09/09 A2931 RMK AO2A SLP930 WND DATA ESTMD P0005 T00900085 $  ## [A] Peru, Grissom Air Reserve Base
180361 2022-11-27 17:53   6 US US-OK  GUY KGUY 271653Z AUTO 02012KT 10SM BKN055 OVC070 06/M07 A3003 RMK AO2 SLP171 T00561067=  ## [A] Guymon, Guymon Municipal Airport
180367 2022-11-01 18:55  23               KGVE 011755Z AUTO 27003KT 10SM SCT050 23/11 A3006 RMK AO1 6//// T02310113=  ## [A]
180374 2022-11-27 17:53  18 US US-GA  GVL KGVL 271653Z AUTO 26015G33KT 10SM CLR 18/07 A2978 RMK AO2 PK WND 26036/1641 SLP076 T01830072=  ## [A] Gainesville, Lee Gilmer Memorial Airport
180379 2022-11-27 18:20   6 US US-NY  --- KGVQ 271720Z AUTO VRB06KT 8SM -RA FEW020 BKN025 OVC038 06/02 A2952 RMK AO2 P0000=  ## [A] Batavia, Genesee County Airport
180382 2022-11-27 18:15  13 US US-TX  GVT KGVT 271715Z AUTO 34006KT 10SM CLR 13/07 A2992 RMK AO2 TSNO T01330067=  ## [A] Greenville, Majors Airport
180385 2022-11-27 18:10  17 US US-MO  GVW KGVW 271710Z AUTO 24011KT 9SM CLR 17/15 A2996 RMK A01=  ## [A] Belton, Richards-Gebaur Air Force Base
180390 2022-11-27 18:15   6 US US-IN  --- KGWB 271715Z AUTO 04005KT 5SM RA SCT015 BKN031 OVC050 06/06 A2933 RMK AO2 P0002=  ## [A] Auburn, De Kalb County Airport
180403 2022-11-27 17:53  15 US US-MS  GWO KGWO 271653Z AUTO 23014G24KT 10SM CLR 15/07 A2985 RMK AO2 SLP105 T01500072=  ## [A] Greenwood, Greenwood?Leflore Airport
180406 2022-11-27 18:15   0 US US-ND  --- KGWR 271715Z AUTO 25006KT 10SM CLR M00/M00 A2989 RMK A01=  ## [A] Gwinner, Gwinner Roger Melroe Field
180411 2022-11-27 18:15  21 US US-NC  --- KGWW 271715Z AUTO 17010G17KT 10SM BKN017 BKN023 OVC033 21/20 A2974 RMK AO2 T02100195=  ## [A] Goldsboro, Goldsboro-Wayne Municipal Airport
180415 2021-12-24 19:58  12               KGXA 241858Z AUTO 30008KT 10SM CLR 12/05 A2978 RMK AO2 SLP076 WND DATA ESTMD T01220048=  ## [A]
180420 2022-11-27 17:55  12               KGXF 271655Z AUTO 04003KT 10SM CLR 12/M06 A3013 RMK AO2 SLP201 T01171062 FZRANO $  ## [A]
180439 2022-11-27 17:56   4 US US-CO  GXY KGXY 271656Z 23005KT 10SM CLR 04/M01 A2994 RMK AO2 SLP153 T00441006 $  ## [A] Greeley, Greeley?Weld County Airport
180442 2022-11-27 18:15  18 US US-TX  --- KGYB 271715Z AUTO 34006KT 10SM CLR 18/06 A2996 RMK AO2 T01840058=  ## [A] Giddings, Giddings Lee County Airport
180446 2022-11-27 18:15  24               KGYF 271715Z AUTO 19009KT 10SM CLR 24/15 A2996 RMK AO2 T02410146=  ## [A]
180448 2022-11-27 17:47  17 US US-SC  GDC KGYH 271647Z 23013KT 7SM BKN006 BKN010 17/16 A2972=  ## [A] Greenville, Donaldson Field Airport
180449 2022-11-27 17:50  13 US US-TX  PNX KGYI 271650Z 27006KT 10SM CLR 13/07 A2994=  ## [A] Sherman/Denison, North Texas Regional Airport/Perrin Field
180452 2022-11-27 18:15   2 US US-MN  --- KGYL 271715Z AUTO 34008KT 7SM CLR 02/M01 A2984 RMK AO2 T00151014=  ## [A] Glencoe, Glencoe Municipal Airport
180458 2022-11-27 17:47  11 US US-AZ  GYR KGYR 271647Z 07004KT 10SM SKC 11/M06 A3014=  ## [A] Goodyear, Phoenix Goodyear Airport
180465 2022-11-27 17:45   6 US US-IN  GYY KGYY 271645Z 36008KT 5SM -RA BR OVC009 06/05 A2945=  ## [A] Gary, Gary Chicago International Airport
180474 2022-11-27 17:53  19 US US-AL  --- KGZH 271653Z AUTO 23008KT 10SM CLR 19/07 A2995 RMK AO2 SLP140 T01890072=  ## [A] Evergreen, Evergreen Regional Airport/Middleton Field
180478 2022-11-27 18:15  11               KGZL 271715Z AUTO 31009KT 10SM BKN020 OVC025 11/08 A2986 RMK AO2=  ## [A]
180480 2022-11-27 18:00  12 US US-TX  --- KGZN 271700Z AUTO 35007KT 10SM 12/06 A2995 RMK AO2=  ## [A] Cisco, Gregory M. Simmons Memorial Airport
180485 2022-11-27 18:15  12 US US-TN  --- KGZS 271715Z AUTO 22010G16KT 10SM OVC028 12/07 A2975 RMK A01=  ## [A] Pulaski, Abernathy Field
180497 2022-11-27 18:15   7 US US-MO  --- KHAE 271715Z AUTO 32011G19KT 10SM BKN017 OVC090 07/03 A2966 RMK AO2=  ## [A] Hannibal, Hannibal Regional Airport
180498 2022-11-27 18:15  -1 US US-CA  HAF KHAF 271715Z AUTO 00000KT M1/4SM FG OVC002 09/09 A3014 RMK AO2=  ## [A] Half Moon Bay, Half Moon Bay Airport
180501 2022-11-27 18:11   4 US US-MI  HAI KHAI 271711Z AUTO 35008KT 2SM UP BKN008 OVC014 04/03 A2938 RMK AO2=  ## [A] Three Rivers, Three Rivers Municipal Dr Haines Airport
180506 2019-06-06 07:00  35               KHAN 060500Z 18004KT 7000 NSC 35/26 Q1003=  ## [A]
180507 2022-11-27 17:53  12 US US-OH  HAO KHAO 271653Z AUTO 23011G19KT 200V270 10SM FEW047 SCT065 OVC100 12/09 A2944 RMK AO2 PK WND 25031/1624 RAB09E51 SLP969 P0006 T01220094=  ## [A] Hamilton, Butler Co Regional Airport - Hogan Field
180525 2022-11-27 17:53  19 US US-MS  HBG KHBG 271653Z AUTO 26012G23KT 10SM CLR 19/07 A2995 RMK AO2 SLP140 T01890072=  ## [A] Hattiesburg, Hattiesburg Bobby L Chain Municipal Airport
180527 2022-11-27 18:15  19 US US-NC  --- KHBI 271715Z AUTO 20016G26KT 10SM OVC012 19/18 A2969 RMK AO2 T01920177=  ## [A] Asheboro, Asheboro Regional Airport
180536 2022-11-27 17:53   7 US US-OK  HBR KHBR 271653Z AUTO 36014KT 10SM 07/01 A2998 RMK AO2 SLP156 T00720011 $  ## [A] Hobart, Hobart Regional Airport
180540 2022-11-27 18:15  24 US US-TX  --- KHBV 271715Z AUTO 00000KT 7SM CLR 24/14 A2995 RMK AO2 T02410138=  ## [A] Hebbronville, Jim Hogg County Airport
180548 2022-11-27 18:15   2 US US-MN  --- KHCD 271715Z AUTO 30007KT 10SM CLR 02/M02 A2986 RMK AO2 T00211018=  ## [A] Hutchinson, Hutchinson Municipal Butler Field
180559 2022-11-27 18:15  -9 US US-MN  --- KHCO 271715Z AUTO 14003KT 7SM SCT001 M09/M10 A2985 RMK AO2=  ## [A] Hallock, Hallock Municipal Airport
180562 2022-11-27 18:15   0               KHCR 271715Z AUTO 00000KT 10SM CLR 00/M04 A3012 RMK AO2=  ## [A]
180573 2022-11-27 14:21   9 US US-LA  --- KHDC 271321Z AUTO 00000KT 10SM CLR 09/08 A2994 RMK AO2=  ## [A] Hammond, Hammond Northshore Regional Airport
180575 2022-11-27 18:15   2 US US-NE  HDE KHDE 271715Z AUTO 35009KT 10SM CLR 02/M04 A2996 RMK AO2 T00241044=  ## [A] Holdrege, Brewster Field
180582 2022-11-27 18:15  18               KHDL 271715Z AUTO 24015KT 10SM CLR 18/11 A2993 RMK AO2=  ## [A]
180584 2022-11-27 17:56  -2 US US-CO  HDN KHDN 271656Z AUTO 28006KT 5SM -SN BKN033 OVC046 M02/M04 A3008 RMK AO2 SLP206 P0000 T10171044 FZRANO=  ## [A] Hayden, Yampa Valley Airport
180585 2022-11-27 17:51  17 US US-TX  --- KHDO 271651Z AUTO 00000KT 10SM CLR 17/10 A2997 RMK AO2 SLP144 T01670100=  ## [A] Hondo, South Texas Regional Airport at Hondo
180602 2022-11-27 17:56   9 US US-VA  MNZ KHEF 271656Z 17006KT 5SM -RA BR SCT009 OVC013 09/08 A2970 RMK AO2 SLP065 P0003 T00890083=  ## [A] Manassas, Manassas Regional Airport/Harry P. Davis Field
180603 2022-11-27 18:15  24 US US-FL  --- KHEG 271715Z AUTO 21010G20KT 180V250 1/4SM DZ BKN002 OVC018 24/22 A2993 RMK AO2 LTG DSNT ALQDS=  ## [A] Jacksonville, Herlong Airport
180605 2022-11-27 17:53   0 US US-ND  --- KHEI 271653Z AUTO 18009KT 10SM CLR 00/M03 A2976 RMK AO2 SLP106 T00001033=  ## [A] Hettinger, Hettinger Municipal Airport
180613 2022-11-27 18:15   6 US US-CO  --- KHEQ 271715Z AUTO 27006KT 10SM CLR 06/M03 A2995 RMK AO2=  ## [A] Holyoke, Holyoke Airport
180621 2022-11-27 17:55  18               KHEY 271655Z AUTO 27006KT 10SM CLR 18/09 A2991 RMK AO2 SLP129 T01790093=  ## [A]
180622 2022-11-27 17:56  18 US US-MS  HEZ KHEZ 271656Z AUTO 25007G20KT 200V280 10SM CLR 18/09 A2993 RMK AO2 SLP133 T01780089=  ## [A] Natchez, Hardy-Anders Field / Natchez-Adams County Airport
180626 2022-11-27 17:53  11 US US-CT  HFD KHFD 271653Z 17007KT 10SM FEW120 11/M01 A2975 RMK AO2 SLP072 T01111006=  ## [A] Hartford, Hartford Brainard Airport
180628 2022-11-27 18:09  22 US US-NC  HFF KHFF 271709Z AUTO 23018G23KT 9SM RA SCT014 BKN019 OVC026 22/21 A2967 RMK AO2 RAB03 CIG 014V019 SLP049 $  ## [A] Camp Mackall, Mackall Army Air Field
180632 2022-11-27 18:15   7 US US-MO  --- KHFJ 271715Z AUTO 30010G17KT 10SM OVC015 07/04 A2981 RMK AO2=  ## [A] Monett, Monett Municipal Airport
180647 2022-11-27 18:15  11 US US-IN  --- KHFY 271715Z AUTO 22011G21KT 10SM OVC018 11/10 A2940 RMK AO2 T01100095=  ## [A] Indianapolis, Indy South Greenwood Airport
180666 2022-11-27 18:08   8 US US-MD  HGR KHGR 271708Z 19005KT 8SM -RA BKN012 OVC020 08/06 A2964 RMK AO2 P0000 T00780056=  ## [A] Hagerstown, Hagerstown Regional Richard A Henson Field
180668 2019-10-09 19:55  30               KHGT 091755Z 00000KT 7SM SKC 30/02 A2973=  ## [A]
180680 2022-11-27 18:15   6 US US-TX  --- KHHF 271715Z AUTO 36011KT 10SM CLR 06/M03 A3002 RMK AO2 T00601029=  ## [A] Canadian, Hemphill County Airport
180681 2022-11-25 09:55   7 US US-IN  --- KHHG 250855Z AUTO 31004KT 7SM OVC007 07/07 A3007 RMK AO2 T00720072=  ## [A] Huntington, Huntington Municipal Airport
180692 2022-11-27 17:53  16 US US-CA  HHR KHHR 271653Z 00000KT 10SM CLR 16/04 A3010 RMK AO2 SLP191 T01560039=  ## [A] Hawthorne, Jack Northrop Field Hawthorne Municipal Airport
180696 2022-11-27 18:15  23               KHHV 271715Z AUTO VRB06G13KT 10SM CLR 23/15 A2995 RMK A01=  ## [A]
180697 2022-11-27 18:17  12 US US-OK  HUJ KHHW 271717Z AUTO 28006KT 10SM SCT023 12/06 A2989 RMK AO2=  ## [A] Hugo, Stan Stamper Municipal Airport
180702 2022-11-27 17:53  -1 US US-MN  HIB KHIB 271653Z AUTO 33003KT 10SM BKN041 M01/M05 A2982 RMK AO2 SLP116 T10111050=  ## [A] Hibbing, Range Regional Airport
180705 2022-11-27 17:52   8 US US-NH  HIE KHIE 271652Z AUTO 00000KT 10SM CLR 08/M02 A2968 RMK AO2 PRESFR SLP063 T00831017=  ## [A] Whitefield, Mount Washington Regional Airport
180706 2022-11-27 17:55   1 US US-UT  HIF KHIF 271655Z AUTO 18010KT 10SM FEW110 01/00 A3011 RMK AO2 SLP207 T00090000=  ## [A] Ogden, Hill Air Force Base
180709 2022-11-27 18:15  14 US US-AZ  HII KHII 271715Z AUTO 33007KT 10SM CLR 14/M04 A3015 RMK AO2=  ## [A] Lake Havasu City, Lake Havasu City Airport
180715 2022-11-27 17:53   7 US US-OR  HIO KHIO 271653Z 00000KT 2 1/2SM -RA BR SCT006 BKN009 OVC026 07/06 A3010 RMK AO2 SLP193 P0005 T00670061=  ## [A] Portland, Portland Hillsboro Airport
180734 2022-11-27 18:15   4 US US-NE  --- KHJH 271715Z AUTO 34012G17KT 10SM CLR 04/M03 A2994 RMK AO2 T00401030=  ## [A] Hebron, Hebron Municipal Airport
180741 2022-11-27 17:53   7 US US-CA  --- KHJO 271653Z AUTO 00000KT 4SM HZ CLR 07/02 A3017 RMK AO2 SLP218 T00720022=  ## [A] Hanford, Hanford Municipal Airport
180753 2022-11-27 17:53  11 US US-AR  HKA KHKA 271653Z AUTO 23014G27KT 10SM BKN019 OVC026 11/08 A2969 RMK AO2 PK WND 22027/1646 SLP053 T01110078 $  ## [A] Blytheville, Blytheville Municipal Airport
180771 2022-11-27 17:53  17 US US-MS  HKS KHKS 271653Z 27008G18KT 10SM CLR 17/07 A2990 RMK AO2 SLP116 T01720072=  ## [A] Jackson, Hawkins Field
180777 2022-11-27 18:11  13 US US-NC  HKY KHKY 271711Z 20004KT 10SM OVC004 13/13 A2967 RMK AO2 T01330128 $  ## [A] Hickory, Hickory Regional Airport
180780 2022-11-27 18:15  11 US US-IN  HLB KHLB 271715Z AUTO 22010G25KT 180V260 10SM BKN023 OVC031 11/07 A2943 RMK A01=  ## [A] Batesville, Hillenbrand Industries Airport
180781 2022-11-27 17:53   4 US US-KS  HLC KHLC 271653Z AUTO 33008KT 10SM FEW100 04/M04 A3000 RMK AO2 SLP167 T00441044=  ## [A] Hill City, Hill City Municipal Airport
180785 2022-11-27 17:53  14 US US-WV  HLG KHLG 271653Z 17011KT 10SM FEW015 BKN045 OVC080 14/12 A2943 RMK AO2 SLP969 T01390117=  ## [A] Wheeling, Wheeling Ohio County Airport
180792 2022-11-27 17:53   3 US US-MT  HLN KHLN 271653Z VRB03G15KT 10SM BKN060 03/M07 A2969 RMK AO2 SLP090 T00331067=  ## [A] Helena, Helena Regional Airport
180796 2022-11-27 17:55  15 US US-TX  HLR KHLR 271655Z AUTO 35005KT 9SM CLR 15/07 A2996 RMK AO2 SLP145 T01450066=  ## [A] Fort Hood(Killeen), Hood Army Air Field
180802 2022-11-27 18:15  12 US US-VA  --- KHLX 271715Z AUTO 18009G21KT 150V210 10SM OVC006 12/10 A2961 RMK AO2 T01230095=  ## [A] Galax Hillsville, Twin County Airport
180809 2022-11-27 18:00  11               KHME 271700Z 35006KT CAVOK 11/M01 Q1015=  ## [A]
180811 2020-05-03 19:00  14               KHMG 031700Z 00000KT 8000 -SHRA FEW030CB SCT035 14/11 Q1014=  ## [A]
180812 2020-08-11 17:50  28               KHMH 111550Z 05010KT CAVOK 28/04 Q1013=  ## [A]
180818 2022-11-27 17:55   9 US US-NM  HMN KHMN 271655Z AUTO 14005KT 10SM CLR 09/M10 A3009 RMK AO2 SLP176 T00941102 $  ## [A] Alamogordo, Holloman Air Force Base
180820 2022-11-27 18:15  18               KHMP 271715Z AUTO 24017G23KT 10SM CLR 18/09 A2986 RMK AO2 T01830093=  ## [A]
180824 2022-11-27 18:15  13 US US-CA  HMT KHMT 271715Z AUTO 00000KT 10SM CLR 13/M02 A3011 RMK AO2 T01281024=  ## [A] Hemet, Hemet Ryan Airport
180830 2022-11-27 18:15   5 US US-PA  --- KHMZ 271715Z AUTO 00000KT 10SM SCT005 BKN045 OVC100 05/05 A2956 RMK AO2 T00500046=  ## [A] Bedford, Bedford County Airport
180832 2022-11-27 17:56  10 US US-IN  HNB KHNB 271656Z AUTO 21019G23KT 4SM -RA BR OVC009 10/09 A2953 RMK AO2 PK WND 21027/1617 RAB02E33B53 CIG 007V013 SLP000 P0000 T01000089=  ## [A] Huntingburg, Huntingburg Airport
180834 2022-11-27 17:56  10 US US-NV  HSH KHND 271656Z 06003KT 10SM CLR 10/M04 A3020 RMK AO2 SLP247 T01001039=  ## [A] Las Vegas, Henderson Executive Airport
180848 2022-11-27 18:15   4 US US-IA  --- KHNR 271715Z AUTO 34016KT 10SM CLR 04/M02 A2986 RMK A01=  ## [A] Harlan, Harlan Municipal Airport
180856 2022-11-27 18:15  16 US US-NC  --- KHNZ 271715Z AUTO 17010KT 4SM RA OVC005 16/16 A2968 RMK AO2 P0003 T01560155=  ## [A] Oxford, Henderson Oxford Airport
180858 2022-11-27 17:50   8 US US-NM  HOB KHOB 271650Z 36012KT 10SM SKC 08/M00 A3004=  ## [A] Hobbs, Lea County Regional Airport
180861 2022-11-27 18:15  22 US US-GA  --- KHOE 271715Z AUTO 27014G22KT 10SM SCT015 BKN023 OVC050 22/18 A2991 RMK AO2 T02260189=  ## [A] Homerville, Homerville Airport
180870 2022-11-27 17:55   0 US US-SD  HON KHON 271655Z AUTO 25003KT 10SM CLR 00/M03 A2993 RMK AO2 SLP151 T00001033 $  ## [A] Huron, Huron Regional Airport
180872 2022-11-27 17:55  12 US US-KY  HOP KHOP 271655Z AUTO 22019KT 10SM OVC026 12/08 A2962 RMK AO2 PK WND 23032/08 SLP031 T01160077=  ## [A] Fort Campbell/Hopkinsville, Campbell AAF (Fort Campbell) Air Field
180876 2022-11-27 17:53  12 US US-AR  HOT KHOT 271653Z AUTO 28010G15KT 10SM BKN018 OVC026 12/08 A2982 RMK AO2 SLP096 T01170078=  ## [A] Hot Springs, Memorial Field
180877 2022-11-27 17:53  21 US US-TX  HOU KHOU 271653Z 25011KT 10SM CLR 21/13 A2994 RMK AO2 SLP143 T02060128=  ## [A] Houston, William P Hobby Airport
180896 2022-11-27 17:56  10 US US-NY  HPN KHPN 271656Z 16006KT 10SM BKN100 10/04 A2975 RMK AO2 RAB20E52 SLP077 P0000 T01000039=  ## [A] White Plains, Westchester County Airport
180902 2022-11-27 18:15   4 US US-IA  HPT KHPT 271715Z AUTO 35013KT 10SM CLR 04/M01 A2976 RMK AO2=  ## [A] Hampton, Hampton Municipal Airport
180915 2022-11-27 18:15   5 US US-KS  --- KHQG 271715Z AUTO 35011G15KT 10SM BKN033 BKN039 05/M07 A3002 RMK AO2 T00461075=  ## [A] Hugoton, Hugoton Municipal Airport
180917 2020-08-03 10:40 XXX               KHQI 030840Z AUTO 25005KT A2996 RMK A01=  ## [A]
180921 2022-11-27 17:53   6 US US-WA  HQM KHQM 271653Z AUTO 29006KT SCT050 BKN085 06/03 A3006 RMK AO2 SLP184 T00610033 $  ## [A] Hoquiam, Bowerman Airport
180929 2022-11-27 18:15  24 US US-GA  --- KHQU 271715Z AUTO 22006KT 10SM CLR 24/15 A2976 RMK AO2 T02400146=  ## [A] Thomson, Thomson-McDuffie County Airport
180934 2022-11-27 17:50  13 US US-TX  --- KHQZ 271650Z 31010KT 10SM CLR 13/07 A2994=  ## [A] Mesquite, Mesquite Metro Airport
180940 2022-11-27 18:20   3               KHRF 271720Z AUTO 17016G26KT 10SM FEW047 FEW055 SCT065 03/M03 A2974 RMK AO2=  ## [A]
180943 2022-11-27 17:53   9 US US-OR  HES KHRI 271653Z AUTO 26010KT 10SM BKN050 OVC090 09/01 A2990 RMK AO2 SLP128 T00940011=  ## [A] Hermiston, Hermiston Municipal Airport
180944 2022-11-27 18:15  21 US US-NC  --- KHRJ 271715Z AUTO 18010G16KT 10SM OVC010 21/20 A2971 RMK AO2 T02090197=  ## [A] Erwin, Harnett Regional Jetport Airport
180946 2022-11-27 17:52  24 US US-TX  HRL KHRL 271652Z 18015KT 10SM CLR 24/17 A2993 RMK AO2 SLP134 T02390167=  ## [A] Harlingen, Valley International Airport
180949 2022-11-27 17:53   9 US US-AR  HRO KHRO 271653Z AUTO 30012G19KT 10SM BKN020 09/04 A2976 RMK AO2 SLP077 T00940044=  ## [A] Harrison, Boone County Airport
180954 2022-11-27 17:55  19 US US-FL  --- KHRT 271655Z AUTO 27009KT 10SM CLR 19/08 A2997 RMK AO2 SLP150 T01870078 $  ## [A] Mary Esther, Hurlburt Field
180958 2022-11-27 18:10   6 US US-TX  --- KHRX 271710Z AUTO 36010KT 10SM SCT120 06/M01 A3004 RMK AO2 T00551014=  ## [A] Hereford, Hereford Municipal Airport
180961 2022-11-27 17:50  20 US US-MS  --- KHSA 271650Z 25007G16KT 10SM CLR 20/08 A2997=  ## [A] Bay St Louis, Stennis International Airport
180962 2022-11-27 18:15  10 US US-IL  HSB KHSB 271715Z AUTO 22015G23KT 3SM DZ OVC009 10/10 A2954 RMK AO2 T01010101=  ## [A] Harrisburg, Harrisburg-Raleigh Airport
180964 2022-11-27 18:10   7 US US-OK  --- KHSD 271710Z AUTO 33010G17KT 10SM 07/02 A2995 RMK A01=  ## [A] Oklahoma City, Sundance Airpark
180965 2022-11-27 17:51  20 US US-NC  HNC KHSE 271651Z AUTO 20016G26KT 6SM -RA FEW029 BKN080 OVC100 20/17 A2989 RMK AO2 PK WND 21028/1635 RAB35 SLP120 P0001 T02000167 $  ## [A] Hatteras, Billy Mitchell Airport
180967 2022-11-27 18:10  -4 US US-WY  THP KHSG 271710Z AUTO 00000KT 10SM CLR M04/M05 A2977 RMK AO2 T10401055=  ## [A] Thermopolis, Hot Springs County Airport
180969 2022-11-27 17:53   2 US US-NE  HSI KHSI 271653Z AUTO 34013KT 10SM CLR 02/M04 A2996 RMK AO2 SLP157 T00221039=  ## [A] Hastings, Hastings Municipal Airport
180976 2022-11-27 18:15  -1 US US-VA  HSP KHSP 271715Z AUTO 19012G19KT M1/4SM +SN OVC001 A2963 RMK AO2=  ## [A] Hot Springs, Ingalls Field
180980 2022-11-27 17:55  30 US US-FL  HST KHST 271655Z AUTO 19005KT 10SM CLR 30/21 A3002 RMK AO2 SLP169 T02990210=  ## [A] Homestead, Homestead ARB Airport
180982 2022-11-27 17:53  13 US US-AL  HSV KHSV 271653Z 23015G23KT 10SM OVC035 13/07 A2980 RMK AO2 PK WND 24027/1555 SLP087 BINOVC T01280067=  ## [A] Huntsville, Huntsville International Carl T Jones Field
180994 2022-10-12 22:25  23 US US-NV  HTH KHTH 122025Z AUTO 35007KT 10SM CLR 23/M04 A3028 RMK A01=  ## [A] Hawthorne, Hawthorne Industrial Airport
180998 2022-11-15 16:44   0 US US-MI  HTL KHTL 151544Z AUTO 06008KT 1 1/4SM -SN BR FEW007 OVC022 00/M01 A3031 RMK AO2 P0003 T00001011=  ## [A] Houghton Lake, Roscommon County - Blodgett Memorial Airport
181001 2022-05-21 19:35  27 US US-NY  HTO KHTO 211735Z AUTO 30004KT 10SM CLR 27/19 A3000 RMK AO2 T02670193=  ## [A] East Hampton, East Hampton Airport
181005 2022-11-27 18:15  15 US US-WV  HTS KHTS 271715Z 25016G36KT 3SM -RA FEW032 BKN045 OVC055 15/11 A2946 RMK AO2 PK WND 24047/1656 RAB1656 P0008 T01500111=  ## [A] Huntington, Tri-State/Milton J. Ferguson Field
181013 2022-11-23 18:59  17 US US-AL  HUA KHUA 231759Z 00000KT 7SM CLR 17/M01 A3020 RMK SLPNO RVRNO $  ## [A] Redstone Arsnl Huntsville, Redstone Army Air Field
181018 2022-11-27 18:15  11 US US-IN  HUF KHUF 271715Z 21015KT 1 3/4SM R05/5500VP6000FT -RA BR BKN009 OVC015 11/10 A2939 RMK AO2 PK WND 24026/1657 RAB00 P0000 T01110100=  ## [A] Terre Haute, Terre Haute Regional Airport,  Hulman Field
181024 2022-11-27 17:53   7 US US-ME  HUL KHUL 271653Z AUTO 22007KT 10SM CLR 07/M03 A2963 RMK AO2 SLP040 T00721028=  ## [A] Houlton, Houlton International Airport
181025 2022-11-27 17:47  22 US US-LA  HUM KHUM 271647Z 27010G16KT 7SM CLR 22/13 A2998=  ## [A] Houma, Houma Terrebonne Airport
181032 2022-11-27 17:52   6 US US-KS  HUT KHUT 271652Z 35016G25KT 10SM CLR 06/M01 A2993 RMK AO2 PK WND 34027/1554 SLP134 T00561011=  ## [A] Hutchinson, Hutchinson Municipal Airport
181043 2022-11-27 18:10   3 US US-UT  HVE KHVE 271710Z AUTO 00000KT 10SM CLR 03/M06 A3015 RMK AO2=  ## [A] Hanksville, Hanksville Airport
181052 2022-11-27 17:53  12 US US-CT  HVN KHVN 271653Z 00000KT 10SM BKN120 12/07 A2978 RMK AO2 SLP084 T01170072=  ## [A] New Haven, Tweed New Haven Airport
181056 2022-11-27 17:53   5 US US-MT  HVR KHVR 271653Z AUTO 22016G25KT 10SM CLR 05/M06 A2952 RMK AO2 PK WND 21029/1611 SLP014 T00501056=  ## [A] Havre, Havre City County Airport
181057 2022-11-27 18:15  21 US US-SC  HVS KHVS 271715Z AUTO 21009G19KT 10SM OVC014 21/20 A2972 RMK AO2 LTG DSNT E=  ## [A] Hartsville, Hartsville Regional Airport
181068 2022-11-27 17:54  10 US US-CA  HWD KHWD 271654Z 00000KT 10SM CLR 10/04 A3014 RMK AO2 SLP218 T01000044 $  ## [A] Hayward, Hayward Executive Airport
181079 2022-11-27 17:53  29 US US-FL  HWO KHWO 271653Z AUTO 23011KT 10SM BKN032 BKN042 29/21 A3004 RMK AO2 SLP171 T02890211=  ## [A] Hollywood, North Perry Airport
181086 2022-11-27 17:56  13 US US-NY  WSH KHWV 271656Z AUTO 19007KT 10SM BKN110 13/07 A2980 RMK AO2 SLP089 T01280072=  ## [A] Shirley, Brookhaven Airport
181089 2022-11-27 18:15  10 US US-VA  --- KHWY 271715Z AUTO 14005KT 10SM -RA OVC005 10/08 A2964 RMK AO2 T00950080=  ## [A] Warrenton, Warrenton Fauquier Airport
181094 2022-11-27 17:50  21 US US-SC  HHH KHXD 271650Z 21010G20KT 6SM BR OVC003 21/20 A2987=  ## [A] Hilton Head Island, Hilton Head Airport
181117 2022-11-27 17:56  13 US US-MA  HYA KHYA 271656Z 23017G21KT 10SM CLR 13/04 A2978 RMK AO2 SLP084 T01330039=  ## [A] Hyannis, Barnstable Municipal Boardman Polando Field
181125 2022-11-27 17:56  20 US US-TX  --- KHYI 271656Z 32008KT 10SM CLR 20/04 A2998 RMK AO2 SLPNO T02000040 $  ## [A] San Marcos, San Marcos Regional Airport
181134 2022-11-27 18:07   2 US US-WI  HYR KHYR 271707Z AUTO 05006KT 10SM SCT015 02/M03 A2978 RMK AO2 T00171028=  ## [A] Hayward, Sawyer County Airport
181135 2022-11-27 17:56   4 US US-KS  HYS KHYS 271656Z AUTO 35014KT 10SM CLR 04/M05 A3000 RMK AO2 SLP166 T00441050 $  ## [A] Hays, Hays Regional Airport
181139 2022-11-27 18:15  25 US US-SC  --- KHYW 271715Z AUTO 19013G19KT 10SM SCT018 25/21 A2978 RMK AO2 LTG DSNT SE=  ## [A] Conway, Conway Horry County Airport
181140 2022-11-27 18:15   6 US US-MI  --- KHYX 271715Z AUTO 08008KT 10SM OVC050 06/04 A2943 RMK AO2 T00600035=  ## [A] Saginaw, Saginaw County H.W. Browne Airport
181146 2022-11-27 18:15  11 US US-TN  --- KHZD 271715Z AUTO 21015G22KT 10SM OVC022 11/07 A2968 RMK A01=  ## [A] Huntingdon, Carroll County Airport
181147 2022-11-27 18:15   0 US US-ND  --- KHZE 271715Z AUTO 18009KT 10SM CLR M00/M05 A2976 RMK AO2=  ## [A] Hazen, Mercer County Regional Airport
181154 2022-11-27 18:15   5 US US-PA  HZL KHZL 271715Z AUTO 00000KT 1SM RA OVC013 05/03 A2969 RMK AO2 P0005=  ## [A] Hazleton, Hazleton Municipal Airport
181160 2022-11-27 18:15  21 US US-LA  --- KHZR 271715Z AUTO 24010G18KT 10SM CLR 21/13 A2994 RMK AO2 T02070127=  ## [A] New Roads, False River Regional Airport
181166 2022-11-27 18:15   0 US US-MN  --- KHZX 271715Z AUTO 35007KT 10SM CLR 00/M02 A2984 RMK AO2=  ## [A] Mc Gregor, Isedor Iverson Airport
181167 2022-11-27 17:53   9 US US-OH  JFN KHZY 271653Z AUTO 17010KT 10SM BKN014 OVC022 09/07 A2942 RMK AO2 RAE25 SLP965 P0000 T00890072=  ## [A] Ashtabula, Northeast Ohio Regional Airport
181170 2022-11-27 17:55   5 US US-KS  IAB KIAB 271655Z AUTO 35016KT 10SM CLR 05/M00 A2989 RMK AO2 SLP130 T00481002=  ## [A] Wichita, Mc Connell Air Force Base
181172 2022-11-27 17:52   9 US US-DC  IAD KIAD 271652Z 17008KT 3SM -RA BR OVC008 09/08 A2969 RMK AO2 RAB13 PRESFR SLP054 P0003 T00940078=  ## [A] Washington, Washington Dulles International Airport
181175 2022-11-27 17:53   8 US US-NY  IAG KIAG 271653Z 12007KT 10SM -RA BKN033 OVC045 08/02 A2951 RMK AO2 RAE1557B46 SLP000 P0000 T00780017=  ## [A] Niagara Falls, Niagara Falls International Airport
181176 2022-11-27 17:53  18 US US-TX  IAH KIAH 271653Z 26011G17KT 10SM CLR 18/12 A2995 RMK AO2 SLP142 T01830117=  ## [A] Houston, George Bush Intercontinental Houston Airport
181207 2022-11-27 18:15   3 US US-NE  --- KIBM 271715Z AUTO 24011KT 10SM CLR 03/M02 A2989 RMK AO2 T00331016=  ## [A] Kimball, Kimball Municipal Robert E Arraj Field
181232 2022-11-27 18:15   5 US US-IA  ICL KICL 271715Z AUTO 36015G20KT 10SM CLR 05/M01 A2985 RMK AO2=  ## [A] Clarinda, Schenck Field
181238 2022-11-27 17:53   2 US US-SD  --- KICR 271653Z AUTO 00000KT 10SM CLR 02/M03 A2993 RMK AO2 SLP152 T00171033 $  ## [A] Winner, Winner Regional Airport
181240 2022-11-27 17:53   6 US US-KS  ICT KICT 271653Z 35016KT 10SM SCT110 SCT190 06/M01 A2992 RMK AO2 PK WND 34028/1604 SLP134 T00561006=  ## [A] Wichita, Wichita Eisenhower National Airport
181247 2022-11-27 17:53  -2 US US-ID  IDA KIDA 271653Z 22010KT 10SM FEW030 OVC080 M02/M06 A3002 RMK AO2 SLP194 T10221056=  ## [A] Idaho Falls, Idaho Falls Regional Airport
181255 2022-11-27 18:15  11 US US-PA  IDI KIDI 271715Z AUTO 16005G10KT 5SM BR FEW028 FEW034 SCT055 11/11 A2950 RMK A01=  ## [A] Indiana, Indiana County/Jimmy Stewart Fld/ Airport
181262 2022-11-27 18:15   6 US US-KS  IDP KIDP 271715Z AUTO 33012KT 10SM OVC018 06/03 A2989 RMK AO2 T00650028=  ## [A] Independence, Independence Municipal Airport
181286 2022-11-27 17:52   3 US US-SD  XPR KIEN 271652Z AUTO 21011KT 10SM CLR 03/M03 A2987 RMK AO2 SLP134 T00281028=  ## [A] Pine Ridge, Pine Ridge Airport
181290 2022-11-27 18:15  19 US US-LA  --- KIER 271715Z AUTO 24007KT 220V280 10SM CLR 19/08 A2991 RMK AO2 T01940079=  ## [A] Natchitoches, Natchitoches Regional Airport
181299 2022-11-27 18:15   5 US US-IA  IFA KIFA 271715Z AUTO 34017KT 10SM CLR 05/00 A2977 RMK AO2 T00470002=  ## [A] Iowa Falls, Iowa Falls Municipal Airport
181314 2022-11-27 17:52  14 US US-AZ  IFP KIFP 271652Z 01011KT 10SM CLR 14/M04 A3015=  ## [A] Bullhead City, Laughlin Bullhead International Airport
181337 2022-11-27 17:51   9 US US-AZ  IGM KIGM 271651Z AUTO 34007KT 10SM CLR 09/M06 A3016 RMK AO2 SLP185 T00891061 $  ## [A] Kingman, Kingman Airport
181341 2022-11-27 18:15   5 US US-IL  --- KIGQ 271715Z AUTO 36009G17KT 10SM RA OVC010 05/05 A2945 RMK AO2 T00510051=  ## [A] Chicago, Lansing Municipal Airport
181378 2022-11-27 18:15   5 US US-IA  --- KIIB 271715Z AUTO 35016G20KT 10SM OVC120 05/00 A2970 RMK AO2 T00490002=  ## [A] Independence, Independence Municipal Airport
181401 2022-11-27 18:15  22 US US-GA  --- KIIY 271715Z AUTO 25017G23KT 10SM CLR 22/09 A2976 RMK AO2 T02200086=  ## [A] Washington, Washington Wilkes County Airport
181406 2022-11-27 17:52   8 US US-CT  --- KIJD 271652Z AUTO 00000KT 10SM CLR 08/02 A2976 RMK AO2 SLP078 T00780017=  ## [A] Willimantic, Windham Airport
181426 2022-11-27 18:15   6 US US-IL  --- KIJX 271715Z AUTO 31012G18KT 7SM BKN012 BKN022 OVC100 06/06 A2958 RMK AO2 T00640064=  ## [A] Jacksonville, Jacksonville Municipal Airport
181435 2022-11-27 18:15  23 US US-TX  --- KIKG 271715Z AUTO 20006KT 10SM CLR 23/15 A2985 RMK AO2 T02280147=  ## [A] Kingsville, Kleberg County Airport
181439 2022-11-27 18:15   6 US US-IL  IKK KIKK 271715Z AUTO 36012G20KT 3SM -RA OVC008 06/05 A2945 RMK AO2 T00600047=  ## [A] Kankakee, Greater Kankakee Airport
181448 2022-11-27 18:20  23               KIKT 271720Z AUTO 23008KT 10SM CLR 23/13 A3002 RMK A01=  ## [A]
181450 2022-11-27 18:15   4 US US-IA  --- KIKV 271715Z AUTO 34014KT 10SM SCT017 04/00 A2977 RMK AO2=  ## [A] Ankeny, Ankeny Regional Airport
181451 2022-11-27 18:15   5               KIKW 271715Z AUTO 07004KT 10SM OVC065 05/03 A2944 RMK AO2 T00470030=  ## [A]
181459 2022-11-27 17:56  14 US US-TX  ILE KILE 271656Z AUTO 31005KT 10SM CLR 14/07 A2997 RMK AO2 SLP146 T01440072=  ## [A] Killeen, Skylark Field
181461 2022-11-27 18:15  10 US US-DE  ILG KILG 271715Z 20007KT 2SM R01/6000VP6000FT RA BR OVC023 10/08 A2974 RMK AO2 P0003 T01000083 $  ## [A] Wilmington, New Castle Airport
181467 2022-11-27 17:53  22 US US-NC  ILM KILM 271653Z 17010G18KT 10SM BKN009 OVC022 22/21 A2982 RMK AO2 RAB09E50 SLP097 P0001 T02220211=  ## [A] Wilmington, Wilmington International Airport
181468 2022-11-27 17:54  15 US US-OH  ILN KILN 271654Z AUTO 23026G36KT 10SM FEW025 SCT030 SCT035 15/09 A2939 RMK AO2 PK WND 23036/1653 SLP958 T01500089=  ## [A] Wilmington, Wilmington Airpark
181492 2022-11-27 17:53   4 US US-NE  IML KIML 271653Z AUTO 30007KT 10SM CLR 04/M04 A2996 RMK AO2 SLP164 T00391044 $  ## [A] Imperial, Imperial Municipal Airport
181493 2022-11-27 18:15  32 US US-FL  IMM KIMM 271715Z AUTO VRB06G13KT 180V250 10SM BKN038 BKN045 BKN050 32/21 A3001 RMK AO2=  ## [A] Immokalee, Immokalee Regional Airport
181499 2022-11-27 18:15  10 US US-IN  MDN KIMS 271715Z AUTO 22013G23KT 10SM -DZ OVC020 10/09 A2951 RMK AO2=  ## [A] Madison, Madison Municipal Airport
181500 2022-11-27 17:54   3 US US-MI  IMT KIMT 271654Z AUTO 36015G21KT 10SM FEW024 03/M02 A2964 RMK AO2 SLP051 T00331022=  ## [A] Iron Mountain / Kingsford, Ford Airport
181510 2022-11-27 18:18  10 US US-IN  IND KIND 271718Z 22017G29KT 8SM -RA OVC013 10/08 A2938 RMK AO2 PK WND 22029/1712 P0000 T01000083=  ## [A] Indianapolis, Indianapolis International Airport
181512 2022-11-27 18:15  27               KINF 271715Z AUTO 22004G15KT 7SM BKN024 BKN032 OVC046 27/23 A2998 RMK AO2=  ## [A]
181516 2022-11-27 18:15  15 US US-TX  --- KINJ 271715Z AUTO 32005KT 10SM CLR 15/07 A2995 RMK AO2 T01450066=  ## [A] Hillsboro, Hillsboro Municipal Airport
181517 2022-11-25 05:53   5 US US-TX  INK KINK 250453Z AUTO 35012G24KT 10SM OVC014 05/02 A3025 RMK AO2 SLP233 T00500017=  ## [A] Wink, Winkler County Airport
181518 2022-11-27 17:54  -1 US US-MN  INL KINL 271654Z AUTO 32009KT 10SM OVC043 M01/M05 A2982 RMK AO2 SLP116 T10061050=  ## [A] International Falls, Falls International Airport
181525 2022-11-27 17:55   6 US US-NV  INS KINS 271655Z AUTO 00000KT 10SM CLR 06/M06 A3019 RMK AO2 SLP218 T00611059 $  ## [A] Indian Springs, Creech Air Force Base
181526 2022-11-27 18:01  12 US US-NC  INT KINT 271701Z 26005KT 9SM OVC003 12/12 A2969 RMK AO2 T01220117=  ## [A] Winston Salem, Smith Reynolds Airport
181529 2022-11-27 17:56   6 US US-AZ  INW KINW 271656Z AUTO 34003KT 10SM CLR 06/M07 A3017 RMK AO2 SLP202 T00611072=  ## [A] Winslow, Winslow Lindbergh Regional Airport
181534 2022-11-27 18:15  15 US US-KY  --- KIOB 271715Z AUTO 27017G28KT 10SM BKN043 OVC048 15/06 A2955 RMK AO2 PWINO=  ## [A] Mount Sterling, Mount Sterling Montgomery County Airport
181555 2022-11-27 17:52   6 US US-IA  IOW KIOW 271652Z AUTO 31006KT 10SM OVC090 06/03 A2968 RMK AO2 RAE23 SLP053 P0001 T00610028=  ## [A] Iowa City, Iowa City Municipal Airport
181568 2022-11-27 18:15  14 US US-NC  --- KIPJ 271715Z AUTO 00000KT 10SM OVC005 14/13 A2969 RMK AO2 T01360129=  ## [A] Lincolnton, Lincolnton Lincoln County Regional Airport
181569 2022-03-03 01:00  25               KIPK 030000Z 08009KT 9999 SCT018 25/23 Q1016=  ## [A]
181570 2022-11-27 17:53  14 US US-CA  IPL KIPL 271653Z AUTO 25004KT 10SM CLR 14/M01 A3012 RMK AO2 SLP199 T01441011=  ## [A] Imperial, Imperial County Airport
181578 2022-11-27 17:54   5 US US-PA  IPT KIPT 271654Z 05010KT 7SM -RA BKN045 OVC055 05/02 A2966 RMK AO2 SLP047 P0002 T00500017=  ## [A] Williamsport, Williamsport Regional Airport
181621 2022-11-27 17:55   5 US US-MO  IRK KIRK 271655Z AUTO 33009KT 10SM OVC010 05/03 A2970 RMK AO2 RAB28E42 CIG 008V013 SLP065 P0000 T00500033=  ## [A] Kirksville, Kirksville Regional Airport
181629 2022-11-27 18:15   4 US US-MI  IRS KIRS 271715Z AUTO 04009KT 3SM RA OVC006 04/03 A2935 RMK AO2 T00410030 P0004=  ## [A] Sturgis, Kirsch Municipal Airport
181649 2022-11-27 18:03  28 US US-FL  ISM KISM 271703Z 24011KT 10SM FEW020 BKN029 BKN055 28/22 A3001 RMK AO2 PNO $  ## [A] Orlando, Kissimmee Gateway Airport
181650 2019-10-18 14:52   8 US US-ND  ISN KISN 181252Z AUTO 28012KT 10SM FEW120 08/01 A2948 RMK AO2 SLP836 T00780006 TSNO=  ## [A] Williston, Sloulin Field International Airport
181651 2022-11-27 17:56  22 US US-NC  ISO KISO 271656Z 19016G26KT 10SM OVC017 22/19 A2978=  ## [A] Kinston, Kinston Regional Jetport At Stallings Field
181652 2022-11-27 17:56  13 US US-NY  ISP KISP 271656Z 21013KT 10SM OVC120 13/08 A2978 RMK AO2 SLP084 T01280078=  ## [A] Islip, Long Island Mac Arthur Airport
181653 2022-11-27 18:15   4 US US-MI  ISQ KISQ 271715Z AUTO 35011KT 10SM BKN019 BKN120 04/00 A2959 RMK AO2 T00410004=  ## [A] Manistique, Schoolcraft County Airport
181659 2022-11-27 17:54   4 US US-WI  ISW KISW 271654Z AUTO 01007KT 10SM CLR 04/M02 A2967 RMK AO2 SLP057 T00391017=  ## [A] Wisconsin Rapids, Alexander Field South Wood County Airport
181670 2022-11-27 17:56   6 US US-NY  ITH KITH 271656Z 17010KT 8SM RA OVC055 06/02 A2964 RMK AO2 SLP044 P0007 T00560022=  ## [A] Ithaca, Ithaca Tompkins Regional Airport
181680 2022-11-27 17:53   4 US US-CO  --- KITR 271653Z AUTO 30006KT 10SM SCT080 04/M02 A2998 RMK AO2 SLP153 T00441017 $  ## [A] Burlington, Kit Carson County Airport
181689 2022-11-27 18:15   5               KIUA 271715Z AUTO 15006KT 10SM -RA BKN044 OVC050 05/02 A2956 RMK AO2 T00520016=  ## [A]
181741 2022-11-27 17:51  11 US US-AZ  AZA KIWA 271651Z 1003KT 10SM CLR 11/M06 A3015=  ## [A] Phoenix, Phoenix-Mesa-Gateway Airport
181744 2022-11-27 17:56   2 US US-MI  IWD KIWD 271656Z AUTO 36006KT 10SM BKN018 OVC024 02/M03 A2977 RMK AO2 SLP091 T00171028 FZRANO=  ## [A] Ironwood, Gogebic Iron County Airport
181749 2022-11-27 17:53   8 US US-ME  ISS KIWI 271653Z AUTO 16004KT 10SM CLR 08/01 A2970 RMK AO2 SLP058 T00830011=  ## [A] Wiscasset, Wiscasset Airport
181767 2022-11-27 18:15  16 US US-NC  --- KIXA 271715Z AUTO 15006KT 10SM OVC012 16/16 A2971 RMK AO2 P0001=  ## [A] Roanoke Rapids, Halifax-Northampton Regional Airport
181770 2022-11-27 17:53   4 US US-KS  JCI KIXD 271653Z 32013KT 10SM OVC016 04/02 A2982 RMK AO2 SLP100 T00440022=  ## [A] Olathe, New Century Aircenter Airport
181793 2022-11-27 18:15  23               KIYA 271715Z AUTO 24012G18KT 10SM CLR 23/12 A2995 RMK AO2 T02260123=  ## [A]
181819 2022-11-27 18:15   8 US US-CA  SQA KIZA 271715Z AUTO 00000KT 10SM CLR 08/03 A3011 RMK AO2=  ## [A] Santa Ynez, Santa Ynez Airport
181825 2022-11-27 17:54  11 US US-ME  FRY KIZG 271654Z AUTO 00000KT 10SM CLR 11/M03 A2967 RMK AO2 SLP053 T01111028=  ## [A] Fryeburg, Eastern Slopes Regional Airport
181847 2022-11-27 17:56  -3 US US-WY  JAC KJAC 271656Z 19021KT 9SM -SN OVC032 M03/M07 A2993 RMK AO2 PK WND 19026/1645 SNB1559 SLP201 P0000 T10331067=  ## [A] Jackson, Jackson Hole Airport
181858 2022-11-27 17:54  17 US US-MS  JAN KJAN 271654Z 25012G20KT 10SM CLR 17/07 A2990 RMK AO2 SLP123 T01720072=  ## [A] Jackson, Jackson-Medgar Wiley Evers International Airport
181861 2022-11-27 18:15  13               KJAQ 271715Z AUTO 00000KT 10SM CLR 13/M01 A3014 RMK AO1 T01281010=  ## [A]
181863 2022-11-27 18:15  17 US US-TX  JAS KJAS 271715Z AUTO VRB06KT 10SM CLR 17/11 A2992 RMK AO2=  ## [A] Jasper, Jasper County Airport-Bell Field
181865 2022-11-27 18:10  18 US US-TN  --- KJAU 271710Z AUTO 22018G35KT 10SM CLR 18/05 A2966 RMK A01=  ## [A] Jacksboro, Colonel Tommy C Stiner Airfield
181868 2022-11-27 17:56  26 US US-FL  JAX KJAX 271656Z 23018G23KT 10SM SCT021 BKN025 BKN075 BKN250 26/22 A2989 RMK AO2 PK WND 20027/1609 SLP123 T02610217=  ## [A] Jacksonville, Jacksonville International Airport
181888 2022-11-27 18:00  12 US US-AR  JBR KJBR 271700Z AUTO 24018G25KT 10SM BKN019 OVC028 12/08 A2971 RMK AO2 T01170083 $  ## [A] Jonesboro, Jonesboro Municipal Airport
181897 2022-11-27 18:15  19               KJCA 271715Z AUTO 25013G24KT 10SM CLR 19/09 A2976 RMK AO2 T01950090=  ## [A]
181916 2022-11-27 17:51  17 US US-TX  JCT KJCT 271651Z AUTO 00000KT 10SM CLR 17/05 A2997 RMK AO2 SLP129 T01670050=  ## [A] Junction, Kimble County Airport
181926 2022-11-27 18:15  13 US US-TX  --- KJDD 271715Z AUTO 34006KT 10SM CLR 13/07 A2992 RMK AO2=  ## [A] Mineola/Quitman, Wood County Airport
181936 2022-11-27 17:48   3 US US-MT  JDN KJDN 271648Z AUTO 23008KT 03/M02 A2963 RMK AO1 SLP056 T00331022=  ## [A] Jordan, Jordan Airport
181954 2022-11-27 17:53   9 US US-MO  JEF KJEF 271653Z 31011G21KT 10SM BKN018 OVC075 09/04 A2970 RMK AO2 SLP047 T00890044 $  ## [A] Jefferson City, Jefferson City Memorial Airport
181966 2022-11-27 17:53   1 US US-ID  --- KJER 271653Z AUTO 20004KT 10SM BKN085 01/M04 A3006 RMK AO2 SLP199 T00111039=  ## [A] Jerome, Jerome County Airport
181967 2022-11-27 18:10  26 US US-GA  --- KJES 271710Z AUTO 24011G22KT 210V280 10SM SCT024 BKN033 OVC090 26/21 A2987 RMK AO2=  ## [A] Jesup, Jesup Wayne County Airport
181985 2022-11-27 17:51  11 US US-NY  JFK KJFK 271651Z 19007KT 10SM FEW075 BKN110 OVC160 11/06 A2978 RMK AO2 PRESFR SLP083 T01110056=  ## [A] New York, John F Kennedy International Airport
181998 2022-11-27 18:15  15 US US-AL  --- KJFX 271715Z AUTO 26010G16KT 10SM BKN041 BKN049 15/07 A2984 RMK AO2=  ## [A] Jasper, Walker County Airport-Bevill Field
182000 2022-11-27 18:15  18 US US-VA  --- KJFZ 271715Z AUTO 23014G27KT 10SM SCT035 BKN050 BKN060 18/10 A2958 RMK AO2 T01770096=  ## [A] Richlands, Tazewell County Airport
182007 2022-10-10 15:55  14 US US-VA  --- KJGG 101355Z AUTO 00000KT 10SM CLR 14/13 RMK AO1=  ## [A] Williamsburg, Williamsburg Jamestown Airport
182040 2022-11-27 18:15   5               KJHN 271715Z AUTO 32010KT 10SM 05/M06 A3002 RMK AO2 T00461063=  ## [A]
182049 2022-11-27 17:56   6 US US-NY  JHW KJHW 271656Z AUTO 18009KT 10SM -RA OVC007 06/06 A2945 RMK AO2 CIG 004V010 PRESFR SLP987 P0004 T00560056=  ## [A] Jamestown, Chautauqua County-Jamestown Airport
182105 2022-11-27 17:55  19 US US-AL  GUF KJKA 271655Z 29013KT 10SM CLR 19/09 A2999=  ## [A] Gulf Shores, Jack Edwards Airport
182114 2022-11-27 18:15  -2 US US-MN  --- KJKJ 271715Z AUTO 00000KT 10SM CLR M02/M06 A2989 RMK AO2 TSNO=  ## [A] Moorhead, Moorhead Municipal Airport
182116 2022-11-27 17:53  19 US US-KY  --- KJKL 271653Z AUTO 23010G27KT 190V260 10SM SCT044 BKN080 19/09 A2953 RMK AO2 PK WND 21032/1615 SLP990 T01890094 $  ## [A] Jackson, Julian Carroll Airport
182144 2022-11-27 17:53   7 US US-MO  JLN KJLN 271653Z 30011KT 10SM OVC015 07/04 A2984 RMK AO2 SLP104 T00670039 $  ## [A] Joplin, Joplin Regional Airport
182174 2022-11-27 18:15   3 US US-MN  --- KJMR 271715Z AUTO 35005KT 10SM CLR 03/M03 A2987 RMK AO2=  ## [A] Mora, Mora Municipal Airport
182175 2022-11-27 17:56  -2 US US-ND  JMS KJMS 271656Z AUTO 19005KT 10SM CLR M02/M06 A2984 RMK AO2 SLP123 T10221056=  ## [A] Jamestown, Jamestown Regional Airport
182206 2022-11-27 18:15  21 US US-NC  --- KJNX 271715Z AUTO 19017G24KT 10SM OVC014 21/20 A2970 RMK AO2 LTG DSNT SE=  ## [A] Smithfield, Johnston County Airport
182228 2022-11-27 18:15   7 US US-IL  JOT KJOT 271715Z AUTO 34007KT 10SM -DZ SCT032 BKN037 OVC060 07/05 A2949 RMK AO2 T00680052=  ## [A] Joliet, Joliet Regional Airport
182258 2022-11-27 18:15  13               KJPX 271715Z AUTO 22010G15KT 10SM CLR 13/08 A2978 RMK AO2 T01250079=  ## [A]
182266 2022-11-27 17:50  19 US US-NC  USA KJQF 271650Z 22013G20KT 10SM OVC009 19/18 A2972=  ## [A] Concord, Concord-Padgett Regional Airport
182288 2022-11-27 17:56 XXX               KJRB 271656Z AUTO 21005KT 10SM OVC110 A2977 RMK AO2 SLPNO FZRANO $  ## [A]
182301 2022-11-27 18:15  18               KJRO 271715Z AUTO 23021G31KT 10SM SCT075 18/12 A2943 RMK AO2=  ## [A]
182324 2022-10-24 23:00  28               KJSL 242100Z AUTO 16013KT 10SM FEW027 28/21 A2990 RMK A01=  ## [A]
182327 2022-11-27 18:15  15 US US-TX  JKV KJSO 271715Z AUTO 26006KT 10SM CLR 15/08 A2994 RMK AO2 T01450077 TSNO=  ## [A] Jacksonville, Cherokee County Airport
182328 2022-02-16 12:00  24               KJSP 161100Z 12008KT 9999 -SHRA FEW020 BKN034 24/20 Q1018=  ## [A]
182332 2022-11-27 17:54   9 US US-PA  JST KJST 271654Z AUTO 16013G19KT 5SM -RA BR FEW045 FEW065 OVC090 09/09 A2951 RMK AO2 PRESFR SLP998 P0008 T00940094=  ## [A] Johnstown, John Murtha Johnstown Cambria County Airport
182334 2022-11-27 18:15  12 US US-OK  --- KJSV 271715Z AUTO 33009KT 10SM BKN022 OVC060 12/07 A2986 RMK AO2=  ## [A] Sallisaw, Sallisaw Municipal Airport
182337 2022-11-27 18:15   6               KJSY 271715Z AUTO 10SM BKN035 BKN044 BKN050 06/M05 A2984 RMK AO2 T00581050 TSNO=  ## [A]
182341 2022-11-27 18:15   6               KJTC 271715Z AUTO 31008KT 280V340 10SM CLR 06/M08 A3017 RMK AO2=  ## [A]
182402 2022-11-27 17:45   4 US US-WI  JVL KJVL 271645Z 36013KT 6SM -RA BKN031 BKN039 OVC050 04/03 A2957=  ## [A] Janesville, Southern Wisconsin Regional Airport
182413 2022-11-27 18:15  18               KJVW 271715Z AUTO 24014G19KT 10SM CLR 18/07 A2989 RMK AO2=  ## [A]
182415 2022-11-27 17:55  12 US US-IN  --- KJVY 271655Z AUTO 22020G25KT 10SM BKN025 BKN033 12/08 A2951 RMK AO2 PWINO=  ## [A] Jeffersonville, Clark Regional Airport
182423 2022-11-27 18:15   6 US US-OK  --- KJWG 271715Z AUTO 35013G17KT 10SM CLR 06/00 A2999 RMK AO2 T00630002=  ## [A] Watonga, Watonga Regional Airport
182430 2022-11-27 17:45  13 US US-TN  --- KJWN 271645Z 22015G23KT 10SM CLR 13/06 A2967=  ## [A] Nashville, John C Tune Airport
182441 2022-11-27 18:15  14 US US-TX  --- KJWY 271715Z AUTO 34009KT 10SM CLR 14/08 A2995 RMK AO2 T01420081=  ## [A] Midlothian/Waxahachie, Mid Way Regional Airport
182451 2022-11-27 18:15  13 US US-TX  --- KJXI 271715Z AUTO 31004KT 10SM SCT021 13/07 A2992 RMK AO2 P0001 T01320072=  ## [A] Gilmer, Fox Stephens Field Gilmer Municipal Airport
182456 2022-11-27 17:56   4 US US-MI  JXN KJXN 271656Z 02009KT 1 1/4SM -RA BR OVC009 04/04 A2939 RMK AO2 RAB49 CIG 006V011 SLP956 P0001 T00440039 $  ## [A] Jackson, Jackson County Reynolds Field
182475 2022-11-27 18:17   2 US US-MN  --- KJYG 271717Z AUTO 32010G15KT 10SM CLR 02/M01 A2984 RMK AO2 TSNO=  ## [A] St James, St James Municipal Airport
182480 2022-11-27 18:15  25 US US-GA  --- KJYL 271715Z AUTO 25009G16KT 10SM SCT020 BKN026 OVC095 25/21 A2981 RMK AO2 T02500213=  ## [A] Sylvania, Plantation Airpark
182481 2022-11-27 18:15   4 US US-MI  --- KJYM 271715Z AUTO 03006KT 2SM +RA OVC004 04/04 A2935 RMK AO2 T00420035 P0005=  ## [A] Hillsdale, Hillsdale Municipal Airport
182483 2022-11-27 18:15   9 US US-VA  --- KJYO 271715Z AUTO 16009KT 3SM RA OVC006 09/09 A2967 RMK AO2=  ## [A] Leesburg, Leesburg Executive Airport
182486 2022-11-27 18:15   3 US US-NE  --- KJYR 271715Z AUTO 32012KT 10SM CLR 03/M04 A2993 RMK AO2=  ## [A] York, York Municipal Airport
182503 2022-11-27 18:15  22 US US-SC  --- KJZI 271715Z AUTO 22016G27KT 9SM OVC008 22/20 A2983 RMK AO2=  ## [A] Charleston, Charleston Executive Airport
182510 2022-10-17 17:15  17 US US-GA  --- KJZP 171515Z AUTO 36010KT 320V020 10SM SCT012 17/13 A2993 RMK AO2 T01730128=  ## [A] Jasper, Pickens County Airport
182825 2022-11-27 17:56   6 US US-WA  KLS KKLS 271656Z AUTO 00000KT 10SM BKN042 OVC049 06/06 A3011 RMK AO2 RAE08 SLP198 P0000 T00610056=  ## [A] Kelso, Southwest Washington Regional Airport
182860 2022-11-27 18:15   3 US US-UT  --- KKNB 271715Z AUTO 00000KT 10SM CLR 03/M06 A3021 RMK A01=  ## [A] Kanab, Kanab Municipal Airport
182932 2019-11-13 16:00  30               KKPV 131500Z 36004KT 280V090 9999 FEW018 BKN200 30/24 A2992=  ## [A]
183197 2022-11-27 18:17   2 US US-CO  LAA KLAA 271717Z AUTO 28004KT 10SM SCT008 BKN023 BKN032 02/00 A3001 RMK AO2 SNE1658 P0000 T00220000=  ## [A] Lamar, Lamar Municipal Airport
183202 2022-11-27 18:17   8 US US-IN  LAF KLAF 271717Z 30004KT 4SM -RA BR BKN008 BKN011 OVC022 08/08 A2934 RMK AO2 P0000 T00830078=  ## [A] Lafayette, Purdue University Airport
183208 2022-11-27 17:50  27 US US-FL  LAL KLAL 271650Z 24011G18KT 10SM BKN024 27/22 A3001=  ## [A] Lakeland, Lakeland Linder International Airport
183209 2022-11-27 18:15   3 US US-NM  LAM KLAM 271715Z AUTO 06010KT 10SM OVC050 03/M07 A3003 RMK AO2 T00331073=  ## [A] Los Alamos, Los Alamos Airport
183210 2022-11-27 17:53   4 US US-MI  LAN KLAN 271653Z 04012KT 1 1/2SM -RA BR SCT007 BKN027 OVC038 04/02 A2943 RMK AO2 RAB20 SLP969 P0002 T00390022=  ## [A] Lansing, Capital City Airport
183214 2022-11-27 17:53  -3 US US-WY  LAR KLAR 271653Z AUTO 26007KT 10SM CLR M03/M08 A2987 RMK AO2 SLP127 T10331083 $  ## [A] Laramie, Laramie Regional Airport
183215 2022-11-27 17:56   9 US US-NV  LAS KLAS 271656Z 00000KT 10SM CLR 09/M04 A3019 RMK AO2 SLP221 T00941044=  ## [A] Las Vegas, McCarran International Airport
183219 2022-11-27 17:53  11 US US-OK  LAW KLAW 271653Z 35010KT 10SM CLR 11/03 A2995 RMK AO2 SLP142 T01110033=  ## [A] Lawton, Lawton Fort Sill Regional Airport
183220 2022-11-27 17:53  15 US US-CA  LAX KLAX 271653Z 12004KT 9SM FEW010 FEW300 15/05 A3009 RMK AO2 SLP190 FU FEW010 T01500050 $  ## [A] Los Angeles, Los Angeles International Airport
183224 2022-11-27 17:53   6 US US-TX  LBB KLBB 271653Z 36011KT 10SM FEW140 06/01 A3002 RMK AO2 SLP165 T00610011=  ## [A] Lubbock, Lubbock Preston Smith International Airport
183227 2022-11-27 17:47  15 US US-PA  LBE KLBE 271647Z 20012G22KT 5SM -RA SCT020 OVC050 15/13 A2948=  ## [A] Latrobe, Arnold Palmer Regional Airport
183228 2022-11-27 17:53   3 US US-NE  LBF KLBF 271653Z AUTO 28005KT 10SM CLR 03/M04 A2997 RMK AO2 SLP162 T00331039=  ## [A] North Platte, North Platte Regional Airport Lee Bird Field
183234 2022-11-27 17:56   4 US US-KS  LBL KLBL 271656Z AUTO 01014KT 10SM FEW042 BKN050 OVC065 04/M06 A3002 RMK AO2 SLP177 T00391056=  ## [A] Liberal, Liberal Mid-America Regional Airport
183237 2022-11-27 18:15   7 US US-MO  --- KLBO 271715Z AUTO 30013G18KT 10SM OVC014 07/04 A2973 RMK AO2=  ## [A] Lebanon, Floyd W. Jones Lebanon Airport
183242 2022-11-27 17:56  22 US US-NC  LBT KLBT 271656Z AUTO 19010G18KT 5SM -RA BR BKN010 OVC019 22/21 A2975 RMK AO2 RAB25 SLP072 P0003 T02220211 TSNO $  ## [A] Lumberton, Lumberton Regional Airport
183246 2022-11-27 17:53  22 US US-TX  LJN KLBX 271653Z AUTO 24009G17KT 10SM CLR 22/14 A2995 RMK AO2 SLP141 T02220139=  ## [A] Angleton/Lake Jackson, Texas Gulf Coast Regional Airport
183255 2022-11-27 18:15   2 US US-NE  --- KLCG 271715Z AUTO 33012KT 10SM CLR 02/M03 A2992 RMK AO2 T00231026=  ## [A] Wayne, Wayne Municipal Airport
183256 2022-11-27 17:53  19 US US-LA  LCH KLCH 271653Z 25011KT 10SM CLR 19/14 A2995 RMK AO2 SLP148 T01940139 $  ## [A] Lake Charles, Lake Charles Regional Airport
183257 2022-11-26 06:56   3 US US-NH  LCI KLCI 260556Z AUTO 29008G18KT 230V330 10SM OVC034 03/M04 A2975 RMK AO2 PK WND 32031/0511 SLP079 T00281044 10050 20028 53024=  ## [A] Laconia, Laconia Municipal Airport
183259 2022-11-27 17:55  13 US US-OH  LCK KLCK 271655Z AUTO 21013KT 10SM -RA SCT017 BKN055 OVC070 13/12 A2942 RMK AO2 T01280115=  ## [A] Columbus, Rickenbacker International Airport
183265 2022-11-27 18:15  26 US US-FL  LCQ KLCQ 271715Z AUTO 24015G19KT 10SM BKN022 BKN030 BKN039 26/21 A2992 RMK AO2=  ## [A] Lake City, Lake City Gateway Airport
183284 2022-11-27 18:15  10 US US-NJ  LDJ KLDJ 271715Z AUTO 00000KT 10SM -RA BKN028 OVC110 10/04 A2976 RMK AO2 T01030036=  ## [A] Linden, Linden Airport
183287 2022-11-27 18:15   7 US US-MI  LDM KLDM 271715Z AUTO 01008G15KT 10SM OVC065 07/02 A2949 RMK AO2 T00660021=  ## [A] Ludington, Mason County Airport
183302 2022-11-27 17:53   7 US US-NH  LEB KLEB 271653Z 00000KT 10SM CLR 07/M02 A2971 RMK AO2 SLP064 T00671022=  ## [A] Lebanon, Lebanon Municipal Airport
183305 2022-11-27 17:53  27 US US-FL  LEE KLEE 271653Z 21008KT 10SM BKN026 OVC032 27/22 A2999 RMK AO2 SLP154 T02720222=  ## [A] Leesburg, Leesburg International Airport
183323 2022-11-27 17:56  11 US US-ME  LEW KLEW 271656Z AUTO 00000KT 10SM CLR 11/M01 A2968 RMK AO2 SLP058 T01061006=  ## [A] Auburn/Lewiston, Auburn Lewiston Municipal Airport
183324 2022-11-27 17:54  14 US US-KY  LEX KLEX 271654Z 23018G29KT 10SM BKN038 OVC046 14/06 A2954 RMK AO2 PK WND 23039/1635 SLP000 T01390061=  ## [A] Lexington, Blue Grass Airport
183335 2022-11-27 18:10  14 US US-VA  LFI KLFI 271710Z 19007KT 5SM -RA BR FEW029 OVC048 14/14 A2974 RMK AO2A PRESFR SLP077 $  ## [A] Hampton, Langley Air Force Base
183337 2022-11-27 17:53  16 US US-TX  LFK KLFK 271653Z AUTO 30006KT 10SM CLR 16/08 A2993 RMK AO2 SLP134 T01610078 $  ## [A] Lufkin, Angelina County Airport
183346 2022-11-27 17:53  23 US US-LA  LFT KLFT 271653Z 24013G24KT 10SM CLR 23/14 A2995 RMK AO2 SLP141 T02280139=  ## [A] Lafayette, Lafayette Regional Airport
183353 2022-11-27 17:51  12 US US-NY  LGA KLGA 271651Z 19010KT 10SM -RA FEW031 FEW055 BKN110 OVC130 12/02 A2977 RMK AO2 RAB30 SLP080 P0000 T01170022=  ## [A] New York, La Guardia Airport
183354 2022-11-27 17:53  14 US US-CA  LGB KLGB 271653Z 00000KT 9SM CLR 14/06 A3009 RMK AO2 SLP189 T01390061=  ## [A] Long Beach, Long Beach /Daugherty Field/ Airport
183355 2022-11-27 18:15  17 US US-GA  LGC KLGC 271715Z AUTO 27016G22KT 10SM SCT038 17/08 A2987 RMK AO2 T01740084=  ## [A] Lagrange, LaGrange Callaway Airport
183356 2022-11-27 17:56   4 US US-OR  LGD KLGD 271656Z AUTO 11006KT 10SM BKN060 04/M04 A2991 RMK AO2 SLP149 T00391039=  ## [A] La Grande, La Grande/Union County Airport
183358 2022-11-27 17:55  14 US US-AZ  LGF KLGF 271655Z AUTO 00000KT 8SM CLR 14/M07 A3011 RMK AO2 SLP197 T01431071 TSNO $  ## [A] Yuma Proving Ground(Yuma), Laguna Army Airfield
183373 2022-11-27 17:51  -1 US US-UT  LGU KLGU 271651Z AUTO 00000KT 4SM BR SCT036 OVC100 M01/M01 A3012 RMK AO2 SLP218 T10061011=  ## [A] Logan, Logan-Cache Airport
183380 2022-11-27 18:15  16 US US-TX  --- KLHB 271715Z AUTO 28004KT 10SM CLR 16/07 A2997 RMK AO2 T01580074=  ## [A] Hearne, Hearne Municipal Airport
183391 2022-11-27 18:15   8 US US-CA  --- KLHM 271715Z AUTO 00000KT 10SM CLR 08/04 A3015 RMK AO1=  ## [A] Lincoln, Lincoln Regional Karl Harder Field
183395 2022-11-27 18:13  13 US US-OH  --- KLHQ 271713Z AUTO 24018G29KT 10SM -RA SCT022 BKN060 OVC090 13/10 A2943 RMK AO2 PK WND 24032/1658 P0008 T01280100=  ## [A] Lancaster, Fairfield County Airport
183401 2022-11-27 17:55  25 US US-GA  LIY KLHW 271655Z AUTO 22008KT 10SM BKN022 BKN036 25/21 A2981 RMK AO2 CIG 020V026 SLP097 T02470208 $  ## [A] Fort Stewart(Hinesville), Wright AAF (Fort Stewart)/Midcoast Regional Airport
183402 2022-11-27 17:53   2 US US-CO  --- KLHX 271653Z AUTO 23005KT 9SM -SN BKN006 OVC031 02/00 A3002 RMK AO2 SLP167 P0001 T00170000 $  ## [A] La Junta, La Junta Municipal Airport
183404 2022-11-27 18:15  18 US US-NC  LFN KLHZ 271715Z AUTO 17011G17KT 10SM BKN009 OVC016 18/17 A2970 RMK AO2=  ## [A] Louisburg, Triangle North Executive Airport
183407 2022-11-27 17:55   3 US US-CO  LIC KLIC 271655Z AUTO 19008KT 10SM CLR 03/M02 A2995 RMK AO2 SLP140 T00281017 $  ## [A] Limon, Limon Municipal Airport
183424 2022-11-27 17:53  13 US US-AR  LIT KLIT 271653Z 28012KT 10SM OVC023 13/07 A2979 RMK AO2 SLP091 T01280072 $  ## [A] Little Rock, Bill & Hillary Clinton National Airport/Adams Field
183436 2022-11-27 18:15   1 US US-MN  --- KLJF 271715Z AUTO 34007KT 10SM CLR 01/M03 A2985 RMK AO2=  ## [A] Litchfield, Litchfield Municipal Airport
183474 2022-11-27 18:15  21 US US-SC  --- KLKR 271715Z AUTO 21010G16KT 10SM SCT012 SCT017 OVC055 21/19 A2970 RMK AO2=  ## [A] Lancaster, Lancaster County-Mc Whirter Field
183477 2022-11-27 18:15 XXX US US-VA  LOW KLKU 271715Z AUTO 00000KT 2SM +RA BR OVC003 08/ A2967 RMK AO2 P0001 T0077////=  ## [A] Louisa, Louisa County Airport/Freeman Field
183478 2022-11-27 17:53  -1 US US-OR  LKV KLKV 271653Z AUTO 00000KT M1/4SM FZFG OVC001 M09/M11 A3016 RMK AO2 SNB1558E13B33E43 SLP279 P0000 T10941106 FZRANO=  ## [A] Lakeview, Lake County Airport
183492 2022-11-27 17:55  -7 US US-ID  CHL KLLJ 271655Z AUTO 17003KT 10SM OVC070 M07/M11 A2993 RMK AO2 SLP179 T10671106 TSNO=  ## [A] Challis, Challis Airport
183496 2022-10-26 19:15  16 US US-TX  --- KLLN 261715Z AUTO 19009KT 10SM CLR 16/02 A3004 RMK AO2=  ## [A] Levelland, Levelland Municipal Airport
183499 2022-11-27 18:18  14 US US-AR  --- KLLQ 271718Z AUTO 24010G16KT 10SM SCT019 14/08 A2984 RMK AO2 T01390078=  ## [A] Monticello, Monticello Municipal Ellis Field
183523 2022-11-27 18:15   6 US US-CO  --- KLMO 271715Z AUTO 19003KT 10SM BKN015 06/00 A2993 RMK AO2 T00580000=  ## [A] Longmont, Vance Brand Airport
183528 2022-11-27 17:53  -3 US US-OR  LMT KLMT 271653Z 00000KT 10SM CLR M03/M04 A3015 RMK AO2 SLP236 T10331044=  ## [A] Klamath Falls, Crater Lake-Klamath Regional Airport
183535 2022-11-27 18:15  31 US US-FL  LNA KLNA 271715Z AUTO 24009KT 10SM SCT032 31/22 A3002 RMK AO2 T03060224 PNO=  ## [A] West Palm Beach, Palm Beach County Park Airport
183537 2022-11-27 18:15  13 US US-TX  --- KLNC 271715Z AUTO 33008KT 10SM CLR 13/07 A2994 RMK AO2 T01330070=  ## [A] Lancaster, Lancaster Airport
183538 2022-11-27 17:53  -4 US US-WY  LND KLND 271653Z AUTO VRB04KT 10SM CLR M04/M07 A2981 RMK AO2 SLP120 T10441067=  ## [A] Lander, Hunt Field
183545 2022-11-27 17:54   6 US US-NE  LNK KLNK 271654Z 36014KT 10SM CLR 06/M06 A2992 RMK AO2 SLP137 T00611056=  ## [A] Lincoln, Lincoln Airport
183546 2022-11-27 18:15   2 US US-WI  --- KLNL 271715Z AUTO 01009KT 10SM BKN022 BKN028 02/M04 A2971 RMK AO2 T00211036=  ## [A] Land O' Lakes, Kings Land O' Lakes Airport
183548 2022-11-27 18:15  12 US US-OH  LNN KLNN 271715Z AUTO 17008G17KT 10SM SCT013 BKN028 OVC042 12/10 A2935 RMK AO1 T01150102=  ## [A] Willoughby, Willoughby Lost Nation Municipal Airport
183550 2022-11-27 18:15  15 US US-VA  LNP KLNP 271715Z AUTO 22029G43KT 10SM SCT035 BKN046 OVC050 15/07 A2960 RMK AO2=  ## [A] Wise, Lonesome Pine Airport
183551 2022-11-19 14:15  15               KLNQ 191315Z AUTO 06006KT 10SM OVC090 15/08 A3031 RMK AO2 T01490081=  ## [A]
183552 2022-11-27 17:56   8 US US-WI  LNR KLNR 271656Z AUTO 36012KT 10SM OVC110 08/00 A2964 RMK AO2 SLP037 T00780000=  ## [A] Lone Rock, Tri-County Regional Airport
183553 2022-11-27 17:53   8 US US-PA  LNS KLNS 271653Z 12005KT 5SM -RA BR OVC016 08/07 A2969 RMK AO2 SLP056 P0005 T00830067=  ## [A] Lancaster, Lancaster Airport
183572 2022-11-27 17:53  -2 US US-NV  LOL KLOL 271653Z AUTO 00000KT 10SM CLR M02/M05 A3017 RMK AO2 SLP244 T10171050=  ## [A] Lovelock, Derby Field
183573 2022-11-27 18:15   8 US US-PA  BBX KLOM 271715Z AUTO 18003KT 3 1/2SM -RA BR OVC022 08/07 A2972 RMK AO2 T00830066=  ## [A] Philadelphia, Wings Field
183578 2022-11-27 17:55  18               KLOR 271655Z AUTO 26009G17KT 10SM CLR 18/09 A2994 RMK AO2 SLP121 T01790085=  ## [A]
183580 2022-11-27 18:15   6 US US-IL  LOT KLOT 271715Z AUTO 34010KT 10SM BKN036 OVC060 06/06 A2949 RMK AO2=  ## [A] Chicago/Romeoville, Lewis University Airport
183581 2022-11-27 18:03  12 US US-KY  LOU KLOU 271703Z 22020G28KT 10SM BKN029 BKN037 OVC046 12/07 A2952 RMK AO2 PK WND 21028/1703 RAE1659 P0000 T01220072=  ## [A] Louisville, Bowman Field
183586 2022-11-27 17:53  17 US US-KY  LOZ KLOZ 271653Z AUTO 25022G42KT 10SM FEW043 17/04 A2959 RMK AO2 PK WND 25042/1647 SLP016 T01720044 $  ## [A] London, London-Corbin Airport/Magee Field
183589 2022-11-27 16:56   5 US US-CA  LPC KLPC 271556Z AUTO 09005KT 10SM CLR 05/04 A3011 RMK AO2 SLP197 T00500044 TSNO=  ## [A] Lompoc, Lompoc Airport
183604 2022-11-27 18:01  12 US US-OH  --- KLPR 271701Z AUTO 19011KT 8SM -RA SCT012 BKN024 OVC075 12/11 A2935 RMK AO2 P0000 T01220106=  ## [A] Lorain/Elyria, Lorain County Regional Airport
183623 2022-11-27 18:15  17 US US-SC  LQK KLQK 271715Z AUTO 10SM BKN009 BKN016 OVC021 17/15 A2971 RMK AO2 T01710146=  ## [A] Pickens, Pickens County Airport
183642 2022-11-27 17:56  18 US US-TX  LRD KLRD 271656Z 00000KT 10SM CLR 18/10 A2995 RMK AO2 SLP143 T01830100=  ## [A] Laredo, Laredo International Airport
183644 2022-11-27 17:55  13 US US-AR  LRF KLRF 271655Z AUTO 26017KT 10SM BKN021 OVC030 13/08 A2976 RMK AO2 BKN V OVC SLP080 T01250084 $  ## [A] Jacksonville, Little Rock Air Force Base
183648 2022-11-27 18:15   3 US US-IA  LRJ KLRJ 271715Z AUTO 34010KT 10SM CLR 03/M03 A2989 RMK AO2=  ## [A] Le Mars, Le Mars Municipal Airport
183653 2022-11-27 18:15  23 US US-SC  --- KLRO 271715Z AUTO 21017G24KT 7SM OVC013 23/22 A2983 RMK AO2=  ## [A] Mount Pleasant, Mt Pleasant Regional-Faison field
183659 2022-11-27 18:15  12 US US-NM  LRU KLRU 271715Z AUTO 27013G18KT 10SM CLR 12/M15 A3011 RMK AO2 T01201151=  ## [A] Las Cruces, Las Cruces International Airport
183663 2022-11-27 18:15   6 US US-MO  --- KLRY 271715Z AUTO 34007G12KT 10SM SCT016 OVC060 06/02 A2982 RMK AO2=  ## [A] Harrisonville, Lawrence Smith Memorial Airport
183666 2022-08-12 19:47 XXX US US-NM  LSB KLSB 121747Z COR 14009G15KT 10SM 31/ A3021=  ## [A] Lordsburg, Lordsburg Municipal Airport
183669 2022-11-27 17:53   7 US US-WI  LSE KLSE 271653Z 34012KT 10SM CLR 07/M02 A2971 RMK AO2 SLP068 T00671017=  ## [A] La Crosse, La Crosse Municipal Airport
183670 2022-11-27 17:55  19 US US-GA  LSF KLSF 271655Z AUTO 24009G16KT 10SM CLR 19/09 A2987 RMK AO2 SLP119 T01890088 CHINO RWY15 $  ## [A] Fort Benning(Columbus), Lawson Army Air Field (Fort Benning)
183686 2022-11-27 17:55   9 US US-NV  LSV KLSV 271655Z AUTO 00000KT 10SM CLR 09/M03 A3017 RMK AO2 SLP219 T00941035 $  ## [A] Las Vegas, Nellis Air Force Base
183709 2022-11-27 17:55   8 US US-OK  LTS KLTS 271655Z AUTO 35010KT 10SM BKN200 08/01 A2996 RMK AO2 SLP147 T00810008 $  ## [A] Altus, Altus Air Force Base
183717 2022-11-27 18:15  14               KLUA 271715Z AUTO 20009KT 10SM BKN022 OVC029 14/12 A2958 RMK AO2=  ## [A]
183720 2022-11-27 18:15  14 US US-TX  --- KLUD 271715Z AUTO 32006KT 10SM CLR 14/07 A2994 RMK AO2 T01360070=  ## [A] Decatur, Decatur Municipal Airport
183722 2022-11-27 17:55  11 US US-AZ  LUF KLUF 271655Z AUTO 00000KT 10SM CLR 11/M04 A3012 RMK AO2 SLP200 T01131044 $  ## [A] Glendale, Luke Air Force Base
183723 2022-11-27 18:15  12 US US-TN  --- KLUG 271715Z AUTO 23011G18KT 10SM OVC027 12/06 A2973 RMK A01=  ## [A] Lewisburg, Ellington Airport
183727 2022-11-27 17:53  13 US US-OH  LUK KLUK 271653Z 22020G28KT 8SM -RA SCT027 SCT037 OVC060 13/10 A2947 RMK AO2 PK WND 23032/1642 RAB32 SLP979 P0002 T01330100=  ## [A] Cincinnati, Cincinnati Municipal Airport Lunken Field
183728 2022-11-27 18:15  19 US US-MS  LUL KLUL 271715Z AUTO 23013G18KT 10SM CLR 19/08 A2992 RMK A02 T01930076=  ## [A] Laurel, Hesler Noble Field
183729 2022-11-27 18:15   4 US US-WI  --- KLUM 271715Z AUTO 34009KT 10SM CLR 04/02 A2978 RMK AO2 T00400020 PWINO=  ## [A] Menomonie, Menomonie Municipal Score Field
183738 2022-11-27 18:15   9               KLUV 271715Z AUTO 01008KT 10SM CLR 09/03 A3003 RMK AO2=  ## [A]
183740 2022-11-27 18:15  21 US US-SC  --- KLUX 271715Z AUTO 23014G22KT 10SM SCT014 SCT023 21/17 A2971 RMK AO2=  ## [A] Laurens, Laurens County Airport
183752 2022-11-27 17:53  21 US US-TX  --- KLVJ 271653Z AUTO 26006G14KT 10SM CLR 21/13 A2995 RMK AO2 SLP142 T02110128 $  ## [A] Houston, Pearland Regional Airport
183753 2022-11-27 17:53   7 US US-CA  LVK KLVK 271653Z 00000KT 10SM CLR 07/02 A3015 RMK AO2 SLP209 T00670022 $  ## [A] Livermore, Livermore Municipal Airport
183754 2022-11-27 18:15  16 US US-VA  LVL KLVL 271715Z AUTO 15007KT 10SM OVC004 16/15 A2969 RMK AO1 T01560151=  ## [A] Lawrenceville, Lawrenceville Brunswick Municipal Airport
183755 2022-11-27 17:53   4 US US-MT  LVM KLVM 271653Z AUTO 22036G45KT 10SM FEW065 SCT085 04/M08 A2971 RMK AO2 PK WND 23050/1554 SLP076 T00391078=  ## [A] Livingston, Mission Field
183756 2022-11-27 18:15   3 US US-MN  --- KLVN 271715Z AUTO 32007KT 10SM CLR 03/M03 A2981 RMK AO2=  ## [A] Minneapolis, Airlake Airport
183761 2022-11-27 17:53 XXX US US-NM  LVS KLVS 271653Z AUTO 16009KT 10SM SCT070 A3000 RMK AO2 SLPNO=  ## [A] Las Vegas, Las Vegas Municipal Airport
183769 2022-11-27 18:15   5 US US-MI  --- KLWA 271715Z AUTO 07005KT 3SM -RA SCT006 SCT011 OVC048 05/04 A2940 RMK AO2 T00500038=  ## [A] South Haven, South Haven Area Regional Airport
183770 2022-11-27 17:51   9 US US-WV  LWB KLWB 271651Z 04005KT 10SM SCT007 SCT010 OVC023 09/08 A2960=  ## [A] Lewisburg, Greenbrier Valley Airport
183771 2022-11-27 17:52   5 US US-KS  LWC KLWC 271652Z AUTO 33015G23KT 10SM FEW017 05/01 A2984 RMK AO1 SLP107 T00500011=  ## [A] Lawrence, Lawrence Municipal Airport
183772 2022-11-27 17:53   5               KLWD 271653Z AUTO 34014KT 10SM FEW017 05/00 A2975 RMK AO2 SLP082 T00500000=  ## [A]
183781 2022-11-27 17:54  13 US US-MA  LWM KLWM 271654Z 22006KT 10SM CLR 13/M03 A2976 RMK AO2 SLP077 T01281028=  ## [A] Lawrence, Lawrence Municipal Airport
183787 2022-11-27 17:56   8 US US-ID  LWS KLWS 271656Z 21015KT 10SM SCT048 BKN060 OVC090 08/M01 A2982 RMK AO2 WSHFT 1630 SLP105 T00831006=  ## [A] Lewiston, Lewiston Nez Perce County Airport
183788 2022-11-27 17:54   2 US US-MT  LWT KLWT 271654Z AUTO 23024G42KT 10SM BKN110 02/M07 A2961 RMK AO2 PK WND 23042/1651 SLP054 T00221067=  ## [A] Lewistown, Lewistown Municipal Airport
183790 2022-11-27 17:53  12 US US-IL  LWV KLWV 271653Z AUTO 21019G27KT 10SM OVC020 12/09 A2945 RMK AO2 PK WND 22031/1556 SLP972 T01170094 $  ## [A] Lawrenceville, Lawrenceville Vincennes International Airport
183806 2022-11-10 06:55   7 US US-MN  --- KLXL 100555Z AUTO 03005KT 3SM -RA SCT006 OVC010 07/06 A2980 RMK AO2 LTG DSNT NE SW AND NW P0007=  ## [A] Little Falls, Little Falls-Morrison County-Lindbergh field
183808 2022-11-27 18:15   3 US US-NE  LXN KLXN 271715Z AUTO 35006KT 10SM CLR 03/M04 A2997 RMK AO2 T00271042=  ## [A] Lexington, Jim Kelly Field
183814 2022-11-27 18:13   5 US US-MO  --- KLXT 271713Z AUTO 31014KT 10SM BKN018 BKN090 OVC120 05/02 A2979 RMK AO2 T00500022 $  ## [A] Lee's Summit, Lee's Summit Municipal Airport
183816 2022-11-27 17:53  -5 US US-CO  LXV KLXV 271653Z AUTO VRB06KT 10SM OVC025 M05/M10 A2997 RMK AO2 SNE43 SLP116 P0000 T10501100=  ## [A] Leadville, Lake County Airport
183819 2022-11-11 18:10  12 US US-TX  --- KLXY 111710Z AUTO 34012G16KT 7SM VCTSRA OVC005 12/12 A2992 RMK AO2 LTG DSNT ALQS P0005 T01200116=  ## [A] Mexia, Mexia Limestone County Airport
183828 2022-11-27 18:20  11 US US-VA  LYH KLYH 271720Z 31003KT 3SM -RA BR OVC004 11/09 A2964 RMK AO2 RAB01 P0001 T01060089=  ## [A] Lynchburg, Lynchburg Regional Preston Glenn Field
183835 2022-11-27 18:15   6 US US-KS  LYO KLYO 271715Z AUTO 34020G27KT 10SM CLR 06/M02 A2995 RMK AO2 T00571021=  ## [A] Lyons, Lyons-Rice County Municipal Airport
183842 2022-11-27 18:15   1 US US-MN  --- KLYV 271715Z AUTO 35006KT 10SM CLR 01/M03 A2990 RMK AO2=  ## [A] Luverne, Quentin Aanenson Field
183867 2022-11-27 17:56  19 US US-GA  LZU KLZU 271656Z 24015G20KT 10SM CLR 19/09 A2978 RMK AO2 PK WND 25027/1613 SLP090 T01940089 PNO $  ## [A] Lawrenceville, Gwinnett County Briscoe Field
183872 2022-11-27 17:55  14 US US-TX  --- KLZZ 271655Z AUTO 34003KT 10SM CLR 14/06 A2995 RMK AO2 T01390063=  ## [A] Lampasas, Lampasas Airport
183877 2022-11-27 17:53   9 US US-CA  MAE KMAE 271653Z AUTO 18003KT 5SM HZ CLR 09/03 A3016 RMK AO2 SLP214 T00890028=  ## [A] Madera, Madera Municipal Airport
183878 2022-11-27 17:53   9 US US-TX  MAF KMAF 271653Z 33010KT 10SM CLR 09/02 A3001 RMK AO2 SLP149 T00940022=  ## [A] Midland, Midland International Airport
183881 2022-11-27 17:53  21 US US-FL  --- KMAI 271653Z AUTO 26012KT 10SM CLR 21/07 A2995 RMK AO1 SLP140 T02060072=  ## [A] Marianna, Marianna Municipal Airport
183886 2022-11-27 18:15   1 US US-ID  --- KMAN 271715Z AUTO 15007KT 10SM 01/M01 A3006 RMK A01=  ## [A] Nampa, (Duplicate)
183887 2022-11-27 18:15  22 US US-SC  --- KMAO 271715Z AUTO 19013G21KT 10SM OVC012 22/20 A2975 RMK AO2=  ## [A] Marion, Marion County Airport
183895 2022-11-27 18:15  12 US US-MO  MAW KMAW 271715Z AUTO 24015KT 5SM HZ BKN018 OVC024 12/09 A2965 RMK AO1=  ## [A] Malden, Malden Regional Airport
183905 2022-11-27 17:52  -1 US US-SD  MBG KMBG 271652Z AUTO 14007KT 10SM CLR M01/M04 A2985 RMK AO2 SLP128 T10111039=  ## [A] Mobridge, Mobridge Municipal Airport
183910 2022-11-27 17:56   6 US US-MI  MBL KMBL 271656Z AUTO 01009KT 10SM OVC055 06/02 A2950 RMK AO2 SLP996 T00560022=  ## [A] Manistee, Manistee Co Blacker Airport
183913 2022-11-27 18:15  17 US US-MS  DXE KMBO 271715Z AUTO 25008G14KT 10SM CLR 17/08 A2988 RMK AO2 LTG DSNT N AND W=  ## [A] Madison, Bruce Campbell Field
183917 2022-11-27 17:53   5 US US-MI  MBS KMBS 271653Z 01007KT 5SM BR SCT006 BKN055 OVC070 05/03 A2946 RMK AO2 RAE13 SLP978 P0000 T00500033=  ## [A] Saginaw, MBS International Airport
183918 2022-11-27 18:15  13 US US-TN  --- KMBT 271715Z AUTO 21016G26KT 10SM BKN031 BKN037 13/06 A2969 RMK A01=  ## [A] Murfreesboro, Murfreesboro Municipal Airport
183923 2022-11-27 18:15   6 US US-MO  MBY KMBY 271715Z AUTO 32012KT 10SM BKN010 OVC041 06/03 A2971 RMK AO2=  ## [A] Moberly, Omar N Bradley Airport
183926 2022-11-27 17:53  19 US US-MS  MCB KMCB 271653Z AUTO 23011G19KT 10SM CLR 19/08 A2994 RMK AO2 SLP134 T01890083=  ## [A] Mc Comb, Mc Comb/Pike County Airport/John E Lewis Field
183927 2022-11-27 18:15  10 US US-CA  MCC KMCC 271715Z AUTO 17006KT 10SM CLR 10/02 A3015 RMK AO2=  ## [A] Sacramento, Mc Clellan Airfield
183928 2022-11-27 18:15   3 US US-MI  MCD KMCD 271715Z AUTO 04009KT 10SM OVC012 03/01 A2956 RMK AO2 T00310006=  ## [A] Mackinac Island, Mackinac Island Airport
183929 2022-11-27 17:53   8 US US-CA  MCE KMCE 271653Z AUTO 00000KT 8SM CLR 08/02 A3016 RMK AO2 SLP213 T00780017=  ## [A] Merced, Merced Regional Macready Field
183930 2022-11-27 17:55  26 US US-FL  MCF KMCF 271655Z AUTO 21009KT 10SM CLR 26/23 A2997 RMK AO2 SLP152 T02630229 FZRANO $  ## [A] Tampa, Mac Dill Air Force Base
183933 2022-11-27 18:12   6 US US-MO  MCI KMCI 271712Z 33012KT 10SM SCT020 SCT130 OVC200 06/01 A2979 RMK AO2 T00610006=  ## [A] Kansas City, Kansas City International Airport
183934 2022-11-27 18:15  19               KMCJ 271715Z AUTO VRB06G16KT 10SM CLR 19/12 A2993 RMK A01=  ## [A]
183935 2022-11-27 17:53   4 US US-NE  MCK KMCK 271653Z AUTO 36004KT 10SM CLR 04/M05 A2998 RMK AO2 SLP166 T00441050=  ## [A] Mc Cook, Mc Cook Ben Nelson Regional Airport
183938 2022-11-27 17:53  23 US US-GA  MCN KMCN 271653Z 25012G24KT 10SM CLR 23/08 A2983 RMK AO2 PK WND 23031/1608 SLP100 T02280083=  ## [A] Macon, Middle Georgia Regional Airport
183939 2022-11-27 17:53  27 US US-FL  MCO KMCO 271653Z 21014G19KT 10SM FEW026 SCT034 BKN250 27/21 A3001 RMK AO2 SLP159 T02720211 $  ## [A] Orlando, Orlando International Airport
183947 2022-11-25 15:53  -1 US US-IA  MCW KMCW 251453Z AUTO 24004KT 10SM CLR M01/M04 A3027 RMK AO2 SLP259 T10111039 53004=  ## [A] Mason City, Mason City Municipal Airport
183948 2022-11-23 19:35  13 US US-IN  --- KMCX 231835Z AUTO 00000KT 10SM CLR 13/02 A3019 RMK AO2 T01330017=  ## [A] Monticello, White County Airport
183954 2022-11-27 18:15  10 US US-TX  MDD KMDD 271715Z AUTO 32008KT 10SM CLR 10/01 A3002 RMK AO2 T00980012=  ## [A] Midland, Midland Airpark
183958 2022-11-27 17:52  11 US US-IL  MDH KMDH 271652Z 27011G19KT 10SM BKN017 BKN024 OVC032 11/09 A2955 RMK AO2 RAB11E24 SLP008 P0001 T01110089=  ## [A] Carbondale/Murphysboro, Southern Illinois Airport
183960 2021-08-29 13:50  -1               KMDJ 291150Z AUTO 02083G102KT M1/4SM FG BKN002 OVC019 26/26 A2858 RMK A01=  ## [A]
183967 2022-11-27 18:15  13 US US-AL  --- KMDQ 271715Z AUTO 23014G24KT 10SM OVC033 13/05 A2979 RMK A02 T01300053=  ## [A] Huntsville, Madison County Executive Airport-Tom Sharp Jr Field
183969 2022-11-27 18:15   2 US US-SD  XMD KMDS 271715Z AUTO 31006KT 10SM CLR 02/M01 A2990 RMK AO2=  ## [A] Madison, Madison Municipal Airport
183970 2022-11-27 18:20   6 US US-PA  MDT KMDT 271720Z 00000KT 3/4SM R13/5000VP6000FT -RA BR BKN007 OVC010 06/05 A2966 RMK AO2 TWR VIS 3 CIG 006V009 P0003 T00560050 $  ## [A] Harrisburg, Harrisburg International Airport
183973 2022-11-27 17:53   6 US US-IL  MDW KMDW 271653Z 01008KT 10SM BKN011 BKN033 OVC060 06/04 A2947 RMK AO2 RAE22 SLP985 P0000 T00610039=  ## [A] Chicago, Chicago Midway International Airport
183976 2022-11-27 18:15   3 US US-WI  MDF KMDZ 271715Z AUTO 01012G15KT 10SM CLR 03/M03 A2969 RMK AO2 T00301031 PWINO=  ## [A] Medford, Taylor County Airport
183978 2022-11-27 18:20  23 US US-NC  --- KMEB 271720Z AUTO 21014G22KT 10SM FEW011 BKN019 OVC027 23/21 A2971 RMK AO2 T02280206=  ## [A] Maxton, Laurinburg Maxton Airport
183984 2022-11-26 01:56   3               KMEH 260056Z AUTO 00000KT 10SM FEW110 03/M04 A3013 RMK AO2 SLP219 T00281039=  ## [A]
183985 2022-11-27 17:58  18 US US-MS  MEI KMEI 271658Z 24013G23KT 10SM CLR 18/07 A2990 RMK AO2 PK WND 23031/1635 SLP120 I1000 T01780072 $  ## [A] Meridian, Key Field
183989 2022-11-27 17:54  11 US US-TN  MEM KMEM 271654Z 22010KT 10SM BKN019 OVC024 11/08 A2976 RMK AO2 PK WND 23027/1558 SLP077 T01110078=  ## [A] Memphis, Memphis International Airport
183994 2022-11-27 17:53   8 US US-CA  MER KMER 271653Z 00000KT 6SM CLR 08/06 A3017 HZ=  ## [A] Merced, Castle Airport
183998 2022-11-27 18:15  -1 US US-NV  MEV KMEV 271715Z AUTO 00000KT 10SM CLR M01/M04 A3016 RMK AO2=  ## [A] Minden, Minden-Tahoe Airport
184002 2022-11-27 18:15  10 US US-AR  --- KMEZ 271715Z AUTO 30007KT 9SM 10/08 A2985 RMK AO2 T01030077 $  ## [A] Mena, Mena Intermountain Municipal Airport
184006 2022-11-27 18:03  13 US US-OH  MFD KMFD 271703Z 21020G27KT 5SM -RA BR FEW011 BKN026 OVC055 13/11 A2936 RMK AO2 PK WND 20027/1654 P0002 T01280111=  ## [A] Mansfield, Mansfield Lahm Regional Airport
184007 2022-11-27 17:53  22 US US-TX  MFE KMFE 271653Z 17008KT 10SM CLR 22/15 A2994 RMK AO2 SLP138 T02170150=  ## [A] Mc Allen, Mc Allen Miller International Airport
184011 2022-11-27 17:54   4 US US-WI  MFI KMFI 271654Z AUTO 02011G18KT 10SM CLR 04/M03 A2967 RMK AO2 SLP059 T00391028=  ## [A] Marshfield, Marshfield Municipal Airport
184020 2022-11-27 17:53   6 US US-OR  MFR KMFR 271653Z AUTO 00000KT 10SM OVC027 06/02 A3025 RMK AO2 SLP248 T00610022=  ## [A] Medford, Rogue Valley International Medford Airport
184024 2022-11-27 17:35  12 US US-VA  MFV KMFV 271635Z AUTO 18013G18KT 10SM DZ SCT060 OVC110 12/10 A2983 RMK AO2 T01200100=  ## [A] Melfa, Accomack County Airport
184031 2022-11-27 18:15   5 US US-IN  MGC KMGC 271715Z AUTO 02005KT 7SM -RA SCT015 OVC032 05/03 A2942 RMK AO2=  ## [A] Michigan City, Michigan City Municipal Airport
184033 2022-11-27 17:55  17 US US-GA  MGE KMGE 271655Z 24016G24KT 10SM SCT030 17/07 A2979 RMK AO2A SLP087 T01650074 $  ## [A] Marietta, Dobbins Air Reserve Base
184035 2022-11-27 18:15   2 US US-MN  --- KMGG 271715Z AUTO 34005KT 10SM CLR 02/M03 A2985 RMK AO2 T00241026=  ## [A] Maple Lake, Maple Lake Municipal Airport
184038 2022-11-27 17:54   8 US US-NY  MGJ KMGJ 271654Z AUTO 23005KT 10SM OVC100 08/M01 A2972 RMK AO2 RAB16E24 SLP067 P0000 T00831006=  ## [A] Montgomery, Orange County Airport
184041 2022-11-27 17:53  19 US US-AL  MGM KMGM 271653Z 26011KT 10SM CLR 19/09 A2992 RMK AO2 SLP129 T01890089=  ## [A] Montgomery, Montgomery Regional (Dannelly Field) Airport
184042 2022-11-27 18:15   3 US US-MI  --- KMGN 271715Z AUTO 03007KT 10SM RA OVC011 03/02 A2954 RMK AO2 T00370022=  ## [A] Harbor Springs, Harbor Springs Airport
184046 2022-11-27 18:15  21 US US-GA  MGR KMGR 271715Z AUTO 26011G26KT 10SM CLR 21/12 A2993 RMK AO2=  ## [A] Moultrie, Moultrie Municipal Airport
184051 2022-11-27 17:53  16 US US-WV  MGW KMGW 271653Z VRB04KT 10SM SCT055 BKN090 16/14 A2947 RMK AO2 RAE45 SLP980 P0005 T01610139=  ## [A] Morgantown, Morgantown Municipal Walter L. Bill Hart Field
184053 2022-11-27 17:53  12 US US-OH  MGY KMGY 271653Z AUTO 22018G29KT 4SM RA FEW019 BKN046 OVC055 12/09 A2941 RMK AO2 PK WND 24029/1645 RAB31 SLP960 P0001 T01170089 $  ## [A] Dayton, Dayton-Wright Brothers Airport
184059 2022-11-27 17:53   1 US US-SD  MHE KMHE 271653Z AUTO 31003KT 10SM CLR 01/M04 A2995 RMK AO2 SLP156 T00061039=  ## [A] Mitchell, Mitchell Municipal Airport
184065 2022-11-27 17:52   7 US US-KS  MHK KMHK 271652Z 34008KT 10SM CLR 07/M01 A2991 RMK AO2 SLP133 T00671011=  ## [A] Manhattan, Manhattan Regional Airport
184066 2022-11-27 18:15   5 US US-MO  MHL KMHL 271715Z AUTO 32011G17KT 10SM OVC011 05/03 A2975 RMK AO2=  ## [A] Marshall, Marshall Memorial Municipal Airport
184068 2022-08-31 03:58  26               KMHN 310158Z COR 03009KT 10SM BKN140 26/12 A3021 RMK AO2A SLP167 T02580119 $  ## [A]
184070 2022-11-27 18:10 XXX US US-GA  --- KMHP 271710Z AUTO 25010G23KT 10SM SCT017 SCT031 BKN120 22/ A2982 RMK AO2 T0217////=  ## [A] Metter, Metter Municipal Airport
184072 2022-11-27 18:15  11 US US-CA  MHR KMHR 271715Z AUTO 17007KT 10SM CLR 11/03 A3014 RMK A01=  ## [A] Sacramento, Sacramento Mather Airport
184073 2022-11-27 17:56   4               KMHS 271656Z AUTO VRB03KT 10SM CLR 04/M03 A3014 RMK AO2 SLP239 T00441033=  ## [A]
184074 2022-11-27 17:53  12 US US-NH  MHT KMHT 271653Z 19005KT 10SM CLR 12/M03 A2973 RMK AO2 SLP082 T01171028 $  ## [A] Manchester, Manchester-Boston Regional Airport
184076 2022-11-27 18:20  12 US US-CA  MHV KMHV 271720Z AUTO 00000KT 10SM CLR 12/M10 A3017 RMK A01=  ## [A] Mojave, Mojave Airport
184081 2022-11-27 17:53  29 US US-FL  MIA KMIA 271653Z 19008KT 10SM FEW020 SCT050 BKN060 BKN250 29/22 A3003 RMK AO2 SLP169 CB DSNT NE MOV NE TCU DSNT E-SE T02940222 $  ## [A] Miami, Miami International Airport
184082 2022-11-27 17:55   1 US US-ND  MIB KMIB 271655Z AUTO 21017KT 10SM FEW075 01/M05 A2966 RMK AO2 SLP070 T00081052 $  ## [A] Minot, Minot Air Force Base
184083 2022-11-27 17:53   3 US US-MN  --- KMIC 271653Z 36008KT 10SM CLR 03/M02 A2982 RMK AO2 SLP106 T00281022=  ## [A] Minneapolis, Crystal Airport
184085 2022-11-27 18:18  12 US US-IN  MIE KMIE 271718Z 23013G30KT 6SM -RA BKN020 BKN027 OVC060 12/08 A2935 RMK AO2 PK WND 24030/1715 P0001 T01170078=  ## [A] Muncie, Delaware County Johnson Field
184095 2022-11-27 18:15   8 US US-OK  --- KMIO 271715Z AUTO 30005G15KT 10SM OVC016 08/05 A2985 RMK AO2=  ## [A] Miami, Miami Regional Airport
184099 2022-06-15 17:45  29               KMIS 151545Z AUTO 36008KT 10SM FEW023 FEW027 SCT075 29/24 A3008 RMK A01=  ## [A]
184102 2022-11-27 17:54  11 US US-NJ  MIV KMIV 271654Z AUTO VRB03KT 6SM -RA SCT025 BKN048 OVC090 11/06 A2976 RMK AO2 RAB16 PRESFR SLP077 P0001 T01060061=  ## [A] Millville, Millville Municipal Airport
184103 2022-11-27 17:53   4 US US-IA  --- KMIW 271653Z AUTO 35017G24KT 10SM CLR 04/01 A2973 RMK AO2 SLP074 T00440006=  ## [A] Marshalltown, Marshalltown Municipal Airport
184110 2022-11-27 18:15  21 US US-MS  --- KMJD 271715Z AUTO 26010G17KT 10SM CLR 21/10 A2995 RMK AO2=  ## [A] Picayune, Picayune Municipal Airport
184123 2022-11-27 18:15   1 US US-MN  --- KMJQ 271715Z AUTO 35009G16KT 10SM CLR 01/M01 A2984 RMK AO2=  ## [A] Jackson, Jackson Municipal Airport
184130 2022-10-13 05:56  10 US US-NJ  MJX KMJX 130356Z AUTO 00000KT 10SM CLR 10/10 A3008 RMK AO2 SLP188 T01000100 402170028 TSNO=  ## [A] Toms River, Ocean County Airport
184135 2022-11-27 17:54   5 US US-MO  MKC KMKC 271654Z 33011G21KT 10SM OVC021 05/01 A2980 RMK AO2 SLP094 T00500011=  ## [A] Kansas City, Charles B. Wheeler Downtown Airport
184137 2022-11-27 17:52   7 US US-WI  MKE KMKE 271652Z 36015G24KT 10SM BKN008 OVC015 07/03 A2952 RMK AO2 PK WND 03027/1604 SLP000 T00670033=  ## [A] Milwaukee, General Mitchell International Airport
184139 2022-11-27 17:55   8 US US-MI  MKG KMKG 271655Z 01004KT 10SM OVC100 08/01 A2947 RMK AO2 SLP980 T00830011=  ## [A] Muskegon, Muskegon County Airport
184142 2022-11-27 18:15  19 US US-VA  --- KMKJ 271715Z AUTO 17006KT 10SM SCT050 19/11 A2960 RMK AO2 T01940109=  ## [A] Marion/Wytheville, Mountain Empire Airport
184144 2022-11-27 17:53  11 US US-TN  MKL KMKL 271653Z 22013G19KT 10SM OVC023 11/07 A2974 RMK AO2 SLP068 T01060067=  ## [A] Jackson, McKellar-Sipes Regional Airport
184146 2022-11-27 18:15  14 US US-TX  --- KMKN 271715Z AUTO 36007KT 10SM CLR 14/07 A2997 RMK AO2 T01420071=  ## [A] Comanche, Comanche County City Airport
184147 2022-11-27 18:05  11 US US-OK  --- KMKO 271705Z AUTO 31010G16KT 10SM BKN020 11/07 A2990 RMK AO2 T01060067=  ## [A] Muskogee, Muskogee-Davis Regional Airport
184151 2022-11-27 18:15  23 US US-SC  --- KMKS 271715Z AUTO 22012G20KT 10SM OVC020 23/18 A2980 RMK AO2 LTG DSNT SE=  ## [A] Moncks Corner, Berkeley County Airport
184152 2022-11-27 17:56   2 US US-MN  --- KMKT 271656Z AUTO 34010KT 10SM CLR 02/M02 A2984 RMK AO2 SLP117 T00171017 FZRANO=  ## [A] Mankato, Mankato Regional Airport
184157 2022-11-27 18:22  29 US US-FL  MRK KMKY 271722Z AUTO 21010KT 10SM SCT018 29/23 A3004 RMK AO2 TSNO PNO $  ## [A] Marco Island, Marco Island Executive Airport
184160 2022-11-27 17:53  28 US US-FL  MLB KMLB 271653Z 22013G23KT 10SM FEW032 SCT042 28/21 A2999 RMK AO2 SLP155 T02780211=  ## [A] Melbourne, Melbourne International Airport
184161 2022-11-27 17:53  12 US US-OK  MLC KMLC 271653Z AUTO 29007KT 10SM FEW021 FEW110 12/07 A2989 RMK AO2 SLP118 T01170067=  ## [A] Mc Alester, Mc Alester Regional Airport
184163 2022-11-27 18:15   4 US US-NE  --- KMLE 271715Z AUTO 32012G18KT 10SM CLR 04/M03 A2990 RMK AO2 T00411035=  ## [A] Omaha, Millard Airport
184164 2022-11-27 17:52  -1 US US-UT  --- KMLF 271652Z AUTO 18006KT 10SM CLR M01/M05 A3015 RMK AO2 SLP226 T10111050=  ## [A] Milford, Milford Municipal-Ben and Judy Briscoe Field
184167 2022-11-27 17:52   6 US US-IL  MLI KMLI 271652Z 34009KT 10SM -RA BKN037 BKN046 OVC060 06/03 A2961 RMK AO2 SLP029 P0004 T00610028=  ## [A] Moline, Quad City International Airport
184168 2022-11-27 18:15  23 US US-GA  --- KMLJ 271715Z VRB05G17KT 10SM CLR 23/08 A2978 RMK AO2 RWY 10/28 CLOSED TO ALL FIXED WINGS=  ## [A] Milledgeville, Baldwin County Regional Airport
184174 2022-11-27 18:06  -4               KMLP 271706Z AUTO 24015G37KT 1/4SM SN FZFG OVC004 M04/M06 A2952 RMK AO2 PK WND 24037/1705 P0000 T10391061=  ## [A]
184177 2022-11-27 17:53  -2 US US-MT  MLS KMLS 271653Z AUTO 16004KT 10SM FEW065 SCT080 BKN110 M02/M02 A2970 RMK AO2 SLP086 T10171022=  ## [A] Miles City, Frank Wiley Field
184178 2022-11-27 17:53  10 US US-ME  --- KMLT 271653Z AUTO 17003KT 10SM CLR 10/M01 A2965 RMK AO2 SLP047 T01001006=  ## [A] Millinocket, Millinocket Municipal Airport
184179 2022-11-27 17:53  16 US US-LA  MLU KMLU 271653Z 26009G17KT 10SM CLR 16/08 A2990 RMK AO2 SLP123 T01610078=  ## [A] Monroe, Monroe Regional Airport
184192 2022-11-27 17:37  -5 US US-CA  MMH KMMH 271637Z AUTO 00000KT 10SM CLR M05/M10 A3020 RMK AO2=  ## [A] Mammoth Lakes, Mammoth Yosemite Airport
184193 2022-11-27 18:15  17 US US-TN  MMI KMMI 271715Z AUTO 24015G24KT 10SM BKN042 BKN050 17/07 A2973 RMK A01=  ## [A] Athens, McMinn County Airport
184195 2022-11-27 17:53  10 US US-CT  --- KMMK 271653Z AUTO 18008KT 10SM CLR 10/02 A2977 RMK AO2 SLP080 T01000017=  ## [A] Meriden, Meriden Markham Municipal Airport
184196 2022-11-27 17:56   1 US US-MN  MML KMML 271656Z AUTO 33006KT 10SM FEW008 01/M02 A2990 RMK AO2 SLP141 T00061022 FZRANO=  ## [A] Marshall, Southwest Minnesota Regional Airport - Marshall/Ryan Field
184204 2022-11-27 18:05  22 US US-SC  MMT KMMT 271705Z AUTO 21014G22KT 10SM OVC015 22/22 A2972 RMK AO2 SLP066 $  ## [A] Eastover, Mc Entire Joint National Guard Base
184205 2022-11-27 17:45   9 US US-NJ  MMU KMMU 271645Z 00000KT 10SM OVC100 09/04 A2977=  ## [A] Morristown, Morristown Municipal Airport
184206 2022-11-27 17:53   7 US US-OR  --- KMMV 271653Z AUTO 25003KT 10SM FEW007 BKN021 OVC065 07/06 A3009 RMK AO2 RAE1556B25E35 SLP190 P0000 T00720061=  ## [A] Mc Minnville, Mc Minnville Municipal Airport
184215 2022-11-20 18:15   9               KMNE 201715Z AUTO 07005KT 10SM TS CLR 09/M03 A3050 RMK AO2 T00851029=  ## [A]
184218 2022-11-27 18:15   0               KMNH 271715Z AUTO 19013KT 10SM CLR 00/M05 A2992 RMK AO2=  ## [A]
184219 2022-11-27 18:15  21 US US-SC  --- KMNI 271715Z AUTO 21009G15KT 10SM BKN020 OVC030 21/19 A2977 RMK AO2=  ## [A] Manning, Santee Cooper Regional Airport
184223 2022-11-21 16:56  -1 US US-MI  MNM KMNM 211556Z AUTO 10SM CLR M01/M07 A2994 RMK AO2 SLPNO T10061067 FZRANO $  ## [A] Menominee, Menominee Regional Airport
184224 2022-11-27 18:15  13 US US-OH  MNN KMNN 271715Z AUTO 21012G22KT 8SM BKN018 OVC070 13/11 A2936 RMK AO2 T01330111=  ## [A] Marion, Marion Municipal Airport
184232 2022-11-27 18:15  17 US US-TN  --- KMNV 271715Z AUTO 24017G24KT 10SM BKN043 17/08 A2970 RMK A01=  ## [A] Madisonville, Monroe County Airport
184236 2022-11-27 18:15  14 US US-TX  --- KMNZ 271715Z AUTO 34007KT 7SM 14/06 A2997 RMK AO2 T01360064=  ## [A] Hamilton, Hamilton Municipal Airport
184238 2022-11-27 17:56  20 US US-AL  MOB KMOB 271656Z 25006KT 10SM SCT250 20/07 A2998 RMK AO2 SLP148 T02000067 $  ## [A] Mobile, Mobile Regional Airport
184240 2022-11-27 17:53   6 US US-CA  MOD KMOD 271653Z 10004KT 5SM HZ CLR 06/02 A3015 RMK AO2 SNE23 SLP210 P0000 T00560022=  ## [A] Modesto, Modesto City Co-Harry Sham Field
184252 2022-11-27 18:15   4 US US-MI  --- KMOP 271715Z AUTO 36004KT 10SM SCT070 OVC085 04/00 A2944 RMK AO2 T00420000=  ## [A] Mount Pleasant, Mount Pleasant Municipal Airport
184254 2022-11-27 18:15  18 US US-TN  --- KMOR 271715Z AUTO 27022G31KT 10SM FEW041 SCT048 18/09 A2962 RMK A01=  ## [A] Morristown, Moore Murrell Airport
184256 2022-11-27 17:54   2 US US-ND  MOT KMOT 271654Z 17016G25KT 10SM CLR 02/M06 A2970 RMK AO2 SLP078 T00171056=  ## [A] Minot, Minot International Airport
184260 2022-11-27 18:15  -1 US US-MN  --- KMOX 271715Z AUTO 33008KT 10SM CLR M01/M03 A2989 RMK AO2=  ## [A] Morris, Morris Municipal - Charlie Schmidt Airport
184277 2022-11-27 18:09   6 US US-PA  --- KMPO 271709Z AUTO VRB05KT 10SM -RA BKN019 OVC070 06/02 A2967 RMK AO2 PRESFR P0000 T00610017 $  ## [A] Mount Pocono, Pocono Mountains Municipal Airport
184280 2022-11-27 18:15   5 US US-KS  --- KMPR 271715Z AUTO 33018KT 10SM CLR 05/M01 A2994 RMK AO2 T00491013=  ## [A] Mc Pherson, Mc Pherson Airport
184284 2022-11-27 17:51   9 US US-VT  MPV KMPV 271651Z AUTO 15009KT 10SM CLR 09/M03 A2971 RMK AO2 SLP070 T00941033=  ## [A] Barre/Montpelier, Edward F Knapp State Airport
184288 2022-11-27 18:15   5 US US-IA  MPZ KMPZ 271715Z AUTO 33010G15KT 7SM RA BKN010 OVC016 05/05 A2967 RMK AO2=  ## [A] Mount Pleasant, Mount Pleasant Municipal Airport
184290 2022-11-27 18:15   7 US US-IL  MQB KMQB 271715Z AUTO 33016G24KT 10SM SCT120 07/03 A2962 RMK AO2 T00740030=  ## [A] Macomb, Macomb Municipal Airport
184293 2021-07-01 15:51  24               KMQE 011351Z AUTO 30008KT 24/21 A2986 RMK AO1 SLP116 T02440206=  ## [A]
184297 2022-11-27 18:15  16 US US-NC  MEO KMQI 271715Z AUTO 20015KT 10SM SCT028 SCT035 BKN085 16/14 A2984 RMK AO2 T01610142=  ## [A] Manteo, Dare County Regional Airport
184298 2022-11-27 18:15   9 US US-IN  --- KMQJ 271715Z AUTO 21016G20KT 5SM OVC016 09/09 A2939 RMK AO1=  ## [A] Indianapolis, Indianapolis Regional Airport
184307 2022-11-27 18:15   8 US US-PA  CTH KMQS 271715Z AUTO 17007KT 130V200 1 1/4SM RA SCT001 OVC016 08/08 A2971 RMK AO2=  ## [A] Coatesville, Chester County G O Carlson Airport
184311 2022-11-27 18:15  23 US US-GA  --- KMQW 271715Z AUTO 24011G21KT 220V280 10SM CLR 23/11 A2985 RMK AO2 T02330106=  ## [A] Mc Rae, Telfair Wheeler Airport
184313 2022-11-27 17:56  13 US US-TN  MQY KMQY 271656Z 21012G22KT 10SM BKN031 13/06 A2971 RMK AO2 SLP068 T01330061=  ## [A] Smyrna, Smyrna Airport
184316 2022-11-27 17:53   6 US US-WV  MRB KMRB 271653Z 33004KT 8SM -RA BKN025 BKN032 OVC060 06/04 A2964 RMK AO2 RAB1559 SLP040 P0002 T00560044 $  ## [A] Martinsburg, Eastern WV Regional Airport/Shepherd Field
184317 2022-11-27 18:10  12 US US-TN  MRC KMRC 271710Z AUTO 23017G24KT 10SM OVC028 12/06 A2972 RMK A01=  ## [A] Columbia/Mount Pleasant, Maury County Airport
184320 2022-11-27 17:56  13 US US-TX  MRF KMRF 271656Z AUTO 26019G23KT 10SM CLR 13/M06 A3011 RMK AO2 SLP166 T01331056=  ## [A] Marfa, Marfa Municipal Airport
184322 2022-11-27 18:13  22 US US-NC  --- KMRH 271713Z AUTO 16013G21KT 10SM BKN023 OVC041 22/18 A2982 RMK AO2 PRESFR T02170183=  ## [A] Beaufort, Michael J. Smith Field
184324 2022-11-23 01:35   4 US US-WI  --- KMRJ 230035Z AUTO 19005KT 10SM CLR 04/M03 A3010 RMK AO2=  ## [A] Mineral Point, Iowa County Airport
184328 2022-11-27 18:15  13 US US-NC  --- KMRN 271715Z AUTO 00000KT 10SM SCT003 SCT008 BKN014 13/12 A2970 RMK AO2 T01330117=  ## [A] Morganton, Foothills Regional Airport
184334 2022-11-27 18:15  14 US US-OH  --- KMRT 271715Z AUTO 26019G24KT 10SM BKN021 BKN026 OVC045 14/10 A2938 RMK AO2 T01400104=  ## [A] Marysville, Union County Airport
184339 2022-11-27 17:54  11 US US-CA  MRY KMRY 271654Z 00000KT 10SM CLR 11/M01 A3013 RMK AO2 SLP216 T01061006=  ## [A] Monterey, Monterey Peninsula Airport
184352 2022-11-27 18:05  13 US US-AL  MSL KMSL 271705Z AUTO 25012G21KT 10SM OVC030 13/07 A2977 RMK AO2 T01330067=  ## [A] Muscle Shoals, Northwest Alabama Regional Airport
184354 2022-11-27 17:53   4 US US-WI  MSN KMSN 271653Z 01014KT 10SM BKN020 OVC070 04/00 A2959 RMK AO2 SLP027 T00440000=  ## [A] Madison, Dane County Regional Truax Field
184355 2022-11-27 17:53   5 US US-MT  MSO KMSO 271653Z 18009G22KT 10SM FEW045 OVC060 05/M04 A2970 RMK AO2 SLP073 T00501039=  ## [A] Missoula, Missoula International Airport
184356 2022-11-27 17:53   3 US US-MN  MSP KMSP 271653Z 33008KT 10SM SCT250 03/M03 A2982 RMK AO2 SLP106 T00281028 $  ## [A] Minneapolis, Minneapolis-St Paul International/Wold-Chamberlain Airport
184359 2022-11-27 17:53  12 US US-NY  MSS KMSS 271653Z AUTO 26006KT 10SM CLR 12/M01 A2963 RMK AO2 SLP036 T01171011=  ## [A] Massena, Massena International Richards Field
184362 2022-11-27 17:56   6 US US-NY  --- KMSV 271656Z AUTO 20007KT 10SM OVC090 06/01 A2973 RMK AO2 RAE50 SLP076 P0000 T00610006=  ## [A] Monticello, Sullivan County International Airport
184365 2022-11-27 17:53  22 US US-LA  MSY KMSY 271653Z 25010G17KT 10SM FEW250 22/11 A2997 RMK AO2 SLP151 T02170106=  ## [A] New Orleans, Louis Armstrong New Orleans International Airport
184369 2022-11-27 17:56   6 US US-MI  MTC KMTC 271656Z 05009KT 10SM OVC024 06/04 A2937 RMK AO2A DZE05 PRESFR SLP954 P0000 T00580038=  ## [A] Mount Clemens, Selfridge Air National Guard Base Airport
184374 2022-11-27 17:53  29 US US-FL  MTH KMTH 271653Z AUTO 20007KT 10SM FEW018 29/24 A3003 RMK AO2 SLP170 T02940239=  ## [A] Marathon, The Florida Keys Marathon Airport
184376 2022-11-27 17:53   2 US US-CO  MTJ KMTJ 271653Z AUTO 00000KT 10SM OVC049 02/M01 A3011 RMK AO2 SLP186 T00171006=  ## [A] Montrose, Montrose Regional Airport
184377 2022-11-27 18:20  20               KMTK 271720Z AUTO 22004KT 10SM CLR 20/13 A3000 RMK A01=  ## [A]
184380 2022-11-27 17:55   9 US US-MD  MTN KMTN 271655Z 14011KT 7SM -RA OVC015 09/08 A2974=  ## [A] Baltimore, Martin State Airport
184381 2022-11-27 18:04   8 US US-IL  MTO KMTO 271704Z AUTO 30017KT 7SM OVC004 08/07 A2941 RMK AO2 WSHFT 1645 RAE1656 PRESRR P0000 T00830067 $  ## [A] Mattoon/Charleston, Coles County Memorial Airport
184382 2022-11-27 17:54  13 US US-NY  --- KMTP 271654Z AUTO 22008G15KT 13/09 A2980 RMK AO1 SLP090 T01330089=  ## [A] Montauk, Montauk Airport
184388 2022-11-27 18:15  11 US US-VA  --- KMTV 271715Z AUTO 17003KT 4SM BR OVC003 11/10 A2968 RMK AO2 T01080095=  ## [A] Martinsville, Blue Ridge Airport
184389 2022-11-27 17:56   5 US US-WI  --- KMTW 271656Z AUTO 36010KT 10SM -RA OVC015 05/02 A2958 RMK AO2 RAB15 SLP023 P0000 T00500017=  ## [A] Manitowoc, Manitowoc County Airport
184401 2022-11-27 18:19   5 US US-PA  --- KMUI 271719Z AUTO M 1 3/4SM RA BR M 05/05 A2965 RMK AO2 RAE04DZB04E06RAB06 PRESFR SLP047 TSNO CHINO RWY07 $  ## [A] Fort Indiantown Gap(Annville), Muir Army Air Field (Fort Indiantown Gap) Airport
184407 2022-11-27 17:55   0 US US-ID  MUO KMUO 271655Z AUTO 08008KT 10SM OVC085 M00/M01 A3004 RMK AO2 SLP195 T10011010 $  ## [A] Mountain Home, Mountain Home Air Force Base
184412 2022-11-27 18:15   6 US US-IA  --- KMUT 271715Z AUTO 33010G15KT 8SM BKN034 BKN041 06/05 A2966 RMK AO2=  ## [A] Muscatine, Muscatine Municipal Airport
184423 2022-11-27 18:15   0 US US-MN  --- KMVE 271715Z AUTO 31004KT 10SM CLR 00/M02 A2990 RMK AO2=  ## [A] Montevideo, Montevideo Chippewa County Airport
184426 2022-11-27 18:15   3               KMVH 271715Z AUTO 22005KT 10SM CLR 03/M07 A2960 RMK AO2 PWINO=  ## [A]
184430 2022-11-27 17:54   4 US US-VT  MVL KMVL 271654Z AUTO 02003KT 10SM CLR 04/M01 A2968 RMK AO2 SLP059 T00441011=  ## [A] Morrisville, Morrisville Stowe State Airport
184432 2022-11-27 17:56  10 US US-IL  --- KMVN 271656Z AUTO 27014G21KT 10SM OVC017 10/08 A2953 RMK AO2 RAB07E31 SLP005 T01000078 PNO $  ## [A] Mount Vernon, Mt. Vernon Outland Airport
184443 2022-11-27 17:53  14 US US-MA  MVY KMVY 271653Z 23007KT 10SM CLR 14/09 A2980 RMK AO2 SLP090 T01440089=  ## [A] Martha's Vineyard, Martha's Vineyard Airport
184445 2022-11-27 18:14  10 US US-IL  MWA KMWA 271714Z 26012G20KT 10SM SCT007 SCT011 OVC019 10/10 A2956=  ## [A] Marion, Williamson County Regional Airport
184447 2022-11-27 17:45   4 US US-WI  MWC KMWC 271645Z 36012G20KT 10SM -DZ OVC011 04/02 A2955=  ## [A] Milwaukee, Lawrence J Timmerman Airport
184452 2022-11-27 17:52   4 US US-WA  MWH KMWH 271652Z 25007G14KT 10SM CLR 04/M06 A2984 RMK AO2 SLP114 T00441056=  ## [A] Moses Lake, Grant County International Airport
184455 2022-11-27 18:15  10 US US-NC  --- KMWK 271715Z AUTO 26003KT 5SM BR BKN003 OVC007 10/10 A2969 RMK AO2 T01010100=  ## [A] Mount Airy, Mount Airy Surry County Airport
184456 2022-11-27 17:53  13 US US-TX  MWL KMWL 271653Z AUTO 35007KT 10SM CLR 13/07 A2994 RMK AO2 SLP136 T01330072 $  ## [A] Mineral Wells, Mineral Wells Airport
184457 2022-11-27 18:15   1 US US-MN  --- KMWM 271715Z AUTO 31010KT 10SM CLR 01/M02 A2985 RMK AO2=  ## [A] Windom, Windom Municipal Airport
184458 2022-11-27 17:52   2               KMWN 271652Z 27039KT 110SM BKN090 BKN200 02/M20 RMK=  ## [A]
184459 2022-11-27 18:15  12 US US-OH  MWO KMWO 271715Z AUTO 20016G22KT 10SM SCT023 BKN065 OVC090 12/10 A2944 RMK AO2 T01220103=  ## [A] Middletown, Middletown Regional Airport
184464 2022-11-27 17:53  12               KMWT 271653Z AUTO 10SM FEW017 BKN027 12/07 A2979 RMK AO2 SLP090 T01170067 =  ## [A]
184476 2022-11-27 17:55  18 US US-AL  MXF KMXF 271655Z AUTO 23009G16KT 10SM CLR 18/07 A2989 RMK AO2 SLP124 T01790073=  ## [A] Montgomery, Maxwell Air Force Base
184485 2022-05-20 17:55  19 US US-IA  --- KMXO 201555Z AUTO 33008G16KT 10SM 19/14 A2942 RMK AO2=  ## [A] Monticello, Monticello Regional Airport
184502 2022-11-27 17:53  17 US US-CA  MYF KMYF 271653Z 00000KT 10SM CLR 17/03 A3009 RMK AO2 SLP188 T01670033=  ## [A] San Diego, Montgomery-Gibbs Executive Airport
184506 2022-11-27 18:15   7 US US-MO  --- KMYJ 271715Z AUTO 32015KT 10SM 07/05 A2967 RMK AO2=  ## [A] Mexico, Mexico Memorial Airport
184508 2022-11-27 17:51  -4 US US-ID  MYL KMYL 271651Z AUTO 00000KT 10SM OVC048 M04/M08 A2993 RMK AO2 SLP182 T10441083 $  ## [A] McCall, McCall Municipal Airport
184512 2022-11-27 18:15 -10               KMYP 271715Z AUTO OVC002 M10/M12 A3006 RMK AO2 PWINO=  ## [A]
184514 2022-11-27 18:18  22 US US-SC  MYR KMYR 271718Z 18012G21KT 8SM FEW005 SCT090 22/21 A2980 RMK AO2=  ## [A] Myrtle Beach, Myrtle Beach International Airport
184518 2022-11-19 05:53  11 US US-CA  MYV KMYV 190453Z AUTO 34011KT 10SM CLR 11/M04 A3010 RMK AO2 SLP195 T01061039 $  ## [A] Marysville, Yuba County Airport
184522 2022-11-27 18:10   4 US US-KS  --- KMYZ 271710Z AUTO 34016G19KT 10SM CLR 04/M01 A2991 RMK AO2=  ## [A] Marysville, Marysville Municipal Airport
184529 2020-04-16 22:05  22               KMZG 162005Z AUTO 19009G18KT 10SM CLR 22/14 A3006 RMK A01=  ## [A]
184530 2022-11-27 18:15   2 US US-MN  --- KMZH 271715Z AUTO 33004KT 10SM CLR 02/M02 A2982 RMK AO2=  ## [A] Moose Lake, Moose Lake Carlton County Airport
184532 2022-11-27 18:15  13 US US-AZ  MZJ KMZJ 271715Z AUTO 13004KT 10SM CLR 13/M09 A3015 RMK AO2=  ## [A] Marana, Pinal Airpark
184548 2022-11-27 18:15  10 US US-IN  MZZ KMZZ 271715Z AUTO 22019G23KT 7SM BKN015 BKN031 OVC055 10/09 A2935 RMK AO2 P0001 T00970090=  ## [A] Marion, Marion Municipal Airport
184559 2022-11-27 18:17  10               KNAK 271717Z AUTO 15009KT 4SM RA BR FEW009 OVC018 10/08 A2969 RMK AO2 PRESFR P0006 T01000083 $  ## [A]
184577 2022-11-27 17:56  22 US US-SC  --- KNBC 271656Z 19013G22KT 10SM SCT012 OVC040 22/19 A2983 RMK AO2 SLP102 T02170194 $  ## [A] Beaufort, Beaufort MCAS - Merritt Field
184581 2022-11-27 17:55  21 US US-LA  NBG KNBG 271655Z 23007KT 10SM CLR 21/11 A2997 RMK AO2 SLP148 T02110111 $  ## [A] New Orleans, New Orleans NAS JRB/Alvin Callender Field
184594 2022-11-27 18:00  23               KNBT 271700Z AUTO 17014G24KT 6SM -RA BKN050 BKN060 OVC080 23/18 A2984 RMK AO2 PK WND 19030/1642 RAB1602E1624B1651 PRESFR SLP110 P0001 T02280183=  ## [A]
184601 2022-11-27 18:20  21 US US-NC  --- KNCA 271720Z AUTO 18012G22KT 10SM -RA BKN009 OVC014 21/21 A2979 RMK AO2 CIG 007V011 P0000 T02060206=  ## [A] Jacksonville, New River MCAS /H/ /Mccutcheon Fld/ Airport
184642 2019-07-18 17:51  26               KNDP 181551Z AUTO 24021KT 10SM SCT120 26/13 A3016 RMK AO2 PK WND 24030/1511 SLP121 T02560133 =  ## [A]
184652 2022-11-27 17:56  19 US US-FL  --- KNDZ 271656Z AUTO VRB05KT 10SM CLR 19/09 A2997 RMK AO2 SLP135 T01890089 $  ## [A] Milton, Whiting Field Naval Air Station South Airport
184664 2022-11-27 18:21  12 US US-NJ  NEL KNEL 271721Z AUTO 19008KT BKN027 OVC037 12/06 A2973 RMK AO2 T01220061 $  ## [A] Lakehurst, Lakehurst Maxfield Field Airport
184675 2022-11-27 17:53  18 US US-LA  NEW KNEW 271653Z 30005KT 10SM CLR 18/12 A2998 RMK AO2 SLP144 T01830117=  ## [A] New Orleans, Lakefront Airport
184683 2022-11-27 17:56  17 US US-VA  --- KNFE 271656Z AUTO 17010KT 9SM SCT044 OVC055 17/14 A2980 RMK AO2 PRESFR SLP093 T01720144 PWINO=  ## [A] Fentress, Fentress Naval Auxiliary Landing Field
184685 2022-11-27 17:52  12 US US-CA  --- KNFG 271652Z AUTO 00000KT 10SM CLR 12/03 A3010 RMK AO2 SLP192 T01170033 $ =  ## [A] Oceanside, Camp Pendleton MCAS (Munn Field) Airport
184690 2022-11-27 17:56   1 US US-NV  NFL KNFL 271656Z AUTO 00000KT 10SM CLR 01/M04 A3017 RMK AO2 SLP179 T00061039=  ## [A] Fallon, Fallon Naval Air Station
184701 2022-11-27 17:52  13 US US-TX  FWH KNFW 271652Z 34009G16KT 10SM CLR 13/07 A2995 RMK AO2 SLP125 T01330072 $ =  ## [A] Fort Worth, NAS Fort Worth JRB/Carswell Field
184720 2022-11-27 17:56  22 US US-TX  --- KNGP 271656Z AUTO 24004KT 10SM CLR 22/14 A2995 RMK AO2 SLP140 T02220144 $  ## [A] Corpus Christi, Corpus Christi Naval Air Station/Truax Field
184725 2022-11-27 18:11  16 US US-VA  NGU KNGU 271711Z COR 17010KT 5SM -RA BR SCT012 BKN049 OVC060 16/15 A2977 RMK AO2 RAE10 PRESFR P0000 T01560150=  ## [A] Norfolk, Norfolk Naval Station (Chambers Field)
184741 2022-11-27 18:09  14 US US-MD  NHK KNHK 271709Z 16011G18KT 7SM -RA FEW009 BKN031 OVC041 14/12 A2971 RMK AO2 CIG 009 RY24 PRESFR P0001 T01390117 $  ## [A] Patuxent River, Patuxent River Naval Air Station (Trapnell Field)
184760 2022-11-27 17:56   6 US US-CA  --- KNID 271656Z AUTO 10SM CLR 06/M08 A3017 RMK AO2 SLP224 T00611083 PNO $  ## [A] China Lake, China Lake Naws (Armitage Field) Airport
184772 2022-11-27 18:09  27 US US-FL  NIP KNIP 271709Z 21013G21KT 10SM TS FEW020CB BKN026 BKN038 BKN200 27/22 A2991 RMK AO2 TSB08 OCNL LTGCG VC W TS VC W MOV NE T1 SET T02670222 $  ## [A] Jacksonville, Jacksonville Naval Air Station (Towers Field)
184793 2022-11-27 17:56 XXX US US-CA  NJK KNJK 271656Z AUTO 29003KT 10SM CLR A3014 RMK AO2 SLP223 $  ## [A] El Centro, El Centro NAF Airport (Vraciu Field)
184795 2022-11-27 17:57  23 US US-NC  --- KNJM 271657Z AUTO 17013G20KT 5SM HZ FEW013 BKN033 OVC040 23/19 A2983 RMK AO2 RAB10E31 PRESFR SLP106 P0002 T02280194=  ## [A] Swansboro, Bogue Field Mcalf Airport
184805 2022-11-27 17:57  16 US US-MS  --- KNJW 271657Z AUTO 25012KT 10SM CLR 16/06 A2990 RMK AO2 SLP039 T01610061 $  ## [A] Meridian, Joe Williams Nolf Airport
184828 2022-11-27 17:56  19 US US-NC  --- KNKT 271656Z 16011G20KT 10SM SCT008 BKN014 OVC046 19/19 A2984 RMK AO2 RAE53 PRESFR SLP100 P0002 T01940189=  ## [A] Cherry Point, Cherry Point MCAS /Cunningham Field/
184832 2022-11-27 17:55  16 US US-CA  NKX KNKX 271655Z 00000KT 10SM FEW250 16/04 A3008 RMK AO2 SLP185 T01610044=  ## [A] San Diego, Miramar Marine Corps Air Station - Mitscher Field
184837 2022-11-27 17:56   8 US US-CA  NLC KNLC 271656Z 00000KT 9SM FEW200 BKN250 08/M01 A3016 RMK AO2 SLP215 T00831011=  ## [A] Lemoore, Lemoore Naval Air Station (Reeves Field) Airport
184873 2022-11-27 17:56  17 US US-MS  --- KNMM 271656Z AUTO 25013G18KT 10SM CLR 17/06 A2990 RMK AO2 SLP132 T01720061 $  ## [A] Meridian, Meridian Naval Air Station
184919 2022-11-27 17:56  23 US US-TX  --- KNOG 271656Z AUTO 22007KT 10SM CLR 23/14 A2995 RMK AO2 SLP124 T02280139 PNO $  ## [A] Orange Grove, Orange Grove Naval Auxiliary Landing Field
184935 2022-11-27 18:15   7 US US-WA  --- KNOW 271715Z AUTO 26018KT 10SM CLR 07/01 A2999 RMK AO2 T00650005=  ## [A] Port Angeles, Port Angeles Cgas Airport
184938 2022-11-27 17:59  17               KNOZ 271659Z AUTO 36012KT 10SM CLR 17/M08 A3011 RMK AO2 SLP146 T01671078 TSNO $  ## [A]
184939 2022-11-27 17:56  20 US US-FL  NPA KNPA 271656Z AUTO VRB04KT 10SM CLR 20/08 A2997 RMK AO2 SLP151 T02000083=  ## [A] Pensacola, Pensacola Naval Air Station/Forrest Sherman Field
184965 2022-11-27 17:50  11 US US-TN  NQA KNQA 271650Z 24015G24KT 10SM OVC017 11/09 A2972=  ## [A] Millington, Millington-Memphis Airport
184973 2022-11-27 16:56  17 US US-TX  NQI KNQI 271556Z AUTO 23004KT 10SM CLR 17/14 A2996 RMK AO2 SLP142 T01670139 $  ## [A] Kingsville, Kingsville Naval Air Station
184988 2022-11-27 17:53  32 US US-FL  NQX KNQX 271653Z 20010KT 10SM FEW020 BKN250 32/24 A3004 RMK AO2 SLP172 T03170239 PNO $  ## [A] Key West, Naval Air Station Key West/Boca Chica Field
184992 2022-11-27 18:05  27 US US-FL  NRB KNRB 271705Z AUTO 22015KT 10SM SCT022 BKN032 OVC044 27/22 A2991 RMK AO2 T02670222=  ## [A] Mayport, Naval Station Mayport (Admiral David L. Mcdonald Field)
185004 2022-11-27 18:15   5 US US-KS  --- KNRN 271715Z AUTO 02009KT 10SM CLR 05/M05 A3001 RMK AO2=  ## [A] Norton, Norton Municipal Airport
185009 2022-11-27 17:53  16 US US-CA  NRS KNRS 271653Z AUTO 9SM CLR 16/M01 A3010 RMK AO2 SLP191 T01611011 $ =  ## [A] Imperial Beach, Naval Outlying Field Imperial Beach (Ream Field)
185021 2022-11-27 17:56  19 US US-FL  NSE KNSE 271656Z AUTO 27008KT 10SM CLR 19/07 A2997 RMK AO2 SLP134 T01890072 PNO $  ## [A] Milton, Whiting Field Naval Air Station - North
185025 2022-11-27 17:53  16 US US-CA  --- KNSI 271653Z AUTO 00000KT 10SM FEW006 16/14 A3010 RMK AO2 SLP189 T01560139 PWINO $ =  ## [A] San Nicolas Island, San Nicolas Island Nolf Airport
185046 2022-11-27 17:55  13 US US-CA  NTD KNTD 271655Z 00000KT 9SM FEW230 FEW270 13/06 A3010 RMK AO2 SLP195 T01330061 $  ## [A] Point Mugu, Point Mugu Naval Air Station (Naval Base Ventura Co)
185063 2022-11-27 17:56  16 US US-VA  NTU KNTU 271656Z 19008KT 3SM -RA BR FEW027 BKN043 OVC090 16/14 A2979 RMK AO2 VIS 1 3/4 RWY 5R PRESFR SLP091 P0008 T01560144=  ## [A] Virginia Beach, Oceana Naval Air Station
185071 2022-11-27 17:56 XXX US US-CA  --- KNUC 271656Z AUTO 20004KT 10SM CLR 14/ A3011 RMK AO2 SLP195 T0144 $  ## [A] San Clemente Island, San Clemente Island Naval Auxiliary Landing Field
185077 2022-11-27 17:53  13 US US-MD  --- KNUI 271653Z AUTO 16009KT 8SM -RA FEW011 BKN030 OVC050 13/11 A2973 RMK AO2 RAB1556 SLP067 P0003 T01330106 $ =  ## [A] St Inigoes, Webster Nolf Airport
185085 2022-11-27 18:00   9 US US-CA  NUQ KNUQ 271700Z AUTO 00000KT 10SM CLR 09/03 A3015 RMK AO2=  ## [A] Mountain View, Moffett Federal Airfield
185091 2022-11-27 17:53   7 US US-WA  NUW KNUW 271653Z 29020KT 10SM FEW025 SCT055 SCT180 07/02 A3001 RMK AO2 PK WND 30027/1609 SLP163 T00670017 VISNO $ =  ## [A] Oak Harbor, Whidbey Island Naval Air Station (Ault Field)
185152 2022-11-27 17:56  16               KNXF 271656Z AUTO 10SM 16/09 A3008 RMK AO2 SLP273 T01560089 PWINO $  ## [A]
185162 2022-11-27 17:56  11 US US-CA  --- KNXP 271656Z AUTO 00000KT 10SM CLR 11/M04 A3023 RMK AO2 SLP219 T01111044 $  ## [A] Twentynine Palms, Twentynine Palms (Self) Airport
185175 2022-11-27 17:51  12               KNYC 271651Z AUTO VRB03KT 10SM OVC110 12/03 A2978 RMK AO2 SLP075 T01220028 $  ## [A]
185179 2022-11-27 17:56   9 US US-VA  --- KNYG 271656Z AUTO 18004KT 2 1/2SM -RA BR OVC008 09/08 A2972 RMK AO2 PRESFR SLP064 P0007 T00940083 $  ## [A] Quantico, Quantico MCAF /Turner field
185184 2022-11-27 17:57  16 US US-AZ  YUM KNYL 271657Z AUTO 04005KT 10SM CLR 16/M06 A3011 RMK AO2 SLP197 T01561056=  ## [A] Yuma, Yuma MCAS/Yuma International Airport
185223 2022-11-27 17:52  14 US US-CA  NZY KNZY 271652Z 00000KT 10SM FEW250 14/07 A3008 RMK AO2 SLP187 T01390072=  ## [A] San Diego, North Island Naval Air Station-Halsey Field
185234 2022-11-27 17:56  22 US US-NC  OAJ KOAJ 271656Z 17011G18KT 10SM -RA OVC011 22/19 A2980 RMK AO2 RAB14 PRESFR SLP093 P0000 T02170194=  ## [A] Jacksonville, Albert J Ellis Airport
185235 2022-11-27 17:53  10 US US-CA  OAK KOAK 271653Z 13003KT 10SM FEW200 10/05 A3015 RMK AO2 SLP210 T01000050=  ## [A] Oakland, Metropolitan Oakland International Airport
185242 2022-11-27 18:15   7 US US-CA  OAR KOAR 271715Z AUTO 13009KT 10SM CLR 07/02 A3013 RMK AO2=  ## [A] Marina, Marina Municipal Airport
185255 2022-11-27 18:15  29 US US-FL  OBE KOBE 271715Z AUTO 23010KT 10SM FEW030 SCT042 BKN049 29/23 A3000 RMK AO2=  ## [A] Okeechobee, Okeechobee County Airport
185282 2022-11-27 17:51  28 US US-FL  OCF KOCF 271651Z 23012G20KT 10SM SCT017 BKN025 28/23 A2997 RMK AO2 SLP148 T02780228 PNO $  ## [A] Ocala, Ocala International Airport - Jim Taylor Field
185284 2022-11-27 17:56  14 US US-TX  OCH KOCH 271656Z AUTO VRB06KT 10SM CLR 14/07 A2994 RMK AO2 SLP141 T01440072 PWINO=  ## [A] Nacogdoches, A L Mangham Jr. Regional Airport
185293 2022-11-27 18:15   4 US US-WI  --- KOCQ 271715Z AUTO 02012G18KT 10SM SCT024 SCT080 OVC120 04/M01 A2962 RMK AO1 T00381006=  ## [A] Oconto, J. Douglas Bake Memorial Airport
185299 2022-11-27 17:55  21 US US-NC  OCW KOCW 271655Z AUTO 17011G16KT 10SM BKN019 BKN027 OVC034 21/17 A2977 RMK AO2 T02130173=  ## [A] Washington, Warren Field
185317 2022-11-27 17:53  11 US US-TX  --- KODO 271653Z AUTO 35009KT 10SM CLR 11/01 A3003 RMK AO2 SLP152 T01060006=  ## [A] Odessa, Odessa Schlemeyer Field
185326 2022-11-27 17:53   2 US US-NE  --- KODX 271653Z AUTO 31008KT 10SM CLR 02/M04 A2996 RMK AO2 SLP163 T00171039=  ## [A] Ord, Evelyn Sharp Field
185330 2022-11-27 18:15   5 US US-MI  --- KOEB 271715Z AUTO 05008KT 2 1/2SM UP OVC004 05/04 A2936 RMK AO2 T00460041=  ## [A] Coldwater, Branch County Memorial Airport
185340 2022-11-27 18:15   5 US US-KS  --- KOEL 271715Z AUTO 01008G14KT 10SM CLR 05/M09 A2998 RMK AO1 T00521093=  ## [A] Oakley, Oakley Municipal Airport
185343 2022-11-27 18:15   3 US US-WI  OEO KOEO 271715Z AUTO 36005KT 10SM CLR 03/01 A2984 RMK AO2 T00260006=  ## [A] Osceola, L O Simenstad Municipal Airport
185360 2022-11-27 17:55   5 US US-NE  OFF KOFF 271655Z 31012G18KT 10SM CLR 05/M04 A2990 RMK AO2A SLP135 T00491036 PWINO PNO FZRANO TSNO CHINO RWY31 $  ## [A] Omaha, Offutt Air Force Base
185365 2022-11-27 17:56   2 US US-NE  OFK KOFK 271656Z AUTO 34009KT 10SM CLR 02/M03 A2993 RMK AO2 SLP150 T00171033 $  ## [A] Norfolk, Karl Stefan Memorial Airport
185370 2022-11-27 18:21  14 US US-VA  --- KOFP 271721Z AUTO 16008G15KT 110V180 1 1/4SM +RA BR OVC006 14/14 A2968 RMK AO2 P0014 T01440139=  ## [A] Richmond/Ashland, Hanover County Municipal Airport
185381 2022-11-27 18:15   4 US US-NE  OGA KOGA 271715Z AUTO 24005KT 10SM CLR 04/M02 A2995 RMK AO2 T00441022=  ## [A] Ogallala, Searle Field
185382 2022-11-27 18:19  22 US US-SC  OGB KOGB 271719Z AUTO 22011G19KT 10SM FEW009 OVC015 22/21 A2977 RMK AO2 RAE18 P0000 T02170211=  ## [A] Orangeburg, Orangeburg Municipal Airport
185384 2022-11-27 17:53   3 US US-UT  OGD KOGD 271653Z 18008KT 10SM FEW020 BKN120 03/M01 A3013 RMK AO2 SLP208 T00331006=  ## [A] Ogden, Ogden Hinckley Airport
185399 2022-11-27 18:15  10 US US-NY  OGS KOGS 271715Z AUTO 18004KT 10SM CLR 10/M02 A2957 RMK AO2=  ## [A] Ogdensburg, Ogdensburg International Airport
185435 2022-11-27 18:15   5 US US-NY  OIC KOIC 271715Z AUTO 17004KT 4SM +RA SCT044 BKN065 OVC075 05/03 A2968 RMK AO2 P0001 T00520028=  ## [A] Norwich, Lt Warren Eaton Airport
185446 2022-11-27 18:15   4 US US-KS  --- KOIN 271715Z AUTO 03004KT 10SM CLR 04/M05 A3003 RMK AO1 T00421050=  ## [A] Oberlin, Oberlin Municipal Airport
185459 2022-11-27 18:15   6 US US-OK  --- KOJA 271715Z AUTO 36013KT 10SM CLR 06/00 A2997 RMK AO2 T00640000=  ## [A] Weatherford, Thomas P Stafford Airport
185461 2022-11-27 17:53   4 US US-KS  OJC KOJC 271653Z 33015G21KT 10SM OVC017 04/01 A2980 RMK AO2 SLP093 T00440006=  ## [A] Olathe, Johnson County Executive Airport
185486 2022-11-27 17:52  13 US US-CA  OCN KOKB 271652Z AUTO 06003KT 10SM CLR 13/04 A3009 RMK AO2 SLP188 T01280039=  ## [A] Oceanside, Oceanside Municipal Airport
185487 2022-11-27 17:52   8 US US-OK  OKC KOKC 271652Z 34015KT 10SM FEW020 FEW080 BKN250 08/02 A2993 RMK AO2 SLP137 T00780022=  ## [A] Oklahoma City, Will Rogers World Airport
185495 2022-11-27 17:56 XXX US US-IN  OKK KOKK 271656Z AUTO 20018G24KT 6SM -RA BKN013 BKN021 OVC060 11/ A2934 RMK AO2 SLP937 T0106 PNO $  ## [A] Kokomo, Kokomo Municipal Airport
185497 2022-11-27 18:15  10 US US-OK  OKM KOKM 271715Z AUTO 31012G17KT 10SM OVC019 10/04 A2989 RMK AO2 T00960036=  ## [A] Okmulgee, Okmulgee Regional Airport
185506 2022-11-27 18:15   8 US US-VA  WGO KOKV 271715Z AUTO 00000KT 10SM -RA BKN025 OVC033 08/06 A2958 RMK AO2=  ## [A] Winchester, Winchester Regional Airport
185510 2022-11-27 18:15  24 US US-GA  --- KOKZ 271715Z AUTO 24018G27KT 10SM CLR 24/08 A2980 RMK AO2 T02400075=  ## [A] Sandersville, Kaolin Field
185515 2022-11-27 18:15   4 US US-NY  --- KOLE 271715Z AUTO 17008KT 10SM -RA 04/04 A2947 RMK AO2=  ## [A] Olean, Cattaraugus County-Olean Airport
185516 2022-11-27 17:53  -1 US US-MT  OLF KOLF 271653Z AUTO 30003KT 10SM OVC075 M01/M02 A2963 RMK AO2 SLP060 T10061022=  ## [A] Wolf Point, L M Clayton Airport
185517 2022-11-27 18:15   1 US US-WI  --- KOLG 271715Z AUTO 36005KT 10SM CLR 01/M03 A2979 RMK AO1=  ## [A] Solon Springs, Solon Springs Municipal Airport
185523 2022-11-27 17:54   5 US US-WA  OLM KOLM 271654Z 22009KT 10SM FEW038 05/00 A3004 RMK AO2 SLP175 T00500000 $  ## [A] Olympia, Olympia Regional Airport
185529 2022-11-27 17:54  13 US US-AZ  OLS KOLS 271654Z AUTO 00000KT 10SM CLR 13/M10 A3016 RMK AO2 SLP189 T01281100=  ## [A] Nogales, Nogales International Airport
185531 2022-11-27 17:56   3 US US-NE  --- KOLU 271656Z AUTO 32013KT 10SM CLR 03/M03 A2995 RMK AO2 SLP152 T00281033=  ## [A] Columbus, Columbus Municipal Airport
185532 2022-11-27 17:50  11 US US-MS  OLV KOLV 271650Z 23014G20KT 10SM OVC019 11/08 A2976=  ## [A] Olive Branch, Olive Branch Airport
185535 2022-11-11 09:10   9 US US-IL  --- KOLY 110810Z AUTO 00000KT 10SM CLR 09/08 A2985 RMK AO2 T00910081=  ## [A] Olney-Noble, Olney Noble Airport
185536 2022-11-27 18:15   4 US US-IA  --- KOLZ 271715Z AUTO 34014G19KT 10SM CLR 04/00 A2970 RMK A01=  ## [A] Oelwein, Oelwein Municipal Airport
185537 2022-11-27 17:52   3 US US-NE  OMA KOMA 271652Z 34018G23KT 10SM FEW150 BKN250 03/M03 A2989 RMK AO2 SLP125 T00331028=  ## [A] Omaha, Eppley Airfield
185544 2022-11-27 18:15   8 US US-VA  --- KOMH 271715Z AUTO 14006KT 5SM RA OVC003 08/08 A2965 RMK AO2 P0001=  ## [A] Orange, Orange County Airport
185547 2022-11-27 17:53   1 US US-WA  OMK KOMK 271653Z AUTO 02012KT 10SM CLR 01/M04 A2981 RMK AO2 SLP106 T00111039=  ## [A] Omak, Omak Airport
185550 2022-11-27 17:50  27 US US-FL  --- KOMN 271650Z 22014G22KT 7SM SCT030 27/25 A2997=  ## [A] Ormond Beach, Ormond Beach Municipal Airport
185563 2022-11-27 18:15   5 US US-MN  --- KONA 271715Z AUTO 33011G15KT 10SM CLR 05/M02 A2975 RMK AO2=  ## [A] Winona, Winona Municipal-Max Conrad Field
185574 2022-11-27 18:15   1 US US-NE  ONL KONL 271715Z AUTO 30007KT 10SM CLR 01/M04 A2995 RMK AO2 T00121044=  ## [A] O'Neill, The O'Neill Municipal John L Baker Field
185575 2022-11-27 18:15  11 US US-NM  --- KONM 271715Z AUTO 34009G20KT 290V360 10SM CLR 11/M09 A3008 RMK AO2 T01141087=  ## [A] Socorro, Socorro Municipal Airport
185577 2022-11-27 17:53  -1 US US-OR  ONO KONO 271653Z AUTO 00000KT 10SM OVC090 M01/M04 A3008 RMK AO2 SLP210 T10111039 $  ## [A] Ontario, Ontario Municipal Airport
185578 2022-11-27 18:15   9 US US-OR  ONP KONP 271715Z AUTO 31009KT 1 1/2SM RA BKN002 OVC010 09/08 A3017 RMK AO2=  ## [A] Newport, Newport Municipal Airport
185582 2022-11-27 17:53  15 US US-CA  ONT KONT 271653Z 03003KT 10SM FEW250 15/01 A3009 RMK AO2 SLP187 T01500006=  ## [A] Ontario, Ontario International Airport
185586 2022-11-27 18:15  17 US US-NC  --- KONX 271715Z AUTO 18010G17KT 10SM -RA BKN065 17/15 A2979 RMK AO2 T01740147=  ## [A] Currituck, Currituck County Regional Airport
185588 2022-11-27 18:15   6 US US-MI  --- KONZ 271715Z AUTO 04011G14KT 3SM -RA OVC004 06/04 A2933 RMK AO2 T00610035 P0003=  ## [A] Detroit/Grosse Ile, Grosse Ile Municipal Airport
185589 2022-11-27 18:15   5 US US-IA  --- KOOA 271715Z AUTO 35015KT 10SM SCT095 SCT120 05/05 A2970 RMK AO2 T00510051=  ## [A] Oskaloosa, Oskaloosa Municipal Airport
185620 2022-11-27 17:53  29 US US-FL  OPF KOPF 271653Z 24007KT 10SM SCT033 SCT046 29/22 A3003 RMK AO2 SLP170 T02890217=  ## [A] Miami, Opa-locka Executive Airport
185626 2022-11-27 18:15  20 US US-LA  --- KOPL 271715Z AUTO 25011G15KT 10SM CLR 20/13 A2994 RMK AO2 T02000129=  ## [A] Opelousas, St Landry Parish Ahart Field
185628 2022-11-27 18:15  22 US US-GA  --- KOPN 271715Z AUTO 25013G19KT 10SM CLR 22/07 A2985 RMK AO2=  ## [A] Thomaston, Thomaston Upson County Airport
185654 2022-11-27 18:15   8 US US-PA  --- KOQN 271715Z AUTO 19004KT 3SM RA SCT008 OVC018 08/07 A2972 RMK AO2 P0002=  ## [A] West Chester, Brandywine Airport
185660 2022-11-27 17:53  17               KOQT 271653Z AUTO 22008G26KT 190V270 10SM FEW042 BKN060 17/09 A2967 RMK AO2 PK WND 22026/1647 SLP046 T01720089 =  ## [A]
185661 2022-11-27 17:50  11 US US-RI  NCO KOQU 271650Z 24006KT 10SM BKN150 OVC190 11/01 A2979=  ## [A] North Kingstown, Quonset State Airport
185668 2022-11-27 18:13  -2 US US-MN  --- KORB 271713Z AUTO 30003KT 10SM OVC043 M02/M03 A2979 RMK AO2=  ## [A] Orr, Orr Regional Airport
185670 2022-11-27 17:51   7 US US-IL  ORD KORD 271651Z 34005KT 10SM FEW015 OVC024 07/04 A2948 RMK AO2 SLP986 T00670039 $  ## [A] Chicago, Chicago O'Hare International Airport
185671 2022-11-27 17:52   6 US US-MA  --- KORE 271652Z AUTO 00000KT 10SM CLR 06/00 A2974 RMK AO2 SLP078 T00610000=  ## [A] Orange, Orange Municipal Airport
185672 2022-11-27 18:01  16 US US-VA  ORF KORF 271701Z 18012KT 5SM -RA BR FEW027 BKN048 OVC065 16/15 A2978 RMK AO2 P0002 T01560150=  ## [A] Norfolk, Norfolk International Airport
185673 2022-11-27 18:15  23 US US-TX  --- KORG 271715Z AUTO 25008G17KT 230V290 10SM CLR 23/13 A2996 RMK AO2 T02260131=  ## [A] Orange, Orange County Airport
185674 2022-11-27 17:54  11 US US-MA  ORH KORH 271654Z 24007KT 10SM CLR 11/M04 A2972 RMK AO2 SLP069 T01061039=  ## [A] Worcester, Worcester Regional Airport
185677 2022-11-27 18:15  12 US US-AR  --- KORK 271715Z AUTO 26014G19KT 10SM FEW019 OVC028 12/08 A2978 RMK AO2=  ## [A] North Little Rock, North Little Rock Municipal Airport
185678 2022-11-27 17:53  28 US US-FL  ORL KORL 271653Z 22011KT 10SM FEW026 28/22 A2999 RMK AO2 SLP157 T02830217=  ## [A] Orlando, Orlando Executive Airport
185685 2022-11-27 18:15   3 US US-WA  ESD KORS 271715Z AUTO 23003KT 10SM CLR 03/03 A2997 RMK AO2=  ## [A] Eastsound, Orcas Island Airport
185693 2022-11-27 18:15  12 US US-TX  --- KOSA 271715Z AUTO 30008KT 10SM BKN017 12/08 A2992 RMK AO2 T01220079=  ## [A] Mount Pleasant, Mount Pleasant Regional Airport
185695 2022-11-27 18:15   6 US US-MI  OSC KOSC 271715Z AUTO 02010KT 10SM SCT080 OVC090 06/M01 A2945 RMK AO2 T00611009=  ## [A] Oscoda, Oscoda Wurtsmith Airport
185700 2022-11-27 17:53   4 US US-WI  OSH KOSH 271653Z 01014KT 10SM OVC019 04/M01 A2961 RMK AO2 SLP035 T00441006=  ## [A] Oshkosh, Wittman Regional Airport
185713 2022-11-27 17:53  13 US US-OH  OSU KOSU 271653Z 21012KT 10SM FEW022 SCT055 OVC080 13/11 A2940 RMK AO2 RAB1556E50 SLP954 P0001 T01330111=  ## [A] Columbus, The Ohio State University Airport - Don Scott Field
185725 2022-11-27 17:56   2 US US-MN  --- KOTG 271656Z AUTO 35012KT 10SM CLR 02/M03 A2987 RMK AO2 SLP133 T00171033 FZRANO=  ## [A] Worthington, Worthington Municipal Airport
185726 2022-11-27 17:56   5 US US-OR  OTH KOTH 271656Z 14009KT 10SM OVC019 05/04 A3025 RMK AO2 RAE16 SLP242 T00500044 PNO $  ## [A] North Bend, Southwest Oregon Regional Airport
185731 2022-11-27 17:53   4 US US-IA  OTM KOTM 271653Z AUTO 33016KT 10SM OVC085 04/02 A2969 RMK AO2 PK WND 33026/1626 RAE21 SLP059 P0000 T00440022=  ## [A] Ottumwa, Ottumwa Regional Airport
185758 2022-11-27 17:47   8 US US-OK  OUN KOUN 271647Z 30015KT 10SM OVC020 08/03 A2992=  ## [A] Norman, University of Oklahoma Westheimer Airport
185775 2022-11-27 17:53  12 US US-CA  OVE KOVE 271653Z AUTO 00000KT 10SM CLR 12/04 A3017 RMK AO2 SLP218 T01170039=  ## [A] Oroville, Oroville Municipal Airport
185782 2022-11-27 18:15   1 US US-MN  --- KOVL 271715Z AUTO 32008KT 10SM CLR 01/M01 A2986 RMK AO2=  ## [A] Olivia, Olivia Regional Airport
185789 2022-11-27 17:53   7 US US-WI  --- KOVS 271653Z AUTO 01006KT 10SM BKN120 07/00 A2967 RMK AO2 SLP052 T00670000=  ## [A] Boscobel, Boscobel Airport
185797 2022-11-27 18:13   3 US US-MN  OWA KOWA 271713Z AUTO 35009KT 10SM CLR 03/M01 A2980 RMK AO2=  ## [A] Owatonna, Owatonna Degner Regional Airport
185798 2022-11-27 17:56  11 US US-KY  OWB KOWB 271656Z 22021G24KT 10SM OVC014 11/09 A2955 RMK AO2 PK WND 22026/1607 RAE55 SLP008 T01060089 PNO $  ## [A] Owensboro, Owensboro Daviess County Airport
185800 2022-11-27 17:53  12 US US-MA  OWD KOWD 271653Z 18004KT 10SM CLR 12/M02 A2976 RMK AO2 SLP078 T01171017 $  ## [A] Norwood, Norwood Memorial Airport
185805 2022-11-24 00:05  11 US US-KS  --- KOWI 232305Z AUTO 17013KT 10SM OVC019 11/09 A2998 RMK AO2=  ## [A] Ottawa, Ottawa Municipal Airport
185812 2022-11-27 18:15  11 US US-OK  --- KOWP 271715Z AUTO 32010G15KT 10SM CLR 11/05 A2991 RMK AO2 T01090049=  ## [A] Sand Springs, William R. Pogue Municipal Airport
185820 2022-11-27 18:15  11 US US-OH  --- KOWX 271715Z AUTO 21009KT 10SM SCT047 BKN070 OVC090 11/09 A2935 RMK AO1=  ## [A] Ottawa, Putnam County Airport
185824 2022-11-27 17:53  13 US US-MD  OCE KOXB 271653Z AUTO VRB05KT 10SM -RA BKN110 13/11 A2979 RMK AO2 SLP088 P0003 T01280111=  ## [A] Ocean City, Ocean City Municipal Airport
185825 2022-11-27 17:51   9 US US-CT  OXC KOXC 271651Z 20007KT 10SM OVC110 09/02 A2976 RMK AO2 SLP091 T00940017=  ## [A] Oxford, Waterbury Oxford Airport
185826 2022-11-27 18:15  14 US US-OH  OXD KOXD 271715Z AUTO 24019G28KT 10SM BKN020 OVC028 14/09 A2942 RMK AO2 T01380085=  ## [A] Oxford, Miami University Airport
185831 2022-11-27 18:15   5 US US-IN  --- KOXI 271715Z AUTO 01015G18KT 4SM BKN009 OVC012 05/04 A2938 RMK AO1=  ## [A] Knox, Starke County Airport
185840 2022-11-27 17:51  14 US US-CA  OXR KOXR 271651Z 10004KT 10SM CLR 14/M01 A3009 RMK AO2 SLP189 T01391011 $  ## [A] Oxnard, Oxnard Airport
185844 2022-11-27 18:15   5 US US-IA  --- KOXV 271715Z AUTO 34015G20KT 10SM CLR 05/00 A2972 RMK AO2=  ## [A] Knoxville, Knoxville Municipal Airport
185861 2022-11-27 18:15   5 US US-PA  STQ KOYM 271715Z AUTO 12009KT 7SM OVC019 05/03 A2953 RMK AO2 P0002 PWINO=  ## [A] St Marys, St Marys Municipal Airport
185875 2022-11-27 18:10  16 US US-TX  OZA KOZA 271710Z AUTO 29014G22KT 10SM CLR 16/M01 A3001 RMK AO2=  ## [A] Ozona, Ozona Municipal Airport
185892 2022-11-27 17:55  19 US US-AL  OZR KOZR 271655Z AUTO 24010KT 10SM CLR 19/08 A2994 RMK AO2 SLP139 T01880084=  ## [A] Fort Rucker/Ozark, Cairns AAF (Fort Rucker) Air Field
185893 2022-11-27 18:15   7               KOZS 271715Z AUTO 29014G18KT 10SM OVC015 07/04 A2974 RMK AO2=  ## [A]
185897 2022-11-27 18:15   5 US US-MI  --- KOZW 271715Z AUTO 03008KT 7SM OVC016 05/03 A2939 RMK AO2 T00510030=  ## [A] Howell, Livingston County Spencer J. Hardy Airport
185905 2022-11-27 17:53   6 US US-WA  PAE KPAE 271653Z 34006KT 10SM BKN100 06/M03 A2998 RMK AO2 SLP156 T00611028=  ## [A] Everett, Snohomish County (Paine Field) Airport
185908 2022-11-27 17:53  12 US US-KY  PAH KPAH 271653Z 23009G23KT 10SM OVC018 12/08 A2958 RMK AO2 PK WND 22030/1558 SLP017 T01170078=  ## [A] Paducah, Barkley Regional Airport
185913 2022-11-27 17:55  19 US US-FL  PAM KPAM 271655Z AUTO 29016KT 10SM CLR 19/09 A2998 RMK AO2 SLP155 T01940090 $  ## [A] Panama City, Tyndall Air Force Base
185914 2022-11-27 18:15   8 US US-AZ  PJB KPAN 271715Z AUTO VRB03KT 10SM CLR 08/M08 A3017 RMK AO2 PWINO TSNO=  ## [A] Payson, Payson Airport
185915 2022-11-27 17:47   8 US US-CA  PAO KPAO 271647Z 0000KT 10SM SCT100 08/04 A3015=  ## [A] Palo Alto, Palo Alto Airport of Santa Clara County
185932 2022-11-27 17:53  13 US US-AR  PBF KPBF 271653Z AUTO 23012KT 10SM OVC023 13/08 A2981 RMK AO2 SLP095 T01280078=  ## [A] Pine Bluff, Pine Bluff Regional Airport,  Grider Field
185933 2022-11-27 17:53   8 US US-NY  PBG KPBG 271653Z AUTO 13009KT 10SM CLR 08/M01 A2965 RMK AO2 SLP043 T00831006=  ## [A] Plattsburgh, Plattsburgh International Airport
185934 2022-11-27 18:15   2 US US-WI  --- KPBH 271715Z AUTO 36009G14KT 320V020 10SM BKN026 02/M04 A2971 RMK AO2 T00201038=  ## [A] Phillips, Price County Airport
185935 2022-11-27 17:53  30 US US-FL  PBI KPBI 271653Z 21016G20KT 10SM FEW027 SCT034 SCT250 30/21 A3003 RMK AO2 SLP167 T03000211=  ## [A] West Palm Beach, Palm Beach International Airport
185950 2022-11-27 18:15  19 US US-KY  PVL KPBX 271715Z AUTO 21014G31KT 180V240 10SM SCT043 SCT060 BKN075 19/08 A2952 RMK AO2 T01860076=  ## [A] Pikeville, Pike County-Hatcher Field
185956 2022-11-27 18:15  10               KPCD 271715Z AUTO 28016G19KT 10SM OVC016 10/08 A2960 RMK AO2 T00950081=  ## [A]
185965 2022-11-27 18:15  30 US US-FL  --- KPCM 271715Z AUTO 24011KT 10SM BKN029 OVC036 30/21 A3002 RMK AO2=  ## [A] Plant City, Plant City Municipal Airport
185975 2022-11-27 18:15   7 US US-OH  --- KPCW 271715Z AUTO 07003KT 1SM RA BKN003 OVC006 07/07 A2933 RMK AO2=  ## [A] Port Clinton, Carl R Keller Field
185978 2022-11-27 18:15   5 US US-WI  --- KPCZ 271715Z AUTO 35009KT 10SM BKN120 05/M01 A2964 RMK AO2 T00461011=  ## [A] Waupaca, Waupaca Municipal Airport
185981 2022-11-27 18:15   5 US US-WI  PCD KPDC 271715Z AUTO 34012G17KT 10SM SCT120 05/00 A2968 RMK AO2 T00531005=  ## [A] Prairie Du Chien, Prairie Du Chien Municipal Airport
185989 2022-11-27 17:53  18 US US-GA  PDK KPDK 271653Z 23017G28KT 10SM CLR 18/08 A2980 RMK AO2 PK WND 26030/1633 SLP086 T01780078=  ## [A] Atlanta, DeKalb Peachtree Airport
185998 2022-11-27 17:53  11 US US-OR  PDT KPDT 271653Z 25025G39KT 10SM -RA FEW048 OVC085 11/01 A2989 RMK AO2 PK WND 25039/1647 RAB46 SLP122 P0000 T01060006=  ## [A] Pendleton, Eastern Oregon Regional At Pendleton Airport
186002 2022-11-27 17:53   7 US US-OR  PDX KPDX 271653Z 00000KT 2SM -RA BR FEW008 BKN022 OVC032 07/06 A3011 RMK AO2 TWR VIS 3 SLP196 P0006 T00720061=  ## [A] Portland, Portland International Airport
186005 2022-11-27 18:15   5 US US-IA  --- KPEA 271715Z AUTO 35013KT 10SM CLR 05/00 A2973 RMK AO2 T00520001=  ## [A] Pella, Pella Municipal Airport
186019 2022-11-27 17:53   6 US US-NY  --- KPEO 271653Z AUTO 19007KT 10SM -RA FEW038 BKN070 OVC090 06/04 A2963 RMK AO2 PRESRR SLP036 P0007 T00610039=  ## [A] Penn Yan, Penn Yan Airport
186021 2022-11-27 18:15  12 US US-TX  PEQ KPEQ 271715Z AUTO 32006KT 10SM CLR 12/00 A3005 RMK AO2 T01170001=  ## [A] Pecos, Pecos Municipal Airport
186028 2022-11-27 18:15   0 US US-MN  --- KPEX 271715Z AUTO 34005KT 10SM CLR 00/M03 A2987 RMK AO2=  ## [A] Paynesville, Paynesville Municipal Airport
186030 2022-11-27 18:15  21 US US-TX  --- KPEZ 271715Z AUTO 28006KT 10SM CLR 21/09 A2997 RMK AO2 T02110091=  ## [A] Pleasanton, Pleasanton Municipal Airport
186057 2022-11-27 17:53   7 US US-AZ  PGA KPGA 271653Z AUTO 36003KT 10SM CLR 07/M07 A3014 RMK AO2 SLP189 T00671072=  ## [A] Page, Page Municipal Airport
186060 2022-11-27 17:53  28 US US-FL  PGD KPGD 271653Z 23011G19KT 10SM BKN021 28/23 A3004 RMK AO2 SLP172 T02830228=  ## [A] Punta Gorda, Charlotte County Airport
186078 2022-11-27 18:15  22 US US-NC  PGV KPGV 271715Z AUTO 19018G24KT 7SM OVC019 22/21 A2974 RMK AO2=  ## [A] Greenville, Pitt Greenville Airport
186086 2022-11-27 17:53  13 US US-OH  PHD KPHD 271653Z AUTO VRB05KT 10SM SCT014 BKN038 BKN046 13/11 A2941 RMK AO2 RAB33E42 PRESFR SLP960 P0000 T01280111=  ## [A] New Philadelphia, Harry Clever Field
186088 2022-11-27 18:12  14 US US-VA  PHF KPHF 271712Z 16011KT 2 1/2SM RA BR FEW023 BKN037 OVC050 14/14 A2975 RMK AO2 P0007 T01390139=  ## [A] Newport News, Newport News Williamsburg International Airport
186094 2022-11-27 18:05  11 US US-PA  PHL KPHL 271705Z 18007KT 2 1/2SM -RA OVC024 11/07 A2974 RMK AO2 P0000 T01060072=  ## [A] Philadelphia, Philadelphia International Airport
186096 2022-11-27 18:15   6 US US-MI  PHN KPHN 271715Z AUTO 03010KT 10SM BKN008 BKN011 OVC027 06/04 A2939 RMK AO2=  ## [A] Port Huron, St Clair County International Airport
186098 2022-11-27 17:55   2 US US-SD  PHP KPHP 271655Z AUTO 10SM CLR 02/M03 A2986 RMK AO2 SLP128 T00221028=  ## [A] Philip, Philip Airport
186102 2022-11-27 18:15  11 US US-TN  PHT KPHT 271715Z AUTO 22018G24KT 10SM OVC020 11/07 A2966 RMK A01=  ## [A] Paris, Henry County Airport
186106 2022-11-27 17:51  13 US US-AZ  PHX KPHX 271651Z 12006KT 10SM CLR 13/M05 A3011 RMK AO2 SLP192 T01281050=  ## [A] Phoenix, Phoenix Sky Harbor International Airport
186109 2022-11-27 17:54   7 US US-IL  PIA KPIA 271654Z 35011G17KT 6SM BR SCT012 SCT017 OVC065 07/06 A2955 RMK AO2 SLP009 T00720061 $  ## [A] Peoria, General Wayne A. Downing Peoria International Airport
186110 2022-11-27 17:56  19 US US-MS  PIB KPIB 271656Z AUTO 24010G17KT 200V270 10SM CLR 19/08 A2995 RMK AO2 SLP140 T01890083=  ## [A] Hattiesburg/Laurel, Hattiesburg Laurel Regional Airport
186113 2022-11-27 17:53  28 US US-FL  PIE KPIE 271653Z 22017G23KT 10SM BKN016 BKN021 BKN050 28/24 A3001 RMK AO2 PK WND 20027/1637 SLP160 T02780239=  ## [A] St Petersburg-Clearwater, St Petersburg Clearwater International Airport
186116 2022-11-27 17:53   2 US US-ID  PIH KPIH 271653Z 19018G24KT 10SM CLR 02/M06 A3004 RMK AO2 SLP186 T00221056=  ## [A] Pocatello, Pocatello Regional Airport
186120 2022-11-27 17:53  24 US US-TX  --- KPIL 271653Z AUTO 18014G20KT 10SM CLR 24/17 A2994 RMK AO2 SLP136 T02390172 PNO $  ## [A] Port Isabel, Port Isabel Cameron County Airport
186121 2022-11-27 18:15  18 US US-GA  PIM KPIM 271715Z AUTO 29016G23KT 10SM SCT035 SCT042 18/08 A2987 RMK AO2 T01780083=  ## [A] Pine Mountain, Harris County Airport
186126 2022-11-27 17:53  -2 US US-SD  PIR KPIR 271653Z AUTO 21005KT 10SM CLR M02/M04 A2989 RMK AO2 SLP141 T10171044=  ## [A] Pierre, Pierre Regional Airport
186128 2022-11-27 18:08  10 US US-PA  PIT KPIT 271708Z 15005KT 10SM SCT003 BKN055 BKN110 10/09 A2944 RMK AO2 T01000094=  ## [A] Pittsburgh, Pittsburgh International Airport
186137 2022-11-27 18:15   8 US US-PA  --- KPJC 271715Z AUTO 12004KT 10SM SCT008 OVC095 08/08 A2944 RMK AO2 P0002=  ## [A] Zelienople, Zelienople Municipal Airport
186162 2022-11-27 17:53  17 US US-WV  PKB KPKB 271653Z 19008KT 10SM SCT042 BKN048 BKN085 17/13 A2943 RMK AO2 SLP966 T01670128=  ## [A] Parkersburg, Mid Ohio Valley Regional Airport
186164 2022-11-27 17:53  -1 US US-MN  PKD KPKD 271653Z AUTO 29003KT 10SM CLR M01/M04 A2985 RMK AO2 SLP126 T10111039=  ## [A] Park Rapids, Park Rapids Municipal Konshok Field
186182 2022-11-27 18:15  21 US US-TX  --- KPKV 271715Z AUTO 24008KT 10SM CLR 21/15 A2996 RMK AO2 T02100152=  ## [A] Port Lavaca, Calhoun County Airport
186190 2022-07-06 06:55  24 US US-IN  --- KPLD 060455Z AUTO 00000KT 10SM SCT045 SCT060 BKN065 24/19 A2991 RMK AO2=  ## [A] Portland, Portland Municipal Airport
186200 2022-11-27 17:54   4 US US-MI  PLN KPLN 271654Z AUTO 03009KT 10SM OVC011 04/01 A2957 RMK AO2 SLP018 T00390011=  ## [A] Pellston, Pellston Regional Airport of Emmet County Airport
186204 2022-11-27 18:15  18 US US-AL  PLR KPLR 271715Z AUTO 22011KT 10SM FEW042 18/07 A2986 RMK A01=  ## [A] Pell City, St Clair County Airport
186207 2022-11-27 18:15   5 US US-WA  --- KPLU 271715Z AUTO 00000KT 10SM BKN060 OVC070 05/02 A3002 RMK AO2=  ## [A] Puyallup, Pierce County-Thun Field
186216 2022-11-27 17:53   7 US US-CA  PMD KPMD 271653Z AUTO 00000KT 10SM CLR 07/M08 A3018 RMK AO2 SLP216 T00721083 $  ## [A] Palmdale, Palmdale Regional/USAF Plant 42 Airport
186220 2022-11-27 18:15  19 US US-OH  PMH KPMH 271715Z AUTO 25017G29KT 230V290 10SM SCT033 SCT040 SCT049 19/09 A2946 RMK AO2 T01850086=  ## [A] Portsmouth, Greater Portsmouth Regional Airport
186228 2022-11-27 17:53  29 US US-FL  PPM KPMP 271653Z 19004KT 10SM SCT027 29/23 A3002 RMK AO2 SLP168 T02890233=  ## [A] Pompano Beach, Pompano Beach Airpark
186233 2022-11-27 18:15  11 US US-MS  --- KPMU 271715Z AUTO 23012KT 10SM OVC018 11/07 A2982 RMK AO2=  ## [A] Batesville, Panola County Airport
186234 2022-11-27 18:15   4 US US-NE  --- KPMV 271715Z AUTO 33011KT 10SM CLR 04/M03 A2988 RMK AO2 T00401030=  ## [A] Plattsmouth, Plattsmouth Municipal Airport
186239 2022-11-27 18:15  -5 US US-WY  PWY KPNA 271715Z AUTO 23004KT 10SM OVC060 M05/M08 A2997 RMK AO2=  ## [A] Pinedale, Ralph Wenz Field
186241 2022-11-27 17:53   7 US US-OK  PNC KPNC 271653Z AUTO 33014KT 10SM CLR 07/01 A2991 RMK AO2 SLP130 T00720011=  ## [A] Ponca City, Ponca City Regional Airport
186243 2022-11-27 17:54  10 US US-PA  PNE KPNE 271654Z 00000KT 10SM OVC027 10/06 A2977 RMK AO2 RAB06E28 SLP080 P0001 T01000056 $  ## [A] Philadelphia, Northeast Philadelphia Airport
186251 2022-11-27 18:15   3 US US-MN  --- KPNM 271715Z AUTO 35006KT 10SM CLR 03/M03 A2984 RMK AO2 TSNO=  ## [A] Princeton, Princeton Municipal Airport
186257 2022-11-27 17:53  21 US US-FL  PNS KPNS 271653Z 24009KT 10SM CLR 21/08 A2997 RMK AO2 SLP151 T02060078=  ## [A] Pensacola, Pensacola Regional Airport
186258 2022-11-27 18:10   6 US US-IL  --- KPNT 271710Z AUTO 33012KT 5SM -RA OVC015 06/06 A2951 RMK AO2 P0001 T00570057=  ## [A] Pontiac, Pontiac Municipal Airport
186266 2022-11-27 18:18  22 US US-NC  POB KPOB 271718Z AUTO 19013G20KT 10SM -DZ OVC011 22/20 A2968 RMK AO2 DZB18 SLP053 $  ## [A] Fayetteville, Pope Field
186267 2022-11-27 17:47 XXX US US-CA  POC KPOC 271647Z 12005KT 10SM CLR A3010=  ## [A] La Verne, Brackett Field
186269 2022-11-27 17:55  17 US US-LA  POE KPOE 271655Z AUTO 26009KT 10SM CLR 17/09 A2992 RMK AO2 SLP134 T01690093=  ## [A] Fort Polk, Polk Army Air Field
186270 2022-11-27 18:03 XXX US US-MO  POF KPOF 271703Z AUTO 26011G17KT 10SM SCT015 OVC023 A2963 RMK AO2 $  ## [A] Poplar Bluff, Poplar Bluff Municipal Airport
186285 2022-11-27 17:53  11 US US-NY  POU KPOU 271653Z 16005KT 10SM OVC100 11/01 A2971 RMK AO2 SLP059 T01060006 $  ## [A] Poughkeepsie, Dutchess County Airport
186286 2022-11-27 18:15  11 US US-OH  --- KPOV 271715Z AUTO 20005KT 10SM OVC007 11/10 A2938 RMK AO2 T01060095 PWINO P0001=  ## [A] Ravenna, Portage County Airport
186289 2022-11-27 18:15   3 US US-WY  POY KPOY 271715Z AUTO 15005G18KT 10SM CLR 03/M07 A2971 RMK AO2=  ## [A] Powell, Powell Municipal Airport
186291 2022-11-27 18:15   4 US US-TX  PPA KPPA 271715Z AUTO 33010KT 10SM CLR 04/M01 A3003 RMK AO2 T00401011=  ## [A] Pampa, Perry Lefors Field
186296 2022-11-27 17:52   6 US US-KS  PPF KPPF 271652Z AUTO 33012KT 10SM OVC015 06/03 A2987 RMK AO2 SLP116 T00610028=  ## [A] Parsons, Tri-City Airport
186305 2022-11-27 18:15   4 US US-IN  LPO KPPO 271715Z AUTO 02012KT 3SM -RA SCT009 BKN013 OVC042 04/04 A2940 RMK AO2 P0002 T00420042=  ## [A] La Porte, La Porte Municipal Airport
186307 2022-11-27 18:15   7 US US-IL  --- KPPQ 271715Z AUTO 31010G15KT 7SM SCT014 BKN055 BKN120 07/07 A2962 RMK AO2 T00650065=  ## [A] Pittsfield, Pittsfield Penstone Municipal Airport
186325 2022-11-27 17:56   6 US US-ME  PQI KPQI 271656Z AUTO 23006KT 10SM CLR 06/M02 A2963 RMK AO2 SLP063 T00611017=  ## [A] Presque Isle, Northern Maine Regional Airport at Presque Isle
186328 2022-11-27 17:53  21 US US-MS  PGL KPQL 271653Z VRB04KT 10SM CLR 21/11 A2998 RMK AO2 SLP153 T02060106=  ## [A] Pascagoula, Trent Lott International Airport
186330 2022-08-02 19:15  32 US US-MN  --- KPQN 021715Z AUTO 23011G16KT 10SM CLR 32/22 A2971 RMK AO2=  ## [A] Pipestone, Pipestone Municipal Airport
186344 2022-11-27 17:53   4 US US-CA  PRB KPRB 271653Z AUTO 00000KT 10SM CLR 04/M01 A3014 RMK AO2 SLP210 T00441011 $  ## [A] Paso Robles, Paso Robles Municipal Airport
186345 2022-11-27 17:53   7 US US-AZ  PRC KPRC 271653Z AUTO 32006KT 10SM CLR 07/M07 A3016 RMK AO2 SLP194 T00671072=  ## [A] Prescott, Ernest A. Love Field
186349 2022-11-27 18:15  10 US US-IL  --- KPRG 271715Z AUTO 24017G25KT 10SM OVC012 10/10 A2939 RMK AO2 T01020101=  ## [A] Paris, Edgar County Airport
186356 2022-11-27 17:58  16 US US-AL  --- KPRN 271658Z AUTO 25012G17KT 10SM CLR 16/07 A2992 RMK AO2 SLP079 T01610067 $  ## [A] Greenville, Mac Crenshaw Memorial Airport
186357 2022-11-27 18:15   4 US US-IA  PRO KPRO 271715Z AUTO 34013KT 10SM CLR 04/00 A2980 RMK AO2 T00401003=  ## [A] Perry, Perry Municipal Airport
186361 2022-11-27 18:15  13 US US-TX  --- KPRS 271715Z AUTO 20003KT 10SM CLR 13/02 A3011 RMK AO2 T01310023=  ## [A] , Presidio Lely International Airport
186366 2022-11-27 17:56  13 US US-TX  PRX KPRX 271656Z AUTO 31007KT 10SM CLR 13/07 A2990 RMK AO2 SLP127 T01280072=  ## [A] Paris, Cox Field
186371 2022-11-27 17:53   9 US US-WA  PSC KPSC 271653Z 25010G22KT 10SM CLR 09/03 A2988 RMK AO2 PK WND 23029/1604 SLP122 T00890028=  ## [A] Pasco, Tri Cities Airport
186374 2022-11-27 17:54   5 US US-MA  PSF KPSF 271654Z AUTO 00000KT BKN120 05/M01 A2969 RMK AO2 PRESFR SLP056 T00501011 $  ## [A] Pittsfield, Pittsfield Municipal Airport
186379 2022-11-27 18:15  15 US US-VA  PSK KPSK 271715Z AUTO 18010G14KT 10SM SCT014 BKN020 BKN024 15/13 A2958 RMK AO2 T01460126=  ## [A] Dublin, New River Valley Airport
186381 2022-11-27 17:55  13 US US-NH  PSM KPSM 271655Z 23007KT 10SM FEW150 BKN250 13/M04 A2971 RMK AO2A SLP064 T01271044=  ## [A] Portsmouth, Portsmouth International at Pease Airport
186382 2022-11-27 18:15  14 US US-TX  PSN KPSN 271715Z AUTO 28008KT 10SM CLR 14/08 A2992 RMK AO2=  ## [A] Palestine, Palestine Municipal Airport
186383 2022-11-27 18:15   1 US US-CO  PGO KPSO 271715Z AUTO 20004KT 10SM SCT015 01/M03 A3004 RMK AO2 T00051027=  ## [A] Pagosa Springs, Stevens Field
186384 2022-11-27 17:53  16 US US-CA  PSP KPSP 271653Z 12003KT 10SM CLR 16/M05 A3013 RMK AO2 SLP203 T01611050=  ## [A] Palm Springs, Palm Springs International Airport
186392 2022-11-27 17:53  21 US US-TX  PSX KPSX 271653Z AUTO 23010KT 10SM CLR 21/14 A2995 RMK AO2 SLP143 T02060139 $  ## [A] Palacios, Palacios Municipal Airport
186396 2022-11-27 18:15  15 US US-VA  PTB KPTB 271715Z AUTO 00000KT 7SM -RA OVC005 15/14 A2969 RMK AO2 P0003 T01460140=  ## [A] Petersburg, Dinwiddie County Airport
186398 2022-11-27 18:15  10 US US-NY  --- KPTD 271715Z AUTO 24005KT 10SM CLR 10/M03 A2961 RMK AO2=  ## [A] Potsdam, Potsdam Municipal-Damon field
186405 2022-11-27 17:55   5 US US-MI  PTK KPTK 271655Z 05007KT 3/4SM R09R/P6000FT -DZ BR BKN009 OVC017 05/03 A2940 RMK AO2 P0000 T00500033=  ## [A] Pontiac, Oakland County International Airport
186408 2022-11-27 17:56  22 US US-LA  PTN KPTN 271656Z AUTO 24014KT 10SM CLR 22/13 A2998 RMK AO2 SLP151 P0001 T02170133 $  ## [A] Patterson, Harry P Williams Memorial Airport
186413 2022-11-27 18:15   7 US US-KS  --- KPTS 271715Z AUTO 32008G16KT 10SM OVC015 07/04 A2983 RMK AO2 T00660040 PWINO=  ## [A] Pittsburg, Atkinson Municipal Airport
186414 2022-11-27 18:15   6 US US-KS  PTT KPTT 271715Z AUTO 35020KT 10SM CLR 06/M02 A2997 RMK AO2 T00641021=  ## [A] Pratt, Pratt Regional Airport
186416 2022-11-27 17:56  12 US US-CA  PTV KPTV 271656Z AUTO 24003KT 8SM CLR 12/02 A3014 RMK AO2 SLP208 T01170022=  ## [A] Porterville, Porterville Municipal Airport
186417 2022-11-16 12:38   3 US US-PA  PTW KPTW 161138Z AUTO 28004KT 9SM SCT005 BKN016 OVC026 03/03 A2996 RMK AO2 T00280028=  ## [A] Pottstown, Heritage Field
186422 2022-11-27 17:53   3 US US-CO  PUB KPUB 271653Z AUTO 17004KT 10SM FEW012 03/M01 A2999 RMK AO2 SLP156 T00331011=  ## [A] Pueblo, Pueblo Memorial Airport
186423 2022-11-27 17:53   1 US US-UT  PUC KPUC 271653Z AUTO 20005KT 10SM CLR 01/M09 A3008 RMK AO2 SLP210 T00111089=  ## [A] Price, Carbon County Regional/Buck Davis Field
186430 2022-11-27 18:15  16 US US-GA  --- KPUJ 271715Z AUTO 25010G15KT 180V300 7SM OVC029 16/08 A2982 RMK AO2=  ## [A] Dallas, Paulding Northwest Atlanta Airport
186443 2022-11-27 17:53   3 US US-WA  PUW KPUW 271653Z AUTO 25021G30KT 10SM BKN020 BKN025 OVC033 03/01 A2981 RMK AO2 PK WND 25035/1555 RAE29 SLP112 P0000 T00330011=  ## [A] Pullman/Moscow, Pullman Moscow Regional Airport
186448 2022-11-27 18:15   6 US US-WI  --- KPVB 271715Z AUTO 35015KT 10SM SCT120 06/00 A2963 RMK AO1 T00570000=  ## [A] Platteville, Platteville Municipal Airport
186449 2022-11-27 17:56  13 US US-MA  PVC KPVC 271656Z AUTO 22012KT 10SM CLR 13/03 A2979 RMK AO2 SLP087 T01280033 $  ## [A] Provincetown, Provincetown Municipal Airport
186450 2022-11-27 17:51  10 US US-RI  PVD KPVD 271651Z 17005KT 10SM OVC180 10/00 A2978 RMK AO2 SLP083 T01000000=  ## [A] Providence, Theodore Francis Green State Airport
186451 2022-10-12 22:50  18 US US-TN  --- KPVE 122050Z AUTO 23014KT 5SM BR FEW004 SCT028 OVC049 18/17 A2990 RMK A01=  ## [A] Lexington-Parsons, Beech River Regional Airport
186452 2022-11-27 18:15  13 US US-CA  PVF KPVF 271715Z AUTO 17006KT 10SM CLR 13/M04 A3016 RMK AO1=  ## [A] Placerville, Placerville Airport
186453 2022-11-27 15:56  11 US US-VA  --- KPVG 271456Z AUTO 15006KT 8SM -RA OVC055 11/11 A2990 RMK AO2 SLP126 6//// T01110111 58026 TSNO PNO $  ## [A] Norfolk, Hampton Roads Executive Airport
186456 2022-11-27 18:15  11 US US-OK  --- KPVJ 271715Z AUTO 31010KT 10SM SCT023 11/05 A2992 RMK AO2 T01100053=  ## [A] Pauls Valley, Pauls Valley Municipal Airport
186467 2022-11-27 17:56   0 US US-UT  PVU KPVU 271656Z 00000KT 9SM BKN050 M00/M01 A3019 RMK AO2 SLP241 T10051011=  ## [A] Provo, Provo Municipal Airport
186469 2022-11-27 18:10   5 US US-TX  PVW KPVW 271710Z AUTO 01008KT 10SM CLR 05/00 A3001 RMK AO2 T00461004=  ## [A] Plainview, Hale County Airport
186473 2022-11-27 17:53   7 US US-OK  PWA KPWA 271653Z 33010G18KT 10SM FEW021 07/02 A2994 RMK AO2 SLP140 T00720017=  ## [A] Oklahoma City, Wiley Post Airport
186475 2022-11-27 18:15   1 US US-MN  --- KPWC 271715Z AUTO 34005KT 10SM CLR 01/M03 A2988 RMK AO2=  ## [A] Pine River, Pine River Regional Airport
186476 2022-11-27 18:15  -1 US US-MT  PWD KPWD 271715Z AUTO 20005KT 10SM FEW008 BKN050 BKN060 M01/M02 A2959 RMK AO2=  ## [A] Plentywood, Sher-Wood Airport
186479 2022-11-27 17:56  13 US US-TX  --- KPWG 271656Z AUTO 34005KT 10SM CLR 13/08 A2997 RMK AO2 SLP148 T01330078=  ## [A] Waco, McGregor Executive Airport
186483 2022-11-27 17:52   7 US US-IL  PWK KPWK 271652Z 35005KT 10SM OVC016 07/04 A2950 RMK AO2 SLP993 T00720039=  ## [A] Chicago/Prospect Heights/Wheeling, Chicago Executive Airport
186485 2022-11-27 17:51  11 US US-ME  PWM KPWM 271651Z 29003KT 10SM SCT150 BKN250 11/M02 A2970 RMK AO2 SLP056 T01061022=  ## [A] Portland, Portland International Jetport Airport
186492 2022-11-27 17:56   2 US US-WA  PWT KPWT 271656Z AUTO 00000KT 10SM CLR 02/02 A2999 RMK AO2 SLP162 T00170017 FZRANO=  ## [A] Bremerton, Bremerton National Airport
186503 2022-11-27 18:15  22 US US-GA  --- KPXE 271715Z AUTO 26012G18KT 10SM CLR 22/07 A2985 RMK AO2 T02170067=  ## [A] Perry, Perry Houston County Airport
186537 2022-11-27 17:52  12 US US-MA  PYM KPYM 271652Z AUTO 21007KT 10SM CLR 12/00 A2977 RMK AO2 SLP084 T01220000=  ## [A] Plymouth, Plymouth Municipal Airport
186548 2022-11-27 18:15   4 US US-TX  --- KPYX 271715Z AUTO 36015KT 10SM SCT100 04/M03 A3000 RMK AO2 T00351035=  ## [A] Perryton, Perryton Ochiltree County Airport
186567 2022-11-27 18:15   6 US US-MI  --- KPZQ 271715Z AUTO 04010G15KT 10SM -DZ OVC013 06/03 A2953 RMK AO2 T00550030=  ## [A] Rogers City, Presque Isle County Airport
186576 2022-11-27 18:15  23               KPZZ 271715Z AUTO 22006KT 9SM CLR 23/12 A2999 RMK A01=  ## [A]
186577 2019-08-16 07:55  27               KQAA 160555Z 18001KT 7SM OVC150 27/24 A2995 RMK SLP142 WND DATA ESTMD ALSTG/SLP ESTMD LAST=  ## [A]
186580 2019-08-16 07:55  20               KQAD 160555Z VRB02KT 10SM FEW021 20/19 A3039 RMK SLP283 WND DATA ESTMD ALSTG ESTMD T02030190 10290 20228 58007=  ## [A]
186581 2020-03-11 14:00   9               KQAE 111300Z 36005KT 7SM FEW200 09/05 A3013 RMK SLPNO WND DATA ESTMD ALSTG ESTMD=  ## [A]
186586 2022-09-14 22:55  32               KQAJ 142055Z 21005KT 9999 CLR 32/15 A2969 RMK SLPNO WND DATA ESTMD ALSTG ESTMD=  ## [A]
186594 2019-08-16 07:56  23               KQAR 160556Z 14005KT 10SM FEW014 23/21 A2997 RMK AO2A SLP147 WND DATA ESTMD T02330210 58010 LAST=  ## [A]
186595 2019-09-04 07:55  26               KQAS 040555Z VRB05KT 3SM HZ SCT010 BKN030 26/22 A2994 RMK AO2A SLP127 WND DATA ESTMD ALSTG/SLP ESTMD=  ## [A]
186598 2019-08-16 12:56  23               KQAV 161056Z 00000KT 7SM CLR 23/20 A2993 RMK SLP108 WND DATA ESTMD ALSTG/SLP ESTMD=  ## [A]
186600 2020-03-27 10:55 XXX               KQAX 270955Z AUTO 10SM CLR 22/ A2979 RMK AO2 SLP082 WND DATA ESTMD T0218 $  ## [A]
186602 2022-11-27 17:55  29               KQAZ 271655Z AUTO 00000KT 9999 CLR 29/M01 A2986 RMK AO2 SLP113 WND DATA ESTMD T02851015=  ## [A]
186603 2019-09-17 01:55  18               KQBA 162355Z AUTO 19008KT 10SM FEW050 SCT120 18/05 A2982 RMK AO2 SLP086 WND DATA ESTMD T01750047 10135 20109 401880069 53002=  ## [A]
186608 2020-04-30 14:56  37               KQBF 301256Z AUTO VRB05G14KT 9999 FEW200 37/21 A2981 RMK AO2 SLP076 WND DATA ESTMD T03650206=  ## [A]
186613 2019-09-18 13:56  19               KQBK 181156Z 00000KT 10SM CLR 19/17 A3009=  ## [A]
186614 2022-11-27 17:55  19               KQBL 271655Z AUTO 25006KT 10SM CLR 19/08 A2999 RMK AO2 SLP161 WND DATA ESTMD T01860079=  ## [A]
186616 2019-09-25 22:55  20               KQBN 252055Z AUTO 00000KT 10SM CLR 20/01 A3021 RMK AO2 SLP225 WND DATA ESTMD T01980010 58021=  ## [A]
186617 2019-09-13 02:55  25               KQBO 130055Z AUTO 25/10 A3004 RMK AO2 SLP167 T02510103 PWINO PNO TSNO $  ## [A]
186619 2019-09-20 07:55  21               KQBQ 200555Z 00000KT 10SM CLR 21/20 A3005 RMK AO2A SLP182 WND DATA ESTMD=  ## [A]
186620 2022-11-07 17:55  14               KQBR 071655Z AUTO 20009G18KT 170V240 10SM BKN065 OVC090 14/02 A2974 RMK AO2 SLP033 WND DATA ESTMD T01370020=  ## [A]
186625 2019-10-24 23:55  19               KQBW 242155Z 25012G17KT 7SM HZ PO FEW001 SCT250 SCT300 19/M05 A3033 RMK VIS SW 2 SLPNO ALSTG ESTMD LAST=  ## [A]
186635 2019-12-12 15:55   4               KQCG 121455Z AUTO 04007KT 350V070 10SM CLR 04/M05 A3065 RMK AO2 PK WND 070214/1428 SLP382 WND DATA ESTMD T00361048 52011=  ## [A]
186638 2020-01-10 15:55  23               KQCJ 101455Z AUTO 09010G16KT 4SM CLR 23/17 A3036 RMK AO2 SLP279 WND DATA ESTMD T02320166 52013 PWINO TSNO $  ## [A]
186639 2020-01-11 13:55 XXX               KQCK 111255Z 22003KT 7SM BKN004 OVC006 RMK A02A SLPNO WND DATA ESTMD=  ## [A]
186641 2020-01-11 16:55  18               KQCM 111555Z 13004KT 9000 BR FEW007 SCT010 BKN140 OVC210 18/16 A3030 RMK SLPNO=  ## [A]
186649 2020-01-14 19:55  23               KQCU 141855Z 18002KT 7SM FEW150 SCT250 23/11 A3018 RMK SLPNO WND DATA ESTMD ALSTG ESTMD=  ## [A]
186656 2022-04-22 21:55  23               KQDB 221955Z 25012G22KT 7SM FEW060 SCT150 23/M06 A2992=  ## [A]
186657 2020-01-10 13:59  16               KQDC 101259Z 23001KT 6SM -SHRA SCT006 OVC008 16/14 A3004 RMK RAB1259 SLP173 WND DATA ESTMD ALSTG ESTMD SLP ESTMD=  ## [A]
186661 2022-11-27 17:55   5               KQDG 271655Z AUTO 23004KT 9999 BKN050 05/M00 A3015 RMK AO2 SLP212 T00501002 $  ## [A]
186663 2020-02-21 13:58  11               KQDI 211258Z 10003KT 10SM CLR 11/M06 A3012 RMK SLPNO WND EST ALSTG EST 2157 1019=  ## [A]
186678 2020-02-21 18:55  17               KQDX 211755Z 00000KT 9999 CLR 17/M11 A3012 RMK SLP191 WND DATA ESTMD=  ## [A]
186679 2020-02-19 14:55  16               KQDY 191355Z AUTO 19001KT 10SM -RA FEW003 SCT033 BKN039 16/15 A3023 RMK AO2 RAB1155 SLP235 WND DATA ESTMD P0004 T01600150=  ## [A]
186685 2020-03-10 21:55  15               KQEE 102055Z 08003KT 7SM BKN030 OVC040 15/10 A2991 RMK SLPNO WND DATA ESTMD ALSTG ESTMD=  ## [A]
186688 2020-03-04 18:55  14               KQEH 041755Z AUTO 00000KT 10SM BKN090 14/04 A2993 RMK AO2 SLPNO WND DATA ESTMD T01350035 10131 20092 58008=  ## [A]
186689 2022-11-27 18:20  -1               KQEI 271720Z AUTO 35001KT 9999 FEW200 M01/M05 A3015 RMK A02 TSNO=  ## [A]
186690 2022-11-27 18:20  21               KQEJ 271720Z AUTO 24001KT 9999 // CLR 21/21 / RMK A02 TSNO=  ## [A]
186692 2020-08-19 02:00  24               KQEL 190000Z AUTO 18001KT / /OVC005 24/24 A2998 RMK A02 TSNO=  ## [A]
186694 2022-11-27 18:20 XXX               KQEN 271720Z AUTO 27004KT 9999 // CLR / / RMK A02 TSNO=  ## [A]
186696 2022-11-27 18:20   1               KQEP 271720Z AUTO 35001KT 9999 CLR 01/M05 A3015 RMK A02 TSNO=  ## [A]
186697 2022-11-27 18:20   4               KQEQ 271720Z AUTO 04003KT 9999 OVC055 04/M05 A3013 RMK A02 TSNO=  ## [A]
186698 2022-11-27 18:10   1               KQER 271710Z AUTO 13002KT 9999 FEW048 01/M06 A3008 RMK A02 TSNO=  ## [A]
186699 2020-11-23 01:20  10               KQES 230020Z AUTO 9999 BKN022 10/02 / RMK A02 TSNO=  ## [A]
186701 2020-03-13 04:58  10               KQEU 130358Z 09005KT 7SM BKN012 10/07 A2997 RMK SLPNO WND DATA ESTMD ALSTG ESTMD=  ## [A]
186702 2022-11-27 18:20   0               KQEV 271720Z AUTO 25001KT 9000 HZ CLR 00/M02 A3010 RMK A02 TSNO=  ## [A]
186703 2022-11-27 18:20   0               KQEW 271720Z AUTO 33001KT 9999 // FEW190 00/M04 A3017 RMK A02 TSNO=  ## [A]
186704 2022-11-27 17:20   4               KQEX 271620Z AUTO 01002KT 9999 CLR 04/M01 A3010 RMK A02 TSNO=  ## [A]
186705 2022-11-27 18:10   1               KQEY 271710Z AUTO 00000KT 9999 CLR 01/M03 A2985 RMK A02 TSNO=  ## [A]
186706 2020-03-13 06:56  10               KQEZ 130556Z 31012G20KT 7SM FEW025 10/08 A2990 RMK SLPNO WND DATA ESTMD ALSTG ESTMD=  ## [A]
186707 2020-03-13 04:58  15               KQFA 130358Z 22011KT 7SM CLR 15/09 A2969 RMK SLP066 WND DATA ESTMD ALSTG/SLP ESTMD=  ## [A]
186708 2022-11-27 18:20   6               KQFB 271720Z AUTO 29002KT 9999 OVC160 06/01 A3022 RMK A02 TSNO=  ## [A]
186709 2020-03-13 04:56  10               KQFC 130356Z 02014KT 10SM SCT200 10/02 A3007 RMK AO2A SLPNO WND DATA ESTMD ALSTG ESTMD=  ## [A]
186710 2020-03-13 04:55   7               KQFD 130355Z 28005KT 10SM SCT050 07/00 A3017 RMK SLPNO WND DATA ESTMD ALSTG ESTMD=  ## [A]
186715 2020-03-13 03:56  11               KQFI 130256Z 10007KT 10SM FEW003 OVC010 11/07 A3006 RMK AO2A SLP160 WND DATA ESTMD ALSTG/SLP ESTMD RVRNO=  ## [A]
186719 2020-03-13 00:55  21               KQFM 122355Z 20008KT 7SM FEW200 21/16 A3000 RMK SLPNO WND DATA ESTMD ALSTG/SLP ESTMD LAST=  ## [A]
186722 2020-03-13 04:56   9               KQFP 130356Z 13010KT 7SM OVC004 09/08 A3005 RMK SLPNO WND DATA ESTMD ALSTG ESTMD=  ## [A]
186725 2020-06-24 21:55  19               KQFS 241955Z 34001KT 8000 -SHRA BR BKN044 OVC050 19/18 A3017 RMK AO2A SLP213 WND DATA ESTMD P0000 T01890183=  ## [A]
186726 2022-11-27 18:20   3               KQFT 271720Z AUTO 05002KT 9999 FEW050 03/M04 A3013 RMK A02 TSNO=  ## [A]
186727 2022-11-27 18:20   3               KQFU 271720Z AUTO 17001KT 9999 OVC050 03/M02 A3014 RMK A02 TSNO=  ## [A]
186728 2022-11-27 18:20  -2               KQFV 271720Z AUTO 26001KT 9999 BKN047 M02/M04 A3018 RMK A02 TSNO=  ## [A]
186729 2022-11-27 18:10  -3               KQFW 271710Z AUTO 23001KT 9999 CLR M03/M05 A2999 RMK A02 TSNO=  ## [A]
186730 2022-11-27 18:20  18               KQFX 271720Z AUTO 13002KT 9999 CLR 18/16 / RMK A02 TSNO=  ## [A]
186735 2020-06-06 17:55   7               KQGC 061555Z VRB02KT 10SM FEW033 BKN046 07/03 A2985 RMK AO2A SLP110 WND DATA ESTMD ALSTG=  ## [A]
186750 2020-07-31 10:55  31               KQGR 310855Z VRB05KT 10SM CLR 31/00 A2995 RMK SLPNO WND DATA ESTMD ALSTG ESTMD=  ## [A]
186753 2019-05-15 15:58  21               KQGU 151358Z AUTO 06004KT 8SM BKN011 OVC019 21/20 A3010 RMK AO2 SLP190 T02120196=  ## [A]
186754 2020-07-01 00:55  25               KQGV 302255Z AUTO VRB01KT 10SM FEW034 SCT170 25/20 A2987 RMK AO2 SLPNO WND DATA ESTMD T02540196=  ## [A]
186758 2020-07-30 16:55  30               KQGZ 301455Z AUTO VRB03KT 8SM FEW022 SCT050 30/23 A3005 RMK AO2 SLP176 WND DATA ESTMD T02970234 52010 PWINO $  ## [A]
186761 2021-08-26 16:55  31               KQHC 261455Z AUTO VRB01KT 10SM CLR 31/22 A3010 RMK AO2 SLP190 WND DATA ESTMD T03090224 57003=  ## [A]
186763 2020-07-22 18:55  28               KQHE 221655Z VRB04KT 10SM SCT100 BKN150 28/08 A3014 RMK AO2A SLP018 WND DATA ESTMD ALSTG/SLP ESTMD=  ## [A]
186775 2020-08-14 04:56  25               KQHQ 140256Z 05003KT 7SM SCT015 BKN040 25/22 A3007 RMK SLP180 WND DATA ESTMD ALSTG/SLP ESTMD RVRNO=  ## [A]
186777 2020-09-27 18:55  34               KQHS 271655Z 01002KT 4SM HZ FEW250 34/06 A2994 RMK SLPNO=  ## [A]
186778 2020-09-27 15:59  19               KQHT 271359Z 00000KT 6SM HZ CLR 19/03 A2994 RMK AO2 SLPNO=  ## [A]
186783 2022-11-19 18:55  16               KQHY 191755Z AUTO 05005KT 10SM OVC110 16/01 A3030 RMK AO2 RAB14E30 SLP267 P0000 60000 T01550012 10159 20084 57019=  ## [A]
186784 2020-08-14 07:55  26               KQHZ 140555Z 22006KT 7SM FEW200 26/09 A2988 RMK SLP125 WND DATA ESTMD ALSTG/SLP ESTMD=  ## [A]
186785 2020-09-03 05:55  28               KQIA 030355Z AUTO 28/23 A2991 RMK AO2 SLP121 WND DATA ESTMD T02820233 PWINO PNO TSNO $  ## [A]
186787 2020-08-14 07:55  14               KQIC 140555Z 17003KT 10SM CLR 14/M02 A3008 RMK AO2A SLPNO WND DATA ESTMD ALSTG ESTMD LAST=  ## [A]
186788 2019-09-17 20:55  34               KQID 171855Z AUTO VRB06KT 10SM CLR 34/22 A2995 RMK AO2 SLP140 WND DATA ESTMD T03430223 $  ## [A]
186790 2020-08-14 05:58  19               KQIF 140358Z 00000KT 10SM CLR 19/07 A3015 RMK SLPNO WND DATA ESTMD ALSTG ESTMD=  ## [A]
186792 2020-08-25 06:58  26               KQIH 250458Z VRB02KT 6SM HZ FEW030 SCT080 BKN100 26/10 A3013 RMK AO2A RAE41 SLPNO WND DATA ESTMD ALSTG ESTMD T02610103=  ## [A]
186806 2020-10-25 21:55  18               KQIV 252055Z 23020G28KT 7SM CLR 18/05 A2975 RMK SLP034 WND DATA ESTMD ALT/SLP ESTMD=  ## [A]
186809 2020-11-06 16:55 XXX               KQIY 061555Z AUTO VRB03KT 10SM CLR RMK AO2 SLPNO WND DATA ESTMD $  ## [A]
186813 2020-11-07 20:55   6               KQJC 071955Z 02010G15KT 10SM FEW024 SCT035 BKN050 06/M01 A2965 RMK AO2A SHRAB1812E1904 SLP031 WND DATA ESTMD T00551013=  ## [A]
186815 2020-11-03 16:55  14               KQJE 031555Z 24004KT 7SM CLR 14/M06 A3008 RMK VIS SE 3/ SLPNO/ WIND DATA ESTMD/ ALTSG ESTMD/ 52010 PA +2205 DA +2669=  ## [A]
186822 2020-12-10 23:55  18               KQJL 102255Z 00002KT 10SM FEW049 18/11 A3016 RMK AO2A SLP213 WND DATA ESTMD ALSTG/SLP ESTMD=  ## [A]
186823 2020-12-09 07:58   3               KQJM 090658Z 34002KT 7SM -RA BKN120 03/M02 A3006 RMK AO2A RAB45 SLPNO WND DATA ESTMD ALSTG ESTMD=  ## [A]
186826 2021-04-24 00:55  30               KQJP 232255Z 23007G15KT 7SM CLR 30/06 A2990 RMK SLP114 T02950061=  ## [A]
186832 2020-12-11 06:58  10               KQJV 110558Z 23008KT 10SM CLR 10/00 A3007 RMK SLP188 WND DATA ESTMD ALSTG/SLP ESTMD LAST=  ## [A]
186835 2020-12-24 06:56   3               KQJY 240556Z 10001KT 10SM CLR 03/01 A3066 SLP389 ALSTG ESTMD=  ## [A]
186854 2021-03-12 16:55  24               KQKR 121555Z AUTO VRB03KT 10SM CLR 24/10 A3041 RMK AO2 SLP295 WND DATA ESTMD T02350104=  ## [A]
186858 2021-03-23 18:55   7               KQKV 231755Z AUTO 00000KT 10SM SCT006 BKN042 07/04 A3051 RMK AO2 SLP334 WND DATA ESTMD T00710036 10078 20004 51010 PWINO $  ## [A]
186859 2021-03-12 06:55   0               KQKW 120555Z 18001KT 10SM CLR 00/M06 A3025 RMK AO2A SLP263 WND DATA ESTMD ALSTG/SLP ESTMD T00011057 10104 20041 52010=  ## [A]
186861 2021-03-12 06:55   9               KQKY 120555Z 21005KT 10SM CLR 09/03 A3005 RMK SLP177 WND DATA ESTMD ALSTG/SLP ESTMD LAST=  ## [A]
186866 2021-04-23 15:55  14               KQLD 231355Z 33001KT 7SM SKC 14/00 A2992 RMK SLP107 WND DATA ESTMD ALSTG/SLP ESTMD=  ## [A]
186870 2021-03-22 11:55  15               KQLH 221055Z AUTO VRB01KT 10SM FEW012 15/13 A3000 RMK AO2 SLP160 WND DATA ESTMD T01470126=  ## [A]
186879 2021-04-19 21:55  19               KQLQ 191955Z AUTO VRB03KT 10SM CLR 19/03 A3025 RMK AO2 SLP243 WND DATA ESTMD T01910030=  ## [A]
186890 2021-04-30 13:55  12               KQMB 301155Z 23012KT 12SM CLR 12/07 A3007 RMK AO2A SLP203 WND DATA ESTMD ALSTG/SLP ESTMD LAST=  ## [A]
186895 2021-05-16 09:55  19               KQMG 160755Z AUTO 11008KT 10SM FEW070 BKN130 19/13 A2987 RMK AO2 SLP114 WND DATA ESTMD T01900125=  ## [A]
186896 2021-04-29 20:55  24               KQMH 291855Z AUTO VRB02KT 10SM FEW240 24/02 A3034 RMK AO2 SLP235 WND DATA ESTMD T02390020=  ## [A]
186897 2021-05-14 07:55  13               KQMI 140555Z 00000KT 10SM CLR 13/03 A3010 RMK AO2A SLP167 WND DATA ESTMD ALSTG/SLP ESTMD T01310033 10238 20203 50002=  ## [A]
186904 2021-05-14 07:55  11               KQMP 140555Z 24012G18KT 7SM CLR 11/08 A2989 RMK SLP128 WND DATA ESTMD ALSTG/SLP ESTMD LAST=  ## [A]
186907 2021-07-20 22:55  37               KQMS 202055Z 15005KT 7SM FEW120 37/16 A3020 RMK SLPNO WND DATA ESTMD ALSTG ESTMD=  ## [A]
186914 2021-08-26 15:55  23               KQMZ 261355Z 25012KT 10SM CLR 23/M04 A3011 RMK AO2A SLP098 WND DATA ESTMD ALSTG ESTMD=  ## [A]
186918 2021-08-05 15:55  14               KQND 051355Z AUTO 17002KT CLR 14/11 A2996 RMK AO2 SLP142 WND DATA ESTMD T01350112 PWINO $  ## [A]
186930 2021-09-16 04:55  29               KQNP 160255Z 00000KT 7SM 29/M03 A2983 RMK SLP NO WND DATA ESTMD ALSTG ESTMD=  ## [A]
186931 2021-09-24 18:55  29               KQNQ 241655Z 00000KT 2 1/2SM FU BKN001 29/00 A3001 RMK AO2A FU ALQDS BKN001 SLP126 WND DATA ESTMD T02910003=  ## [A]
186950 2021-12-07 20:55  12               KQOJ 071955Z AUTO 03001KT 10SM SCT085 12/M09 A3005 RMK AO2 SLP132 WND DATA ESTMD T01221086=  ## [A]
186954 2021-12-24 07:55   3               KQON 240655Z AUTO VRB01KT 10SM -SHRA FEW021 BKN060 BKN090 03/01 A2941 RMK AO2 SHRAB0515E0605B0629 SLP962 WND DATA ESTMD P0000 T00330012=  ## [A]
186955 2022-01-28 14:55   5               KQOO 281355Z 01013G17KT 10SM CLR 05/M20 A3047 RMK AO2 SLP311 WND DATA ESTMD T00451196 10070 20042 58003=  ## [A]
186957 2022-01-21 21:55  15               KQOQ 212055Z 35025G36KT 7SM BLDU FEW100 15/M05 A3006 RMK SLPNO WND DATA/ ALSTG ESTMD=  ## [A]
186959 2022-10-16 03:55  23               KQOS 160155Z 26008KT 7SM SCT055 23/15 A2974 RMK AO2A SLP069 T02300153 PWINO TSNO=  ## [A]
186961 2022-02-16 18:55  12               KQOU 161755Z VRB06KT 7SM CLR 12/M05 A3003 RMK WND DATA ESTMD/ALTSG ESTMD=  ## [A]
186967 2022-03-09 13:55   6               KQPA 091255Z 02008KT 9999 SCT200 06/02 A2997 RMK SLPNO T00620021=  ## [A]
186968 2022-03-24 13:56   2               KQPB 241256Z VRB01KT 7SM SCT150 02/M07 A3016 RMK SLP218 T00241066=  ## [A]
186969 2022-03-31 16:56   3               KQPC 311456Z 10007KT 9999 SCT040 03/M08 A2998 RMK SLP156 T00301078=  ## [A]
186970 2021-04-10 02:55  34               KQPD 100055Z 21007KT 10SM FEW140 34/M09 A2980=  ## [A]
186974 2022-02-10 23:55  27               KQPH 102255Z AUTO VRB02KT 10SM CLR 27/M03 A3011 RMK AO2 SLP197 WND DATA ESTMD T02651029=  ## [A]
186978 2022-04-21 17:55  17               KQPL 211555Z 18010G15KT 8SM CLR 17/01 A2995 RMK AO2 SLP121 WND DATA ESTMD T01660012=  ## [A]
187002 2022-07-06 08:55  26               KQQJ 060655Z 22003KT 7SM CLR 26/08 A2981 RMK SLPNO WND DATA ESTMD ALSTG ESTMD LAST PA+2520 DA+4520=  ## [A]
187010 2022-07-08 17:55  31               KQQR 081555Z VRB02KT 7SM SCT200 31/08 A3004 RMK SLPNO WND DATA ESTM ALSTG ESTMD LAST PA+3154 DA+5833=  ## [A]
187017 2022-10-26 19:55  18               KQQY 261755Z 10001KT 10SM CLR 18/00 A2814 RMK AO2A SLP505 WND DATA ESTMD T01841005 10065 20020 58005=  ## [A]
187026 2022-11-27 17:55  27               KQRH 271655Z AUTO 00000KT 9999 CLR 27/21 A2984 RMK AO2 SLP107 WND DATA ESTMD T02650212=  ## [A]
187027 2022-09-11 17:55  28               KQRI 111555Z 16001KT 7SM SCT150 28/16 A3011 RMK SLPNO=  ## [A]
187028 2022-10-13 07:55  19               KQRJ 130555Z AUTO VRB01KT 10SM -RA SCT100 BKN120 19/19 A3003 RMK AO2 LTG DSNT E RAB0504 SLP167 WND DATA ESTMD P0014 60015 T01930190 10265 20219 402180191 58020=  ## [A]
187036 2022-10-20 23:55  24               KQRR 202155Z 25002KT 10SM CLR 24/M04 A3002 RMK SLP149 WND DATA ESTMD ALSTG/SLP ESTMD=  ## [A]
187041 2022-11-22 20:55  16               KQRW 221955Z AUTO 00000KT 9SM CLR 16/M18 A2991 RMK AO2 SLP005 WND DATA ESTMD T01581177 TSNO $  ## [A]
187048 2019-06-16 10:55  36               KQSD 160855Z VRB06KT 9999 CLR 36/M11 A2992 RMK AO2A PK WND 02026/0808 SLP018 WND DATA ESTMD T0359113 58018=  ## [A]
187057 2022-10-25 00:59   8               KQSM 242259Z 02009KT 7000 -RA FEW002 SCT008 BKN015 08/07 A3023 RMK SHRAE00RAB00 SLP245 P0009 T00820073 $  ## [A]
187079 2020-08-03 10:56  43               KQTI 030856Z AUTO 03007KT 360V080 9999 FEW220 43/04 A2953 RMK AO2 SLP001 WND DATA ESTMD T04340042 58008=  ## [A]
187096 2022-11-27 17:55  17               KQTZ 271655Z 34003KT 9999 FEW220 17/10 A3008 RMK SLP185 WND DATA ESTMD ALSTG/SLP ESTMD=  ## [A]
187115 2019-08-12 04:58  17               KQUS 120258Z AUTO 16004KT 10SM SCT130 BKN190 17/15 A3014 RMK AO2 SLP134 T01720151 53008 $  ## [A]
187124 2022-09-02 17:58 XXX               KQVB 021558Z AUTO M M M M M M RMK AO2 SLPNO PWINO PNO TSNO $  ## [A]
187128 2022-11-27 17:55  26               KQVF 271655Z AUTO 15003KT 9999 CLR 26/24 A2981 RMK AO2 SLP097 WND DATA ESTMD T02590238=  ## [A]
187129 2022-09-02 17:58 XXX               KQVG 021558Z AUTO M M M M M M RMK AO2 SLPNO PWINO PNO TSNO $  ## [A]
187180 2019-05-15 19:55  23               KQXF 151755Z 23010G20KT 10SM FEW130 BKN200 23/00 A2991 RMK SLPNO WND DATA ESTMD ALTSG ESTMD=  ## [A]
187181 2019-05-12 17:55  26               KQXG 121555Z 00000KT 7SM SKC 26/07 A2995 RMK SLPNO WND DATA ESTMD ALSTG ESTMD=  ## [A]
187184 2019-05-17 16:55  15               KQXJ 171455Z 19012G18KT CLR 15/01 A2992 RMK WND DATA ESTMD ALSTG ESTMD=  ## [A]
187188 2019-05-02 08:55  19               KQXN 020655Z 00000KT 7SM CLR 19/17 A3014 RMK AO2A SLP202 WND DATA ESTMD T01870168 $  ## [A]
187189 2019-05-01 02:56  25               KQXO 010056Z 20006KT 10SM SCT040 25/16 A3077 RMK WND DATA ESTMD ALSTG ESTMD=  ## [A]
187195 2019-06-22 23:55  14               KQXU 222155Z AUTO 20002KT FEW150 14/05 A2994 RMK AO2 SLP139 WND DATA ESTMD T01380053 PWINO $  ## [A]
187202 2019-06-13 20:58  36               KQYB 131858Z 26010G15KT 7SM CLR 36/01 A2979 RMK SLPNO WND DATA ESTMD ALSTG ESTMD=  ## [A]
187203 2019-06-03 19:55  16               KQYC 031755Z VRB01KT 7SM FEW030 16/01 A3021 RMK SLP227 WND DATA ESTMD ALSTG/SLP ESTMD 50000=  ## [A]
187204 2020-11-24 18:55  10               KQYD 241755Z AUTO 10/M21 A3044 RMK AO2 SLP308 WND DATA ESTMD T01041212 10073 20012 58008 PWINO PNO TSNO $  ## [A]
187214 2019-06-20 08:55  26               KQYN 200655Z 23006KT 7SM BKN010 26/24 A2988 RMK SLPNO WND DATA ESTMD ALSTG ESTMD=  ## [A]
187215 2019-06-23 17:55  20               KQYO 231555Z 28011G19KT 7SM FEW080 FEW200 20/04 A3002 RMK SLP151 T02000036=  ## [A]
187216 2019-06-20 01:55  24               KQYP 192355Z 20004KT 10SM CLR 24/22 A2976 RMK AO2 LTG DSNT S RAB2223E2227SHRAB2227E2249 SLP077 WND DATA ESTMD 60007 T02380223 10294 20226 402940226 50000=  ## [A]
187217 2019-06-26 19:55  43               KQYQ 261755Z AUTO 17009G14KT 150V210 10SM CLR 43/09 A3014 RMK AO2 LTG DSNT N SLP076 WND DATA ESTMD T03400087 10327 20203 57007 $  ## [A]
187218 2019-07-12 20:55  37               KQYR 121855Z 00000KT 7SM FEW180 37/06 A2995 RMK SLPNO=  ## [A]
187219 2019-07-30 15:55  17               KQYS 301355Z 17001KT 7SM CLR 17/12 A3018 RMK AO2 WND DATA ESTMD ALSTG/SLP ESTMD T01690122=  ## [A]
187221 2019-07-14 07:55  35               KQYU 140555Z 34007G14KT 7SM FEW070 35/M06 A2990 RMK SLPNO WND DATA ESTMD 52010 LAST=  ## [A]
187224 2019-07-18 22:59  28               KQYX 182059Z 20009KT 10SM BKN020 OVC040 28/23 A2983 RMK WND DATA ESTMD ALSTG ESTMD=  ## [A]
187226 2019-08-01 00:55  37               KQYZ 312255Z VRB05KT 7SM FEW080 37/17 A2990 RMK AO2A SLP097 WND DATA ESTMD ALSTG/SLP ESTMD=  ## [A]
187227 2019-07-30 13:55  25               KQZA 301155Z 15001KT 10SM SCT095 25/19 A3006 RMK AO2A SLPNO WND DATA ESTMD ALSTG ESTMD 60013 T02540194 10305 20262 52013=  ## [A]
187228 2019-07-31 23:55  39               KQZB 312155Z VRB02KT 10SM SCT095 39/13 A2999 RMK AO2A SLP112 WND DATA ESTMD ALTSG ESTMD T03890136=  ## [A]
187229 2019-07-29 20:00  34               KQZC 291800Z 19007G15KT 10SM FEW200 34/17 A2998 RMK AO2 SLPNO WND DATA ESTMD=  ## [A]
187231 2019-07-31 16:58  32               KQZE 311458Z VRB06KT 7SM CLR 32/19 A3000 RMK AO2A WND DATA ESTMD ALSTG ESTMD=  ## [A]
187232 2019-07-31 17:58  33               KQZF 311558Z VRB03KT 7SM CLR 33/19 A3000 RMK AO2A SLPNO WND DATA ESTMD ALSTG ESTMD=  ## [A]
187233 2019-07-30 15:55  33               KQZG 301355Z 13002KT 7SM BKN100 33/24 A3027 RMK SLPNO WND DATA ESTMD ALSTG DATA ESTMD=  ## [A]
187234 2019-08-29 07:56  26               KQZH 290556Z 29003KT 9000 HZ CLR 26/21 A2992 RMK SLPNO WND DATA ESTMD ALSTG ESTMD=  ## [A]
187238 2019-07-24 00:55  26               KQZL 232255Z 35004KT 7SM FEW070 26/11 A3004 RMK AO2A SLP164 WND DATA ESTMD LAST=  ## [A]
187240 2019-08-08 00:55  26               KQZN 072255Z 23014G18KT 10SM BKN090 BKN110 26/00 A3021 RMK RAE10 SLP103 T02580001=  ## [A]
187242 2019-08-15 05:55  24               KQZP 150355Z AUTO 24/06 A3015 RMK AO2 SLP116 WND DATA ESTMD T02410063 PWINO PNO TSNO $  ## [A]
187246 2019-09-13 07:55  25               KQZT 130555Z 09002KT 10SM CLR 25/M06 A3006 RMK AO2 SLP137 T02471058 10357 20268 51007=  ## [A]
187247 2019-08-16 07:55  20               KQZU 160555Z 23005KT 10SM CLR 20/07 A2996 RMK AO2A SLPNO WND DATA ESTMD ALSTG ESTMD LAST=  ## [A]
187248 2019-08-16 07:55  28               KQZV 160555Z 23010KT 10SM CLR 28/10 A2978 RMK AO2A SLP082 WND DATA ESTMD ALSTG/SLP ESTMD T02810097 10395 20282 51005 $  ## [A]
187249 2019-08-16 07:55  25               KQZW 160555Z 00000KT 10SM CLR 25/23 A2997 RMK SLP141 WND DATA ESTMD ALSTG/SLP ESTMD=  ## [A]
187250 2019-08-19 23:55  23               KQZX 192155Z AUTO VRB03KT 10SM FEW040 23/12 A3002 RMK AO2 SLP163 T02330117=  ## [A]
187255 2022-11-27 18:15   7 US US-WI  RAC KRAC 271715Z AUTO 01015G24KT 10SM BKN009 OVC015 07/04 A2953 RMK AO2 CIG 007V013 T00670044=  ## [A] Racine, John H Batten Airport
187264 2022-11-27 17:53  13 US US-CA  RAL KRAL 271653Z 00000KT 10SM CLR 13/01 A3010 RMK AO2 SLP183 T01280006=  ## [A] Riverside, Riverside Municipal Airport
187268 2022-11-27 17:52   2 US US-SD  RAP KRAP 271652Z 16009KT 10SM CLR 02/M02 A2979 RMK AO2 SLP116 T00171017 $  ## [A] Rapid City, Rapid City Regional Airport
187271 2022-11-27 18:15  20 US US-TX  --- KRAS 271715Z AUTO 21005KT 10SM CLR 20/13 A2997 RMK AO2 T01970133=  ## [A] Port Aransas, Mustang Beach Airport
187275 2022-11-27 18:15   5 US US-MO  --- KRAW 271715Z AUTO 33006KT 10SM OVC011 05/03 A2977 RMK AO2=  ## [A] Warsaw, Warsaw Municipal Airport
187282 2022-11-27 17:53  13 US US-TX  RBD KRBD 271653Z 33008KT 10SM CLR 13/07 A2993 RMK AO2 SLP133 T01330072=  ## [A] Dallas, Dallas Executive Airport
187285 2022-11-27 17:53   6 US US-OR  RBG KRBG 271653Z AUTO 00000KT 10SM BKN033 OVC042 06/03 A3025 RMK AO2 RAB20E33 SLP246 P0000 T00560028=  ## [A] Roseburg, Roseburg Regional Airport
187290 2022-11-27 17:54   8 US US-CA  RBL KRBL 271654Z AUTO 33003KT 10SM CLR 08/01 A3017 RMK AO2 SLP215 T00780011 $  ## [A] Red Bluff, Red Bluff Municipal Airport
187293 2022-11-27 18:15  19 US US-TX  --- KRBO 271715Z AUTO 10SM CLR 19/15 A2995 RMK AO2 T01890150=  ## [A] Robstown, Nueces County Airport
187301 2022-11-27 18:15  23 US US-SC  RBW KRBW 271715Z AUTO 19008KT 10SM OVC019 23/21 A2981 RMK AO2=  ## [A] Walterboro, Lowcountry Regional Airport
187305 2022-11-27 17:55   1 US US-SD  RCA KRCA 271655Z AUTO 13008KT 10SM CLR 01/M04 A2975 RMK AO2 SLP105 T00131036 $  ## [A] Rapid City, Ellsworth Air Force Base
187309 2022-11-27 18:15   6               KRCE 271715Z AUTO 32012KT 10SM BKN022 06/01 A2996 RMK AO2=  ## [A]
187317 2022-11-27 18:15   5 US US-MO  --- KRCM 271715Z AUTO 30010G17KT 10SM OVC016 05/02 A2978 RMK AO2=  ## [A] Warrensburg, Skyhaven Airport
187322 2022-11-27 18:15   7 US US-IN  RCR KRCR 271715Z AUTO 02004KT 3SM -RA BR OVC003 07/07 A2933 RMK AO2=  ## [A] Rochester, Fulton County Airport
187326 2022-11-27 18:15   1               KRCV 271715Z AUTO 26007KT 10SM CLR 01/M07 A2999 RMK AO2 T00121068=  ## [A]
187328 2022-11-27 18:15   3 US US-WI  --- KRCX 271715Z AUTO 01014G17KT 10SM SCT022 03/00 A2976 RMK AO2 T00320000=  ## [A] Ladysmith, Rusk County Airport
187330 2022-11-27 18:15  21 US US-NC  --- KRCZ 271715Z AUTO 19011G20KT 10SM SCT010 BKN019 OVC025 21/20 A2970 RMK AO2 T02080200=  ## [A] Rockingham, Richmond County Airport
187334 2022-11-27 17:53   7 US US-CA  RDD KRDD 271653Z 00000KT 10SM CLR 07/00 A3014 RMK AO2 SLP207 T00670000 $  ## [A] Redding, Redding Municipal Airport
187337 2022-11-27 17:54   8 US US-PA  RDG KRDG 271654Z 15004KT 1 3/4SM RA BR OVC013 08/06 A2970 RMK AO2 SLP065 P0005 T00830061=  ## [A] Reading, Reading Regional Carl A Spaatz Field
187341 2022-11-27 18:15   5 US US-IA  --- KRDK 271715Z AUTO 33015G20KT 10SM CLR 05/M01 A2985 RMK AO2=  ## [A] Red Oak, Red Oak Municipal Airport
187343 2022-11-27 17:56   5 US US-OR  RDM KRDM 271656Z 12008KT 10SM CLR 05/M04 A3002 RMK AO2 SLP180 T00501044=  ## [A] Redmond, Roberts Field
187348 2022-11-27 17:55  -2 US US-ND  RDR KRDR 271655Z AUTO 24004KT 10SM CLR M02/M06 A2985 RMK AO2 SLP126 T10191063 $  ## [A] Grand Forks, Grand Forks Air Force Base
187351 2022-11-27 17:51  20 US US-NC  RDU KRDU 271651Z 19016G24KT 10SM OVC007 20/18 A2969 RMK AO2 PRESFR SLP051 T02000183=  ## [A] Raleigh/Durham, Raleigh Durham International Airport
187363 2022-11-27 18:15  23               KREG 271715Z AUTO 24008G14KT 10SM CLR 23/12 A2995 RMK AO2 T02280121=  ## [A]
187371 2022-11-27 17:52   3 US US-OR  REO KREO 271652Z AUTO 18008KT 03/M05 A3005 RMK AO1 SLP194 T00331050 =  ## [A] Rome, Rome State Airport
187386 2022-11-27 17:54   4 US US-IL  RFD KRFD 271654Z 35015KT 10SM -RA FEW018 OVC050 04/01 A2957 RMK AO2 RAB37 SLP017 P0000 T00440011 $  ## [A] Chicago/Rockford, Chicago Rockford International Airport
187391 2022-11-27 18:15  17 US US-TX  --- KRFI 271715Z AUTO 00000KT 10SM CLR 17/05 A2992 RMK AO2 T01690048=  ## [A] Henderson, Rusk County Airport
187409 2022-11-27 18:15  15               KRGA 271715Z AUTO 23014G24KT 10SM SCT047 BKN050 15/07 A2957 RMK AO2=  ## [A]
187419 2022-11-27 18:15   3 US US-MN  --- KRGK 271715Z AUTO 35005KT 10SM CLR 03/M02 A2979 RMK AO2=  ## [A] Red Wing, Red Wing Regional Airport
187443 2022-11-27 17:53   2 US US-WI  RHI KRHI 271653Z AUTO 01008G15KT 10SM FEW021 02/M04 A2969 RMK AO2 SLP071 T00171044=  ## [A] Rhinelander, Rhinelander Oneida County Airport
187450 2022-11-27 18:15  16 US US-NC  --- KRHP 271715Z AUTO 24013G23KT 10SM SCT038 BKN048 BKN050 16/08 A2974 RMK AO2 T01590075=  ## [A] Andrews, Western Carolina Regional Airport
187456 2022-11-27 17:47   8 US US-CA  RHV KRHV 271647Z 00000KT 10SM SCT080 08/03 A3016=  ## [A] San Jose, Reid-Hillview Airport of Santa Clara County
187463 2022-11-27 18:15  15 US US-VA  RIC KRIC 271715Z 15015G20KT 1 1/2SM R34/3500VP6000FT +RA BR BKN007 BKN023 OVC033 15/14 A2967 RMK AO2 PRESFR P0010 T01500139=  ## [A] Richmond, Richmond International Airport
187464 2022-11-27 18:15  11 US US-IN  --- KRID 271715Z AUTO 23018G23KT 10SM OVC022 11/10 A2940 RMK AO2=  ## [A] Richmond, Richmond Municipal Airport
187472 2022-11-27 17:53   4 US US-CO  RIL KRIL 271653Z AUTO 30003KT 10SM CLR 04/M04 A3008 RMK AO2 SLP184 T00391039=  ## [A] Rifle, Garfield County Regional Airport
187482 2022-11-27 17:55  12 US US-CA  RIV KRIV 271655Z AUTO 00000KT 10SM CLR 12/00 A3010 RMK AO2 SLP193 T01180002=  ## [A] Riverside, March ARB Airport
187483 2022-11-27 17:53  -6 US US-WY  RIW KRIW 271653Z AUTO 24011KT 10SM CLR M06/M08 A2981 RMK AO2 SLP127 I1001 T10611078 $  ## [A] Riverton, Riverton Regional Airport
187516 2022-11-27 17:56   9 US US-ME  RKD KRKD 271656Z AUTO 22006KT 10SM CLR 09/04 A2968 RMK AO2 SLP051 T00940044=  ## [A] Rockland, Knox County Regional Airport
187528 2022-11-27 17:53  21 US US-TX  RKP KRKP 271653Z AUTO 10SM CLR 21/14 A2995 RMK AO2 SLP144 T02110139=  ## [A] Rockport, Aransas County Airport
187530 2022-11-27 18:15  11 US US-OK  --- KRKR 271715Z AUTO 27007KT 10SM OVC027 11/05 A2988 RMK AO2=  ## [A] Poteau, Robert S Kerr Airport
187531 2022-11-27 17:54  -4 US US-WY  RKS KRKS 271654Z AUTO 26032G39KT 10SM FEW027 M04/M08 A3000 RMK AO2 PK WND 26039/1651 SLP192 T10391078=  ## [A] Rock Springs, Southwest Wyoming Regional Airport
187535 2022-11-27 18:15  16 US US-TN  RKW KRKW 271715Z AUTO 23011G23KT 200V270 10SM BKN045 BKN050 16/06 A2967 RMK A01=  ## [A] Rockwood, Rockwood Municipal Airport
187542 2022-11-27 18:15   9 US US-WA  --- KRLD 271715Z AUTO 30005KT 10SM SCT060 BKN065 09/04 A2991 RMK AO2 T00930036=  ## [A] Richland, Richland Airport
187569 2022-11-27 17:53   7 US US-NY  RME KRME 271653Z 00000KT 10SM BKN110 07/M02 A2965 RMK AO2 SLP044 T00671017=  ## [A] Rome, Griffiss International Airport
187571 2022-11-27 17:53  16 US US-GA  RMG KRMG 271653Z AUTO 23014G22KT 10SM BKN039 16/08 A2979 RMK AO2 PK WND 27030/1618 SLP082 T01610083=  ## [A] Rome, Richard B Russell Airport
187578 2022-11-27 18:15  11 US US-VA  --- KRMN 271715Z AUTO 00000KT 3SM -RA OVC004 11/09 A2969 RMK AO2 P0002 T01050094=  ## [A] Stafford, Stafford Regional Airport
187589 2022-11-27 18:15   4 US US-MI  --- KRMY 271715Z AUTO 01005KT 2 1/2SM RA SCT012 OVC022 04/03 A2937 RMK AO2 T00400027 P0004=  ## [A] Marshall, Brooks Field
187593 2022-11-27 18:15  13 US US-TN  RNC KRNC 271715Z AUTO 22016G22KT 10SM BKN032 OVC038 13/05 A2972 RMK A01=  ## [A] Mc Minnville, Warren County Memorial Airport
187594 2022-11-27 17:55  19 US US-TX  RND KRND 271655Z AUTO 22005KT 10SM CLR 19/08 A2994 RMK AO2 SLP136 T01860080=  ## [A] Universal City, Randolph Air Force Base
187598 2022-11-27 18:15   2 US US-WI  --- KRNH 271715Z AUTO 33008KT 10SM CLR 02/01 A2980 RMK AO2 T00220009=  ## [A] New Richmond, New Richmond Regional Airport
187603 2022-11-27 17:53  16 US US-CA  --- KRNM 271653Z 00000KT 10SM CLR 16/01 A3009 RMK AO2 SLP188 T01560006=  ## [A] Ramona, Ramona Airport
187605 2022-11-27 17:55  -1 US US-NV  RNO KRNO 271655Z 00000KT 10SM FEW160 M01/M04 A3017 RMK AO2 SLP224 T10061044=  ## [A] Reno, Reno Tahoe International Airport
187606 2022-11-27 18:15   4 US US-MI  --- KRNP 271715Z AUTO 07008KT 1 3/4SM BR BKN006 BKN018 OVC027 04/03 A2941 RMK AO2 T00430031=  ## [A] Owosso, Owosso Community Airport
187610 2022-11-27 18:16   5 US US-WA  RNT KRNT 271716Z 14003KT 10SM FEW028 SCT110 05/03 A3002 RMK AO2 T00500028 $  ## [A] Renton, Renton Municipal Airport
187612 2022-11-27 18:15  13 US US-MS  --- KRNV 271715Z AUTO 25010KT 10SM OVC020 13/09 A2984 RMK AO2 T01310085 TSNO=  ## [A] Cleveland, Cleveland Municipal Airport
187617 2022-11-27 17:54   9 US US-VA  ROA KROA 271654Z 12005KT 2SM BR OVC004 09/08 A2967 RMK AO2 SFC VIS 3 RAB38E54 SLP047 P0000 T00940083 $  ## [A] Roanoke, Roanoke?Blacksburg Regional Airport
187619 2022-11-27 17:54   8 US US-NY  ROC KROC 271654Z 00000KT 10SM -RA OVC055 08/01 A2955 RMK AO2 SLP013 P0000 T00830006=  ## [A] Rochester, Greater Rochester International Airport
187623 2022-11-27 17:58   8 US US-AR  ROG KROG 271658Z 10SM OVC015 08/05 A2982 RMK AO2 SLP096 T00830050 $  ## [A] Rogers, Rogers Municipal Airport-Carter Field
187635 2022-11-27 18:15   4 US US-MN  --- KROS 271715Z AUTO 34004KT 10SM CLR 04/M01 A2983 RMK AO2 T00401008=  ## [A] Rush City, Rush City Regional Airport
187639 2022-11-27 17:51  11 US US-NM  ROW KROW 271651Z 00000KT 10SM CLR 11/M01 A3004 RMK AO2 SLP152 T01111011=  ## [A] Roswell, Roswell International Air Center Airport
187640 2022-11-27 18:15  -5 US US-MN  ROX KROX 271715Z AUTO 00000KT 10SM CLR M05/M06 A2985 RMK AO2=  ## [A] Roseau, Roseau Municipal Rudy Billberg Field
187646 2022-11-27 18:15   1 US US-WI  RIE KRPD 271715Z AUTO 36009G15KT 10SM OVC011 01/00 A2979 RMK AO2 T00100000=  ## [A] Rice Lake, hln
187650 2022-11-27 18:15  12 US US-TX  --- KRPH 271715Z AUTO 30007KT 10SM CLR 12/07 A2996 RMK AO2 T01210073 $  ## [A] Graham, Graham Municipal Airport
187652 2022-11-27 18:15   6 US US-IL  --- KRPJ 271715Z AUTO 34012G18KT 10SM BKN050 OVC110 06/01 A2956 RMK AO2 T00630010 TSNO=  ## [A] Rochelle, Rochelle Municipal Airport - Koritz Field
187666 2022-11-27 18:03   4 US US-MT  RPX KRPX 271703Z AUTO 10SM 04/M07 A2961 RMK Roundup =  ## [A] Roundup, Roundup Airport
187670 2022-11-27 18:15   8 US US-MI  WBR KRQB 271715Z AUTO 04005KT 10SM OVC100 08/01 A2945 RMK AO2 T00760006=  ## [A] Big Rapids, Roben Hood Airport
187673 2022-11-27 17:53   4 US US-AZ  --- KRQE 271653Z AUTO 00000KT 10SM CLR 04/M07 A3013 RMK AO2 SLP167 T00391072=  ## [A] Window Rock, Window Rock Airport
187683 2022-11-27 18:15   6 US US-OK  RQO KRQO 271715Z AUTO 33018KT 10SM SCT020 06/01 A2998 RMK AO2 T00620012=  ## [A] El Reno, El Reno Regional Airport
187706 2022-11-27 18:15   4 US US-WI  RRL KRRL 271715Z AUTO 02011G19KT 10SM CLR 04/M03 A2967 RMK AO2 T00351034 TSNO=  ## [A] Merrill, Merrill Municipal Airport
187714 2022-11-27 18:15  -2 US US-MN  RRT KRRT 271715Z AUTO 00000KT 10SM M02/M04 A2985 RMK AO2=  ## [A] Warroad, Warroad International Memorial Airport
187732 2022-11-27 17:53   6 US US-KS  RSL KRSL 271653Z AUTO 35017G24KT 10SM CLR 06/M03 A2997 RMK AO2 PK WND 35027/1620 SLP157 T00611033=  ## [A] Russell, Russell Municipal Airport
187734 2022-11-27 18:15  15 US US-LA  RSN KRSN 271715Z AUTO VRB05KT 10SM CLR 15/08 A2988 RMK AO2 T01530075 $  ## [A] Ruston, Ruston Regional Airport
187736 2022-11-27 18:13   8               KRSP 271713Z AUTO 17015G28KT 2SM -RA BR OVC002 08/07 A2961 RMK AO2 PK WND 18028/1706 VIS 3/4V5 P0002 T00780072 $  ## [A]
187740 2022-11-27 17:54   2 US US-MN  RST KRST 271654Z 34012KT 10SM CLR 02/M02 A2977 RMK AO2 SLP093 T00171022 $  ## [A] Rochester, Rochester International Airport
187742 2022-11-27 18:15  11 US US-IL  --- KRSV 271715Z AUTO 23019G26KT 7SM OVC013 11/09 A2943 RMK AO2 T01050091=  ## [A] Robinson, Robinson Municipal Airport
187743 2022-11-27 17:53  28 US US-FL  RSW KRSW 271653Z 23015KT 10SM BKN021 28/23 A3003 RMK AO2 SLP166 T02830228=  ## [A] Fort Myers, Southwest Florida International Airport
187760 2022-11-27 17:53   0 US US-NM  RTN KRTN 271653Z AUTO 00000KT 3SM -SN BR FEW005 OVC039 00/M02 A3000 RMK AO2 SLP146 P0001 T00001017 $  ## [A] Raton, Raton Municipal-Crews Field
187765 2022-11-27 18:15   0               KRTS 271715Z AUTO 12004KT 10SM CLR M00/M04 A3016 RMK AO2=  ## [A]
187777 2022-11-27 18:14  12 US US-AR  --- KRUE 271714Z AUTO 28011G16KT 10SM BKN024 OVC030 12/07 A2980 RMK AO2 T01170067=  ## [A] Russellville, Russellville Regional Airport
187779 2022-11-27 18:15  -3 US US-ND  --- KRUG 271715Z AUTO 18010KT 10SM CLR M03/M04 A2975 RMK AO2=  ## [A] Rugby, Rugby Municipal Airport
187789 2022-11-27 18:15  14 US US-NC  SRW KRUQ 271715Z AUTO 27003KT 10SM BKN002 OVC008 14/13 A2968 RMK AO2 T01350132=  ## [A] Salisbury, Mid-Carolina Regional Airport
187792 2022-11-27 17:56   9 US US-VT  RUT KRUT 271656Z AUTO 15003KT 10SM CLR 09/M03 A2970 RMK AO2 SLP056 T00941028 $  ## [A] Rutland, Rutland - Southern Vermont Regional Airport
187804 2022-11-27 18:15   2               KRVF 271715Z AUTO 19014G19KT 10SM OVC060 02/M06 A2981 RMK AO2=  ## [A]
187808 2022-11-27 18:15  24 US US-GA  --- KRVJ 271715Z AUTO 24018G32KT 10SM BKN019 BKN028 OVC033 24/20 A2984 RMK AO2 T02370204=  ## [A] Reidsville, Swinton Smith Field at Reidsville Municipal Airport
187810 2022-11-27 18:15   5 US US-PA  RED KRVL 271715Z AUTO 00000KT 9SM OVC015 05/04 A2961 RMK AO2=  ## [A] Reedsville, Mifflin County Airport
187817 2022-11-27 17:53   9 US US-OK  RVS KRVS 271653Z VRB04KT 10SM OVC019 09/04 A2989 RMK AO2 SLP127 T00940039=  ## [A] Tulsa, Richard Lloyd Jones Jr Airport
187830 2022-11-27 17:53   1 US US-MN  RWF KRWF 271653Z AUTO 34006KT 10SM SCT010 01/M02 A2988 RMK AO2 SLP129 T00111022=  ## [A] Redwood Falls, Redwood Falls Municipal Airport
187833 2022-11-27 17:53  20 US US-NC  RWI KRWI 271653Z AUTO 17008KT 10SM OVC017 20/17 A2973 RMK AO2 SLP068 T02000172 $  ## [A] Rocky Mount, Rocky Mount Wilson Regional Airport
187836 2022-11-27 17:53  -4 US US-WY  RWL KRWL 271653Z AUTO 25026G41KT 10SM -SN CLR M04/M08 A2992 RMK AO2 PK WND 26041/1653 SNB51 SLP155 P0000 T10391083=  ## [A] Rawlins, Rawlins Municipal Airport/Harvey Field
187846 2022-11-27 18:15  17 US US-TX  --- KRWV 271715Z AUTO 35005KT 10SM CLR 17/07 A2996 RMK AO2 T01750068=  ## [A] Caldwell, Caldwell Municipal Airport
187855 2022-11-27 17:53  -1 US US-ID  RXE KRXE 271653Z AUTO 22008KT 10SM OVC030 M01/M06 A3000 RMK AO2 SLP185 T10111056 TSNO =  ## [A] Rexburg, Rexburg Madison County Airport
187889 2022-11-27 17:55   1 US US-MN  --- KRYM 271655Z AUTO 35005KT 10SM CLR 01/M04 A2984 RMK AO2 SLP121 T00081039=  ## [A] Camp Ripley, Ray S Miller Army Air Field
187890 2022-11-27 18:15  13 US US-AZ  --- KRYN 271715Z AUTO 11003KT 10SM CLR 13/M10 A3013 RMK AO2=  ## [A] Tucson, Ryan Field
187898 2022-11-27 18:15   3 US US-WI  --- KRYV 271715Z AUTO 36009G16KT 10SM -RA OVC013 03/01 A2958 RMK AO2 T00300010=  ## [A] Watertown, Watertown Municipal Airport
187899 2022-11-27 18:15  17 US US-TX  --- KRYW 271715Z AUTO 30004KT 10SM CLR 17/05 A2996 RMK AO2 T01660045=  ## [A] Lago Vista, Lago Vista Tx Rusty Allen Airport
187901 2022-11-27 17:50  17 US US-GA  --- KRYY 271650Z 25019G28KT 10SM SCT040 17/08 A2981 RMK AO2 PK WND 25029/1614 SLP088 T01720078 $  ## [A] Atlanta, Cobb County-Mc Collum Field
187914 2022-11-27 18:15   5 US US-IN  RNZ KRZL 271715Z AUTO 36011G18KT 7SM -RA OVC009 05/04 A2939 RMK AO2 P0001=  ## [A] Rensselaer, Jasper County Airport
187916 2022-11-27 18:15   2 US US-WI  --- KRZN 271715Z AUTO 36005KT 10SM CLR 02/M03 A2981 RMK AO2 T00231027=  ## [A] Siren, Burnett County Airport
187920 2022-11-20 12:50  -3 US US-TN  --- KRZR 201150Z AUTO 02006KT 10SM CLR M03/M07 A3038 RMK A01=  ## [A] Cleveland, Cleveland Regional Jetport
187922 2022-11-27 18:15  14 US US-OH  --- KRZT 271715Z AUTO 22025G39KT 10SM SCT075 BKN090 14/08 A2944 RMK AO2 PWINO P0003=  ## [A] Chillicothe, Ross County Airport
187929 2022-11-27 18:15  -2 US US-WY  SAA KSAA 271715Z AUTO 26012G18KT 10SM CLR M02/M07 A2998 RMK AO2=  ## [A] Saratoga, Shively Field
187931 2022-11-27 17:53   8 US US-CA  SAC KSAC 271653Z 00000KT 10SM CLR 08/03 A3016 RMK AO2 SLP212 T00780028 $  ## [A] Sacramento, Sacramento Executive Airport
187932 2022-11-27 17:51   8 US US-AZ  SAD KSAD 271651Z AUTO 17003KT 10SM CLR 08/M11 A3014 RMK AO2 SLP190 T00781111 $  ## [A] Safford, Safford Regional Airport
187934 2022-11-27 17:53   6 US US-NM  SAF KSAF 271653Z AUTO 25016G22KT 10SM CLR 06/M07 A3001 RMK AO2 SLP143 T00611067=  ## [A] Santa Fe, Santa Fe Municipal Airport
187942 2022-11-27 17:51  14 US US-CA  SAN KSAN 271651Z VRB03KT 10SM FEW250 14/04 A3011 RMK AO2 SLP194 T01390044=  ## [A] San Diego, San Diego International Airport
187946 2022-11-27 18:15   8 US US-IL  SAR KSAR 271715Z AUTO 27008G16KT 5SM BR OVC008 08/08 A2959 RMK AO2 T00810078=  ## [A] Sparta, Sparta Community Hunter Field
187948 2022-11-27 17:51  18 US US-TX  SAT KSAT 271651Z 20004KT 10SM CLR 18/09 A2997 RMK AO2 SLP136 T01830089=  ## [A] San Antonio, San Antonio International Airport
187950 2022-11-27 17:53  24 US US-GA  SAV KSAV 271653Z 20012KT 10SM SCT010 BKN015 OVC023 24/20 A2983 RMK AO2 SLP101 T02390200=  ## [A] Savannah, Savannah Hilton Head International Airport
187951 2022-11-27 17:47   2 US US-MI  MQT KSAW 271647Z 01018KT 10SM SCT019 BKN026 02/M01 A2965=  ## [A] Marquette, Sawyer International Airport
187954 2022-11-27 18:15   0 US US-MN  --- KSAZ 271715Z 00000KT 10SM 00/M03 A2985 RMK AO2=  ## [A] Staples, Staples Municipal Airport
187955 2022-11-27 17:53  14 US US-CA  SBA KSBA 271653Z 00000KT 10SM CLR 14/07 A3010 RMK AO2 SLP192 T01440072 $  ## [A] Santa Barbara, Santa Barbara Municipal Airport
187958 2022-11-27 17:52  14 US US-CA  SBD KSBD 271652Z 06003KT 10SM CLR 14/M03 A3010=  ## [A] San Bernardino, San Bernardino International Airport
187967 2022-11-27 17:53   5 US US-WI  SBM KSBM 271653Z AUTO 36014G21KT 9SM -RA OVC015 05/02 A2956 RMK AO2 PK WND 36028/1628 RAB41 SLP015 P0000 T00500022=  ## [A] Sheboygan, Sheboygan County Memorial Airport
187968 2022-11-27 18:19   4 US US-IN  SBN KSBN 271719Z 02013KT 2SM RA BR FEW012 BKN019 OVC029 04/03 A2939 RMK AO2 P0002 T00440028=  ## [A] South Bend, South Bend Regional Airport
187969 2022-11-27 18:15  25 US US-GA  --- KSBO 271715Z AUTO 25009G27KT 10SM SCT021 SCT029 SCT042 25/14 A2982 RMK AO2=  ## [A] Swainsboro, Emanuel County Airport
187970 2022-11-27 17:56  11 US US-CA  SBP KSBP 271656Z 11003KT 10SM CLR 11/02 A3010 RMK AO2 SLP193 T01060022=  ## [A] San Luis Obispo, San Luis County Regional Airport
187973 2022-11-27 18:15  -3 US US-CO  SBS KSBS 271715Z AUTO 20007KT 4SM OVC019 M03/M04 A3004 RMK AO1 T10271043=  ## [A] Steamboat Springs, Steamboat Springs Bob Adams Field
187979 2022-11-27 17:54  12 US US-MD  SBY KSBY 271654Z 15004KT 10SM -RA FEW032 SCT075 OVC110 12/09 A2977 RMK AO2 RAB08 SLP083 P0003 T01170094=  ## [A] Salisbury, Salisbury Ocean City Wicomico Regional Airport
187984 2022-11-27 18:15  17 US US-AL  --- KSCD 271715Z AUTO 27014G20KT 10SM BKN039 BKN070 OVC110 17/09 A2988 RMK AO2 T01710085=  ## [A] Sylacauga, Merkel Field Sylacauga Municipal Airport
187986 2021-09-30 20:50  27               KSCF 301850Z AUTO 11010KT 10SM 27/24 A3000 RMK A01=  ## [A]
187988 2022-11-27 17:57   7 US US-NY  SCH KSCH 271657Z 05003KT 15SM BKN110 07/M01 A2970=  ## [A] Schenectady, Schenectady County Airport
187991 2022-11-27 17:55   8 US US-CA  SCK KSCK 271655Z 13004KT 7SM CLR 08/03 A3015 RMK AO2 SLP208 T00830028=  ## [A] Stockton, Stockton Metropolitan Airport
187998 2022-11-27 18:15  20               KSCR 271715Z AUTO 21019G26KT 10SM -RA OVC013 20/20 A2967 RMK AO2 P0001 T02010201=  ## [A]
188004 2022-11-27 18:15  16 US US-TN  --- KSCX 271715Z AUTO 22017G33KT 10SM BKN048 BKN060 16/04 A2965 RMK A01=  ## [A] Oneida, Scott Municipal Airport
188007 2022-11-27 18:15   5 US US-IA  --- KSDA 271715Z AUTO 34013KT 10SM CLR 05/M01 A2985 RMK AO2=  ## [A] Shenandoah, Shenandoah Municipal Airport
188008 2022-11-27 17:53  11               KSDB 271653Z AUTO 05007KT 10SM CLR 11/M06 A3018 RMK AO2 SLP195 T01061061 =  ## [A]
188009 2022-11-27 18:15   8 US US-NY  --- KSDC 271715Z AUTO 17003KT 10SM -DZ BKN060 OVC075 08/M01 A2957 RMK AO2=  ## [A] Williamson/Sodus, Williamson Sodus Airport
188012 2022-11-27 17:56  13 US US-KY  SDF KSDF 271656Z 23022G31KT 10SM BKN030 BKN036 OVC049 13/07 A2953 RMK AO2 PK WND 26033/1613 RAB41E56 SLP000 P0000 T01280072=  ## [A] Louisville, Louisville International Standiford Field
188015 2019-11-16 19:00  15               KSDI 161800Z 06004KT 5000BR SCT030 BKN100 15/11 Q1018=  ## [A]
188018 2022-11-27 17:53  12 US US-AZ  SCF KSDL 271653Z 00000KT 10SM CLR 12/M04 A3014 RMK AO2 SLP197 T01171039=  ## [A] Scottsdale, Scottsdale Airport
188019 2022-11-27 17:53  16 US US-CA  SDM KSDM 271653Z 00000KT 10SM CLR 16/M01 A3009 RMK AO2 SLP186 T01561006 $  ## [A] San Diego, Brown Field Municipal Airport
188031 2022-11-27 17:56  -1 US US-MT  SDY KSDY 271656Z AUTO 20015KT 10SM FEW090 M01/M02 A2965 RMK AO2 SLP070 T10061017 FZRANO=  ## [A] Sidney, Sidney - Richland Regional Airport
188033 2022-11-27 17:53   4 US US-WA  SEA KSEA 271653Z 13009KT 10SM FEW023 BKN030 BKN055 04/02 A3000 RMK AO2 RAE12 SLP166 P0000 T00440017 $  ## [A] Seattle, Seattle Tacoma International Airport
188037 2022-11-27 17:47   9 US US-CA  SEE KSEE 271647Z 00000KT 10SM SKC 09/02 A3010=  ## [A] San Diego/El Cajon, Gillespie Field
188038 2022-11-27 18:15 XXX US US-FL  SEF KSEF 271715Z AUTO 25009KT 10SM SCT027 SCT033 BKN040 A3002 RMK AO2=  ## [A] Sebring, Sebring Regional Airport
188039 2022-11-27 17:53   6 US US-PA  SEG KSEG 271653Z AUTO 00000KT 5SM -RA BR BKN024 BKN033 OVC049 06/04 A2967 RMK AO2 PRESFR SLP051 P0005 T00560044=  ## [A] Selinsgrove, Penn Valley Airport
188045 2022-11-27 18:15  18 US US-AL  SEM KSEM 271715Z AUTO 23011G18KT 10SM CLR 18/07 A2990 RMK AO2=  ## [A] Selma, Craig Field
188048 2022-11-27 18:15  14 US US-TX  SEP KSEP 271715Z AUTO 01005KT 10SM CLR 14/05 A2997 RMK AO2 T01410054=  ## [A] Stephenville, Stephenville Clark Regional Airport
188049 2022-11-27 17:55  18 US US-TX  --- KSEQ 271655Z AUTO 00000KT 10SM CLR 18/09 A2994 RMK AO2 SLP139 T01800088 $  ## [A] Seguin, Randolph Air Force Base Auxiliary Airport
188052 2022-11-27 18:16   8 US US-MO  --- KSET 271716Z AUTO 32012G21KT 10SM BKN015 BKN019 OVC036 08/06 A2961 RMK AO2 T00780056=  ## [A] St Charles, St Charles County Smartt Airport
188058 2022-11-27 18:15   7 US US-AZ  SDX KSEZ 271715Z AUTO 17004KT 10SM 07/M06 A3016 RMK AO2=  ## [A] Sedona, Sedona Airport
188060 2022-11-27 17:53  28 US US-FL  SFB KSFB 271653Z 22012KT 10SM FEW027 FEW038 28/21 A2998 RMK AO2 SLP150 T02780211=  ## [A] Orlando, Orlando Sanford International Airport
188064 2022-11-27 17:53   4 US US-WA  SFF KSFF 271653Z 24016G29KT 10SM BKN019 BKN045 04/00 A2973 RMK AO2 PK WND 23028/1611 SLP078 T00440000=  ## [A] Spokane, Felts Field
188071 2022-11-27 17:56  14 US US-ME  SFM KSFM 271656Z AUTO 24006KT 10SM CLR 14/M05 A2971 RMK AO2 SLP062 T01441050=  ## [A] Sanford, Sanford Seacoast Regional Airport
188073 2022-11-27 17:56  11 US US-CA  SFO KSFO 271656Z 00000KT 10SM BKN200 11/07 A3014 RMK AO2 SLP206 T01060072  ## [A] San Francisco, San Francisco International Airport
188075 2022-11-27 18:15  17 US US-VA  --- KSFQ 271715Z AUTO 16010G17KT 10SM -RA SCT009 SCT012 OVC050 17/16 A2975 RMK AO2 T01650160=  ## [A] Suffolk, Suffolk Executive Airport
188083 2022-11-22 07:48  -5 US US-IL  --- KSFY 220648Z AUTO 00000KT 10SM CLR M05/M07 A3026 RMK AO2=  ## [A] Savanna, Tri Township Airport
188084 2022-11-27 17:56  10 US US-RI  SFZ KSFZ 271656Z AUTO VRB03KT 10SM CLR 10/M03 A2975 RMK AO2 PRESFR SLP074 T01001033=  ## [A] Pawtucket, North Central State Airport
188090 2022-11-27 17:52   8 US US-MO  SGF KSGF 271652Z 30011KT 10SM BKN016 OVC022 08/04 A2975 RMK AO2 SLP076 T00780044=  ## [A] Springfield, Springfield Branson National Airport
188092 2022-11-27 17:56  13 US US-OH  SGH KSGH 271656Z AUTO 24019G25KT 10SM BKN020 BKN028 BKN060 13/11 A2939 RMK AO2 RAE1559 SLP954 P0001 T01330111=  ## [A] Springfield, Springfield-Beckley Municipal Airport
188094 2022-11-27 17:56  27 US US-FL  UST KSGJ 271656Z 21012G20KT 10SM SCT015 BKN025 BKN050 27/24 A2993 RMK AO2 SLP135 T02670244=  ## [A] St Augustine, Northeast Florida Regional Airport
188102 2022-11-27 17:53  20 US US-TX  SGR KSGR 271653Z 26008KT 10SM CLR 20/12 A2995 RMK AO2 SLP142 T02000122=  ## [A] Houston, Sugar Land Regional Airport
188103 2022-11-27 18:15   3 US US-MN  --- KSGS 271715Z AUTO 36007KT 10SM CLR 03/M02 A2981 RMK AO2 T00301021=  ## [A] South St Paul, South St Paul Municipal Richard E Fleming field
188104 2022-11-27 17:56  12 US US-AR  SGT KSGT 271656Z AUTO 24012KT 10SM OVC020 12/08 A2980 RMK AO2 SLP089 T01170083=  ## [A] Stuttgart, Stuttgart Municipal Airport / Carl Humphrey Field
188105 2022-11-27 17:56   5 US US-UT  SGU KSGU 271656Z AUTO 00000KT 10SM CLR 05/M04 A3020 RMK AO2 SLP232 T00501044=  ## [A] St George, St George Municipal Airport
188114 2022-11-27 18:15  11 US US-VA  SHD KSHD 271715Z AUTO 16003KT 10SM OVC013 11/10 A2963 RMK AO2 T01070097=  ## [A] Staunton/Waynesboro/Harrisonburg, Shenandoah Valley Regional Airport
188122 2022-11-27 18:15   2 US US-IA  --- KSHL 271715Z AUTO 33012KT 10SM CLR 02/M02 A2985 RMK AO2=  ## [A] Sheldon, Sheldon Regional Airport
188124 2022-11-27 17:53   3 US US-WA  SHN KSHN 271653Z AUTO 25009KT 10SM CLR 03/01 A3000 RMK AO2 SLP163 T00330011=  ## [A] Shelton, Sanderson Field
188126 2021-08-18 15:00  22               KSHP 181300Z 12007KT 4SM MRA BR SCT037 BKN055 OVC080 22/22 A2996 RMK TWR VIS 1 1/2SM=  ## [A]
188128 2022-11-27 17:53  -4 US US-WY  SHR KSHR 271653Z AUTO 33004KT 10SM BKN110 M04/M07 A2971 RMK AO2 SLP100 T10441067=  ## [A] Sheridan, Sheridan County Airport
188132 2022-11-27 17:56  16 US US-LA  SHV KSHV 271656Z 27010KT 10SM FEW025 16/08 A2989 RMK SLPNO=  ## [A] Shreveport, Shreveport Regional Airport
188142 2022-11-27 18:15   8 US US-NC  --- KSIF 271715Z AUTO 00000KT 3SM BR OVC004 08/08 A2967 RMK AO2 T00810081=  ## [A] Reidsville, Rockingham County NC Shiloh Airport
188147 2022-11-27 18:15  12 US US-MO  SIK KSIK 271715Z AUTO 22017G22KT 10SM OVC018 12/10 A2962 RMK AO2=  ## [A] Sikeston, Sikeston Memorial Municipal Airport
188161 2022-11-27 17:53  -1 US US-CA  --- KSIY 271653Z AUTO 00000KT 10SM CLR M01/M04 A3021 RMK AO2 SLP258 T10111039=  ## [A] Montague, Siskiyou County Airport
188165 2022-11-27 17:53   9 US US-CA  SJC KSJC 271653Z 00000KT 10SM FEW009 SCT100 BKN200 09/02 A3015 RMK AO2 SLP209 HZ FEW009 T00940022=  ## [A] San Jose, Norman Y. Mineta San Jose International Airport
188176 2022-06-10 21:54  34 US US-AZ  SJN KSJN 101954Z AUTO 31006KT 10SM CLR 34/M03 A3015 RMK AO2 SLP093 T03441033=  ## [A] St Johns, St Johns Industrial Air Park
188181 2022-11-27 18:15  20               KSJS 271715Z AUTO 25023G33KT 10SM SCT050 BKN075 BKN090 20/09 A2950 RMK AO2 T02010091=  ## [A]
188182 2022-11-27 17:51  13 US US-TX  SJT KSJT 271651Z 06004KT 10SM CLR 13/02 A2997 RMK AO2 SLP149 T01280017=  ## [A] San Angelo, San Angelo Regional Mathis Field
188186 2022-11-27 18:15   5 US US-MI  --- KSJX 271715Z AUTO 01009G15KT 350V060 10SM OVC019 05/01 A2958 RMK AO2 T00510013=  ## [A] Beaver Island, Beaver Island Airport
188189 2022-11-27 16:55   1 US US-WA  SKA KSKA 271555Z 23025G32KT 10SM FEW011 SCT041 SCT080 01/M01 A2968 RMK AO2A PK WND 22035/00 SLP333 T00141015 $  ## [A] Spokane, Fairchild Air Force Base
188194 2022-11-27 17:55  18 US US-TX  SKF KSKF 271655Z AUTO 26007KT 10SM CLR 18/18 A2995 RMK AO2 SLP140 T01750175 $  ## [A] San Antonio, Lackland Air Force Base
188212 2022-11-27 17:56   0 US US-NM  TSM KSKX 271656Z AUTO 09004KT 10SM SCT034 OVC044 00/M03 A3004 RMK AO2 UPB22E31SNE22 SLP182 P0000 T00001028 FZRANO=  ## [A] Taos, Taos Regional Airport
188216 2022-11-25 11:35  -5 US US-IA  SLB KSLB 251035Z AUTO 27010KT 8SM CLR M05/M05 A3029 RMK AO2=  ## [A] Storm Lake, Storm Lake Municipal Airport
188217 2022-11-27 17:54   2 US US-UT  SLC KSLC 271654Z 18007KT 10SM FEW040 BKN110 BKN220 02/M01 A3015 RMK AO2 SLP207 T00221011=  ## [A] Salt Lake City, Salt Lake City International Airport
188219 2022-11-27 17:56   7 US US-OR  SLE KSLE 271656Z 20013KT 2 1/2SM -RA BR FEW005 BKN012 OVC035 07/05 A3011 RMK AO2 SLP198 P0003 T00670050=  ## [A] Salem, Salem Municipal Airport/McNary Field
188221 2022-11-27 17:56   8 US US-AR  SLG KSLG 271656Z AUTO 30011KT 10SM OVC016 08/06 A2984 RMK AO2 SLP103 T00780056=  ## [A] Siloam Springs, Smith Field
188222 2022-11-27 18:15   4 US US-MI  --- KSLH 271715Z AUTO 03007KT 10SM OVC012 04/02 A2955 RMK AO2=  ## [A] Cheboygan, Cheboygan County Airport
188223 2022-11-27 17:55  13 US US-CA  --- KSLI 271655Z 00000KT 10SM FEW250 13/06 A3006 RMK AO2A SLP182 T01300059=  ## [A] Los Alamitos, Los Alamitos Army Air Field
188225 2022-11-27 17:51   7 US US-NY  SLK KSLK 271651Z AUTO 20009KT 10SM CLR 07/M03 A2962 RMK AO2 SLP038 T00721033=  ## [A] Saranac Lake, Adirondack Regional Airport
188228 2022-11-27 17:53   4 US US-KS  SLN KSLN 271653Z 34015G20KT 10SM SCT120 04/M01 A2995 RMK AO2 SLP148 T00391011=  ## [A] Salina, Salina Municipal Airport
188229 2022-10-29 16:50  12 US US-IL  SLO KSLO 291450Z AUTO 00000KT 10SM CLR 12/07 A3031 RMK AO2 T01230068=  ## [A] Salem, Salem Leckrone Airport
188232 2022-11-27 18:15  13 US US-TX  SLR KSLR 271715Z AUTO 32006KT 10SM CLR 13/08 A2994 RMK AO2 T01340077=  ## [A] Sulphur Springs, Sulphur Springs Municipal Airport
188244 2022-11-27 18:15   7 US US-IN  SMD KSMD 271715Z AUTO 06005KT 4SM BR CLR 07/07 A2932 RMK A01=  ## [A] Fort Wayne, Smith Field
188245 2022-11-27 18:15  16 US US-KY  SME KSME 271715Z AUTO 22016G25KT 10SM BKN047 BKN055 16/08 A2959 RMK AO2=  ## [A] Somerset, Lake Cumberland Regional Airport
188246 2022-11-27 17:53   8 US US-CA  SMF KSMF 271653Z 00000KT 8SM FEW250 08/03 A3016 RMK AO2 SLP208 T00830033 $  ## [A] Sacramento, Sacramento International Airport
188254 2022-11-27 17:56  -6 US US-ID  SMN KSMN 271656Z AUTO 00000KT 10SM OVC065 M06/M09 A2993 RMK AO2 SLP835 T10611089 FZRANO=  ## [A] Salmon, Lemhi County Airport
188255 2022-11-27 17:51  15 US US-CA  SMO KSMO 271651Z 00000KT 10SM CLR 15/06 A3009 RMK AO2 SLP188 T01500061=  ## [A] Santa Monica, Santa Monica Municipal Airport
188256 2022-11-27 18:10  -4               KSMP 271710Z AUTO VRB06KT 1/4SM -SN FZFG BKN005 BKN010 OVC021 M04/M05 A2985 RMK AO2 P0000 T10391050=  ## [A]
188257 2022-11-27 18:00   8 US US-NJ  --- KSMQ 271700Z AUTO 00000KT 6SM -RA BKN027 BKN050 OVC110 08/04 A2974 RMK AO2 P0000 T00780039=  ## [A] Somerville, Somerset Airport
188259 2022-11-27 18:15  22 US US-SC  SUM KSMS 271715Z AUTO 20014KT 170V230 10SM BKN015 OVC022 22/22 A2975 RMK AO2=  ## [A] Sumter, Sumter Airport
188264 2022-11-27 17:51  11 US US-CA  SMX KSMX 271651Z 00000KT 10SM CLR 11/04 A3011 RMK AO2 SLP199 T01110044 $  ## [A] Santa Maria, Santa Maria Pub/Capt G Allan Hancock Field
188267 2022-11-27 17:53  16 US US-CA  SNA KSNA 271653Z VRB03KT 10SM FEW250 16/07 A3009 RMK AO2 SLP189 T01560072=  ## [A] Santa Ana, John Wayne Airport-Orange County Airport
188269 2022-11-27 18:15  11 US US-CT  --- KSNC 271715Z AUTO 19010G15KT 10SM CLR 11/06 A2976 RMK AO2=  ## [A] Chester, Chester Airport
188274 2022-11-27 17:10  11 US US-TN  --- KSNH 271610Z AUTO 23010G16KT 10SM OVC022 11/07 A2975 RMK A01=  ## [A] Savannah, Savannah Hardin County Airport
188277 2022-11-27 18:15  10 US US-TX  SNK KSNK 271715Z AUTO 04007KT 10SM CLR 10/04 A3001 RMK AO2 T00960044=  ## [A] Snyder, Winston Field
188278 2022-11-27 18:15   8 US US-OK  SNL KSNL 271715Z AUTO 33013KT 10SM OVC021 08/02 A2993 RMK AO2 T00840020=  ## [A] Shawnee, Shawnee Regional Airport
188285 2022-11-27 17:53   8 US US-CA  SNS KSNS 271653Z 13006KT 10SM CLR 08/02 A3014 RMK AO2 SLP216 T00780022=  ## [A] Salinas, Salinas Municipal Airport
188286 2022-11-27 17:51  -7               KSNT 271651Z AUTO 06005KT M07/M11 A2994 RMK AO1 SLP166 T10721106=  ## [A]
188291 2022-11-27 17:53   3 US US-NE  SNY KSNY 271653Z AUTO 24012KT 10SM CLR 03/M01 A2991 RMK AO2 SLP138 T00331006=  ## [A] Sidney, Sidney Municipal-Lloyd W Carr Field
188293 2022-11-27 18:15  18 US US-TX  --- KSOA 271715Z AUTO 25011KT 230V310 10SM CLR 18/M02 A3002 RMK AO2=  ## [A] Sonora, Sonora Municipal Airport
188308 2022-11-27 17:56  21 US US-NC  SOP KSOP 271656Z AUTO 20014G19KT 9SM -RA OVC010 21/20 A2971 RMK AO2 PK WND 20027/1618 CIG 007V014 SLP064 P0001 T02060200 TSNO=  ## [A] Pinehurst/Southern Pines, Moore County Airport
188315 2022-11-27 18:15   5 US US-AZ  SOW KSOW 271715Z AUTO 35007KT 10SM CLR 05/M07 A3018 RMK AO2=  ## [A] Show Low, Show Low Regional Airport
188319 2022-11-27 18:15  17 US US-SC  SPA KSPA 271715Z AUTO 23005KT 10SM SCT008 17/13 A2969 RMK AO2=  ## [A] Spartanburg, Spartanburg Downtown Memorial Airport
188320 2022-11-27 17:53   7 US US-OR  --- KSPB 271653Z AUTO 00000KT 4SM -RA BR FEW017 BKN034 OVC042 07/05 A3010 RMK AO2 RAE17B39 SLP193 P0000 T00670050=  ## [A] Scappoose, Scappoose Industrial Airpark
188322 2022-11-27 17:56   1               KSPD 271656Z AUTO 34007KT 01/M01 A3001 RMK AO1 SLP162 P0001 T00061011=  ## [A]
188324 2022-11-27 18:15   2 US US-SD  SPF KSPF 271715Z AUTO 12004KT 10SM 02/M02 A2973 RMK AO2=  ## [A] Spearfish, Black Hills Airport-Clyde Ice Field
188325 2022-11-27 18:18  26 US US-FL  SPG KSPG 271718Z 21015G22KT 10SM BKN012 BKN047 26/24 A2998 RMK AO2 T02610239=  ## [A] St Petersburg, Albert Whitted Airport
188327 2022-11-27 18:06   7 US US-IL  SPI KSPI 271706Z 32011G20KT 6SM -RA BR SCT010 BKN032 OVC038 07/06 A2955 RMK AO2 P0000 T00670056=  ## [A] Springfield, Abraham Lincoln Capital Airport
188329 2022-11-16 14:10  -6               KSPK 161310Z AUTO 13009KT 10SM CLR M06/M10 A3059 RMK AO2=  ## [A]
188336 2020-02-22 15:25 XXX               KSPR 221425Z AUTO 10SM BKN024 A3043 RMK A01=  ## [A]
188337 2022-11-27 17:52  12 US US-TX  SPS KSPS 271652Z AUTO 33010KT 10SM CLR 12/05 A2996 RMK AO2 SLP142 T01170050=  ## [A] Wichita Falls, Sheppard Air Force Base-Wichita Falls Municipal Airport
188341 2022-11-27 17:53   3 US US-IA  SPW KSPW 271653Z AUTO 34013KT 10SM CLR 03/M03 A2985 RMK AO2 SLP120 T00331028=  ## [A] Spencer, Spencer Municipal Airport
188353 2022-11-27 17:56   5 US US-IL  SQI KSQI 271656Z AUTO 34011KT 10SM -RA BKN040 OVC048 05/03 A2959 RMK AO2 RAB12 SLP888 P0000 T00500033=  ## [A] Sterling/Rockfalls, Whiteside County Airport-Joseph H Bittorf Field
188356 2022-11-27 17:54   9 US US-CA  SQL KSQL 271654Z 00000KT 10SM SCT200 09/06 A3015=  ## [A] San Carlos, San Carlos Airport
188372 2022-11-27 18:15  14 US US-TN  --- KSRB 271715Z AUTO 22018G30KT 10SM SCT034 BKN042 14/06 A2970 RMK A01=  ## [A] Sparta, Upper Cumberland Regional Airport
188373 2022-11-27 17:56  12 US US-AR  --- KSRC 271656Z AUTO 26011G15KT 10SM OVC021 12/08 A2976 RMK AO2 SLP078 T01220083=  ## [A] Searcy, Searcy Municipal Airport
188375 2022-11-27 18:15  11 US US-OK  --- KSRE 271715Z AUTO VRB05G12KT 9SM FEW022 11/04 A2991 RMK AO2=  ## [A] Seminole, Seminole Municipal Airport
188387 2022-11-27 17:53  27 US US-FL  SRQ KSRQ 271653Z 20015KT 10SM CLR 27/23 A3000 RMK AO2 SLP158 T02670233=  ## [A] Sarasota/Bradenton, Sarasota Bradenton International Airport
188388 2022-11-27 18:15   7 US US-NM  RUI KSRR 271715Z AUTO 33010G22KT 10SM 07/M09 A3008 RMK AO2=  ## [A] Ruidoso, Sierra Blanca Regional Airport
188399 2022-11-27 17:55  22 US US-SC  SSC KSSC 271655Z 20016G23KT 10SM BKN014 OVC020 22/20 A2974 RMK AO2A RAE08DZB08E10 SLP071 P0000 T02160197 $  ## [A] Sumter, Shaw Air Force Base
188402 2022-11-27 17:53  17 US US-TX  SSF KSSF 271653Z 25006KT 10SM CLR 17/10 A2995 RMK AO2 SLP142 T01720100 $  ## [A] San Antonio, Stinson Municipal Airport
188405 2022-11-27 17:53 XXX US US-GA  SSI KSSI 271653Z AUTO A2989 RMK AO2 SLP124 PWINO $  ## [A] Brunswick, Malcolm McKinnon Airport
188425 2022-11-27 17:53   2 US US-MN  STC KSTC 271653Z 35008KT 10SM CLR 02/M03 A2985 RMK AO2 SLP126 T00171028=  ## [A] St Cloud, St Cloud Regional Airport
188427 2022-11-27 18:15   5 US US-WI  STE KSTE 271715Z AUTO 01008G14KT 10SM CLR 05/M04 A2966 RMK AO2 T00531044=  ## [A] Stevens Point, Stevens Point Municipal Airport
188428 2022-11-27 18:15  16 US US-MS  --- KSTF 271715Z AUTO 23008KT 10SM FEW040 FEW046 16/08 A2983 RMK AO2=  ## [A] Starkville, George M Bryan Airport
188432 2022-11-27 17:53   5 US US-MO  STJ KSTJ 271653Z 34013KT 10SM FEW021 05/00 A2984 RMK AO2 SLP107 T00500000=  ## [A] St Joseph, Rosecrans Memorial Airport
188433 2022-11-27 18:15   5 US US-CO  STK KSTK 271715Z AUTO 20011KT 10SM CLR 05/00 A2993 RMK AO2=  ## [A] Sterling, Sterling Municipal Airport
188434 2022-11-27 18:11   7 US US-MO  STL KSTL 271711Z 31010G18KT 10SM OVC011 07/05 A2961 RMK AO2 T00720050 $  ## [A] St Louis, St Louis Lambert International Airport
188438 2022-11-27 17:53   3 US US-MN  STP KSTP 271653Z 33008KT 10SM CLR 03/M02 A2983 RMK AO2 SLP105 T00331022=  ## [A] St Paul, St Paul Downtown Holman Field
188441 2022-11-27 17:53   5 US US-CA  STS KSTS 271653Z 00000KT 10SM FEW250 05/03 A3015 RMK AO2 SLP203 T00500033=  ## [A] Santa Rosa, Charles M. Schulz Sonoma County Airport
188449 2022-11-27 17:47  29 US US-FL  SUA KSUA 271647Z 24010G15KT 10SM SCT020 29/21 A3004=  ## [A] Stuart, Witham Field
188453 2022-11-27 17:56   4 US US-WI  SUE KSUE 271656Z AUTO 02016G23KT 10SM OVC016 04/01 A2960 RMK AO2 SLP029 T00440006 $  ## [A] Sturgeon Bay, Door County Cherryland Airport
188462 2022-11-27 17:55  -3 US US-ID  SUN KSUN 271655Z 00000KT 10SM OVC070 M03/M06 A3002=  ## [A] Hailey, Friedman Memorial Airport
188467 2022-11-27 17:54   7 US US-MO  SUS KSUS 271654Z 32013KT 3SM BR OVC012 07/06 A2961 RMK AO2 SLP030 T00670056 $  ## [A] St Louis, Spirit of St Louis Airport
188468 2022-11-27 18:15  22 US US-NC  --- KSUT 271715Z AUTO 18007KT 10SM BKN021 BKN029 OVC040 22/20 A2981 RMK AO2 T02160202=  ## [A] Oak Island, Brunswick County Airport
188469 2022-11-27 17:55   9 US US-CA  SUU KSUU 271655Z 00000KT 10SM CLR 09/06 A3013 RMK AO2A SLP210 T00860060 $  ## [A] Fairfield, Travis Air Force Base
188471 2022-11-27 18:15   3 US US-WI  SUW KSUW 271715Z AUTO 00000KT 10SM CLR 03/M03 A2982 RMK AO2 T00261027=  ## [A] Superior, Richard I Bong Airport
188472 2022-11-27 17:52   2 US US-IA  SUX KSUX 271652Z 33012KT 10SM CLR 02/M03 A2992 RMK AO2 SLP139 T00171033=  ## [A] Sioux City, Sioux Gateway Col. Bud Day Field
188474 2022-11-27 18:15  12 US US-AR  --- KSUZ 271715Z AUTO 28008KT 10SM BKN021 OVC028 12/09 A2980 RMK A01=  ## [A] Benton, Saline County Regional Airport
188477 2022-11-27 18:15  11 US US-NM  SVC KSVC 271715Z AUTO 29017KT 10SM CLR 11/M11 A3013 RMK AO2 T01071111=  ## [A] Silver City, Grant County Airport
188479 2022-11-27 18:15   0 US US-CA  SVE KSVE 271715Z AUTO 00000KT 3SM HZ CLR 00/M04 A3018 RMK AO2=  ## [A] Susanville, Susanville Municipal Airport
188482 2022-11-27 18:15  13 US US-NC  SVH KSVH 271715Z AUTO 22005KT 10SM OVC005 13/12 A2968 RMK AO2 T01300121=  ## [A] Statesville, Statesville Regional Airport
188488 2022-11-27 17:55  22 US US-GA  SVN KSVN 271655Z AUTO 16008KT 10SM OVC015 22/21 A2982 RMK AO2 CIG 014 RWY10 SLP101 T02160211 $  ## [A] Savannah, Hunter Army Air Field
188506 2022-11-27 17:45  10 US US-NY  SWF KSWF 271645Z VRB04KT 10SM OVC050 10/00 A2972=  ## [A] Newburgh, Stewart International Airport
188515 2022-11-27 17:53   8 US US-OK  SWO KSWO 271653Z 34011G17KT 10SM CLR 08/02 A2992 RMK AO2 SLP130 T00830022=  ## [A] Stillwater, Stillwater Regional Airport
188523 2022-11-27 18:15  11 US US-TX  SWW KSWW 271715Z AUTO 05008KT 10SM CLR 11/11 A3001 RMK AO2 T01080108=  ## [A] Sweetwater, Avenger Field
188537 2022-11-27 18:15   2 US US-IA  --- KSXK 271715Z AUTO 34013KT 10SM CLR 02/M03 A2988 RMK AO2=  ## [A] Maurice, Sioux County Regional Airport
188545 2022-11-27 17:55  18               KSXS 271655Z AUTO 29012G16KT 10SM CLR 18/08 A2993 RMK AO2 SLP135 T01820082=  ## [A]
188546 2022-11-27 18:22   1               KSXT 271722Z AUTO 00000KT 3/4SM BR FEW001 BKN021 OVC065 01/00 A3018 RMK AO2 T00060000 $ =  ## [A]
188547 2022-11-27 18:15   8               KSXU 271715Z AUTO 16004KT 10SM CLR 08/M03 A3002 RMK AO2 T00841031=  ## [A]
188558 2022-11-27 18:15   4 US US-KS  --- KSYF 271715Z AUTO 28004KT 10SM CLR 04/M03 A2998 RMK AO2 T00391031 PWINO=  ## [A] St Francis, Cheyenne County Municipal Airport
188561 2022-11-27 18:15  13 US US-TN  SYI KSYI 271715Z AUTO 22015G21KT 10SM BKN030 BKN035 13/06 A2973 RMK A01=  ## [A] Shelbyville, Bomar Field Shelbyville Municipal Airport
188565 2022-11-27 18:15  16               KSYM 271715Z AUTO 24015G28KT 210V280 10SM FEW040 SCT048 SCT055 16/05 A2953 RMK AO2=  ## [A]
188566 2022-11-27 18:15   3               KSYN 271715Z AUTO 01007KT 10SM CLR 03/M01 A2980 RMK AO2 T00331014=  ## [A]
188570 2022-11-27 17:54   7 US US-NY  SYR KSYR 271654Z 11004KT 9SM -RA SCT065 OVC100 07/01 A2962 RMK AO2 RAB36 SLP028 P0000 T00670011=  ## [A] Syracuse, Syracuse Hancock International Airport
188590 2022-11-27 18:00   6 US US-MO  SZL KSZL 271700Z AUTO 32013KT 10SM BKN015 06/03 A2971 RMK AO2 CIG 014 RWY01 SLP067 $  ## [A] Knob Noster, Whiteman Air Force Base
188598 2022-11-27 18:15   2 US US-ID  --- KSZT 271715Z AUTO 24006G15KT 7SM -SN BKN021 OVC026 02/00 A2964 RMK AO2=  ## [A] Sandpoint, Sandpoint Airport
188603 2022-11-27 18:15  10 US US-TN  --- KSZY 271715Z AUTO 22007G17KT 200V260 10SM OVC022 10/07 A2975 RMK A01=  ## [A] Selmer, Robert Sibley Airport
188608 2022-11-27 18:02   0 US US-CO  TAD KTAD 271702Z AUTO 16004KT 4SM -SN BR FEW008 OVC041 00/M02 A3000 RMK AO2 P0000 T00001017=  ## [A] Trinidad, Perry Stokes Airport
188618 2022-11-27 17:52 XXX US US-MA  --- KTAN 271652Z AUTO A2977 RMK AO2 SLPNO PWINO FZRANO TSNO $  ## [A] Taunton, Taunton Municipal King Field
188630 2022-11-27 18:15   6 US US-IL  --- KTAZ 271715Z AUTO 32012G20KT 2 1/2SM -RA OVC007 06/05 A2954 RMK AO2 T00560046=  ## [A] Taylorville, Taylorville Municipal Airport
188644 2022-11-27 18:20   8 US US-MO  TBN KTBN 271720Z AUTO 28009G16KT 10SM OVC015 08/05 A2969 RMK AO2 CIG 013 RWY33 SLP059 $  ## [A] Fort Leonard Wood, Waynesville-St. Robert Regional Forney field
188648 2022-11-27 18:15  23 US US-GA  TBR KTBR 271715Z AUTO 25011G16KT 10SM RA OVC021 23/20 A2981 RMK AO2 T02310195=  ## [A] Statesboro, Statesboro Bulloch County Airport
188654 2022-11-27 18:15  -5               KTBX 271715Z AUTO SCT001 M05/M09 A2981 RMK AO2 PWINO=  ## [A]
188659 2022-11-27 17:53   5 US US-NM  TCC KTCC 271653Z AUTO 06011KT 10SM BKN080 BKN120 05/M03 A3003 RMK AO2 SLP166 T00501033=  ## [A] Tucumcari, Tucumcari Municipal Airport
188668 2022-11-27 17:53  16 US US-AL  TCL KTCL 271653Z 24011G22KT 10SM SCT042 16/07 A2988 RMK AO2 SLP117 T01610072=  ## [A] Tuscaloosa, Tuscaloosa Regional Airport
188669 2022-11-27 17:55   5 US US-WA  TCM KTCM 271655Z AUTO 19005KT 10SM FEW060 SCT090 05/01 A3001 RMK AO2 SLP168 T00460006 $  ## [A] Tacoma, McChord Air Force Base
188675 2022-11-27 17:53  12 US US-NM  TCS KTCS 271653Z AUTO 33013G19KT 10SM CLR 12/M10 A3007 RMK AO2 SLP146 T01171100=  ## [A] Truth Or Consequences, Truth Or Consequences Municipal Airport
188681 2022-11-27 18:15  14 US US-CA  --- KTCY 271715Z AUTO 21007KT 10SM CLR 14/M01 A3015 RMK A01=  ## [A] Tracy, Tracy Municipal Airport
188688 2022-11-27 18:15  16 US US-NC  --- KTDF 271715Z AUTO 22004KT 2SM +RA OVC005 16/16 A2967 RMK AO2 P0014=  ## [A] Roxboro, Person County Airport
188700 2022-11-27 17:55  20               KTDR 271655Z AUTO 30011G19KT 10SM CLR 20/12 A2996 RMK AO2 SLP149 T02000117 $  ## [A]
188708 2022-11-27 18:09   7 US US-OH  TDZ KTDZ 271709Z AUTO 09003KT 2SM RA BR SCT004 OVC013 07/06 A2937 RMK AO2 PK WND 08026/1700 P0007 T00720061=  ## [A] Toledo, Toledo Executive Airport
188710 2022-11-27 17:51  10 US US-NJ  TEB KTEB 271651Z 20008KT 10SM OVC110 10/03 A2975 RMK AO2 SLP075 T01000028=  ## [A] Teterboro, Teterboro Airport
188731 2022-11-27 18:15   6 US US-MI  --- KTEW 271715Z AUTO 03007KT 10SM OVC024 06/03 A2940 RMK AO2 T00550026=  ## [A] Mason, Mason Jewett Field
188732 2022-11-27 18:15  -3 US US-CO  TEX KTEX 271715Z AUTO 00000KT 10SM CLR M03/M08 A3007 RMK AO2=  ## [A] Telluride, Telluride Regional Airport
188750 2022-11-27 17:35  21 US US-TX  --- KTFP 271635Z AUTO 23006KT 10SM CLR 21/14 A2994 RMK AO2 T02070135=  ## [A] Ingleside, McCampbell-Porter Airport
188769 2022-11-27 18:15  14 US US-VA  --- KTGI 271715Z AUTO 17013G19KT 7SM OVC036 14/13 A2978 RMK AO1 T01360128=  ## [A] Tangier, Tangier Island Airport
188787 2022-11-27 18:15  12 US US-TN  THA KTHA 271715Z AUTO 20010G20KT 10SM OVC029 12/06 A2973 RMK A01=  ## [A] Tullahoma, Tullahoma Regional Arpt/Wm Northern Field
188798 2021-06-11 18:21  18               KTHL 111621Z 07009KT 6SM -RA FEW014 OVC040 18/15 A2996 RMK AO2 P0000 T01830150 $  ## [A]
188799 2022-11-27 16:55   3 US US-MT  THM KTHM 271555Z AUTO 27004KT 10SM 03/M01 A2972 RMK Thompson Falls =  ## [A] Thompson Falls, Thompson Falls Airport
188808 2022-11-27 18:17   8 US US-PA  THV KTHV 271717Z AUTO 00000KT 2 1/2SM RA BR SCT010 OVC016 08/07 A2966 RMK AO2 P0003 T00780067=  ## [A] York, York Airport
188818 2022-11-27 18:15   2 US US-NE  --- KTIF 271715Z AUTO 29006KT 10SM CLR 02/M04 A2993 RMK AO2 T00171044=  ## [A] Thedford, Thomas County Airport
188823 2022-11-27 17:55   7 US US-OK  TIK KTIK 271655Z AUTO 33016KT 10SM CLR 07/02 A2990 RMK AO2 SLP135 T00720021=  ## [A] Oklahoma City, Tinker Air Force Base
188828 2022-11-27 18:15   6 US US-IL  --- KTIP 271715Z AUTO 36011G20KT 2 1/2SM RA OVC007 06/05 A2941 RMK AO2 T00550050=  ## [A] Rantoul, Rantoul National Avn Center-Frank Elliot field
188835 2022-11-27 17:53   5 US US-WA  TIW KTIW 271653Z 20007KT CLR 05/01 A3000 RMK AO2 SLP162 T00500006 $  ## [A] Tacoma, Tacoma Narrows Airport
188836 2022-11-27 17:55  29 US US-FL  TIX KTIX 271655Z 23010G16KT 7SM SCT028 SCT035 29/22 A3003=  ## [A] Titusville, Space Coast Regional Airport
188867 2022-11-27 18:15   1 US US-MN  --- KTKC 271715Z AUTO 31010KT 10SM CLR 01/01 A2987 RMK AO2=  ## [A] Tracy, Tracy Municipal Airport
188873 2022-11-27 17:53  13 US US-TX  --- KTKI 271653Z 33011KT 10SM CLR 13/07 A2993 RMK AO2 SLP141 T01280067=  ## [A] Dallas, Collin County Regional At Mc Kinney Airport
188886 2022-11-27 18:15   3 US US-WI  --- KTKV 271715Z AUTO 35006KT 10SM SCT025 03/M03 A2970 RMK AO2 T00311034 PWINO=  ## [A] Tomahawk, Tomahawk Regional Airport
188887 2021-06-11 18:48 XXX               KTKW 111648Z AUTO 25007K RWY19 P0000 TSNO=  ## [A]
188888 2022-11-27 18:15  13 US US-MO  KNT KTKX 271715Z AUTO 23023G29KT 9SM FEW019 BKN029 OVC042 13/11 A2966 RMK AO2 TSNO=  ## [A] Kennett, Kennett Memorial Airport
188898 2022-11-27 17:53  21 US US-FL  TLH KTLH 271653Z AUTO 25013KT 10SM SCT028 21/13 A2996 RMK AO2 SLP145 T02110128=  ## [A] Tallahassee, Tallahassee Regional Airport
188917 2022-09-16 19:55  28 US US-GA  TMA KTMA 161755Z AUTO 07004KT 10SM 28/16 A3013 RMK AO2 T02820158=  ## [A] Tifton, Henry Tift Myers Airport
188918 2022-11-27 17:53  30 US US-FL  TMB KTMB 271653Z 19008KT 10SM FEW065 30/22 A3003 RMK AO2 RAB04E13 SLP168 P0000 T03000222=  ## [A] Miami, Kendall-Tamiami Executive Airport
188921 2022-11-27 18:15  20 US US-TX  --- KTME 271715Z AUTO VRB06G11KT 10SM CLR 20/13 A2996 RMK AO2=  ## [A] Houston, Houston Executive Airport
188927 2022-11-27 18:15   8 US US-OR  OTK KTMK 271715Z AUTO 14004KT 10SM OVC055 08/07 A3013 RMK AO2=  ## [A] Tillamook, Tillamook Airport
188936 2022-11-27 18:15  -5               KTMT 271715Z AUTO 00000KT 10SM CLR M05/M07 A3016 RMK AO2 T10491071=  ## [A]
188944 2022-11-27 18:15  13               KTNB 271715Z AUTO 21006G09KT 170V240 10SM BKN014 BKN021 BKN028 13/10 A2966 RMK AO2 T01250098=  ## [A]
188963 2022-11-27 18:15   5 US US-IA  TNU KTNU 271715Z AUTO 35015G21KT 10SM CLR 05/03 A2972 RMK A01=  ## [A] Newton, Newton Municipal Airport
188969 2022-11-27 17:55  16 US US-CA  TOA KTOA 271655Z 00000KT 10SM SKC 16/07 A3010=  ## [A] Torrance, Zamperini Field
188970 2022-11-27 18:15   1 US US-MN  --- KTOB 271715Z AUTO 34010KT 10SM CLR 01/M01 A2978 RMK AO2=  ## [A] Dodge Center, Dodge Center Airport
188971 2022-11-27 18:10  19 US US-GA  TOC KTOC 271710Z AUTO 25011KT 10SM BKN026 OVC035 19/13 A2973 RMK AO2 T01860134=  ## [A] Toccoa, Toccoa Airport - R.G. Letourneau Field
188977 2022-11-27 17:53  19 US US-AL  TOI KTOI 271653Z AUTO 24012G19KT 10SM CLR 19/08 A2994 RMK AO2 SLP135 T01890078 $  ## [A] Troy, Troy Municipal Airport at N Kenneth Campbell Field
188980 2022-11-27 17:31   7 US US-OH  TOL KTOL 271631Z 06010KT 3SM -RA BR OVC004 07/06 A2936 RMK AO2 P0011 T00720061=  ## [A] Toledo, Toledo Express Airport
188984 2022-11-27 17:53   5 US US-KS  TOP KTOP 271653Z 31015G20KT 10SM OVC019 05/01 A2987 RMK AO2 SLP118 T00500006=  ## [A] Topeka, Philip Billard Municipal Airport
188986 2022-11-27 17:53   2 US US-WY  TOR KTOR 271653Z AUTO 19006KT 10SM CLR 02/01 A2986 RMK AO2 SLP130 T00170006 $  ## [A] Torrington, Torrington Municipal Airport
188995 2022-11-27 17:53  26 US US-FL  TPA KTPA 271653Z 19009KT 10SM FEW011 BKN031 BKN150 26/23 A3001 RMK AO2 SLP162 T02610233=  ## [A] Tampa, Tampa International Airport
189000 2022-06-19 14:35 XXX US US-FL  TPF KTPF 191235Z AUTO 00000KT 10SM RA BKN100 A2997 RMK AO2=  ## [A] Tampa, Peter O Knight Airport
189002 2022-11-27 17:56  -2 US US-NV  TPH KTPH 271656Z AUTO 00000KT 10SM CLR M02/M07 A3018 RMK AO2 SLP239 T10221067=  ## [A] Tonopah, Tonopah Airport
189006 2022-11-27 17:51  15 US US-TX  TPL KTPL 271651Z AUTO 32005KT 10SM CLR 15/08 A2997 RMK AO2 SLP145 T01500078=  ## [A] Temple, Draughon Miller Central Texas Regional Airport
189025 2022-11-27 17:54   5 US US-NE  --- KTQE 271654Z AUTO 33014KT 10SM CLR 05/M03 A2991 RMK AO2 SLP129 T00501033 $  ## [A] Tekamah, Tekamah Municipal Airport
189028 2022-11-27 18:15  10 US US-OK  --- KTQH 271715Z AUTO 30010KT 10SM OVC019 10/07 A2987 RMK AO2=  ## [A] Tahlequah, Tahlequah Municipal Airport
189031 2022-11-27 18:15   6 US US-KS  --- KTQK 271715Z AUTO 01011KT 10SM CLR 06/M07 A3001 RMK AO2 T00561075=  ## [A] Scott City, Scott City Municipal Airport
189042 2022-11-27 18:10  19               KTQV 271710Z AUTO 19017G29KT 4SM BR OVC005 19/18 A2965 RMK A01=  ## [A]
189055 2022-11-27 18:12  21 US US-TN  TRI KTRI 271712Z 25018G26KT 10SM SCT055 BKN070 21/12 A2958 RMK AO2 PK WND 23030/1654 WSHFT 1652 T02060117=  ## [A] Bristol/Johnson/Kingsport, Tri-Cities Regional TN/VA Airport
189057 2022-11-27 17:45  -7 US US-CA  TKF KTRK 271645Z 00000KT 10SM CLR M07/M08 A3019=  ## [A] Truckee, Truckee Tahoe Airport
189058 2022-11-27 17:53  14 US US-TX  TRL KTRL 271653Z AUTO 32006KT 10SM CLR 14/07 A2993 RMK AO2 SLP134 T01390067=  ## [A] Terrell, Terrell Municipal Airport
189059 2022-11-27 17:52  14 US US-CA  TRM KTRM 271652Z AUTO 24003KT 10SM CLR 14/02 A3012 RMK AO2 SLP198 T01390022 $  ## [A] Palm Springs, Jacqueline Cochran Regional Airport
189076 2022-03-25 00:00  26               KTSD 242300Z 08012KT 9999 FEW016 26/23 Q1009=  ## [A]
189088 2022-11-27 18:15  11 US US-CA  TSP KTSP 271715Z AUTO 12008KT 10SM CLR 11/M07 A3018 RMK AO2=  ## [A] Tehachapi, Tehachapi Municipal Airport
189099 2022-11-27 18:15  20 US US-NC  --- KTTA 271715Z AUTO 19010G21KT 1 3/4SM +RA BKN010 OVC014 20/20 A2967 RMK AO2 P0014 T02000200=  ## [A] Sanford, Sanford-Lee County Regional Airport
189102 2022-11-27 18:21   7 US US-OR  TTD KTTD 271721Z 30003KT 2 1/2SM RA BR FEW020 OVC028 07/05 A3011 RMK AO2 P0006 T00720050 $  ## [A] Portland, Portland Troutdale Airport
189104 2022-11-27 18:15   6 US US-MI  --- KTTF 271715Z AUTO 05007KT 3SM RA OVC004 06/05 A2934 RMK AO2 T00600053 P0004=  ## [A] Monroe, Custer Airport
189112 2022-11-27 17:53   8 US US-NJ  TTN KTTN 271653Z 17003KT 5SM -RA BKN026 BKN085 OVC110 08/06 A2975 RMK AO2 RAB16 SLP069 P0001 T00830056=  ## [A] Trenton, Trenton Mercer Airport
189117 2022-11-27 17:55  27 US US-FL  --- KTTS 271655Z AUTO 23013G19KT 10SM CLR 27/22 A2997 RMK AO2 SLP153 T02670219 $  ## [A] Titusville, Nasa Shuttle Landing Facility Airport
189136 2022-11-27 17:53   9 US US-OK  TUL KTUL 271653Z 32012KT 10SM BKN020 BKN060 09/05 A2989 RMK AO2 SLP122 T00940050=  ## [A] Tulsa, Tulsa International Airport
189140 2022-11-27 18:19  14 US US-MS  TUP KTUP 271719Z 25014G21KT 10SM BKN030 OVC037 14/07 A2981 RMK AO2 T01440067 $  ## [A] Tupelo, Tupelo Regional Airport
189143 2022-11-27 17:53  12 US US-AZ  TUS KTUS 271653Z 15004KT 10SM CLR 12/M09 A3016 RMK AO2 SLP199 T01171089=  ## [A] Tucson, Tucson International Airport
189153 2022-11-27 17:53   7 US US-MI  TVC KTVC 271653Z 01013KT 10SM FEW018 OVC085 07/02 A2951 RMK AO2 SLP997 T00670017=  ## [A] Traverse City, Cherry Capital Airport
189156 2022-11-27 17:56  -3 US US-MN  TVF KTVF 271656Z AUTO 00000KT 10SM CLR M03/M05 A2987 RMK AO2 SLP135 T10331050 FZRANO=  ## [A] Thief River Falls, Thief River Falls Regional Airport
189159 2022-11-27 18:15  21 US US-GA  TVI KTVI 271715Z AUTO 25010G18KT 10SM CLR 21/13 A2993 RMK AO2=  ## [A] Thomasville, Thomasville Regional Airport
189161 2022-11-27 18:15   4 US US-IA  --- KTVK 271715Z AUTO 31015KT 10SM SCT015 04/03 A2973 RMK AO2=  ## [A] Centerville, Centerville Municipal Airport
189162 2022-11-27 17:53  -4 US US-CA  TVL KTVL 271653Z AUTO 00000KT 10SM CLR M04/M07 A3017 RMK AO2 SLP234 T10391072=  ## [A] South Lake Tahoe, Lake Tahoe Airport
189168 2022-11-27 17:53  18 US US-LA  --- KTVR 271653Z AUTO VRB04KT 10SM CLR 18/08 A2990 RMK AO2 SLP132 T01780078=  ## [A] Tallulah/Vicksburg,  Ms, Vicksburg Tallulah Regional Airport
189175 2022-11-27 18:15   3 US US-UT  --- KTVY 271715Z AUTO 17004KT 10SM BKN120 03/00 A3015 RMK AO2=  ## [A] Tooele, Bolinder Field Tooele Valley Airport
189182 2022-11-27 17:53   4 US US-ID  TWF KTWF 271653Z 21010KT 10SM CLR 04/M06 A3005 RMK AO2 SLP177 T00391061=  ## [A] Twin Falls, Joslin Field Magic Valley Regional Airport
189189 2022-11-27 18:15   2 US US-MN  --- KTWM 271715Z AUTO 35007KT 10SM SCT049 02/M04 A2979 RMK AO2=  ## [A] Two Harbors, Richard B Helgeson Airport
189196 2022-11-27 18:15  11 US US-KY  --- KTWT 271715Z AUTO 21013G17KT 10SM OVC016 11/08 A2956 RMK AO2=  ## [A] Sturgis, Sturgis Municipal Airport
189213 2022-11-27 17:53  18 US US-AR  TXK KTXK 271653Z 27011G18KT 10SM OVC017 18/08 A2988 RMK AO2 SLP116 T01780078 $  ## [A] Texarkana, Texarkana Regional Webb Field
189225 2022-11-27 18:15  23               KTXW 271715Z AUTO 19011G17KT 10SM CLR 23/16 A2994 RMK AO2 T02260159=  ## [A]
189240 2022-11-27 18:15   7 US US-AZ  TYZ KTYL 271715Z AUTO 34004KT 10SM CLR 07/M08 A3018 RMK AO2=  ## [A] Taylor, Taylor Airport
189245 2022-11-27 18:15  10 US US-IN  --- KTYQ 271715Z AUTO 22018G22KT 3SM +RA OVC010 10/09 A2936 RMK AO2 T00950086=  ## [A] Indianapolis, Indianapolis Executive Airport
189246 2022-11-27 17:53  14 US US-TX  TYR KTYR 271653Z 31008KT 10SM CLR 14/08 A2991 RMK AO2 SLP128 T01390078=  ## [A] Tyler, Tyler Pounds Regional Airport
189247 2022-11-27 17:53  18 US US-TN  TYS KTYS 271653Z 25020G30KT 10SM FEW050 FEW250 18/08 A2968 RMK AO2 PK WND 24042/1555 SLP045 T01830083 $  ## [A] Knoxville, McGhee Tyson Airport
189272 2022-11-27 17:50  13 US US-OH  --- KTZR 271650Z 24010KT 10SM SCT007 BKN014 OVC070 13/12 A2942=  ## [A] Columbus, Bolton Field
189295 2022-11-27 17:53   7 US US-OR  --- KUAO 271653Z 20012G15KT 5SM -RA BR BKN007 OVC022 07/06 A3010 RMK AO2 SLP194 P0003 T00670056 $  ## [A] Aurora, Aurora State Airport
189311 2022-11-27 18:15   1 US US-WI  --- KUBE 271715Z AUTO 36011KT 10SM OVC010 01/01 A2978 RMK AO2=  ## [A] Cumberland, Cumberland Municipal Airport
189348 2022-11-27 18:13  10 US US-PA  --- KUCP 271713Z AUTO VRB05KT 10SM OVC007 10/10 A2942 RMK AO2 CIG 005V009=  ## [A] New Castle, New Castle Municipal Airport
189357 2022-11-27 18:15  11 US US-TN  UCY KUCY 271715Z AUTO 22013G24KT 10SM OVC019 11/09 A2965 RMK A01=  ## [A] Union City, Everett-Stewart Regional Airport
189365 2022-11-27 17:56  22 US US-SC  --- KUDG 271656Z AUTO 20013G20KT 10SM OVC012 22/22 A2973 RMK AO2 RAE50 SLP070 T02170217 PNO $  ## [A] Darlington, Darlington County Airport
189403 2022-11-27 17:45   3 US US-WI  UES KUES 271645Z 36010G19KT 7SM -RA OVC009 03/02 A2955=  ## [A] Waukesha, Waukesha County Airport
189450 2022-11-27 17:55   7 US US-IL  UGN KUGN 271655Z 01012G21KT 10SM FEW017 BKN029 OVC100 07/03 A2949 RMK AO2 SLP989 T00720028=  ## [A] Chicago/Waukegan, Waukegan National Airport
189500 2022-11-27 18:21   3 US US-WA  UIL KUIL 271721Z AUTO VRB04KT 4SM -RA BR BKN027 OVC035 03/03 A3004 RMK AO2 RAB01 P0001 T00330028=  ## [A] Quillayute, Quillayute Airport
189502 2022-11-27 17:54   7 US US-IL  UIN KUIN 271654Z AUTO 32014KT 10SM BKN095 OVC110 07/04 A2962 RMK AO2 SLP032 T00720039=  ## [A] Quincy, Quincy Regional Baldwin Field
189546 2022-11-27 17:55   8 US US-NC  IKB KUKF 271655Z AUTO 00000KT 10SM OVC003 08/08 A2973 RMK AO2=  ## [A] North Wilkesboro, Wilkes County Airport
189549 2022-11-27 17:56   4 US US-CA  UKI KUKI 271656Z AUTO 00000KT 10SM CLR 04/02 A3017 RMK AO2 SLP215 T00440022=  ## [A] Ukiah, Ukiah Municipal Airport
189552 2022-11-27 18:15   4 US US-KS  --- KUKL 271715Z AUTO 34013KT 10SM OVC015 04/00 A2987 RMK AO2 T00351001=  ## [A] Burlington, Coffey County Airport
189560 2022-11-27 18:15   7 US US-PA  UKT KUKT 271715Z AUTO 00000KT 3SM BR FEW002 OVC018 07/07 A2971 RMK A01 P0002=  ## [A] Quakertown, Quakertown Airport
189579 2022-11-21 16:15  -3 US US-MN  ULM KULM 211515Z AUTO 31011KT 10SM CLR M03/M08 A3013 RMK AO2=  ## [A] New Ulm, New Ulm Municipal Airport
189585 2022-11-27 18:10   5 US US-KS  --- KULS 271710Z AUTO 34010KT 10SM CLR 05/M07 A3001 RMK AO2=  ## [A] Ulysses, Ulysses Airport
189608 2022-11-27 18:15  11 US US-IN  --- KUMP 271715Z AUTO 23014G21KT 4SM OVC011 11/10 A2937 RMK AO2 T01050101=  ## [A] Indianapolis, Indianapolis Metropolitan Airport
189627 2022-11-27 18:15  16 US US-OH  ATO KUNI 271715Z AUTO 21014G21KT 7SM RA SCT032 SCT038 OVC075 16/13 A2941 RMK AO2 T01640126=  ## [A] Athens/Albany, Ohio University Snyder Field
189633 2022-11-27 17:53   8 US US-MO  --- KUNO 271653Z AUTO 32011KT 10SM OVC014 08/05 A2970 RMK AO2 SLP056 T00780050=  ## [A] West Plains, West Plains Municipal Airport
189639 2022-11-27 18:15   3 US US-WI  UNU KUNU 271715Z AUTO 36012G22KT 10SM -DZ OVC013 03/01 A2959 RMK AO2 T00260011=  ## [A] Juneau, Dodge County Airport
189640 2022-11-27 17:53   6 US US-PA  SCE KUNV 271653Z 29005KT 7SM -DZ OVC010 06/04 A2962=  ## [A] State College, University Park Airport
189668 2022-11-27 18:15  11 US US-MS  UOX KUOX 271715Z AUTO 25008KT 10SM OVC021 11/06 A2983 RMK AO2=  ## [A] Oxford, University Oxford Airport
189705 2022-08-27 01:56  30               KUQI 262356Z AUTO 16008KT 10SM CLR 30/26 A2987 RMK AO2 SLP11! 60004 T03000256 10322 20250 56014 $  ## [A]
189753 2022-11-27 18:15   6 US US-OH  --- KUSE 271715Z AUTO 06009KT 2SM RA OVC004 06/06 A2934 RMK AO2=  ## [A] Wauseon, Fulton County Airport
189775 2022-11-27 18:15  12 US US-MS  UTM KUTA 271715Z AUTO 22017KT 10SM OVC019 12/09 A2979 RMK AO2 CIG 017V024 T01180095 $  ## [A] Tunica, Tunica Municipal Airport
189793 2022-11-27 17:53  17 US US-TX  HTV KUTS 271653Z AUTO 30005KT 10SM CLR 17/08 A2994 RMK AO2 SLP137 T01670078=  ## [A] Huntsville, Huntsville Regional Airport
189821 2022-11-27 17:53  11 US US-RI  NPT KUUU 271653Z AUTO VRB05KT 10SM CLR 11/06 A2977 RMK AO2 SLP080 T01110056 $  ## [A] Newport, Newport State Airport
189822 2022-11-27 18:15   6 US US-MO  --- KUUV 271715Z AUTO 35006KT 4SM BR OVC007 06/06 A2965 RMK AO2=  ## [A] Sullivan, Sullivan Regional Airport
189827 2022-11-27 18:15  17 US US-TX  UVA KUVA 271715Z AUTO 00000KT 10SM CLR 17/09 A3000 RMK AO2 T01650088=  ## [A] Uvalde, Garner Field
189890 2022-11-27 18:15  22 US US-LA  --- KUXL 271715Z AUTO 23012G18KT 10SM CLR 22/14 A2995 RMK AO2 T02160141=  ## [A] Sulphur, Southland Field
189910 2022-11-27 17:55  13 US US-OH  --- KUYF 271655Z AUTO 25021G24KT 10SM BKN021 BKN028 OVC100 13/11 A2939 RMK AO2 P0006=  ## [A] London, Madison County Airport
189931 2022-11-27 17:54  18 US US-SC  RKH KUZA 271654Z AUTO 21010G18KT 10SM OVC007 18/18 A2970 RMK AO2 RAE19 CIG 006V010 SLP054 P0000 T01830178 $  ## [A] Rock Hill, Rock Hill - York County Airport
189960 2022-11-27 18:09  21 US US-GA  VAD KVAD 271709Z AUTO 25015G19KT 10SM SCT018 OVC024 21/16 A2991 RMK AO2 CIG 018V024 SLP130 $  ## [A] Valdosta, Moody Air Force Base
189962 2022-11-27 18:15  25               KVAF 271715Z AUTO 23012KT 10SM CLR 25/15 A2997 RMK A01=  ## [A]
189981 2022-11-27 17:54  12 US US-NJ  LLY KVAY 271654Z AUTO 00000KT 10SM OVC026 12/06 A2976 RMK AO2 SLP076 T01170061=  ## [A] Mount Holly, South Jersey Regional Airport
189989 2022-11-27 17:55  10 US US-CA  VBG KVBG 271655Z AUTO 15009KT 10SM CLR 10/07 A3011 RMK AO2 SLP200 T01040065 TSNO $  ## [A] Lompoc, Vandenberg Air Force Base
190002 2022-11-27 18:13   8 US US-AR  --- KVBT 271713Z AUTO 31012KT 10SM OVC015 08/06 A2983 RMK AO2=  ## [A] Bentonville, Bentonville Municipal-Louise M Thaden Field
190005 2022-11-27 18:15  10               KVBW 271715Z AUTO 00000KT 10SM OVC014 10/10 A2959 RMK AO1 P0001 T00960096=  ## [A]
190010 2022-11-27 17:53  12 US US-CA  --- KVCB 271653Z AUTO 00000KT 10SM CLR 12/02 A3016 RMK AO2 SLP211 T01220022=  ## [A] Vacaville, Nut Tree Airport
190028 2022-11-27 17:51  21 US US-TX  VCT KVCT 271651Z 25010KT 10SM CLR 21/14 A2996 RMK AO2 SLP143 T02060139=  ## [A] Victoria, Victoria Regional Airport
190030 2022-11-27 18:15   9 US US-CA  VCV KVCV 271715Z AUTO 13003KT 10SM CLR 09/M07 A3020 RMK AO2=  ## [A] Victorville, Southern California Logistics Airport
190040 2022-11-15 13:35 XXX US US-FL  --- KVDF 151235Z AUTO 00000KT 10SM CLR A3011 RMK AO2=  ## [A] Tampa, Tampa Executive Airport
190043 2022-11-27 18:15  25 US US-GA  VDI KVDI 271715Z AUTO 24018G21KT 10SM BKN028 BKN120 25/18 A2984 RMK AO2=  ## [A] Vidalia, Vidalia Regional Airport
190072 2022-11-27 18:19  -1 US US-UT  VEL KVEL 271719Z AUTO 00000KT 10SM OVC016 M01/M03 A3009 RMK AO2 T10111028=  ## [A] Vernal, Vernal Regional Airport
190078 2022-11-27 18:15   7 US US-MO  --- KVER 271715Z AUTO 32011G16KT 10SM OVC012 07/05 A2972 RMK AO2 T00720054=  ## [A] Boonville, Jesse Viertel Memorial Airport
190079 2022-11-27 18:10  12 US US-OH  --- KVES 271710Z AUTO 23023G32KT 10SM BKN024 BKN032 OVC041 12/08 A2937 RMK AO2=  ## [A] Versailles, Darke County Airport
190115 2022-11-27 18:15   7 US US-NY  --- KVGC 271715Z AUTO 16005KT 10SM BKN055 OVC065 07/00 A2962 RMK AO2=  ## [A] Hamilton, Hamilton Municipal Airport
190132 2022-11-27 17:53  10 US US-NV  VGT KVGT 271653Z 00000KT 10SM CLR 10/M04 A3018 RMK AO2 SLP240 T01001044=  ## [A] Las Vegas, North Las Vegas Airport
190152 2022-11-27 18:15  14 US US-TX  VHN KVHN 271715Z AUTO 26017G23KT 10SM CLR 14/M08 A3011 RMK AO2 T01441082=  ## [A] Van Horn, Culberson County Airport
190172 2022-11-27 18:14   7 US US-MO  VIH KVIH 271714Z AUTO 31011G19KT 7SM BKN010 OVC014 07/06 A2967 RMK AO2 CIG 008V012 T00720056=  ## [A] Rolla/Vichy, Rolla National Airport
190183 2022-11-27 17:56   9 US US-CA  VIS KVIS 271656Z AUTO 00000KT 5SM HZ CLR 09/03 A3015 RMK AO2 SLP220 T00940028=  ## [A] Visalia, Visalia Municipal Airport
190199 2022-11-27 18:15  20 US US-VA  VJI KVJI 271715Z AUTO 26020G28KT 10SM SCT049 OVC060 20/08 A2957 RMK AO2 T02030083=  ## [A] Abingdon, Virginia Highlands Airport
190235 2022-11-27 18:15  17 US US-MS  VKS KVKS 271715Z AUTO 24010G17KT 10SM CLR 17/08 A2989 RMK A01=  ## [A] Vicksburg, Vicksburg Municipal Airport
190241 2022-10-09 14:15  23               KVKY 091215Z AUTO 06021KT 23/13 A3020 RMK A01=  ## [A]
190246 2022-11-27 17:53  22 US US-GA  VLD KVLD 271653Z AUTO VRB06KT 10SM BKN016 OVC040 22/18 A2994 RMK AO2 SLP144 T02220178=  ## [A] Valdosta, Valdosta Regional Airport
190254 2022-11-27 18:15   9 US US-MI  --- KVLL 271715Z AUTO 03007KT 360V060 10SM SCT009 OVC022 09/06 A2939 RMK AO2 T00850055=  ## [A] Troy, Oakland Troy Airport
190297 2022-11-27 18:15  27 US US-FL  VNC KVNC 271715Z AUTO 19010KT 160V220 8SM CLR 27/26 A3003 RMK AO2=  ## [A] Venice, Venice Municipal Airport
190317 2022-11-27 18:15  11 US US-OH  --- KVNW 271715Z AUTO 22010G15KT 10SM RA SCT016 BKN026 OVC055 11/10 A2933 RMK AO2 P0001=  ## [A] Van Wert, Van Wert County Airport
190319 2022-11-27 17:51  13 US US-CA  VNY KVNY 271651Z 00000KT 10SM CLR 13/05 A3009 RMK AO2 SLP186 T01330050 $  ## [A] Van Nuys, Van Nuys Airport
190321 2022-11-27 18:20  20               KVOA 271720Z AUTO 26007KT 10SM CLR 20/09 A3001 RMK A01=  ## [A]
190331 2022-11-27 17:55   4 US US-WI  VOK KVOK 271655Z AUTO 34008KT 10SM OVC120 04/M02 A2966 RMK AO2 SLP055 T00381016=  ## [A] Camp Douglas, Volk Field
190349 2022-11-27 18:15  16 US US-GA  --- KVPC 271715Z AUTO 26011G19KT 10SM SCT038 BKN046 16/08 A2981 RMK AO2=  ## [A] Cartersville, Cartersville Airport
190365 2022-11-27 17:55  19 US US-FL  VPS KVPS 271655Z AUTO 25007KT 10SM CLR 19/05 A2995 RMK AO2 SLP148 T01900051 $  ## [A] Valparaiso, Destin-Ft Walton Beach Airport
190372 2022-11-27 18:16   5 US US-IN  VPZ KVPZ 271716Z AUTO 02010G21KT 3SM BR FEW012 SCT026 OVC035 05/04 A2940 RMK AO2 T00500039=  ## [A] Valparaiso, Porter County Municipal Airport
190389 2022-11-27 18:02  25 US US-FL  VQQ KVQQ 271702Z 30013KT 2SM RA BKN018 25/24 A2991=  ## [A] Jacksonville, Cecil Airport
190392 2021-01-14 19:05  21               KVQT 141805Z AUTO 3SM HZ FEW032 FEW042 21/13 A2997 RMK A01=  ## [A]
190400 2022-11-27 17:53  29 US US-FL  VRB KVRB 271653Z 22014KT 10SM FEW039 29/22 A3002 RMK AO2 SLP163 T02890222=  ## [A] Vero Beach, Vero Beach Regional Airport
190430 2022-11-27 17:54   8 US US-VT  VSF KVSF 271654Z AUTO 00000KT 10SM CLR 08/M01 A2974 RMK AO2 SLP075 T00781011=  ## [A] Springfield, Hartness State (Springfield) Airport
190451 2022-11-27 18:18  15 US US-OH  --- KVTA 271718Z AUTO 23019G33KT 4SM -RA FEW019 BKN043 OVC075 15/11 A2939 RMK AO2 PK WND 24033/1713 P0006 T01500106=  ## [A] Newark, Newark Heath Airport
190459 2022-11-27 18:15   6 US US-IA  --- KVTI 271715Z AUTO 33015KT 10SM CLR 06/00 A2970 RMK AO2 T00560000=  ## [A] Vinton, Vinton Veterans Memorial Airpark
190464 2022-11-27 17:52   0 US US-NE  VTN KVTN 271652Z AUTO 20008KT 10SM CLR 00/M05 A2992 RMK AO2 SLP156 T00001050=  ## [A] Valentine, Miller Field
190466 2022-11-27 18:15  -7               KVTP 271715Z AUTO 25013KT 4SM BR BKN002 OVC005 M07/M07 A2995 RMK AO2=  ## [A]
190486 2022-11-27 18:15  18 US US-NC  --- KVUJ 271715Z AUTO 23009G15KT 7SM -DZ OVC010 18/18 A2972 RMK AO2 LTG DSNT E T01830180=  ## [A] Albemarle, Stanly County Airport
190491 2022-11-27 18:19   7 US US-WA  --- KVUO 271719Z AUTO 00000KT 3SM -RA BR BKN010 OVC020 07/06 A3012 RMK AO2 P0002 T00670056=  ## [A] Vancouver, Pearson Field
190521 2022-11-27 18:15  16 US US-PA  --- KVVS 271715Z AUTO 20006KT 10SM SCT035 BKN050 OVC060 16/13 A2945 RMK AO2 P0001 T01600134=  ## [A] Connellsville, Joseph A. Hardy Connellsville Airport
190524 2022-11-27 18:15   0 US US-MN  --- KVVV 271715Z 30007KT 10SM 00/M03 A2989 RMK AO2=  ## [A] Ortonville, Ortonville Municipal Martinson Field
190549 2022-11-27 18:15  -1 US US-MN  --- KVWU 271715Z AUTO 00000KT 10SM OVC041 M01/M03 A2984 RMK AO2=  ## [A] Waskish, Waskish Municipal Airport
190599 2022-11-27 18:15   7 US US-IL  VYS KVYS 271715Z AUTO 33012G17KT 10SM SCT021 OVC100 07/03 A2954 RMK AO2 T00710027=  ## [A] Peru, Illinois Valley Regional Airport-Walter A Duncan Field
190644 2022-11-27 17:54  14 US US-VA  WAL KWAL 271654Z AUTO 18013KT 5SM RA BR FEW065 BKN090 OVC110 14/12 A2980 RMK AO2 SLP087 P0003 T01440122 $  ## [A] Wallops Island, Wallops Flight Facility Airport
190664 2022-11-27 18:15  26               KWBF 271715Z AUTO 00000KT 7SM 26/14 A3002 RMK A01=  ## [A]
190717 2022-11-27 17:55   7 US US-OK  WDG KWDG 271655Z 33017KT 10SM SCT150 07/02 A2994=  ## [A] Enid, Enid Woodring Regional Airport
190728 2022-11-27 18:15  19 US US-GA  WDR KWDR 271715Z AUTO 24012G17KT 215V275 10SM CLR 19/07 A2979 RMK AO2=  ## [A] Winder, Barrow County Airport
190830 2022-11-27 17:50  18 US US-CA  WHP KWHP 271650Z 00000KT 10SM SKC 18/03 A3012 RMK OBSERVER HT=  ## [A] Los Angeles, Whiteman Airport
190872 2022-11-27 17:56   7 US US-CA  WJF KWJF 271656Z 00000KT 10SM CLR 07/M07 A3018 RMK AO2 SLP225 T00721072=  ## [A] Lancaster, General WM J Fox Airfield
190922 2022-11-27 17:54   7 US US-KS  WLD KWLD 271654Z AUTO 33015KT 10SM FEW019 07/01 A2992 RMK AO2 SLP134 T00670011=  ## [A] Winfield/Arkansas City, Strother Field
190947 2022-11-27 17:56  -1 US US-NV  WMC KWMC 271656Z AUTO 07003KT 10SM CLR M01/M05 A3014 RMK AO2 SLP233 T10111050=  ## [A] Winnemucca, Winnemucca Municipal Airport
191076 2022-11-27 17:55  22 US US-GA  WRB KWRB 271655Z AUTO 26017G22KT 10SM CLR 22/08 A2983 RMK AO2 PK WND 26029/23 SLP102 T02230084=  ## [A] Warner Robins, Robins Air Force Base
191083 2022-11-27 17:55  11 US US-NJ  WRI KWRI 271655Z 19006KT 10SM BKN025 OVC100 11/07 A2975 RMK AO2A RAB35E45 SLP075 P0000 T01060065=  ## [A] Wrightstown, Mc Guire Air Force Base
191086 2022-11-27 17:53  -4 US US-WY  WRL KWRL 271653Z AUTO 12003KT 10SM FEW003 M04/M05 A2979 RMK AO2 SLP123 T10441050=  ## [A] Worland, Worland Municipal Airport
191120 2022-11-27 17:53  12 US US-RI  WST KWST 271653Z AUTO 23004KT 10SM CLR 12/06 A2979 RMK AO2 SLP086 T01170056 $  ## [A] Westerly, Westerly State Airport
191187 2022-11-27 17:53   8 US US-CA  WVI KWVI 271653Z AUTO 00000KT 10SM CLR 08/04 A3014 RMK AO2 SLP208 T00780039=  ## [A] Watsonville, Watsonville Municipal Airport
191190 2022-11-27 17:56   8 US US-ME  WVL KWVL 271656Z AUTO 18004KT 10SM CLR 08/M01 A2965 RMK AO2 SLP069 T00831011=  ## [A] Waterville, Waterville Robert Lafleur Airport
191208 2022-11-27 17:56  13 US US-NJ  WWD KWWD 271656Z AUTO 18013G18KT 10SM OVC085 13/09 A2977 RMK AO2 RAB28E43 PRESFR SLP083 P0000 T01330089 $  ## [A] Wildwood, Cape May County Airport
191219 2019-09-05 13:30  22               KWWO 051130Z VRB01MPS 9999 NSC 22/05 Q101? R31/0///65 NOSIG=  ## [A]
191222 2022-11-27 18:15   5 US US-OK  WWR KWWR 271715Z AUTO 34015G19KT 10SM CLR 05/M01 A3000 RMK AO2=  ## [A] Woodward, West Woodward Airport
191275 2022-10-19 18:00   2 US US-MT  WYS KWYS 191600Z AUTO 00000KT 10SM CLR 02/M04 A3050 RMK AO2=  ## [A] West Yellowstone, Yellowstone Airport
191350 2022-11-27 18:15  13 US US-TX  --- KXBP 271715Z AUTO 27004KT 10SM CLR 13/07 A2997 RMK AO2 T01300074=  ## [A] Bridgeport, Bridgeport Municipal Airport
191400 2019-10-14 21:48 XXX               KXDN 141948Z AUTO 290!6ZE)&HP983 RMK AO1 PK WD) 31028/1931 SLP117 T01280017999 =  ## [A]
191430 2022-11-27 18:15  24               KXER 271715Z AUTO 17005KT 10SM CLR 24/10 A2990 RMK A01=  ## [A]
191522 2022-11-27 17:55   6               KXIF 271655Z AUTO 00000KT 2SM -RA BR OVC009 06/06 A2964 RMK AO2 PK WND 25028/22 LTG DSNT S RAE26RAB31 CIG 009V011 SLP045 P0005 T00590058 $  ## [A]
191524 2020-03-27 14:40 XXX               KXIH 271340Z AUTO 18019KT 4SM HZ 23/ A2981 RMK A01=  ## [A]
191606 2022-11-27 18:15   7 US US-PA  --- KXLL 271715Z AUTO 13003KT 3SM RA BKN019 OVC025 07/06 A2971 RMK AO2 P0001=  ## [A] Allentown, Allentown Queen City Municipal Airport
191638 2022-11-27 17:55  28 US US-FL  --- KXMR 271655Z AUTO 26011KT 10SM CLR 28/22 A2997 RMK AO2 SLP152 T02840216 $  ## [A] Cocoa Beach, Cape Canaveral AFS Skid Strip
191647 2022-11-27 17:53   9 US US-AR  XNA KXNA 271653Z 29010G18KT 270V330 10SM OVC016 09/05 A2982 RMK AO2 SLP096 T00890050=  ## [A] Fayetteville/Springdale/Rogers, Northwest Arkansas Regional Airport
191661 2022-11-27 18:20  23 US US-SC  --- KXNO 271720Z AUTO 18011G23KT 10SM BKN016 BKN024 23/23 A2975 RMK AO2 SLP075 $  ## [A] North, North Air Force Auxillary Airfield
191670 2022-11-27 18:15  14               KXNX 271715Z AUTO 22010G19KT 180V300 10SM OVC036 14/07 A2970 RMK A01=  ## [A]
191723 2020-09-29 21:15 XXX               KXPY 291915Z AUTO 01015G20KT 10SM A3000 RMK A01=  ## [A]
191777 2022-11-27 18:15  14 US US-VA  --- KXSA 271715Z AUTO 17010G22KT 140V200 7SM RA OVC005 14/14 A2970 RMK AO2 P0004 T01400140=  ## [A] Tappahannock, Tappahannock-Essex County Airport
191861 2022-11-27 18:13   0 US US-MN  --- KXVG 271713Z AUTO 34003KT 10SM CLR 00/M04 A2983 RMK AO2=  ## [A] Longville, Longville Municipal Airport
191881 2022-11-27 17:51  -1               KXWA 271651Z AUTO 20013KT 10SM BKN100 M01/M03 A2962 RMK AO2 SLP066 T10111033=  ## [A]
192208 2022-11-27 17:53   6 US US-MI  YIP KYIP 271653Z 05009KT 2SM -RA BR OVC006 06/04 A2938 RMK AO2 RAB28 SLP951 P0003 T00560044=  ## [A] Detroit, Willow Run Airport
192257 2022-11-27 17:53   8 US US-WA  YKM KYKM 271653Z AUTO 27017G23KT 10SM CLR 08/M03 A2988 RMK AO2 PK WND 28028/1628 SLP127 T00781028 $  ## [A] Yakima, Yakima Air Terminal McAllister Field
192258 2022-11-27 17:56   1 US US-SD  YKN KYKN 271656Z AUTO 31010KT 10SM CLR 01/M02 A2995 RMK AO2 SLP168 T00111017 FZRANO=  ## [A] Yankton, Chan Gurney Municipal Airport
192329 2022-11-27 17:51   9 US US-OH  YNG KYNG 271651Z 17008G23KT 5SM -RA BR BKN008 BKN038 OVC070 09/08 A2943 RMK AO2 SLP969 P0006 T00940078=  ## [A] Youngstown/Warren, Youngstown Warren Regional Airport
192740 2022-03-05 05:53   4               KZDB 050453Z AUTO SCT002 BKN009 04/03 A2999 RMK AO2 SLP146 T00390033 $ =  ## [A]
192782 2022-11-27 18:15   3 US US-PA  --- KZER 271715Z AUTO 15005KT 1 3/4SM -RA BKN003 BKN010 OVC014 03/02 A2965 RMK AO2 P0002=  ## [A] Pottsville, Schuylkill County /Joe Zerbey/ Airport
192936 2021-12-05 05:58 XXX               KZKP 050458Z AUTO M M M M M M RMK AO2 SLPNO PWINO PNO TSNO $  ## [A]
192937 2021-12-05 05:58  12               KZKQ 050458Z AUTO 35010KT 6SM BR OVC001 12/11 A3019 RMK AO2 SLP250 T01230112 $  ## [A]
193058 2022-11-27 18:15  28 US US-FL  ZPH KZPH 271715Z AUTO 21014KT 10SM SCT022 BKN030 OVC045 28/23 A3000 RMK A02 T02760226=  ## [A] Zephyrhills, Zephyrhills Municipal Airport
193332 2022-11-27 17:53  14 US US-OH  ZZV KZZV 271653Z AUTO 18011KT 10SM FEW019 SCT038 BKN060 14/12 A2941 RMK AO2 SLP959 T01440117=  ## [A] Zanesville, Zanesville Municipal Airport
------ Albanien:
193617 2022-04-15 11:50  20 AL AL-07  --- LAKU 150950Z 02004KT 330V060 CAVOK 20/01 Q1019=  ## [A] Kukës, Kukës Airport
193839 2022-11-27 18:20  10 AL AL-11  TIA LATI 271720Z VRB01KT 9999 BKN120 10/02 Q1020 NOSIG=  ## [A] Tirana, Tirana International Airport Mother Teresa
------ Bulgarien:
194045 2022-11-27 18:00   8 BG BG-02  BOJ LBBG 271700Z AUTO 05005KT 9999 NSC 08/02 Q1025 NOSIG=  ## [A] Burgas, Burgas Airport
194183 2022-11-27 18:00   3 BG BG-04  GOZ LBGO 271700Z AUTO 00000KT 9000 OVC072/// 03/03 Q1027 NOSIG=  ## [A] Gorna Oryahovitsa, Gorna Oryahovitsa Airport
194221 2022-11-27 18:00   8               LBIA 271700Z 05004KT 9999 OVC050 08/01 Q1025=  ## [A]
194406 2022-11-27 18:00   7 BG BG-16  PDV LBPD 271700Z AUTO 11003KT 070V170 9999 BKN048/// OVC056/// 07/M01 Q1025 NOSIG=  ## [A] Plovdiv, Plovdiv International Airport
194409 2022-11-27 18:00   7 BG BG-16  --- LBPG 271700Z 02002KT 9999 OVC050 07/M01 Q1025=  ## [A] Graf Ignatievo, Graf Ignatievo Air Base
194414 2022-11-27 18:00   4 BG BG-15  --- LBPL 271700Z 35002KT 9999 OVC070 04/02 Q1027=  ## [A] Dolna Mitropoliya, Dolna Mitropoliya Air Base
194486 2022-11-27 18:00   4 BG BG-23  SOF LBSF 271700Z 03004KT 9999 FEW045 OVC070 04/M00 Q1024 NOSIG=  ## [A] Sofia, Sofia Airport
194586 2022-11-25 13:00   7 BG BG-03  --- LBWB 251200Z 35024KT 9999 FEW011 07/03 Q1014=  ## [A] Balchik, Balchik Air Base
194598 2022-11-27 18:00   7 BG BG-03  VAR LBWN 271700Z AUTO 01004KT 310V070 9999 FEW028/// 07/03 Q1026 NOSIG=  ## [A] Varna, Varna Airport
------ Cypern:
194806 2022-11-27 17:50  16 CY CY-02  ECN LCEN 271650Z 06007KT 9999 FEW025 16/10 Q1016 NOSIG RMK RWY11 08008KT=  ## [A] Nicosia, Ercan International Airport
194985 2022-11-27 18:00  18 CY CY-04  LCA LCLK 271700Z 35008KT 9999 FEW025 18/12 Q1016 NOSIG=  ## [A] Larnarca, Larnaca International Airport
195029 2022-06-06 20:00 XXX               LCNC 061180Z NIL=  ## [A]
195086 2022-11-27 18:00  16 CY CY-06  PFO LCPH 271700Z 04005KT 010V080 CAVOK 16/10 Q1016=  ## [A] Paphos, Paphos International Airport
------ Storbritannien:
195131 2022-11-27 17:50  18 GB GB-U-A AKT LCRA 271650Z 05016KT 9999 FEW030 SCT190 18/12 Q1015 NOSIG=  ## [A] Akrotiri, RAF Akrotiri
------ Kroatien:
195463 2022-11-27 18:00  11 HR HR-19  DBV LDDU 271700Z 03019KT 340V070 CAVOK 11/M02 Q1020 TEMPO 03015G28KT=  ## [A] Dubrovnik, Dubrovnik Airport
195665 2022-10-30 15:00  21 HR HR-08  LSZ LDLO 301400Z 30007KT CAVOK 21/17 Q1021=  ## [A] Lo?inj, Lo?inj Island Airport
195747 2022-11-27 18:00   6 HR HR-14  OSI LDOS 271700Z 08006KT 6000 SCT010 OVC033 06/05 Q1027=  ## [A] Osijek, Osijek Airport
195766 2022-11-27 18:00   8 HR HR-18  PUY LDPL 271700Z 04007KT CAVOK 08/00 Q1024 NOSIG=  ## [A] Pula, Pula Airport
195815 2022-11-27 18:00   9 HR HR-08  RJK LDRI 271700Z 05006KT CAVOK 09/M01 Q1024=  ## [A] Rijeka, Rijeka Airport
195834 2022-10-29 16:00  22 HR HR-17  BWK LDSB 291400Z VRB03KT CAVOK 22/09 Q1024=  ## [A] Bra? Island, Bol Airport
195848 2022-11-27 18:00  11 HR HR-17  SPU LDSP 271700Z 03011KT CAVOK 11/M00 Q1022 NOSIG=  ## [A] Split, Split Airport
196015 2022-11-27 18:00   5 HR HR-21  ZAG LDZA 271700Z 08003KT 9999 FEW045 05/02 Q1026 NOSIG=  ## [A] Zagreb, Zagreb Airport
196018 2022-11-27 18:00   9 HR HR-13  ZAD LDZD 271700Z 07008KT CAVOK 09/00 Q1023 NOSIG=  ## [A] Zemunik (Zadar), Zadar Airport
------ Spanien:
196042 2022-11-27 18:00  10 ES ES-CM  ABC LEAB 271700Z 14003KT CAVOK 10/02 Q1022 NOSIG=  ## [A] Albacete, Albacete-Los Llanos Airport
196047 2022-11-27 18:00  17               LEAG 271700Z AUTO 14003KT 060V210 CAVOK 17/13 Q1023=  ## [A]
196052 2022-11-27 18:00  14 ES ES-V   ALC LEAL 271700Z 00000KT 9999 FEW025 14/12 Q1022 NOSIG=  ## [A] Alicante, Alicante International Airport
196053 2022-11-27 18:00  16 ES ES-AN  LEI LEAM 271700Z VRB01KT CAVOK 16/12 Q1022=  ## [A] Almería, Almería International Airport
196055 2022-11-27 18:00  15               LEAO 271700Z VRB02KT CAVOK 15/04 Q1022=  ## [A]
196059 2022-11-27 18:15  12 ES ES-O   OVD LEAS 271715Z 28018G31KT 240V320 3000 RA FEW005 BKN012 12/11 Q1020 TEMPO 6000 NSW=  ## [A] Ranón, Asturias Airport
196067 2022-11-27 18:00  15 ES ES-AN  ODB LEBA 271700Z 00000KT CAVOK 15/07 Q1022=  ## [A] Córdoba, Córdoba Airport
196068 2022-11-27 18:00  15 ES ES-PV  BIO LEBB 271700Z 07003KT 340V130 9999 FEW070 15/06 Q1018 NOSIG=  ## [A] Bilbao, Bilbao Airport
196073 2022-11-27 18:00   8 ES ES-CL  RGS LEBG 271700Z 18010KT 9999 -RA BKN020 08/03 Q1019=  ## [A] Burgos, Burgos Airport
196078 2022-11-27 18:00  14 ES ES-CT  BCN LEBL 271700Z VRB02KT 9999 FEW025 14/09 Q1021 NOSIG=  ## [N] Barcelona, Barcelona International Airport
196084 2022-11-27 18:00   7               LEBR 271700Z AUTO 00000KT 9999 NCD 07/06 Q1021=  ## [A]
196086 2022-11-27 18:00  11               LEBT 271700Z AUTO 08003KT CAVOK 11/06 Q1021=  ## [A]
196092 2022-11-27 18:00  15 ES ES-EX  BJZ LEBZ 271700Z 32003KT CAVOK 15/12 Q1023=  ## [A] Badajoz, Badajoz Airport
196100 2022-11-27 18:00  11 ES ES-AR  --- LECH 271700Z AUTO 16004KT 110V190 CAVOK 11/09 Q1021=  ## [A] Calamocha, Calamocha Air Base
196107 2022-11-27 18:00  13 ES ES-GA  LCG LECO 271700Z 26006KT 240V300 9999 -SHRA FEW028 SCT030 FEW034TCU 13/09 Q1021 NOSIG=  ## [A] Culleredo, A Coruña Airport
196114 2022-11-27 18:00   9 ES ES-M   --- LECV 271700Z VRB02KT CAVOK 09/04 Q1021=  ## [A] Colmenar Viejo, Base Aérea de Colmenar Viejo
196119 2022-11-27 18:00  11 ES ES-CT  ILD LEDA 271700Z 33001KT CAVOK 11/03 Q1020=  ## [A] Lleida, Lleida-Alguaire Airport
196147 2022-11-25 15:00  22 ES ES-SE  --- LEEC 251400Z 03007KT 360V070 CAVOK 22/10 Q1024=  ## [A] Dos Hermanas, Base Aérea de El Copero
196197 2022-11-25 15:00  18 ES ES-AN  --- LEGA 251400Z 30004KT 270V020 9999 FEW030 FEW060 18/10 Q1024=  ## [A] Armilla, Armilla Air Base
196201 2022-11-27 18:00  13 ES ES-GE  GRO LEGE 271700Z 19012KT CAVOK 13/10 Q1020=  ## [A] Girona, Girona Airport
196214 2022-11-27 18:00  15 ES ES-AN  GRX LEGR 271700Z VRB02KT CAVOK 15/06 Q1022=  ## [A] Granada, Federico Garcia Lorca Airport
196216 2022-11-27 18:00  12 ES ES-M   --- LEGT 271700Z 25003KT CAVOK 12/06 Q1022=  ## [A] Getafe, Getafe Air Base
196225 2022-11-27 18:00   8 ES ES-AR  HSK LEHC 271700Z AUTO 06004KT CAVOK 08/02 Q1021=  ## [A] Monflorite/Alcalá del Obispo, Huesca/Pirineos Airport
196250 2022-11-27 18:00  16 ES ES-PM  IBZ LEIB 271700Z 19009KT 150V220 9999 SCT025 16/11 Q1022 NOSIG=  ## [A] Ibiza, Ibiza Airport
196292 2022-11-27 18:00  18 ES ES-AN  XRY LEJR 271700Z 34003KT CAVOK 18/10 Q1022=  ## [A] Jerez de la Forntera, Jerez Airport
196329 2022-11-27 18:00  16 ES ES-MU  MJV LELC 271700Z 19003KT 170V230 CAVOK 16/12 Q1022 NOSIG=  ## [A] San Javier, San Javier Airport
196338 2022-11-27 18:00  13 ES ES-CT  QSA LELL 271700Z AUTO 20003KT CAVOK 13/09 Q1021=  ## [A] Sabadell, Sabadell Airport
196340 2022-11-27 18:00   6 ES ES-CL  LEN LELN 271700Z 19005KT 9999 -RA BKN007 OVC030 06/05 Q1020=  ## [A] León, Leon Airport
196341 2022-11-27 18:00   8 ES ES-LO  RJL LELO 271700Z AUTO 00000KT CAVOK 08/05 Q1021=  ## [A] Logroño, Logroño-Agoncillo Airport
196356 2022-11-27 18:00  11 ES ES-M   MAD LEMD 271700Z 16003KT 120V190 CAVOK 11/04 Q1021 NOSIG=  ## [N] Madrid, Adolfo Suárez Madrid?Barajas Airport
196359 2022-11-27 18:00  15 ES ES-AN  AGP LEMG 271700Z 10005KT CAVOK 15/12 Q1022 NOSIG=  ## [A] Málaga, Málaga Airport
196360 2022-11-27 18:00  13 ES ES-PM  MAH LEMH 271700Z 22003KT 9999 FEW020 13/07 Q1023=  ## [A] Menorca Island, Menorca Airport
196361 2022-11-27 18:00  14               LEMI 271700Z VRB02KT CAVOK 14/10 Q1022=  ## [A]
196365 2022-03-16 09:30  11               LEMM 160830Z 03012KT 360V060 2900 BR BKN004 OVC010 11/11 Q1019=  ## [A]
196367 2022-11-27 18:00  17 ES ES-AN  OZP LEMO 271700Z 24004KT CAVOK 17/08 Q1022 NOSIG=  ## [A] Morón, Moron Air Base
196412 2020-10-13 08:00  12               LEOH 130600Z 18012KT 9999 FEW020 BKN040 12/08 Q1005=  ## [A]
196431 2022-11-27 18:00  17 ES ES-PM  PMI LEPA 271700Z 16004KT 9999 BKN030 17/10 Q1022 NOSIG=  ## [A] Palma De Mallorca, Palma De Mallorca Airport
196446 2022-11-27 18:00   9 ES ES-NA  PNA LEPP 271700Z VRB01KT CAVOK 09/05 Q1020=  ## [A] Pamplona, Pamplona Airport
196491 2022-11-27 18:00  15 ES ES-MU  --- LERI 271700Z 11004KT CAVOK 15/09 Q1022 NOSIG=  ## [A] Alcantarilla, Alcantarilla Air Base
196494 2022-11-27 17:30  17 ES ES-CM  CQM LERL 271630Z 28009KT CAVOK 17/02 Q1022=  ## [A] Ciudad Real, Ciudad Real Central Airport
196501 2022-11-27 18:00  14 ES ES-CT  REU LERS 271700Z 03003KT 9999 SCT020 14/11 Q1021=  ## [A] Reus, Reus Air Base
196502 2022-11-27 18:00  17 ES ES-AN  ROZ LERT 271700Z 31007KT CAVOK 17/11 Q1022 NOSIG=  ## [A] Rota, Rota Naval Station Airport
196509 2022-11-27 18:00  10 ES ES-CL  SLM LESA 271700Z 27004KT 240V300 6000 RA BKN020 OVC030 10/08 Q1021=  ## [A] Salamanca, Salamanca Airport
196510 2022-11-27 18:00  15 ES ES-PM  --- LESB 271700Z AUTO 19003KT 150V220 9999 BKN030/// 15/09 Q1023=  ## [A] Mallorca Island, Son Bonet Airport
196523 2022-11-27 18:00  14 ES ES-PV  EAS LESO 271700Z 17004KT 130V230 CAVOK 14/08 Q1018=  ## [A] Hondarribia, San Sebastian Airport
196528 2022-11-27 18:00  10 ES ES-GA  SCQ LEST 271700Z 27003KT 9999 FEW010 10/08 Q1022 NOSIG=  ## [A] Santiago de Compostela, Santiago de Compostela Airport
196529 2022-11-27 17:30   8 ES ES-CT  LEU LESU 271630Z 00000KT CAVOK 08/M01 Q1021=  ## [A] La Seu d'Urgell Pyrenees and Andorra, Pirineus - la Seu d'Urgel Airport
196546 2022-11-27 18:00  12 ES ES-AR  TEV LETL 271700Z AUTO 21011KT CAVOK 12/M01 Q1021=  ## [A] Teruel, Teruel Airport
196549 2022-11-27 18:00  10 ES ES-M   TOJ LETO 271700Z VRB02KT CAVOK 10/04 Q1021 NOSIG=  ## [A] Madrid, Torrejón Airport
196555 2022-11-27 18:00   8               LETU 271700Z AUTO VRB02KT 9999 NCD 08/06 Q1021=  ## [A]
196589 2022-11-27 18:00  13 ES ES-V   VLC LEVC 271700Z VRB02KT CAVOK 13/06 Q1021 NOSIG=  ## [A] Valencia, Valencia Airport
196590 2022-11-27 18:00   8 ES ES-CL  VLL LEVD 271700Z 26007KT 9000 -RA SCT023 08/06 Q1020=  ## [A] Valladolid, Valladolid Airport
196605 2022-11-27 18:00  10               LEVS 271700Z 25002KT CAVOK 10/05 Q1022=  ## [A]
196606 2022-11-27 18:00   9 ES ES-PV  VIT LEVT 271700Z 22010KT 9999 BKN068 09/05 Q1019=  ## [A] Alava, Vitoria/Foronda Airport
196610 2022-11-27 18:00  12 ES ES-GA  VGO LEVX 271700Z 31004KT 280V340 9999 SCT027 BKN033 12/09 Q1023 NOSIG=  ## [A] Vigo, Vigo Airport
196648 2022-11-27 18:00  15 ES ES-S   SDR LEXJ 271700Z VRB02KT 9000 -RA SCT040 BKN060 15/12 Q1019=  ## [A] Santander, Santander Airport
196697 2022-11-27 18:00  10 ES ES-AR  ZAZ LEZG 271700Z 09003KT CAVOK 10/07 Q1020=  ## [A] Zaragoza, Zaragoza Air Base
196702 2022-11-27 18:00  20 ES ES-AN  SVQ LEZL 271700Z 19004KT 160V230 CAVOK 20/07 Q1021 NOSIG=  ## [A] Sevilla, Sevilla Airport
------ Frankrike:
196719 2022-11-27 18:00   9 FR FR-O   CQF LFAC 271700Z AUTO 17007KT 5000 RA BR BKN006/// BKN010/// OVC019/// ///TCU 09/08 Q1011=  ## [A] Calais/Dunkerque, Calais-Dunkerque Airport
196733 2022-11-27 18:00   7 FR FR-S   BYF LFAQ 271700Z AUTO 17014KT 7000 -RA OVC005 07/07 Q1012 TEMPO 3000=  ## [A] Albert/Bray, Albert-Bray Airport
196736 2022-11-27 18:00   9 FR FR-O   LTQ LFAT 271700Z AUTO 14006KT 4600 RA BR OVC003 09/08 Q1011 BECMG 5000 RA OVC007=  ## [A] Le Touquet-Paris-Plage, Le Touquet-Côte d'Opale Airport
196743 2022-11-27 18:00  10 FR FR-B   AGF LFBA 271700Z AUTO 09002KT CAVOK 10/08 Q1017 NOSIG=  ## [A] Agen/La Garenne, Agen-La Garenne Airport
196745 2022-11-27 18:00  11 FR FR-B   --- LFBC 271700Z AUTO 20005KT CAVOK 11/09 Q1016=  ## [A] Cazaux (La Teste-de-Buch), Cazaux (BA 120) Air Base
196746 2022-11-27 18:00  11 FR FR-B   BOD LFBD 271700Z AUTO 16006KT CAVOK 11/07 Q1016 NOSIG=  ## [A] Bordeaux/Mérignac, Bordeaux-Mérignac Airport
196747 2022-11-27 18:00  10 FR FR-B   EGC LFBE 271700Z AUTO VRB02KT CAVOK 10/07 Q1017 NOSIG=  ## [A] Bergerac/Roumanière, Bergerac-Roumanière Airport
196748 2022-11-27 18:00  12 FR FR-N   --- LFBF 271700Z AUTO 14010G20KT 090V200 CAVOK 12/08 Q1018=  ## [A] Toulouse/Francazal, Toulouse-Francazal (BA 101) Air Base
196749 2022-11-27 18:00   9 FR FR-T   CNG LFBG 271700Z AUTO VRB03KT CAVOK 09/06 Q1016=  ## [A] Cognac/Châteaubernard, Cognac-Châteaubernard (BA 709) Air Base
196750 2022-11-27 18:00  12 FR FR-T   LRH LFBH 271700Z AUTO 17010KT 9999 BKN016/// OVC025/// ///TCU 12/08 Q1015 BECMG 27012KT NSC=  ## [A] La Rochelle/Île de Ré, La Rochelle-Île de Ré Airport
196751 2022-11-27 18:00  10 FR FR-T   PIS LFBI 271700Z AUTO 19010KT 9999 NCD 10/04 Q1015 NOSIG=  ## [A] Poitiers/Biard, Poitiers-Biard Airport
196754 2022-11-27 18:00   9 FR FR-L   LIG LFBL 271700Z AUTO /////KT 9999 ////// 09/01 Q1016=  ## [A] Limoges/Bellegarde, Limoges Airport
196755 2022-11-27 18:00   9 FR FR-B   --- LFBM 271700Z AUTO VRB02KT CAVOK 09/07 Q1017 NOSIG=  ## [A] Mont-de-Marsan, Mont-de-Marsan (BA 118) Air Base
196757 2022-11-27 18:00  11 FR FR-N   TLS LFBO 271700Z AUTO 14012KT 110V170 9999 FEW013 BKN230 11/08 Q1018 TEMPO BKN013=  ## [A] Toulouse/Blagnac, Toulouse-Blagnac Airport
196758 2022-11-27 18:00  11 FR FR-B   PUF LFBP 271700Z AUTO VRB02KT CAVOK 11/08 Q1017 NOSIG=  ## [A] Pau/Pyrénées (Uzein), Pau Pyrénées Airport
196762 2022-11-27 18:00  10 FR FR-N   LDE LFBT 271700Z AUTO VRB01KT CAVOK 10/07 Q1018 NOSIG=  ## [A] Tarbes/Lourdes/Pyrénées, Tarbes-Lourdes-Pyrénées Airport
196763 2022-11-27 18:00  10 FR FR-T   ANG LFBU 271700Z AUTO 15009KT CAVOK 10/05 Q1016 NOSIG=  ## [A] Angoulême/Brie/Champniers, Angoulême-Brie-Champniers Airport
196766 2022-11-27 18:00   7 FR FR-B   PGX LFBX 271700Z AUTO VRB01KT CAVOK 07/05 Q1017=  ## [A] Périgueux/Bassillac, Périgueux-Bassillac Airport
196767 2022-11-27 18:00  14 FR FR-B   XDA LFBY 271700Z AUTO 25005KT 220V280 9999 // ////// 14/09 Q1017=  ## [A] Perigueux, Dax Seyresse Airport
196768 2022-11-27 18:00  15 FR FR-B   BIQ LFBZ 271700Z AUTO 28006KT 240V310 CAVOK 15/04 Q1018 BECMG BKN014=  ## [A] Biarritz/Anglet/Bayonne, Biarritz-Anglet-Bayonne Airport
196779 2022-11-27 18:00  12 FR FR-N   DCM LFCK 271700Z AUTO 12021KT CAVOK 12/07 Q1019 TEMPO 12020G35KT=  ## [A] Castres/Mazamet, Castres-Mazamet Airport
196786 2022-11-27 18:00   9 FR FR-N   RDZ LFCR 271700Z AUTO 11014KT CAVOK 09/04 Q1018 NOSIG=  ## [A] Rodez/Marcillac, Rodez-Marcillac Airport
196873 2022-11-27 18:00   7 FR FR-A   CMR LFGA 271700Z AUTO 20002KT CAVOK 07/04 Q1019=  ## [A] Colmar/Houssen, Colmar-Houssen Airport
196882 2022-11-27 18:00   6 FR FR-I   DLE LFGJ 271700Z AUTO 08005KT CAVOK 06/05 Q1018 BECMG 20010KT=  ## [A] Dole/Tavaux, Dole-Tavaux Airport
196914 2022-11-27 18:00   5 FR FR-C   LPY LFHP 271700Z AUTO VRB02KT CAVOK 05/00 Q1019=  ## [A] Le Puy/Loudes, Le Puy-Loudes Airport
196962 2022-11-27 18:00   8 FR FR-M   ETZ LFJL 271700Z AUTO 15009KT CAVOK 08/04 Q1017 NOSIG=  ## [A] Metz / Nancy, Metz-Nancy-Lorraine Airport
196968 2022-11-27 18:00  10 FR FR-R   ANE LFJR 271700Z AUTO 16007KT 9999 -RA FEW045/// BKN052/// BKN068/// ///TCU 10/08 Q1014=  ## [A] Angers/Marcé, Angers-Loire Airport
196978 2022-11-27 18:00  10 FR FR-H   BIA LFKB 271700Z AUTO 23004KT CAVOK 10/06 Q1023 TEMPO 35010KT=  ## [A] Bastia/Poretta, Bastia-Poretta Airport
196979 2022-11-27 18:00   9 FR FR-H   CLY LFKC 271700Z AUTO 19005KT 160V220 CAVOK 09/04 Q1022 TEMPO 36010KT=  ## [A] Calvi/Sainte-Catherine, Calvi-Sainte-Catherine Airport
196982 2022-11-27 18:00   9 FR FR-H   FSC LFKF 271700Z AUTO 01003KT CAVOK 09/06 Q1023 BECMG 07010KT=  ## [A] Figari Sud-Corse, Figari Sud-Corse Airport
196986 2022-11-27 18:00  11 FR FR-H   AJA LFKJ 271700Z AUTO 04006KT 020V080 CAVOK 11/05 Q1023 NOSIG=  ## [A] Ajaccio/Napoléon Bonaparte, Ajaccio-Napoléon Bonaparte Airport
196995 2022-11-27 18:00  11 FR FR-H   SOZ LFKS 271700Z AUTO 27007KT 250V310 CAVOK 11/05 Q1023=  ## [A] Solenzara, Solenzara (BA 126) Air Base
197004 2022-11-27 18:00   5 FR FR-V   CMF LFLB 271700Z AUTO 00000KT CAVOK 05/03 Q1021 NOSIG=  ## [A] Chambéry/Aix-les-Bains, Chambéry-Savoie Airport
197005 2022-11-27 18:00  12 FR FR-C   CFE LFLC 271700Z AUTO 19017KT CAVOK 12/M01 Q1016 TEMPO 18016G28KT=  ## [A] Clermont-Ferrand/Auvergne, Clermont-Ferrand Auvergne Airport
197010 2022-11-27 18:00   5 FR FR-D   --- LFLH 271700Z AUTO 34004KT 9000 NSC 05/04 Q1018=  ## [A] Chalon/Champforgueil, Chalon-Champforgeuil Airport
197014 2022-11-27 18:00  12 FR FR-V   LYS LFLL 271700Z 16014KT CAVOK 12/04 Q1019 TEMPO 18015G25KT=  ## [A] Lyon, Lyon Saint-Exupéry Airport
197016 2022-11-27 18:00   6 FR FR-D   SYT LFLN 271700Z AUTO 07004KT CAVOK 06/05 Q1017 TEMPO 3000 BR=  ## [A] Saint-Yan, Saint-Yan Airport
197018 2022-11-27 18:00   5 FR FR-V   NCY LFLP 271700Z AUTO 03003KT 010V080 CAVOK 05/03 Q1020 NOSIG=  ## [A] Annecy/Meythet, Annecy-Haute-Savoie-Mont Blanc Airport
197021 2022-11-27 18:00   4 FR FR-V   GNB LFLS 271700Z AUTO VRB02KT CAVOK 04/02 Q1020 NOSIG=  ## [A] Grenoble/Saint-Geoirs, Grenoble-Isère Airport
197023 2022-11-27 18:00  11 FR FR-V   VAF LFLU 271700Z AUTO 20014KT CAVOK 11/06 Q1020=  ## [A] Valence/Chabeuil, Valence-Chabeuil Airport
197024 2022-11-27 18:00   6 FR FR-C   VHY LFLV 271700Z AUTO 26001KT CAVOK 06/05 Q1016=  ## [A] Vichy/Charmeil, Vichy-Charmeil Airport
197025 2022-11-27 18:00   9 FR FR-C   AUR LFLW 271700Z AUTO 10007KT 070V130 CAVOK 09/01 Q1018 NOSIG=  ## [A] Aurillac, Aurillac Airport
197026 2022-11-27 18:00   9 FR FR-F   CHR LFLX 271700Z AUTO 00000KT CAVOK 09/07 Q1015 NOSIG=  ## [A] Châteauroux/Déols, Châteauroux-Déols "Marcel Dassault" Airport
197027 2022-11-27 18:00  12 FR FR-V   LYN LFLY 271700Z AUTO 18017G28KT CAVOK 12/06 Q1019 NOSIG=  ## [A] Lyon/Bron, Lyon-Bron Airport
197031 2022-11-27 18:00  10 FR FR-U   --- LFMC 271700Z AUTO 00000KT 9999 ////// 10/07 Q1023=  ## [A] Le Luc/Le Cannet, Le Luc-Le Cannet Airport
197032 2022-11-27 18:00  11 FR FR-U   CEQ LFMD 271700Z AUTO VRB03KT CAVOK 11/07 Q1023 NOSIG=  ## [A] Cannes/Mandelieu, Cannes-Mandelieu Airport
197036 2022-11-27 18:00   7 FR FR-V   EBU LFMH 271700Z AUTO 18011KT CAVOK 07/01 Q1018=  ## [A] Saint-Étienne/Bouthéon, Saint-Étienne-Bouthéon Airport
197037 2022-11-27 18:00  13 FR FR-U   --- LFMI 271700Z AUTO 13006KT CAVOK 13/08 Q1022 NOSIG=  ## [A] Istres/Le Tubé, Istres Le Tubé/Istres Air Base (BA 125) Airport
197039 2022-11-27 18:00  12 FR FR-K   CCF LFMK 271700Z AUTO 09011KT 9999 BKN020 OVC034 12/09 Q1019 NOSIG=  ## [A] Carcassonne/Salvaza, Carcassonne Airport
197040 2022-11-27 18:00  13 FR FR-U   MRS LFML 271700Z AUTO 00000KT CAVOK 13/08 Q1023 BECMG 15010KT=  ## [A] Marseille, Marseille Provence Airport
197042 2022-11-27 18:00  15 FR FR-U   NCE LFMN 271700Z 12004KT 090V150 9999 SCT046 BKN260 15/05 Q1023 NOSIG=  ## [A] Nice, Nice-Côte d'Azur Airport
197043 2022-11-27 18:00   8 FR FR-U   XOG LFMO 271700Z AUTO 00000KT CAVOK 08/06 Q1023 NOSIG=  ## [A] Orange/Caritat, Orange-Caritat (BA 115) Air Base
197044 2022-11-27 18:00  12 FR FR-K   PGF LFMP 271700Z AUTO VRB03KT CAVOK 12/08 Q1019 NOSIG=  ## [A] Perpignan/Rivesaltes, Perpignan-Rivesaltes (Llabanère) Airport
197048 2022-11-27 18:00  10 FR FR-K   MPL LFMT 271700Z AUTO 01005KT 9999 FEW030 10/07 Q1022 NOSIG=  ## [A] Montpellier/Méditerranée, Montpellier-Méditerranée Airport
197049 2022-11-27 18:00  12 FR FR-K   BZR LFMU 271700Z AUTO 05009KT 9999 BKN036 BKN042 12/09 Q1021 NOSIG=  ## [A] Béziers/Vias, Béziers-Vias Airport
197050 2022-11-27 18:00   8 FR FR-U   AVN LFMV 271700Z AUTO 00000KT CAVOK 08/05 Q1022 NOSIG=  ## [A] Avignon/Caumont, Avignon-Caumont Airport
197053 2022-11-27 18:00   8 FR FR-U   --- LFMY 271700Z AUTO VRB02KT CAVOK 08/05 Q1023=  ## [A] Salon, Salon-de-Provence (BA 701) Air Base
197081 2022-11-27 18:00   8 FR FR-F   --- LFOA 271700Z AUTO 10003KT CAVOK 08/05 Q1015=  ## [A] Avord, Avord (BA 702) Air Base
197082 2022-11-27 18:00   9 FR FR-S   BVA LFOB 271700Z AUTO 19010KT 170V230 9999 -RA FEW013/// OVC090/// ///TCU 09/08 Q1013 TEMPO 2000 OVC004=  ## [A] Beauvais/Tillé, Paris Beauvais Tillé Airport
197083 2021-10-11 08:00  11 FR FR-F   --- LFOC 110600Z AUTO 36005KT 3100 BR BKN005 BKN023 BKN028 11/11 Q1028=  ## [A] Châteaudun, Châteaudun (BA 279) Air Base
197085 2022-11-27 18:00  10 FR FR-Q   EVX LFOE 271700Z AUTO 21010KT 9999 -RA ///TCU 10/09 Q1013 BECMG SCT035 BKN060=  ## [A] Évreux/Fauville, Évreux-Fauville (BA 105) Air Base
197088 2022-11-27 18:00  11 FR FR-Q   LEH LFOH 271700Z AUTO 20009KT 9999 -RA FEW004 SCT012 BKN068 11/11 Q1011 TEMPO 2000 OVC004=  ## [A] Le Havre/Octeville, Le Havre Octeville Airport
197090 2022-11-27 18:00  10 FR FR-F   ORE LFOJ 271700Z AUTO 18005KT 9999 SCT027/// SCT034/// BKN068/// ///TCU 10/04 Q1014 BECMG BKN045=  ## [A] Orléans/Bricy, Orléans-Bricy (BA 123) Air Base
197091 2022-11-27 18:00   8 FR FR-G   XCR LFOK 271700Z AUTO 17009KT 9999 FEW025 BKN060 OVC070 08/05 Q1016 NOSIG=  ## [A] Vatry, Châlons-Vatry Airport
197096 2022-11-25 07:30   6 FR FR-Q   URO LFOP 250630Z AUTO 21009KT 9999 SCT028 BKN033 06/05 Q1014 NOSIG=  ## [A] Rouen/Vallée de Seine, Rouen Airport
197100 2022-11-27 18:00  11 FR FR-F   TUF LFOT 271700Z AUTO 18006KT 9999 OVC032/// ///TCU 11/06 Q1014 BECMG BKN040=  ## [A] Tours/Val de Loire (Loire Valley), Tours-Val-de-Loire Airport
197102 2022-11-27 18:00  10 FR FR-R   LVA LFOV 271700Z AUTO 19011KT 9999 RA BKN010/// OVC015/// ///TCU 10/08 Q1013=  ## [A] Laval/Entrammes, Laval-Entrammes Airport
197106 2022-11-27 18:00   9 FR FR-F   --- LFOZ 271700Z AUTO 15004KT 9999 FEW025/// BKN100/// BKN200/// ///TCU 09/05 Q1015=  ## [A] Saint-Denis-de-l'Hôtel, Orléans-Saint-Denis-de-l'Hôtel Airport
197108 2022-11-27 18:00  10 FR FR-J   LBG LFPB 271700Z AUTO 20006KT 9999 FEW023/// OVC049/// ///TCU 10/06 Q1015 TEMPO BKN013=  ## [A] Paris, Paris-Le Bourget Airport
197113 2022-11-27 18:00   9 FR FR-J   CDG LFPG 271700Z 18005KT 150V210 9999 -RA SCT016 BKN046 BKN060 09/05 Q1015 NOSIG=  ## [N] Paris, Charles de Gaulle International Airport
197119 2022-11-27 18:00   9 FR FR-J   --- LFPM 271700Z AUTO 16006KT 9999 FEW017 BKN058 OVC100 09/04 Q1015=  ## [A] Melun/Villaroche, Melun-Villaroche Air Base
197120 2022-11-27 18:00   9 FR FR-J   TNF LFPN 271700Z AUTO 19007KT 9999 FEW016/// BKN058/// OVC076/// ///TCU 09/05 Q1014 TEMPO BKN012=  ## [A] Toussus-le-Noble, Toussus-le-Noble Airport
197121 2022-11-27 18:00  10 FR FR-J   ORY LFPO 271700Z 20006KT 9999 FEW020 BKN066 10/05 Q1014 NOSIG=  ## [A] Paris, Paris-Orly Airport
197126 2022-11-27 18:00   8 FR FR-J   POX LFPT 271700Z AUTO 15002KT 9999 -RA FEW016/// SCT031/// BKN049/// ///TCU 08/07 Q1014=  ## [A] Cormeilles-en-Vexin, Pontoise - Cormeilles-en-Vexin Airport
197128 2022-11-27 18:00   9 FR FR-J   VIY LFPV 271700Z AUTO 21004KT 180V240 9999 BKN014/// BKN023/// BKN037/// ///TCU 09/05 Q1014 BECMG SCT020 BKN050=  ## [A] Villacoublay/Vélizy, Villacoublay-Vélizy (BA 107) Air Base
197133 2022-11-27 18:00   9 FR FR-G   --- LFQA 271700Z AUTO 12008KT 9999 OVC043 09/06 Q1015=  ## [A] Reims/Prunay, Reims-Prunay Airport
197134 2022-11-27 18:00   9 FR FR-G   --- LFQB 271700Z AUTO 11004KT 080V160 9999 SCT030/// OVC039/// //////TCU 09/05 Q1016=  ## [A] Troyes/Barberey, Troyes-Barberey Airport
197139 2022-11-27 18:00   8 FR FR-D   NVS LFQG 271700Z AUTO 13006KT CAVOK 08/04 Q1016=  ## [A] Nevers/Fourchambault, Nevers-Fourchambault Airport
197149 2022-11-27 18:00   7 FR FR-O   LIL LFQQ 271700Z AUTO 17012KT 9999 -RA BKN009/// OVC014/// ///TCU 07/06 Q1012 TEMPO RA SCT012 BKN020=  ## [A] Lille/Lesquin, Lille-Lesquin Airport
197160 2022-11-27 18:00  10 FR FR-E   BES LFRB 271700Z AUTO 22004KT CAVOK 10/09 Q1012 TEMPO VRB15G25KT 3000 SHRA BKN008 BKN015TCU=  ## [A] Brest/Guipavas, Brest Bretagne Airport
197161 2022-11-27 18:00  10 FR FR-P   CER LFRC 271700Z AUTO 26004KT 9999 RA FEW009/// SCT017/// BKN072/// ///TCU 10/10 Q1011 TEMPO 1200 RA BKN002 BKN015CB=  ## [A] Cherbourg/Maupertus, Cherbourg-Maupertus Airport
197162 2022-11-27 18:00  11 FR FR-E   DNR LFRD 271700Z AUTO 18001KT 9999 -RA FEW017/// BKN068/// BKN078/// //////TCU 11/11 Q1011 TEMPO 1200 RA BKN015CB=  ## [A] Dinard/Pleurtuit/Saint-Malo, Dinard-Pleurtuit-Saint-Malo Airport
197165 2022-11-27 18:00  10 FR FR-P   DOL LFRG 271700Z AUTO 18012KT 9999 -RA BKN007/// BKN014/// BKN078/// ///TCU 10/10 Q1011 TEMPO 1200 RADZ BKN015CB=  ## [A] Deauville, Deauville-Saint-Gatien Airport
197166 2022-11-27 18:00  12 FR FR-E   LRT LFRH 271700Z AUTO 27008KT 9999 FEW040 BKN048 OVC054 12/11 Q1013 NOSIG=  ## [A] Lorient/Lann/Bihoué, Lorient South Brittany (Bretagne Sud) Airport
197167 2022-11-27 18:00  10 FR FR-R   EDM LFRI 271700Z AUTO 20007KT 160V260 5000 +RA BR OVC012/// ///CB 10/09 Q1015 TEMPO 2800 RA OVC002=  ## [A] La Roche-sur-Yon/Les Ajoncs, La Roche-sur-Yon Airport
197168 2022-11-27 18:00  10 FR FR-E   LDV LFRJ 271700Z AUTO 22008KT 9999 FEW039 OVC240 10/10 Q1012=  ## [A] Landivisiau, Landivisiau Air Base
197169 2022-11-27 18:00  11 FR FR-P   CFR LFRK 271700Z AUTO 19008KT 9999 -RA FEW004 OVC054 11/10 Q1011 TEMPO 1200 RA BKN004 BKN015CB=  ## [A] Caen/Carpiquet, Caen-Carpiquet Airport
197170 2022-11-27 18:00  11 FR FR-E   --- LFRL 271700Z AUTO 25004KT 9000 BKN017 BKN023 BKN029 11/10 Q1013=  ## [A] Lanvéoc/Poulmic, Lanvéoc-Poulmic Air Base
197171 2022-11-27 18:00  10 FR FR-R   LME LFRM 271700Z AUTO 16004KT 110V200 9999 -RA FEW048/// BKN070/// OVC086/// ///TCU 10/08 Q1014 TEMPO 4500 RA BKN005 BKN040=  ## [A] Le Mans/Arnage, Le Mans-Arnage Airport
197172 2022-11-27 18:00  11 FR FR-E   RNS LFRN 271700Z AUTO 24004KT 150V280 9999 -RA FEW011/// SCT050/// BKN062/// //////TCU 11/09 Q1012 TEMPO 1200 RA BKN015CB=  ## [A] Rennes/Saint-Jacques, Rennes-Saint-Jacques Airport
197173 2022-11-27 18:00  11 FR FR-E   LAI LFRO 271700Z AUTO 24006KT 9000 FEW010 BKN043 OVC190 11/10 Q1012=  ## [A] Lannion, Lannion-Côte de Granit Airport
197175 2022-11-27 18:00  11 FR FR-E   UIP LFRQ 271700Z AUTO 26005KT 9000 FEW018 SCT200 OVC240 11/11 Q1013 TEMPO VRB15G25KT 3000 SHRA BKN008 BKN015TCU=  ## [A] Quimper/Pluguffan, Quimper-Cornouaille Airport
197177 2022-11-27 18:00  12 FR FR-R   NTE LFRS 271700Z AUTO 19006KT 6000 -RA OVC004/// ///TCU 12/12 Q1014 TEMPO 4500 RA BKN003 BKN040 BECMG 25010KT=  ## [A] Nantes, Nantes Atlantique Airport
197178 2022-11-27 18:00  11 FR FR-E   SBK LFRT 271700Z AUTO 25005KT 9999 SCT036 BKN048 BKN074 11/10 Q1012=  ## [A] Saint-Brieuc/Armor, Saint-Brieuc-Armor Airport
197179 2022-11-27 18:00  11 FR FR-E   MXN LFRU 271700Z AUTO 23005KT CAVOK 11/10 Q1012=  ## [A] Morlaix/Ploujean, Morlaix-Ploujean Airport
197180 2022-11-27 18:00  11 FR FR-E   VNE LFRV 271700Z AUTO VRB02KT 9999 OVC002 11/11 Q1013=  ## [A] Vannes/Meucon, Vannes-Meucon Airport
197184 2022-11-27 18:00  12 FR FR-R   SNR LFRZ 271700Z AUTO 30006KT 9999 -RA BKN008 BKN012 OVC072 12/11 Q1013 TEMPO 4500 RA BKN004 BKN040=  ## [A] Saint-Nazaire/Montoir, Saint-Nazaire-Montoir Airport
197186 2022-11-27 18:00   7 FR FR-A   BSL LFSB 271700Z AUTO 13008KT CAVOK 07/03 Q1019 NOSIG=  ## [A] Bâle/Mulhouse, EuroAirport Basel-Mulhouse-Freiburg Airport
197188 2022-11-27 18:00   5 FR FR-D   DIJ LFSD 271700Z AUTO 00000KT 8000 NSC 05/04 Q1018=  ## [A] Dijon/Longvic, Dijon-Bourgogne Airport
197191 2022-11-27 18:00   6 FR FR-M   EPL LFSG 271700Z AUTO 20003KT CAVOK 06/03 Q1018=  ## [A] Épinal/Mirecourt, Épinal-Mirecourt Airport
197193 2022-11-27 18:00   7 FR FR-G   --- LFSI 271700Z AUTO 09005KT CAVOK 07/03 Q1016=  ## [A] Saint-Dizier/Robinson, Saint-Dizier-Robinson (BA 113) Air Base
197196 2022-11-27 18:00  10 FR FR-M   --- LFSL 271700Z AUTO 15006KT CAVOK 10/04 Q1017 NOSIG=  ## [A] St Dizier, Toul Rosières Air Base
197197 2022-11-27 18:00   6 FR FR-I   --- LFSM 271700Z AUTO VRB01KT CAVOK 06/05 Q1019=  ## [A] Montbéliard/Courcelles, Montbéliard-Courcelles Airfield
197198 2022-11-27 18:00   8 FR FR-M   ENC LFSN 271700Z AUTO 15005KT CAVOK 08/04 Q1017=  ## [A] Nancy/Essey, Nancy-Essey Airport
197199 2022-11-27 18:00   7 FR FR-M   --- LFSO 271700Z AUTO 16007KT CAVOK 07/03 Q1017=  ## [A] Nancy/Ochey, Nancy-Ochey (BA 133) Air Base
197204 2022-11-27 18:00   6 FR FR-A   SXB LFST 271700Z AUTO VRB03KT CAVOK 06/05 Q1019 TEMPO 2500 BR BKN003=  ## [A] Strasbourg, Strasbourg Airport
197208 2022-11-27 18:00   7 FR FR-I   --- LFSX 271700Z AUTO 11005KT CAVOK 07/05 Q1018=  ## [A] Luxeuil/Saint-Sauveur, Luxeuil-Saint-Sauveur (BA 116) Air Base
197218 2022-11-27 18:00  10 FR FR-U   TLN LFTH 271700Z AUTO 02003KT CAVOK 10/07 Q1023 NOSIG=  ## [A] Toulon/Hyères/Le Palyvestre, Toulon-Hyères Airport
197233 2022-11-27 18:00  11 FR FR-K   FNI LFTW 271700Z AUTO 12006KT 9999 FEW038 BKN047 11/09 Q1022 NOSIG=  ## [A] Nîmes/Garons, Nîmes-Arles-Camargue Airport
------ Saint-Pierre och Miquelon:
197278 2022-11-27 18:00   7 PM PM-SP  FSP LFVP 271700Z AUTO 36021KT CAVOK 07/04 Q0997 BECMG 29015KT=  ## [A] Saint-Pierre, St Pierre Airport
------ Frankrike:
197358 2022-11-27 18:00  10 FR FR-F   --- LFYR 271700Z AUTO 17003KT 140V200 9999 SCT038/// BKN052/// BKN064/// //////CB 10/06 Q1015=  ## [A] , Romorantin Pruniers Airfield
------ Grekland:
197396 2022-11-27 17:50  10 GR GR-14  PYR LGAD 271650Z 00000KT 9999 FEW020 BKN080 10/06 Q1015=  ## [A] Andravida, Andravida Air Base
197404 2022-11-27 17:50   9 GR GR-71  AXD LGAL 271650Z 04010KT 9999 FEW025 09/01 Q1023=  ## [A] Alexandroupolis, Dimokritos Airport
197414 2022-11-27 18:20  12 GR GR-A1  ATH LGAV 271720Z 01014KT 9999 SCT030 BKN070 12/04 Q1019 NOSIG=  ## [A] Athens, Eleftherios Venizelos International Airport
197430 2022-11-27 17:50  10 GR GR-43  VOL LGBL 271650Z 00000KT 9999 BKN025 OVC070 10/07 Q1022=  ## [A] Nea Anchialos, Nea Anchialos Airport
197508 2022-11-27 17:50  12 GR GR-A1  --- LGEL 271650Z 31006KT 9999 FEW020 SCT030 12/04 Q1019=  ## [A] Elefsina, Elefsis Airport
197583 2022-11-27 17:50  13 GR GR-85  JKH LGHI 271650Z 35012KT 9999 FEW025 13/07 Q1017=  ## [A] Chios Island, Chios Island National Airport
197615 2022-11-27 17:50   9 GR GR-33  IOA LGIO 271650Z 03004KT 9999 -RA FEW035 OVC090 09/01 Q1018=  ## [A] Ioannina, Ioannina Airport
197618 2022-11-27 18:20  12 GR GR-91  HER LGIR 271720Z 17005KT 9999 SCT020 BKN080 12/09 Q1015 NOSIG=  ## [A] Heraklion, Heraklion International Nikos Kazantzakis Airport
197655 2022-11-27 16:50  11 GR GR-A1  KIT LGKC 271550Z 05018G28KT 9999 FEW016 BKN025 11/10 Q1016=  ## [A] Kithira Island, Kithira Airport
197658 2022-11-27 17:50  14 GR GR-23  EFL LGKF 271650Z 02006KT 9999 FEW020 14/04 Q1015=  ## [A] Kefallinia Island, Kefallinia Airport
197664 2022-11-27 17:50  14 GR GR-17  KLX LGKL 271650Z 34011KT 9999 FEW030 SCT080 14/04 Q1014=  ## [A] Kalamata, Kalamata Airport
197667 2022-11-27 17:50  14 GR GR-81  KGS LGKO 271650Z VRB02KT 9999 SCT016 14/08 Q1016=  ## [A] Kos Island, Kos Airport
197668 2022-11-27 17:50  17 GR GR-81  AOK LGKP 271650Z 11006KT CAVOK 17/10 Q1015=  ## [A] Karpathos Island, Karpathos Airport
197670 2022-11-27 18:20  14 GR GR-22  CFU LGKR 271720Z 00000KT 9999 FEW020 BKN080 14/05 Q1017 NOSIG=  ## [A] Kerkyra Island, Ioannis Kapodistrias International Airport
197674 2022-11-27 17:50   9 GR GR-55  KVA LGKV 271650Z 08008KT 9999 FEW018 BKN080 09/02 Q1023=  ## [A] Kavala, Alexander the Great International Airport
197678 2022-11-27 17:50   2 GR GR-58  KZI LGKZ 271650Z AUTO 36008KT 320V020 //// -RASN ////// 02/01 Q1022 RE//=  ## [A] Kozani, Filippos Airport
197691 2022-11-27 17:50   9 GR GR-83  LXS LGLM 271650Z 05014G24KT 9999 SCT015 09/01 Q1021=  ## [A] Limnos Island, Limnos Airport
197715 2022-11-27 17:50  13 GR GR-82  JMK LGMK 271650Z 01017KT 9999 SCT025 13/07 Q1017=  ## [A] Mykonos Island, Mikonos Airport
197724 2022-11-27 17:50  13 GR GR-83  MJT LGMT 271650Z VRB03KT 9999 FEW025 13/08 Q1020=  ## [A] Mytilene, Mytilene International Airport
197754 2022-11-27 12:50  16 GR GR-82  JNX LGNX 271150Z 02011KT 9999 FEW025 SCT030 16/08 Q1017=  ## [A] Naxos Island, Naxos Airport
197783 2022-11-27 17:50  14 GR GR-82  PAS LGPA 271650Z AUTO 03017KT //// // ////// 14/07 Q1016 RE//=  ## [A] Paros Island, Paros National Airport
197808 2022-11-27 17:50  13 GR GR-34  PVK LGPZ 271650Z 04012KT 9999 FEW018 BKN080 13/05 Q1017=  ## [A] Preveza/Lefkada, Aktion National Airport
197850 2022-11-27 18:20  17 GR GR-81  RHO LGRP 271720Z VRB01KT 9999 -DZ SCT018 BKN020 17/13 Q1015 NOSIG=  ## [A] Rodes Island, Diagoras Airport
197858 2022-11-27 17:50  13 GR GR-13  GPA LGRX 271650Z 10006KT 9999 FEW018 SCT090 13/03 Q1015=  ## [A] Patras, Araxos Airport
197861 2022-11-27 17:50  15 GR GR-94  CHQ LGSA 271650Z 05010KT 9999 SCT025 BKN100 15/10 Q1014=  ## [A] Souda, Chania International Airport
197871 2022-11-26 15:20  14 GR GR-43  JSI LGSK 261420Z 33004KT 9999 SCT025 14/08 Q1021=  ## [A] Skiathos, Skiathos Island National Airport
197873 2022-11-27 17:50  12 GR GR-84  SMI LGSM 271650Z VRB03KT 9999 FEW030 12/06 Q1017=  ## [A] Samos Island, Samos Airport
197875 2022-11-27 17:50  14 GR GR-82  JSY LGSO 271650Z AUTO 01020KT //// -RA ////// 14/08 Q1017 RE//=  ## [A] Syros Island, Syros Airport
197878 2022-11-27 17:50  14 GR GR-82  JTR LGSR 271650Z 07010KT 9999 SCT025 14/10 Q1015 RMK BKN080 BLU=  ## [A] Santorini Island, Santorini Airport
197885 2022-11-04 08:11  18 GR GR-04  SKU LGSY 040711Z 00000KT 7000 BKN012 18/17 Q1017=  ## [A] Skiros Island, Skiros Airport
197905 2022-11-27 17:50   9 GR GR-54  SKG LGTS 271650Z 00000KT 9999 SCT025 09/02 Q1024 NOSIG=  ## [A] Thessaloniki, Thessaloniki Macedonia International Airport
198043 2022-11-27 17:50  15 GR GR-21  ZTH LGZA 271650Z 03008KT 9999 FEW020 BKN070 15/07 Q1015=  ## [A] Zakynthos Island, Zakynthos International Airport "Dionysios Solomos"
------ Ungern:
198097 2021-03-31 07:45  10 HU HU-BE  --- LHBC 310545Z VRB02KT CAVOK 10/05 Q1027=  ## [A] Békéscsaba, Békéscsaba Airfield
198110 2022-11-27 18:00   5 HU HU-PE  BUD LHBP 271700Z 09004KT 6000 BKN004 OVC006 05/04 Q1027 TEMPO 4000 BR=  ## [A] Budapest, Budapest Liszt Ferenc International Airport
198149 2022-11-27 17:45   5 HU HU-HB  DEB LHDC 271645Z AUTO 07002KT 6000 FEW013 BKN089 05/03 Q1028 NOSIG=  ## [A] Debrecen, Debrecen International Airport
198333 2022-11-27 17:45   5 HU HU-BK  --- LHKE 271645Z 11004KT 1200 BR OVC002 05/05 Q1028 BECMG 0800 RMK AMB=  ## [A] Kecskemét, Kecskemét Airport
198459 2022-11-27 17:45   4 HU HU-VE  --- LHPA 271645Z 09006KT 9999 FEW027 04/03 Q1027 NOSIG RMK BLU=  ## [A] Pápa, Pápa Air Base
198474 2022-11-27 17:45   6 HU HU-BA  PEV LHPP 271645Z AUTO 07004KT 9999 FEW011 OVC026 06/04 Q1027=  ## [A] Pécs-Pogány, Pécs-Pogány Airport
198476 2022-11-27 17:45   3 HU HU-GS  --- LHPR 271645Z AUTO 10004KT 6000 BKN009 03/03 Q1027 NOSIG=  ## [A] Gy?r, Gy?r-Pér International Airport
198549 2022-11-27 17:45   5 HU HU-ZA  SOB LHSM 271645Z AUTO 06006KT 9000 SCT031 05/05 Q1027=  ## [A] Sármellék, Sármellék International Airport
198550 2022-11-27 17:45   5 HU HU-JN  --- LHSN 271645Z 02002KT 3000 BR OVC009 05/05 Q1028 BECMG OVC010 RMK YLO=  ## [A] Szolnok, Szolnok Air Base
198592 2019-07-04 00:45  19 HU HU-CS  --- LHUD 032245Z 33007KT CAVOK 19/14 Q1018=  ## [A] Szeged, Szeged Airfield
------ Italien:
198771 2022-11-27 17:55  10 IT IT-75  --- LIBA 271655Z 28008KT 9999 FEW030 10/08 Q1022 RMK FEW VIS MIN 9999 WIND THR11 27007KT WIND THR29 /////KT BLU=  ## [A] Foggia, Amendola Air Base
198773 2022-11-27 17:50  11 IT IT-78  CRV LIBC 271650Z 34008KT 9999 SCT040 11/08 Q1019=  ## [H] Crotone, Crotone Airport
198774 2022-11-27 17:50   8 IT IT-75  BRI LIBD 271650Z 25006KT CAVOK 08/07 Q1021=  ## [H] Bari, Bari Karol Wojty?a Airport
198775 2022-11-27 17:55   5               LIBE 271655Z 35015KT 9999 SCT012 05/02 Q1019 RMK SCT MON LIB VAL NIL VIS MIN 9999=  ## [H]
198776 2022-11-27 17:50   9 IT IT-75  FOG LIBF 271650Z 33007KT 9999 FEW030 SCT060 09/07 Q1022=  ## [H] Foggia, Foggia "Gino Lisa" Airport
198777 2022-11-27 17:50  10 IT IT-75  TAR LIBG 271650Z 34006KT CAVOK 10/06 Q1020=  ## [H] Grottaglie, Taranto-Grottaglie "Marcello Arlotta" Airport
198778 2022-11-27 17:55  13 IT IT-75  --- LIBH 271655Z 32004KT 260V350 CAVOK 13/09 Q1020 RMK BKN SCT070 SCT100 QUK / QUL / VIS MAR 25 KM VIS MIN 9999=  ## [H] Marina di Ginosa, Marina di Ginosa Heliport
198784 2022-11-27 17:55   9 IT IT-75  LCC LIBN 271655Z 34006KT CAVOK 09/06 Q1018 RMK FEW FEW120 VIS MIN 9999 WIND THR14 33005KT WIND THR32 33006KT BLU=  ## [H] , Lecce Galatina Air Base
198786 2022-11-27 17:50  10 IT IT-65  PSR LIBP 271650Z AUTO 22005KT 9999 -RA OVC044/// 10/08 Q1024=  ## [H] Pescara, Pescara International Airport
198787 2022-11-27 17:55   0               LIBQ 271655Z AUTO /////KT //// 00/M00 Q1018=  ## [H]
198788 2022-11-27 17:50  14 IT IT-75  BDS LIBR 271650Z 03014KT CAVOK 14/06 Q1019=  ## [H] Brindisi, Brindisi ? Salento Airport
198789 2022-11-27 17:55   6               LIBS 271655Z 33005KT 9999 BKN020 06/06 Q1021 RMK BKN MON INVIS VAR RAPID VIS MIN 9999=  ## [H]
198790 2022-11-27 17:55  14               LIBT 271655Z 34014KT 9999 FEW030 14/11 Q1022 RMK SCT QUK / QUL / VIS MAR 25 KM VIS MIN 9999=  ## [H]
198791 2022-11-25 11:55  11               LIBU 251055Z 24002KT CAVOK 11/04 Q1020 RMK BKN BKN070 MON LIB VAL NIL VIS MIN 9999=  ## [H]
198792 2022-11-27 17:55   9 IT IT-75  --- LIBV 271655Z 34007KT 9000 FEW040 09/07 Q1019=  ## [A] Gioia Del Colle (BA), Gioia Del Colle Air Base
198793 2022-11-27 17:55   9               LIBW 271655Z 04013KT 9999 FEW020 09/06 Q1018 RMK FEW QUK / QUL / VIS MAR 20 KM MON CLD CIME VAL NIL VIS MIN 9999=  ## [H]
198795 2022-11-27 17:55  13               LIBY 271655Z ///04KT CAVOK 13/10 Q1017 RMK SKC QUK / QUL / VIS MAR 15 KM VIS MIN 9999=  ## [H]
198797 2022-11-27 17:50  12 IT IT-78  SUF LICA 271650Z AUTO 01007KT 9999 BKN071/// OVC130/// 12/08 Q1019=  ## [H] Lamezia Terme (CZ), Lamezia Terme Airport
198798 2022-11-27 17:50  13 IT IT-82  CIY LICB 271650Z AUTO 04019KT 9999 BKN100/// 13/07 Q1015=  ## [H] Comiso, Comiso Airport
198799 2022-11-27 17:50  16 IT IT-82  CTA LICC 271650Z 07019KT 9999 BKN070 16/14 Q1017=  ## [N] Catania, Catania-Fontanarossa Airport
198800 2022-11-27 17:50  18 IT IT-82  LMP LICD 271650Z AUTO 04031KT 9999 OVC029/// 18/13 Q1014=  ## [H] Lampedusa, Lampedusa Airport
198801 2022-11-27 17:55   8               LICE 271655Z ///06KT 9999 FEW005 08/07 Q1015 RMK BKN SCT070 MON CIME INC NC VAL NIL NC VIS MIN 9999=  ## [H]
198802 2022-11-27 17:55  14               LICF 271655Z 35005KT 9999 SCT040 14/08 Q1017 RMK OVC OVC090 QUK / QUL / VIS MAR 20 KM MON INVIS VAR RAPID VIS MIN 9999=  ## [H]
198803 2022-11-27 17:50  16 IT IT-82  PNL LICG 271650Z 02014KT 9999 FEW020 16/11 Q1018=  ## [H] Pantelleria (TP), Pantelleria Airport
198806 2022-11-27 17:50  16 IT IT-82  PMO LICJ 271650Z 05009KT 9999 FEW030 16/11 Q1018=  ## [H] Palermo, Falcone?Borsellino Airport
198808 2022-11-27 17:55  14 IT IT-82  --- LICL 271655Z 06013KT 9999 SCT030 14/11 Q1015 RMK BKN BKN080 QUK / QUL / VIS MAR 10 KM VIS MIN 9999=  ## [H] Gela, Aviosuperficie Airone
198811 2022-11-27 17:55  14               LICO 271655Z 04029G39KT 6000 SCT010 BKN020 14/13 Q1012 RMK OVC QUK / QUL / VIS MAR 6 KM VIS MIN 6000=  ## [H]
198814 2022-11-27 17:50  14 IT IT-78  REG LICR 271650Z AUTO 01006KT 330V030 9999 -RA FEW071/// OVC093/// 14/10 Q1018=  ## [H] Reggio Calabria, Reggio Calabria Airport
198816 2022-11-27 17:55  15 IT IT-82  TPS LICT 271655Z 03005KT 9999 FEW028 15/13 Q1018 RMK BKN SCT060 VIS MIN 9999 WIND THR13 04011KT BLU=  ## [H] Trapani (TP), Vincenzo Florio Airport Trapani-Birgi
198817 2022-11-27 16:55  15               LICU 271555Z /////KT 9999 FEW016 15/11 Q1019 RMK BKN QUK 3 QUL 2 SW VIS MAR 20 KM VIS MIN 9999=  ## [H]
198820 2022-11-25 19:55   9               LICX 251855Z 18006KT CAVOK 09/01 Q1019 RMK SCT SCT080 MON LIB NC VAL NIL NC VIS MIN 9999=  ## [H]
198822 2022-11-27 17:55  16 IT IT-82  NSY LICZ 271655Z /////KT 8000 -RA BKN065 16/09 Q1016=  ## [A] Sigonella (CT), Sigonella Navy Air Base
198849 2022-11-27 17:50  11 IT IT-88  AHO LIEA 271650Z 03004KT CAVOK 11/06 Q1022=  ## [H] Alghero, Alghero-Fertilia Airport
198850 2022-11-27 17:55  14               LIEB 271655Z 03020KT 9999 FEW040 14/09 Q1021 RMK SCT SCT200 QUK / QUL / VIS MAR 20 KM MON INVIS VIS MIN 9999=  ## [H]
198851 2022-11-27 17:55  12               LIEC 271655Z 05010KT 9999 FEW022 12/08 Q1021 RMK BKN SCT200 QUK / QUL / VIS MAR 20 KM VIS MIN 9999=  ## [H]
198852 2022-11-27 17:55  13 IT IT-88  DCI LIED 271655Z 30002KT CAVOK 13/07 Q1021 RMK SCT SCT200 VIS MIN 9999 WIND THR35 /////KT WIND THR17 34002KT BLU=  ## [H] Decimomannu, Decimomannu Air Base
198853 2022-11-27 17:50  13 IT IT-88  CAG LIEE 271650Z AUTO 11003KT 070V140 9999 NCD 13/07 Q1022=  ## [H] Cagliari, Cagliari Elmas Airport
198854 2022-11-25 18:55  15               LIEF 251755Z 27003KT 8000 -RA FEW015CB BKN020 15/15 Q1017 RMK OVC QUK / QUL / VIS MAR 8 KM VIS MIN 8000=  ## [H]
198856 2022-11-27 17:55  12               LIEH 271655Z 03007KT CAVOK 12/08 Q1022 RMK FEW FEW200 QUK / QUL / VIS MAR 20 KM VIS MIN 9999=  ## [H]
198860 2022-11-25 11:55  21               LIEL 251055Z 27005KT CAVOK 21/11 Q1019 RMK BKN BKN200 VIS MAR 20 KM MON LIB VIS MIN 9999=  ## [H]
198863 2022-11-27 17:50  11 IT IT-88  OLB LIEO 271650Z 27004KT 240V300 CAVOK 11/07 Q1023=  ## [H] Olbia (SS), Olbia Costa Smeralda Airport
198864 2022-11-25 18:55  12               LIEP 251755Z 26006KT 9999 -RA SCT015 BKN023 12/11 Q1016 RMK OVC VIS MIN 9999=  ## [H]
198871 2022-11-27 17:55 XXX               LIEW 271655Z AUTO 35018KT //// ///// Q////=  ## [H]
199057 2022-11-27 16:50   9 IT IT-21  --- LIMA 271550Z VRB01KT CAVOK 09/02 Q1025=  ## [A] Torino, Torino-Aeritalia Airport
199059 2022-11-27 17:50   7 IT IT-25  MXP LIMC 271650Z VRB01KT CAVOK 07/03 Q1025 NOSIG=  ## [N] Milan, Malpensa International Airport
199061 2022-11-27 17:50   7 IT IT-25  BGY LIME 271650Z 36003KT 9999 SCT045 07/04 Q1025 NOSIG=  ## [H] Bergamo, Il Caravaggio International Airport
199062 2022-11-27 17:50   8 IT IT-21  TRN LIMF 271650Z 05002KT CAVOK 08/02 Q1025=  ## [H] Torino, Turin Airport
199063 2022-11-27 17:50   9 IT IT-42  ALL LIMG 271650Z VRB02KT CAVOK 09/04 Q1024=  ## [H] Albenga (SV), Villanova D'Albenga International Airport
199064 2022-11-27 17:55  -3               LIMH 271655Z AUTO 30002KT //// M03/M08 Q1023=  ## [H]
199066 2022-11-27 17:50  11 IT IT-42  GOA LIMJ 271650Z 03015KT CAVOK 11/03 Q1023=  ## [H] Genova, Genoa Cristoforo Colombo Airport
199067 2022-11-27 17:55   7               LIMK 271655Z 00000KT CAVOK 07/02 Q1023=  ## [A]
199068 2022-11-27 17:50   6 IT IT-25  LIN LIML 271650Z VRB01KT CAVOK 06/04 Q1025 NOSIG=  ## [H] Milan, Milano Linate Airport
199070 2022-11-25 18:55   5 IT IT-21  --- LIMN 251755Z /////KT 2500 BR NSC 05/05 Q1019=  ## [A] Cameri (NO), Cameri Air Base [MIL]
199072 2022-11-27 17:50   6 IT IT-45  PMF LIMP 271650Z VRB01KT CAVOK 06/05 Q1025=  ## [H] Parma, Parma Airport
199075 2022-11-27 17:55   6 IT IT-45  --- LIMS 271655Z 23002KT 4500 BR NSC 06/06 Q1024 RMK FEW FEW200 VIS MIN 4500 WIND THR30 23004KT GRN=  ## [H] Piacenza, Piacenza San Damiano Air Base
199076 2019-09-23 13:55  10               LIMT 231155Z 00000KT 0000 FG VV/// 10/10 Q1014 RMK MON INVIS VAL INVIS VIS MIN 0000=  ## [H]
199077 2022-11-27 17:55  12               LIMU 271655Z ///02KT CAVOK 12/04 Q1024=  ## [A]
199078 2022-11-26 18:55   7               LIMV 261755Z /////KT CAVOK 07/04 Q1026=  ## [A]
199079 2022-11-27 16:50   5 IT IT-23  AOT LIMW 271550Z AUTO 00000KT 9999 OVC140/// 05/M04 Q1025=  ## [A] Aosta, Aosta Airport
199081 2022-11-25 18:55   8               LIMY 251755Z 21006KT CAVOK 08/02 Q1018=  ## [A]
199082 2022-11-27 17:50   6 IT IT-21  CUF LIMZ 271650Z AUTO 28002KT 9999 OVC160/// 06/03 Q1024=  ## [H] Cuneo, Cuneo International Airport
199135 2022-11-26 19:55   5 IT IT-36  AVB LIPA 261855Z 01005KT CAVOK 05/02 Q1027 RMK SKC VIS MIN 9999 WIND THR05 /////KT WIND THR23 /////KT A3035 BLU=  ## [H] Aviano (PN), Aviano Air Base
199136 2022-11-27 17:50   2 IT IT-32  BZO LIPB 271650Z 35002KT CAVOK 02/M02 Q1026=  ## [H] Bolzano, Bolzano Airport
199137 2022-11-27 17:55   8 IT IT-45  --- LIPC 271655Z 26006KT CAVOK 08/06 Q1025 RMK SKC VIS MIN 9999 WIND THR11 26005KT WIND THR29 25006KT BLU=  ## [H] Cervia, Cervia Air Base
199139 2022-11-27 17:50   6 IT IT-45  BLQ LIPE 271650Z VRB01KT CAVOK 06/05 Q1025=  ## [H] Bologna, Bologna Guglielmo Marconi Airport
199140 2022-11-27 17:55   5 IT IT-45  --- LIPF 271655Z VRB03KT 9000 FEW070 05/02 Q1026 RMK FEW VIS MIN 9000=  ## [H] Ferrara, Ferrara Airport
199142 2022-11-27 17:50   7 IT IT-34  TSF LIPH 271650Z VRB01KT CAVOK 07/02 Q1025=  ## [H] Treviso, Treviso-Sant'Angelo Airport
199143 2022-11-27 17:55   5 IT IT-36  --- LIPI 271655Z 33002KT CAVOK 05/02 Q1025 RMK FEW FEW200 VIS MIN 9999 WIND THR06 02001KT WIND THR24 34002KT BLU=  ## [H] Codroipo, Rivolto Air Base
199145 2022-11-27 17:50   7 IT IT-45  FRL LIPK 271650Z VRB02KT CAVOK 07/03 Q1025=  ## [H] Forlì (FC), Forlì Airport
199146 2022-11-27 17:55   8 IT IT-25  --- LIPL 271655Z 04002KT CAVOK 08/04 Q1024 RMK SCT SCT200 VIS MIN 9999 WIND THR31 02001KT WIND THR13 07001KT BLU=  ## [H] Ghedi, Ghedi Air Base
199149 2022-11-27 17:50   8 IT IT-25  VBS LIPO 271650Z AUTO 32002KT 9999 NCD 08/03 Q1025=  ## [H] Montichiari (BS), Brescia Airport
199151 2022-11-27 17:50   8 IT IT-36  TRS LIPQ 271650Z AUTO 06003KT 9999 NCD 08/M01 Q1025=  ## [H] Trieste, Trieste?Friuli Venezia Giulia Airport
199152 2022-11-27 17:50   8 IT IT-45  RMI LIPR 271650Z 29006KT 9999 FEW050 08/06 Q1025=  ## [H] Rimini, Federico Fellini International Airport
199153 2022-11-27 17:55   7 IT IT-34  --- LIPS 271655Z /////KT CAVOK 07/00 Q1026 RMK SKC VIS MIN 9999 WIND THR26 00000KT WIND THR08 00000KT BLU=  ## [H] Istrana, Istrana Air Base
199155 2022-11-27 15:50  12 IT IT-34  QPA LIPU 271450Z 08003KT 030V110 CAVOK 12/02 Q1026=  ## [H] Padova, Padova Airport
199158 2022-11-27 17:50   6 IT IT-34  VRN LIPX 271650Z 00000KT CAVOK 06/02 Q1025=  ## [H] Verona, Verona Villafranca Airport
199159 2022-11-27 17:50  12 IT IT-57  AOI LIPY 271650Z AUTO 36009KT 9999 FEW049/// 12/03 Q1024=  ## [H] Ancona, Ancona Falconara Airport
199160 2022-11-27 17:50   8 IT IT-34  VCE LIPZ 271650Z 30003KT 280V020 CAVOK 08/03 Q1025 NOSIG=  ## [H] Venice, Venice Marco Polo Airport
199162 2022-11-27 17:55   9 IT IT-52  --- LIQB 271655Z AUTO 05005KT //// 09/02 Q1024=  ## [H] Arezzo, Arezzo Airport
199163 2022-11-27 17:55  14               LIQC 271655Z 02004KT CAVOK 14/06 Q1018 RMK SKC QUK / QUL / VIS MAR 20 KM VIS MIN 9999=  ## [H]
199170 2022-11-27 17:55  12               LIQJ 271655Z AUTO 03006KT //// 12/03 Q1021=  ## [H]
199171 2022-11-27 17:55  12               LIQK 271655Z 35005KT CAVOK 12/06 Q1019 RMK SKC QUK / QUL / VIS MAR 20 KM VIS MIN 9999=  ## [H]
199174 2022-11-27 16:50  11 IT IT-62  QRT LIQN 271550Z 12007KT 9000 NSC 11/02 Q1022=  ## [H] Rieti, Rieti Airport
199175 2022-11-09 09:55 XXX               LIQO 090855Z AUTO /////KT //// ///// Q////=  ## [H]
199178 2020-02-28 10:55   8               LIQR 280955Z 21005KT CAVOK 08/M15 Q1015 RMK SKC MON LIB NC VAL NIL NC VIS MIN 9999=  ## [H]
199183 2022-11-25 13:55  12 IT IT-42  QLP LIQW 251255Z 30005KT 4000 -RA BR SCT010 BKN040 12/11 Q1018 RMK OVC VIS MIN 4000 WIND THR14 /////KT GRN=  ## [H] Sarzana (SP), Sarzana-Luni Air Base
199186 2022-11-27 17:55  13               LIQZ 271655Z VRB03KT 9999 FEW015 13/05 Q1021 RMK FEW QUK / QUL / VIS MAR 15 KM VIS MIN 9999=  ## [H]
199187 2022-11-27 17:50  12 IT IT-62  CIA LIRA 271650Z 03006KT CAVOK 12/04 Q1020=  ## [H] Rome, Ciampino?G. B. Pastine International Airport
199188 2022-11-27 17:55  11               LIRB 271655Z AUTO 02007KT 340V050 //// 11/04 Q1022=  ## [H]
199191 2022-11-27 17:55  11 IT IT-62  --- LIRE 271655Z 05004KT CAVOK 11/08 Q1020=  ## [A] Pomezia, Pratica Di Mare Air Base
199192 2022-11-27 17:50  12 IT IT-62  FCO LIRF 271650Z 01007KT CAVOK 12/05 Q1020 NOSIG=  ## [N] Rome, Leonardo da Vinci?Fiumicino Airport
199193 2022-11-25 18:55  12 IT IT-62  --- LIRG 251755Z 15004KT 120V180 9999 SCT020 BKN030 12/10 Q1017=  ## [A] Guidonia, Guidonia Air Base
199194 2022-11-25 18:55  11 IT IT-62  --- LIRH 251755Z 04004KT 4000 -RA BR SCT030 11/10 Q1018 RMK OVC BKN060 MON INVIS NC VIS MIN 4000 WIND THR16 07004KT GRN=  ## [H] Frosinone, Frosinone Air Base
199195 2022-11-27 16:50  14 IT IT-72  QSR LIRI 271550Z 05015KT CAVOK 14/05 Q1020=  ## [A] Salerno, Salerno Costa d'Amalfi Airport
199197 2022-11-27 17:55 XXX               LIRK 271655Z AUTO /////KT //// ///// Q////=  ## [H]
199198 2022-11-25 18:55  13 IT IT-62  QLT LIRL 251755Z 09002KT 8000 -RA SCT020 BKN040 13/12 Q1018 RMK OVC MON INVIS NC VIS MIN 8000 WIND THR12 /////KT WIND THR30 11002KT BLU=  ## [H] Latina, Latina Air Base
199199 2022-11-27 17:55  12 IT IT-72  --- LIRM 271655Z 02009KT CAVOK 12/M02 Q1020=  ## [A] Caserta, Grazzanise Air Base
199200 2022-11-27 17:50  11 IT IT-72  NAP LIRN 271650Z 03009KT CAVOK 11/04 Q1021 NOSIG=  ## [H] Nápoli, Naples International Airport
199202 2022-11-27 17:45  10 IT IT-52  PSA LIRP 271645Z 08005KT CAVOK 10/02 Q1023 NOSIG=  ## [A] Pisa, Pisa International Airport
199203 2022-11-27 17:50  11 IT IT-52  FLR LIRQ 271650Z 26003KT 200V310 CAVOK 11/02 Q1024=  ## [H] Firenze, Peretola Airport
199205 2022-11-27 17:55  12 IT IT-52  GRS LIRS 271655Z 01011KT CAVOK 12/07 Q1022 RMK FEW FEW200 VIS MIN 9999 WIND THR03 02009KT WIND THR21 03007KT BLU=  ## [H] Grosetto, Grosseto Air Base
199206 2022-11-27 17:55   4               LIRT 271655Z 02005KT 0000 FG VV/// 04/02 Q1021 RMK MON INVIS VAL INVIS VIS MIN 0000=  ## [H]
199207 2022-11-27 16:50  14 IT IT-62  --- LIRU 271550Z 36009KT CAVOK 14/06 Q1021=  ## [H] Roma, Urbe Airport
199208 2022-11-27 17:55   9 IT IT-62  --- LIRV 271655Z 04007KT CAVOK 09/02 Q1021 RMK SKC MON E SE LIB NC VIS MIN 9999 WIND THR04 /////KT BLU=  ## [H] Viterbo, Viterbo Airport
199210 2022-11-27 17:55   9               LIRX 271655Z 36005KT CAVOK 09/03 Q1021 RMK SKC VIS MIN 9999 VIS MAR 30 KM=  ## [H]
199211 2022-11-27 17:55  13               LIRY 271655Z AUTO VRB03KT //// 13/03 Q1022=  ## [H]
199212 2022-11-27 17:50   9 IT IT-55  PEG LIRZ 271650Z AUTO 01009KT 9999 NCD 09/04 Q1023=  ## [H] Perugia, Perugia San Francesco d'Assisi ? Umbria International Airport
199293 2022-11-27 17:55  -3               LIVC 271655Z AUTO VRB02KT //// M03/M08 Q1022=  ## [H]
199294 2022-11-27 17:55  -6 IT IT-32  --- LIVD 271655Z AUTO 23001KT //// M06/M07 Q1025=  ## [H] , Dobbiaco - Toblach Airport
199295 2022-11-27 17:55  -2               LIVE 271655Z 00000KT CAVOK M02/M11 Q1022 RMK SKC VIS MIN 9999=  ## [H]
199296 2022-11-27 17:55   6               LIVF 271655Z 00000KT 9999 FEW028 06/03 Q1023=  ## [A]
199303 2022-11-27 17:55  11               LIVM 271655Z AUTO 30003KT //// 11/06 Q1025=  ## [H]
199305 2022-11-25 18:55  -1               LIVO 251755Z 00000KT 0800 FG BKN050 M01/M03 Q1018=  ## [A]
199306 2022-11-27 17:55  -2               LIVP 271655Z 04007KT CAVOK M02/M24 Q1021=  ## [A]
199308 2022-11-27 17:55  -2               LIVR 271655Z 29004KT CAVOK M02/M15 Q1024 RMK SKC MON LIB VIS MIN 9999=  ## [A]
199310 2022-11-27 17:55  10               LIVT 271655Z AUTO 06007KT 010V100 //// 10/M00 Q1025=  ## [H]
------ Slovenien:
199477 2022-11-27 18:00   3 SI SI-009 --- LJCE 271700Z 00000KT CAVOK 03/01 Q1026 RMK BLU=  ## [A] Cerklje ob Krki, Cerklje Airport
199716 2022-11-27 18:00   0 SI SI-061 LJU LJLJ 271700Z VRB01KT 9999 MIFG SCT040 00/00 Q1026 NOSIG=  ## [A] Ljubljana, Ljubljana Jo?e Pu?nik Airport
199734 2022-11-27 18:00   1 SI SI-070 MBX LJMB 271700Z 01004KT CAVOK 01/M00 Q1026=  ## [A] , Maribor Airport
199836 2022-11-27 18:00   8 SI SI-090 POW LJPZ 271700Z 13005KT CAVOK 08/01 Q1025=  ## [A] Portoroz, Portoroz Airport
------ Tjeckien:
200170 2022-11-27 18:00   3 CZ CZ-ST  --- LKCV 271700Z 09004KT CAVOK 03/03 Q1025 NOSIG RMK BLU BLU=  ## [A] ?áslav, ?áslav Air Base
200358 2022-11-27 18:00   3 CZ CZ-PR  --- LKKB 271700Z 14004KT CAVOK 03/02 Q1025 NOSIG=  ## [A] Prague, Kbely Air Base
200367 2020-01-03 11:00  26               LKKK 031000Z 05005KT 9999 BKN020 SCT100 BKN300 26/19 Q1020=  ## [A]
200377 2022-11-27 17:00   4 CZ CZ-ZL  UHE LKKU 271600Z 04002KT CAVOK 04/02 Q1026=  ## [A] Uherské Hradi?t?, Kunovice Airport
200378 2022-11-27 18:00   0 CZ CZ-KA  KLV LKKV 271700Z 07003KT 9999 SCT009 M00/M02 Q1023=  ## [A] Karlovy Vary, Karlovy Vary International Airport
200396 2022-11-27 18:00   1 CZ CZ-PL  --- LKLN 271700Z AUTO VRB02KT 0300 FG VV003 01/00 Q1024=  ## [A] Plzen, Plze?-Lín? Airport
200428 2022-11-27 18:00   4 CZ CZ-MO  OSR LKMT 271700Z 06003KT 7000 NSC 04/02 Q1026 TEMPO 4500 BR=  ## [A] Ostrava, Ostrava Leos Janá?ek Airport
200435 2022-11-27 18:00   4 CZ CZ-VY  --- LKNA 271700Z 10003KT CAVOK 04/00 Q1025 NOSIG RMK BLU BLU=  ## [A] Nám???, Nám??? Air Base
200490 2022-11-27 18:00   3 CZ CZ-PA  PED LKPD 271700Z VRB02KT 9999 SCT044 03/02 Q1025 NOSIG RMK BLU BLU=  ## [A] Pardubice, Pardubice Airport
200504 2022-11-27 18:00   0 CZ CZ-PR  PRG LKPR 271700Z 16003KT 4800 BR NSC 00/00 Q1024 BECMG 2000 BR MIFG SCT002=  ## [A] Prague, Václav Havel Airport Prague
200592 2022-11-27 18:00   5 CZ CZ-JM  BRQ LKTB 271700Z 06005KT 9999 BKN040 05/01 Q1026 NOSIG=  ## [A] Brno, Brno-Tu?any Airport
200657 2022-11-25 15:00   7 CZ CZ-ST  VOD LKVO 251400Z 22004KT 9999 FEW007 07/04 Q1018=  ## [A] Vodochody, Vodochody Airport
------ Israel:
200805 2022-11-27 18:20  19 IL IL-M   TLV LLBG 271720Z 05005KT CAVOK 19/11 Q1012 NOSIG=  ## [A] Tel Aviv, Ben Gurion International Airport
200894 2022-11-27 17:50  20 IL IL-D   ETM LLER 271650Z 02015KT CAVOK 20/09 Q1012=  ## [A] Eilat, Ramon Airport
200955 2022-11-27 17:50  19 IL IL-HA  HFA LLHA 271650Z 12005KT CAVOK 19/09 Q1014=  ## [A] Haifa, Haifa International Airport
200982 2022-11-27 16:50  17 IL IL-Z   RPN LLIB 271550Z AUTO 07010KT CAVOK 17/07 Q1015=  ## [A] Rosh Pina, Ben Ya'akov Airport
201043 2020-11-17 06:00  23               LLKK 170500Z VRB02KT CAVOK 23/14 Q1017=  ## [A]
201244 2019-06-30 22:50  27 IL IL-TA  SDV LLSD 302050Z VRB03KT 9999 SCT017 27/23 Q1007=  ## [A] Tel Aviv, Sde Dov Airport
------ Malta:
201772 2022-11-27 18:15  15 MT MT-25  MLA LMML 271715Z 04026G42KT 9999 BKN010 BKN014 15/13 Q1013 NOSIG=  ## [A] Valletta, Malta International Airport
------ Österrike:
202814 2022-11-27 16:00 XXX AT AT-3   --- LOAN 271500Z VRB02KT CAVOK=  ## [A] Wiener Neustadt, Wiener Neustadt East Airport
202822 2022-11-27 16:00   6 AT AT-3   --- LOAV 271500Z VRB02KT CAVOK 06/03=  ## [A] Bad Vöslau, Vöslau Airport
202967 2021-08-26 17:20  13 AT AT-6   --- LOGK 261520Z AUTO 08004KT 6000 RA OVC042 13/12 Q1012=  ## [A] Kapfenberg, Kapfenberg Airport
202969 2021-08-26 17:20  11 AT AT-6   --- LOGM 261520Z AUTO 30003KT 9999 -RA FEW031 OVC049 11/08 Q1013=  ## [A] Mariazell, Mariazell Airport
203379 2022-11-27 17:50   2 AT AT-6   GRZ LOWG 271650Z AUTO 04002KT 9999 FEW070 02/M00 Q1026 NOSIG=  ## [A] Graz, Graz Airport
203381 2022-11-27 17:50   0 AT AT-7   INN LOWI 271650Z VRB02KT CAVOK 00/M03 Q1023 NOSIG=  ## [A] Innsbruck, Innsbruck Airport
203383 2022-11-27 17:50   1 AT AT-2   KLU LOWK 271650Z 06004KT 040V100 9999 OVC009 01/M00 Q1027 NOSIG=  ## [A] Klagenfurt am Wörthersee, Klagenfurt Airport
203384 2022-11-27 17:50   1 AT AT-4   LNZ LOWL 271650Z AUTO VRB02KT 7000 NSC 01/01 Q1024 NOSIG=  ## [A] Linz, Linz Hörsching Airport
203391 2022-11-27 17:50   2 AT AT-5   SZG LOWS 271650Z AUTO 16003KT 090V200 4500 BR FEW003 BKN004 02/02 Q1023 NOSIG=  ## [A] Salzburg, Salzburg Airport
203395 2022-11-27 17:50   4 AT AT-9   VIE LOWW 271650Z 12003KT 9999 FEW020 04/01 Q1026 NOSIG=  ## [N] Vienna, Vienna International Airport
203398 2021-08-26 17:20  14 AT AT-5   --- LOWZ 261520Z AUTO 04011KT 8000 -RA OVC038 14/12 Q1012=  ## [A] Zell Am See, Zell Am See Airport
203424 2022-11-27 17:50  -3 AT AT-6   --- LOXZ 271650Z VRB02KT 9999 FEW040 M03/M04 Q1025=  ## [A] Zeltweg, Hinterstoisser Air Base
------ Portugal:
203494 2022-11-25 18:00  17 PT PT-11  AVR LPAR 251700Z 36003KT 330V050 CAVOK 17/10 Q1027=  ## [A] Vila Franca de Xira, Alverca Air Base
203502 2022-11-27 18:00  18 PT PT-20  SMA LPAZ 271700Z 12013KT 9999 FEW020 18/14 Q1026=  ## [A] Vila do Porto, Santa Maria Airport
203512 2022-11-27 18:00  17 PT PT-02  BYJ LPBJ 271700Z 31005KT 290V350 CAVOK 17/11 Q1023=  ## [A] Beja, Beja Airport / Airbase
203547 2022-11-27 18:00  16 PT PT-11  CAT LPCS 271700Z 01005KT 350V050 9999 FEW006 16/16 Q1024=  ## [A] Cascais, Cascais Airport
203618 2022-11-27 18:00  17 PT PT-20  FLW LPFL 271700Z 16023KT 9999 VCSH BKN018 BKN030 17/14 Q1018=  ## [A] Santa Cruz das Flores, Flores Airport
203624 2022-11-27 18:00  17 PT PT-08  FAO LPFR 271700Z 27006KT CAVOK 17/13 Q1023=  ## [A] Faro, Faro Airport
203650 2021-05-09 19:00  18 PT PT-20  GRW LPGR 091700Z 30009KT 9999 FEW020 SCT042 18/11 Q1020 RMK WIND RWY09 31008KT 280V340=  ## [A] Santa Cruz da Graciosa, Graciosa Airport
203676 2022-11-27 18:00  18 PT PT-20  HOR LPHR 271700Z 13018KT 9999 FEW018 SCT030 BKN080 18/14 Q1023=  ## [A] Horta, Horta Airport
203763 2022-11-27 18:00  17 PT PT-20  TER LPLA 271700Z /////KT 9999 FEW022 BKN025 17/13 Q1024=  ## [A] Praia da Vitória, Lajes Airport
203789 2022-11-27 18:00  23 PT PT-30  FNC LPMA 271700Z 01008KT 330V050 9999 FEW016 23/13 Q1024=  ## [N] Funchal, Madeira Airport
203806 2022-11-27 18:00  16 PT PT-10  QLR LPMR 271700Z 28003KT 9999 FEW008 BKN040 16/15 Q1023=  ## [A] , Monte Real Air Base
203808 2022-11-27 18:00  15 PT PT-15  --- LPMT 271700Z 27008KT 4000 -RA BR SCT006 BKN011 15/15 Q1023=  ## [A] Montijo, Montijo Air Base
203862 2022-11-27 18:00  14 PT PT-01  --- LPOV 271700Z 31007KT 270V350 8000 -DZ SCT008 BKN015 14/13 Q1022=  ## [A] Ovar, Ovar Air Base
203870 2022-11-27 18:00  18 PT PT-20  PDL LPPD 271700Z 13014KT 9999 FEW025 18/12 Q1026=  ## [A] Ponta Delgada, João Paulo II Airport
203875 2021-05-09 19:00  18 PT PT-20  PIX LPPI 091700Z 30006KT 260V360 9999 FEW020 SCT034 18/10 Q1021 RMK WIND RWY09 32008KT RWY27 31008KT=  ## [A] Pico Island, Pico Airport
203884 2022-11-27 18:00  14 PT PT-13  OPO LPPR 271700Z 34012KT 9999 SCT022 OVC028 14/12 Q1023=  ## [A] Porto, Francisco de Sá Carneiro Airport
203885 2022-11-27 18:00  21 PT PT-30  PXO LPPS 271700Z VRB03KT CAVOK 21/13 Q1025=  ## [A] Vila Baleira, Porto Santo Airport
203886 2022-11-27 18:00  15 PT PT-11  LIS LPPT 271700Z 27005KT 240V300 9000 -SHRA FEW002 SCT006 15/15 Q1024=  ## [N] Lisbon, Humberto Delgado Airport (Lisbon Portela Airport)
203954 2021-05-09 19:00  18 PT PT-20  SJZ LPSJ 091700Z 28009KT 9999 FEW020 18/10 Q1020 RMK WIND RWY13 31008KT RWY31 30010KT=  ## [A] Velas, São Jorge Airport
203964 2022-11-25 18:00  16 PT PT-11  --- LPST 251700Z 12003KT 9999 FEW030 16/10 Q1027=  ## [A] Sintra, Sintra Air Base
------ Bosnien och Hercegovina:
204189 2022-11-27 18:00   7 BA BA-SRP BNX LQBK 271700Z 00000KT 7000 FEW030 BKN047 07/06 Q1027 NOSIG=  ## [A] Banja Luka, Banja Luka International Airport
204479 2022-11-27 18:00   9 BA BA-BIH OMO LQMO 271700Z 22003KT 140V310 9999 FEW045 09/M00 Q1021=  ## [A] Mostar, Mostar International Airport
204621 2022-11-27 18:00   5 BA BA-BIH SJJ LQSA 271700Z VRB01KT 5000 BR BKN040 05/04 Q1025 NOSIG=  ## [A] Sarajevo, Sarajevo International Airport
204672 2022-11-27 18:00   4 BA BA-BIH TZL LQTZ 271700Z VRB01KT 3000 BR NSC 04/04 Q1026=  ## [A] Tuzla, Tuzla International Airport
------ Rumänien:
204846 2022-11-27 18:00   5 RO RO-AR  ARW LRAR 271700Z 00000KT 6000 NSC 05/04 Q1027=  ## [A] Arad, Arad International Airport
204857 2022-11-27 18:00   5 RO RO-BC  BCM LRBC 271700Z 02005KT 340V050 9999 SCT015 BKN023 05/02 Q1028=  ## [A] Bac?u, Bac?u Airport
204867 2022-11-27 18:00   4 RO RO-MM  BAY LRBM 271700Z 08001KT 3500 BR FEW025 SCT035 04/03 Q1028=  ## [A] Baia Mare, Tautii Magheraus Airport
204869 2022-11-27 18:00   5               LRBO 271700Z 02006KT 8000 SCT027 OVC070 05/04 Q1027 BLU WHT=  ## [A]
204873 2022-11-27 18:00   7 RO RO-B   BBU LRBS 271700Z 24003KT CAVOK 07/04 Q1027 NOSIG=  ## [A] Bucharest, B?neasa International Airport
204891 2022-11-27 18:00   4 RO RO-CT  CND LRCK 271700Z 01007KT 9999 FEW013 04/02 Q1027 NOSIG=  ## [A] Constan?a, Mihail Kog?lniceanu International Airport
204892 2022-11-27 18:00   4 RO RO-CJ  CLJ LRCL 271700Z VRB02KT 9999 FEW056 04/02 Q1027=  ## [A] Cluj-Napoca, Cluj-Napoca International Airport
204900 2022-11-27 18:00   3 RO RO-CJ  --- LRCT 271700Z 17002KT 9999 OVC055 03/02 Q1027 BLU BLU=  ## [A] Câmpia Turzii, Câmpia Turzii Air Base
204902 2022-11-27 18:00   4 RO RO-DJ  CRA LRCV 271700Z 01002KT 7000 NSC 04/02 Q1026=  ## [A] Craiova, Craiova Airport
204978 2022-11-27 18:00   4               LRFT 271700Z 36008KT 9999 BKN060 04/03 Q1027 BLU BLU=  ## [A]
205037 2022-11-27 18:00   3 RO RO-IS  IAS LRIA 271700Z 34010KT 9999 OVC042 03/01 Q1028=  ## [A] Ia?i, Ia?i Airport
205168 2019-08-21 16:12  17               LRNB 211412Z AUTO 00000KT 10SM CLR 17/15 A3015 RMK AO2 T01680150=  ## [A]
205196 2022-11-27 18:00   4 RO RO-BH  OMR LROD 271700Z 04004KT 5000 BR NSC 04/03 Q1027=  ## [A] Oradea, Oradea International Airport
205208 2022-11-27 18:00   6 RO RO-B   OTP LROP 271700Z 24002KT 8000 NSC 06/05 Q1027 NOSIG=  ## [A] Bucharest, Henri Coand? International Airport
205298 2022-11-27 18:00   2 RO RO-SB  SBZ LRSB 271700Z 22004KT 9999 FEW035 02/01 Q1026=  ## [A] Sibiu, Sibiu International Airport
205309 2022-11-27 18:00 XXX RO RO-SM  SUJ LRSM 271700Z AUTO 00000KT 5000 BR BKN055/// ///// Q1028=  ## [A] Satu Mare, Satu Mare Airport
205318 2022-11-27 18:00   3 RO RO-SV  SCV LRSV 271700Z 35005KT 9999 BKN007 BKN017 03/02 Q1027=  ## [A] Suceava, Suceava Stefan cel Mare Airport
205325 2022-11-27 18:00   4 RO RO-TL  TCE LRTC 271700Z 03007KT 9999 BKN022 04/M01 Q1027=  ## [A] Tulcea, Tulcea Airport
205335 2022-11-27 18:00   3 RO RO-MS  TGM LRTM 271700Z VRB02KT 4600 BR NSC 03/02 Q1027=  ## [A] Târgu Mure?, Transilvania Târgu Mure? International Airport
205340 2022-11-27 18:00   4 RO RO-TM  TSR LRTR 271700Z 03003KT 6000 BKN009 04/03 Q1027=  ## [A] Timi?oara, Timi?oara Traian Vuia Airport
205348 2022-11-27 18:00   6 RO RO-CT  --- LRTZ 271700Z 02012KT 9999 SCT015 BKN025 OVC150 06/03 Q1026 BLU WHT=  ## [A] , Tuzla Romania Airport
------ Schweiz:
205663 2022-11-27 18:20   4 CH CH-NE  --- LSGC 271720Z AUTO VRB02KT CAVOK 04/M03 Q1018=  ## [A] La Chaux-de-Fonds, Les Eplatures Airport
205667 2022-11-27 18:20   6 CH CH-GE  GVA LSGG 271720Z 35002KT CAVOK 06/03 Q1020 NOSIG=  ## [A] Geneva, Geneva Cointrin International Airport
205679 2022-11-27 18:20   6 CH CH-VS  SIR LSGS 271720Z VRB01KT 9999 BKN110 06/M03 Q1021=  ## [A] Sion, Sion Airport
205817 2022-11-27 18:20   4 CH CH-OW  --- LSMA 271720Z AUTO 19003KT 9999NDV BKN120 BKN140 OVC200 04/02 Q1020 RMK=  ## [A] Alpnach, Alpnach Air Base
205819 2022-05-26 14:50  22               LSMC 261250Z 03011KT 9999 FEW092 22/19 Q1025=  ## [A]
205820 2022-11-27 18:20   4 CH CH-ZH  --- LSMD 271720Z AUTO VRB01KT 9999NDV FEW140 OVC190 04/02 Q1020 RMK=  ## [A] Zurich, Dübendorf Air Base
205821 2022-11-27 18:20   4 CH CH-LU  EML LSME 271720Z AUTO 34002KT 6000NDV FEW100 OVC130 04/04 Q1020 RMK=  ## [A] , Emmen Air Base
205827 2022-05-26 15:50  20               LSMK 261350Z 02008KT 9999 SCT085 20/08 Q1026=  ## [A]
205829 2022-11-27 18:20   2 CH CH-BE  --- LSMM 271720Z AUTO 10005KT 9999NDV FEW100 BKN130 BKN180 02/00 Q1020 RMK=  ## [A] , Meiringen Airport
205832 2022-11-27 18:20   5 CH CH-FR  --- LSMP 271720Z AUTO 00000KT 9000NDV BKN120 BKN150 05/04 Q1021 RMK=  ## [A] , Payerne Air Base
205838 2020-01-24 15:50   4               LSMV 241450Z 00000KT CAVOK 04/M09 Q1021 NOSIG=  ## [A]
206155 2022-11-27 18:20   7 CH CH-TI  LUG LSZA 271720Z VRB02KT 9999 FEW045 07/03 Q1025=  ## [A] Lugano, Lugano Airport
206156 2022-11-27 18:20   4 CH CH-BE  BRN LSZB 271720Z 09003KT 9999 FEW095 SCT100 BKN110 04/02 Q1020=  ## [A] Bern, Bern Belp Airport
206157 2022-11-27 18:20   4 CH CH-NW  BXO LSZC 271720Z AUTO VRB03KT 9999 BKN130 04/01 Q1020=  ## [A] Buochs, Buochs Airport
206161 2022-11-27 18:20   5 CH CH-SO  ZHI LSZG 271720Z AUTO VRB02KT CAVOK 05/05 Q1020=  ## [A] Grenchen, Grenchen Airport
206162 2022-11-27 18:20   4 CH CH-ZH  ZRH LSZH 271720Z VRB02KT CAVOK 04/02 Q1021 NOSIG=  ## [A] Zurich, Zürich Airport
206166 2022-11-27 17:50   5 CH CH-TI  ZJI LSZL 271650Z AUTO 00000KT 9999NDV BKN190 05/M00 Q1025 RMK=  ## [A] Locarno, Locarno Airport
206172 2022-11-27 18:20   3 CH CH-SG  ACH LSZR 271720Z 22002KT CAVOK 03/03 Q1021 RMK J=  ## [A] Altenrhein, St Gallen Altenrhein Airport
206173 2022-11-27 18:20  -5 CH CH-GR  SMV LSZS 271720Z AUTO VRB01KT 9999 NSC M05/M09 Q1021=  ## [A] , Samedan Airport
------ Turkiet:
206182 2022-11-25 13:04   9 TR TR-06  --- LTAB 251204Z 28008KT 250V320 9999 -SHRA BKN035 BKN090 09/06 Q1009 NOSIG RMK RWY06 26004KT 220V330=  ## [A] Ankara, Güvercinlik Airport
206183 2022-11-27 17:50   3 TR TR-06  ESB LTAC 271650Z 36005KT 9999 FEW040 BKN200 03/M00 Q1021 NOSIG RMK RWY21L 02006KT 360V080 RWY03L 35004KT RWY21R 01004KT=  ## [A] Ankara, Esenbo?a International Airport
206184 2022-11-25 12:21   9 TR TR-06  ANK LTAD 251121Z 26006KT 9999 -SHRA BKN030 BKN080 09/07 Q1010 NOSIG RMK RWY29 25006KT=  ## [A] Ankara, Etimesgut Air Base
206185 2022-11-27 17:50   4 TR TR-06  --- LTAE 271650Z 36003KT 9999 FEW040 SCT200 04/02 Q1021 NOSIG RMK RWY21 05003KT 010V080=  ## [A] Ankara, Ak?nc? Air Base
206186 2022-11-27 17:50  14 TR TR-01  ADA LTAF 271650Z 04002KT 1800 BR NSC 14/08 Q1018 BECMG TL1750 9999 NSW RMK RWY23 04003KT 5CI180=  ## [A] Adana, Adana Airport
206187 2022-11-27 17:50  13 TR TR-01  UAB LTAG 271650Z 05004KT CAVOK 13/07 Q1017 NOSIG RMK 5CI180=  ## [A] Adana, ?ncirlik Air Base
206188 2022-11-25 13:40   7 TR TR-03  AFY LTAH 251240Z 34011KT 290V010 9000 -SHRA SCT030 BKN090 07/04 Q1010 RMK RWY13 36009KT 320V050=  ## [A] Afyonkarahisar, Afyon Airport
206189 2022-11-27 17:50  14 TR TR-07  AYT LTAI 271650Z 30003KT 7000 FEW030 BKN200 14/07 Q1017 NOSIG=  ## [N] Antalya, Antalya International Airport
206190 2022-11-27 17:50   9 TR TR-27  GZT LTAJ 271650Z 36003KT 9999 SCT040 BKN170 09/07 Q1020 NOSIG RMK RWY10 36003KT 3CU040 6CI170=  ## [A] Gaziantep, Gaziantep International Airport
206192 2022-11-27 11:50   6 TR TR-37  KFS LTAL 271050Z VRB02KT 9999 SCT025 BKN100 06/00 Q1022=  ## [A] Kastamonu, Kastamonu Airport
206194 2022-11-27 17:50   5 TR TR-42  KYA LTAN 271650Z 24002KT 9999 FEW040 SCT100 05/M01 Q1020 NOSIG=  ## [A] Konya, Konya Airport
206196 2022-11-27 17:50   7 TR TR-05  MZH LTAP 271650Z 02013KT CAVOK 07/04 Q1021 NOSIG RMK RWY23 02013KT=  ## [A] Amasya, Amasya Merzifon Airport
206198 2022-11-27 17:50  -1 TR TR-58  VAS LTAR 271650Z 12006KT 9999 SCT035 SCT180 M01/M02 Q1021=  ## [A] Sivas, Sivas Nuri Demira? Airport
206199 2022-11-27 14:50  11 TR TR-67  ONQ LTAS 271350Z 36004KT 320V030 9999 SCT040 BKN100 11/06 Q1024=  ## [A] Zonguldak, Zonguldak Airport
206200 2022-11-27 17:50   6 TR TR-44  MLX LTAT 271650Z 25003KT 210V280 9999 FEW040 SCT100 BKN200 06/04 Q1023 NOSIG RMK RWY03 24003KT=  ## [A] Malatya, Malatya Erhaç Airport
206201 2022-11-27 17:50   4 TR TR-38  ASR LTAU 271650Z 00000KT 9999 SCT035 BKN180 04/02 Q1020 NOSIG RMK RWY07 VRB02KT=  ## [A] Kayseri, Kayseri Erkilet Airport
206202 2022-11-25 10:20   7 TR TR-26  --- LTAV 250920Z 33008KT 300V360 9999 -SHRA BKN035 BKN100 07/05 Q1009 RMK RWY11 35010KT=  ## [A] Sivrihisar, Sivrihisar Airport
206203 2022-11-27 09:50  10 TR TR-60  TJK LTAW 270850Z 20005KT 9999 SCT030 SCT100 10/06 Q1024=  ## [A] Tokat, Tokat Airport
206205 2022-11-27 17:50   5 TR TR-20  DNZ LTAY 271650Z 08007KT 9999 FEW035 BKN100 05/02 Q1018=  ## [A] Denizli, Çardak Airport
206206 2022-11-27 17:50   5 TR TR-50  NAV LTAZ 271650Z 20004KT 9999 SCT035 BKN180 05/04 Q1021 RMK RWY29 23007KT=  ## [A] Nev?ehir, Nev?ehir Kapadokya Airport
206207 2022-11-27 17:50  10 TR TR-34  ISL LTBA 271650Z 05012KT CAVOK 10/05 Q1022=  ## [N] Istanbul, Atatürk International Airport
206210 2022-11-27 15:50  12 TR TR-09  CII LTBD 271450Z 10007KT 9999 SCT030 BKN100 12/05 Q1017=  ## [A] Ayd?n, Ç?ld?r Airport
206212 2022-11-27 17:50  10 TR TR-10  BZI LTBF 271650Z 01010KT 9999 FEW035 SCT100 BKN200 10/05 Q1020 NOSIG=  ## [A] , Bal?kesir Merkez Airport
206213 2022-11-26 15:41   9 TR TR-10  BDM LTBG 261441Z 04002KT 9999 FEW020 BKN030 09/09 Q1024 RESHRA NOSIG RMK RWY18 VRB02KT=  ## [A] , Band?rma Airport
206214 2022-11-27 17:50  10 TR TR-17  CKZ LTBH 271650Z 08016KT 9999 BKN030 BKN100 10/05 Q1022=  ## [A] Çanakkale, Çanakkale Airport
206215 2022-11-26 02:42   5 TR TR-26  ESK LTBI 260142Z 29004KT 260V320 9999 FEW013 BKN030 05/03 Q1018 RERA NOSIG RMK RWY08 27006KT=  ## [A] , Eski?ehir Air Base
206216 2022-11-27 17:50  12 TR TR-35  ADB LTBJ 271650Z 01009KT 9999 SCT030 BKN100 12/04 Q1017 NOSIG RMK RWY16 01008KT=  ## [A] ?zmir, Adnan Menderes International Airport
206218 2022-11-25 04:27  11 TR TR-35  IGL LTBL 250327Z 28010KT 9999 -SHRA FEW025CB SCT030 BKN090 11/10 Q1010 TEMPO -TSRA RMK RWY17 28010KT=  ## [A] , Çi?li Airport
206221 2022-11-26 14:50   8 TR TR-64  USQ LTBO 261350Z 08012KT 9999 SCT035 BKN100 08/M01 Q1020=  ## [A] U?ak, U?ak Airport
206223 2022-11-27 17:50   9 TR TR-41  KCO LTBQ 271650Z VRB01KT 9999 BKN030 SCT180 09/06 Q1023 NOSIG=  ## [A] , Cengiz Topel Airport
206224 2022-11-27 17:50   8 TR TR-16  YEI LTBR 271650Z 06005KT 9999 SCT040 SCT100 08/05 Q1021 NOSIG RMK RWY07 06004KT=  ## [A] Bursa, Bursa Yeni?ehir Airport
206225 2022-11-27 17:50  13 TR TR-48  DLM LTBS 271650Z 06005KT 9999 SCT030 BKN120 13/09 Q1016 NOSIG RMK RWY19 34005KT 3CU030 5AC120=  ## [A] Dalaman, Dalaman International Airport
206226 2022-11-27 11:10  12 TR TR-45  --- LTBT 271010Z 36004KT 300V050 9999 FEW035 BKN100 12/04 Q1021 RMK RWY13 01004KT 340V040=  ## [A] , Akhisar Airport
206227 2022-11-27 17:50   6 TR TR-59  TEQ LTBU 271650Z 01010KT 9999 FEW030 06/04 Q1022 RMK RWY22 36008KT=  ## [A] Çorlu, Tekirda? Çorlu Airport
206231 2022-11-27 17:50   4 TR TR-26  AOE LTBY 271650Z 09005KT 9999 FEW030 BKN200 04/02 Q1020=  ## [A] Eski?ehir, Anadolu Airport
206232 2020-06-16 08:50  21 TR TR-43  KZR LTBZ 160650Z 14006KT 070V170 9999 FEW040 21/14 Q1014=  ## [A] Alt?nta?, Zafer Airport
206233 2022-11-27 17:50   7 TR TR-23  EZS LTCA 271650Z 19003KT 9999 FEW035 SCT100 07/06 Q1021 NOSIG=  ## [A] Elaz??, Elaz?? Airport
206234 2022-11-27 17:50  11               LTCB 271650Z 15007KT 9999 BKN032 11/07 Q1025=  ## [A]
206235 2022-11-27 17:50   7 TR TR-21  DIY LTCC 271650Z 26003KT 9999 FEW040 SCT100 07/06 Q1021 NOSIG RMK RWY16 26003KT 2CU040 4AC100=  ## [A] Diyarbakir, Diyarbakir Airport
206236 2022-11-27 17:50   2 TR TR-24  ERC LTCD 271650Z VRB01KT CAVOK 02/M01 Q1022 NOSIG=  ## [A] Erzincan, Erzincan Airport
206237 2022-11-27 17:50   0 TR TR-25  ERZ LTCE 271650Z 20002KT 9999 FEW035 M00/M02 Q1023 NOSIG RMK RWY08R 00000KT RWY26R 20003KT RWY08L 16003KT 2SC035=  ## [A] Erzurum, Erzurum International Airport
206238 2022-11-27 17:50  -1 TR TR-36  KSY LTCF 271650Z 13003KT 090V160 9999 SCT040 M01/M04 Q1023=  ## [A] Kars, Kars Airport
206239 2022-11-27 17:50  13 TR TR-61  TZX LTCG 271650Z VRB02KT 9999 BKN029 13/08 Q1025 NOSIG RMK RWY29 17004KT=  ## [A] Trabzon, Trabzon International Airport
206241 2022-11-27 17:50   2 TR TR-65  VAN LTCI 271650Z 13002KT 9999 FEW030 SCT180 02/01 Q1024 NOSIG=  ## [A] Van, Van Ferit Melen Airport
206242 2022-11-27 17:50   9 TR TR-72  BAL LTCJ 271650Z 18003KT 9999 FEW040 SCT200 09/08 Q1021 NOSIG RMK RWY20 13005KT 1CU040 4CI200=  ## [A] Batman, Batman Airport
206243 2022-11-27 13:50   8 TR TR-49  MSR LTCK 271250Z 00000KT 9999 FEW035 BKN080 08/02 Q1021=  ## [A] Mu?, Mu? Airport
206244 2022-11-27 13:50  14 TR TR-56  SXZ LTCL 271250Z 25004KT 9999 FEW040 SCT100 14/08 Q1021=  ## [A] Siirt, Siirt Airport
206245 2022-11-27 17:50  10 TR TR-57  NOP LTCM 271650Z 21001KT 9999 FEW030 BKN070 10/07 Q1025=  ## [A] Sinop, Sinop Airport
206246 2022-11-27 17:50  10 TR TR-46  KCM LTCN 271650Z 07003KT 030V100 9999 FEW040 SCT200 10/07 Q1020 NOSIG=  ## [A] Kahramanmara?, Kahramanmara? Airport
206247 2022-11-27 14:50   4 TR TR-04  AJI LTCO 271350Z 22005KT 9999 FEW025 SCT080 04/01 Q1022=  ## [A] , A?r? Airport
206248 2022-11-27 15:50  11 TR TR-02  ADF LTCP 271450Z 02007KT 9999 SCT030 BKN180 11/06 Q1020=  ## [A] Ad?yaman, Ad?yaman Airport
206250 2022-11-27 17:50  12 TR TR-47  MQM LTCR 271650Z 01003KT 350V060 9999 FEW040 BKN200 12/09 Q1020=  ## [A] Mardin, Mardin Airport
206251 2022-11-27 17:50   9 TR TR-63  GNY LTCS 271650Z 00000KT CAVOK 09/07 Q1021 RMK RWY22 19003KT 7CS170=  ## [A] ?anl?urfa, ?anl?urfa GAP Airport
206252 2022-11-27 17:50   9               LTCT 271650Z 29007KT 9999 FEW035 SCT070 09/01 Q1021=  ## [A]
206253 2022-11-27 13:50  11               LTCU 271250Z 18005KT 9999 SCT035 11/03 Q1021=  ## [A]
206254 2022-11-27 17:50  10 TR TR-73  NKT LTCV 271650Z 30003KT 9999 SCT040 BKN180 10/08 Q1020=  ## [A] ??rnak, ??rnak ?erafettin Elçi Airport
206255 2022-11-27 17:50  -2 TR TR-30  YKO LTCW 271650Z 27003KT 240V300 4000 BR SCT008 BKN025 M02/M04 Q1023=  ## [A] Hakkari, Hakkari Yüksekova Airport
206259 2022-11-27 17:50  12 TR TR-31  HTY LTDA 271650Z 01004KT 9999 FEW040 BKN160 12/10 Q1020 NOSIG=  ## [A] Hatay, Hatay Airport
206311 2022-11-25 11:16  12 TR TR-35  --- LTFA 251016Z 34007KT 320V020 9999 SCT033 BKN100 12/11 Q1013 RESHRA RMK RWY17 34008KT=  ## [A] , Kakl?ç Airport
206312 2022-11-27 11:50  13 TR TR-35  --- LTFB 271050Z 06008KT 9999 BKN035 BKN100 13/03 Q1018=  ## [A] Selçuk, Selçuk Efes Airport
206313 2022-11-27 17:50   6 TR TR-32  ISE LTFC 271650Z 00000KT 9999 FEW035 BKN100 06/04 Q1018 RMK RWY23 32003KT=  ## [A] Isparta, Süleyman Demirel International Airport
206314 2022-11-27 17:50  11 TR TR-10  EDO LTFD 271650Z 07014KT 9999 FEW035 BKN100 11/05 Q1020=  ## [A] Edremit, Bal?kesir Körfez Airport
206315 2022-11-27 17:50  12 TR TR-48  BJV LTFE 271650Z 14004KT 9999 SCT035 BKN100 12/10 Q1016 NOSIG RMK RWY10 11005KT=  ## [A] Bodrum, Milas Bodrum International Airport
206317 2022-11-27 17:50  14               LTFG 271650Z 10007KT 9999 FEW030 BKN180 14/10 Q1018=  ## [A]
206318 2022-11-27 17:50  11 TR TR-55  SZF LTFH 271650Z 13001KT 9999 SCT030 BKN080 11/08 Q1025 NOSIG=  ## [A] Samsun, Samsun Çar?amba Airport
206320 2022-11-27 17:50   9 TR TR-34  SAW LTFJ 271650Z 03013KT 9999 BKN040 09/06 Q1022 NOSIG RMK RWY24 03009KT=  ## [A] Istanbul, Sabiha Gökçen International Airport
206321 2022-11-25 13:50  15               LTFK 251250Z VRB08KT CAVOK 15/05 Q1016=  ## [A]
206323 2022-11-27 17:50  10               LTFM 271650Z 04013KT 9999 -SHRA FEW018 BKN028 10/06 Q1023 NOSIG RMK RWY17L 04012KT RWY34L 04010KT RWY16R 03011KT RWY36 04012KT RWY18 05015KT=  ## [A]
206325 2022-11-27 17:50  12               LTFO 271650Z 17004KT 9999 BKN035 12/08 Q1025=  ## [A]
206415 2019-07-19 01:00  19               LTJA 182300Z AUTO VRB02KT NCD 19/19 Q1016=  ## [A]
206525 2019-10-07 08:00 XXX               LTNG N NE HZ=  ## [A]
206712 2019-05-12 15:00  21               LTUL 121300Z 24014G30KT 150V310 9999 FEW020 21/10 Q1015=  ## [A]
206714 2019-07-19 14:00  34               LTUN 191200Z 11004KT 9999 FEW020 34/08 Q1015 SIROCCO=  ## [A]
------ Moldavien:
206895 2022-11-15 09:00   7 MD MD-FR  --- LUBM 150800Z 11005KT 9999 BKN024 07/05 Q1021=  ## [A] M?rcule?ti, M?rcule?ti International Airport
207127 2022-11-27 18:00   4 MD MD-C   KIV LUKK 271700Z 33004KT 9999 FEW014 SCT026 OVC032 04/02 Q1027 NOSIG=  ## [A] Chi?in?u, Chi?in?u International Airport
------ Nordmakedonien:
208580 2022-11-27 18:00   3 MK MK-003 OHD LWOH 271700Z 34006KT 9999 -DZ SCT020 OVC035 03/M00 Q1022=  ## [A] Ohrid, Ohrid St. Paul the Apostle Airport
208687 2022-11-27 18:00   5 MK MK-004 SKP LWSK 271700Z 03006KT 9999 SCT045 OVC090 05/01 Q1025 NOSIG=  ## [A] Skopje, Skopje Alexander the Great Airport
------ Gibraltar:
209042 2022-11-27 17:50  16 GI GI-U-A GIB LXGB 271650Z 06003KT CAVOK 16/13 Q1023 NOSIG RMK BLU BLU=  ## [A] Gibraltar, Gibraltar Airport
------ Serbien:
209591 2022-11-27 18:00   4 RS RS-00  BEG LYBE 271700Z 07003KT 040V100 8000 FEW008 BKN018 04/04 Q1027 NOSIG=  ## [A] Belgrade, Belgrade Nikola Tesla Airport
209599 2021-09-28 13:29  17               LYBM 281129Z LYUZ 270V060 9999 FEW010 SCT 017 17/13 Q1022=  ## [A]
209606 2022-11-27 18:00   4 RS RS-07  BJY LYBT 271700Z 36003KT 8000 SCT007 BKN017 04/04 Q1028 NOSIG=  ## [A] Batajnica, Batajnica Air Base
209842 2022-11-27 18:00   5 RS RS-18  --- LYKV 271700Z 02003KT 350V060 6000 BKN035 05/03 Q1026 NOSIG=  ## [A] Kraljevo, Morava Airport
209907 2022-11-27 18:00   4 RS RS-20  INI LYNI 271700Z 34004KT 9999 -RA FEW017 BKN027 04/04 Q1026 NOSIG=  ## [A] Nis, Nis Airport
------ Montenegro:
209957 2022-11-27 18:00  11 ME ME-16  TGD LYPG 271700Z 01009KT 340V040 9999 BKN090 11/M01 Q1022 NOSIG=  ## [A] Podgorica, Podgorica Airport
210076 2022-11-27 18:00  13 ME ME-19  TIV LYTV 271700Z AUTO 02007G17KT CAVOK 13/M01 Q1021=  ## [A] Tivat, Tivat Airport
210106 2021-11-04 00:30  14               LYUZ 032330Z AUTO VRB05KT 9999 ////// 14/07 Q1010=  ## [A]
------ Serbien:
210124 2022-11-27 18:00   4 RS RS-04  --- LYVR 271700Z AUTO 05003KT 8000 FEW005/// BKN011/// OVC055/// 04/04 Q1028=  ## [A] , Vr?ac International Airport
------ Slovakien:
210446 2022-11-27 18:00   4 SK SK-BL  BTS LZIB 271700Z 08004KT 020V130 8000 FEW004 BKN005 OVC006 04/03 Q1027 NOSIG=  ## [A] Bratislava, M. R. ?tefánik Airport
210522 2022-11-27 18:00   4 SK SK-KI  KSC LZKZ 271700Z 10001KT 9999 BKN035 04/01 Q1028 NOSIG=  ## [A] Ko?ice, Ko?ice Airport
210642 2022-11-27 18:00   2 SK SK-TA  PZY LZPP 271700Z 23006KT 7000 FEW010 SCT020 02/01 Q1027=  ## [A] Pie??any, Pie??any Airport
210716 2021-06-09 10:32  25 SK SK-BC  SLD LZSL 090832Z 13004KT 9999 FEW040 25/11 Q1017=  ## [A] Slia?, Slia? Airport
210750 2022-11-27 18:00   1 SK SK-KI  TAT LZTT 271700Z 05004KT 9999 SCT008 OVC013 01/M01 Q1025 NOSIG=  ## [A] Poprad, Poprad-Tatry Airport
210895 2022-11-27 18:00   4 SK SK-ZI  ILZ LZZI 271700Z 11003KT 9999 BKN048 04/02 Q1026=  ## [A] ?ilina, ?ilina Airport
210966 2021-08-19 14:00  29               MACB 191200Z 11009KT 9999 FEW016 29/25 Q1015=  ## [A]
211305 2021-02-05 07:00  26               MAPC 050600Z 10009KT 9999 SCT016 26/22 Q1016=  ## [A]
------ Turks- och Caicosöarna:
211764 2022-11-27 18:00  29 TC TC-GT  GDT MBGT 271700Z 09008KT 9999 SCT015 SCT030 29/21 Q1017=  ## [A] Cockburn Town, JAGS McCartney International Airport
212000 2022-11-27 18:00  29 TC TC-PR  PLS MBPV 271700Z 17004KT 9999 SCT012 29/21 Q1016=  ## [A] Providenciales Island, Providenciales Airport
212500 2022-09-06 19:00  33               MCJB 061700Z 36010KT 9999 SCT020 33/24 Q1014 METAR =  ## [A]
------ Dominikanska republiken:
212942 2022-11-27 18:00  30 DO DO-20  --- MDAB 271700Z 09006KT 9999 SCT020 30/26 Q1016=  ## [A] Arroyo Barril, Arroyo Barril Airport
212958 2021-11-12 14:00  25               MDAR 121300Z 00000KT 9999 FEW019 25/24 Q1017=  ## [A]
212967 2020-11-23 00:30  27 DO DO-30  --- MDBA 222330Z 00000KT 9999 FEW018CB ASCT020 SCT300 27/25 Q1011 CB/SE/S=  ## [A] Consuelo, Consuelo Batey Anita airport
212974 2022-11-27 18:00  32 DO DO-04  BRX MDBH 271700Z 13018KT 9999 FEW020 32/25 Q1015=  ## [A] Barahona, Maria Montez International Airport
213011 2019-07-05 18:20  26               MDCS 051620Z 03010KT 6000 RA BKN014 SCT070 26/25 Q1019=  ## [A]
213012 2021-07-08 21:00  30               MDCT 081900Z 09014KT 9999 SCT020 30/22 30/22 Q1018=  ## [A]
213017 2022-11-27 18:00  30 DO DO-20  AZS MDCY 271700Z 09008KT 9999 SCT022 30/23 Q1015=  ## [A] Samana, Samaná El Catey International Airport
213124 2022-01-23 17:00  29               MDHB 231600Z 13012KT 9999 FEW023 29/21 Q1016 METAR =  ## [A]
213176 2022-11-27 18:00  31 DO DO-01  JBQ MDJB 271700Z 04008KT 9999 FEW022 31/24 Q1016 NOSIG=  ## [A] La Isabela, La Isabela International Airport
213239 2020-01-01 13:15  21               MDLM 011215Z 00000KT 9999 FEW016 21/21 Q1012=  ## [A]
213244 2022-11-27 18:00  30 DO DO-12  LRM MDLR 271700Z 05006KT 9999 SCT022 30/23 Q1015=  ## [A] La Romana, Casa De Campo International Airport
213333 2022-11-27 18:00  29 DO DO-11  PUJ MDPC 271700Z 07010KT 9999 FEW022 29/22 Q1016=  ## [A] Punta Cana, Punta Cana International Airport
213346 2022-11-27 18:00  30 DO DO-18  POP MDPP 271700Z 09012KT 9999 SCT020 30/24 Q1015=  ## [A] Puerto Plata, Gregorio Luperon International Airport
213412 2022-11-27 18:00  29 DO DO-01  SDQ MDSD 271700Z 09005KT 9999 SCT020 29/23 Q1016=  ## [A] Santo Domingo, Las Américas International Airport
213428 2022-11-27 18:00  31 DO DO-25  STI MDST 271700Z 12008KT 9999 SCT020 31/22 Q1016=  ## [A] Santiago, Cibao International Airport
213453 2022-05-22 12:00  23               MDTS 221000Z 10008KT 060V150 9999 BKN016 23/23 Q1020=  ## [A]
213636 2021-08-17 12:00  35               MEAT 171000Z 34012KT CAVOK 35/12 Q1013 NOSIG=  ## [A]
213643 2022-07-03 17:00  30               MEBA 031500Z 35010KT CAVOK 30/21 Q1005 NOSIG=  ## [A]
213676 2019-07-16 14:00  27               MECH 161200Z 36012KT 9999 SCT030 BKN070 27/23=  ## [A]
213850 2021-12-19 17:57   5               MEIZ jLNL56Z AUTO 11005KT 10SM OVC046 05/M06 A2998 RMK AO2 SLP183 T00501056 =  ## [A]
213920 2020-04-14 13:00  22               MELR 141100Z 00000KT 9999 FEW016 22/22 Q1016=  ## [A]
214025 2022-06-25 10:00  28               MEPS 250800Z 32012KT 9999 FEW025 28/23 Q1007 NOSIG=  ## [A]
214087 2021-08-12 14:00  32               MESC 121200Z 31008KT CAVOK 32/07 Q1019 NOSIG=  ## [A]
214091 2021-08-15 10:00  34               MESG 150800Z 32011KT CAVOK 34/15 Q1006 NOSIG=  ## [A]
214092 2021-10-03 14:00  32               MESH 031200Z 02015KT CAVOK 32/16 Q1010 NOSIG=  ## [A]
214098 2022-05-31 17:00  42               MESN 311500Z 03008KT CAVOK 42/M06 Q1005 NOSIG=  ## [A]
214111 2021-12-09 23:00  27               META 092200Z 09002KT 9999 BKN016 27/17 Q1013=  ## [A]
214798 2022-04-29 22:00  25               MFTL 292000Z 07010KT 9999 -RA SCT008 SCT016TCU OVC100 25/23 Q1012=  ## [A]
214808 2020-10-19 16:00  23               MFTV 191400Z 17006KT 9999 FEW020 23/19 Q1012=  ## [A]
------ Guatemala:
215022 2022-11-27 18:00  25 GT GT-AV  CBV MGCB 271700Z 05004KT 9999 FEW016 SCT018 25/18 QFE872.9 FEW200=  ## [A] Coban, Coban Airport
215036 2019-11-04 14:00  24               MGCP 041300Z 07004KT CAVOK 24/23 QFE 1008.1 FEW200 MIN 24.0 PCPN 0.0=  ## [A]
215091 2022-11-27 18:00  25 GT GT-CQ  --- MGES 271700Z 00000KT 9999 SCT018 SCT090 25/19 QFE911.6 SCT200=  ## [A] Esquipulas, Esquipulas Airport
215144 2022-11-27 18:00  22 GT GT-GU  GUA MGGT 271700Z 03008KT 9999 FEW018 BKN080 22/17 Q1023 A3021=  ## [A] Guatemala City, La Aurora Airport
215170 2022-11-27 18:00  20 GT GT-HU  HUG MGHT 271700Z 00000KT 9999 SCT035 OVC200 20/15=  ## [A] Huehuetenango, Huehuetenango Airport
215293 2022-11-27 18:00  29 GT GT-PE  MCR MGMM 271700Z 34004KT 9999 SCT018 SCT090 29/24 Q1016 A3000=  ## [A] Melchor de Mencos, Melchor de Mencos Airport
215300 2022-11-27 14:00  23               MGMT 271300Z 00000KT CAVOK 23/22 BKN070 BKN200=  ## [A]
215360 2022-11-27 18:00  30 GT GT-IZ  PBR MGPB 271700Z 35006KT 9999 SCT017 SCT080 30/25 Q1014 A2994 FEW090=  ## [A] Puerto Barrios, Puerto Barrios Airport
215410 2022-11-27 18:00  17 GT GT-QZ  AAZ MGQZ 271700Z 00000KT CAVOK 17/12 QFE775/0 FEW060 OVC080=  ## [A] Quezaltenango, Quezaltenango Airport
215430 2022-11-27 18:00  28 GT GT-RE  RER MGRT 271700Z 00000KT 8000 SCT070 SCT200 28/23 Q1017 A3003 HZ VOL. SANTA MARIA Y SANTIAGUITO EN ACTIVIDAD=  ## [A] Retalhuleu, Retalhuleu Airport
215446 2022-11-27 18:00  29 GT GT-ES  GSJ MGSJ 271700Z 00000KT 9999 FEW018 SCT060 29/24 Q1015 A2997 SCT200=  ## [A] Puerto San José, San José Airport
215463 2021-03-21 03:00  31               MGTA 210200Z 10012KT 9999 FEW020 31/26 Q1006=  ## [A]
215483 2022-11-27 18:00  28               MGTU 271700Z 00000KT 9999 FEW018 OVC080 28/22=  ## [A]
215619 2022-11-27 18:00  28 GT GT-ZA  --- MGZA 271700Z 00000KT 9999 SCT018 SCT100 28/22 QFE990/6 FEW200=  ## [A] Zacapa, Zacapa Airport
------ Honduras:
215657 2021-02-10 16:00  26 HN HN-VA  --- MHAM 101500Z METAR MHTR 10150Z 00000KT 9999 FEW024 26/21=  ## [A] Amapala Island, Amapala Airport
215697 2022-11-27 18:00  24 HN HN-OL  CAA MHCA 271700Z VRB02KT 8000 RA SCT024 BKN080 24/23=  ## [A] Catacamas, Catacamas Airport
215704 2022-11-27 18:00  31               MHCH 271700Z VRB02KT 9999 FEW030 SCT070 31/23=  ## [A]
215708 2021-06-28 23:00  30 HN HN-LP  MRJ MHCL 282100Z 08004KT 9999 FEW030TCU SCT070 BKN200 30/25 Q1010 A2983 NOSIG=  ## [A] Marcala, Colon Airport
215715 2019-06-23 06:00  25 HN HN-YO  CYL MHCS 230400Z 09004KT 8000 RA SCT028TCU FEW030CB BKN070 25/23 CB LNG SW=  ## [A] Coyoles, Coyoles Airport
215818 2022-02-27 01:00  22 HN HN-CL  --- MHGR 270000Z 36008KT 9999 BKN038TCU 22/18=  ## [A] Donel, Sangrelaya Airport
215819 2022-11-27 18:00  23 HN HN-LE  GAC MHGS 271700Z 36006KT 8000 BKN044 23/15=  ## [A] Gracias, Celaque Airport
215933 2022-11-27 18:00  29 HN HN-AT  LCE MHLC 271700Z 02004KT 9999 SCT030 29/23 Q1014 A2995 NOSIG=  ## [A] La Ceiba, Goloson International Airport
215935 2022-11-27 18:00  20 HN HN-IN  LEZ MHLE 271700Z 02004KT 9999 BKN022 20/16=  ## [A] La Esperanza, La Esperanza Airport
215943 2022-11-27 18:00  29 HN HN-CR  SAP MHLM 271700Z VRB03KT 9999 FEW026 BKN100 29/22 Q1014 A2995 NOSIG=  ## [A] San Pedro Sula, Ramón Villeda Morales International Airport
215968 2020-07-01 23:00  33 HN HN-CH  --- MHML 012100Z 05016KT 9999 SCT030 SCT250 33/22 Q1009 A2980=  ## [A] Monte Líbano, Monte Libano Airport
215997 2022-11-27 18:00  27               MHNO 271700Z 35008KT 9999 FEW040TCU 27/20=  ## [A]
216011 2020-05-21 15:00  21               MHOC 211300Z 00000KT 3000 3000 BR FEW030 SCT250 21/21 3KM TDS BR=  ## [A]
216022 2020-07-07 14:00  18               MHON 071200Z 00000KT 4000 BR FEW030 18/18=  ## [A]
216046 2022-11-27 18:00  29 HN HN-GD  PEU MHPL 271700Z 00000KT 9999 BKN028TCU 29/24 Q1013=  ## [A] Puerto Lempira, Puerto Lempira Airport
216052 2022-11-27 18:00  25               MHPR 271700Z 00000KT 9999 SCT046 BKN080 25/21 Q1019 A3010 NOSIG=  ## [A]
216101 2022-11-27 18:00  29 HN HN-IB  RTB MHRO 271700Z 11011KT 9999 FEW026TCU 29/24 Q1015 A2997 NOSIG=  ## [A] Roatan Island, Juan Manuel Galvez International Airport
216115 2021-10-07 14:58  23 HN HN-CM  XPL MHSC 071258Z AUTO 33005KT 9999 OVC070 23/23 M RMK AO2 SLPNO T02260226 PNO FZRANO TSNO $  ## [A] Comayagua, Coronel Enrique Soto Cano Air Base
216119 2019-11-19 21:00  24               MHSG 192000Z 36008KT 9999 SCT034 24/16 HZ=  ## [A]
216130 2022-11-27 18:00  25               MHSR 271700Z 34004KT 9999 SCT025TCU BKN100 25/17=  ## [A]
216140 2019-04-29 13:00  19 HN HN-GD  --- MHTB 291100Z 03003KT 8000 FEW028 19/17 Q1017 A3003 BECMG 4000=  ## /A/1306 Tuntuntara, La Katabila Airport
216143 2022-11-27 18:00  30 HN HN-AT  TEA MHTE 271700Z 34008KT 9999 SCT022 SCT080 30/25 Q1013 A2991=  ## [A] Tela, Tela Airport
216145 2022-11-27 18:00  24 HN HN-FM  TGU MHTG 271700Z 36006KT 9999 BKN028 24/20 Q1020 A3012 NOSIG=  ## [A] Tegucigalpa, Toncontín International Airport
216146 2020-08-29 15:31  24               MHTH 291331Z 00000KT 9999 FEW028 SCT250 24/23 Q1021 A3015 NOSIG=  ## [A]
216148 2021-11-29 01:00  25 HN HN-CL  TJI MHTJ 290000Z 00000KT 9999 SCT024 BKN080 25/23 =  ## [A] Trujillo, Trujillo Airport
216150 2021-06-14 16:00  27               MHTL 141400Z VRB02KT 9999 SCT026TCU BKN080 27/25 Q1009=  ## [A]
216156 2022-11-27 18:00  30               MHTR 271700Z 05003KT 9999 SCT025TCU BKN080 30/25=  ## [A]
216275 2020-05-26 23:00  30               MHYG 262100Z 21010KT 9999 TS FEW030CB SCT32TCU SCT250 30/20 Q1013 A2991=  ## [A]
216283 2022-02-26 23:00  26               MHYO 262200Z 02010KT 9999 SCT025TCU 26/18=  ## [A]
216286 2022-11-27 18:00  25 HN HN-YO  ORO MHYR 271700Z 27006KT 9999 SCT023 SCT080 25/20=  ## [A] Yoro, Yoro Airport
217272 2020-06-17 15:00  30               MJKP 171300Z 12014KT 9999 FEW022 30/23 Q1015=  ## [A]
217275 2020-05-03 11:00  27               MJKS 030900Z 11003KT 9999 FEW024 27/23 Q1014=  ## [A]
------ Jamaica:
217922 2022-11-27 18:00  30 JM JM-01  KIN MKJP 271700Z 18017KT 9999 FEW022 30/23 Q1014=  ## [A] Kingston, Norman Manley International Airport
217925 2022-11-27 18:00  30 JM JM-08  MBJ MKJS 271700Z 05013KT 9999 FEW024 30/24 Q1014=  ## [A] Montego Bay, Sangster International Airport
218012 2019-08-21 23:05  26               MKNB 212105Z AUTO 35005KT 10SM CLR 26/13 A3010 RMK AO2 T02590127=  ## [A]
------ Mexiko:
219025 2022-11-27 17:50  30 MX MX-GRO ACA MMAA 271650Z 23005KT 7SM FEW300 30/23 A2995 RMK 8/001 HZY=  ## [A] Acapulco, General Juan N Alvarez International Airport
219038 2022-11-27 17:40  22 MX MX-NLE NTR MMAN 271640Z 28005KT 15SM SKC 22/M03 A2997=  ## [A] , Del Norte International Airport
219043 2022-11-27 17:41  17 MX MX-AGU AGU MMAS 271641Z 22006KT 10SM SKC 17/00 A3032=  ## [A] Aguascalientes, Jesús Terán Paredo International Airport
219070 2022-11-27 17:42  30 MX MX-OAX HUX MMBT 271642Z 00000KT 7SM FEW020 SCT220 30/23 A3001 RMK 8/102 HZY=  ## [A] Huatulco, Bahías de Huatulco International Airport
219078 2022-11-27 17:43  26 MX MX-MOR CVJ MMCB 271643Z 14003KT 7SM FEW250 26/14 A3019 RMK 8/001 SC 4TH QUAD HZY=  ## [A] , General Mariano Matamoros Airport
219081 2022-11-27 17:45  29 MX MX-CAM CME MMCE 271645Z 14008KT 7SM BKN070 BKN200 29/24 A2996 RMK 8/038 HZY=  ## [A] Ciudad del Carmen, Ciudad del Carmen International Airport
219088 2022-11-27 17:45  22 MX MX-SIN CUL MMCL 271645Z 36005KT 10SM SKC 22/05 A3003 RMK HZY=  ## [A] Culiacán, Bachigualato Federal International Airport
219089 2022-11-27 17:42  29 MX MX-ROO CTM MMCM 271642Z 13006KT 7SM SCT020 SCT100 29/25 A2999 RMK 8/180 TCU NE=  ## [A] Chetumal, Chetumal International Airport
219090 2022-11-27 17:43  20 MX MX-SON CEN MMCN 271643Z 00000KT 10SM SKC 20/M01 A3004 RMK FULYR NW=  ## [A] Ciudad Obregón, Ciudad Obregón International Airport
219092 2022-11-27 17:41  30 MX MX-CAM CPE MMCP 271641Z 16010KT 7SM FEW025 BKN140 BKN300 30/24 A2997 RMK 8/181 HZY=  ## [A] Campeche, Ingeniero Alberto Acuña Ongay International Airport
219095 2022-11-27 17:47  14 MX MX-CHH CJS MMCS 271647Z 26011KT 10SM SKC 14/M12 A3012=  ## [A] Ciudad Juárez, Abraham González International Airport
219096 2022-11-27 17:50  29 MX MX-YUC CZA MMCT 271650Z 10005KT 7SM SCT020 SCT100 BKN200 29/26 A2998 RMK 8/138 MDTCU=  ## [A] Chichen Itza, Chichen Itza International Airport
219097 2022-11-27 17:52  14 MX MX-CHH CUU MMCU 271652Z 00000KT 8SM SCT200 14/M07 A3015 RMK 8/001 HZY=  ## [A] Chihuahua, General Roberto Fierro Villalobos International Airport
219098 2022-11-27 17:40  24 MX MX-TAM CVM MMCV 271640Z 16009KT 12SM SKC 24/15 A2996=  ## [A] Ciudad Victoria, General Pedro Jose Mendez International Airport
219102 2022-11-27 17:41  29 MX MX-ROO CZM MMCZ 271641Z 13008KT 8SM SCT015TCU SCT250 29/25 A3000 RMK 8/208 SC=  ## [A] Cozumel, Cozumel International Airport
219117 2022-11-27 17:45  18 MX MX-DUR DGO MMDO 271645Z 15008KT 10SM SKC 18/M20 A3029 RMK HZY=  ## [A] Durango, General Guadalupe Victoria International Airport
219144 2022-11-27 17:48  25 MX MX-NAY TPQ MMEP 271648Z 00000KT 12SM SKC 25/12 A3015=  ## [A] Tepic, Amado Nervo National Airport
219192 2022-11-27 17:47  22 MX MX-JAL GDL MMGL 271647Z 33003KT 8SM SKC 22/06 A3027 RMK CU=  ## [A] Guadalajara, Don Miguel Hidalgo Y Costilla International Airport
219193 2022-11-27 17:43  19 MX MX-SON GYM MMGM 271643Z 00000KT 10SM SKC 19/08 A3004=  ## [A] Guaymas, General José María Yáñez International Airport
219221 2022-11-27 17:40  19 MX MX-SON HMO MMHO 271640Z 00000KT 10SM SKC 19/M02 A3011 RMK HZY=  ## [A] Hermosillo, General Ignacio P. Garcia International Airport
219233 2022-11-27 17:47  26 MX MX-COL CLQ MMIA 271647Z 00000KT 8SM FEW020 26/21 A3010 RMK 8/100=  ## [A] Colima, Licenciado Miguel de la Madrid Airport
219247 2022-11-27 17:47  18 MX MX-COA SLW MMIO 271647Z 18009KT 10SM SKC 18/05 A3015=  ## [A] Saltillo, Plan De Guadalupe International Airport
219323 2022-11-27 17:48  20 MX MX-SIN LMM MMLM 271648Z VRB03KT 8SM SKC 20/08 A3007 RMK HZY=  ## [A] Los Mochis, Valle del Fuerte International Airport
219325 2022-11-27 17:48  22 MX MX-GUA BJX MMLO 271648Z 29007KT 10SM SCT030 SCT090 22/05 A3037 RMK 8/570 CI=  ## [A] Silao, Del Bajío International Airport
219326 2022-11-27 17:41  21 MX MX-BCS LAP MMLP 271641Z 33006KT 10SM SKC 21/10 A3008 RMK HZ=  ## [A] La Paz, Manuel Márquez de León International Airport
219330 2022-11-27 17:41  23 MX MX-BCS LTO MMLT 271641Z 00000KT 10SM SKC 23/09 A3006=  ## [A] Loreto, Loreto International Airport
219337 2022-11-27 17:42  24 MX MX-TAM MAM MMMA 271642Z 16009KT 10SM SKC 24/// A2996=  ## [A] Matamoros, General Servando Canales International Airport
219340 2022-11-27 17:41  29 MX MX-YUC MID MMMD 271641Z 17004KT 7SM SCT015 SCT070 BKN300 29/25 A3000 RMK 8/178=  ## [A] Mérida, Licenciado Manuel Crescencio Rejon Int Airport
219348 2022-11-27 17:53  16 MX MX-BCN MXL MMML 271653Z 00000KT 10SM SKC 16/M09 A3014=  ## [A] Mexicali, General Rodolfo Sánchez Taboada International Airport
219349 2022-11-27 17:40  21 MX MX-MIC MLM MMMM 271640Z 28003KT 7SM FEW030 21/11 A3031 RMK 8/100 HZY=  ## [A] Morelia, General Francisco J. Mujica International Airport
219356 2022-11-27 17:41  27 MX MX-VER MTT MMMT 271641Z 00000KT 3SM BR HZ BKN010 BKN030 27/24 A2995 RMK 8/600 HZY VRB CONDS=  ## [A] Minatitlán, Minatitlán/Coatzacoalcos National Airport
219358 2022-11-27 16:48  17 MX MX-COA LOV MMMV 271548Z 24015KT 12SM SKC 17/01 A3000=  ## [A] , Monclova International Airport
219360 2022-11-27 17:52  20 MX MX-DIF MEX MMMX 271652Z 06004KT 6SM SKC 20/08 A3037 NOSIG RMK HZY ISOL CU=  ## [N] Mexico City, Licenciado Benito Juarez International Airport
219361 2022-11-27 17:40  23 MX MX-NLE MTY MMMY 271640Z 29010KT 15SM SKC 23/M02 A2994=  ## [A] Monterrey, General Mariano Escobedo International Airport
219362 2022-11-27 17:42  26 MX MX-SIN MZT MMMZ 271642Z 00000KT 15SM SKC 26/13 A3002=  ## [A] Mazatlán, General Rafael Buelna International Airport
219374 2022-11-27 17:40  18 MX MX-TAM NLD MMNL 271640Z 00000KT 10SM SKC 18/12 A2996=  ## [A] Nuevo Laredo, Quetzalcóatl International Airport
219412 2022-11-27 16:41  21 MX MX-OAX OAX MMOX 271541Z 00000KT 6SM SCT015 SCT025 21/14 A3027 RMK 8/800 AC HZY=  ## [A] Oaxaca, Xoxocotlán International Airport
219415 2022-11-27 17:48  21 MX MX-VER PAZ MMPA 271648Z 03005KT 4SM BKN010 OVC018 21/19 A2999 RMK 8/8// HZY=  ## [A] Poza Rica, El Tajín National Airport
219416 2022-11-27 17:40  20 MX MX-PUE PBC MMPB 271640Z 19006KT 7SM FEW015 SCT220 20/09 A3037 RMK 8/102 HZY=  ## [A] Puebla, Hermanos Serdán International Airport
219419 2022-11-27 15:52   5 MX MX-SON --- MMPE 271452Z 01006KT 10SM SKC 05/M05 A3008 RMK RTS=  ## [A] Puerto Peñasco, (Old) Puerto Peñasco Airport
219421 2022-11-27 17:42  13 MX MX-COA PDS MMPG 271642Z 30006KT 10SM SKC 13/05 A2997=  ## [A] , Piedras Negras International Airport
219428 2022-11-27 17:40  22 MX MX-MIC UPN MMPN 271640Z 00000KT 10SM SCT030 22/15 A3026 RMK 8/100 HZY CI=  ## [A] , Licenciado y General Ignacio Lopez Rayon Airport
219431 2022-11-27 17:54  29 MX MX-CHP PQM MMPQ 271654Z 00000KT 4SM SCT030 29/25 A2985 RMK 8/500 HZY MSGTX MMMX=  ## [A] , Palenque International Airport
219432 2022-11-27 17:43  25 MX MX-JAL PVR MMPR 271643Z 15002KT 15SM SKC 25/18 A2999=  ## [A] Puerto Vallarta, Licenciado Gustavo Díaz Ordaz International Airport
219433 2022-11-27 17:40  30 MX MX-OAX PXM MMPS 271640Z 20006KT 10SM FEW020 SCT200 30/22 A2997 RMK 8/101 HZY=  ## [A] Puerto Escondido, Puerto Escondido International Airport
219460 2022-11-27 17:53  21 MX MX-QUE QRO MMQT 271653Z 28007KT 10SM SCT020 21/10 A3036 RMK 8/100=  ## [A] Querétaro, Querétaro Intercontinental Airport
219485 2019-10-14 19:00  27               MMRS 141700Z 36004KT 9999 FEW015CB BKN016 27/24 Q1011 CB/E/SE/S=  ## [A]
219490 2022-11-27 17:44  21 MX MX-TAM REX MMRX 271644Z 26004KT 10SM SKC 21/14 A2994=  ## [A] Reynosa, General Lucio Blanco International Airport
219496 2022-11-27 17:41  23 MX MX-BCS SJD MMSD 271641Z 34012KT 10SM SKC 23/09 A3008=  ## [A] San José del Cabo, Los Cabos International Airport
219504 2022-11-27 17:40  23 MX MX-BCS --- MMSL 271640Z 15003KT 10SM SKC 23/13 A3007=  ## [A] Cabo San Lucas, Cabo San Lucas International Airport
219505 2022-11-27 17:46  19 MX MX-MEX NLU MMSM 271646Z 14003KT 8SM SKC 19/11 A3036 RMK HZY CI ISOL CU=  ## [A] Reyes Acozac, Santa Lucia Air Force Base
219508 2022-11-27 17:49  21 MX MX-SLP SLP MMSP 271649Z 00000KT 12SM SKC 21/01 A3027=  ## [A] San Luis Potosí, Ponciano Arriaga International Airport
219521 2022-11-27 17:40  16 MX MX-COA TRC MMTC 271640Z 13004KT 10SM SKC 16/M05 A3015=  ## [A] Torreón, Francisco Sarabia International Airport
219525 2022-11-27 17:51  27 MX MX-CHP TGZ MMTG 271651Z 35003KT 3SM FU HZ FEW020 SCT030 BKN300 27/21 A3004 RMK 8/802 VSBY VRB FU HZ=  ## [A] Tuxtla Gutiérrez, Angel Albino Corzo International Airport
219528 2022-11-27 17:40  16 MX MX-BCN TIJ MMTJ 271640Z 00000KT 10SM SKC 16/M01 A3011=  ## [A] Tijuana, General Abelardo L. Rodríguez International Airport
219531 2022-11-27 17:44  22 MX MX-TAM TAM MMTM 271644Z 00000KT 8SM BKN040 22/17 A2999 RMK 8/500=  ## [A] Tampico, General Francisco Javier Mina International Airport
219533 2022-11-27 17:44  16 MX MX-MEX TLC MMTO 271644Z 27004KT 6SM FEW020 16/09 A3044 RMK 8/100 HZY=  ## [A] Toluca, Licenciado Adolfo Lopez Mateos International Airport
219534 2022-11-27 17:41  28 MX MX-CHP TAP MMTP 271641Z 00000KT 8SM SCT050 OVC200 28/28 A2995 RMK 8/106 HZY=  ## [A] Tapachula, Tapachula International Airport
219558 2022-11-27 17:45  31 MX MX-ROO CUN MMUN 271645Z 12009KT 7SM SCT015 31/25 A3001 RMK 8/100 CI=  ## [A] Cancún, Cancún International Airport
219571 2022-11-27 17:43  30 MX MX-TAB VSA MMVA 271643Z 00000KT 5SM SCT012 SCT070 BKN210 30/26 A2998 RMK 8/531 HZY=  ## [A] Villahermosa, Carlos Rovirosa Pérez International Airport
219588 2022-11-27 17:49  26 MX MX-VER VER MMVR 271649Z 35004KT 7SM BKN015 26/22 A2999 RMK 8/500 HZY=  ## [A] Veracruz, General Heriberto Jara International Airport
219677 2022-11-27 17:40  18 MX MX-ZAC ZCL MMZC 271640Z E18015KT 10SM SKC 18/M05 A3030=  ## [A] Zacatecas, General Leobardo C. Ruiz International Airport
219682 2022-11-27 17:40  31 MX MX-GRO ZIH MMZH 271640Z 22005KT 7SM FEW250 31/23 A2998 RMK 8/002 HZY ISOL CU=  ## [A] Ixtapa, Ixtapa Zihuatanejo International Airport
219689 2022-11-27 17:40  28 MX MX-COL ZLO MMZO 271640Z 15006KT 12SM SCT020 28/24 A3006 RMK 8/100=  ## [A] Manzanillo, Playa De Oro International Airport
------ Nicaragua:
219738 2022-11-27 18:00  28 NI NI-AS  BEF MNBL 271700Z 34004KT 9999 FEW017CB BKN020 28/26 Q1013 CB/NE/SW=  ## [A] Bluefileds, Bluefields Airport
219760 2022-11-27 18:00  28 NI NI-CI  --- MNCH 271700Z 35004KT 9999 SCT025TCU 28/26 Q1014 TCU/N/NE/E=  ## [A] Chinandega, Chinandega Airport
219765 2019-07-07 09:00  27               MNCM 070700Z 07009KT 9999 FEW020 SCT035 27/23 Q1017 RMK A3004 =  ## [A]
219768 2021-11-15 00:00  28               MNCP 142300Z 05004KT 7000 SCT016 28/26 Q1009 HZ=  ## [A]
219941 2022-11-27 18:00  24 NI NI-JI  --- MNJG 271700Z 36004KT 9999 BKN013 24/18 Q1015=  ## [A] Jinotega, Jinotega
219944 2020-08-02 22:00  34               MNJJ 022000Z 08004KT 9999 SCT020 34/24 Q1010=  ## [A]
219955 2022-11-27 18:00  30 NI NI-CO  --- MNJU 271700Z 09004KT 9999 SCT020 30/24 Q1013=  ## [A] Juigalpa, Juigalpa
220019 2022-11-27 18:00  31 NI NI-MN  MGA MNMG 271700Z 10006KT 9999 FEW022TCU 31/23 Q1013 A2991 TCU/SW NOSIG=  ## [A] Managua, Augusto C. Sandino (Managua) International Airport
220024 2019-07-17 22:10 XXX               MNML 172010Z 08008KT 3000 RA BKN017 SCT060=  ## [A]
220045 2019-07-08 22:00  23 NI NI-AS  NVG MNNG 082000Z 36006KT 9999 BKN016 23/20 Q1012=  ## [A] Nueva Guinea, Nueva Guinea Airport
220093 2022-11-27 18:00  27 NI NI-AN  PUZ MNPC 271700Z 08004KT 6000 VCRA FEW014CB BKN016TCU 27/26 Q1012 CBRA/N/NE TURA/E/SE/SW/S/W=  ## [A] Puerto Cabezas, Puerto Cabezas Airport
220161 2022-11-27 18:00  28 NI NI-RI  --- MNRS 271700Z 00000KT 9999 SCT012CB BKN013 28/25 Q1013 CB/4/C=  ## [A] Rivas, Rivas
------ Panama:
221093 2022-11-26 14:00  25 PA PA-1   BOC MPBO 261300Z 00000KT 9999 FEW020 25/23 Q1012=  ## [A] Isla Colón, Bocas Del Toro International Airport
221098 2022-09-26 19:00  30               MPBT 261700Z 01008KT 9999 SCT020 30/27 Q1009=  ## [A]
221109 2020-06-22 23:00  35 PA PA-6   CTD MPCE 222100Z 06006KT 9000 VCSH SCT018CB BKN090 35/// Q1006=  ## [A] Chitré, Alonso Valderrama Airport
221112 2019-08-28 03:00 XXX PA PA-1   CHX MPCH 280100Z 00000KT 9999 FEW030 SCT080 Q1012 RMK HZ S-SW=  ## [A] Changuinola, Cap Manuel Niño International Airport
221131 2022-11-27 18:00  30 PA PA-4   DAV MPDA 271700Z 22006KT 9999 SCT016 30/24 Q1012=  ## [A] David, Enrique Malek International Airport
221166 2020-05-26 14:00  27 PA PA-3   ONX MPEJ 261200Z 00000KT 9999 FEW015 27/26 Q1011=  ## [A] Colón, Enrique Adolfo Jimenez Airport
221371 2022-11-27 18:00  30 PA PA-8   PAC MPMG 271700Z VRB04KT 9999 SCT020 30/25 Q1012 NOSIG=  ## [A] Albrook, Marcos A. Gelabert International Airport
221380 2021-07-11 04:00  24               MPMP 110200Z 00000KT 9999 FEW015 24/24 Q1011 RWY WET=  ## [A]
221443 2022-11-27 18:00  29               MPPA 271700Z 14004KT 9999 FEW018 29/25 Q1011=  ## [A]
221445 2020-09-10 02:00  29               MPPC 100000Z 10006KT 9999 FEW018CB FEW020 SCT300 29/25 Q1014 CB/SE/S=  ## [A]
221456 2021-09-18 22:20  25               MPPN 182020Z 00000KT 9000 TSVCSH FEW012CB SCT015TCU BKN100 25/// RERA RWY WET=  ## [A]
221533 2022-11-27 18:00  30               MPSM 271700Z 19008KT 9999 FEW030 30/24 Q1012=  ## [A]
221561 2022-11-27 18:00  30 PA PA-8   PTY MPTO 271700Z 09007KT 9999 SCT017 30/24 Q1013 NOSIG=  ## [C] Tocumen, Tocumen International Airport
221616 2019-12-14 15:00 XXX PA PA-KY  PVE MPVR 141400Z 26006KT(E) 9999 SCT020 BKN080 RMK TCU NE/SE=  ## [A] El Porvenir, El Porvenir Airport
------ Costa Rica:
222692 2022-11-27 18:00  26 CR CR-G   LIR MRLB 271700Z 33007KT 5000 -RA SCT010 BKN030 26/25 A2992=  ## [A] Liberia, Daniel Oduber Quiros International Airport
222703 2022-11-27 18:00  29 CR CR-L   LIO MRLM 271700Z 01009KT 9999 FEW030 29/24 A2991=  ## [A] Puerto Limon, Limon International Airport
222708 2019-11-25 18:00  24               MRLR 251700Z COR 22003KT 9999 -DZ SCT020 BKN100 24/23 A2987 RERA =  ## [A]
222771 2022-11-27 18:00  25 CR CR-A   SJO MROC 271700Z 23008KT 190V260 9999 FEW002 SCT035 25/20 A3005 NOSIG=  ## [A] San Jose, Juan Santamaria International Airport
222810 2022-06-12 15:00  30 CR CR-P   --- MRPP 121300Z 11016KT 9999 FEW026 30/23 Q1016 A3002=  ## [A] Paquera, Playa Pájaros Airport
222816 2022-11-27 18:00  24 CR CR-SJ  SYQ MRPV 271700Z 27008KT 9999 SCT020TCU FEW030 SCT250 24/19 A3009 NOSIG=  ## [A] San Jose, Tobias Bolanos International Airport
------ El Salvador:
223083 2022-11-27 15:50  27 SV SV-SM  --- MSAC 261450Z 12002KT CAVOK 27/22 Q1012 A2989=  ## [A] San Miguel, La Aramuaca Airport
223177 2021-09-24 07:00  26               MSDS 240500Z 24005KT 9999 FEW018 26/24 Q1012=  ## [A]
223377 2020-11-29 07:00  14               MSLK 290600Z 05004IT 9999 FEW030 14/09 Q1020=  ## [A]
223382 2022-11-27 17:50  29 SV SV-PA  SAL MSLP 271650Z 21004KT 140V280 9999 SCT020 FEW033TCU 29/24 Q1014 A2995 NOSIG RMK TCU N NE=  ## [A] San Salvador (San Luis Talpa), Monseñor Óscar Arnulfo Romero International Airpo
223385 2019-08-06 07:50  24               MSLS 060550Z 01003KT 9999 BKN077 24/23 Q1012 A2990 NOSIG RMK LTG W NW=  ## [A]
223387 2022-11-25 20:50  33               MSLU 251950Z 13004KT CAVOK 33/22 Q1008 A2979=  ## [A]
223473 2021-02-04 04:00  23               MSPC 040300Z 14006KT 9999 FEW018 23/21 Q1016=  ## [A]
223549 2022-11-27 15:50  25 SV SV-SA  --- MSSA 261450Z 00000KT CAVOK 25/20 Q1020 A3012=  ## [A] Santa Ana, El Palmer Airport
223561 2022-11-27 15:50  25 SV SV-SM  --- MSSM 261450Z 00000KT CAVOK 25/23 Q1013 A2993=  ## [A] San Miguel, El Papalon Airport
223567 2022-11-27 15:50  25 SV SV-SS  --- MSSS 261450Z 35004KT 9999 FEW033 25/21 Q1018 A3002=  ## [A] San Salvador, Ilopango International Airport
------ Haiti:
223816 2022-11-21 15:00  27 HT HT-ND  CAP MTCH 211400Z 11006KT 9000 FEW024CB 27/20 Q1017 A3005 RMK/NE=  ## [A] Cap Haitien, Cap Haitien International Airport
223943 2020-10-01 18:00  30               MTHE 011600Z 33004KT 9999 TS SCT024TCU SCT028CB SCT250 30/26 Q1010 CB TS ALL=  ## [A]
223945 2021-09-25 09:12  21               MTHG 250712Z 03007KT 6000 RA BKN026 21/19 Q1017 A3003 TEMPO 8000=  ## [A]
224045 2020-05-27 23:00  31               MTLC 272100Z 04008KT 9999 SCT025 BKN080 31/25 Q1009 A2980 METAR =  ## [A]
224070 2019-08-21 19:00  29               MTMB 211700Z 10013KT CAVOK 29/21 Q1015=  ## [A]
224084 2022-06-14 10:00  25               MTMP 140800Z 07004KT 9999 SKC 25/13 Q1022=  ## [A]
224089 2020-08-30 20:00  23               MTMU 301800Z 36009KT 9999 FEEW017 FEW019CB 23/20 Q1017=  ## [A]
224162 2022-11-27 18:00  32 HT HT-OU  PAP MTPP 271700Z 05004KT 9999 FEW027 32/21 Q1014 A2995=  ## [A] Port-au-Prince, Toussaint Louverture International Airport
224252 2019-11-06 21:00  14               MTTB 062000Z 25005KT 8000 BKN016 FEW023CB 14/12 Q1010=  ## [A]
224257 2019-08-03 12:00 XXX               MTTG 031000Z 28008KT CAVOK ///12 Q1012=  ## [A]
224262 2019-09-07 05:00  22               MTTL 070300Z AUTO 24005KT 180V310 NCD 22/16 Q1016=  ## [A]
224264 2019-08-28 05:00  23               MTTN 280300Z 20005KT 160V220 8000 SCT020 23/19 Q1014=  ## [A]
224274 2019-10-11 02:00  21               MTTX 110000Z 34007KT CAVOK 21/18 Q1020 NOSIG=  ## [A]
------ Kuba:
224483 2022-10-24 12:50  21 CU CU-12  BYM MUBY 241050Z VRB01KT 0500 0000 FG VV/// 21/21 Q1015=  ## [A] Bayamo, Carlos Manuel de Cespedes Airport
224487 2022-11-27 17:50  30 CU CU-08  CCC MUCC 271650Z 17005KT 110V240 9000 SCT020 30/24 Q1017=  ## [A] Cayo Coco, Jardines Del Rey Airport
224490 2022-11-27 17:50  31 CU CU-06  CFG MUCF 271650Z 24004KT 190V300 9999 FEW025 31/21 Q1017=  ## [A] Cienfuegos, Jaime Gonzalez Airport
224496 2022-11-27 17:50  30 CU CU-99  CYO MUCL 271650Z 11008KT 080V150 9000 FEW020 30/23 Q1017=  ## [A] Cayo Largo del Sur, Vilo Acuña International Airport
224497 2022-11-27 17:50  31 CU CU-09  CMW MUCM 271650Z 05008KT 360V100 9000 FEW020 31/19 Q1017=  ## [A] Camaguey, Ignacio Agramonte International Airport
224505 2022-11-27 17:50  29 CU CU-13  SCU MUCU 271650Z 21004KT 170V250 9999 FEW020 29/22 Q1016=  ## [A] Santiago, Antonio Maceo International Airport
224601 2022-11-27 17:51  31 CU CU-14  NBW MUGM 271651Z 10012KT 10SM FEW035 31/24 A3000 RMK SLP157 T03110239=  ## [A] Guantanamo Bay Naval Station, Leeward Point Field
224608 2022-10-24 12:54  21 CU CU-14  GAO MUGT 241054Z 02002KT 9000 FEW020 SCT080 21/20 Q1014=  ## [A] Guantánamo, Mariana Grajales Airport
224615 2022-11-27 17:50  29 CU CU-03  HAV MUHA 271650Z VRB04KT 9000 BKN030 29/22 Q1017=  ## [A] Havana, José Martí International Airport
224621 2022-11-27 17:50  31 CU CU-11  HOG MUHG 271650Z 08006KT 050V110 9000 FEW042 SCT045 31/21 Q1016=  ## [A] Holguin, Frank Pais International Airport
224721 2020-05-30 17:00  26               MULC 301500Z VRB02KT 9999 SCT030 OVC080 26/25 Q1011 A2986 RERA=  ## [A]
224759 2022-07-19 14:50  29 CU CU-11  MOA MUMO 191250Z 08014KT 9000 SCT018 29/25 Q1017=  ## [A] Moa, Orestes Acosta Airport
224770 2022-07-19 14:50  27 CU CU-12  MZO MUMZ 191250Z 06008KT 9000 FEW020 27/25 Q1017=  ## [A] Manzanillo, Sierra Maestra Airport
224777 2022-02-19 12:50  22 CU CU-99  GER MUNG 191150Z 03004KT 8000 SCT010 22/22 Q1020=  ## [A] Nueva Gerona, Rafael Cabrera Airport
224824 2022-10-24 12:50  22 CU CU-02  UPB MUPB 241050Z 13003KT 9000 NSC 22/19 Q1016=  ## [A] Havana, Playa Baracoa Airport
224901 2020-04-22 00:50  31 CU CU-02  --- MUSA 212250Z 23005KT 180V270 9000 FEW020 31/22 Q1012=  ## [A] San Antonio de los Banos, San Antonio De Los Banos Airport
224903 2022-11-27 17:50  29 CU CU-05  SNU MUSC 271650Z 16006KT 110V200 9000 FEW025 29/21 Q1017=  ## [A] Santa Clara, Abel Santamaria Airport
224931 2021-01-31 22:00  28               MUTE 312100Z 02016KT 9999 FEE024TCU 28/25 Q1010=  ## [A]
224996 2022-11-27 17:50  30 CU CU-04  VRA MUVR 271650Z VRB02KT 9000 SCT020 30/21 Q1017=  ## [A] Varadero, Juan Gualberto Gomez International Airport
------ Caymanöarna:
225838 2022-11-27 18:00  31 KY KY-U-A CYB MWCB 271700Z 10010KT 9999 FEW018 31/25 Q1016=  ## [A] Cayman Brac, Gerrard Smith International Airport
225854 2022-11-27 18:00  30 KY KY-U-A GCM MWCR 271700Z 09011KT 9999 SCT018 30/26 Q1015=  ## [A] Georgetown, Owen Roberts International Airport
------ Bahamas:
227142 2022-11-23 16:00  29 BS BS-NB  ASD MYAF 231500Z AUTO 12006KT 090V160 0000 FG SCT018 29/25 A3006=  ## [A] , Andros Town Airport
227190 2022-11-23 15:00  28 BS BS-CI  TBI MYCB 231400Z AUTO 14005KT 050V180 //// R09///// // FEW004 BKN022 28/24 A3006=  ## [A] Cat Island, New Bight Airport
227253 2022-06-21 10:00  27 BS BS-GH  GHB MYEM 210800Z AUTO 05008KT 9999 FEW023 27/23 Q1017 A3004=  ## [A] Governor's Harbour, Governor's Harbour Airport
227273 2020-06-20 01:00  26               MYFG 192300Z 35020G32KT 8000 FC -TSRA SCT010 BKN012CB OVC040 26/25 A3007=  ## [A]
227298 2022-11-27 18:00  28 BS BS-FP  FPO MYGF 271700Z 18012KT 9999 FEW020 SCT250 28/23 A3003=  ## [A] Freeport, Grand Bahama International Airport
227351 2022-06-21 23:17  25 BS BS-IN  IGA MYIG 212117Z AUTO 35012G25KT 300V050 0750 +TSRA SCT011 BKN027 OVC031 //////CB 25/21 A3000=  ## [A] Matthew Town, Inagua Airport
227488 2022-11-27 18:00  29 BS BS-NP  NAS MYNN 271700Z 17007KT 140V200 9999 SCT025 29/23 A3005=  ## [A] Nassau, Lynden Pindling International Airport
227499 2022-06-17 17:00  30               MYNY 171500Z 15003KT 060V190 9999 FEW015CB 30/22 A3000=  ## [A]
227617 2022-11-27 18:00  29 BS BS-SR  ZSA MYSM 271700Z AUTO 11009KT 9999 SCT027/// 29/23 A3005=  ## [A] San Salvador, San Salvador Airport
------ Belize:
227864 2022-11-27 18:00  30 BZ BZ-BZ  BZE MZBZ 271700Z 09008KT 9999 BKN022 30/25 A2997 Q1015 NOSIG=  ## [A] Belize City, Philip S. W. Goldson International Airport
228150 2020-11-05 16:05  24               MZMZ 051505Z 35008KT 9000 -RA BKN007 OVC030 24/24 A2983 Q1010 TEMPO 4000 SHRA=  ## [A]
229340 2019-07-27 22:00  30               NBGT 272000Z 08012KT 9999 SCT020 30/24 Q1018=  ## [A]
229436 2019-10-05 00:00  31               NBKL 042200Z 10004KT 9999 FEW022 BKN300 31/26 Q1010=  ## [A]
229461 2019-10-06 23:00  30               NBLK 062100Z 07004KT 9999 SCT018 SCT080 30/27 Q1008=  ## [A]
229476 2019-09-25 20:10 XXX               NBLZ 251810Z 18004KT 3000 TSRA FEW017CB BKN020 CB S SW=  ## [A]
------ Cooköarna:
229849 2022-11-27 18:00  25 CK CK-U-A AIT NCAI 271700Z AUTO 16008KT //// ////// 25/21 Q1015=  ## [A] Aitutaki, Aitutaki Airport
229860 2022-11-27 18:00 XXX CK CK-U-A AIU NCAT 271700Z AUTO 11003KT //// ////// ///// Q////=  ## [A] Atiu Island, Enua Airport
229956 2021-12-15 22:11  27               NCEL 152111Z 36010KT 8000 VCSH BKN044 27/18 Q1019 A3009 NOSIG=  ## [A]
230159 2022-11-27 18:00 XXX CK CK-U-A MGS NCMG 271700Z AUTO 10003KT //// ////// ///// Q////=  ## [A] Mangaia Island, Mangaia Island Airport
230160 2022-11-27 18:00 XXX CK CK-U-A MHX NCMH 271700Z AUTO 03002KT //// ////// ///// Q1011=  ## [A] Manihiki Island, Manihiki Island Airport
230163 2022-11-27 18:00 XXX CK CK-U-A MUK NCMK 271700Z AUTO NIL=  ## [A] Mauke Island, Mauke Airport
230165 2021-06-06 21:00  30               NCMM 061900Z 06010KT 030V090 9999 SCT018 30/23 Q1017 NOSIG =  ## [A]
230170 2022-11-27 18:00 XXX CK CK-U-A MOI NCMR 271700Z AUTO 08005KT //// ////// ///// Q1015=  ## [A] Mitiaro Island, Mitiaro Island Airport
230197 2022-11-27 18:00  24               NCNS 271700Z AUTO 28001KT //// ////// 24/22 Q1012=  ## [A]
230241 2022-11-27 18:00 XXX CK CK-U-A PZK NCPK 271700Z AUTO NIL=  ## [A] Pukapuka Atoll, Pukapuka Island Airport
230242 2022-11-27 18:00  24               NCPL 271700Z AUTO 09004KT //// ////// 24/22 Q1014=  ## [A]
230255 2022-11-27 18:00  27 CK CK-U-A PYE NCPY 271700Z AUTO 05013KT //// ////// 27/22 Q1012=  ## [A] Penrhyn Island, Tongareva Airport
230289 2022-11-27 18:00  24 CK CK-U-A RAR NCRG 271700Z AUTO 10004KT 020V130 9999 FEW027/// 24/19 Q1017=  ## [A] Avarua, Rarotonga International Airport
230293 2022-11-27 18:00  24               NCRK 271700Z AUTO 08002KT //// ////// 24/23 Q1012=  ## [A]
230331 2022-11-27 18:00  27               NCSW 271700Z AUTO 10004KT //// ////// 27/23 Q1012=  ## [A]
230550 2020-07-18 01:00  29               NDBH 172300Z 13012KT 9999 FEW018CB SCT020 SCT300 29/25 Q1014 CB/NE/W/NW/N=  ## [A]
231022 2021-04-10 20:00  25               NDTL 101800Z 00000KT 9999 FEW017TCU 25/22 Q1012=  ## [A]
231680 2019-05-27 02:07 XXX               NEST 271200Z SLP159 DENSITY ALT 4000FT=  ## [A]
231698 2020-08-14 19:00  22               NETL 141700Z 20006KT 9999 -SHRA SCT008 SCT017TCU BKN100 22/20 Q1011=  ## [A]
231815 2021-09-09 03:08 XXX               NEXY 091300Z SLP110 DENSITY ALT 2700FT=  ## [A]
------ Fiji:
232012 2022-11-27 18:00  23 FJ FJ-W   NAN NFFN 271700Z 13004KT 9999 FEW028 SCT300 23/22 Q1011 NOSIG=  ## [A] Nadi, Nadi International Airport
232132 2022-11-15 22:00  29 FJ FJ-E   KDV NFKD 152100Z 13007KT 9999 FEW030 29/23 Q1010=  ## [A] Vunisea, Vunisea Airport
232155 2020-09-22 09:00  21               NFLA 220700Z AUTO 31002KT //// 21/// Q1013=  ## [A]
232156 2022-09-23 23:00  27               NFLB 232100Z 00000KT 9999 BKN020 SCT045 27/25 Q1015=  ## [A]
232174 2019-06-29 20:00  24               NFLT 291800Z 10015G25KT 9999 FEW017 SCT035 BKN120 24/18 Q1016=  ## [A]
232200 2021-02-05 19:00  26               NFMT 051800Z AUTO 16008KT //// 26/24 Q1004=  ## [A]
232207 2022-11-27 18:00  23 FJ FJ-C   SUV NFNA 271700Z 33004KT 9999 FEW008 SCT020 BKN045 23/22 Q1012=  ## [A] Nausori, Nausori International Airport
232208 2021-02-05 19:00  26 FJ FJ-E   LEV NFNB 051800Z AUTO 18003KT //// 26/26 Q1004=  ## [A] Bureta, Levuka Airfield
232212 2019-09-23 03:00  27               NFNF 230100Z AUTO 11008KT //// 27/22 Q1014=  ## [A]
232217 2021-02-05 01:00  30 FJ FJ-E   LKB NFNK 050000Z AUTO 27006KT //// 30/25 Q1005=  ## [A] Lakeba Island, Lakeba Island Airport
232218 2022-11-27 04:15  31 FJ FJ-N   LBS NFNL 270315Z 27010KT 9999 TS VCSH FEW018CB SCT026 31/24 Q1010=  ## [A] , Labasa Airport
232219 2022-11-27 03:00  30 FJ FJ-N   TVU NFNM 270200Z 06004KT 9999 FEW018 SCT300 30/24 Q////=  ## [A] Matei, Matei Airport
232220 2021-11-11 06:00  29               NFNN 110500Z 30010KT 9999 TS FEW018CB SCT024TCU BKN300 29/23 Q1010 TEMPO 5000 TSRA=  ## [A]
232224 2022-11-23 07:00  29 FJ FJ-R   RTA NFNR 230600Z 10005KT 9999 SCT026 29/26 Q1010=  ## [A] Rotuma, Rotuma Airport
232225 2022-11-25 22:00  29 FJ FJ-N   SVU NFNS 252100Z 00000KT 9999 FEW026TCU 29/25 Q1012=  ## [A] Savusavu, Savusavu Airport
232229 2020-07-09 01:00  30 FJ FJ-E   KAY NFNW 082300Z AUTO 13007KT 30/28 Q1015=  ## [A] Wakaya Island, Wakaya Island Airport
232244 2020-04-08 07:00 XXX FJ FJ-E   ONU NFOL 080500Z 06024G36KT 8000 -RA SCT021 BKN045 OVC100 Q0999 RMK RR 2.6=  ## [A] Ono-i-Lau, Ono-i-Lau Airport
232359 2021-02-05 01:00  29 FJ FJ-W   YAS NFSW 050000Z 32012KT 20KM -SHRA SCT020 SCT040 BKN110 29/28 Q1004=  ## [A] Yasawa Island, Yasawa Island Airport
------ Tonga:
232367 2021-08-27 22:00  20 TO TO-01  EUA NFTE 272000Z 09008KT 9999 SCT015 BKN030 20/14 Q1021=  ## [A] Eua Island, Kaufana Airport
232368 2022-11-27 18:00  24 TO TO-04  TBU NFTF 271700Z VRB02KT 9999 FEW014TCU BKN280 24/23 Q1015 RMK GRASS DEW=  ## [A] Nuku'alofa, Fua'amotu International Airport
232374 2022-11-27 18:00  26 TO TO-02  HPA NFTL 271700Z 07004KT 9999 FEW016 26/23 Q1013=  ## [A] Lifuka, Lifuka Island Airport
232377 2020-03-11 07:03  28 TO TO-03  NFO NFTO 110600Z08004KT 9999 FEW018 BKN290 28/25 Q1010=  ## [A] Angaha,  Niuafo'ou Island, Mata'aho Airport
232378 2022-02-10 19:00  23 TO TO-03  NTT NFTP 101800Z 00000KT 9999 SCT018TCU BKN110 23/22 Q1010=  ## [A] Niuatoputapu, Kuini Lavenia Airport
232384 2022-11-27 18:00  24 TO TO-05  VAV NFTV 271700Z 00000KT 9999 SCT018 24/23 Q1013 RMK GRASS DEW=  ## [A] Vava'u Island, Vava'u International Airport
232404 2021-02-05 19:00  26               NFUP 051800Z 06003KT 50KM FEW025 SCT280 26/26 Q1005=  ## [A]
232415 2021-02-05 19:00  27               NFVA 051800Z AUTO 08007KT //// 27/26 Q1002=  ## [A]
------ Fiji:
232416 2021-02-05 19:00  26 FJ FJ-E   VBV NFVB 051800Z 28003KT 50KM SCT028 BKN048 BKN110 26/25 Q1005=  ## [A] Vanua Balavu, Vanua Balavu Airport
232564 2022-06-16 21:00  28               NGAT 161900Z 09008KT 9999 FEW019 28/24 Q1009=  ## [A]
------ Tuvalu:
232695 2022-11-27 18:00  27 TV TV-FUN FUN NGFU 271700Z 07007KT 9999 FEW016CB FEW018TCU BKN100 27/25 Q1010=  ## [A] Funafuti, Funafuti International Airport
------ Kiribati:
233039 2022-11-27 18:00  27 KI KI-G   TRW NGTA 271700Z 06006KT 9999 FEW020 27/23 Q1007=  ## [A] Tarawa, Bonriki International Airport
233058 2022-10-16 20:00  27               NGTT 161800Z 10009KT 9999 SCT019TCU 27/23 Q1010=  ## [A]
233233 2019-06-11 02:00  31               NHAM 110000Z 23004KT 9999 FEW030CB BKN080 31/25 CB E=  ## [A]
233273 2019-10-20 07:00  24               NHCA 200500Z 04002KT 9999 SCT025 BKN070 24/21 HZ=  ## [A]
233395 2019-06-21 22:00  31               NHGS 212000Z 36004KT 9999 SCT046TCU FEW048CB SCT250 31/22 CB E TCU WNW=  ## [A]
233509 2021-06-26 02:00  26               NHLC 260000Z 10004KT 9999 5000W -TSRA VCSH SCT028 FEW030CB BKN070 26/24 Q1011 A2986 BECMG 8000 TSVCSH=  ## [A]
233511 2021-05-22 20:00  23               NHLE 221800Z 02006KT 9999 SCT024 BKN200 23/16=  ## [A]
233719 2021-04-23 23:00  32               NHTE 232100Z 01012KT 9999 82822TCU 32/30 Q1008 A2977 DU=  ## [A]
233721 2019-11-17 03:05  18               NHTG 170205Z 02008KT 5000NE 2500SW -DZ FEW010 SCT020 BKN060 18/17 Q1021 A3015 NOSIG=  ## [A]
233732 2021-06-26 23:00  32               NHTR 262100Z 06005KT 9999 FEW025CB 32/24=  ## [A]
------ Niue:
234421 2022-11-27 18:00  22 NU NU-U-A IUE NIUE 271700Z AUTO 12003KT 22/21 Q1014=  ## [A] Alofi, Niue International Airport
235501 2019-07-24 05:00  27               NKJS 240300Z VRB02KT 9999 VCTS FEW022CB 27/24 Q1016=  ## [A]
235777 2019-07-07 15:00  23               NKUI 071300Z 27010KT CAVOK 23/16 Q1023=  ## [A]
------ Wallis- och Futunaöarna:
236519 2022-11-27 18:00  25 WF WF-U-A WLS NLWW 271700Z AUTO 15003KT 110V190 9999 FEW010/// SCT060/// 25/23 Q1011 TEMPO 2000 TSRA BKN014 FEW020CB=  ## [A] Wallis Island, Hihifo Airport
237127 2020-03-08 09:00  22               NMUG 080800Z 18004KT 3000 BR OVC013 22/21 Q1015=  ## [A]
237336 2021-08-13 17:00  29               NNCH 131500Z 36004KT 9999 FEW025 SCT300 29/26 Q1015 1AC090=  ## [A]
237341 2021-06-02 16:00  30               NNCM 021400Z 08010KT 9999 FEW018 30/20 Q1017 NOSIG =  ## [A]
------ Samoa:
240787 2022-11-27 18:00  24 WS WS-AA  APW NSFA 271700Z 16005KT 9999 FEW026TCU 24/23 Q1011RMK TCU TO SW=  ## [A] Apia, Faleolo International Airport
------ Amerikanska Samoa:
241171 2022-11-27 17:50  27 AS AS-U-A PPG NSTU 271650Z 12009KT 12SM SCT018 27/26 A2988 RMK SLP117 T02720262=  ## [A] Pago Pago, Pago Pago International Airport
------ Franska Polynesien:
241333 2022-11-27 18:00  27 PF PF-U-A PPT NTAA 271700Z VRB02KT 9999 FEW023 27/19 Q1014 NOSIG=  ## [A] Papeete, Faa'a International Airport
241474 2021-01-29 03:00  25               NTFL 290200Z 31015G25KT 9999 -RA SCT007 BKN016 OVC100 25/24 Q1003=  ## [A]
241489 2020-12-20 04:00  29 PF PF-U-A AAA NTGA 200300Z 12011KT 9999 FEW020 29/24 Q1005=  ## [A] , Anaa Airport
241552 2022-08-20 03:36 XXX               NTIL 201230Z SLP072 DENSITY ALT 1900FT=  ## [A]
242535 2019-07-07 13:00  25               NUUG 071100Z 27010KT 9999 FEW020 25/17 Q1017=  ## [A]
242790 2021-01-09 00:00  15               NVEB 082300Z VRB02KT 0400 FG FEW100 15/13 Q1012 NOSIG=  ## [A]
------ Vanuatu:
243155 2022-11-27 10:00  24 VU VU-TOB SLH NVSC 270900Z AUTO 00000KT //// // NCD 24/23 Q1010=  ## [A] Sola, Sola Airport
243159 2022-11-27 10:00  25 VU VU-PAM LOD NVSG 270900Z AUTO 00000KT //// // NCD 25/23 Q1011=  ## [A] Longana, Longana Airport
243164 2022-11-27 10:00  25 VU VU-MAP LPM NVSL 270900Z AUTO 08003KT //// // NCD 25/25 Q1010=  ## [A] Lamap, Lamap Airport
243168 2020-05-04 06:00 XXX VU VU-MAP NUS NVSP 040400Z AUTO 09003KT //// // NCD ///// Q1008=  ## [A] Norsup, Norsup Airport
243171 2022-11-27 10:00  24 VU VU-SAM SON NVSS 270900Z 33004KT 9999 FEW020 SCT045 24/23 Q1009=  ## [A] Luganville, Santo Pekoa International Airport
243231 2022-11-27 10:00  24 VU VU-TAE AUY NVVA 270900Z AUTO 01002KT //// // NCD 24/23 Q1011=  ## [A] Anatom Island, Aneityum Airport
243249 2021-02-08 22:00  28               NVVS 082100Z VRB02KT 9999 FEW016 BKN020 28/24 Q1005=  ## [A]
243252 2022-11-27 11:00  23 VU VU-SEE VLI NVVV 271000Z 06001KT 9999 SCT020 BKN040 23/21 Q1011=  ## [A] Port Vila, Bauerfield International Airport
243253 2022-11-27 10:00  24 VU VU-TAE TAH NVVW 270900Z AUTO 09006KT //// // NCD 24/21 Q1011=  ## [A] , Tanna Airport
243700 2019-08-18 00:04  30               NWNB 172204Z AUTO 13008KT 100V170 10SM CLR 30/17 A2968 RMK10SM CLR 30/17 A2968 RMK AO2 LTG DSNT NW T03030165=  ## [A]
243821 2022-03-14 18:00  31               NWRS 141700Z 36010KT 9999 FEW014 SCT070 31/22 Q1014=  ## [A]
243832 2021-01-04 06:55 -16               NWSD 040555Z 25014KT 4800 -SN DRSN OVC020 M16/M19 A2857 RMK SDF/HDF=  ## [A]
------ Nya Kaledonien:
243955 2022-11-27 18:00  21 NC NC-U-A NOU NWWW 271700Z AUTO VRB02KT 9999 FEW046/// ///CB 21/17 Q1010 TEMPO SHRA=  ## [A] Nouméa, La Tontouta International Airport
244874 2020-10-07 02:00  29               NYGF 070000Z 12008KT 9999 VCSH FEW018CB BKN025 29/26 A2996 RMK CB/VCSH W=  ## [A]
244949 2019-12-11 00:51  12               NYJC 102351Z AUTO 27010G18KT 250V320 10SM SCT070 OVC090 12/07 A2996 RMK AO2 RAB2258E28 SLP136 P0001 60006 T01220067 10139 20122 51036 =  ## [A]
------ Nya Zeeland:
245389 2022-11-27 18:00  15 NZ NZ-AUK AKL NZAA 271700Z AUTO 25013KT 9999 OVC065/// 15/10 Q1007 NOSIG=  ## [A] Auckland, Auckland International Airport
245448 2022-11-27 18:00   7 NZ NZ-CAN CHC NZCH 271700Z AUTO 00000KT 9999 NCD 07/07 Q1005 NOSIG=  ## [A] Christchurch, Christchurch International Airport
245453 2022-11-27 17:55 -10               NZCM 271655Z VRB03KT 9999 CLR M10/M14 A2833 RMK AO2 SLP598 T11011137  ## [A]
245542 2022-11-23 12:17 -11               NZFX 231117Z 05006KT 9999 FEW025 FEW110 SCT150 OVC180 M11/M13 A2940 RMK GRID22006KT SDF/HDG LAST=  ## [A]
245760 2022-11-20 18:00  15 NZ NZ-MWT OHA NZOH 201700Z 34005KT 20KM FEW025 SCT035 BKN060 15/14 Q1002 TEMPO BKN020=  ## [A] , RNZAF Base Ohakea
245818 2021-01-21 18:00  11 NZ NZ-OTA ZQN NZQN 211700Z AUTO 20004KT 7000 FEW055/// OVC080/// 11/07 Q1004=  ## [A] Queenstown, Queenstown International Airport
------ Antarktis:
245872 2022-11-27 17:50 XXX AQ AQ-U-A --- NZSP 271650Z 30020KT 0800 BLSN OVC013 M26/ A2833 RMK PK WND 30026/43 CLN AIR 30019KT ALL WNDS GRID SDN/HDN  ## [A] , South Pole Station Airport
245884 2020-02-03 02:55  -1               NZTB 030155Z 13002KT 9999 FEW040 SCT090 OVC130 M01/M07 A2934 RMK SLPNO GRID29002KT WIND THR20 SDF/HDG=  ## [A]
245964 2022-11-26 23:55 -14 AQ AQ-U-A --- NZWD 262255Z 16023G28KT 2400 BLSN DRSN FEW000 SCT040 BKN180 M14/M17 A2851 RMK PK WND 33032/35 BLSN FEW000 SLP655 GRID33023G28KT SDF/HDF LAST=  ## [A] McMurdo Station, Williams Field
------ Nya Zeeland:
245974 2022-11-27 18:00  13 NZ NZ-WGN WLG NZWN 271700Z AUTO 21023KT 9999 -RA BKN017/// BKN025/// 13/11 Q1004 NOSIG=  ## [A] Wellington, Wellington International Airport
245976 2022-11-08 23:00  17 NZ NZ-AUK --- NZWP 082200Z 16008KT 120V200 20KM FEW015 SCT025 BKN040 17/14 Q1012 NOSIG=  ## [A] , RNZAF Base Auckland-Whenuapai
246073 2019-09-15 06:00  17               OAAI 150400Z 16003MPS 9999 SCT100 17/05 Q1020 R07/CLRD95=  ## [A]
------ Afghanistan:
246264 2021-08-12 08:55  32 AF AF-HER HEA OAHR 120655Z VRB03KT CAVOK 32/M02 Q1013 RMK A2993 BLU=  ## [A] , Herat Airport
246296 2021-06-27 13:51  24 AF AF-PAR OAI OAIX 271151Z 33010KT 280V020 9999 BKN120 24/07 A3012 RMK AO2A SLP077 WND DATA ESTMD LAST=  ## [A] Bagram, Bagram Air Base
246310 2020-08-21 17:56  32 AF AF-NAN JAA OAJL 211556Z AUTO VRB06KT 9000 HZ CLR 32/22 A2967 RMK AO2 SLPNO WND DATA ESTMD T03170216=  ## [A] , Jalalabad Airport
246326 2021-08-30 19:16  25 AF AF-KAB KBL OAKB 301716Z AUTO VRB06KT 9999 FEW060 SCT085 BKN110 25/04 A3005 RMK AO2 PK WND 01026/1655 SLP997 WND DATA ESTMD TSNO $  ## [A] Kabul, Hamid Karzai International Airport
246336 2021-10-27 09:00  22               OAKL 270700Z 07018KT 8000 SCT026 BKN100 22/01 Q1019=  ## [A]
246338 2020-11-24 16:55  10 AF AF-KAN KDH OAKN 241555Z AUTO 23002KT 6000 BR CLR 10/06 A3010 RMK AO2 SLP183 WND DATA ESTMD T00950062=  ## [A] , Kandahar Airport
246361 2020-11-04 10:00  17               OALK 040900Z 16012G22KT 9999 FEW026CB SCT030 BKN090 17/15 Q1012=  ## [A]
246395 2021-06-25 02:50  31 AF AF-BAL MZR OAMS 250050Z 21013KT 9999 31/M04 Q1006 BLU+BLU+=  ## [A] , Mazar I Sharif Airport
246548 2022-05-17 23:00  20               OASP 172100Z 18006KT CAVOK 20/11 Q1014=  ## [A]
------ Bahrain:
246775 2022-11-27 18:00  25 BH BH-15  BAH OBBI 271700Z 30006KT CAVOK 25/19 Q1013 NOSIG=  ## [A] Manama, Bahrain International Airport
248108 2022-05-11 21:00  17               ODAP 111900Z 13005KT CAVOK 17/15 Q1017=  ## [A]
248364 2021-08-28 13:00  43               ODKL 281100Z 18004KT CAVOK 43/01 Q1005=  ## [A]
248389 2022-05-01 00:00  20               ODLK 302200Z 17010G22KT 9999 FEW030 20/15 Q1006=  ## [A]
------ Saudiarabien:
248770 2022-11-27 18:00  14 SA SA-14  AHB OEAB 271700Z 00000KT CAVOK 14/11 Q1023 NOSIG=  ## [A] Abha, Abha Regional Airport
248776 2022-11-27 18:00  24 SA SA-04  HOF OEAH 271700Z 31004KT CAVOK 24/05 Q1014 NOSIG=  ## [A] , Al Ahsa Airport
248783 2022-11-27 18:00  25               OEAO 271700Z 22002KT CAVOK 25/08 Q1013 NOSIG=  ## [A]
248786 2022-07-31 23:00  35               OEAR 312100Z 00000KT CAVOK 35/18 Q1003=  ## [A]
248795 2022-11-27 18:00  20 SA SA-11  ABT OEBA 271700Z 10008KT 9999 FEW030 20/08 Q1020 NOSIG=  ## [A] , Al Baha Airport
248802 2022-11-27 18:00  22 SA SA-14  BHH OEBH 271700Z 08012KT CAVOK 22/08 Q1016 NOSIG=  ## [A] , Bisha Airport
248852 2022-11-27 18:00  23 SA SA-04  DMM OEDF 271700Z 35005KT CAVOK 23/18 Q1013 NOSIG=  ## [A] Ad Dammam, King Fahd International Airport
248859 2022-11-27 18:00  21 SA SA-01  DWD OEDM 271700Z 12006KT CAVOK 21/M01 Q1017=  ## [A] Dawadmi, King Salman Abdulaziz Airport
248864 2022-11-27 18:00  25 SA SA-04  DHA OEDR 271700Z VRB02KT CAVOK 25/18 Q1012=  ## [A] , King Abdulaziz Air Base
248890 2021-09-05 16:00  37               OEER 051400Z 28010G21KT 250V320 CAVOK 37/03 Q1008=  ## [A]
248938 2022-11-27 18:00  29 SA SA-09  GIZ OEGN 271700Z 31004KT 9999 FEW030 29/23 Q1010 NOSIG=  ## [A] Jizan, Jizan Regional Airport
248943 2022-11-27 18:00  24 SA SA-05  ELQ OEGS 271700Z 07005KT 9999 BKN030 24/13 Q1016=  ## [A] , Gassim Airport
248944 2022-11-27 18:00  15 SA SA-08  URY OEGT 271700Z 03004KT 9999 SCT040 15/10 Q1015 NOSIG=  ## [A] Gurayat, Gurayat Domestic Airport
248962 2022-11-27 18:00  22 SA SA-06  HAS OEHL 271700Z 13006KT CAVOK 22/03 Q1016=  ## [A] Ha'il, Ha'il Airport
249004 2022-11-27 18:00  24 SA SA-04  QJB OEJB 271700Z AUTO 36009KT 9000 NSC 24/23 Q1014 NOSIG=  ## [A] Jubail, Jubail Airport
249016 2022-11-27 18:00  27 SA SA-02  JED OEJN 271700Z 35003KT CAVOK 27/21 Q1009 NOSIG=  ## [A] Jeddah, King Abdulaziz International Airport
249038 2022-11-27 18:00  24               OEKJ 271700Z 18006KT CAVOK 24/03 Q1018=  ## [A]
249041 2022-11-27 18:00  16 SA SA-14  KMX OEKM 271700Z 06006KT CAVOK 16/11 Q1022 NOSIG=  ## [A] , King Khaled Air Base
249081 2022-11-27 18:00  29 SA SA-03  MED OEMA 271700Z 31004KT 9999 FEW045 29/07 Q1013 NOSIG=  ## [A] Medina, Prince Mohammad Bin Abdulaziz Airport
249091 2019-07-18 21:00  38               OEMK 181900Z 33010KT 8000 NSC 38/00 Q1005=  ## [A]
249093 2019-10-08 07:00  30               OEMM 080500Z 14006KT 6000 NSC 30/25 Q1015 NOSIG=  ## [A]
249094 2022-11-27 18:00  28               OEMN 271700Z 00000KT CAVOK 28/20 Q1012=  ## [A]
249113 2022-11-27 18:00  21 SA SA-10  EAM OENG 271700Z 09004KT 9999 FEW030 21/04 Q1018 NOSIG=  ## [A] , Nejran Airport
249115 2021-05-28 10:00  41               OENI 280800Z 00000KT 7000 NSC 41/01 Q1004=  ## [A]
249159 2022-11-27 18:00  22 SA SA-04  AQI OEPA 271700Z 06006KT CAVOK 22/09 Q1016 NOSIG=  ## [A] Qaisumah, Al Qaisumah/Hafr Al Batin Airport
249177 2022-11-27 17:55  24 SA SA-01  AKH OEPS 271655Z 15004KT 9999 CLR 24/04 A3009 RMK AO2A SLP167 WND DATA ESTMD ALSTG/SLP ESTMD T02400035=  ## [A] , Prince Sultan Air Base
249215 2020-08-05 18:00  36               OERE 051600Z 17015KT 8000 SCT040 36/10 Q0999 NOSIG=  ## [A]
249216 2022-11-27 18:00  20 SA SA-08  RAH OERF 271700Z 08011KT CAVOK 20/06 Q1016 NOSIG=  ## [A] Rafha, Rafha Domestic Airport
249221 2022-11-27 18:00  25 SA SA-01  RUH OERK 271700Z 17003KT CAVOK 25/07 Q1017 NOSIG=  ## [A] Riyadh, King Khaled International Airport
249228 2022-11-27 18:00  16 SA SA-08  RAE OERR 271700Z 08012KT CAVOK 16/07 Q1017 NOSIG=  ## [A] Arar, Arar Domestic Airport
249235 2022-02-28 08:00  19 SA SA-01  XXN OERY 280700Z 03010KT CAVOK 19/M01 Q1023=  ## [A] Riyadh, Riyadh Air Base
249244 2022-11-27 18:00  25 SA SA-10  SHW OESH 271700Z 07007KT CAVOK 25/03 Q1016 NOSIG=  ## [A] , Sharurah Airport
249247 2022-11-27 18:00  18 SA SA-12  AJF OESK 271700Z 06005KT CAVOK 18/06 Q1019 NOSIG=  ## [A] Al-Jawf, Al-Jawf Domestic Airport
249252 2021-05-13 12:00  28               OESP 131000Z 02008KT 9999 FEW020 SCT070 28/M02 Q1023 NOSIG=  ## [A]
249257 2019-10-08 07:00  22               OESU 080500Z VRB02KT CAVOK 22/03 Q1024=  ## [A]
249264 2022-11-27 18:00  20 SA SA-07  TUU OETB 271700Z 02003KT CAVOK 20/07 Q1013 NOSIG=  ## [A] Tabuk, Tabuk Airport
249268 2022-11-27 18:00  20 SA SA-02  TIF OETF 271700Z 30004KT 6000 NSC 20/14 Q1019 NOSIG=  ## [A] Ta?if, Ta?if Regional Airport
249280 2022-11-27 18:00  14 SA SA-08  TUI OETR 271700Z 09012KT 9999 BKN030 14/10 Q1017 NOSIG=  ## [A] Turaif, Turaif Domestic Airport
249344 2022-11-27 18:00  22 SA SA-01  WAE OEWD 271700Z 09006KT CAVOK 22/12 Q1015=  ## [A] , Wadi Al Dawasir Airport
249350 2022-11-27 18:00  23 SA SA-07  EJH OEWJ 271700Z 36003KT CAVOK 23/14 Q1010 NOSIG=  ## [A] Al Wajh, Al Wajh Domestic Airport
249406 2022-11-27 18:00  27 SA SA-03  YNB OEYN 271700Z 26009KT CAVOK 27/19 Q1007 NOSIG=  ## [A] Yanbu, Prince Abdulmohsin Bin Abdulaziz Airport
249457 2021-10-12 17:00  29               OFAM 121500Z 10003KT 7000 FEW030 SCT080 29/10 Q1012 TEMPO VRB10KT 5000 -SHRA SCT040TCU=  ## [A]
------ Iran:
251473 2022-11-27 18:00  24 IR IR-10  ABD OIAA 271700Z 33010KT CAVOK 24/09 Q1015=  ## [A] Abadan, Abadan Airport
251476 2021-09-03 15:00  34 IR IR-10  DEF OIAD 031300Z NI 34/21 Q1005=  ## [A] , Dezful Airport
251479 2022-11-27 18:00  23 IR IR-10  AKW OIAG 271700Z 36010KT CAVOK 23/11 Q1014=  ## [A] Aghajari, Aghajari Airport
251480 2022-11-27 18:00  18 IR IR-18  GCH OIAH 271700Z 00000KT CAVOK 18/09 Q1017=  ## [A] Gachsaran, Gachsaran Airport
251481 2022-11-27 18:00  20 IR IR-10  --- OIAI 271700Z 30002KT CAVOK 20/06 Q1014=  ## [A] , Shahid Asyaee Airport
251485 2022-11-27 18:00  22 IR IR-10  MRX OIAM 271700Z 30004KT CAVOK 22/11 Q1014=  ## [A] , Mahshahr Airport
251495 2022-11-27 18:00  23 IR IR-10  AWZ OIAW 271700Z 32006KT CAVOK 23/07 Q1014=  ## [A] Ahwaz, Ahwaz Airport
251499 2022-11-27 16:00  27 IR IR-23  AEU OIBA 271500Z 30006KT CAVOK 27/18 Q1009=  ## [A] Abu Musa, Abu Musa Island Airport
251500 2022-11-27 18:00  25 IR IR-06  BUZ OIBB 271700Z 32010KT CAVOK 25/19 Q1012 A2991=  ## [A] Bushehr, Bushehr Airport
251506 2022-11-27 16:00  25 IR IR-23  --- OIBH 271500Z 30010KT CAVOK 25/17 Q1011 A2988=  ## [A] , Bastak Airport
251508 2022-11-27 18:00  21 IR IR-06  KNR OIBJ 271700Z AUTO VRB02KT //// // ////// 21/07 Q1016=  ## [A] Kangan, Jam Airport
251509 2022-11-27 18:00  25 IR IR-23  KIH OIBK 271700Z 33006KT CAVOK 25/18 Q1010=  ## [A] Kish Island, Kish International Airport
251510 2022-11-27 18:00  24 IR IR-23  BDH OIBL 271700Z 18004KT 8000 NSC 24/17 Q1011=  ## [A] Bandar Lengeh, Bandar Lengeh Airport
251514 2022-11-27 18:00  26 IR IR-06  PGU OIBP 271700Z 00000KT CAVOK 26/19 Q1010 A2984=  ## [A] Asalouyeh, Persian Gulf International Airport
251515 2022-11-27 16:00  26 IR IR-06  KHK OIBQ 271500Z 30010KT CAVOK 26/19 Q1013=  ## [A] , Khark Island Airport
251517 2022-11-27 16:00  28 IR IR-23  SXI OIBS 271500Z 33004KT 7000 NSC 28/20 Q1010=  ## [A] , Sirri Island Airport
251520 2022-11-27 16:00  28 IR IR-23  LVP OIBV 271500Z 30018KT CAVOK 28/19 Q1010=  ## [A] , Lavan Island Airport
251527 2022-11-27 18:00   8 IR IR-17  KSH OICC 271700Z 00000KT CAVOK 08/00 Q1020 A3014=  ## [A] Kermanshah, Shahid Ashrafi Esfahani Airport
251533 2022-11-27 18:00   8 IR IR-05  IIL OICI 271700Z 10002KT CAVOK 08/03 Q1022 A3019=  ## [A] Ilam, Ilam Airport
251534 2022-11-27 18:00   8               OICJ 271700Z 33006KT CAVOK 08/00 Q1022=  ## [A]
251535 2022-11-27 18:00  10 IR IR-20  KHD OICK 271700Z 11004KT CAVOK 10/06 Q1019=  ## [A] , Khoram Abad Airport
251537 2022-11-27 15:00  23               OICM 271400Z 32006KT CAVOK 23/07 Q1012=  ## [A]
251543 2022-11-27 18:00   6 IR IR-16  SDG OICS 271700Z 00000KT CAVOK 06/01 Q1021 A3016=  ## [A] , Sanandaj Airport
251613 2022-11-27 18:00  15 IR IR-04  KKS OIFK 271700Z 29006KT CAVOK 15/M01 Q1018 A3009=  ## [A] Kashan, Kashan Airport
251615 2022-11-27 18:00   9 IR IR-04  IFN OIFM 271700Z 09004KT CAVOK 09/M03 Q1019 A3012=  ## [A] Isfahan, Esfahan Shahid Beheshti International Airport
251621 2022-11-27 18:00   7 IR IR-08  CQD OIFS 271700Z 06004KT CAVOK 07/M02 Q1022=  ## [A] Shahrekord, Shahrekord Airport
251635 2022-11-27 18:00  12 IR IR-19  RAS OIGG 271700Z 36004KT 9999 FEW030 12/11 Q1019=  ## [A] Rasht, Sardar-e-Jangal Airport
251639 2022-11-27 17:50   3               OIGK 271650Z 00000KT 9999 FEW035 03/M01 Q1023=  ## [A]
251662 2022-11-27 18:00   3 IR IR-24  HDM OIHH 271700Z 02004KT CAVOK 03/M03 Q1021 A3016=  ## [A] Hamadan, Hamadan Airport
251667 2022-11-27 18:00   6 IR IR-24  --- OIHM 271700Z 09002KT CAVOK 06/M04 Q1021=  ## [A] Malayer, Malayer Airport
251672 2022-11-27 12:00  17 IR IR-22  AJK OIHR 271100Z 24021KT 9999 FEW035 17/M05 Q1019=  ## [A] Araak, Arak Airport
251685 2022-11-27 18:00  14 IR IR-07  IKA OIIE 271700Z 30014KT CAVOK 14/M02 Q1018=  ## [A] Tehran, Imam Khomeini International Airport
251689 2022-11-27 18:00  15 IR IR-07  THR OIII 271700Z 31012KT 9999 FEW100 15/M06 Q1018 A3006 NOSIG=  ## [A] Tehran, Mehrabad International Airport
251691 2022-11-27 18:00   6 IR IR-28  GZW OIIK 271700Z 03002KT CAVOK 06/M00 Q1020=  ## [A] Qazvin, Qazvin Airport
251696 2022-11-27 18:00  10 IR IR-U-A PYK OIIP 271700Z 30012KT CAVOK 10/M01 Q1018 A3008=  ## [A] Karaj, Payam International Airport
251699 2022-11-27 18:00  14 IR IR-12  SNX OIIS 271700Z 09002KT CAVOK 14/M06 Q1017=  ## [A] Semnan, Semnan Municipal Airport
251734 2022-11-27 18:00  24 IR IR-23  BND OIKB 271700Z 27004KT CAVOK 24/13 Q1009 A2982=  ## [A] Bandar Abbas, Bandar Abbas International Airport
251743 2022-11-27 18:00  11 IR IR-15  KER OIKK 271700Z 15004KT CAVOK 11/M06 Q1020 A3014=  ## [A] Kerman, Kerman Airport
251745 2022-11-26 17:00  17 IR IR-15  BXR OIKM 261600Z 21008KT CAVOK 17/M03 Q1019=  ## [A] , Bam Airport
251747 2022-11-27 18:00  22               OIKO 271700Z 00000KT 6000 NSC 22/17 Q1010=  ## [A]
251749 2022-11-27 18:00  22 IR IR-23  --- OIKQ 271700Z 00000KT 6000 NSC 22/18 Q1010=  ## [A] , Dayrestan Airport
251750 2022-11-26 11:00  22 IR IR-15  RJN OIKR 261000Z 34008KT CAVOK 22/M06 Q1022 3021=  ## [A] , Rafsanjan Airport
251786 2022-11-27 18:00   8 IR IR-29  XBJ OIMB 271700Z 12006KT CAVOK 08/M09 Q1019 A3009=  ## [A] Birjand, Birjand Airport
251787 2022-11-27 17:50  13 IR IR-30  CKT OIMC 271650Z 00000KT CAVOK 13/04 Q1012=  ## [A] Sarakhs, Sarakhs Airport
251788 2022-11-27 18:00  13 IR IR-30  --- OIMD 271700Z 24008KT CAVOK 13/M03 Q1014=  ## [A] Gonabad, Gonabad Airport
251794 2022-11-27 18:00  10 IR IR-12  RUD OIMJ 271700Z AUTO 01017KT //// // ////// 10/01 Q1017=  ## [A] , Shahroud Airport
251797 2022-11-27 18:00  14 IR IR-30  MHD OIMM 271700Z 00000KT CAVOK 14/03 Q1015 A2998=  ## [A] Mashhad, Mashhad International Airport
251798 2022-11-27 18:00  11 IR IR-31  BJB OIMN 271700Z 17006KT 9999 FEW070 11/05 Q1019=  ## [A] Bojnord, Bojnord Airport
251801 2022-11-27 18:00  13               OIMQ 271700Z 00000KT CAVOK 13/M03 Q1017=  ## [A]
251803 2022-11-27 18:00  11 IR IR-30  AFZ OIMS 271700Z 32006KT CAVOK 11/M01 Q1017=  ## [A] Sabzevar, Sabzevar National Airport
251804 2022-11-27 18:00  15 IR IR-25  TCX OIMT 271700Z AUTO 07004KT //// // ////// 15/M06 Q1014=  ## [A] Tabas, Tabas Airport
251812 2022-11-27 18:00  17 IR IR-21  --- OINB 271700Z 00000KT 9999 SCT017 17/14 Q1018=  ## [A] Babolsar, Babolsar Airport
251815 2022-11-27 18:00  16 IR IR-27  KLM OINE 271700Z 18004KT 9999 FEW040 OVC110 16/12 Q1018=  ## [A] Kalaleh, Kalaleh Airport
251817 2022-11-27 18:00  17 IR IR-27  GBT OING 271700Z 24004KT 9999 FEW030 BKN100 17/15 Q1020=  ## [A] Gorgan, Gorgan Airport
251821 2022-11-27 18:00  16               OINK 271700Z 14004KT 9999 SCT025 OVC080 16/13 Q1016 A3003=  ## [A]
251824 2022-11-27 18:00  14 IR IR-21  NSH OINN 271700Z 00000KT 9999 SCT025 14/13 Q1018=  ## [A] , Noshahr Airport
251828 2022-11-27 18:00  14 IR IR-21  RZR OINR 271700Z 26002KT 8000 SCT090 14/13 Q1018=  ## [A] , Ramsar Airport
251836 2022-11-27 18:00  15 IR IR-21  SRY OINZ 271700Z 21002KT 4000 BR SCT090 15/14 Q1019=  ## [A] Sari, Dasht-e Naz Airport
251941 2022-11-27 18:00   9 IR IR-14  --- OISA 271700Z 30002KT CAVOK 09/M03 Q1022 A3021=  ## [A] Abadeh, Abadeh Airport
251946 2022-11-27 18:00  14 IR IR-14  FAZ OISF 271700Z 00000KT CAVOK 14/01 Q1019 A3010=  ## [A] Fasa, Fasa Airport
251952 2022-11-27 18:00  16 IR IR-14  LRR OISL 271700Z 00000KT CAVOK 16/05 Q1014 A2994=  ## [A] Lar, Lar Airport
251956 2020-06-21 07:00 XXX               OISP 210500Z 32005KT CAVOK05A0999=  ## [A]
251958 2022-11-27 16:00  22 IR IR-14  LFM OISR 271500Z 00000KT CAVOK 22/07 Q1013 A2994 NOSIG=  ## [A] Lamerd, Lamerd Airport
251959 2022-11-27 18:00  15 IR IR-14  SYZ OISS 271700Z 32004KT CAVOK 15/02 Q1019 A3011=  ## [A] Shiraz, Shiraz Shahid Dastghaib International Airport
251965 2022-11-27 18:00  10 IR IR-18  YES OISY 271700Z 08006KT CAVOK 10/03 Q1022=  ## [A] Yasouj, Yasouj Airport
251968 2021-09-28 05:30   8               OITB 280330Z 27008KT CAVOK 08/M00 Q1013=  ## [A]
251977 2022-11-27 15:00   9 IR IR-02  KHY OITK 271400Z 02006KT 9999 SCT040 09/04 Q1019=  ## [A] Khoy, Khoy Airport
251978 2022-11-27 18:00   6 IR IR-03  ADU OITL 271700Z 19008KT 9999 FEW040 06/M02 Q1019=  ## [A] Ardabil, Ardabil Airport
251979 2022-11-27 18:00   5 IR IR-01  ACP OITM 271700Z 11004KT 9999 FEW035 05/01 Q1020=  ## [A] Maragheh, Sahand Airport
251982 2022-11-27 18:00  13 IR IR-03  PFQ OITP 271700Z 17004KT 7000 -RA SCT030 BKN035 13/10 Q1018=  ## [A] Parsabad, Parsabade Moghan Airport
251984 2022-11-27 18:00   3 IR IR-02  OMH OITR 271700Z 28006KT CAVOK 03/M00 Q1021=  ## [A] Urmia, Urmia Airport
251986 2022-11-27 18:00   4 IR IR-01  TBZ OITT 271700Z VRB02KT CAVOK 04/02 Q1022 A3018=  ## [A] Tabriz, Tabriz International Airport
251987 2022-11-27 17:50   7 IR IR-02  IMQ OITU 271650Z 00000KT CAVOK 07/01 Q1021=  ## [A] Showt, Maku National Airport
251992 2022-11-27 16:00   8 IR IR-11  JWN OITZ 271500Z 04004KT 9999 FEW035 08/M04 Q1018 A3008=  ## [A] Zanjan, Zanjan Airport
252114 2022-06-21 10:00  31               OIYR 210800Z 34006KT CAVOK 31/04 Q1011=  ## [A]
252121 2022-11-27 18:00  16 IR IR-25  AZD OIYY 271700Z 18006KT CAVOK 16/M01 Q1018=  ## [A] Yazd, Shahid Sadooghi Airport
252124 2022-11-27 18:00  13 IR IR-13  ACZ OIZB 271700Z 18006KT CAVOK 13/M04 Q1015=  ## [A] , Zabol Airport
252125 2022-11-27 15:00  25 IR IR-13  ZBR OIZC 271400Z 22010KT 8000 FEW170 25/20 Q1008=  ## [A] Chabahar, Konarak Airport
252130 2022-11-27 18:00  10 IR IR-13  ZAH OIZH 271700Z 17006KT CAVOK 10/M09 Q1019 A3011 NOSIG=  ## [A] Zahedan, Zahedan International Airport
252131 2022-11-27 18:00  20 IR IR-13  IHR OIZI 271700Z 10004KT CAVOK 20/M04 Q1014=  ## [A] Iranshahr, Iran Shahr Airport
252132 2022-11-27 18:00  26 IR IR-23  JSK OIZJ 271700Z 32008KT 7000 NSC 26/19 Q1009=  ## [A] Jask, Jask Airport
------ Jordanien:
252157 2022-11-27 18:00  12 JO JO-AM  AMM OJAI 271700Z 07011KT 4000 HZ FEW035 BKN200 12/09 Q1016 NOSIG=  ## [A] Amman, Queen Alia International Airport
252161 2022-11-27 18:00  12 JO JO-AM  ADJ OJAM 271700Z 00000KT 5000 HZ NSC 12/09 Q1016 NOSIG=  ## [A] Amman, Amman-Marka International Airport
252165 2022-11-27 18:00  21 JO JO-AQ  AQJ OJAQ 271700Z 36014KT CAVOK 21/08 Q1012 NOSIG=  ## [A] Aqaba, Aqaba King Hussein International Airport
252420 2022-04-15 17:00  22               OJKL 151500Z /////KT CAVOK 22/M03 Q1012=  ## [A]
------ Kuwait:
252843 2022-11-27 17:55  23 KW KW-JA  --- OKAS 271655Z 01006KT 9999 FEW110 23/06 A2998 RMK AO2A SLP149 T02270058 $  ## [A] , Ali Al Salem Air Base
252861 2022-11-27 18:00  25 KW KW-FA  KWI OKBK 271700Z 03005KT CAVOK 25/10 Q1015 NOSIG=  ## [A] Kuwait City, Kuwait International Airport
253121 2019-11-02 11:00  18               OKLK 021000Z 05010KT 7000 FEW026 SCT100 18/13 Q1014=  ## [A]
------ Libanon:
253527 2022-11-27 18:00  18 LB LB-JL  BEY OLBA 271700Z 11003KT 050V140 CAVOK 18/08 Q1016 NOSIG=  ## [A] Beirut, Beirut Rafic Hariri International Airport
253979 2020-06-10 22:00  21               OLSK 102000Z 18008KT 9999 FEW030 21/18 Q1011=  ## [A]
------ Förenade Arabemiraten:
254177 2022-11-27 18:00  27 AE AE-AZ  AUH OMAA 271700Z 31006KT CAVOK 27/18 Q1011 NOSIG=  ## [A] Abu Dhabi, Abu Dhabi International Airport
254180 2022-11-27 18:00  28 AE AE-AZ  AZI OMAD 271700Z 31008KT CAVOK 28/19 Q1011 NOSIG=  ## [A] , Bateen Airport
254184 2020-10-06 17:30  31 AE AE-AZ  --- OMAH 061530Z AUTO 05008KT //// ////// 31/24 Q1008 A2977=  ## [A] , Al Hamra Aux Airport
254186 2020-10-06 17:30  31 AE AE-AZ  --- OMAJ 061530Z AUTO /////KT //// // ////// 31/21 Q1009 A2979=  ## [A] , Jebel Dhana Airport
254188 2022-11-27 18:00  24 AE AE-AZ  AAN OMAL 271700Z 29007KT CAVOK 24/17 Q1013 NOSIG=  ## [A] Al Ain, Al Ain International Airport
254189 2020-10-06 17:30  33 AE AE-AZ  DHF OMAM 061530Z 02010KT 8000 SKC 33/22 Q1008 A2976=  ## [A] , Al Dhafra Air Base
254199 2020-10-06 17:30  32               OMAW 061530Z 01008KT 5000 SKC 32/22 Q1007 A2975=  ## [A]
254255 2020-10-06 17:30  32               OMDA 061530Z AUTO VRB02KT //// // ////// 32/25 Q1007 A2974=  ## [A]
254256 2022-11-27 18:00  28 AE AE-DU  DXB OMDB 271700Z 33005KT 290V010 CAVOK 28/19 Q1011 NOSIG=  ## [A] Dubai, Dubai International Airport
254262 2020-10-06 17:30  31               OMDH 061530Z AUTO 08001KT //// // ////// 31/24 Q1008 A2978=  ## [A]
254266 2020-10-06 17:30  33               OMDL 061530Z AUTO 05011KT //// // ////// 33/23 Q1007 A2974=  ## [A]
254267 2020-10-06 17:30  32 AE AE-DU  NHD OMDM 061530Z AUTO 02005KT 7000 NCD 32/21 Q1007 A2976=  ## [A] Dubai, Al Minhad Air Base
254277 2022-11-27 18:00  25 AE AE-DU  DWC OMDW 271700Z 27003KT CAVOK 25/18 Q1012 NOSIG=  ## [A] Jebel Ali, Al Maktoum International Airport
254316 2022-11-27 18:00  27 AE AE-FU  FJR OMFJ 271700Z 24002KT CAVOK 27/17 Q1011 A2986=  ## [A] , Fujairah International Airport
254320 2020-10-06 17:30 XXX               OMFN 061530Z AUTO /////KT //// // ////// ///// Q//// A////=  ## [A]
254378 2019-07-14 08:00  34               OMHT 140600Z AUTO 12008KT 090V150 //// // ////// 34/26 Q1002 A2961=  ## [A]
254439 2020-10-06 17:30  34               OMKC 061530Z AUTO 36010KT 9999 ////// 34/13 Q1008 A2978=  ## [A]
254485 2020-10-06 17:30  32               OMLW 061530Z AUTO 02007KT 340V040 9999 NCD 32/19 Q1008 A2977=  ## [A]
254611 2020-10-06 17:30  32               OMQS 061530Z 28001KT 9999 NCD 32/M02 Q1006 A2972=  ## [A]
254629 2022-11-27 18:00  20 AE AE-RK  RKT OMRK 271700Z 21002KT 6000 NSC 20/18 Q1011 A2988=  ## [A] Ras Al Khaimah, Ras Al Khaimah International Airport
254654 2022-11-27 18:00  26 AE AE-SH  SHJ OMSJ 271700Z 15003KT 120V190 CAVOK 26/18 Q1011 NOSIG=  ## [A] Sharjah, Sharjah International Airport
254658 2020-10-06 17:30  32               OMSN 061530Z AUTO 32007KT //// // ////// 32/22 Q1007 A2974=  ## [A]
254676 2020-10-06 09:30  37               OMTF 060730Z AUTO VRB03KT //// // ////// 37/13 Q1009 A2982=  ## [A]
254678 2020-10-06 17:30  32               OMTH 061530Z AUTO 36005KT 330V040 //// // ////// 32/20 Q1009 A2981=  ## [A]
254688 2020-10-06 17:30  32               OMTR 061530Z AUTO 34010KT //// // ////// 32/23 Q1007 A2974=  ## [A]
254828 2020-10-06 17:30  36               OMZB 061530Z AUTO 33011KT //// // ////// 36/10 Q1007 A2975=  ## [A]
255532 2022-11-27 17:50  26               OOAD 271650Z AUTO 23006KT //// R31///// // NCD 26/06 Q1013 NOSIG=  ## [A]
255623 2022-11-27 17:50  24               OODQ 271650Z AUTO 12006KT CAVOK ////// 24/20 Q1012 NOSIG=  ## [A]
------ Oman:
255790 2022-11-27 17:50  25 OM OM-MU  KHS OOKB 271650Z AUTO VRB02KT //// R/////// NSC 25/16 Q1011 NOSIG=  ## [A] Khasab, Khasab Air Base
255800 2022-06-23 23:00  25               OOKL 232100Z 35008KT CAVOK 25/M02 Q1005=  ## [A]
255859 2022-11-27 17:50  25 OM OM-MA  MCT OOMS 271650Z 20004KT 150V230 CAVOK 25/17 Q1011 NOSIG=  ## [A] Muscat, Muscat International Airport
255997 2022-11-27 17:50  26 OM OM-ZU  SLL OOSA 271650Z 24002KT CAVOK 26/20 Q1012 NOSIG=  ## [A] Salalah, Salalah Airport
256004 2022-11-27 17:50  26 OM OM-BA  OHS OOSH 271650Z AUTO 18003KT //// ////// 26/10 Q1010=  ## [A] Sohar, Sohar Airport
256030 2022-05-15 04:41  23 OM OM-ZU  TTH OOTH 150241Z 23006KT 6000 HZ CLR 23/03 A2983 RMK SLP087 WND DATA ESTMD FIRST=  ## [A] Thumrait, Thumrait Air Base
------ Pakistan:
256293 2020-05-19 20:00  32 PK PK-PB  --- OPDK 191800Z 00000KT 4000 HZ NSC 32/19 Q1001 NOSIG=  ## [A] Daharki, Daharki Airport
256335 2022-11-27 17:55  15 PK PK-PB  LYP OPFA 271655Z 00000KT 4000 FU NSC 15/10 Q1012 NOSIG=  ## [A] Faisalabad, Faisalabad International Airport
256364 2022-08-12 07:30  32 PK PK-BA  GWD OPGD 120530Z 00000KT 3000BK FEW030 OVC100 32/28 QNH0996=  ## [A] Gwadar, Gwadar International Airport
256400 2021-06-30 03:00  29               OPHN 300100Z 13504KT 4000M HZ NSC 29/23 Q0999 NOSIG=  ## [A]
256431 2022-11-27 18:00  11               OPIS 271700Z 00000KT 6000 NSC 11/07 Q1012 NOSIG=  ## [A]
256467 2022-11-27 18:00  21 PK PK-SD  KHI OPKC 271700Z 04003KT 6000 NSC 21/18 Q1011 NOSIG=  ## [E] Karachi, Jinnah International Airport
256491 2022-11-27 17:55  17 PK PK-PB  LHE OPLA 271655Z 00000KT 4000 FU NSC 17/11 Q1012 NOSIG RMK QFE986 A29.90=  ## [A] Lahore, Alama Iqbal International Airport
256536 2022-11-27 18:00  16 PK PK-PB  MUX OPMT 271700Z 00000KT 2000 FU NSC 16/11 Q1011 NOSIG=  ## [A] Multan, Multan International Airport
256550 2022-11-27 12:00  29 PK PK-SD  WNS OPNH 271100Z 23004KT 4000 FU NSC 29/14 Q1008=  ## [A] Nawabashah, Shaheed Benazirabad Airport
256613 2022-11-27 18:00  14 PK PK-NW  PEW OPPS 271700Z 18004KT 1500 HZ NSC 14/08 Q1013=  ## [A] Peshawar, Peshawar International Airport
256660 2022-01-12 08:00  12 PK PK-PB  --- OPRN 120700Z 00000KT 5000 FU FEW120 SCT200 12/04 Q1019 NOSIG TEST WEATHER=  ## [A] Islamabad, Benazir Bhutto International Airport
256683 2022-11-27 18:00  19 PK PK-SD  SKZ OPSK 271700Z 00000KT 4000 HZ NSC 19/15 Q1009 NOSIG=  ## [A] Mirpur Khas, Sukkur Airport
256690 2021-07-01 16:25  37 PK PK-PB  SGI OPSR 011425Z 05035KT 0800 DS SCT040 SCT100 37/19 Q0995 RH37=  ## [A] Sargodha, Mushaf Air Base
256691 2020-11-12 12:00  28 PK PK-NW  SDT OPSS 121100Z 00000KT 2500 FU NSC 28/16 Q1016 TEMPO 2500 FU=  ## [A] Saidu Sharif, Saidu Sharif Airport
256692 2022-11-27 18:00  16 PK PK-PB  SKT OPST 271700Z 00000KT 3500 FU NSC 16/12 Q1012 NOSIG 79%=  ## [A] Sialkot, Sialkot Airport
257152 2020-08-03 14:00  42               OQKL 031200Z 25006KT CAVOK 42/03 Q1001=  ## [A]
257205 2020-04-02 18:00  27               OQMM 021600Z 30009KT CAVOK 27/09 Q1010 NOSIG=  ## [A]
------ Irak:
257557 2019-11-05 10:00  26 IQ IQ-AN  IQA ORAA 050900Z 00000KT 9999 SKC 26/10 A3021=  ## [A] H?t, Al Asad Air Base
257586 2019-11-07 19:55  16 IQ IQ-SD  XQC ORBD 071855Z 32007KT 9000 HZ SKC 16/03 A2998 RMK WND DATA ALSTG ESTMD LAST=  ## [A] Balad, Joint Base Balad
257591 2022-11-27 18:00  16 IQ IQ-BG  BGW ORBI 271700Z 33006KT CAVOK 16/12 Q1018 NOSIG=  ## [A] Baghdad, Baghdad International Airport
257600 2022-05-27 12:00  36 IQ IQ-AR  --- ORBR 271000Z 28016KT 260V320 CAVOK 36/M00 Q1008 NOSIG=  ## [A] Bashur, Bashur Airfield
257665 2019-11-19 11:00  17               OREE 191000Z 17004KT 8000 NSC 17/M05 Q1021 NOSIG=  ## [A]
257669 2020-02-22 21:00  10               OREI 222000Z 33008KT 8000-RA SCT030 BKN070 10/10 Q1022 NOSIG=  ## [A]
257678 2022-11-27 18:00  12 IQ IQ-AR  EBL ORER 271700Z 33004KT 8000 FEW040 12/10 Q1021=  ## [A] Arbil, Erbil International Airport
257778 2021-07-09 20:00  41               ORIN 091800Z 3506KT 8000 NSC 41/06 Q0997 NOSIG=  ## [A]
257877 2020-02-14 00:00  10               ORMI 132300Z 11016T 8000 NSC 10/M02 Q1022 NOSIG=  ## [A]
257881 2022-11-27 18:00  23 IQ IQ-BA  BSR ORMM 271700Z 33010KT CAVOK 23/09 Q1016 NOSIG =  ## [A] Basrah, Basrah International Airport
257903 2022-11-27 18:00  20 IQ IQ-NA  NJF ORNI 271700Z 02006KT 8000 NSC 20/10 Q1017=  ## [A] Najaf, Al Najaf International Airport
257908 2022-02-08 16:00  19               ORNN 081500Z 27008KT CAVOK 19/05 Q1021 NOSIG =  ## [A]
257995 2019-11-05 08:00 XXX IQ IQ-NI  RQW ORQW 050700Z 34007G17KT 9000 HZ SKC 20 A3019=  ## [A] Qayyarah, Qayyarah West Airport
257999 2019-06-02 21:00  34               ORRA 021900Z VRB03KT 9999 SKC 34/02 A2985=  ## [A]
258003 2022-01-03 02:00   7               ORRE 030100Z 28004KT 7000 SCT030 BKN080 07/06 Q1012=  ## [A]
258027 2020-06-14 20:00  24               ORSC 141800Z 32005KT CAVOK 24/02 Q1014=  ## [A]
258032 2019-11-05 10:00  25 IQ IQ-SD  --- ORSH 050900Z 34009KT 6000 HZ SKC 25/02 A3011=  ## [A] Tikrit, Al Sahra Army Air Field
258045 2022-11-27 18:00  10 IQ IQ-SW  ISU ORSU 271700Z 26005KT CAVOK 10/10 Q1021=  ## [A] Sulaymaniyah, Sulaymaniyah International Airport
258062 2019-11-05 10:00  26 IQ IQ-DQ  --- ORTL 050900Z 35005KT 5000 HZ SKC 26/04 A3013=  ## [A] Nasiriyah, Ali Air Base
258094 2021-08-27 23:00  25               ORUR 272100Z 30004KT CAVOK 25/M01 Q1011=  ## [A]
258095 2022-01-06 13:00  12               ORUS 061200Z 12006KT CAVOK 12/02 Q1022=  ## [A]
258234 2021-01-20 10:00   1               OSAB 200900Z 00000KT 5000 -SN RA BKN030 OVC100 01/01 Q1017=  ## [A]
258247 2022-03-10 10:00  15               OSAO 100900Z 22014KT 9999 BKN026 15/04 Q1006=  ## [A]
------ Syrien:
258248 2022-11-27 18:00  11 SY SY-HL  ALP OSAP 271700Z 07004KT 9999 BKN026 BKN100 11/10 Q1021=  ## [A] Aleppo, Aleppo International Airport
258319 2022-11-27 18:00  12 SY SY-DI  DAM OSDI 271700Z 03008KT 9999 SCT030 BKN100 12/06 Q1018=  ## [A] Damascus, Damascus International Airport
258322 2020-12-31 08:00  18               OSDL 310700Z 12004KT CAVOK 18/04 Q1019=  ## [A]
258323 2020-01-20 03:00   6               OSDM 200200Z 22007KT 9999 SCT030 BKN100 06/05 Q1020=  ## [A]
258325 2022-11-15 11:00  19               OSDO 151000Z 07010KT CAVOK 19/12 Q1017=  ## [A]
258331 2021-06-30 13:00  37               OSDU 301100Z 21005KT CAVOK 37/05 Q1009=  ## [A]
258371 2022-02-25 09:00  12               OSFI 250800Z 21024KT 9999 SCT030 BKN100 12/04 Q1011=  ## [A]
258444 2022-01-11 08:00   4               OSID 110700Z 33003KT CAVOK 04/M00 Q018=  ## [A]
258447 2020-07-02 09:00  32               OSIG 020700Z 05006KT 9999 FEW018CB 32/24 Q1006 CB S RMK A2974=  ## [A]
258451 2020-02-20 13:00  18               OSIK 201200Z 22014KT 9999 SCT026 BKN030 18/10 Q1016=  ## [A]
258502 2021-05-25 14:00  35               OSKJ 251200Z 32004KT CAVOK 35/M02 Q1005=  ## [A]
258504 2022-11-27 18:00  11 SY SY-HA  KAC OSKL 271700Z 35004KT 8000 SCT026 BKN100 11/09 Q1020=  ## [A] Kamishly, Kamishly Airport
258529 2022-11-27 17:00  16 SY SY-LA  LTK OSLK 271600Z 07004KT 9999 FEW026 BKN200 16/08 Q1017=  ## [A] Latakia, Bassel Al-Assad International Airport
258533 2021-01-05 22:00  11               OSLO 052100Z 02003KT CAVOK 11/03 Q1021=  ## [A]
258534 2021-01-20 08:00   2               OSLP 200700Z 06002KT 6000 -RA BKN030 OVC100 02/02 Q1016=  ## [A]
258556 2019-06-05 16:00  30               OSML 051400Z 30005KT 6000 FEW015 FEW025CB 30/25 Q1006 NOSIG=  ## [A]
------ Qatar:
258938 2022-11-27 18:00  28 QA QA-DA  DIA OTBD 271700Z 31005KT CAVOK 28/09 Q1013 NOSIG=  ## [A] Doha, Doha International Airport
258942 2022-11-27 17:55  24 QA QA-RA  XJD OTBH 271655Z 24004KT 9999 CLR 24/09 A2991 RMK AO2A SLP130 T02420094 PWINO FZRANO TSNO $  ## [A] Ar Rayyan, Al Udeid Air Base
259030 2021-01-19 02:00   9               OTER 190100Z 10005KT 8000 BKN045 09/03 Q1020 NOSIG=  ## [A]
259098 2022-11-27 18:00  26               OTHH 271700Z 27002KT CAVOK 26/10 Q1012 NOSIG=  ## [N]
259255 2019-08-06 20:00  41               OTNI 061800Z 31012KT 8000 NSC 41/07 Q0997 NOSIG=  ## [A]
------ USA:
263644 2022-11-27 18:15 -23 US US-AK  --- PAAD 271715Z AUTO 21004KT 10SM OVC016 M23/M25 A3071 RMK AO2 T12261246 PWINO=  ## [A] Deadhorse, Point Thomson Airstrip
263651 2022-11-27 17:56 XXX US US-AK  AKB PAAK 271656Z AUTO 00000KT 10SM BKN070 OVC085 A2990 RMK AO2 SLPNO FZRANO PNO $  ## [A] Atka, Atka Airport
263657 2022-11-27 17:53 -18 US US-AK  PAQ PAAQ 271653Z AUTO 00000KT 10SM CLR M18/M21 A3040 RMK AO2 SLP301 I1000 T11831206 TSNO=  ## [A] Palmer, Warren "Bud" Woods Palmer Municipal Airport
263667 2022-11-27 17:52 -24 US US-AK  BTI PABA 271652Z AUTO 22003KT 10SM CLR M24/M26 A3072 RMK AO2 SLP412 T12391261 FZRANO=  ## [A] Barter Island Lrrs, Barter Island LRRS Airport
263671 2022-11-27 17:53 -13 US US-AK  BET PABE 271653Z AUTO 02005KT 10SM CLR M13/M14 A3064 RMK AO2 SLP379 T11281139 TSNO=  ## [A] Bethel, Bethel Airport
263675 2022-11-27 17:53 -11 US US-AK  BIG PABI 271653Z 25007KT 5SM -SN BR FEW013 OVC026 M11/M13 A3043 RMK AO2 SLP349 P0000 T11111133 $  ## [A] Delta Junction Ft Greely, Allen Army Airfield
263678 2022-11-27 18:13 -17 US US-AK  BKC PABL 271713Z AUTO 00000KT 10SM BKN014 M17/M18 A3066 RMK AO2 FZRANO $  ## [A] Buckland, Buckland Airport
263684 2022-11-27 18:18 -17 US US-AK  BRW PABR 271718Z 17007KT 2 1/2SM -SN BR OVC027 M17/M19 A3071 RMK AO2 P0001 T11721194=  ## [A] Utqia?vik, Wiley Post Will Rogers Memorial Airport
263686 2022-11-27 17:53 -19 US US-AK  BTT PABT 271653Z 35005KT 4SM -SN BR OVC047 M19/M22 A3050 RMK SLP353 T11941222=  ## [A] Bettles, Bettles Airport
263688 2022-11-27 17:56 -14 US US-AK  --- PABV 271656Z AUTO 16003KT 10SM CLR M14/M16 A3044 RMK AO2 SLP315 T11441156 FZRANO=  ## [A] Birchwood, Birchwood Airport
263696 2022-11-27 17:53   4 US US-AK  CDB PACD 271653Z AUTO 14022G34KT 6SM -RA BR BKN080 OVC095 04/02 A3027 RMK AO2 PK WND 14034/1650 SLP251 P0008 T00390022 TSNO=  ## [A] Cold Bay, Cold Bay Airport
263705 2022-11-11 23:56  -6 US US-AK  SCM PACM 112256Z AUTO 01006KT 10SM FEW012 BKN027 M06/M06 A2947 RMK AO2 SLP977 T10561056 FZRANO=  ## [A] Scammon Bay, Scammon Bay Airport
263711 2022-02-26 15:53 -22 US US-AK  --- PACS 261453Z 09031G39KT 1/4SM R06/2400V4000FT BLSN FZFG VV002 M22/M24 A2982 RMK /SCC FSS/=  ## [A] Cape Sarichef, Cape Sarichef Airport
263714 2022-11-27 17:53  -1 US US-AK  CDV PACV 271653Z 35006KT 10SM CLR M01/M16 A3018 RMK AO2 SLP218 T10061156=  ## [A] Cordova, Merle K (Mudhole) Smith Airport
263718 2022-11-27 17:55  -7 US US-AK  CZF PACZ 271655Z AUTO 10013G30KT 10SM BKN180 M07/M13 A3058 RMK AO2 SLP369 T10751134=  ## [A] Cape Romanzof, Cape Romanzof LRRS Airport
263723 2022-10-18 06:26   0 US US-AK  DRG PADE 180426Z AUTO 00000KT 10SM FEW024 OVC030 00/00 A2948 RMK AO2 T00000000 TSNO $  ## [A] Deering, Deering Airport
263725 2022-11-27 17:10 -13 US US-AK  RDB PADG 271610Z 00000KT 7SM SKC M13/M24 A3057=  ## [A] Red Dog, Red Dog Airport
263729 2022-11-27 17:56   7 US US-AK  ADK PADK 271656Z AUTO 16007KT CLR 07/06 A2982 RMK AO2 SLP098 T00670061 PWINO $  ## [A] Adak Island, Adak Airport
263730 2022-11-27 17:56  -7 US US-AK  DLG PADL 271656Z 03011KT 10SM OVC120 M07/M12 A3061 RMK AO2 SLP369 T10721117=  ## [A] Dillingham, Dillingham Airport
263731 2022-11-27 17:56 -11 US US-AK  MLL PADM 271656Z AUTO 36009KT 10SM CLR M11/M13 A3071 RMK AO2 SLP407 T11111128 FZRANO=  ## [A] Marshall, Marshall Don Hunter Sr Airport
263735 2022-11-27 17:53  -1 US US-AK  ADQ PADQ 271653Z 32004KT 10SM CLR M01/M11 A3045 RMK AO2 SLP311 T10111106 $  ## [A] Kodiak, Kodiak Airport
263739 2022-11-27 17:56   7 US US-AK  DUT PADU 271656Z 12014G18KT 10SM OVC020 07/04 A3008 RMK AO2 SLP191 T00720044=  ## [A] Unalaska, Unalaska Airport
263747 2022-05-01 04:52   7               PAEC 010252Z 00000KT 20SM BKN070 07/M16 A2963 RMK NOSPECI CHULITNA RIVER S FINAL REPORT=  ## [A]
263748 2022-11-27 17:55 -10 US US-AK  EDF PAED 271655Z AUTO 04005KT 10SM CLR M10/M13 A3041 RMK AO2 SLP298 T10991126 $  ## [A] Anchorage, Elmendorf Air Force Base
263751 2022-11-27 17:53 -11 US US-AK  EAA PAEG 271653Z AUTO 26003KT 10SM OVC037 M11/M14 A3039 RMK AO2 SLP312 T11061139 TSNO=  ## [A] Eagle, Eagle Airport
263752 2022-11-27 17:55  -3 US US-AK  EHM PAEH 271655Z AUTO 07025G41KT 010V120 6SM -FZDZ OVC065 M03/M09 A3045 RMK AO2 SHSNB1530E1638 SLP326 P0000 T10321087=  ## [A] Cape Newenham, Cape Newenham LRRS Airport
263753 2022-11-27 18:18 -13 US US-AK  EIL PAEI 271718Z AUTO 00000KT 10SM -SN BKN010 BKN060 OVC070 M13/M15 A3047 RMK AO2 SNB18 CIG 007 RWY14 SLP334 $  ## [A] Fairbanks, Eielson Air Force Base
263756 2022-11-22 20:46   5 US US-AK  ELV PAEL 221946Z VRB04KT 10SM -RA OVC022 05/04 A2950 RMK SEA 0 SWELL 2 SW NOSPECI=  ## [A] Elfin Cove, Elfin Cove Seaplane Base
263757 2022-11-20 23:56  -2 US US-AK  EMK PAEM 202256Z AUTO 06005KT 10SM OVC004 M02/M02 A2937 RMK AO2 SLP943 T10171022 FZRANO=  ## [A] Emmonak, Emmonak Airport
263758 2022-11-27 17:53 -22 US US-AK  ENA PAEN 271653Z VRB03KT 10SM CLR M22/M24 A3046 RMK AO2 SLP320 T12171239=  ## [A] Kenai, Kenai Municipal Airport
263771 2022-11-27 17:53 -15 US US-AK  FAI PAFA 271653Z 00000KT 10SM -SN FEW010 SCT050 OVC065 M15/M18 A3049 RMK AO2 SNB52 SLP339 P0000 T11501178 $  ## [A] Fairbanks, Fairbanks International Airport
263772 2022-11-27 18:05 -16 US US-AK  FBK PAFB 271705Z AUTO 00000KT 10SM BKN016 OVC060 M16/M18 A3048 RMK AO2 CIG 016V060 BKN V SCT SLP340=  ## [A] Fairbanks/Ft Wainwright, Ladd AAF Airfield
263775 2022-11-27 17:56  -4 US US-AK  --- PAFE 271656Z AUTO 06005KT 10SM CLR M04/M04 A3002 RMK AO2 SLP179 T10391044 FZRANO=  ## [A] Kake, Kake Airport
263783 2022-11-27 17:56 -20 US US-AK  ABL PAFM 271656Z AUTO 25003KT 10SM CLR M20/M22 A3059 RMK AO2 SLP373 T12001217 FZRANO=  ## [A] Ambler, Ambler Airport
263788 2022-11-27 17:55 -18 US US-AK  FRN PAFR 271655Z AUTO 00000KT 10SM CLR M18/M19 A3037 RMK AO2 SLP299 T11771195 VISNO RWY35 CHINO RWY35 $  ## [A] Fort Richardson(Anchorage), Bryant Army Heliport
263789 2022-11-27 18:01 -15 US US-AK  NIB PAFS 271701Z AUTO 25003KT 10SM CLR M15/M17 A3059 RMK AO2 SLP374 T11501167 FZRANO=  ## [A] Nikolai, Nikolai Airport
263797 2022-11-27 17:56 -16 US US-AK  GAL PAGA 271656Z AUTO 10SM CLR M16/M18 A3062 RMK AO2 SLP372 T11611183 FZRANO $  ## [A] Galena, Edward G. Pitka Sr Airport
263798 2022-11-23 21:40 XXX US US-AK  GBH PAGB 232040Z 08003KT 10SM FEW050 SCT150 M26/ A2962=  ## [A] Galbraith Lake, Galbraith Lake Airport
263803 2021-07-07 21:35 XXX US US-AK  KWK PAGG 071935Z 24010KT 10SM BKN055 OVC150 12/ A2959 RMK /LAST=  ## [A] Kwigillingok, Kwigillingok Airport
263804 2022-09-14 18:50 XXX US US-AK  SHG PAGH 141650Z 00000KT 1/16SM FG VV000 03/ A2958 RMK FG ALQDS=  ## [A] Shungnak, Shungnak Airport
263807 2022-11-27 15:53 -13 US US-AK  GKN PAGK 271453Z AUTO 31007KT 10SM CLR M13/M18 A3027 RMK AO2 SLP299 T11331183 51012 TSNO=  ## [A] Gulkana, Gulkana Airport
263808 2022-11-27 17:56 -14 US US-AK  GLV PAGL 271656Z AUTO 30003KT 10SM CLR M14/M16 A3072 RMK AO2 SLP398 T11441161 PWINO FZRANO $  ## [A] Golovin, Golovin Airport
263809 2022-11-27 14:56  -4 US US-AK  GAM PAGM 271356Z AUTO 14009KT 10SM SCT038 M04/M08 A3061 RMK AO2 SLP373 T10441083 FZRANO=  ## [A] Gambell, Gambell Airport
263810 2022-11-27 17:56  -3 US US-AK  AGN PAGN 271656Z AUTO 00000KT 10SM FEW003 M03/M03 A3004 RMK AO2 SLP162 T10281028 FZRANO=  ## [A] Angoon, Angoon Seaplane Base
263815 2022-11-27 17:56  -8 US US-AK  GST PAGS 271656Z AUTO 00000KT 10SM OVC080 M08/M08 A3006 RMK AO2 SLP178 T10781083 FZRANO=  ## [A] Gustavus, Gustavus Airport
263821 2022-11-27 17:53   1 US US-AK  SGY PAGY 271653Z AUTO 01007KT 10SM OVC070 01/M10 A3013 RMK AO2 SLP204 T00061100 TSNO=  ## [A] Skagway, Skagway Airport
263825 2022-11-08 02:56   4 US US-AK  HCR PAHC 080156Z AUTO 16013G23KT 10SM OVC028 04/M01 A2955 RMK AO2 PK WND 14029/0100 SLP011 T00391006 $  ## [A] Holy Cross, Holy Cross Airport
263834 2022-11-27 18:22 -16 US US-AK  HSL PAHL 271722Z AUTO 00000KT 9SM -SN SCT015 M16/M17 A3057 RMK AO2 P0000 FZRANO=  ## [A] Huslia, Huslia Airport
263836 2022-11-27 17:54  -2 US US-AK  HNS PAHN 271654Z AUTO 30011KT 10SM OVC080 M02/M07 A3012 RMK AO2 SLP200 T10171072 TSNO $  ## [A] Haines, Haines Airport
263837 2022-11-27 17:53  -6 US US-AK  HOM PAHO 271653Z 02006KT 10SM CLR M06/M13 A3045 RMK AO2 SLP314 T10561133 $  ## [A] Homer, Homer Airport
263838 2022-09-17 03:32  11 US US-AK  HPB PAHP 170132Z AUTO 18044G57KT 2SM -RA OVC024 11/08 A2891 RMK AO2 PK WND 18057/0125 VIS 1 1/2V3 PNO $  ## [A] Hooper Bay, Hooper Bay Airport
263846 2022-11-27 18:02 -21 US US-AK  SHX PAHX 271702Z AUTO VRB03KT 10SM CLR M21/M22 A3069 RMK AO2 SLP396 T12061222 FZRANO=  ## [A] Shageluk, Shageluk Airport
263847 2022-11-27 17:56  -2 US US-AK  HYG PAHY 271656Z AUTO 36005KT 10SM CLR M02/M02 A2998 RMK AO2 SLP149 T10171017 FZRANO $  ## [A] Hydaburg, Hydaburg Seaplane Base
263855 2022-11-27 17:56 -11 US US-AK  IGG PAIG 271656Z AUTO VRB05KT 10SM CLR M11/M13 A3059 RMK AO2 SLP370 T11111133 FZRANO $  ## [A] Igiugig, Igiugig Airport
263857 2022-08-02 19:56  11 US US-AK  EGX PAII 021756Z AUTO 26013G22KT 9SM OVC006 11/10 A3015 RMK AO2 RAB32E47 SLP207 P0000 60000 T01060100 10106 20106 53004=  ## [A] Egegik, Egegik Airport
263859 2022-11-27 17:56 -23 US US-AK  IAN PAIK 271656Z AUTO 00000KT 10SM CLR M23/M26 A3065 RMK AO2 SLP385 T12331261 FZRANO=  ## [A] Kiana, Bob Baker Memorial Airport
263860 2022-11-27 17:53  -8 US US-AK  ILI PAIL 271653Z VRB03KT 10SM CLR M08/M13 A3055 RMK AO2 SLP351 T10831128 $  ## [A] Iliamna, Iliamna Airport
263861 2022-11-27 17:55 -13 US US-AK  UTO PAIM 271655Z AUTO 24009KT 10SM -SHSN SCT060 M13/M15 A3041 RMK AO2 SNB1555E1641SHSNB1646 SLP338 T11331151=  ## [A] Utopia Creek, Indian Mountain LRRS Airport
263862 2022-11-27 17:56 -12 US US-AK  MCL PAIN 271656Z AUTO VRB03KT 8SM -SN OVC042 M12/M13 A3039 RMK AO2 SLP341 P0000 T11171133 FZRANO=  ## [A] McKinley Park, McKinley National Park Airport
263871 2022-11-24 08:56  -6 US US-AK  WAA PAIW 240756Z AUTO 12006KT 10SM OVC024 M06/M09 A2961 RMK AO2 SNE38 SLP027 T10611094 FZRANO PNO $  ## [A] Wales, Wales Airport
263877 2022-11-27 17:57   1 US US-AK  --- PAJC 271657Z AUTO 05003KT 10SM SCT110 01/M06 A3048 RMK AO2 SLP323 T00061056 FZRANO PNO $  ## [A] Chignik, Chignik Airport
263888 2022-11-27 17:53  -3 US US-AK  JNU PAJN 271653Z 00000KT 10SM FEW009 SCT070 BKN095 M03/M04 A3004 RMK AO2 SLP173 I1000 T10281039 $  ## [A] Juneau, Juneau International Airport
263900 2022-11-27 17:56 -11 US US-AK  KGK PAJZ 271656Z AUTO 01008KT 8SM CLR M11/M13 A3066 RMK AO2 SLP391 T11061133 FZRANO $  ## [A] Koliganek, Koliganek Airport
263906 2022-11-27 18:07 XXX US US-AK  KFP PAKF 271707Z AUTO 17013G28KT 6SM -RA FEW009 BKN016 OVC026 A3030 RMK AO2 PK WND 18028/1659 FZRANO PNO $  ## [A] False Pass, False Pass Airport
263908 2022-11-27 17:56 XXX US US-AK  AKK PAKH 271656Z AUTO 10SM SCT120 A3047 RMK AO2 SLPNO FZRANO TSNO $  ## [A] Akhiok, Akhiok Airport
263909 2022-11-27 17:56  -7 US US-AK  KPN PAKI 271656Z AUTO 09016KT 10SM OVC110 M07/M09 A3056 RMK AO2 SLP353 T10671089 FZRANO=  ## [A] Kipnuk, Kipnuk Airport
263911 2022-11-27 17:56 -15 US US-AK  KKA PAKK 271656Z AUTO 00000KT 10SM FEW036 M15/M17 A3063 RMK AO2 SLP384 T11501167 FZRANO=  ## [A] Koyuk, Koyuk Alfred Adams Airport
263914 2022-11-27 17:54  -9 US US-AK  AKN PAKN 271654Z AUTO 03009KT 10SM CLR M09/M13 A3055 RMK AO2 SLP348 T10941128 TSNO $  ## [A] King Salmon, King Salmon Airport
263916 2022-11-27 17:56 -24 US US-AK  AKP PAKP 271656Z AUTO 02006KT 6SM -SN OVC050 M24/M27 A3040 RMK AO2 SLP390 P0000 T12391267 FZRANO=  ## [A] Anaktuvuk Pass, Anaktuvuk Pass Airport
263920 2022-11-27 17:53   1 US US-AK  KTN PAKT 271653Z 32003KT 10SM SCT035 01/M02 A2996 RMK AO2 SLP148 HARBOR WIND 31005KT T00111022=  ## [A] Ketchikan, Ketchikan International Airport
263921 2022-11-27 17:59 -26 US US-AK  UUK PAKU 271659Z 28005KT 10SM R24/P6000FT FEW011 M26/M29 A3073=  ## [A] Kuparuk, Ugnu-Kuparuk Airport
263922 2022-11-27 17:53 -18 US US-AK  KAL PAKV 271653Z AUTO 00000KT 10SM CLR M18/M21 A3066 RMK AO2 SLP387 T11831211 TSNO=  ## [A] Kaltag, Kaltag Airport
263923 2022-11-27 17:53  -2 US US-AK  KLW PAKW 271653Z AUTO 00000KT 10SM CLR M02/M03 A2997 RMK AO2 SLP150 I1000 T10221033 TSNO=  ## [A] Klawock, Klawock Airport
263924 2022-11-22 19:35  -1               PAKX 221835Z AUTO 23003KT 3/4SM -SN OVC010 M01/M01 A2938 RMK AO2 P0001=  ## [A]
263933 2022-11-27 17:56 -17 US US-AK  KLG PALG 271656Z AUTO VRB03KT 10SM CLR M17/M18 A3068 RMK AO2 SLP393 T11671178 FZRANO=  ## [A] Kalskag, Kalskag Airport
263934 2022-11-27 17:53 -10 US US-AK  --- PALH 271653Z AUTO 00000KT 10SM CLR M10/M13 A3044 RMK AO2 SLP309 T11001128 TSNO=  ## [A] Anchorage, Lake Hood Airport
263935 2021-10-18 21:53   6               PALI 181953Z 01006KT 10SM SKC 06/M02 A2962=  ## [A]
263936 2022-11-27 02:57  -6               PALJ 270157Z 26008KT 25SM BKN060 M06/M09 A3037 RMK EST PASS OPN NOSPECI=  ## [A]
263942 2022-11-27 17:53 -27 US US-AK  DQH PALP 271653Z 00000KT 10SM BKN130 M27/M30 A3074=  ## [A] Deadhorse, Alpine Airstrip
263947 2022-11-27 17:55 -13 US US-AK  LUR PALU 271655Z AUTO 12010KT 10SM CLR M13/M20 A3069 RMK AO2 SLP394 T11281200=  ## [A] Cape Lisburne, Cape Lisburne LRRS Airport
263948 2019-08-08 02:52  23               PALV 080052Z 23010KT 30SM BKN060 23/13 A3020 RMK EST PASS OPEN NOSPECI=  ## [A]
263954 2022-11-13 08:04 XXX US US-AK  KMO PAMB 130704Z AUTO 05008KT 1 3/4SM -RA OVC002 A2926 RMK AO2 P0000 FZRANO $  ## [A] Manokotak, Manokotak Airport
263955 2022-11-27 18:16 -21 US US-AK  MCG PAMC 271716Z AUTO 00000KT 1/4SM FZFG VV002 M21/M22 A3062 RMK AO2 T12111217 TSNO $  ## [A] McGrath, McGrath Airport
263956 2022-11-27 17:51   1 US US-AK  MDO PAMD 271651Z AUTO 34019G23KT 10SM CLR 01/M09 A3019 RMK AO2 PK WND 34029/1556 SLP210 T00061094 FZRANO PNO $  ## [A] Middleton Island, Middleton Island Airport
263960 2022-11-27 17:56 -12 US US-AK  LMA PAMH 271656Z AUTO 00000KT 10SM OVC042 M12/M13 A3050 RMK AO2 SNE46 SLP341 P0000 T11171133 FZRANO=  ## [A] Minchumina, Minchumina Airport
263963 2022-11-27 17:56 -11 US US-AK  SMK PAMK 271656Z AUTO 22008KT 10SM CLR M11/M14 A3070 RMK AO2 SLP398 T11111139 FZRANO=  ## [A] St Michael, St Michael Airport
263965 2022-10-21 20:56   9 US US-AK  --- PAMM 211856Z AUTO 27003KT 10SM FEW034 SCT046 09/05 A2976 RMK AO2 SLP069 T00940050 $  ## [A] Metlakatla, Metlakatla Seaplane Base
263967 2022-10-19 00:56   2 US US-AK  MOU PAMO 182256Z AUTO 29005KT 10SM OVC007 02/01 A2984 RMK AO2 CIG 004V009 SLP110 T00170011 FZRANO=  ## [A] Mountain Village, Mountain Village Airport
263970 2022-11-27 17:53 -12 US US-AK  MRI PAMR 271653Z 00000KT 10SM CLR M12/M13 A3042 RMK AO2 SLP302 T11221128 $  ## [A] Anchorage, Merrill Field
263977 2021-10-20 21:56   3 US US-AK  MYU PAMY 201956Z AUTO 23015G21KT 10SM -RA FEW019 BKN024 BKN029 03/01 A2928 RMK AO2 UPE1858RAB04 SLP915 T00280011 PNO $  ## [A] Mekoryuk, Mekoryuk Airport
263979 2022-11-27 16:56 -12 US US-AK  WNA PANA 271556Z AUTO 08003KT 10SM CLR M12/M13 A3064 RMK AO2 SLP376 T11221133 FZRANO TSNO $  ## [A] Napakiak, Napakiak Airport
263981 2022-11-27 17:53  -8 US US-AK  ANC PANC 271653Z 01005KT 10SM CLR M08/M14 A3042 RMK AO2 SLP306 T10831139 $  ## [A] Anchorage, Ted Stevens Anchorage International Airport
263987 2022-11-27 17:56 -19 US US-AK  ANI PANI 271656Z AUTO 00000KT 10SM CLR M19/M22 A3074 RMK AO2 SLP402 T11941217 FZRANO $  ## [A] Aniak, Aniak Airport
263992 2022-11-27 17:53 -10 US US-AK  ENN PANN 271653Z AUTO VRB04KT 8SM BKN040 OVC075 M10/M12 A3050 RMK AO2 SNE43 SLP342 P0000 T11001122 TSNO=  ## [A] Nenana, Nenana Municipal Airport
263998 2019-10-01 14:53  12 US US-AK  ANN PANT 011253Z AUTO 14010KT 10SM OVC055 12/05 A3001 RMK SLP162 T01170050 TSNO VIA AUTODIAL=  ## [A] Annette, Annette Island Airport
264000 2022-11-27 09:56 -12 US US-AK  ANV PANV 270856Z AUTO 26003KT 10SM CLR M12/M14 A3061 RMK AO2 SLP517 60000 T11221139 410561122 51027 FZRANO TSNO=  ## [A] Anvik, Anvik Airport
264001 2022-11-27 17:56 -11 US US-AK  KNW PANW 271656Z AUTO 03009KT 10SM CLR M11/M13 A3060 RMK AO2 SLP374 T11061128 FZRANO=  ## [A] New Stuyahok, New Stuyahok Airport
264012 2022-11-27 17:56  -6 US US-AK  HNH PAOH 271656Z AUTO 00000KT 10SM OVC080 M06/M06 A3005 RMK AO2 SLP176 P0001 T10611061 FZRANO=  ## [A] Hoonah, Hoonah Airport
264017 2022-11-27 17:53 -12 US US-AK  OME PAOM 271653Z 09005KT 10SM OVC075 M12/M16 A3068 RMK AO2 SLP390 T11221161=  ## [A] Nome, Nome Airport
264019 2022-11-27 17:56  -7 US US-AK  OOK PAOO 271656Z AUTO SCT120 M07/M10 A3058 RMK AO2 SLP363 T10721100 PWINO FZRANO TSNO $  ## [A] Toksook Bay, Toksook Bay Airport
264022 2022-11-27 17:53 -12 US US-AK  ORT PAOR 271653Z 30009KT 10SM BKN055 OVC070 M12/M13 A3031 RMK AO2 SLP315 T11171133=  ## [A] Northway, Northway Airport
264024 2022-11-27 17:53 -21 US US-AK  OTZ PAOT 271653Z 35008KT 10SM CLR M21/M23 A3065 RMK AO2 SLP380 T12111233=  ## [A] Kotzebue, Ralph Wien Memorial Airport
264025 2022-11-27 17:56  -1 US US-AK  NLG PAOU 271656Z AUTO 07018KT 10SM FEW055 OVC075 M01/M03 A3041 RMK AO2 PK WND 06026/1606 SLP297 T10061033 FZRANO PNO $  ## [A] Nelson Lagoon, Nelson Lagoon Airport
264032 2022-11-27 18:18 XXX US US-AK  STG PAPB 271718Z AUTO 11028G43KT OVC009 04/ A2997 RMK AO2 PK WND 11045/1656 T0039 PWINO TSNO $  ## [A] St George, St George Airport
264033 2022-11-22 20:15 XXX US US-AK  KPC PAPC 221915Z 00000KT 8SM -SN OVC020 M08/ A2933=  ## [A] Port Clarence, Port Clarence Coast Guard Station
264037 2022-11-27 17:56  -1 US US-AK  PSG PAPG 271656Z 15003KT 10SM BKN037 M01/M02 A3000 RMK AO2 SLP163 T10111017=  ## [A] Petersburg, Petersburg James A Johnson Airport
264038 2022-11-27 18:10  -6 US US-AK  PTH PAPH 271710Z AUTO 06020KT 3SM -SN BR SCT019 M06/M08 A3050 RMK AO2 P0000 FZRANO=  ## [A] Port Heiden, Port Heiden Airport
264043 2022-11-27 17:56  -4 US US-AK  PTU PAPM 271656Z AUTO 10012KT 10SM OVC110 M04/M09 A3054 RMK AO2 SLP343 T10441089 FZRANO=  ## [A] Platinum, Platinum Airport
264044 2022-11-27 17:56  -7 US US-AK  PIP PAPN 271656Z AUTO 05008KT 10SM OVC100 M07/M09 A3056 RMK AO2 SLP352 T10671094 FZRANO=  ## [A] Pilot Point, Pilot Point Airport
264045 2022-11-27 03:56 -11 US US-AK  PHO PAPO 270256Z AUTO 05008KT 10SM SCT055 BKN100 M11/M16 A3047 RMK AO2 SLP318 6//// T11111156 51027 FZRANO PNO $  ## [A] Point Hope, Point Hope Airport
264048 2022-11-22 19:50 XXX US US-AK  PPC PAPR 221850Z 00000KT 7SM -SN OVC020 M09/ A2932=  ## [A] Prospect Creek, Prospect Creek Airport
264050 2022-11-27 02:45  -7               PAPT 270145Z 35012KT 25SM BKN060 M07/M07 A3012 RMK NO SPECI LAST=  ## [A]
264064 2022-11-07 07:56   1 US US-AK  KWN PAQH 070656Z AUTO 08020KT 10SM OVC120 01/M08 A3015 RMK AO2 PK WND 09030/0623 SLP210 T00061083 PWINO FZRANO $  ## [A] Quinhagak, Quinhagak Airport
264076 2022-11-27 18:10 -27 US US-AK  NUI PAQT 271710Z AUTO 26006KT 1 1/4SM BR BKN002 M27/M29 A3076 RMK AO2 T12721294 TSNO PNO=  ## [A] Nuiqsut, Nuiqsut Airport
264085 2022-11-27 17:56 -22 US US-AK  ARC PARC 271656Z AUTO 5SM -SN BR OVC047 M22/M24 A3033 RMK AO2 SNB04 SLP365 P0000 T12171239 FZRANO $  ## [A] Arctic Village, Arctic Village Airport
264101 2022-11-27 17:56 XXX US US-AK  RSH PARS 271656Z AUTO 00000KT 10SM CLR A3068 RMK AO2 SLPNO FZRANO $  ## [A] Russian Mission, Russian Mission Airport
264107 2022-11-27 16:56 -13 US US-AK  RBY PARY 271556Z AUTO VRB04KT 8SM -SN FEW014 OVC032 M13/M16 A3052 RMK AO2 SLP358 P0000 T11331156 FZRANO=  ## [A] Ruby, Ruby Airport
264109 2022-11-27 17:56  -4 US US-AK  SVA PASA 271656Z AUTO 16008KT 10SM OVC055 M04/M09 A3064 RMK AO2 SLP375 T10441089 FZRANO=  ## [A] Savoonga, Savoonga Airport
264111 2022-11-27 17:53 -21 US US-AK  SCC PASC 271653Z 33005KT 9SM -SN OVC015 M21/M23 A3071 RMK AO2 SLP401 PCPN VRY LGT T12111233 $  ## [A] Deadhorse, Deadhorse Airport
264112 2022-11-27 17:58   3 US US-AK  SDP PASD 271658Z 02003KT 10SM FEW028 SCT060 03/M01 A3044 RMK AO2 $  ## [A] Sand Point, Sand Point Airport
264116 2022-11-27 17:56 -10 US US-AK  SHH PASH 271656Z AUTO 21007KT 10SM FEW055 OVC070 M10/M12 A3069 RMK AO2 SLP392 T11001122 FZRANO=  ## [A] Shishmaref, Shishmaref Airport
264117 2022-11-27 17:53  -2 US US-AK  SIT PASI 271653Z 03003KT 10SM CLR M02/M04 A2999 RMK AO2 SLP154 I1000 T10221044 $  ## [A] Sitka, Sitka Rocky Gutierrez Airport
264119 2022-11-27 17:56 -25 US US-AK  WLK PASK 271656Z AUTO VRB03KT 8SM CLR M25/M27 A3065 RMK AO2 SLP376 T12501272 FZRANO=  ## [A] Selawik, Selawik Airport
264120 2022-11-27 17:56 -16 US US-AK  SLQ PASL 271656Z AUTO 06003KT 10SM CLR M16/M18 A3069 RMK AO2 SLP387 T11611178 FZRANO=  ## [A] Sleetmute, Sleetmute Airport
264121 2022-11-27 17:56 -11 US US-AK  KSM PASM 271656Z AUTO 07009KT 10SM CLR M11/M13 A3066 RMK AO2 SLP397 T11061128 FZRANO=  ## [A] St Mary's, St Mary's Airport
264122 2022-11-27 18:04   2 US US-AK  SNP PASN 271704Z AUTO 10029G40KT 2 1/2SM BR OVC007 02/01 A3003 RMK AO2 PK WND 11040/1701 T00220011 TSNO=  ## [A] St Paul Island, St Paul Island Airport
264123 2022-11-27 17:53  -2 US US-AK  SOV PASO 271653Z AUTO 02009KT 10SM CLR M02/M11 A3044 RMK AO2 SLP307 T10171106 TSNO=  ## [A] Seldovia, Seldovia Airport
264130 2022-11-27 17:55 -13 US US-AK  SVW PASV 271655Z AUTO 00000KT 2 1/2SM -SN BR OVC006 M13/M15 A3047 RMK AO2 SNB1454 SLP369 P0000 T11331148=  ## [A] Sparrevohn, Sparrevohn LRRS Airport
264132 2022-11-27 17:56 -21 US US-AK  SXQ PASX 271656Z AUTO 00000KT 10SM CLR M21/M23 A3049 RMK AO2 SLP335 T12111228 FZRANO=  ## [A] Soldotna, Soldotna Airport
264133 2022-11-27 17:55   4 US US-AK  SYA PASY 271655Z VRB05KT 5SM -DZ BR SCT010 OVC018 04/03 A2966 RMK AO2A SLP045 SLP ESTMD WND DATA ESTMD T00370033 RVRNO PNO FZRANO $  ## [A] Shemya, Eareckson Air Station
264135 2022-11-27 17:59 -15 US US-AK  TAL PATA 271659Z 03003KT 4SM -SN BR SCT029 OVC095 M15/M17 A3053 RMK AO2 T11501167=  ## [A] Tanana, Ralph M Calhoun Memorial Airport
264137 2022-11-27 17:55  -8 US US-AK  TNC PATC 271655Z AUTO 14007KT 10SM -SN FEW041 BKN060 M08/M11 A3062 RMK AO2 SNB1655 SLP379 P0000 T10801106=  ## [A] Tin City, Tin City Long Range Radar Station Airport
264139 2022-11-27 17:56 -10 US US-AK  TLA PATE 271656Z AUTO 12009KT 10SM OVC060 M10/M13 A3065 RMK AO2 SLP391 T11001133 FZRANO=  ## [A] Teller, Teller Airport
264141 2022-11-27 17:56  -8 US US-AK  TOG PATG 271656Z AUTO 36008KT 10SM OVC110 M08/M11 A3058 RMK AO2 SLP355 T10781106 FZRANO=  ## [A] Togiak Village, Togiak Airport
264145 2022-11-27 17:53 -21 US US-AK  TKA PATK 271653Z AUTO 04003KT 10SM CLR M21/M24 A3043 RMK AO2 SLP316 I1000 T12111239 TSNO=  ## [A] Talkeetna, Talkeetna Airport
264146 2022-11-27 17:55 -13 US US-AK  TLJ PATL 271655Z AUTO 00000KT 10SM CLR M13/M16 A3060 RMK AO2 SLP392 T11341158 TSNO $  ## [A] Takotna, Tatalina LRRS Airport
264149 2022-11-27 17:53  -6               PATO 271653Z AUTO 27007G19KT 10SM CLR M06/M12 RMK AO2 SLPNO T10611117 TSNO $  ## [A]
264151 2022-11-27 17:56 -24 US US-AK  ATK PATQ 271656Z AUTO 21004KT 10SM FEW001 M24/M27 A3073 RMK AO2 SNB08E18 SLP412 P0000 T12441267 FZRANO TSNO=  ## [A] Atqasuk, Atqasuk Edward Burnell Sr Memorial Airport
264174 2022-11-27 17:56 -17 US US-AK  UNK PAUN 271656Z AUTO 00000KT 10SM CLR M17/M18 A3069 RMK AO2 SNE03 SLP398 P0000 T11671183 FZRANO=  ## [A] Unalakleet, Unalakleet Airport
264180 2022-11-27 18:17 XXX US US-AK  --- PAUT 271717Z AUTO 12019KT A3016 RMK AO2 PWINO=  ## [A] Akutan, Akun Airport
264187 2022-11-27 17:56 -11 US US-AK  VAK PAVA 271656Z AUTO 08011KT 10SM CLR M11/M12 A3063 RMK AO2 SLP379 T11061122 FZRANO=  ## [A] Chevak, Chevak Airport
264189 2022-11-27 17:56   4 US US-AK  KVC PAVC 271656Z AUTO 08016G21KT 10SM OVC021 04/01 A3037 RMK AO2 RAE07 SLP287 T00390011 PNO $  ## [A] King Cove, King Cove Airport
264190 2022-11-27 17:56  -3 US US-AK  VDZ PAVD 271656Z 07020G31KT 10SM FEW075 A3039 RMK AO2 PK WND 09036/1604 WSHFT 1548 SLPNO M03/M11 PNO $  ## [A] Valdez, Valdez Pioneer Field
264198 2022-10-04 20:53   4 US US-AK  KVL PAVL 041853Z AUTO 14015KT 10SM OVC010 04/02 A2990 RMK AO2 SLP126 T00440022 TSNO=  ## [A] Kivalina, Kivalina Airport
264216 2022-11-27 17:53  -3 US US-AK  SWD PAWD 271653Z AUTO 32015G25KT 10SM CLR M03/M16 A3035 RMK AO2 PK WND 33028/1634 SLP279 T10331161 TSNO $  ## [A] Seward, Seward Airport
264219 2022-11-27 17:56  -1 US US-AK  WRG PAWG 271656Z 14003KT 10SM CLR M01/M02 A2999 RMK AO2 SLP157 T10111017=  ## [A] Wrangell, Wrangell Airport
264221 2022-11-27 17:53 -19 US US-AK  AIN PAWI 271653Z AUTO 18006KT 10SM OVC042 M19/M21 A3070 RMK AO2 SLP398 T11891211 TSNO $  ## [A] Wainwright, Wainwright Airport
264225 2022-11-27 17:56 -15 US US-AK  WMO PAWM 271656Z AUTO 00000KT 10SM CLR M15/M16 A3069 RMK AO2 SLPNO T11501161 FZRANO=  ## [A] White Mountain, White Mountain Airport
264226 2022-11-27 16:56 -24 US US-AK  WTK PAWN 271556Z AUTO 33007KT 10SM CLR M24/M27 A3067 RMK AO2 SLP403 T12391267 FZRANO=  ## [A] Noatak, Noatak Airport
264231 2022-11-27 17:56 -17 US US-AK  WWA PAWS 271656Z AUTO 00000KT 10SM CLR M17/M19 A3042 RMK AO2 SLP313 T11671189 FZRANO=  ## [A] Wasilla, Wasilla Airport
264265 2022-11-27 17:53  -2 US US-AK  YAK PAYA 271653Z AUTO 04004KT 10SM BKN095 M02/M07 A3005 RMK AO2 SLP177 T10171072 TSNO $  ## [A] Yakutat, Yakutat Airport
264301 2022-11-27 17:56 -16               PAZK 271656Z AUTO 22005KT 10SM CLR M16/M21 A3020 RMK AO2 SLP315 T11561211 FZRANO=  ## [A]
266405 2022-11-18 13:15  23               PECI 181215Z 11004KT 5000 BR SCT016 23/23 Q1016 BR/NE/NW/N=  ## [A]
267084 2022-11-27 16:56 XXX US US-AK  CLP PFCL 271556Z AUTO 05013KT 10SM SCT120 A3063 RMK AO2 SLPNO FZRANO TSNO $  ## [A] Clarks Point, Clarks Point Airport
267136 2022-11-27 17:56 -13 US US-AK  ELI PFEL 271656Z AUTO 00000KT 10SM CLR M13/M16 A3067 RMK AO2 SLP390 T11281156 FZRANO=  ## [A] Elim, Elim Airport
267300 2022-11-27 17:56 -10 US US-AK  KTS PFKT 271656Z AUTO 10008KT 10SM OVC060 M10/M13 A3070 RMK AO2 SLP395 T11001133 FZRANO=  ## [A] Brevig Mission, Brevig Mission Airport
267303 2022-11-27 16:56 -13 US US-AK  KWT PFKW 271556Z AUTO 05006KT 10SM CLR M13/M14 A3064 RMK AO2 SLP378 T11281144 FZRANO=  ## [A] Kwethluk, Kwethluk Airport
267373 2022-11-27 17:56 -23 US US-AK  ORV PFNO 271656Z AUTO 28003KT 10SM CLR M23/M26 A3065 RMK AO2 SLP468 T12331256 FZRANO=  ## [A] Noorvik, Robert (Bob) Curtis Memorial Airport
267379 2020-11-03 23:50 -13               PFNU 032250Z AUTO 21010KT 10SM FEW055 M13/M14 A2971 RMK A01=  ## [A]
267496 2022-11-27 17:56 -20 US US-AK  SKK PFSH 271656Z AUTO 14005KT 10SM CLR M20/M22 A3070 RMK AO2 SLP397 T12001222 FZRANO=  ## [A] Shaktoolik, Shaktoolik Airport
267611 2022-11-27 17:56  -9 US US-AK  WSN PFWS 271656Z AUTO 02012KT 10SM BKN120 M09/M12 A3060 RMK AO2 SLP408 T10891117 FZRANO=  ## [A] South Naknek, South Naknek Nr 2 Airport
267665 2022-11-27 17:56 -19 US US-AK  FYU PFYU 271656Z 02003KT 9SM -SN OVC070 M19/M21 A3052 RMK AO2 SLP358 P0000 T11941211=  ## [A] Fort Yukon, Fort Yukon Airport
------ Nordmarianerna:
268153 2022-11-27 08:50  27 MP MP-U-A ROP PGRO 270750Z 06010KT 7SM SCT016 27/24 A2984 RMK LAST=  ## [A] Rota Island, Rota International Airport
268178 2022-11-27 17:54  28 MP MP-U-A SPN PGSN 271654Z 08011KT 10SM FEW019 28/24 A2986 RMK AO2 SLP131 T02830244 $  ## [A] Saipan Island, Saipan International Airport
------ Guam:
268217 2022-11-27 17:55  26 GU GU-U-A UAM PGUA 271655Z AUTO 09012KT 10SM BKN017 26/23 A2986 RMK AO2 CIG 016 RWY24L SLP102 T02620232=  ## [A] Yigo,  Mariana Island, Andersen Air Force Base
268229 2022-11-27 17:54  27 GU GU-U-A GUM PGUM 271654Z 07010KT 10SM FEW021 FEW028 SCT036 27/25 A2986 RMK AO2 RAE1558 SLP103 P0000 T02670250=  ## [A] Hagåtña,  Guam International Airport, Antonio B. Won Pat International Airport
------ Nordmarianerna:
268288 2022-11-27 09:50  28 MP MP-U-A TIQ PGWT 270850Z 07010KT 7SM FEW020 28/24 RMK LAST=  ## [A] Tinian Island, Tinian International Airport
------ USA:
268409 2022-11-27 17:51  19 US US-HI  BKH PHBK 271651Z AUTO 09004KT 10SM CLR 19/12 A2997 RMK AO2 SLP152 T01940117 =  ## [A] Kekaha, Barking Sands Airport
268563 2022-11-27 17:55  16 US US-HI  HHI PHHI 271655Z AUTO 00000KT 10SM CLR 16/08 A3001 RMK AO2 SLP158 T01600080 $  ## [A] Wahiawa, Wheeler Army Airfield
268568 2021-01-30 01:45  26 US US-HI  HNM PHHN 300045Z 03014KT 9SM BKN024 BKN028 OVC049 26/20 A3005=  ## [A] Hana, Hana Airport
268614 2021-09-16 01:45  29 US US-HI  JHM PHJH 152345Z 05015KT 10SM SCT045 29/20 A2996=  ## [A] Lahaina, Kapalua Airport
268624 2022-11-27 17:53  19 US US-HI  JRF PHJR 271653Z 03004KT 10SM CLR 19/14 A3000 RMK AO2 SLP166 T01890144=  ## [A] Kapolei, Kalaeloa Airport
268647 2022-11-27 17:53  22 US US-HI  KOA PHKO 271653Z VRB03KT 10SM SCT090 22/16 A2998 RMK AO2 SLP153 T02170156=  ## [A] Kailua/Kona, Ellison Onizuka Kona International At Keahole Airport
268667 2022-11-27 17:53  18 US US-HI  LIH PHLI 271653Z 27008KT 10SM FEW030 18/15 A3000 RMK AO2 SLP157 T01780150=  ## [A] Lihue, Lihue Airport
268695 2022-11-27 17:54  21 US US-HI  MKK PHMK 271654Z VRB04KT 10SM SCT028 BKN045 21/17 A3001 RMK AO2 SLP165 T02060172=  ## [A] Kaunakakai, Molokai Airport
268705 2021-06-11 01:50  20 US US-HI  MUE PHMU 102350Z 06014G22KT 3/4SM CLR 20/19 A3022 RMK LTRA=  ## [A] Kamuela, Waimea Kohala Airport
268717 2022-11-27 17:57 XXX US US-HI  NGF PHNG 271657Z AUTO 21003KT 10SM CLR A2997 RMK AO2 SLP145 $  ## [A] Kaneohe, Kaneohe Bay MCAS (Marion E. Carl Field) Airport
268722 2022-11-27 17:53  19 US US-HI  HNL PHNL 271653Z 00000KT 10SM FEW028 FEW045 19/16 A2999 RMK AO2 SLP155 T01890161=  ## [A] Honolulu, Daniel K Inouye International Airport
268735 2022-11-27 18:09  18 US US-HI  LNY PHNY 271709Z AUTO 06004KT 10SM FEW002 18/17 A3006 RMK AO2 $  ## [A] Lanai City, Lanai Airport
268743 2022-11-27 17:54  21 US US-HI  OGG PHOG 271654Z 00000KT 10SM FEW010 BKN025 21/19 A3001 RMK AO2 RAB27E37 SLP166 P0000 T02110194=  ## [A] Kahului, Kahului Airport
268846 2022-11-27 17:58  11 US US-HI  BSF PHSF 271658Z AUTO 33004KT 10SM FEW190 11/07 A3030 RMK AO2 SLP164 T01050068 $  ## [A] Camp Pohakuloa, Bradshaw Army Airfield
268881 2022-11-27 17:53  19 US US-HI  ITO PHTO 271653Z 24004KT 10SM BKN051 19/16 A3002 RMK AO2 SLP163 T01890161=  ## [A] Hilo, Hilo International Airport
------ Marshallöarna:
270722 2022-11-27 09:52  29 MH MH-MAJ MAJ PKMJ 270852Z 04013KT 15SM FEW015 SCT050 BKN300 29/25 A2981 RMK LAST=  ## [A] Majuro Atoll, Marshall Islands International Airport
270730 2022-11-27 14:58  28               PKMR 271358Z 07011KT 15SM FEW015 SCT050 BKN300 28/23 A2977 RMK SLP085 T02750230=  ## [A]
270973 2022-11-27 18:20  27 MH MH-KWA KWA PKWA 271720Z AUTO 05012KT 10SM SCT028 SCT032 BKN060 27/22 A2981 RMK AO2 T02690218=  ## [A] Kwajalein, Bucholz Army Air Field
------ Kiribati:
271136 2022-11-27 18:00  25 KI KI-L   CXI PLCH 271700Z 11006KT 9999 FEW020 25/20 Q1011=  ## [A] Banana, Cassidy International Airport
------ Förenta staternas mindre öar i Oceanien och Västindien:
271855 2022-11-27 17:56  21 UM UM-71  MDY PMDY 271656Z AUTO 36009KT 10SM FEW030 21/16 A3006 RMK AO2 SLP179 T02060161 TSNO=  ## [A] Sand Island, Henderson Field
273540 2021-08-19 12:53  22               POQT 191053Z AUTO 00000KT 10SM FEW065 22/21 A3016 RMK AO2 SLP194 T02220206 =  ## [A]
273566 2019-06-29 11:00 XXX               PORT 290900Z WIND 040/10KT CAVOK T23 DP20 QNH1008HPA=  ## [A]
274008 2022-09-17 02:56  12               PPIT 170056Z AUTO 19026G36KT 7SM OVC027 12/08 A2943 RMK AO2 PK WND 20039/0014 SLP968 P0003 T01170078 TSNO=  ## [A]
------ USA:
274014 2022-11-27 17:56 -24 US US-AK  PIZ PPIZ 271656Z AUTO 11005KT 10SM CLR M24/M26 A3073 RMK AO2 SLP409 T12441261 FZRANO=  ## [A] Point Lay, Point Lay LRRS Airport
274139 2019-12-13 19:20 -21               PPNU 131820Z AUTO 2 1/2SM OVC002 M21/M23 A2951 RMK AO1 VSBY 1 1/4V5=  ## [A]
274339 2021-03-03 18:00  27               PPVM 031700Z 08005KT 9999 FEW020 SCT300 27/21 Q1013 RMK A2991=  ## [A]
275420 2020-06-30 16:00  25               PRLB 301400Z VRB02KT 9999 FEW020 25/23 Q1010 NOSIG RMK A2983=  ## [A]
275430 2020-06-30 16:00  28               PRLL 301400Z 22003KT 9999 FEW025 SCT110 28/24 Q1010 NOSIG RMK A2983=  ## [A]
275448 2020-06-30 16:00  28               PRMD 301400Z VRB02KT 9999 SCT016 BKN090 28/24 Q1010 TCU S RMK A2983=  ## [A]
275462 2019-05-03 03:00  31               PRMR 030100Z 12006KT 9999 FEW018 SCT080 31/24 Q1014 RMK A2994=  ## [A]
275479 2022-05-14 19:00  32               PRNI 141700Z 32011KT 7000 NSC 32/M01 Q1011 NOSIG=  ## [A]
275520 2022-10-11 03:41 XXX               PROX 110300Z SLP994=  ## [A]
275682 2020-11-06 13:00  27               PRVD 061200Z 14004KT 9999 TS-SHRA FEW015 OVC070 27/24 Q1011 RMK A2985 CB SE=  ## [A]
275691 2020-06-30 16:00  27               PRVM 301400Z 33004KT 9999 FEW020 SCT300 27/24 Q1011 A2985=  ## [A]
275694 2020-04-30 17:00  29               PRVP 301500Z 27004KT 9999 SCT019 29/24 Q1011 RMK A2985=  ## [A]
276105 2022-04-25 15:00  24               PSLK 251300Z 25004KT 3000HZ 24/16 Q1010=  ## [A]
------ Mikronesiska federationen:
276755 2022-11-27 17:52  28 FM FM-TRK TKK PTKK 271652Z VRB05KT 15SM FEW014 SCT280 28/23 A2975 RMK SLP076 T02810234=  ## [A] Weno Island, Chuuk International Airport
276866 2021-09-23 01:23  24               PTOR 222323Z 29005KT 7SM -TSRA BKN014CB OVC100 24/24 A2985 RMK TS OHD =  ## [A]
276888 2022-11-27 11:52  26 FM FM-PNI PNI PTPN 271052Z 09005KT 15SM SCT018 BKN130 BKN300 26/23 A2976 RMK LAST=  ## [A] Pohnpei Island, Pohnpei International Airport
------ Palau:
276941 2022-11-27 17:50  25 PW PW-004 ROR PTRO 271650Z 01003KT 13SM SCT014 BKN110 BKN290 25/24 A2975 =  ## [A] Babelthuap Island, Babelthuap Airport
276942 2021-07-16 06:25  26               PTRP 160425Z 35006KT 10SM -SHRA BKN015CB BKN110 OVC290 26/24 A2982 RMK CB ALQDS =  ## [A]
------ Mikronesiska federationen:
276953 2022-11-26 03:55  25 FM FM-KSA KSA PTSA 260255Z COR VRB02KT 3SM -RA BKN011TCU BKN120 OVC290 25/24 A2978 RMK TCU N LAST=  ## [A] Okat, Kosrae International Airport
276994 2022-11-27 17:53  25               PTTP 271653Z 00000KT 15SM SCT018 BKN130 OVC300 25/24 A2978 RMK SHRAB25E33 SLP085 T02500241=  ## [A]
277109 2022-11-27 17:51  28 FM FM-YAP YAP PTYA 271651Z VRB04KT 12SM SCT016 BKN300 28/26 A2976 RMK SLP079 T02770255=  ## [A] Yap Island, Yap International Airport
277693 2021-11-14 20:54  27               PUUM 141954Z COR 08007KT 10SM CLR 27/23 A2985 RMK AO2 SLP099 T02670233 $ =  ## [A]
------ Förenta staternas mindre öar i Oceanien och Västindien:
278523 2022-11-27 17:55  26 UM UM-79  AWK PWAK 271655Z AUTO 07009KT 9999 FEW025 26/22 A2992 RMK AO2 SLP138 T02600218 $  ## [A] Wake Island, Wake Island Airfield
299508 2019-05-10 21:30  13               RBBN 101930Z 03006KT 9999 FEW050CB BKN083 13/10 Q1012 R14R/CLRD// NOSIG RMK MT OP QFE684=  ## [A]
------ Taiwan:
300288 2022-11-27 14:00  23 TW TW-TTT TTT RCFN 271300Z 31002KT 9999 FEW005 SCT018 BKN045 23/23 Q1015 NOSIG RMK A3000=  ## [A] Taitung City, Taitung Airport
300296 2021-07-31 02:30 XXX               RCFV 310030Z PUTO 3601M1PR MG 3ACR31 LEFEWZP=  ## [A]
300412 2022-11-27 18:00  24 TW TW-KHH KHH RCKH 271700Z 06003KT 9999 FEW015 SCT042 BKN100 24/21 Q1012 NOSIG RMK A2990=  ## [A] Kaohsiung City, Kaohsiung International Airport
300473 2022-11-27 18:00  21 TW TW-TXG RMQ RCMQ 271700Z 00000KT 6000 FEW004 BKN020 BKN040 21/21 Q1014 RMK A2995=  ## [A] Taichung City, Taichung Ching Chuang Kang Airport
300496 2022-11-27 18:00  22 TW TW-TNN TNN RCNN 271700Z 00000KT 9999 FEW012 BKN060 22/19 Q1013 RMK A2992=  ## [A] Tainan City, Tainan Airport
300526 2022-07-29 06:00  24               RCOR 290400Z 03004KT 9999 FEW044 SCT220 24/18 Q1018 A3006 NOSIG=  ## [A]
300569 2022-09-19 12:56  24               RCQI 191056Z AUTO 00000KT 10SM CLR 24/24 A2996 RMK AO2 SLP140 T02390239 $ =  ## [A]
300631 2022-11-27 18:00  22 TW TW-TPE TSA RCSS 271700Z VRB01KT 9000 FEW008 SCT100 22/21 Q1013 NOSIG RMK A2994=  ## [A] Taipei City, Taipei Songshan Airport
300654 2022-11-27 18:00  22 TW TW-TAO TPE RCTP 271700Z 11003KT 080V160 9000 FEW008 SCT012 BKN070 22/21 Q1013 NOSIG RMK A2994=  ## [A] Taipei, Taiwan Taoyuan International Airport
300758 2021-09-26 00:56  32               RCXP 252256Z AUTO 16006KT 10SM CLR 32/09 A3000 RMK AO2 SLP121 T03170089 =  ## [A]
301821 2019-06-15 17:00  28               REMM 151500Z 32010KT CAVOK 28/20 Q1010 NOSIG=  ## [A]
301892 2021-09-24 12:00  26               REPF 241000Z 12006KT 9999 FEW018 26/24 Q////=  ## [A]
302554 2019-07-19 02:00   1               RFOR 191200Z 2000Z PRONOSTICO DE AREA (75 MILLAS). SEMICIRCULO NORTE: VIENTO: ENE/10 NUDOS. VISIBILIDAD: 10 KMS. NUBOSIDAD: 1-2/8 SC 1600 PIES. SEMICIRCULO SUR: VIENTO: SW/05 NUDOS. VISIBILIDAD: 09 KMS. NUBOSIDAD: 3-5/8 CU-SC 1500 PIES. VIENTO Y TEMPERATU=  ## [A]
303381 2021-11-23 00:54  31               RGUM 222354Z COR 08015G24KT 10SM FEW019 FEW024 FEW070 31/24 A2990 RMK AO2 SLP118 T03060239 10306 20267 50008 =  ## [A]
------ Japan:
304877 2022-11-27 18:00   8 JP JP-12  NRT RJAA 271700Z AUTO 32006KT 9999 NSC 08/05 Q1025 NOSIG RMK A3028=  ## [A] Tokyo, Narita International Airport
304882 2022-11-27 10:00   6 JP JP-20  MMJ RJAF 270900Z 26003KT CAVOK 06/02 Q1022=  ## [A] Matsumoto, Matsumoto Airport
304884 2022-11-27 18:00   5 JP JP-08  IBR RJAH 271700Z 02003KT 9999 FEW040 05/02 Q1025=  ## [A] Omitama, Hyakuri Airport
304885 2022-11-22 03:38  18               RJAI 220238Z 35005G17KT 9999 FEW030 18/07 Q1017 RMK 1CU030 A3004=  ## [A]
304887 2022-11-26 22:24   7 JP JP-08  --- RJAK 262124Z VRB01KT 9000 FEW003 07/07 Q1013 RMK 1ST003 A2993=  ## [A] , Kasumigaura Airport
304891 2022-07-16 00:07  27               RJAO 152207Z 18011KT 9999 SCT015 BKN150 27/26 Q1009 RMK 3CU015 7AC150 A2982=  ## [A]
304896 2022-11-25 23:25  12 JP JP-22  --- RJAT 252225Z 18003KT 9999 -SHRA FEW000 SCT008 BKN015 12/10 Q1018 RMK 1ST000 3ST008 6CU015 A3007=  ## [A] Gotemba, Fuji Air Base
304899 2022-11-27 16:00  23 JP JP-13  IWO RJAW 271500Z 06015KT 9999 FEW020 23/17 Q1016 RMK 1CU020 A3003 WIND BY EQPT/25=  ## [A] , Iwo Jima Airport
304904 2022-11-27 18:00  12 JP JP-27  KIX RJBB 271700Z AUTO 08006KT 9999 NSC 12/07 Q1024 NOSIG=  ## [A] Osaka, Kansai International Airport
304906 2022-11-27 11:00  13 JP JP-30  SHM RJBD 271000Z 36005KT 9999 FEW025 BKN/// 13/07 Q1020=  ## [A] Shirahama, Nanki Shirahama Airport
304907 2022-11-27 14:00  14 JP JP-28  UKB RJBE 271300Z 06011KT 9999 FEW030 SCT/// 14/06 Q1023=  ## [A] Kobe, Kobe Airport
304922 2022-11-27 10:00  11 JP JP-28  TJH RJBT 270900Z 02001KT CAVOK 11/07 Q1022=  ## [A] Tajima, Tajima Airport
304929 2022-11-25 23:30  11 JP JP-01  --- RJCA 252230Z 17018G28KT 9999 FEW020 BKN050 11/02 Q1004 RMK 1CU020 5CU050 A2966=  ## [A] Camp Asahikawa, Asahikawa Airfield
304930 2022-11-27 12:00   1 JP JP-01  OBO RJCB 271100Z 31010KT 9999 FEW040 BKN150 01/M06 Q1019=  ## [A] Obihiro, Tokachi-Obihiro Airport
304931 2022-11-27 18:00   3 JP JP-01  CTS RJCC 271700Z 24004KT 9999 FEW020 BKN050 03/M04 Q1023 RMK 1CU020 7CU050 A3021=  ## [A] Chitose / Tomakomai, New Chitose Airport
304936 2022-11-27 12:00   3 JP JP-01  HKD RJCH 271100Z 30003KT 260V330 9999 FEW030 BKN100 03/M04 Q1022=  ## [A] Hakodate, Hakodate Airport
304939 2022-11-27 12:00   0 JP JP-01  KUH RJCK 271100Z 09002KT 9999 FEW040 SCT150 00/M04 Q1019=  ## [A] Kushiro, Kushiro Airport
304941 2022-11-27 12:00   0 JP JP-01  MMB RJCM 271100Z 22003KT 190V290 9999 FEW020 SCT050 BKN060 00/M04 Q1019=  ## [A] ?zora, Memanbetsu Airport
304942 2022-11-27 10:00   2 JP JP-01  SHB RJCN 270900Z 32003KT 260V040 9999 FEW015 SCT040 02/M05 Q1017=  ## [A] Nakashibetsu, Nakashibetsu Airport
304943 2022-11-27 12:00   3 JP JP-01  OKD RJCO 271100Z 29006KT 9999 FEW020 BKN050 03/M02 Q1023=  ## [A] Sapporo, Okadama Airport
304948 2022-11-27 04:21   6 JP JP-01  --- RJCT 270321Z 29010G20KT 9999 FEW035 SCT050 06/M07 Q1016 RMK 1CU035 4CU050 A3002=  ## [A] , Tokachi Airport
304951 2022-11-27 10:00   1 JP JP-01  WKJ RJCW 270900Z 25011KT 9999 FEW040 BKN050 01/M05 Q1018=  ## [A] Wakkanai, Wakkanai Airport
304956 2022-11-27 18:00  17 JP JP-42  IKI RJDB 271700Z AUTO 16005KT 9999 NSC 17/13 Q1020=  ## [A] Iki, Iki Airport
304957 2022-11-27 13:00  13 JP JP-35  UBJ RJDC 271200Z 03004KT CAVOK 13/09 Q1021=  ## [A] Ube, Yamaguchi Ube Airport
304965 2020-03-25 15:00  15 JP JP-42  --- RJDK 251400Z AUTO VRB02KT 9999 BKN020 15/13 Q1020=  ## [A] Kamigoto, Kamigoto Airport
304967 2022-11-21 05:31  21 JP JP-41  --- RJDM 210431Z 04009G20KT 9999 FEW035 BKN220 21/11 Q1018 RMK 1CU035 6CI220 A3006=  ## [A] , Metabaru Air Base
304974 2022-11-27 12:00  15 JP JP-42  TSJ RJDT 271100Z 06003KT CAVOK 15/09 Q1020=  ## [A] Tsushima, Tsushima Airport
304982 2022-11-27 08:00   1 JP JP-01  MBE RJEB 270700Z 30009KT 9999 FEW020 BKN050 01/M02 Q1017=  ## [A] Monbetsu, Monbetsu Airport
304983 2022-11-27 12:00   0 JP JP-01  AKJ RJEC 271100Z 16005KT 9999 -SHSN FEW007 SCT025 BKN040 M00/M02 Q1020=  ## [A] Asahikawa / Hokkaid?, Asahikawa Airport
305011 2022-11-27 11:00  15 JP JP-42  FUJ RJFE 271000Z VRB02KT CAVOK 15/10 Q1019=  ## [A] Goto, Fukue Airport
305012 2022-11-27 18:00  15 JP JP-40  FUK RJFF 271700Z AUTO 12004KT 080V160 9999 NSC 15/08 Q1021 NOSIG RMK A3016=  ## [A] Fukuoka, Fukuoka Airport
305013 2022-11-27 10:00  16 JP JP-46  TNE RJFG 270900Z 09003KT 040V130 CAVOK 16/12 Q1019=  ## [A] Tanegashima, New Tanegashima Airport
305017 2022-11-27 13:00  15 JP JP-46  KOJ RJFK 271200Z 09004KT CAVOK 15/10 Q1021 RMK A3015=  ## [A] Kagoshima, Kagoshima Airport
305019 2022-11-27 13:00  14 JP JP-45  KMI RJFM 271200Z 28005KT 260V330 9999 FEW030 BKN/// 14/11 Q1020=  ## [A] Miyazaki, Miyazaki Airport
305021 2022-11-27 14:00  13 JP JP-44  OIT RJFO 271300Z 26004KT CAVOK 13/09 Q1022=  ## [A] Oita, Oita Airport
305024 2022-11-27 18:00  15 JP JP-40  KKJ RJFR 271700Z 21004KT CAVOK 15/11 Q1022=  ## [A] Kitaky?sh?, Kitaky?sh? Airport
305025 2022-11-27 15:00  13 JP JP-41  HSG RJFS 271400Z 04002KT CAVOK 13/10 Q1021=  ## [A] Saga, Saga Airport
305026 2022-11-27 13:00  14 JP JP-43  KMJ RJFT 271200Z 06007KT CAVOK 14/09 Q1020=  ## [A] Kumamoto, Kumamoto Airport
305027 2022-11-27 13:00  15 JP JP-42  NGS RJFU 271200Z 13005KT CAVOK 15/10 Q1020=  ## [A] Nagasaki, Nagasaki Airport
305031 2022-11-26 23:22   7 JP JP-46  --- RJFY 262222Z VRB01KT 5000 MIFG BR FEW001 SCT/// 07/07 Q1018 RMK 1ST001 A3009 FG S-SW VIS VRB=  ## [A] , Kanoya Airport
305039 2022-11-27 18:00  12 JP JP-23  NGO RJGG 271700Z AUTO 35010KT 9999 NSC 12/06 Q1024 NOSIG=  ## [A] Tokoname, Chubu Centrair International Airport
305137 2022-11-27 18:00  23 JP JP-46  ASJ RJKA 271700Z AUTO 08009KT 9999 SCT038 BKN045 BKN050 23/16 Q1019=  ## [A] Amami, Amami Airport
305145 2022-11-27 18:00  23 JP JP-46  KKX RJKI 271700Z AUTO 12005KT 080V170 9999 FEW038 SCT048 BKN060 23/15 Q1018=  ## [A] Kikai, Kikai Airport
305150 2022-11-26 07:20  23 JP JP-46  TKN RJKN 260620Z AUTO 01015G25KT 340V050 9999 SCT019 23/19 Q1011 RMK A2987=  ## [A] Tokunoshima, Tokunoshima Airport
305221 2022-11-26 16:41  12 JP JP-21  QGU RJNG 261541Z 27005KT 9999 FEW030 SCT070 12/11 Q1013 RMK 1CU030 3AC070 A2993=  ## [A] Gifu, Gifu Airport
305225 2022-11-27 18:00   7 JP JP-17  KMQ RJNK 271700Z 10002KT 9999 BKN/// 07/05 Q1024=  ## [A] Kanazawa, Komatsu Airport
305233 2022-11-27 13:00  14               RJNS 271200Z 36002KT 9999 FEW020 SCT040 14/11 Q1021=  ## [A]
305234 2022-11-27 13:00   7 JP JP-16  TOY RJNT 271200Z 27003KT 9999 FEW020 07/05 Q1023=  ## [A] Toyama, Toyama Airport
305237 2022-11-27 11:00   5 JP JP-17  NTQ RJNW 271000Z 05002KT CAVOK 05/02 Q1023=  ## [A] Wajima, Noto Airport
305239 2022-11-27 14:31  14 JP JP-22  --- RJNY 271331Z 33003KT 290V010 9999 FEW020 SCT050 14/11 Q1022 RMK 1CU020 3SC050 A3020=  ## [A] , Shizuhama Airport
305241 2022-11-27 14:00  11 JP JP-34  HIJ RJOA 271300Z VRB01KT CAVOK 11/06 Q1023=  ## [A] Hiroshima, Hiroshima Airport
305242 2022-11-27 13:00   9 JP JP-33  OKJ RJOB 271200Z VRB01KT 9999 FEW030 BKN/// 09/06 Q1022=  ## [A] Okayama City, Okayama Airport
305243 2022-11-27 12:00  10 JP JP-32  IZO RJOC 271100Z 15004KT CAVOK 10/08 Q1022=  ## [A] Izumo, Izumo Airport
305245 2022-11-27 03:18  17 JP JP-24  --- RJOE 270218Z 33012G22KT 300V010 9999 FEW030 SCT050 17/06 Q1018 RMK 1CU030 3SC050 A3008=  ## [A] , Akeno Airport
305246 2022-11-27 16:39  11 JP JP-35  --- RJOF 271539Z 33003KT 300V360 9999 FEW030 BKN180 BKN/// 11/08 Q1022 RMK 1CU030 5AC180 A3019=  ## [A] , Hofu Airport
305248 2022-11-27 18:00   9 JP JP-32  YGJ RJOH 271700Z VRB01KT 9999 FEW050 SCT180 BKN/// 09/08 Q1022=  ## [A] Yonago, Miho Yonago Airport
305249 2022-11-27 17:56  13 JP JP-35  IWK RJOI 271656Z 31005KT 9999 SCT150 OVC180 13/08 A3022 RMK AO2 SLP233 T01280078=  ## [A] Iwakuni, Iwakuni Marine Corps Air Station
305251 2022-11-27 12:00  13 JP JP-39  KCZ RJOK 271100Z 36006KT CAVOK 13/07 Q1021=  ## [A] Nankoku, K?chi Ry?ma Airport
305253 2022-11-27 13:00  13 JP JP-38  MYJ RJOM 271200Z 11007KT CAVOK 13/08 Q1021=  ## [A] Matsuyama, Matsuyama Airport
305255 2022-11-27 18:00   9 JP JP-27  ITM RJOO 271700Z AUTO 30002KT 9999 NCD 09/06 Q1024 RMK A3026=  ## [A] Osaka, Osaka International Airport
305256 2022-11-27 10:33  15 JP JP-36  --- RJOP 270933Z 28008KT 250V320 9999 FEW030 BKN/// 15/08 Q1021 RMK 1CU030 A3017=  ## [A] Komatsushima, Komatsushima Heliport
305258 2022-11-27 13:00  10 JP JP-31  TTJ RJOR 271200Z 15006KT 9999 FEW035 BKN/// 10/08 Q1022=  ## [A] Tottori, Tottori Airport
305259 2022-11-27 18:00  11 JP JP-36  TKS RJOS 271700Z 27008KT 9999 FEW030 BKN/// 11/08 Q1024=  ## [A] Tokushima, Tokushima Airport/JMSDF Air Base
305260 2022-11-27 13:00  11 JP JP-37  TAK RJOT 271200Z 14005KT 100V170 9999 FEW030 BKN/// 11/06 Q1022=  ## [A] Takamatsu, Takamatsu Airport
305263 2022-11-27 11:00  11 JP JP-32  IWJ RJOW 271000Z 13003KT 090V160 CAVOK 11/09 Q1020=  ## [A] Masuda, Iwami Airport
305265 2022-11-27 11:00  14 JP JP-27  --- RJOY 271000Z 02005KT 330V050 9999 FEW050 14/05 Q1022=  ## [A] Yao, Yao Airport
305266 2022-11-26 05:28  22 JP JP-35  --- RJOZ 260428Z 30010KT 260V340 9999 FEW025 BKN035 22/13 Q1013 RMK 1CU025 5CU035 A2993=  ## [A] , Ozuki Airport
305345 2022-11-27 13:00   4 JP JP-02  AOJ RJSA 271200Z 22008KT 9999 FEW020 BKN045 04/M01 Q1023=  ## [A] Aomori, Aomori Airport
305347 2022-11-27 11:00   4 JP JP-06  GAJ RJSC 271000Z VRB02KT 9999 FEW040 04/00 Q1023=  ## [A] Yamagata, Yamagata Airport
305348 2020-10-07 16:00  15 JP JP-15  SDS RJSD 071400Z AUTO 02003KT 310V080 9999 NSC 15/10 Q1024=  ## [A] Sado, Sado Airport
305350 2022-11-27 12:00   5 JP JP-07  FKS RJSF 271100Z 34004KT 9999 FEW040 05/M00 Q1023=  ## [A] Sukagawa, Fukushima Airport
305352 2022-11-27 07:48   5 JP JP-02  HHE RJSH 270648Z VRB02KT 9999 FEW040 SCT060 05/M00 Q1019 RMK 1CU040 3SC060 A3011=  ## [A] , Hachinohe Airport
305353 2022-11-27 11:00   7 JP JP-03  HNA RJSI 271000Z VRB01KT 9999 FEW030 SCT050 07/M02 Q1022=  ## [A] , Hanamaki Airport
305355 2022-11-27 13:00   5 JP JP-05  AXT RJSK 271200Z VRB01KT 9999 SCT040 BKN050 05/M01 Q1024=  ## [A] Akita, Akita Airport
305357 2022-11-27 18:00   4 JP JP-02  MSJ RJSM 271700Z 19003KT 9999 FEW020 BKN040 04/M01 Q1024=  ## [A] Misawa, Misawa Air Base
305358 2022-11-27 13:00   8 JP JP-15  KIJ RJSN 271200Z 14003KT 9999 FEW040 SCT050 08/03 Q1025=  ## [A] Niigata, Niigata Airport
305359 2022-11-26 18:27   5 JP JP-02  --- RJSO 261727Z VRB02KT 9999 FEW030 SCT045 05/01 Q1011 RMK 2CU030 4CU045 A2988=  ## [A] Ominato, JASDF Airport
305362 2022-11-27 11:00   5 JP JP-05  ONJ RJSR 271000Z 21003KT 9999 FEW020 SCT030 BKN040 05/01 Q1022=  ## [A] Odate, Odate Noshiro Airport
305363 2022-11-27 13:00   5 JP JP-04  SDJ RJSS 271200Z VRB02KT 9999 FEW050 05/M01 Q1024=  ## [A] Sendai, Sendai Airport
305365 2022-11-24 01:24  13 JP JP-04  --- RJSU 240024Z 35008KT 9999 FEW010 SCT060 13/07 Q1010 RMK 1ST010 4SC060 A2984 MAX WIND 16KT=  ## [A] , Sendai Kasuminom Airport
305369 2022-11-27 13:00   9 JP JP-06  SYO RJSY 271200Z 30008KT 270V340 9999 FEW030 BKN040 09/01 Q1025=  ## [A] Shonai, Shonai Airport
305373 2022-11-27 01:34  16 JP JP-13  --- RJTC 270034Z 01011G21KT 330V050 9999 NSC 16/04 Q1015 RMK A2999=  ## [A] Tokyo, Tachikawa Airfield
305375 2022-11-26 21:31  16 JP JP-12  --- RJTE 262031Z 02015G26KT 9999 FEW020 16/07 Q1011 RMK 1CU020 A2986=  ## [A] , Tateyama Airport
305376 2022-11-27 08:00  16 JP JP-13  --- RJTF 270700Z 01006KT 340V040 9999 FEW030 SCT060 16/01 Q1018=  ## [A] Tokyo, Chofu Airport
305379 2022-11-27 08:00  17 JP JP-13  --- RJTI 270700Z 35004KT 290V050 9999 FEW030 17/00 Q1018=  ## [A] Tokyo, Tokyo Heliport
305381 2022-11-26 05:35  16 JP JP-12  --- RJTK 260435Z 06004KT 010V080 7000 -SHRA FEW015 BKN020 BKN090 16/14 Q1013 RMK 1CU015 5CU020 6AC090 A2991=  ## [A] , Kisarazu Airport
305382 2022-11-26 15:35  11 JP JP-13  --- RJTL 261435Z 31004KT 280V340 9999 FEW006 SCT009 11/10 Q1010 RMK 1ST006 4ST009 A2983=  ## [A] , Shimofusa Airport
305385 2022-11-27 08:00  17 JP JP-13  OIM RJTO 270700Z 07005KT 9999 FEW040 BKN060 17/08 Q1017=  ## [A] Izu Oshima, Oshima Airport
305388 2022-11-26 02:41  11 JP JP-13  --- RJTR 260141Z AUTO 30003KT 7SM FEW009 BKN060 BKN310 11/10 A3001 RMK AO2 LTG DSNT E RAE28RAB31E41 SLP166 $  ## [A] Camp Zama, Kastner Army Heliport
305390 2022-11-27 18:00  12 JP JP-13  HND RJTT 271700Z 01008KT CAVOK 12/05 Q1025 NOSIG=  ## [N] Tokyo, Tokyo Haneda International Airport
305391 2022-11-26 04:13  12 JP JP-09  --- RJTU 260313Z VRB01KT 9999 FEW025 SCT030 BKN070 12/10 Q1014 RMK 1SC025 4SC030 6AC070 A2994=  ## [A] , Utsunomiya Airport
305395 2022-11-27 17:55   8 JP JP-13  OKO RJTY 271655Z AUTO 36004KT 10SM CLR 08/02 A3031 RMK AO2 SLP268 T00750018 $  ## [A] Fussa, Yokota Air Base
305566 2022-01-01 08:52 -16               RKAN 010752Z AUTO 00000KT 10SM CLR M16/M20 A2990 RMK AO2 SLP166 T11611200 400171172 $ =  ## [A]
305689 2022-01-18 16:55 XXX               RKFG 181555Z AUTO 00000KT 6SM HZ SCT012 OVC021 A3008 RMK AO2 SLPNO $ =  ## [A]
305764 2022-03-06 05:56   8               RKID 060456Z AUTO 30018KT 10SM CLR 08/M09 A2995 RMK AO2 SLP145 T00781089 $ =  ## [A]
------ Sydkorea:
305788 2022-11-27 18:00  11 KR KR-46  MWX RKJB 271700Z AUTO 09005KT 9999 NCD 11/06 Q1019=  ## [A] Piseo-ri (Muan), Muan International Airport
305796 2021-07-19 19:38  26 KR KR-29  KWJ RKJJ 191738Z 00000KT 9999 -RA BKN060 OVC150 26/23 A2994 RMK CIG060=  ## [A] Gwangju, Gwangju Airport
305797 2022-11-27 17:55   6 KR KR-45  KUV RKJK 271655Z 06005KT 9SM CLR 06/M03 A3007 RMK AO2A SLP187 T00621035=  ## [A] Kunsan, Kunsan Air Base
305877 2021-12-17 12:56  17               RKMM 171156Z 00000KT 10SM BKN007 BKN011 17/16 A3016 RMK AO2 SLP222 T01670161 10167 20156 53008 =  ## [A]
305896 2022-11-25 18:33   2 KR KR-42  --- RKNF 251733Z 26028G044KT 8000 BR BKN002 02/02 A2995 RMK CIG002=  ## [A] Noinbong, Whang Ryeong Helipad
305904 2022-11-27 08:28  11 KR KR-42  KAG RKNN 270728Z 32002KT 9999 FEW130 BKN200 11/02 A3014 RMK CIG200=  ## [A] Gangneung, Gangneung Airport (K-18)
305905 2022-11-11 03:21  14               RKNO 110221Z 25001KT 8000 BR OVC025 14/13 A3036 RMK CIG025=  ## [A]
305908 2022-11-15 10:21   5 KR KR-47  --- RKNR 150921Z 28003KT 9999 BKN040 05/02 A2999 RMK CIG040=  ## [A] Cheonpyeong-ri, Kotar Range Heliport
305913 2022-11-26 04:41  13 KR KR-42  WJU RKNW 260341Z 26005G015KT 9999 FEW040 13/M06 A3005=  ## [A] Wonju, Wonju/Hoengseong Air Base (K-38/K-46)
305915 2022-11-27 18:00   7 KR KR-42  YNY RKNY 271700Z AUTO 31007KT 9999 NCD 07/M03 Q1019=  ## [A] Gonghang-ro, Yangyang International Airport
305942 2021-11-27 20:59  24               RKOZ 271959Z AUTO 34008KT 10SM CLR 24/M10 A3008 RMK AO2 SLP137 T02441100 $ =  ## [A]
305945 2022-11-27 18:00  16 KR KR-49  CJU RKPC 271700Z 22004KT 9999 FEW030 BKN120 16/07 Q1018 WS R13 R31 NOSIG=  ## [A] Jeju City, Jeju International Airport
305953 2022-11-27 18:00  12 KR KR-26  PUS RKPK 271700Z 31003KT 9999 FEW030 BKN150 BKN180 12/02 Q1021=  ## [A] Busan, Gimhae International Airport
305955 2022-11-22 20:07  14 KR KR-49  --- RKPM 221907Z 01018G028KT 9999 FEW001 BKN030 14/13 A2994 RMK CIG030=  ## [A] Mosulpo, Mosulpo Airbase Heliport
305956 2020-06-10 14:00  29               RKPN 101200Z 09010KT 9999 SCT018 29/24 Q1014=  ## [A]
305961 2022-09-02 00:41  21 KR KR-48  HIN RKPS 012241Z 09007KT 9999 BKN025 BKN140 BKN180 21/19 A2999 RMK CIG025=  ## [A] Sacheon, Sacheon Air Base/Airport
305963 2020-09-16 03:00 XXX KR KR-31  USN RKPU 160100Z 16SPECI=  ## [A] Ulsan, Ulsan Airport
306011 2022-01-28 10:56  -6               RKRQ 280956Z AUTO 00000KT 10SM CLR M06/M11 A3048 RMK AO2 SLP359 T10561106 =  ## [A]
306024 2022-11-23 00:25   9 KR KR-41  --- RKSD 222325Z 36003KT 9999 BKN070 09/06 A3006 RMK CIG070=  ## [A] , N 200 Heliport
306026 2022-11-25 16:22  14               RKSF 251522Z 27008KT 9999 SCT013 14/08 A2997=  ## [A]
306027 2022-11-27 17:55   7 KR KR-41  --- RKSG 271655Z 13005KT 10SM CLR 07/M02 A3009 RMK AO2A SLP193 T00681019 $  ## [A] , A 511 Airport
306029 2022-11-27 18:00  11 KR KR-28  ICN RKSI 271700Z 09004KT 020V160 CAVOK 11/M03 Q1018 NOSIG=  ## [N] Seoul, Incheon International Airport
306033 2022-11-27 18:00   4 KR KR-41  SSN RKSM 271700Z 18005KT 9999 FEW050 04/M04 A3011=  ## [A] Simgok-dong, Seoul Air Base (K-16)
306035 2022-11-27 17:55   3 KR KR-41  OSN RKSO 271655Z AUTO 00000KT 10SM CLR 03/M00 A3011 RMK AO2 SLP200 T00331002 $  ## [A] , Osan Air Base
306036 2022-11-25 10:08  13               RKSP 250908Z 28013G023KT 9999 OVC020 13/11 A2991 RMK CIG020=  ## [A]
306037 2022-11-25 12:36  13 KR KR-28  --- RKSQ 251136Z 23013G027KT 9000 BR BKN010 13/12 A2999 RMK CIG010=  ## [A] Yeonpyeong-myeon, Yeonpyeong-Myeon Heliport
306039 2022-11-27 18:00   8 KR KR-11  GMP RKSS 271700Z 15003KT 110V190 CAVOK 08/M04 Q1019 NOSIG=  ## [A] Seoul, Gimpo International Airport
306041 2022-11-25 02:26   5 KR KR-41  --- RKSU 250126Z 27002KT 4800 BR SCT200 05/05 A3017=  ## [A] Utsokgogaet-gil, Yeoju Range Heliport
306042 2022-11-25 03:30  10 KR KR-28  --- RKSV 250230Z 10004G017KT 6000 BR BKN005 10/09 A3007 RMK CIG005=  ## [A] Pyoripsan, Pyoripsan Heliport
306043 2022-11-25 23:09 XXX KR KR-41  SWU RKSW 252209Z KT RMK WR24=  ## [A] , Suwon Airport
306045 2021-10-17 20:58 XXX KR KR-11  --- RKSY 171858Z AUTO 00000KT 9999 CLR M A3028 RMK AO2 SLPNO $  ## [A] Yongsan,  Seoul, H 264 Heliport
306048 2022-11-25 14:30  13 KR KR-28  --- RKTB 251330Z 26012KT 9999 OVC010 13/12 A2998 RMK CIG010=  ## [A] Paekado (Ul-do), Paekado Helipad
306051 2022-11-26 01:23   7 KR KR-43  --- RKTE 260023Z 17001KT 4800 BR FEW005 07/07 A3005=  ## [A] , Seongmu Airport
306052 2022-11-22 21:49   6               RKTF 222049Z 31001KT 3200 BR FEW000 SCT090 06/06 A3004 RMK FG FEW000=  ## [A]
306054 2021-05-19 05:37  28 KR KR-47  KPO RKTH 190337Z 13003KT 9999 FEW030 28/11 A2983=  ## [A] Pohang, Pohang Airport (G-815/K-3)
306055 2022-11-25 17:34   8 KR KR-43  --- RKTI 251634Z 36004KT 9999 BKN030 OVC050 08/06 A2995 RMK CIG030=  ## [A] Gimseang-ro, Jungwon Air Base/Chungju Airport
306060 2022-11-27 18:00   7 KR KR-27  TAE RKTN 271700Z 10001KT CAVOK 07/M02 Q1022=  ## [A] Daegu, Daegu Airport
306062 2022-11-24 23:31   2 KR KR-44  HMY RKTP 242231Z 04004KT 4800 BR SCT200 02/02 A3015=  ## [A] Seosan, Seosan Air Base
306065 2022-11-25 02:13   4 KR KR-47  --- RKTS 250113Z 13002KT 4800 BR SCT005 BKN250 04/03 A3022 RMK CIG250=  ## [A] Sangju, Sangju Airfield
306067 2022-11-27 18:00  -1 KR KR-43  CJJ RKTU 271700Z 09001KT CAVOK M01/M03 Q1020=  ## [A] Cheongju, Cheongju International Airport/Cheongju Air Base (K-59/G-513)
306069 2022-11-22 04:20  14 KR KR-44  --- RKTW 220320Z 32001KT 6000 -RA BR BKN075 14/08 A3009 RMK CIG075=  ## [A] Sohwang, Woong Cheon Heliport
306071 2022-11-25 00:25   0 KR KR-47  YEC RKTY 242325Z 00000KT 4800 BR FEW002 FEW250 00/M01 A3020=  ## [A] Yecheon-ri, Yecheon Airbase
306630 2019-07-21 09:00 XXX               RLPL 210700Z 26010KT 230V290 999 FEW022TCU SCT100 BKN250 31/25Q1007 NOSIG RMK A2974 TCU N-NE=  ## [A]
306996 2019-08-04 07:00  31               RMG 040500Z 16015KT 9999 FEW019 SCT130 31/26 Q1012 NOSIG=  ## [X]
307152 2020-09-16 20:00  27               RMM 161800Z 25005KT 9999 TS FEW018 FEW019CB BKN100 27/25 Q1011 RETS CB ENE,WSW TEMPO 4000 -TSRA=  ## [X]
307202 2021-03-21 07:43  31               RMLL 210643Z 04014KT 9999 -SHRA FEW023CB FEW025 BKN100 31/25 Q1008 NOSIG RMK A2977 CB NW-E=  ## [A]
307463 2022-11-02 09:00  28               RMVM 020800Z 22005KT 9999 FEW018CB BKN100 28/25 Q1009 RMK A2980 CB SW-W=  ## [A]
307645 2021-08-23 09:00  28               RNCM 230700Z 04011KT 9999 FEW018 28/24 Q1014 =  ## [A]
307797 2022-06-07 19:00  40               RNII 071700Z 34007KT 4000 DU NSC 40/07 Q1000=  ## [A]
------ Japan:
308264 2022-11-27 18:00  24 JP JP-47  OKA ROAH 271700Z AUTO 14012KT 9999 FEW031 SCT037 BKN190 24/19 Q1014 RMK A2996=  ## [A] Naha, Naha Airport
308339 2022-08-06 08:59  32 JP JP-47  --- RODE 060659Z AUTO 25006KT 10SM TS CLR 32/28 A2981 RMK AO2 TSB19E37B48 SLP135 T03170278 $  ## [A] , Ie Shima Auxiliary Air Base
308348 2022-11-27 17:55  24 JP JP-47  DNA RODN 271655Z AUTO 14008KT 10SM FEW032 24/18 A2994 RMK AO2 SLP144 T02370183 $  ## [A] , Kadena Air Base
308471 2022-11-27 18:00  25 JP JP-47  --- ROIG 271700Z AUTO 17012KT 9999 FEW027 SCT041 BKN200 25/22 Q1013=  ## [A] Ishigaki, Ishigaki Airport
308544 2022-09-10 14:00  27               ROLB 101200Z VRB02KT 9000 -RA FEW018 BKN070 27/25 Q1010 RMK A2983=  ## [A]
308545 2019-11-28 10:00  28               ROLC 280900Z 02004KT 9999 SCT020 28/22 Q1011 NOSIG RMK A2985=  ## [A]
308551 2020-03-14 23:00  25               ROLI 142200Z 04006KT 9999 FEW018 BKN290 25/22 Q1014 NOSIG RMK A2994=  ## [A]
308572 2022-11-27 18:00  24 JP JP-47  MMD ROMD 271700Z AUTO 09009G19KT 020V170 9999 FEW027 SCT038 BKN047 24/20 Q1016=  ## [A] Minamidait?, Minami-Daito Airport
308593 2022-11-27 12:00  24 JP JP-47  MMY ROMY 271100Z 14009KT 9999 FEW022 24/20 Q1014=  ## [A] Miyako City, Miyako Airport
308594 2019-07-01 11:00  27               ROMZ 010900Z VRB01KT 9999 FEW017 BKN090 27/24 Q1009 RMK A2980=  ## [A]
308603 2021-06-10 02:00  31               RONI 100000Z 33009KT 8000 NSC 31/01 Q1003 NOSIG=  ## [A]
308709 2022-11-27 18:00  25 JP JP-47  KTD RORK 271700Z AUTO 10021KT 9999 FEW032 SCT036 BKN050 25/19 Q1016=  ## [A] Kitadait?jima, Kitadaito Airport
308717 2022-11-27 11:00  24 JP JP-47  SHI RORS 271000Z 14012KT 9999 FEW023 SCT/// 24/20 Q1013=  ## [A] Shimojishima, Shimojishima Airport
308723 2022-11-27 18:00  24 JP JP-46  RNJ RORY 271700Z AUTO 11011KT 9999 FEW028 SCT035 BKN038 //////TCU 24/19 Q1015=  ## [A] Yoronjima, Yoron Airport
308763 2022-11-27 12:56  23 JP JP-47  --- ROTM 271156Z 12012G21KT 9999 SCT030 SCT200 23/19 A2994 RMK SLP140 T02330189 10244 20194 51010=  ## [A] , Futenma Marine Corps Air Station
308806 2020-11-13 10:00  32               ROVD 130900Z 04004KT 9999 FEW014CB FEW015 SCT220 32/23 Q1007 RMK A2974 CB W-NW=  ## [A]
308815 2020-01-01 15:00  26               ROVM 011400Z 36006KT 9999 SCT020 26/24 Q1015 RMK A2997=  ## [A]
308894 2022-11-27 18:00  25 JP JP-47  OGN ROYN 271700Z AUTO 17005KT 9999 FEW011 BKN020 BKN023 //////TCU 25/// Q1013=  ## [A] , Yonaguni Airport
308997 2020-09-27 13:00  29               RPCM 271100Z 13004KT 100V160 9999 FEW020 OVC100 29/25 Q1010 RMK A2983=  ## [A]
------ Filippinerna:
309220 2022-11-27 18:00  25 PH PH-ZMB SFS RPLB 271700Z 04003KT 020V080 9999 FEW020 25/21 Q1012 NOSIG RMK A2988=  ## [A] Olongapo City, Subic Bay International Airport
309221 2022-11-27 18:00  25 PH PH-PAM CRK RPLC 271700Z 29002KT 9999 FEW020 25/20 Q1012 NOSIG RMK A2988=  ## [A] Angeles/Mabalacat, Diosdado Macapagal International Airport
309227 2022-11-27 16:00  26 PH PH-ILN LAO RPLI 271500Z 11004KT 9999 FEW018 26/25 Q1011 NOSIG RMK A2985=  ## [A] Laoag City, Laoag International Airport
309230 2022-11-27 18:00  26 PH PH-U-A MNL RPLL 271700Z 13004KT 100V170 9999 FEW030 26/22 Q1011 NOSIG RMK A2985=  ## [A] Manila, Ninoy Aquino International Airport
309236 2021-03-21 08:00  31 PH PH-PAN --- RPLR 210700Z 04002KT 9999 VCSH FEW018CB BKN080 31/23 Q1006 RMK A2971 CB VCSH NW W=  ## [A] Carmen, Carmen Rosales Airstrip
309240 2019-06-27 03:00  28 PH PH-NUE --- RPLV 270100Z 16006KT 5000 HZ SCT018 BKN300 28/25 Q1007 RMK A2974=  ## [A] Fort Magsaysay, Fort Magsaysay Airport
309244 2021-03-21 16:00  26 PH PH-SOR --- RPLZ 211500Z 07003KT 340V130 9999 -RA FEW016CB FEW017 OVC080 26/25 Q1011 RETS RMK A2985 CB NW-NE.OHD=  ## [A] Sorsogon, Sorsogon Airport
309245 2019-12-15 09:00  31 PH PH-SCO AAV RPMA 150800Z 22003KT 170V280 9999 FEW017 31/25 Q1008 RMK A2977=  ## [A] Surallah, Allah Valley Airport
309247 2022-09-23 09:00  28 PH PH-MAG CBO RPMC 230700Z 25002KT 6000 SCT020 BKN100 28/23 Q1007 NOSIG RMK A2974=  ## [A] Cotabato City, Awang Airport
309248 2022-11-27 18:00  26 PH PH-DAV DVO RPMD 271700Z 35003KT 320V030 9999 FEW016 26/23 Q1009 RMK A2980=  ## [A] Davao City, Francisco Bangoy International Airport
309253 2021-06-09 09:00  27 PH PH-LAN IGN RPMI 090700Z 05011KT 010V080 60000 TS -SHRA SCT017CB SCT018 OVC090 27/26 Q1007 TEMPO 3000 TSRA RMK A2974 CB NE SSW=  ## [A] , Iligan Airport
309256 2021-02-07 04:00  32 PH PH-MSR --- RPML 070300Z 36004KT 9999 SCT020 BKN300 32/23 Q1014 NOSIG RMK A2994=  ## [A] Cagayan De Oro City, Cagayan De Oro Airport
309260 2020-05-05 14:00  29 PH PH-ZAS PAG RPMP 051200Z 19004KT 9999 FEW017CB BKN080 29/25 Q1010 RMK A2983=  ## [A] Pagadian City, Pagadian Airport
309262 2022-11-27 07:00  32 PH PH-SCO GES RPMR 270600Z 12007KT 080V170 9999 FEW018CB SCT080 32/22 Q1007 RMK A2974 CB N/W/NW=  ## [A] General Santos, General Santos International Airport
309264 2022-10-06 02:00  29               RPMT 060000Z 03006KT 9999 FEW018 SCT250 29/22 Q1011 RMK A2985=  ## [A]
309266 2020-03-28 07:00  31 PH PH-ZSI IPE RPMV 280600Z 04009KT 9999 FEW020 SCT100 31/23 Q1010 RMK A2983=  ## [A] Ipil, Ipil Airport
309268 2020-10-24 14:00  26 PH PH-ZAN --- RPMX 241200Z 08003KT 060V150 9000 -SHRA FEW017 OVC090 26/23 Q1010 RMK A2983=  ## [A] , Liloy Airport
309270 2022-11-27 16:00  25 PH PH-ZAS ZAM RPMZ 271500Z VRB01KT 9999 FEW017 SCT300 25/23 Q1010 RMK A2983=  ## [A] Zamboanga City, Zamboanga International Airport
309296 2019-09-23 12:00  29               RPNZ 231000Z 33003KT 270V010 9000 FEW016CB FEW017 BKN090 29/24 Q1012 RMK A2988=  ## [A]
309387 2019-09-02 04:00  27               RPRM 020200Z 12002KT 9999 FEW015 BKN080 27/24 Q1013 RESHRA NOSIG RMK A2991=  ## [A]
309390 2020-10-04 06:00  32               RPRP 040400Z 31010KT 9999 FEW019 SCT250 32/23 Q1007 RMK A2974=  ## [A]
309482 2022-11-27 16:00  25 PH PH-NER DGT RPVD 271500Z 00000KT 9999 FEW015 25/21 Q1010 RMK A2983=  ## [A] Dumaguete City, Sibulan Airport
309489 2022-11-09 15:00  27 PH PH-AKL KLO RPVK 091400Z 27002KT 9999 FEW020 SCT300 27/22 Q1013 NOSIG RMK A2993=  ## [A] Kalibo, Kalibo International Airport
309491 2022-11-27 18:00  28 PH PH-CEB CEB RPVM 271700Z 35010KT 9999 FEW018CB SCT020 OVC100 28/23 Q1010 BECMG 6000 -SHRA SCT018CB OVC090 RMK A2983 CB N-NE/E-SE=  ## [A] Lapu-Lapu City, Mactan Cebu International Airport
309493 2019-08-15 13:00  28 PH PH-LEY OMC RPVO 151100Z 23002KT 9999 SCT019 OVC080 28/25 Q1010 RMK A29883=  ## [A] Ormoc City, Ormoc Airport
309494 2022-11-27 16:00  28 PH PH-PLW PPS RPVP 271500Z 06010KT 9999 FEW019 28/25 Q1010 RMK A2983=  ## [A] Puerto Princesa City, Puerto Princesa Airport
309496 2020-03-15 04:00  33 PH PH-CAP RXS RPVR 150300Z 09004KT 9999 FEW020 33/21 Q1014 NOSIG RMK A2994=  ## [A] Roxas City, Roxas Airport
310155 2022-08-27 02:45 XXX               RQVA 270045Z 07007KT 5SM OVC?H(6/26 A2989 RMK 8/9// FQT LTGIC E VRB CONDS=  ## [A]
310579 2020-05-08 03:00  31               RRLI 080100Z 28005KT 210V320 9999 FEW018 31/24 Q1010 NOSIG RMK A2983=  ## [A]
310843 2020-10-12 07:00  32               RRVM 120500Z 04005KT 360V090 9999 FEW018CB BKN100 32/23 Q1006 RMK A2971 CB W=  ## [A]
313307 2019-06-14 09:00  32               RVMG 140700Z 14011KT 9999 FEW018 BKN260 32/27 Q1009 NOSIG=  ## [X]
------ Argentina:
316371 2022-10-22 13:20  17 AR AR-E   COC SAAC 221120Z 20013KT 4000 TSRA SCT015 FEW045CB OVC045 17/16 Q1019=  ## [A] Concordia, Comodoro Pierrestegui Airport
316375 2022-11-20 21:30  29 AR AR-E   GHU SAAG 202030Z 36009G27KT 7000 TSRA FEW007 FEW018 SCT38 FEW040CB OVC050 29/23 Q1006=  ## [A] Gualeguaychu, Gualeguaychu Airport
316378 2022-11-13 14:25  22 AR AR-B   JNI SAAJ 131325Z 14002KT 6000 TSRA SCT008 BKN050 FEW050CB 22/18 Q1006=  ## [A] Junin, Junin Airport
316381 2022-05-25 06:00   2 AR AR-E   --- SAAM 250400Z 28003KT 2000 BR NSC 02/02 Q1019 RMK PP///=  ## [A] Puerto Ibicuy/Mazuraca, Mazaruca Airport
316384 2022-11-21 13:35  17 AR AR-E   PRA SAAP 211235Z 16010KT 9000 -RA SCT005 OVC040 17/16 Q1016=  ## [A] Parana, General Urquiza Airport
316386 2022-11-27 18:00  34 AR AR-S   ROS SAAR 271700Z 12008KT 070V170 CAVOK 34/18 Q1015 RMK PP000=  ## [A] Rosario, Islas Malvinas Airport
316390 2022-11-21 11:35  18 AR AR-S   SFN SAAV 211035Z 25019G30KT 4000 RA BKN004 OVC050 18/15 Q1015 RMK PP///=  ## [A] Santa Fe, Sauce Viejo Airport
316399 2022-11-27 18:00  27 AR AR-C   AEP SABE 271700Z 10013KT CAVOK 27/21 Q1018 NOSIG RMK PP000=  ## [C] Buenos Aires, Jorge Newbery Airpark
316407 2022-04-09 13:01  12               SABM 091101Z 00000KT 0100 R13/0150 FG FEW015 12/12 Q1017=  ## [A]
316435 2022-11-27 18:00  35 AR AR-X   COR SACO 271700Z 06010KT 010V110 CAVOK 35/10 Q1015 NOSIG RMK PP000=  ## [C] Cordoba, Ingeniero Ambrosio Taravella Airport
316452 2022-11-27 18:00  30 AR AR-B   FDO SADF 271700Z 09009KT CAVOK 30/18 Q1018 RMK PP000=  ## [A] San Fernando, San Fernando Airport
316458 2021-09-09 13:30  12 AR AR-B   LPG SADL 091130Z 23005KT 5000 BR BKN003 0VC100 12/12 Q1003=  ## [A] La Plata, La Plata Airport
316459 2022-11-27 14:45  28 AR AR-B   --- SADM 271345Z 05003G18KT CAVOK 28/21 Q1020=  ## [A] Moron, Moron Airport
316462 2022-11-25 00:43  29 AR AR-B   EPA SADP 242343Z 16014G24KT CAVOK 29/13 Q1013=  ## [A] El Palomar, El Palomar Airport
316478 2022-05-28 21:00  21               SAEF 281900Z 27002KT 9999 BKN007 OVC040 21/20 Q1007=  ## [A]
316479 2022-10-09 01:00  10               SAEG 082300Z 23018G28KT 9999 FEW030 10/M03 Q1005=  ## [A]
316490 2022-05-21 03:00  12               SAER 210100Z 09005KT CAVOK 12/10 Q1018=  ## [A]
316498 2022-11-27 18:00  32 AR AR-B   EZE SAEZ 271700Z 07013G23KT CAVOK 32/10 Q1018 NOSIG RMK PP000=  ## [C] Buenos Aires, Ministro Pistarini International Airport
316516 2022-04-23 14:00  18 AR AR-S   RAF SAFR 231200Z 11007KT 9999 FEW008 18/15 Q1010=  ## [A] Rafaela, Rafaela Airport
316578 2022-04-24 20:00  26               SAIB 241800Z 10003KT 9999 SCT022 SCT090 26/20 Q1016 RMK A3002=  ## [A]
316685 2022-11-27 18:00  34 AR AR-M   MDZ SAME 271700Z 09007KT 9999 FEW040 SCT045TCU 34/10 Q1013=  ## [C] Mendoza, El Plumerillo Airport
316693 2022-11-11 18:22  15 AR AR-M   LGS SAMM 111722Z 23004KT -SHGS SCT025 FEW040CB 15/02 Q1013=  ## [A] Malargue, Comodoro D.R. Salomón Airport
316698 2022-11-27 00:38  31 AR AR-M   AFA SAMR 262338Z 05015KT 9999 SCT040 FEW045CB 31/09 Q1014=  ## [A] San Rafael, Suboficial Ay Santiago Germano Airport
316709 2022-11-13 14:25  17 AR AR-K   CTC SANC 131325Z 18006KT 3000 VCSH OVC020 17/16 Q1013=  ## [A] Catamarca, Catamarca Airport
316711 2022-11-20 04:13  23 AR AR-G   SDE SANE 200313Z 23020G31KT 6000 RA BKN025 SCT030 23/19 Q1008=  ## [A] Santiago del Estero, Vicecomodoro Angel D. La Paz Aragonés Airport
316716 2020-07-30 05:30  18               SANJ 300330Z AUTO 35003KT 300V020 0000 BCFG ////// 18/18 Q1008=  ## [A]
316718 2022-11-12 22:32  29 AR AR-F   IRJ SANL 122132Z 09009KT 9999 TS BKN045 FEW050CB 29/16 Q1001=  ## [A] La Rioja, Capitan V A Almonacid Airport
316724 2022-11-10 00:07  31 AR AR-G   RHD SANR 092307Z 27005KT 9999 SCT030 FEW050CB BKN100 OVC200 31/13 Q1003=  ## [A] Termas de Río Hondo, Termas de Río Hondo international Airport
316726 2022-11-27 18:00  34 AR AR-T   TUC SANT 271700Z VRB04KT CAVOK 34/12 Q1014 RMK PP000=  ## [A] San Miguel de Tucumán, Teniente Benjamin Matienzo Airport
316727 2022-10-30 07:20  23 AR AR-J   UAQ SANU 300620Z 18026G37KT 6000 NSC 23/M05 Q1002=  ## [A] San Juan, Domingo Faustino Sarmiento Airport
316735 2022-11-27 18:00  36 AR AR-X   RCU SAOC 271700Z 05030KT CAVOK 36/09 Q1014 RMK ESTIMATED WIND=  ## [A] Rio Cuarto, Area De Material Airport
316750 2022-11-20 09:07  16 AR AR-D   VME SAOR 200807Z 14012KT 7000 TSRA SCT008 FEW040CB 16/14 Q1011=  ## [A] Villa Mercedes, Villa Reynolds Airport
316753 2022-11-21 00:50  17 AR AR-D   LUQ SAOU 202350Z 09017G32KT 9999 -DZ SCT035 SCT050 BKN200 17/11 Q1017=  ## [A] San Luis, Brigadier Mayor D Cesar Raul Ojeda Airport
316813 2022-11-27 18:00  35 AR AR-W   CNQ SARC 271700Z 11006KT 9999 SCT028 35/21 Q1012=  ## [A] Corrientes, Corrientes Airport
316815 2022-11-27 18:00  35 AR AR-H   RES SARE 271700Z 13007KT 080V180 9999 FEW035 35/16 Q1012 RMK PP///=  ## [C] Resistencia, Resistencia International Airport
316816 2022-11-27 18:00  33 AR AR-P   FMA SARF 271700Z 08004KT 9999 FEW025 33/21 Q1011=  ## [A] Formosa, Formosa Airport
316817 2022-05-29 10:00  18 AR AR-W   --- SARG 290800Z 27003KT 9999 OVC005 18/18 Q1007=  ## [A] General Paz, Caa Cati Airport
316819 2022-11-27 18:00  31 AR AR-N   IGR SARI 271700Z 11006KT 070V160 9999 SCT045 31/18 Q1012 RMK PP000=  ## [A] Puerto Iguazu, Cataratas Del Iguazú International Airport
316822 2022-11-27 18:00  33 AR AR-W   AOL SARL 271700Z 05007KT 9999 FEW020 33/20 Q1014=  ## [A] Paso de los Libres, Paso De Los Libres Airport
316825 2022-05-05 11:00  16 AR AR-W   --- SARO 050900Z 14005KT 9999 BKN030 16/15 Q1018=  ## [A] Ituzaingo, Ituzaingo Airport
316826 2022-11-27 18:00  34 AR AR-N   PSS SARP 271700Z 09006KT 9999 FEW030 34/20 Q1012=  ## [A] Posadas, Libertador Gral D Jose De San Martin Airport
316836 2022-08-05 06:00   9               SARZ 050400Z 20006KT CAVOK 09/08 Q1019=  ## [A]
316837 2022-11-27 18:00  33 AR AR-A   SLA SASA 271700Z 05008KT 360V090 CAVOK 33/04 Q1018 RMK PP000=  ## [A] Salta, Martin Miguel De Guemes International Airport
316846 2022-11-27 18:00  34 AR AR-Y   JUJ SASJ 271700Z VRB04KT 9999 FEW045 34/06 Q1016 RMK PP000=  ## [A] San Salvador de Jujuy, Gobernador Horacio Guzman International Airport
316852 2021-04-11 08:00   9               SASP 110600Z 24008KT 9999 BKN026 BKN100 09/05 Q1013=  ## [A]
316856 2022-06-08 13:25  13 AR AR-A   TTG SAST 081125Z 00000KT 0200 FG OVC010 13/12 Q1015=  ## [A] Tartagal, General Enrique Mosconi Airport
316880 2022-05-12 08:00  11 AR AR-S   RCQ SATR 120600Z 14003KT 0900 FG NSC 11/10 Q1018=  ## [A] Reconquista, Reconquista Airport
316917 2022-11-27 18:00  18 AR AR-U   CRD SAVC 271700Z 04009KT 010V070 CAVOK 18/11 Q1019 RMK PP000=  ## [A] Comodoro Rivadavia, General E. Mosconi Airport
316919 2022-11-19 19:34  14 AR AR-U   EQS SAVE 191834Z 23016KT 9000 -RA BKN035 14/02 Q1012=  ## [A] Esquel, Brigadier Antonio Parodi Airport
316934 2022-11-25 21:28  34 AR AR-U   REL SAVT 252028Z 06011KT 020V120 CAVOK 34/08 Q1008=  ## [A] Rawson, Almirante Marco Andres Zar Airport
316936 2022-11-24 07:15  20 AR AR-R   VDM SAVV 240615Z 21021G31KT CAVOK 20/09 Q1006=  ## [A] Viedma / Carmen de Patagones, Gobernador Castello Airport
------ Antarktis:
316942 2022-05-12 08:00 -20 AQ AQ-U-A --- SAWB 120600Z 09003KT CAVOK M20/M2 Q0993=  ## [A] Seymour Island, Marambio Base
------ Argentina:
316943 2022-11-25 18:31  14 AR AR-Z   FTE SAWC 251731Z 27035G47KT 9999 FEW040 14/00 Q1002=  ## [A] El Calafate, El Calafate Airport
316945 2022-11-27 18:00  17 AR AR-V   RGA SAWE 271700Z 27018KT CAVOK 17/01 Q1015 RMK PP000=  ## [C] Rio Grande, Hermes Quijada International Airport
316947 2022-11-27 18:00  19 AR AR-Z   RGL SAWG 271700Z 05008KT 360V160 CAVOK 19/02 Q1017=  ## [C] Rio Gallegos, Piloto Civil N. Fernández Airport
316948 2022-11-27 18:00  12 AR AR-V   USH SAWH 271700Z 18004KT 9999 FEW049 12/01 Q1013 RMK PP000=  ## [A] Ushuahia, Malvinas Argentinas Airport
316950 2022-05-12 08:00   8 AR AR-Z   ULA SAWJ 120600Z 03009KT 9999 FEW010 SCT100 08/08 Q1009=  ## [A] San Julian, Capitan D Daniel Vazquez Airport
316960 2021-12-06 15:10 XXX AR AR-Z   RYO SAWT 061410Z 27020G33KT 9999 FEW025 SCT100 ///// Q1002=  ## [A] Rio Turbio, 28 de Noviembre Airport
316961 2022-10-28 19:34  12 AR AR-Z   RZA SAWU 281734Z 25035KT 9999 VCSHBLDU FEW015 BKN025TCU 12/M09 Q0983=  ## [A] Santa Cruz, Santa Cruz Airport
317019 2022-05-12 08:00   6 AR AR-B   --- SAZA 120600Z 07003KT CAVOK 06/05 Q1022=  ## [A] Azul, Azul Airport
317020 2022-11-27 16:17  21 AR AR-B   BHI SAZB 271517Z 08009KT CAVOK 21/18 Q1020 RETS=  ## [A] Bahia Blanca, Comandante Espora Airport
317025 2022-05-12 08:00  12 AR AR-L   GPO SAZG 120600Z 05012KT CAVOK 12/06 Q1017=  ## [A] General Pico, General Pico Airport
317031 2022-11-27 18:00  24 AR AR-B   MDQ SAZM 271700Z 08007KT CAVOK 24/19 Q1020 RMK PP///=  ## [A] Mar del Plata, Ástor Piazzola International Airport
317032 2022-11-27 18:00  31 AR AR-Q   NQN SAZN 271700Z 11004KT 9999 FEW040 31/17 Q1016=  ## [A] Neuquen, Presidente Peron Airport
317036 2022-11-27 07:41  25 AR AR-L   RSA SAZR 270641Z 09012G26KT 9999 FEW070CB OVC100 25/16 Q1017=  ## [A] Santa Rosa, Santa Rosa Airport
317037 2022-11-27 18:00  30 AR AR-R   BRC SAZS 271700Z 35007KT 9999 FEW045 30/07 Q1017 RMK PP///=  ## [A] San Carlos de Bariloche, San Carlos De Bariloche Airport
317038 2022-05-12 08:00   5 AR AR-B   TDL SAZT 120600Z 11003KT CAVOK 05/04 Q1022=  ## [A] Tandil, Héroes De Malvinas Airport
317043 2022-05-12 08:00   4 AR AR-Q   CPC SAZY 120600Z VRB01KT 9999 -DZ OVC100 04/03 Q1011=  ## [A] Chapelco/San Martin de los Andes, Aviador C. Campos Airport
------ Brasilien:
317045 2021-09-17 21:00  35 BR BR-PA  CDJ SBAA 171900Z AUTO 03005KT 340V070 CAVOK 35/19 Q1010=  ## [A] Conceição Do Araguaia, Conceição do Araguaia Airport
317050 2022-11-27 18:00  27 BR BR-RJ  --- SBAF 271700Z 22006KT 9999 SCT030 27/24 Q1010=  ## [A] Rio De Janeiro, Campo Délio Jardim de Mattos Airport
317058 2022-11-27 18:00  24 BR BR-GO  --- SBAN 271700Z 29004KT 9999 VCSH BKN020 FEW025TCU 24/19 Q1015=  ## [A] Anápolis, Base Aérea Airport
317061 2020-03-31 22:00 XXX BR BR-SP  AQA SBAQ 312000Z /////KT 9999 SCT040 ///// Q1014=  ## [A] Araraquara, Araraquara Airport
317062 2022-11-27 18:00  29 BR BR-SE  AJU SBAR 271700Z 08015KT 9999 FEW023 BKN090 29/24 Q1009=  ## [A] Aracaju, Santa Maria Airport
317064 2022-11-27 18:00  25 BR BR-MT  AFL SBAT 271700Z 30003KT 9000 -RA FEW012 FEW045TCU 25/24 Q1011=  ## [A] Alta Floresta, Piloto Osvaldo Marques Dias Airport
317065 2022-11-27 18:00  34 BR BR-SP  ARU SBAU 271700Z 17008KT 9999 FEW040 34/12 Q1009=  ## [A] Araçatuba, Araçatuba Airport
317068 2022-11-27 18:00  29 BR BR-MG  AAX SBAX 271700Z AUTO 31006KT 200V010 CAVOK 29/14 Q1012=  ## [A] Araxá, Romeu Zema Airport
317075 2022-11-27 18:00  32 BR BR-PA  BEL SBBE 271700Z 11004KT 9999 SCT040 32/22 Q1010=  ## [A] Belém, Val de Cans/Júlio Cezar Ribeiro International Airport
317077 2022-11-27 18:00  30 BR BR-RS  BGX SBBG 271700Z AUTO 07015KT 040V100 CAVOK 30/18 Q1018=  ## [A] Bagé, Comandante Gustavo Kraemer Airport
317078 2022-11-27 18:00  25 BR BR-MG  PLU SBBH 271700Z 12008KT 9999 BKN040 FEW045TCU 25/17 Q1014 RETS=  ## [A] Belo Horizonte, Pampulha - Carlos Drummond de Andrade Airport
317079 2022-11-27 18:00  18 BR BR-PR  BFH SBBI 271700Z 11007KT 4000 -RA BKN009 BKN020 18/17 Q1018=  ## [A] Curitiba, Bacacheri Airport
317087 2022-11-27 18:00  24 BR BR-MG  --- SBBQ 271700Z 15004KT 9999 BKN036 24/16 Q1016=  ## [A] Barbacena, Major Brigadeiro Doorgal Borges Airport
317088 2022-11-27 18:00  27 BR BR-DF  BSB SBBR 271700Z 32012KT 9999 BKN030 FEW035TCU BKN080 27/17 Q1014=  ## [C] Brasília, Presidente Juscelino Kubistschek International Airport
317090 2022-03-09 15:00  31 BR BR-SP  BAT SBBT 091400Z 22005KT 9999 SCT027 31/24 Q1013=  ## [A] Barretos, Chafei Amsei Airport
317091 2022-11-27 18:00  32 BR BR-SP  BAU SBBU 271700Z 27005KT 9999 BKN047 32/16 Q1010=  ## [A] Bauru, Bauru Airport
317092 2022-11-27 18:00  27 BR BR-RR  BVB SBBV 271700Z 36006KT 9999 SCT015 FEW020TCU SCT080 27/23 Q1012=  ## [A] Boa Vista, Atlas Brasil Cantanhede Airport
317093 2022-11-27 18:00  33 BR BR-MT  BPG SBBW 271700Z 07002KT 9999 SCT020 FEW025TCU 33/18 Q1009=  ## [A] Barra Do Garças, Barra do Garças Airport
317097 2022-11-27 18:00  28 BR BR-PR  CAC SBCA 271700Z 09006KT 010V150 9999 BKN030 28/15 Q1015=  ## [A] Cascavel, Cascavel Airport
317098 2022-11-27 18:00  27 BR BR-RJ  CFB SBCB 271700Z 08016KT 9999 SCT015 SCT080 27/22 Q1011=  ## [A] Cabo Frio, Cabo Frio Airport
317099 2022-11-27 18:00  23 BR BR-PA  --- SBCC 271700Z 22007KT 3500 -TSRA BKN025 FEW030CB BKN100 23/22 Q1011 RESHRA=  ## [A] Novo Progresso, Cachimbo Airport
317102 2022-11-27 18:00  22 BR BR-MG  CNF SBCF 271700Z 29005KT 9000 VCSH BKN040 FEW045TCU BKN070 22/18 Q1013 RETS=  ## [A] Belo Horizonte, Tancredo Neves International Airport
317103 2022-11-27 18:00  31 BR BR-MS  CGR SBCG 271700Z 16010KT 9999 SCT035 31/15 Q1011=  ## [A] Campo Grande, Campo Grande Airport
317104 2022-11-27 18:00  28 BR BR-SC  XAP SBCH 271700Z 14012G23KT 9999 SCT020 FEW040TCU 28/17 Q1016=  ## [A] Chapecó, Serafin Enoss Bertaso Airport
317105 2021-09-17 21:00 XXX BR BR-MA  CLN SBCI 171900Z AUTO /////KT ///V/// //// // ///////// ///// Q////=  ## [A] Carolina, Brig. Lysias Augusto Rodrigues Airport
317106 2022-11-27 18:00  28 BR BR-PA  CKS SBCJ 271700Z 03005KT 9999 SCT027 28/21 Q1014=  ## [A] Parauapebas, Carajás Airport
317111 2022-11-27 18:00  28 BR BR-RS  --- SBCO 271700Z 10022KT 9999 BKN035 28/20 Q1018=  ## [A] Porto Alegre, Canoas Air Force Base
317112 2022-11-27 18:00  24 BR BR-RJ  CAW SBCP 271700Z 08020KT 4000 RA OVC010 24/22 Q1011=  ## [A] Campos Dos Goytacazes, Bartolomeu Lisandro Airport
317114 2022-11-27 18:00  35 BR BR-MS  CMG SBCR 271700Z 18008KT 9999 SCT045 35/14 Q1009=  ## [A] Corumbá, Corumbá International Airport
317116 2022-11-27 18:00  18 BR BR-PR  CWB SBCT 271700Z 10009KT 8000 -RA FEW008 BKN011 OVC035 18/18 Q1018=  ## [A] Curitiba, Afonso Pena Airport
317120 2022-11-27 18:00  24 BR BR-RS  CXJ SBCX 271700Z 12014KT 9999 SCT030 24/// Q1020=  ## [A] Caxias Do Sul, Hugo Cantergiani Regional Airport
317121 2022-11-27 18:00  37 BR BR-MT  CGB SBCY 271700Z 20007KT 9999 BKN030 37/14 Q1008=  ## [A] Cuiabá, Marechal Rondon Airport
317122 2022-11-27 18:00  32 BR BR-AC  CZS SBCZ 271700Z 14010KT 9999 BKN030 32/24 Q1012=  ## [A] Cruzeiro Do Sul, Cruzeiro do Sul Airport
317136 2022-11-27 18:00  32 BR BR-SP  PPB SBDN 271700Z 17007KT 9999 SCT045 32/15 Q1010=  ## [A] Presidente Prudente, Presidente Prudente Airport
317155 2022-11-27 18:00  31 BR BR-AM  MAO SBEG 271700Z 35003KT 9999 SCT025 FEW030TCU 31/22 Q1011=  ## [A] Manaus, Eduardo Gomes International Airport
317159 2022-01-31 20:00  31 BR BR-PA  JCR SBEK 311900Z 01006KT 9999 FEW020 31/24 Q1009=  ## [A] Jacareacanga, Jacareacanga Airport
------ (okänt land):
317167 2022-11-27 18:00  27 ,B -RJ ,S 0,B SBES 271700Z 08018G28KT 9999 VCSH SCT020 FEW025TCU BKN080 27/22 Q1010=  ## [A] o Pedro Da Aldeia, São Pedro da Aldeia Airport
------ Brasilien:
317183 2022-11-27 18:00  32 BR BR-PR  IGU SBFI 271700Z 09006KT 9999 BKN035 32/17 Q1012=  ## [C] Foz Do Iguaçu, Cataratas International Airport
317186 2022-11-27 18:00  24 BR BR-SC  FLN SBFL 271700Z 14015KT 4000 BR BKN014 BKN020 24/21 Q1017=  ## [C] Florianópolis, Hercílio Luz International Airport
317188 2022-11-27 18:00  29 BR BR-PE  FEN SBFN 271700Z AUTO 12009KT 080V150 9999 SCT018 29/23 Q1010=  ## [A] Fernando De Noronha, Fernando de Noronha Airport
317193 2022-11-27 18:00  24 BR BR-RJ  --- SBFS 271700Z 05008KT 9999 BKN010 OVC070 24/24 Q1011=  ## [A] Campos Dos Goytacazes, São Tomé Heliport
317200 2022-11-27 18:00  31 BR BR-CE  FOR SBFZ 271700Z 10015KT 060V120 9999 FEW027 31/22 Q1009=  ## [C] Fortaleza, Pinto Martins International Airport
317212 2022-11-27 18:00  26 BR BR-RJ  GIG SBGL 271700Z 13015KT 9999 FEW020 BKN045 26/21 Q1010=  ## [C] Rio De Janeiro, Rio Galeão ? Tom Jobim International Airport
317213 2022-11-27 18:00  31 BR BR-RO  GJM SBGM 271700Z /////KT 9999 SCT030 31/24 Q1011=  ## [A] Guajará-Mirim, Guajará-Mirim Airport
317215 2022-11-27 18:00  22 BR BR-GO  GYN SBGO 271700Z 32010KT 9999 -RA SCT020 BKN080 22/20 Q1014=  ## [A] Goiânia, Santa Genoveva Airport
317218 2022-11-27 18:00  24 BR BR-SP  GRU SBGR 271700Z 12014KT 9999 SCT040 FEW045TCU 24/17 Q1013=  ## [C] São Paulo, Guarulhos - Governador André Franco Montoro International Airport
317223 2022-11-27 18:00  30 BR BR-SP  GUJ SBGW 271700Z 32004KT 270V060 9999 SCT040 FEW045TCU 30/18 Q1011=  ## [A] Guaratinguetá, Guaratinguetá Airport
317246 2022-11-27 18:00  32 BR BR-PA  ATM SBHT 271700Z 09007KT 9999 SCT030 32/23 Q1010=  ## [A] Altamira, Altamira Airport
317255 2020-08-05 23:00  26 BR BR-AM  ITA SBIC 052100Z AUTO VRB02KT CAVOK 26/23 Q1011=  ## [A] Itacoatiara, Itacoatiara Airport
317260 2022-11-27 18:00  35 BR BR-PA  ITB SBIH 271700Z 09004KT 9999 SCT020 FEW025TCU 35/23 Q1009=  ## [A] Itaituba, Itaituba Airport
317264 2022-11-27 18:00  27 BR BR-BA  IOS SBIL 271700Z 04010KT 9999 SCT018 FEW025TCU BKN070 27/26 Q1010=  ## [A] Ilhéus, Bahia - Jorge Amado Airport
317268 2022-11-27 18:00  29 BR BR-MG  IPN SBIP 271700Z AUTO 20004KT 150V270 9999 FEW043 29/17 Q1010=  ## [A] Ipatinga, Usiminas Airport
317278 2022-11-27 18:00  32 BR BR-MA  IMP SBIZ 271700Z 10005KT 9999 SCT028 32/26 Q1009=  ## [A] Imperatriz, Prefeito Renato Moreira Airport
317283 2022-11-27 18:00  34               SBJE 271700Z 04014KT 9999 BKN025 34/22 Q1008=  ## [A]
317286 2021-10-19 04:00  16               SBJH 190200Z 12012KT 9999 SCT020 SCT080 16/14 Q1019=  ## [A]
317294 2022-11-27 18:00  30 BR BR-PB  JPA SBJP 271700Z 05011KT 010V080 9999 SCT035 30/21 Q1010=  ## [A] João Pessoa, Presidente Castro Pinto International Airport
317296 2022-11-27 18:00  32 BR BR-RJ  --- SBJR 271700Z 18007KT 9999 FEW025 SCT040 32/24 Q1010=  ## [A] Rio De Janeiro, Jacarepaguá - Roberto Marinho Airport
317299 2022-11-27 18:00  31 BR BR-CE  JDO SBJU 271700Z 18005KT 9999 BKN020 31/20 Q1013=  ## [A] Juazeiro Do Norte, Orlando Bezerra de Menezes Airport
317300 2022-11-27 18:00  21 BR BR-SC  JOI SBJV 271700Z 11003KT 070V150 3000 -RA BR SCT006 BKN013 21/21 Q1016 RERA=  ## [A] Joinville, Lauro Carneiro de Loyola Airport
317311 2022-11-27 18:00  30 BR BR-PB  CPV SBKG 271700Z 08011KT 9999 BKN025 30/17 Q1011=  ## [A] Campina Grande, Presidente João Suassuna Airport
317320 2022-11-27 18:00  30 BR BR-SP  VCP SBKP 271700Z VRB03KT 9999 VCSH BKN045 FEW050TCU 30/13 Q1011=  ## [A] Campinas, Viracopos International Airport
317332 2022-11-27 18:09  23 BR BR-RJ  --- SBLB 271709Z AUTO 06023KT //// OVC033 23/20 Q1012 W/////=  ## [A] Macaé, Plataforma P-25 Helipad
317335 2022-11-27 18:00  25 BR BR-BA  LEC SBLE 271700Z AUTO 26004KT CAVOK 25/22 Q1011=  ## [A] Lençóis, Coronel Horácio de Mattos Airport
317345 2022-11-27 18:00  31 BR BR-PR  LDB SBLO 271700Z 08007KT 9999 BKN040 31/14 Q1012=  ## [A] Londrina, Governador José Richa Airport
317346 2020-11-26 21:00 XXX BR BR-BA  LAZ SBLP 262000Z AUTO /////KT ///V/// //// // ///////// ///// Q////=  ## [A] Bom Jesus Da Lapa, Bom Jesus da Lapa Airport
------ (okänt land):
317349 2022-11-27 18:00  23 ,B -MG ,L 0,B SBLS 271700Z 30006KT 250V310 9999 VCSH SCT042 FEW045TCU BKN100 23/19 Q1013 RETS RESHRA=  ## [A] goa Santa, Lagoa Santa Airport
------ Brasilien:
317357 2022-11-27 18:00  34 BR BR-PA  MAB SBMA 271700Z 01007KT 9999 SCT025 FEW030TCU 34/25 Q1009=  ## [A] Marabá, João Correa da Rocha Airport
317360 2020-02-14 20:00  28 BR BR-PA  MEU SBMD 141900Z 10004KT 9999 BKN022 BKN100 28/24 Q1011=  ## [A] Almeirim, Monte Dourado Airport
317361 2022-11-27 18:00  27 BR BR-RJ  MEA SBME 271700Z 08013KT 9999 SCT015 BKN080 27/24 Q1011=  ## [A] Macaé, Macaé Airport
317363 2022-11-27 18:00  30 BR BR-PR  MGF SBMG 271700Z 19007KT 9999 SCT045 30/17 Q1011=  ## [A] Maringá, Regional de Maringá - Sílvio Nane Junior Airport
317365 2021-03-08 09:00  28               SBMI 080800Z 09006KT 9999 SCT016 28/23 Q1012=  ## [A]
317367 2022-11-27 18:00  27 BR BR-MG  MOC SBMK 271700Z 29005KT 9999 SCT036 BKN080 27/19 Q1011=  ## [A] Montes Claros, Mário Ribeiro Airport
317368 2022-11-26 14:00  25 BR BR-SP  MII SBML 261300Z 12010KT CAVOK 25/17 Q1016=  ## [A] Marília, Frank Miloye Milenkowichi?Marília State Airport
317370 2022-11-27 18:00  31 BR BR-AM  PLL SBMN 271700Z 23006KT 9999 SCT020 31/23 Q1011=  ## [A] Manaus, Ponta Pelada Airport
317371 2022-11-27 18:00  31 BR BR-AL  MCZ SBMO 271700Z 08013KT 9999 FEW033 31/22 Q1010=  ## [A] Maceió, Zumbi dos Palmares Airport
317373 2022-11-27 18:00  34 BR BR-AP  MCP SBMQ 271700Z 08008KT 9999 BKN030 34/20 Q1010=  ## [A] Macapá, Alberto Alcolumbre Airport
317375 2022-11-27 18:00  35 BR BR-RN  MVF SBMS 271700Z 04015KT 9999 SCT025 35/20 Q1008=  ## [A] Mossoró, Dix-Sept Rosado Airport
317376 2022-11-27 18:00  24 BR BR-SP  --- SBMT 271700Z 17011G22KT 9999 SCT026 BKN082 24/18 Q1013=  ## [A] São Paulo, Campo de Marte Airport
317381 2022-11-27 18:00  27 BR BR-AM  MNX SBMY 271700Z AUTO VRB02KT 9999 FEW002 27/25 Q1011=  ## [A] Manicoré, Manicoré Airport
317388 2022-11-27 18:00  23 BR BR-SC  NVT SBNF 271700Z 11014KT 9999 -RA BKN003 SCT009 23/20 Q1016=  ## [A] Navegantes, Ministro Victor Konder International Airport
317395 2022-11-27 18:00  33 BR BR-RS  GEL SBNM 271700Z 19016KT 9999 SCT035 33/22 Q1013=  ## [A] Santo Ângelo, Santo Ângelo Airport
317402 2022-11-27 18:00  29 BR BR-RN  --- SBNT 271700Z 11012KT 080V140 9999 SCT030 29/21 Q1010=  ## [A] Natal, Augusto Severo Airport
317417 2022-11-27 18:00  28 BR BR-AP  OYK SBOI 271700Z 03005KT 9999 SCT020 BKN045 28/24 Q1011=  ## [A] Oiapoque, Oiapoque Airport
317435 2022-11-27 18:00  28 BR BR-RS  POA SBPA 271700Z 11019G29KT 080V140 9999 SCT035 28/19 Q1018=  ## [C] Porto Alegre, Salgado Filho Airport
317436 2022-11-27 18:00  32 BR BR-PI  PHB SBPB 271700Z 12018KT 9999 FEW020 32/25 Q1009=  ## [A] Parnaíba, Prefeito Doutor João Silva Filho Airport
317437 2022-01-31 21:00  19 BR BR-MG  POO SBPC 312000Z /////KT 5000 -RA BKN010 OVC080 19/18 Q1015=  ## [A] Poços De Caldas, Poços de Caldas - Embaixador Walther Moreira Salles Airport
317440 2022-11-27 18:00  27 BR BR-RS  PFB SBPF 271700Z 17010KT 9999 BKN040 27/16 Q1017=  ## [A] Passo Fundo, Lauro Kurtz Airport
317441 2022-11-25 21:00  23               SBPG 252000Z 18010KT CAVOK 23/10 Q1016=  ## [A]
317444 2022-11-27 18:00  29 BR BR-TO  PMW SBPJ 271700Z 34009KT 310V010 9999 VCSH FEW017 SCT035 FEW040TCU 29/22 Q1009=  ## [A] Palmas, Brigadeiro Lysias Rodrigues Airport
317445 2022-11-27 18:00  29 BR BR-RS  PET SBPK 271700Z 10016KT 9999 BKN032 29/21 Q1020=  ## [A] Pelotas, João Simões Lopes Neto International Airport
317446 2022-11-27 18:00  27 BR BR-PE  PNZ SBPL 271700Z 12005KT 9999 BKN022 BKN070 27/23 Q1011=  ## [A] Petrolina, Senador Nilo Coelho Airport
317450 2022-11-27 18:00  31 BR BR-MS  PMG SBPP 271700Z 20007KT 9999 SCT025 31/17 Q1013=  ## [A] Ponta Porã, Ponta Porã Airport
317452 2022-11-27 18:00  27 BR BR-MG  --- SBPR 271700Z 33007KT 9999 BKN025 27/18 Q1013=  ## [A] Belo Horizonte, Carlos Prates Airport
317453 2022-11-27 18:00  25 BR BR-BA  BPS SBPS 271700Z 03014KT 9000 VCSH BKN020 FEW025TCU BKN100 25/23 Q1009=  ## [A] Porto Seguro, Porto Seguro Airport
317456 2022-11-27 18:00  27 BR BR-RO  PVH SBPV 271700Z 31002KT 9999 SCT015 BKN050 27/24 Q1011=  ## [A] Porto Velho, Governador Jorge Teixeira de Oliveira Airport
317482 2019-07-25 01:00  17 BR BR-BA  VDC SBQV 242300Z 15009KT 9999 SCT006 17/16 Q1023=  ## [A] Vitória Da Conquista, Vitória da Conquista Airport
317488 2022-11-27 18:00  34 BR BR-AC  RBR SBRB 271700Z 32004KT 9999 SCT040 FEW045TCU 34/24 Q1012=  ## [A] Rio Branco, Plácido de Castro Airport
317492 2022-11-27 18:00  29 BR BR-PE  REC SBRF 271700Z 07010KT 360V100 9999 FEW025 29/22 Q1010=  ## [C] Recife, Guararapes - Gilberto Freyre International Airport
317496 2022-11-27 18:00  25 BR BR-RJ  SDU SBRJ 271700Z 16013KT 9999 FEW017 SCT035 25/22 Q1010=  ## [A] Rio De Janeiro, Santos Dumont Airport
317502 2022-11-27 18:00  32 BR BR-SP  RAO SBRP 271700Z 27010KT 9999 SCT040 32/11 Q1009=  ## [A] Ribeirão Preto, Leite Lopes Airport
317515 2022-11-27 18:00  27 BR BR-RJ  SNZ SBSC 271700Z 18009KT 9999 FEW020 27/22 Q1010=  ## [A] Rio de Janeiro, Santa Cruz Air Force Base
317519 2022-11-27 18:00  31 BR BR-RN  NAT SBSG 271700Z 14015KT 110V170 9999 BKN035 31/21 Q1010=  ## [A] Natal, Governador Aluízio Alves International Airport
317522 2022-11-27 18:10  23 BR BR-SP  SJK SBSJ 271710Z VRB04KT 2500 TSRA HZ BKN030 FEW035CB 23/19 Q1012=  ## [A] São José Dos Campos, Professor Urbano Ernesto Stumpf Airport
317524 2022-11-27 18:00  32 BR BR-MA  SLZ SBSL 271700Z 03014KT 9999 VCSH BKN030 FEW040TCU 32/23 Q1009=  ## [A] São Luís, Marechal Cunha Machado International Airport
317525 2022-11-27 18:00  30 BR BR-RS  RIA SBSM 271700Z 09015KT 9999 BKN045 30/18 Q1016=  ## [A] Santa Maria, Santa Maria Airport
317526 2022-11-27 18:00  31 BR BR-PA  STM SBSN 271700Z 35006KT 9999 FEW020 31/25 Q1010=  ## [A] Santarém, Maestro Wilson Fonseca Airport
317528 2022-11-27 18:00  22 BR BR-SP  CGH SBSP 271700Z 17016KT 9999 SCT013 BKN015 22/18 Q1015=  ## [A] São Paulo, Congonhas Airport
317530 2022-11-27 18:00  31 BR BR-SP  SJP SBSR 271700Z 27004KT 9999 SCT040 31/11 Q1010=  ## [A] São José Do Rio Preto, Prof. Eribelto Manoel Reino State Airport
317532 2022-11-27 18:00  25 BR BR-SP  SSZ SBST 271700Z 14007KT 100V160 9000 2300N -DZ BKN022 BKN025 OVC033 25/21 Q1012=  ## [A] Guarujá, Base Aérea de Santos Airport
317534 2022-11-27 18:00  24 BR BR-BA  SSA SBSV 271700Z 04009KT 360V110 6000 -RA SCT012 BKN015 FEW023TCU BKN070 24/22 Q1011 RETSRA=  ## [C] Salvador, Deputado Luiz Eduardo Magalhães International Airport
317537 2020-11-06 14:00  26               SBSY 061300Z AUTO 17009KT 120V210 CAVOK 26/08 Q1017=  ## [A]
317539 2022-11-27 18:00  30 BR BR-SP  QHP SBTA 271700Z VRB03KT 9999 VCSH SCT034 FEW036TCU 30/16 Q1010=  ## [A] Taubaté, Base de Aviação de Taubaté Airport
317541 2022-11-27 18:00  26 BR BR-BA  UNA SBTC 271700Z 03008KT 9999 SCT020 26/24 Q1010=  ## [A] Una, Hotel Transamérica Airport
317542 2022-11-25 20:00  30 BR BR-PR  TOW SBTD 251900Z 24008KT 9999 SCT035 30/17 Q1013=  ## [A] Toledo, Toledo Airport
317543 2022-11-27 18:00  31 BR BR-PI  THE SBTE 271700Z 19008KT 9999 SCT033 BKN080 31/22 Q1009=  ## [A] Teresina, Senador Petrônio Portela Airport
317544 2022-11-27 18:00  32 BR BR-AM  TFF SBTF 271700Z 35002KT 9999 SCT020 32/25 Q1011=  ## [A] Tefé, Tefé Airport
317549 2021-10-08 15:00  28 BR BR-AC  TRQ SBTK 081300Z AUTO 32006KT 290V350 CAVOK 28/24 Q1012=  ## [A] Tarauacá, Tarauacá Airport
317558 2022-11-27 18:00  26 BR BR-AM  TBT SBTT 271700Z 28002KT 9999 SCT010 OVC090 26/23 Q1013=  ## [A] Tabatinga, Tabatinga Airport
317559 2022-11-27 18:00  30 BR BR-PA  TUR SBTU 271700Z AUTO VRB04KT 9999 FEW026 30/23 Q1011=  ## [A] Tucuruí, Tucuruí Airport
317565 2022-11-27 18:00  31 BR BR-AM  SJL SBUA 271700Z 09005KT 030V130 9999 SCT025 31/24 Q1011=  ## [A] São Gabriel Da Cachoeira, São Gabriel da Cachoeira Airport
317570 2022-11-26 15:00  30 BR BR-BA  PAV SBUF 261400Z 07004KT 9999 SCT021 BKN093 30/22 Q1013=  ## [A] Paulo Afonso, Paulo Afonso Airport
317571 2022-10-26 21:00  21 BR BR-RS  URG SBUG 261900Z 03005KT CAVOK 21/19 Q1004=  ## [A] Uruguaiana, Rubem Berta Airport
317576 2022-11-27 18:00  28 BR BR-MG  UDI SBUL 271700Z 25009KT 9000 -RA SCT030 FEW040TCU 28/16 Q1013=  ## [A] Uberlândia, Ten. Cel. Aviador César Bombonato Airport
317582 2022-11-27 18:00  30 BR BR-MG  UBA SBUR 271700Z 26007KT 9999 BKN048 FEW049TCU 30/13 Q1012=  ## [A] Uberaba, Mário de Almeida Franco Airport
317589 2022-11-27 18:00  24               SBUY 271700Z 00000KT 9000 -RA FEW006 OVC070 24/23 Q1011=  ## [A]
317598 2022-11-27 18:00  32 BR BR-RO  BVH SBVH 271700Z 20007KT 160V250 9999 SCT040 32/19 Q1013=  ## [A] Vilhena, Brigadeiro Camarão Airport
317610 2022-11-27 18:00  26 BR BR-ES  VIX SBVT 271700Z 08013KT 9999 VCTS SCT017 SCT023 FEW030CB 26/23 Q1009=  ## [A] Vitória, Eurico de Aguiar Salles Airport
317687 2022-11-27 18:00  31 BR BR-SP  QPS SBYS 271700Z VRB05KT 9999 VCSH BKN050 FEW060TCU 31/13 Q1010=  ## [A] Pirassununga, Campo Fontenelle Airport
------ Chile:
317736 2022-11-27 18:00  27 CL CL-LL  WAP SCAP 271700Z AUTO 24005KT 160V270 9999 ////// 27/05 Q1019=  ## [C] Alto Palena, Alto Palena Airport
317738 2022-11-27 18:00  22 CL CL-AP  ARI SCAR 271700Z 23013KT CAVOK 22/14 Q1013=  ## [C] Arica, Chacalluta Airport
317739 2022-11-25 20:00  15 CL CL-AI  WPA SCAS 251900Z 25012KT 9999 SCT015 BKN036 15/12 Q1018=  ## [C] Puerto Aysen, Cabo 1° Juan Román Airport
317740 2022-11-27 18:00  20 CL CL-AT  CPO SCAT 271700Z 26009KT 230V010 9999 FEW030 20/11 Q1015=  ## [C] Copiapo, Desierto de Atacama Airport
317747 2022-11-27 18:00  23 CL CL-AI  BBA SCBA 271700Z 27011KT CAVOK 23/06 Q1017=  ## [C] Balmaceda, Balmaceda Airport
317775 2022-11-25 19:00  21 CL CL-AI  CCH SCCC 251800Z 26031G49KT 9999 FEW046 21/M03 Q1009 RMK 1/8 AC LENT=  ## [C] Chile Chico, Chile Chico Airport
317778 2022-11-27 18:00  25 CL CL-AN  CJC SCCF 271700Z 28025KT CAVOK 25/M06 Q1024=  ## [C] Calama, El Loa Airport
317780 2022-11-27 18:00  28 CL CL-BI  YAI SCCH 271700Z 31005KT CAVOK 28/17 Q1012=  ## [C] Chillan, Gral. Bernardo O´Higgins Airport
317781 2022-11-27 18:00  16 CL CL-MA  PUQ SCCI 271700Z 30018KT CAVOK 16/00 Q1015 NOSIG=  ## [C] Punta Arenas, Pdte. Carlos Ibañez del Campo Airport
317797 2022-11-27 18:00  24 CL CL-AI  GXQ SCCY 271700Z 17005KT CAVOK 24/07 Q1017=  ## [C] Coyhaique, Teniente Vidal Airport
317799 2022-11-27 18:00  21 CL CL-TA  IQQ SCDA 271700Z 26012KT CAVOK 21/14 Q1014=  ## [C] Iquique, Diego Aracena Airport
317836 2022-11-27 18:00  27 CL CL-RM  SCL SCEL 271700Z 17015KT CAVOK 27/13 Q1013 NOSIG=  ## [C] Santiago, Comodoro Arturo Merino Benítez International Airport
317851 2022-11-27 18:00  19 CL CL-AN  ANF SCFA 271700Z 20013KT 9999 SCT026 19/13 Q1015 NOSIG=  ## [C] Antofagasta, Andrés Sabella Gálvez International Airport
317863 2022-11-26 18:00  13 CL CL-MA  WPR SCFM 261700Z 27023G33KT 9999 FEW030 13/02 Q1015=  ## [C] Porvenir, Capitan Fuentes Martinez Airport Airport
317870 2022-11-27 18:00  28 CL CL-LL  FFU SCFT 271700Z AUTO VRB03KT CAVOK 28/08 Q1016=  ## [C] Futaleufu, Futaleufú Airport
317881 2022-11-27 18:00  32 CL CL-BI  LSQ SCGE 271700Z 35004KT CAVOK 32/15 Q1012=  ## [C] Los Angeles, María Dolores Airport
317902 2022-11-27 18:00  13 CL CL-MA  WPU SCGZ 271700Z 30009KT CAVOK 13/01 Q1013=  ## [C] Puerto Williams, Guardiamarina Zañartu Airport
317920 2022-11-25 18:00  18 CL CL-AI  LGR SCHR 251700Z 28023G34KT 230V300 9999 SCT045 BKN100 18/01 Q1007=  ## [C] Cochrane, Cochrane Airport
317931 2022-11-27 18:00  27 CL CL-ML  --- SCIC 271700Z VRB04KT CAVOK 27/16 Q1012=  ## [A] Curico, General Freire Airport
317933 2022-11-27 18:00  15 CL CL-BI  CCP SCIE 271700Z 36008KT 320V040 9999 FEW005 BKN008 OVC011 15/13 Q1015=  ## [C] Concepcion, Carriel Sur Airport
317944 2022-11-27 18:00  24 CL CL-VS  IPC SCIP 271700Z 34009KT 9999 SCT025 BKN050 24/19 Q1018 NOSIG=  ## [C] Isla De Pascua, Mataveri Airport
317946 2022-11-26 00:00  16 CL CL-VS  --- SCIR 252300Z 15012KT 9999 BKN020 16/13 Q1021=  ## [C] Isla Robinson Crusoe, Robinson Crusoe Airport
317969 2022-11-27 18:00  26 CL CL-LL  ZOS SCJO 271700Z 17009KT 140V250 CAVOK 26/14 Q1014=  ## [C] Osorno, Cañal Bajo Carlos - Hott Siebert Airport
317987 2019-10-15 04:00  26               SCKG 150200Z 02004KT 9999 FEW017 SCT090 26/25 A2983=  ## [A]
317992 2019-09-12 08:00  24 CL CL-RM  --- SCKL 120600Z 01009KT 9999 SCT040 24/19 A2994 NOSIG=  ## [A] Lampa, Lipangui Airport
318041 2021-02-08 21:00  29 CL CL-CO  --- SCMI 082000Z /////KT 9999 FEW016 29/23 Q1014=  ## [A] Mialqui, Los Tricahues Airport
318043 2022-11-27 18:00  20 CL CL-AI  --- SCMK 271700Z AUTO 18011KT //// // FEW240/// 20/08 Q1017=  ## [C] Melinka, Melinka Airport
318078 2022-11-27 18:00  17 CL CL-MA  PNT SCNT 271700Z 19007KT 120V280 CAVOK 17/00 Q1016=  ## [C] Puerto Natales, Tte. Julio Gallardo Airport
318098 2022-11-27 18:00  22 CL CL-LL  --- SCON 271700Z AUTO 19008KT 9999 FEW250/// 22/07 Q1017=  ## [C] Quellon, Quellón Airport
318102 2022-08-03 15:00  26               SCOR 031300Z 04010KT CAVOK 26/13 Q1011=  ## [A]
318113 2020-08-18 17:00  20 CL CL-AR  ZPC SCPC 181500Z 28002KT 9999 SCT015 BKN030 20/18 Q1013=  ## [C] Pucon, Pucón Airport
318114 2022-11-27 18:00  30               SCPD 271700Z 16008KT 120V200 CAVOK 30/13 Q1013=  ## [C]
318127 2022-11-27 18:00  24 CL CL-LL  MHC SCPQ 271700Z 16006KT 090V230 CAVOK 24/10 Q1016=  ## [C] Dalcahue, Mocopulli Airport
318152 2022-11-27 18:00  27 CL CL-AR  ZCO SCQP 271700Z 26005KT 190V310 CAVOK 27/18 Q1012=  ## [C] Temuco, La Araucanía Airport
318166 2022-11-27 18:00  13 CL CL-VS  VAP SCRD 271700Z 34006KT 1500 0400S BCFG OVC003 13/12 Q1018=  ## [C] Viña Del Mar, Rodelillo Airport
318169 2022-11-27 18:00  27 CL CL-LI  QRC SCRG 271700Z 22009KT 27/15 Q1014=  ## [C] Rancagua, De La Independencia Airport
------ Antarktis:
318175 2022-11-27 18:00   0 AQ AQ-U-A TNM SCRM 271700Z 30019KT 1200 -SHSN BR OVC002 M00/M00 Q0994 NOSIG=  ## [C] Isla Rey Jorge, Teniente Rodolfo Marsh Martin Base
------ Chile:
318193 2022-11-27 18:00  17 CL CL-CO  LSC SCSE 271700Z 28011KT 250V310 9999 OVC018 17/12 Q1016=  ## [C] La Serena-Coquimbo, La Florida Airport
318202 2022-11-27 18:00  15 CL CL-VS  --- SCSN 271700Z 31009KT 5000 BR BKN006 OVC010 15/14 Q1016=  ## [C] Santo Domingo, Santo Domingo Airport
318216 2022-11-27 18:00  29 CL CL-RM  --- SCTB 271700Z 22008KT CAVOK 29/13 Q1014=  ## [A] Santiago, Eulogio Sánchez Airport
318219 2022-11-27 18:00  21 CL CL-LL  PMC SCTE 271700Z 17011KT 140V200 CAVOK 21/10 Q1016 NOSIG=  ## [C] Puerto Montt, El Tepual Airport
318228 2022-11-27 18:00  15 CL CL-LL  WCH SCTN 271700Z 19015KT CAVOK 15/12 Q1016=  ## [C] Chaiten, Chaitén Airport
318269 2021-10-09 16:00  14 CL CL-CO  --- SCVC 091400Z 33006KT 9999 FEW030 14/07 Q1018=  ## [A] Vicuña, El Indio Airport
318270 2022-11-27 18:00  25 CL CL-LR  ZAL SCVD 271700Z VRB03KT CAVOK 25/15 Q1013=  ## [C] Valdivia, Pichoy Airport
318279 2022-11-27 18:00  16 CL CL-VS  KNA SCVM 271700Z 32007KT 260V020 9999 OVC020 16/12 Q1017=  ## [C] Viña Del Mar, Viña del mar Airport
318280 2021-10-28 11:00  10 CL CL-CO  --- SCVN 280900Z VRB02KT 0900 FG OVC002 10/09 Q1017=  ## [A] Vicuña, Huancara Airport
------ Brasilien:
318619 2020-03-06 22:00  11 BR BR-SP  --- SDIO 062100Z 28010KT 9999 SCT030 BKN100 11/05 Q1011=  ## [A] Itápolis, Aeroclube de Itápolis Airport
318693 2020-11-20 20:00  15 BR BR-BA  --- SDLK 201900Z 09007KT 8000 FEW026 SCT030 BKN100 15/10 Q1010=  ## [A] Caculé, Caculé Airport
------ Ecuador:
319085 2022-11-25 21:00  23 EC EC-T   ATF SEAM 252000Z 09003KT 9999 SCT020 23/16 Q1024=  ## [A] Ambato, Chachoán Airport
319125 2022-11-27 18:00  29               SECA 271700Z 09013KT 9999 SCT040 BKN100 29/11 Q1018 RMK A3008=  ## [A]
319139 2022-11-27 18:00  30 EC EC-D   OCC SECO 271700Z 17006KT 9999 FEW025 BKN100 30/24 Q1013 RMK A2991=  ## [A] Coca, Francisco De Orellana Airport
319145 2022-11-27 18:00  20 EC EC-A   CUE SECU 271700Z 18010KT 140V220 9999 BKN040 BKN100 BKN300 20/01 Q1028 RMK A3037=  ## [A] Cuenca, Mariscal Lamar Airport
319247 2022-11-27 18:00  25 EC EC-W   GPS SEGS 271700Z 11011KT 9999 SCT020 BKN030 25/18 Q1017 RMK A3005=  ## [A] Baltra, Seymour Airport
319249 2022-11-27 18:00  28 EC EC-G   GYE SEGU 271700Z 15008KT 9999 SCT026 SCT030 28/20 Q1013 NOSIG RMK A2994=  ## [C] Guayaquil, José Joaquín de Olmedo International Airport
319254 2022-11-27 18:00  27 EC EC-S   --- SEGZ 271700Z 13003KT 9999 FEW020 BKN100 27/21 Q1018=  ## [A] Santiago, Gualaquiza Airport
319310 2022-11-27 18:00  30               SEJD 271700Z 07003KT 9999 FEW016 BKN300 30/23 Q1014 RMK A2994=  ## [A]
319359 2021-07-17 20:00  22               SELA 171800Z 03006KT 3000 RA BKN010 OVC100 22/22 Q1016 RMK A3001 =  ## [A]
319378 2022-11-27 18:00  18 EC EC-X   LTX SELT 271700Z 18012KT 9999 FEW030 BKN300 18/04 Q1030=  ## [A] Latacunga, Cotopaxi International Airport
319387 2022-11-27 18:00  26 EC EC-S   XMS SEMC 271700Z 16007KT 9999 FEW026 BKN230 26/17 Q1018 RMK A3007=  ## [A] Macas, Coronel E Carvajal Airport
319404 2022-11-27 18:00  27 EC EC-M   MEC SEMT 271700Z 28010KT 9999 SCT023 SCT100 27/20 Q1014 RMK A2998=  ## [C] Manta, Eloy Alfaro International Airport
319422 2022-11-27 18:00  30 EC EC-U   LGQ SENL 271700Z 11004KT 9999 FEW020 SCT100 30/23 Q1013 RMK A2994=  ## [A] Lago Agrio, Nueva Loja Airport
319501 2022-11-27 18:00  23 EC EC-P   UIO SEQM 271700Z VRB05KT 9999 SCT030 23/06 Q1025 NOSIG RMK A3029=  ## [C] Quito, Mariscal Sucre International Airport
319509 2021-10-03 00:00 XXX EC EC-P   --- SEQU 022200Z METAR =  ## [A] Quito, Mariscal Sucre International Airport
319516 2022-11-25 22:00  20 EC EC-H   --- SERB 252100Z 06012KT 9999 BKN040 20/14 Q1023=  ## [A] Riobamba, Chimborazo Airport
319529 2022-11-27 18:00  22 EC EC-O   ETR SERO 271700Z 27003KT 2000 -DZ SCT010 OVC016 22/22 Q1015=  ## [A] Santa Rosa, Santa Rosa International Airport
319541 2022-11-27 18:00  24 EC EC-G   SNC SESA 271700Z 21009KT 9999 BKN012 OVC016 24/21 Q1015 RMK A2998=  ## [A] Salinas, General Ulpiano Paez Airport
319547 2022-11-27 18:00  15               SESG 271700Z 25010KT 9999 FEW035 15/M02 Q1017=  ## [A]
319553 2022-11-27 18:00  27 EC EC-Y   PTZ SESM 271700Z 13004KT 080V170 9999 FEW040 BKN160 BKN400 27/17 Q1017 RMK A3005=  ## [A] Shell Mera, Rio Amazonas Airport
319560 2022-11-27 18:00  25 EC EC-W   SCY SEST 271700Z 19005KT 9999 FEW020 BKN050 25/18 Q1015 RMK A2998=  ## [A] San Cristóbal, San Cristóbal Airport
319580 2022-11-27 18:00  29 EC EC-E   ESM SETN 271700Z 30010KT 9999 SCT020 29/24 Q1013 RMK A2993=  ## [A] Tachina, General Rivadeneira Airport
319587 2022-11-25 22:00  15 EC EC-C   TUA SETU 252100Z 10006KT 9999 BKN020 15/08 Q1028=  ## [A] Tulcán, Teniente Coronel Luis a Mantilla Airport
------ Falklandsöarna:
319760 2022-11-27 16:50  17 FK FK-U-A PSY SFAL 271550Z 31024KT CAVOK 17/05 Q1022 TEMPO 31024G34KT=  ## [A] Stanley, Port Stanley Airport
320429 2021-10-14 14:30  25               SGAE 141230Z 04007KT 9999FEW010 BKN070 25/22 Q1006=  ## [A]
------ Paraguay:
320443 2022-11-27 18:00  33 PY PY-11  ASU SGAS 271700Z VRB03KT 9999 FEW040 33/19 Q1011=  ## [C] Asunción, Silvio Pettirossi International Airport
320491 2022-11-27 16:00  32 PY PY-1   CIO SGCO 271500Z 17006KT CAVOK 32/18 Q1011=  ## [A] Concepción, Teniente Col Carmelo Peralta Airport
320541 2020-03-22 17:00  28               SGEM 221600Z 00000KT CAVOK 28/14 Q1016=  ## [A]
320542 2022-11-27 18:00 XXX PY PY-7   ENO SGEN 271700Z 36006KT 9999 SCT030 31/18Q1012=  ## [A] Encarnación, Encarnación Airport
320547 2022-11-27 18:00  31 PY PY-10  AGT SGES 271700Z 00000KT 9999 SCT033 31/21 Q1012=  ## [A] Ciudad del Este, Guarani International Airport
320551 2022-09-15 21:00  25               SGEW 151900Z 24008KT CAVOK 25/09 Q1017=  ## [A]
320581 2022-07-25 01:00  28               SGGA 242300Z 09008KT 9000 NSC 28/17 Q1012=  ## [A]
320598 2022-11-27 13:00  26 PY PY-14  --- SGGR 271200Z 09008KT CAVOK 26/18 Q1012=  ## [A] Salto del Guaira, Salto del Guaira Airport
320732 2022-11-27 13:00  27               SGLV 271200Z 09002KT CAVOK 27/16 Q1012=  ## [A]
320741 2022-11-27 13:00  28 PY PY-19  ESG SGME 271200Z 12004KT CAVOK 28/15 Q1012=  ## [A] Mariscal Estigarribia, Dr. Luis Maria Argaña International Airport
320810 2022-04-04 20:00  25               SGOV 041800Z 00000KT 9999 BKN020 25/22 Q1013=  ## [A]
320817 2022-11-27 13:00  29 PY PY-15  --- SGPC 271200Z 00000KT CAVOK 29/19 Q1012=  ## [A] Pozo Colorado, Pozo Colorado Airport
320823 2022-11-27 13:00  27 PY PY-12  PIL SGPI 271200Z 09002KT CAVOK 27/14 Q1012=  ## [A] Pilar, Carlos Miguel Gimenez Airport
320824 2022-11-27 13:00  26 PY PY-13  PJC SGPJ 271200Z 10006KT CAVOK 26/17 Q1014=  ## [A] Pedro Juan Caballero, Dr Augusto Roberto Fuster International Airport
320893 2022-07-01 20:00  29               SGSA 011800Z 02016KT CAVOK 29/17 Q1007=  ## [A]
320902 2022-11-27 13:00  24               SGSJ 271200Z 00000KT CAVOK 24/17 Q1014=  ## [A]
320908 2022-11-27 13:00  26 PY PY-2   --- SGSP 271200Z 27005KT CAVOK 26/18 Q1010=  ## [A] San Pedro del Ycuamandiyu, San Pedro Airport
320911 2022-09-28 13:30  20               SGSS 281130Z 20008KT 9000 SCT030 OVC080 20/17 Q1018=  ## [A]
320988 2022-11-19 19:00  33               SGVR 191800Z 05005KT CAVOK 33/17 Q1008=  ## [A]
------ Colombia:
323146 2022-11-27 18:00  22 CO CO-QUI AXM SKAR 271700Z 00000KT 9000 BKN012 BKN080 22/19 Q1021 RMK HZ A3016=  ## [A] Armenia, El Eden Airport
323147 2022-08-03 19:00  28 CO CO-PUT PUU SKAS 031700Z 25004KT 9999 BKN016 28/23 Q1014 RMK A2992=  ## [A] Puerto Asís, Tres De Mayo Airport
323148 2019-12-17 16:00  24               SKAT 171500Z 00000KT 9999 SCT022 24/20 A3005=  ## [A]
323155 2022-03-12 19:00  31               SKBA 121800Z 04010KT 360V070 9999 FEW015 31/24 Q1010 NOSIG RMK A2983=  ## [A]
323161 2022-11-27 18:00  24 CO CO-SAN BGA SKBG 271700Z 32004KT 9999 BKN015TCU 24/20 Q1016 RMK TCUSE A3003=  ## [A] Bucaramanga, Palonegro Airport
323169 2022-11-27 18:00  17 CO CO-CUN BOG SKBO 271700Z 20012KT 9999 -DZ BKN020 SCT080 17/11 Q1027 NOSIG RMK A3034=  ## [C] Bogota, El Dorado International Airport
323171 2022-11-27 18:00  30 CO CO-ATL BAQ SKBQ 271700Z 12006KT 9999 SCT015 30/25 Q1011 NOSIG RMK A2987=  ## [C] Barranquilla, Ernesto Cortissoz International Airport
323173 2022-08-03 19:00  28 CO CO-CHO BSC SKBS 031700Z 21005KT 9999 SCT020 28/24 Q1010 RMK A2984=  ## [A] Bahía Solano, José Celestino Mutis Airport
323175 2022-09-15 14:00  23 CO CO-VAC BUN SKBU 151200Z 00000KT 9999 SCT045 23/22 Q1012 RMK A2988=  ## [A] Buenaventura, Gerardo Tobar López Airport
323183 2022-11-27 18:00  29 CO CO-NSA CUC SKCC 271700Z 36008KT 9999 SCT020 29/23 Q1014 RMK A2994=  ## [A] Cúcuta, Camilo Daza International Airport
323187 2022-11-27 18:00  26 CO CO-BOL CTG SKCG 271700Z 23005KT 9999 -DZ BKN017 26/25 Q1011 RMK A2987=  ## [A] Cartagena, Rafael Nuñez International Airport
323192 2022-11-27 18:00  21 CO CO-VAC CLO SKCL 271700Z VRB03KT 9999 SCT015 OVC080 21/20 Q1018 NOSIG RMK A3009=  ## [A] Cali, Alfonso Bonilla Aragon International Airport
323195 2022-09-15 14:00  23 CO CO-NAR TCO SKCO 151200Z 22004KT 4000 BR BKN013 23/23 Q1013 RMK A2992=  ## [A] Tumaco, La Florida Airport
323206 2022-09-15 14:00  25 CO CO-SUC CZU SKCZ 151200Z VRB02KT 9999 SCT026 25/24 Q1011 RMK A2987=  ## [A] Corozal, Las Brujas Airport
323242 2022-11-27 18:00  29 CO CO-SAN EJA SKEJ 271700Z 24004KT 9999 SCT015 29/23 Q1011 RMK A2987=  ## [A] Barrancabermeja, Yariguíes Airport
323249 2022-10-09 15:00  28               SKEQ 091300Z 01003KT 320V050 9999 VCSH FEW012 FEW020CB BKN100 28/26 Q1012 NOSIG RMK CB VCSH/NW/N A2989=  ## [A]
323270 2022-08-03 19:00  29 CO CO-CAQ FLA SKFL 031700Z 25004KT 9999 SCT020 SCT140 29/23 Q1013 RMK A2992=  ## [A] Florencia, Gustavo Artunduaga Paredes Airport
323293 2022-09-15 14:00  23 CO CO-CUN GIR SKGI 151200Z 21006KT 8000 VCFG FEW015 SCT035 23/23 Q1012 RMK A2991=  ## [A] Girardot, Santiago Vila Airport
323299 2022-09-15 14:00  18 CO CO-VAC CRC SKGO 151200Z 00000KT 9999 5000E BCFG SCT006 BKN150 18/18 Q1017 RMK A3004=  ## [A] Cartago, Santa Ana Airport
323300 2022-10-27 17:00  26 CO CO-CAU GPI SKGP 271500Z 22004KT 9999 BKN015 26/23 Q1013=  ## [A] Guapi, Juan Casiano Airport
323309 2022-09-15 14:00  12 CO CO-BOL --- SKGY 151200Z 01004KT 9000 VCFG FEW018 SCT030 BKN200 12/11 Q1029=  ## [A] Chía, Guaymaral Airport
323338 2022-11-27 18:00  23 CO CO-TOL IBE SKIB 271700Z 21003KT 9999 FEW018 BKN090 23/20 Q1020 RMK A3013=  ## [A] Ibagué, Perales Airport
323352 2022-11-27 18:00  17 CO CO-NAR IPI SKIP 271700Z 10008KT 9999 FEW020 BKN200 17/05 Q1030 RMK A3042=  ## [A] Ipiales, San Luis Airport
323367 2022-05-01 15:00  25               SKJE 011300Z VRB02KT 9999 BKN010 25/25 Q1011 RMK A2986=  ## [A]
323417 2022-11-27 18:00  30 CO CO-ANT APO SKLC 271700Z 18008KT 140V240 9999 SCT020 30/24 Q1012 RMK A2989=  ## [A] Carepa, Antonio Roldan Betancourt Airport
323434 2022-11-27 18:00  27 CO CO-AMA LET SKLT 271700Z 22003KT 9999 SCT013 BKN080 27/24 Q1012 RMK A2989=  ## [A] Leticia, Alfredo Vásquez Cobo International Airport
323444 2022-11-27 18:00  26 CO CO-ANT EOH SKMD 271700Z 17005KT 9999 SCT033 BKN200 26/14 Q1020 RMK A3014=  ## [A] Medellín, Enrique Olaya Herrera Airport
323458 2022-11-27 18:00  32 CO CO-COR MTR SKMR 271700Z VRB02KT 9999 SCT020 32/24 Q1011 RMK A2986=  ## [A] Montería, Los Garzones Airport
323459 2019-09-26 17:00  30               SKMS 261500Z 19009KT 9999 FEW030 SCT100 BKN200 30/24 A2995=  ## [A]
323461 2022-09-15 14:00  24 CO CO-VAU MVP SKMU 151200Z 31003KT 9000 NSC 24/23 Q1012 RMK HZ A2989=  ## [A] Mitú, Fabio Alberto Leon Bentley Airport
323466 2022-11-27 18:00  16 CO CO-CAL MZL SKMZ 271700Z VRB02KT 7000 -RA BKN012 16/16 Q1027 RMK A3036=  ## [A] Manizales, La Nubia Airport
323488 2022-11-27 18:00  26 CO CO-HUI NVA SKNV 271700Z 04004KT 9999 BKN023 SCT120 26/21 Q1014 RMK A2997=  ## [A] Neiva, Benito Salas Airport
323514 2020-03-29 23:00  29               SKOV 292100Z 09008KT 020V140 9999 FEW018 29/23 A2990=  ## [A]
323521 2022-11-27 18:00  31 CO CO-VID PCR SKPC 271700Z 29003KT 9999 SCT017 31/24 Q1010 RMK A2982=  ## [A] Puerto Carreño, German Olano Airport
323522 2022-08-03 19:00  29 CO CO-GUA PDA SKPD 031700Z VRB03KT 9999 FEW030 29/23 Q1011 RMK A2987=  ## [A] Puerto Inírida, Obando Airport
323523 2022-11-27 18:00  22 CO CO-RIS PEI SKPE 271700Z 24004KT 8000 BKN015 SCT080 22/19 Q1019 RMK HZ A3011=  ## [A] Pereira, Matecaña International Airport
323534 2022-09-15 14:00  12 CO CO-CAU PPN SKPP 151200Z VRB02KT 9999 FEW015 12/12 Q1021 RMK HZ=  ## [A] Popayán, Guillermo León Valencia Airport
323537 2022-11-27 18:00  19 CO CO-NAR PSO SKPS 271700Z 36006KT 9999 SCT020 BKN080 19/16 Q1022=  ## [A] Pasto, Antonio Narino Airport
323540 2022-11-27 18:00  29 CO CO-SAP PVA SKPV 271700Z 05014KT 9999 FEW017 BKN200 29/25 Q1013 RMK A2992=  ## [A] Providencia, El Embrujo Airport
323565 2022-09-15 14:00  22 CO CO-TOL MQU SKQU 151200Z 18005KT 7000 VCFG FEW010 SCT030 BKN080 22/22 Q1013 RMK VCSH/W A2994=  ## [A] Mariquita, Mariquita Airport
323577 2022-11-27 18:00  20 CO CO-ANT MDE SKRG 271700Z 11009KT 9999 VCSH FEW016CB SCT020 20/13 Q1026 BECMG FM1810 SCT020 RMK CB VCSH/SE/S A3030=  ## [A] Medellín, Jose Maria Córdova International Airport
323578 2022-11-27 18:00  29 CO CO-LAG RCH SKRH 271700Z VRB02KT 9999 VCSH SCT015TCU 29/25 Q1012 RERA RMK TCUN VCSH/W A2990=  ## [A] Riohacha, Almirante Padilla Airport
323583 2022-07-14 06:00  26               SKRM 140400Z 28005KT 9999 SCT023 26/24 Q1012 RMK A2990=  ## [A]
323597 2022-09-15 14:00  24 CO CO-ARA RVE SKSA 151200Z VRB03KT 9999 NSC 24/22 Q1013 RMK A2994=  ## [A] Saravena, Los Colonizadores Airport
323606 2022-09-15 14:00  23 CO CO-GUV SJE SKSJ 151200Z 00000KT 9999 NSC 23/23 Q1013 RMK A2993=  ## [A] San José Del Guaviare, Jorge E. Gonzalez Torres Airport
323607 2019-10-18 02:00  29               SKSK 180000Z 03004KT 9999 FEW020 BKN070 29/23 A2983=  ## [A]
323609 2022-11-27 18:00  32 CO CO-MAG SMR SKSM 271700Z 24003KT 9999 FEW020 32/25 Q1012 RMK A2991=  ## [A] Santa Marta, Simón Bolívar International Airport
323610 2019-10-28 03:00  28               SKSN 280200Z 14004KT 9999 FEW020 BKN070 28/24 A2983=  ## [A]
323612 2022-11-27 18:14  24 CO CO-SAP ADZ SKSP 271714Z 09007KT 030V140 9000 DZ BKN012 24/24 Q1013 RERA RMK A2992=  ## [A] San Andrés, Gustavo Rojas Pinilla International Airport
323635 2022-09-15 14:00  26 CO CO-ARA TME SKTM 151200Z 25005KT 9999 NSC 26/20 Q1015 RMK A2997=  ## [A] Tame, Gustavo Vargas Airport
323651 2022-11-27 18:00  32 CO CO-ARA AUC SKUC 271700Z 05003KT 9999 SCT020 32/24 Q1012 RMK A2988=  ## [A] Arauca, Santiago Perez Airport
323657 2022-11-27 18:00  29 CO CO-CHO UIB SKUI 271700Z 24005KT 170V290 9999 VCSH SCT020 29/24 Q1012 RMK VCSH/E A2989=  ## [A] Quibdó, El Caraño Airport
323660 2019-09-15 14:00  21 CO CO-VAC ULQ SKUL 151200Z 00000KT 9000 SCT040 21/19 A2998 NOSIG=  ## [A] Tuluá, Heriberto Gíl Martínez Airport
323690 2022-11-27 18:00  33 CO CO-CES VUP SKVP 271700Z 07011KT 030V100 9999 SCT015 33/22 Q1012 RMK A2991=  ## [A] Valledupar, Alfonso López Pumarejo Airport
323696 2022-11-27 18:00  24 CO CO-MET VVC SKVV 271700Z 34004KT 9000 -DZ SCT017 BKN070 24/22 Q1014 RMK A2997=  ## [A] Villavicencio, Vanguardia Airport
323768 2022-09-15 14:00  26 CO CO-CAS EYP SKYP 151200Z 00000KT 9999 NSC 26/22 Q1014 RMK A2995=  ## [A] El Yopal, El Yopal Airport
------ Bolivia:
323811 2022-09-16 14:00   9 BO BO-H   MHW SLAG 161200Z 00000KT 9999 NSC 09/03 Q1021=  ## [A] El Bañado, Monteagudo Airport
323816 2022-11-27 18:00  21               SLAL 271700Z 13010KT 9999 FEW020 21/M09 Q1032=  ## [A]
323820 2022-10-10 23:00  26 BO BO-L   APB SLAP 102100Z 35015KT 9999 SCT030 26/17 Q1013=  ## [A] Apolo, Apolo Airport
323823 2022-09-27 17:00  34 BO BO-S   ASC SLAS 271500Z 36010KT 2000 FU NSC 34/22 Q1013=  ## [A] Ascensión de Guarayos, Ascención De Guarayos Airport
323851 2020-02-06 15:00  29               SLBU 061400Z 03006KT 9999 FEW015 BKN080 29/25 Q1012=  ## [A]
323857 2022-11-27 18:00  36 BO BO-S   CAM SLCA 271700Z 18004KT 9999 NSC 36/05 Q1015=  ## [A] Camiri, Camiri Airport
323858 2022-11-27 18:00  25 BO BO-C   CBB SLCB 271700Z 24008KT 190V290 9000 FEW036 25/03 Q1026=  ## [A] Cochabamba, Jorge Wilsterman International Airport
323868 2020-03-19 10:00  22 BO BO-O   --- SLCL 190900Z 05003KT 9999 FEW030 SCT120 22/19 A3000 NOSIG=  ## [A] Abaroa, Collpani Airport
323871 2022-11-27 18:00  34 BO BO-N   CIJ SLCO 271700Z 26004KT 9999 FEW025 BKN200 34/25 Q1011=  ## [A] Cobija, Capitán Aníbal Arab Airport
323872 2022-11-27 18:00  35 BO BO-S   CEP SLCP 271700Z 18010KT 8000 SCT017 35/17 Q1013=  ## [A] Concepción, Concepción Airport
323928 2022-11-27 18:00  38 BO BO-S   SRZ SLET 271700Z 16009KT 9999 FEW023 38/15 Q1010=  ## [A] Santa Cruz, El Trompillo Airport
323973 2022-11-24 11:00  24               SLGM 241000Z 22003KT 7000 VCSH FEW004 BKN020 FEW023CB OVC070 24/23 Q1010=  ## [A]
323995 2022-11-11 23:00  32               SLHI 112200Z 00000KT 7000 FEW025 SCT080 BKN200 32/25 Q1002=  ## [A]
324015 2019-12-06 16:00  31               SLIC 061500Z 05004KT 9999 FEW020 31/23 A2995=  ## [A]
324043 2022-11-25 22:00  34 BO BO-S   SJS SLJE 252100Z 16006KT 9999 NSC 34/22 Q1011=  ## [A] San José de Chiquitos, San José De Chiquitos Airport
324053 2022-11-26 22:00  35 BO BO-B   SJB SLJO 262100Z 00000KT 9999 FEW017 FEW023CB BKN200 35/24 Q1007=  ## [A] San Joaquín, San Joaquín Airport
324060 2022-11-22 12:00  21 BO BO-S   SJV SLJV 221100Z 18012KT 9999 OVC010 21/19 Q1012=  ## [A] San Javier, San Javier Airport
324106 2022-11-27 18:00  15 BO BO-L   LPB SLLP 271700Z 14011KT 9999 FEW017 15/M06 Q1039=  ## [C] La Paz / El Alto, El Alto International Airport
324123 2022-11-26 18:00  35 BO BO-B   MGD SLMG 261700Z 22008KT 9999 FEW017 BKN200 35/21 Q1008=  ## [A] Magdalena, Magdalena Airport
324186 2022-11-27 17:00  19 BO BO-O   ORU SLOR 271600Z 03006KT 9999 FEW020 19/01 Q1036=  ## [A] Oruro, Juan Mendoza Airport
324209 2022-11-25 19:00  17 BO BO-P   POI SLPO 251800Z 06008KT 9999 NSC 17/M06 Q1041=  ## [A] Potosí, Capitan Nicolas Rojas Airport
324213 2022-11-26 17:00  33 BO BO-S   PSZ SLPS 261600Z 00000KT 9999 NSC 33/19 Q1010=  ## [A] Puerto Suárez, Capitán Av. Salvador Ogaya G. airport
324247 2022-11-08 19:00  36 BO BO-B   SRD SLRA 081800Z 34006KT 8000 SCT017 36/18 Q1012=  ## [A] San Ramón / Mamoré, San Ramón Airport
324248 2022-11-26 12:00  20 BO BO-S   RBO SLRB 261100Z 00000KT 9999 NSC 20/18 Q1015=  ## [A] Roboré, Roboré Airport
324255 2022-11-27 18:00  33 BO BO-B   RIB SLRI 271700Z 34004KT 9999 SCT020 BKN200 33/22 Q1010=  ## [A] Riberalta, Capitán Av. Selin Zeitun Lopez Airport
324263 2022-11-25 21:00  38               SLRQ 252000Z 02007KT 9999 FEW023 38/21 Q1005=  ## [A]
324271 2022-11-25 21:00  38 BO BO-B   REY SLRY 252000Z 00000KT 9999 NSC 38/19 Q1007=  ## [A] Reyes, Reyes Airport
324273 2022-11-27 18:00  35 BO BO-B   SBL SLSA 271700Z 00000KT 8000 NSC 35/20 Q1009=  ## [A] Santa Ana del Yacuma, Santa Ana Del Yacuma Airport
324274 2022-11-23 15:00  30 BO BO-B   SRJ SLSB 231400Z 12005KT 9999 SCT080 30/21 Q1014=  ## [A] San Borja, Capitán Av. German Quiroga G. Airport
324281 2021-10-16 23:00  24 BO BO-S   SNG SLSI 162100Z 18006KT 9999 SCT070 24/18 Q1012=  ## [A] San Ignacio de Velasco, Capitán Av. Juan Cochamanidis S. Airport
324285 2022-10-27 20:25  22 BO BO-B   SNM SLSM 271825Z 33015G35KT 0500 +TSRA BKN015 FEW023CB OVC070 22/22 Q1007=  ## [A] San Ignacio de Moxos, San Ignacio de Moxos Airport
324290 2022-11-19 20:00  35 BO BO-B   SRB SLSR 191900Z 34012KT 9999 SCT017 35/24 Q1006=  ## [A] Santa Rosa, Santa Rosa De Yacuma Airport
324294 2022-11-27 18:00  36               SLSV 271700Z 18006KT 9999 BKN017 36/23 Q1009=  ## [A]
324307 2022-10-01 19:00  34 BO BO-S   MQK SLTI 011700Z 15006KT 9999 NSC 34/18 Q1019=  ## [A] San Matías, San Matías Airport
324308 2022-11-27 18:00  29 BO BO-T   TJA SLTJ 271700Z 08005KT 9000 NSC 29/04 Q1022=  ## [A] Tarija, Capitan Oriel Lea Plaza Airport
324316 2022-11-27 18:00  35 BO BO-B   TDD SLTR 271700Z 27005KT 9999 NSC 35/24 Q1010=  ## [A] Trinidad, Teniente Av. Jorge Henrich Arauz Airport
324349 2022-11-27 15:00  15 BO BO-P   UYU SLUY 271400Z 11005KT 9999 FEW017 15/M05 Q1037=  ## [A] Quijarro, Uyuni Airport
324357 2022-11-22 12:00  13 BO BO-S   VAH SLVG 221100Z 18005KT 5000 VCSH OVC015 13/12 Q1025=  ## [A] Vallegrande, Capitán Av. Vidal Villagomez Toledo Airport
324363 2022-11-27 16:00  36 BO BO-T   VLM SLVM 271500Z 00000KT 9999 NSC 36/14 Q1013=  ## [A] Villamontes, Teniente Coronel Rafael Pabón Airport
324368 2022-11-27 18:00  38 BO BO-S   VVI SLVR 271700Z 17008KT 9999 FEW023 38/14 Q1010=  ## [C] Santa Cruz, Viru Viru International Airport
324429 2022-11-25 20:00  35 BO BO-T   BYC SLYA 251900Z 20010KT 9999 NSC 35/14 Q1013=  ## [A] Yacuíba, Yacuiba Airport
324485 2022-10-17 16:00  21               SMAE 171400Z 14012KT 9999 FEW045TCU SCT050 21/07 Q1017=  ## [A]
------ Surinam:
324730 2022-11-27 18:00  30 SR SR-PR  PBM SMJP 271700Z VRB02KT 9999 FEW010 BKN020 30/24 Q1010 NOSIG=  ## [A] Zandery, Johan Adolf Pengel International Airport
324786 2021-08-10 20:00  26 SR SR-SI  --- SMLT 101800Z 26012KT 8000 TSRA FEW018CB SCT019 26/24 Q//// NOSIG RMK CB ALQDS=  ## [A] Langatabbetje, Langatabbetje Airstrip
324870 2020-04-20 19:00  27               SMOZ 201700Z 12006KT 9999 VCSH SCT015 FEW020CB SCT030 27/23 Q1014 NOSIG=  ## [A]
324963 2020-12-30 14:00  29               SMSO 301300Z 04006KT 9999 SCT010 29/24 Q1012 NOSIG=  ## [A]
325035 2019-07-17 22:00  24               SMVI 172000Z 11004KT 9999 BKN016 24/23 Q1013=  ## [A]
325145 2022-11-27 18:00  29 SR SR-PM  ORG SMZO 271700Z 09003KT 9999 SCT015 FEW018CB SCT030 29/24 Q1010 NOSIG=  ## [A] Paramaribo, Zorg en Hoop Airport
325146 2022-10-27 12:00  25               SMZP 271000Z 08006KT 9999 FEW010 FEW020CB 25/24 Q1010 NOSIG=  ## [A]
------ Brasilien:
325612 2019-09-22 14:00  25 BR BR-SP  --- SNRN 221200Z 09003KT CAVOK 25/23 Q1012=  ## [A] Getulina, Fazenda Vinte de Maio Airport
325774 2019-08-14 07:08 XXX               SNXT 141300Z SLP064=  ## [A]
325835 2022-10-11 05:00  13               SOAC 110300Z 32005KT CAVOK 13/M03 Q1020=  ## [A]
------ Franska Guyana:
325885 2022-11-27 18:00  28 GF GF-CY  CAY SOCA 271700Z AUTO 08003KT 050V130 9999 FEW007 28/23 Q1011 TEMPO 2000 SHRA SCT010CB BKN015TCU=  ## [A] Cayenne / Rochambeau, Cayenne-Rochambeau Airport
325919 2021-12-29 08:00   6               SODI 290700Z 00000KT CAVOK 06/M03 Q1019=  ## [A]
326104 2020-03-26 11:00  21               SOKL 261000Z 10020KT 9999 SCT026 21/10 Q1012=  ## [A]
326321 2019-06-02 08:00  14               SOSU 020600Z 17010KT 9999 FEW018 14/08 Q1022=  ## [A]
------ Peru:
326533 2022-11-23 14:31  23 PE PE-UCA --- SPAY 231331Z /////KT 5000 -DZ BR BKN015 OVC090 23/22 Q1015=  ## [A] Atalaya, Teniente General Gerardo Pérez Pinedo Airport
326572 2022-11-27 18:00  33 PE PE-UCA PCL SPCL 271700Z 19003KT 9999 SCT025 33/23 Q1013 RMK BIRD HAZARD RWY 02/20 PP000=  ## [A] Pucallpa, Cap FAP David Abenzur Rengifo International Airport
326615 2020-07-07 15:15 XXX               SPEC 071315Z EGYE 29006KT 9999 FEW020 BKN035 OVC050 ///// Q1018 RMK BLU=  ## [A]
326627 2022-11-26 22:00  23 PE PE-ANC CHM SPEO 262100Z /////KT 9999 BKN020 23/16 Q//// RMK PP000=  ## [A] Chimbote, Teniente FAP Jaime A De Montreuil Morales Airport
326638 2021-12-25 07:08   1 PE PE-PAS --- SPEZ j$M606Z AUTO 00000KT 1 1/4SM -SN BR OVC024 01/M02 A2962 RMK AO2 P0000 T00061017 =  ## [A] Oxapampa, Puerto Bermudez Airport
326677 2022-11-27 15:00  22 PE PE-HUC TGI SPGM 271400Z 100004KT 9999 FEW040 SCT110 22/11 Q1026 RMK PP000=  ## [A] Tingo Maria, Tingo Maria Airport
326699 2022-11-27 18:00  24 PE PE-LAM CIX SPHI 271700Z 20010KT 170V230 CAVOK 24/16 Q1015 RMK BIRD HAZARD RWY 19/01 PP000=  ## [A] Chiclayo, Capitan FAP Jose A Quinones Gonzales International Airport
326705 2022-11-27 18:00  17 PE PE-AYA AYP SPHO 271700Z 04005KT 350V110 9999 SCT040 BKN100 17/04 Q1031 RMK PP000=  ## [A] Ayacucho, Coronel FAP Alfredo Mendivil Duarte Airport
326715 2022-11-26 23:00  12 PE PE-APU ANS SPHY 262200Z /////KT 9999 SCT012 BKN070 12/09 Q1034 RMK BIRD HAZARD RWY03/21 PP000=  ## [A] Andahuaylas, Andahuaylas Airport
326716 2022-10-14 18:00  20 PE PE-ANC ATA SPHZ 141600Z 34005KT CAVOK 20/09 Q1026 RMK PP000=  ## [A] Anta, Comandante FAP German Arias Graziani Airport
326729 2019-12-05 09:00  20 PE PE-LIM LIM SPIM 050800Z 16007KT 9999 STC007 BKN080 20/18 Q1013 RMK NOSIG PP000=  ## [A] Lima, Jorge Chávez International Airport
326743 2022-11-11 15:30  23 PE PE-SAM RIJ SPJA 111430Z 09001KT 5000 BR SCT012 BKN040 OVC070 23/21 Q1017=  ## [A] Rioja, Juan Simons Vela Airport
326745 2022-11-27 18:00  21               SPJC 271700Z 27007KT 230V300 9999 FEW016 OVC030 21/17 Q1015 NOSIG RMK PP000=  ## [A]
326747 2022-11-16 21:35  21 PE PE-CAJ JAE SPJE 162035Z 08005KT 3000 -RA BR BKN020 OVC070 21/21 Q1015=  ## [A] Jaén, Shumba Airport
326751 2022-11-26 20:00  33 PE PE-SAM JJI SPJI 261900Z 06003KT 9999 FEW022 BKN090 33/24 Q1017 RMK TX 33.4 PP000=  ## [A] Juanjuí, Juanjui Airport
326752 2022-11-13 22:27  20 PE PE-JUN JAU SPJJ 132127Z 05021G34KT 9999 FEW040 20/// Q1024=  ## [A] Jauja, Francisco Carle Airport
326754 2022-11-27 18:00  17 PE PE-PUN JUL SPJL 271700Z 11007KT 9999 FEW070 17/M07 Q1036 RMK PP000=  ## [A] Juliaca, Inca Manco Capac International Airport
326760 2022-11-27 18:00  22 PE PE-CAJ CJA SPJR 271700Z 13011KT 030V170 9999 SCT025 BKN050 22/M01 Q1027 RMK PP000=  ## [A] Cajamarca, Mayor General FAP Armando Revoredo Iglesias Airport
326809 2022-11-26 22:00  23 PE PE-MOQ ILQ SPLO 262100Z 19007KT CAVOK 23/17 Q1012 RMK TX26.4 PP000=  ## [A] Ilo, Ilo Airport
326825 2022-11-27 18:00  22 PE PE-TUM TBP SPME 271700Z 31005KT 9999 OVC011 22/20 Q1015 RMK BIRD HAZARD RWY 32/14 PP000=  ## [A] Tumbes, Capitan FAP Pedro Canga Rodriguez Airport
326826 2022-11-10 14:00  23 PE PE-JUN MZA SPMF 101300Z 20004KT 9999 FEW020 OVC090 23/20 Q1017 RMK PP000=  ## [A] Mazamari, Mayor PNP Nancy Flores Paucar Airport
326839 2022-11-27 18:00  26 PE PE-LOR YMS SPMS 271700Z 13005KT 9999 SCT010 BKN100 26/24 Q1013 RMK BIRD HAZARD RWY 09/27 PP000=  ## [A] Yurimaguas, Moises Benzaquen Rengifo Airport
326849 2022-11-27 18:00  28 PE PE-HUC HUU SPNC 271700Z 11005KT 9999 SCT040 28/09 Q1022 RMK PP000=  ## [A] Huánuco, Alferez Fap David Figueroa Fernandini Airport
326923 2022-11-26 22:00  19 PE PE-AMA CHH SPPY 262100Z 11013KT 9999 FEW040 19/06 Q1025 RMK TX20.6 PP000=  ## [A] Chachapoyas, Chachapoyas Airport
326944 2022-11-27 18:00  28 PE PE-LOR IQT SPQT 271700Z 27005KT 230V300 9999 BKN013 BKN100 28/26 Q1012 NOSIG RMK PP000=  ## [A] Iquitos, Coronel FAP Francisco Secada Vignetta International Airport
326945 2022-11-27 18:00  20 PE PE-ARE AQP SPQU 271700Z 26010KT 230V290 9999 FEW100 20/05 Q1026 NOSIG RMK PP000=  ## [A] Arequipa, Rodríguez Ballón International Airport
326971 2022-11-27 18:00  21 PE PE-LAL TRU SPRU 271700Z 17010KT 8000 VCFG BKN040 21/18 Q1015 RMK PP000=  ## [A] Trujillo, Capitan FAP Carlos Martinez De Pinillos International Airport
326991 2022-11-27 18:00  21 PE PE-ICA PIO SPSO 271700Z 28006KT 250V310 9999 FEW011 OVC030 21/17 Q1015 RMK BIRD HAZARD RWY 22/04 PP000=  ## [A] Pisco, Capitán FAP Renán Elías Olivera International Airport
326996 2022-11-27 18:00  29 PE PE-SAM TPP SPST 271700Z 15003KT 9999 SCT015 BKN100 29/24 Q1013 RMK BIRD HAZARD RWY 17/35 PP000=  ## [A] Tarapoto, Cadete FAP Guillermo Del Castillo Paredes Airport
327016 2022-11-27 18:00  22 PE PE-TAC TCQ SPTN 271700Z 26004KT CAVOK 22/14 Q1014 RMK PP000=  ## [A] Tacna, Coronel FAP Carlos Ciriani Santa Rosa International Airport
327023 2022-11-27 18:00  35 PE PE-MDD PEM SPTU 271700Z VRB04KT CAVOK 35/24 Q1010 RMK BIRD HAZARD RWY 01/19 PP000=  ## [A] Puerto Maldonado, Padre Aldamiz International Airport
327046 2022-11-21 10:00  18 PE PE-PIU PIU SPUR 210900Z 19004KT 9999 BKN030 18/14 Q1012 RMK BIRD HAZARD RWY 19/01 PP000=  ## [A] Piura, Capitán FAP Guillermo Concha Iberico International Airport
327144 2022-11-27 18:00  26 PE PE-PIU TYL SPYL 271700Z 21012KT 9999 SCT030 26/18 Q1015 RMK BIRD HAZARD RWY 17/35 PP000=  ## [A] Talara, Capitan Montes Airport
327159 2022-09-18 13:00  12 PE PE-ICA NZC SPZA 181100Z VRB02KT 8000 NSC 12/10 Q1015 RMK PP000=  ## [A] Nazca, Maria Reiche Neuman Airport
327173 2022-11-27 18:00  20 PE PE-CUS CUZ SPZO 271700Z VRB04KT 9999 SCT050 20/01 Q1030 NOSIG RMK BIRD HAZARD RWY 10/28 PP000=  ## [A] Cusco, Alejandro Velasco Astete International Airport
327866 2022-06-09 04:00  16               SRAF 090200Z 14007KT 9999 OVC006 16/15 Q1015=  ## [A]
------ Brasilien:
329095 2019-12-02 06:00  25 BR BR-MS  --- SSVM 020500Z 09002KT 9999 SCT016 BKN100 25/24 Q1011=  ## [A] Itaporã, Fazenda Santa Alaíde Airport
329329 2020-04-15 17:44 XXX               STEM 151544Z JB=  ## [A]
329526 2021-10-27 23:00  24               STMB 272100Z 00000KT 9999 BKN012 SCT032 OVC080 FEW014CB 24/23 Q//// NOSIG RMK CB ALQDS=  ## [A]
------ Uruguay:
329889 2022-11-27 18:00  29 UY UY-MO  --- SUAA 271700Z 10009KT 9999 SCT026 29/20 Q1019=  ## [A] Montevideo, Angel S Adami Airport
329895 2021-05-03 04:00  19 UY UY-AR  ATI SUAG 030200Z 12007KT CAVOK 19/15 Q1013=  ## [A] Artigas, Artigas International Airport
329941 2022-11-27 18:00  27 UY UY-CO  CYR SUCA 271700Z 14012KT 9999 FEW030 SCT200 27/22 Q1018=  ## [A] Colonia del Sacramento, Laguna de Los Patos International Airport
329975 2020-12-18 00:00  29               SUDI 172300Z 05008KT 9999 FEW030 29/12 Q1009=  ## [A]
329981 2020-02-21 10:00  12               SUDO 210900Z 22005KT CAVOK 12/11 Q1020=  ## [A]
329987 2022-11-27 18:00  32 UY UY-DU  DZO SUDU 271700Z 06009KT 9999 SCT017 32/19 Q1019=  ## [A] Durazno, Santa Bernardina International Airport
329991 2022-05-11 09:00  11               SUDY 110700Z 22004KT 8000 BKN017 11/11 Q1018=  ## [A]
330193 2022-11-27 18:00  30 UY UY-MA  PDP SULS 271700Z 07008KT 030V110 9999 FEW026 30/18 Q1020=  ## [A] Punta del Este, Capitan Corbeta CA Curbelo International Airport
330215 2022-11-19 16:00  33 UY UY-CL  MLZ SUMO 191500Z 05006KT 9999 FEW030 BKN200 33/16 Q1010=  ## [A] Melo, Cerro Largo International Airport
330221 2022-11-27 18:00  27 UY UY-CA  MVD SUMU 271700Z 13012KT 9999 FEW026 27/21 Q1020 NOSIG=  ## [C] Montevideo, Carrasco International /General C L Berisso Airport
330352 2021-11-11 01:00  19 UY UY-RV  RVY SURV 110000Z 16002KT CAVOK 19/11 Q1020=  ## [A] Rivera, Presidente General Don Oscar D. Gestido International Airport
330371 2022-11-27 18:00  32 UY UY-SA  STY SUSO 271700Z 14008KT 9999 SCT030 32/18 Q1015=  ## [A] Salto, Nueva Hesperides International Airport
330377 2022-05-04 15:00  13               SUSU 041300Z 12003KT CAVOK 13/11 Q1023=  ## [A]
------ Venezuela:
330593 2022-11-27 18:03  30 VE VE-B   BLA SVBC 271703Z AUTO 03008KT NCD 30/24 Q1013=  ## [A] Barcelona, General José Antonio Anzoategui International Airport
330599 2022-11-27 18:03  32 VE VE-E   BNS SVBI 271703Z AUTO 09006KT NCD 32/22 Q1016=  ## [A] Barinas, Barinas Airport
330603 2022-11-27 18:03  28 VE VE-K   BRM SVBM 271703Z AUTO 14007KT NCD 28/17 Q1016=  ## [A] Barquisimeto, Barquisimeto International Airport
330604 2021-05-10 12:00  20 VE VE-F   --- SVBN 101000Z 09002KT 9999 OVC010 20/19 Q1015=  ## [A] , Bocon Airport
330609 2022-11-27 18:03  31 VE VE-D   MYC SVBS 271703Z AUTO 25004KT NCD 31/19 Q1016=  ## [A] Maracay, Escuela Mariscal Sucre Airport
330618 2022-11-27 18:03  32 VE VE-F   CBL SVCB 271703Z AUTO 03005KT NCD 32/21 Q1011=  ## [A] , Aeropuerto "General Tomas de Heres". Ciudad Bolivar
330626 2022-11-26 16:03 XXX VE VE-H   --- SVCJ 261503Z AUTO NIL=  ## [A] San Carlos, San Carlos Airport
330629 2021-05-28 21:00  30 VE VE-H   --- SVCM 281900Z 09002KT 9999 SCT016 BKN100 30/24 Q1012=  ## [A] Tinaco, Cañita Mendera Airport
330634 2022-11-14 14:00  29 VE VE-I   CZE SVCR 141300Z 00000KT 9999 FEW016 29/26 Q1013=  ## [A] Coro, José Leonardo Chirinos Airport
330635 2022-11-27 18:03  23 VE VE-M   --- SVCS 271703Z AUTO 10007KT NCD 23/20 Q1017=  ## [A] Caracas, Oscar Machado Zuluaga Airport
330637 2019-06-24 20:04 XXX VE VE-R   CUM SVCU 241804Z 10025KT 9999 CB/NE=  ## [A] , Cumaná (Antonio José de Sucre) Airport
330707 2022-11-27 18:03  24 VE VE-M   --- SVFM 271703Z AUTO 11005KT NCD 24/19 Q1016=  ## [A] La Carlota, Francisco de Miranda Airport
330724 2022-11-27 18:03  31 VE VE-C   GDO SVGD 271703Z AUTO 01006KT NCD 31/23 Q1014=  ## [A] , Guasdalito Airport
330741 2022-11-27 18:03  32 VE VE-P   GUQ SVGU 271703Z AUTO 08007KT NCD 32/21 Q1013=  ## [A] Guanare, Guanare Airport
330785 2021-05-10 12:00  23 VE VE-P   --- SVIM 101000Z 00000KT 9999 SCT016 SCT080 23/20 Q1015=  ## [A] , Hato El Caimán Airport
330801 2022-11-25 20:00  31 VE VE-I   LSP SVJC 251900Z 09010KT 9999 SCT014 31/23 Q1011=  ## [A] Paraguaná, Josefa Camejo International Airport
330811 2022-11-27 18:03  30 VE VE-J   --- SVJM 271703Z AUTO 19005KT NCD 30/21 Q1013=  ## [A] San Juan de los Morros, San Juan de Los Morros Airport
330856 2020-08-09 01:00 XXX VE VE-S   LFR SVLF 082300ZZ NIL=  ## [A] , La Fria Airport
330865 2022-11-27 18:03 XXX VE VE-W   --- SVLO 271703Z AUTO NIL=  ## [A] , La Orchila Airport
330878 2021-09-13 14:00  24 VE VE-J   --- SVMB 131200Z 09002KT 9999 FEW016 24/19 Q1017=  ## [A] , El Embrujo Airport
330879 2022-11-27 18:03  30 VE VE-V   MAR SVMC 271703Z AUTO 03008KT NCD 30/23 Q1013=  ## [A] Maracaibo, La Chinita International Airport
330880 2022-11-14 17:00 XXX VE VE-L   MRD SVMD 141600Z 24010KT 9999 FEW050 SCT080 XX/XX Q1019=  ## [A] Mérida, Alberto Carnevalli Airport
330883 2022-11-27 18:03  28 VE VE-O   PMV SVMG 271703Z AUTO 09010KT NCD 28/27 Q1013=  ## [A] Isla Margarita, Del Caribe Santiago Mariño International Airport
330885 2022-11-27 18:03 XXX VE VE-X   CCS SVMI 271703Z AUTO 00000KT NCD ///// Q////=  ## [C] Caracas, Simón Bolívar International Airport
330889 2021-05-10 21:00  31 VE VE-I   --- SVMM 101900Z 09003KT 9999 SCT016 31/24 Q1012=  ## [A] , Mamón Airport
330891 2021-02-11 03:00  24 VE VE-C   --- SVMO 110200Z 05003KT 9999 BKN016 24/22 Q1012=  ## [A] , El Milagro Oeste Airport
330896 2022-11-27 18:03  28 VE VE-N   MUN SVMT 271703Z AUTO 04006KT NCD 28/27 Q1013=  ## [A] , Maturín Airport
330911 2021-05-10 10:00  23               SVNI 100800Z 00000KT 9999 SCT016 BKN080 23/21 Q1015=  ## [A]
330955 2022-11-27 18:03 XXX VE VE-Z   PYH SVPA 271703Z AUTO NIL=  ## [A] Puerto Ayacucho, Cacique Aramare Airport
330957 2019-12-24 14:00 XXX VE VE-G   PBL SVPC 241300Z 00000KT 9999 SCT020 XX/XX Q1011=  ## [A] , General Bartolome Salom International Airport
330967 2020-09-22 14:00 XXX VE VE-S   SCI SVPM 221200ZNIL=  ## [A] , Paramillo Airport
330972 2022-11-27 18:03  30 VE VE-F   PZO SVPR 271703Z AUTO 11003KT NCD 30/21 Q1013=  ## [A] Puerto Ordaz-Ciudad Guayana, General Manuel Carlos Piar International Airport
331033 2022-11-25 20:00 XXX VE VE-S   SVZ SVSA 251900Z /////KT 9999 BKN050 XX/XX Q////=  ## [A] , San Antonio Del Tachira Airport
331050 2022-11-27 18:03 XXX VE VE-C   SFD SVSR 271703Z AUTO NIL=  ## [A] Inglaterra, San Fernando De Apure Airport
331058 2022-01-20 12:00 XXX VE VE-V   STB SVSZ 201100Z0 NIL=  ## [A] , Santa Bárbara del Zulia Airport
331111 2022-11-27 18:03  33 VE VE-G   VLN SVVA 271703Z AUTO 11006KT NCD 33/19 Q1014=  ## [A] Valencia, Arturo Michelena International Airport
331112 2022-04-17 18:00  22 VE VE-J   --- SVVB 171600Z 09006KT 9999 6000 TSRA OVC013 CB/E 22/19 Q1015=  ## [A] , Bajo Verde Airport
331117 2022-11-25 20:00  30 VE VE-L   VIG SVVG 251900Z 00000KT 8000 -RA BKN017 30/26 Q1009=  ## [A] El Vigía, Juan Pablo Pérez Alfonso Airport
331122 2022-11-27 18:03  27 VE VE-T   VLV SVVL 271703Z AUTO 03003KT NCD 27/23 Q1016=  ## [A] Valera, Dr. Antonio Nicolás Briceño Airport
331123 2021-02-01 21:13  30 VE VE-C   --- SVVM 012013Z 09006KT 9999 SCT016 30/20 Q1013=  ## [A] , Buena Vista del Caño Medio Airport
331129 2022-02-11 13:00  22 VE VE-V   --- SVVS 111200Z /////KT 9999 SCT016 22/19 Q1012=  ## [A] , Villa del Rosario Airport
331132 2019-07-11 18:00  29 VE VE-G   --- SVVV 111600Z /////KT 9999 FEW016 29/22 Q1015=  ## [A] , Venepal Airport
------ Brasilien:
331799 2021-06-04 11:00  26 BR BR-MG  --- SWVM 040900Z 12008KT 9999 SCT016 26/21 Q1013=  ## [A] Belo Horizonte, Vinte e Oito Helipad
------ Guyana:
332654 2022-11-27 18:00  24 GY GY-DE  GEO SYCJ 271700Z 36006KT 9999 FEW016CB SCT018 BKN038 BKN080 24/24 Q1010 NOSIG RMK CB ALQDS=  ## [A] Georgetown, Cheddi Jagan International Airport
332699 2022-11-27 18:00  26               SYEC 271700Z 05006KT 9999 -RA FEW014CB SCT015 BKN034 OVC080 26/24 Q1010 NOSIG RMK CB E$&S-W=  ## [A]
332751 2021-06-11 23:00  29               SYGC 112100Z 02006KT 9999 FEW022 SCT100 29/24 Q1012=  ## [A]
332865 2022-11-21 19:00  33 GY GY-CU  KAR SYKM 211800Z 09012KT 9999 SCT028 33/24 Q//// NOSIG=  ## [A] Kamarang, Kamarang Airport
332872 2022-10-26 20:00  29 GY GY-PT  KTO SYKT 261800Z 08006KT 9999 SCT018 FEW020CB 29/23 Q///// NOSIG RMK CB S-W & NW=  ## [A] Kato, Kato Airport
332898 2022-11-27 16:00  30 GY GY-UT  LTM SYLT 271500Z 13012KT 9999 BKN024 30/24 Q//// NOSIG=  ## [A] Lethem, Lethem Airport
332903 2022-11-08 19:00  27               SYLY 081800Z 22012KT 9999 FEW022CB SCT024 27/25 Q//// NOSIG RMK CB ALQDS METAR =  ## [A]
332906 2022-11-27 16:00  25 GY GY-BA  USI SYMB 271500Z 09004KT 7000 SHRA BKN018 SCT032 BKN090 25/24 Q//// NOSIG=  ## [A] Mabaruma, Mabaruma Airport
333595 2020-07-18 21:00  29               SZMO 181900Z 03010KT 6000 -SHRA FEW020CB SCT025 29/23 Q1010 NOSIG=  ## [A]
333962 2020-06-10 09:00  29               TAAR 100700Z 24010KT 9999 BKN022 29/22 Q1013=  ## [A]
333977 2019-08-12 15:30  29               TABG 121330Z 10010KT 9999 BKN100 29/11 Q1014 R12/CLRD// NOSIG=  ## [A]
334264 2022-11-18 02:54 XXX               TAMH 180154Z AU?o P&LL$Sa|{&JLJ =  ## [A]
------ Antigua och Barbuda:
334335 2022-11-27 18:00  29 AG AG-03  ANU TAPA 271700Z 09011KT 050V130 9999 BKN020 29/23 Q1015 NOSIG=  ## [A] St. John's, V.C. Bird International Airport
334403 2022-04-23 09:53 XXX               TARQ 230753Z qU=  ## [A]
334653 2019-07-05 19:00  31               TBBG 051700Z 09006KT 9999 FEW050CB BKN083 31/13 Q1007 R12/CLRD// NOSIG=  ## [A]
------ Barbados:
335012 2022-11-27 18:00  28 BB BB-01  BGI TBPB 271700Z 10018KT 9999 VCSH FEW016 SCT036 28/23 Q1012 NOSIG=  ## [A] Bridgetown, Sir Grantley Adams International Airport
335162 2022-09-19 14:00  23               TBUV 191200Z 27005KT 9999 FEW014 FEW016CB BKN090 23/18 Q1016=  ## [A]
335635 2019-08-03 22:00  32               TCNA 032000Z 08023KT 9999 FEW025 32/25 Q1010 NOSIG =  ## [A]
------ Dominica:
336030 2022-11-27 17:00  28 DM DM-10  DCF TDCF 271600Z 15003KT 9999 BKN016 SCT036 28/21 Q1014=  ## [A] Canefield, Canefield Airport
336340 2019-12-06 22:00  27               TDOD 062100Z 11008KT 9999 BKN017 27/23 Q1014=  ## [A]
336366 2022-11-27 18:00  29 DM DM-02  DOM TDPD 271700Z 11012KT 9999 BKN016 29/25 Q1015=  ## [A] Marigot, Douglas-Charles Airport
336368 2020-12-04 20:00 XXX               TDPF 041900Z 12006KT 9999 FEW01728/22 Q1014=  ## [A]
------ Martinique:
337460 2022-11-27 18:00  30 MQ MQ-U-A FDF TFFF 271700Z AUTO 10016KT 070V130 9999 BKN027 BKN032 30/23 Q1013 NOSIG=  ## [A] Fort-de-France, Martinique Aimé Césaire International Airport
------ Guadeloupe:
337472 2022-11-27 18:00  30 GP GP-U-A PTP TFFR 271700Z AUTO 12014KT 9999 SCT029 BKN034 BKN041 30/22 Q1014 TEMPO 3000 SHRA FEW015CB BKN018TCU=  ## [A] Pointe-à-Pitre, Pointe-à-Pitre Le Raizet
------ Grenada:
338415 2022-11-27 18:00  25 GD GD-GE  GND TGPY 271700Z 08015KT 9999 -SHRA VCSH SCT016 OVC032 25/24 Q1012 NOSIG RMK VCSH-ALQDS=  ## [A] Saint George's, Point Salines International Airport
339011 2021-06-01 05:00  19               THMW 010300Z 15008KT 9999 FEW018 FEW019CB 19/15 Q1015 NOSIG=  ## [A]
339650 2021-09-13 04:50 XXX               TILL 131200Z SLP152=  ## [A]
------ Amerikanska Jungfruöarna:
339840 2022-11-27 17:53  31 VI VI-U-A STT TIST 271653Z 07010KT 10SM FEW027 FEW035 31/23 A2999 RMK AO2 SLP155 T03110228=  ## [A] Charlotte Amalie,  Harry S. Truman Airport, Cyril E. King Airport
339844 2022-11-27 18:20  29 VI VI-U-A STX TISX 271720Z 04011KT 10SM BKN029 BKN035 29/23 A2998 RMK AO2 T02940228 $  ## [A] Christiansted, Henry E Rohlsen Airport
------ Puerto Rico:
340071 2022-11-27 17:50  28 PR PR-U-A BQN TJBQ 271650Z 08013G17KT 10SM CLR 28/22 A3003=  ## [A] Aguadilla, Rafael Hernandez Airport
340243 2022-11-27 17:45  28 PR PR-U-A SIG TJIG 271645Z 08012KT 10SM SCT035 28/22 A3001=  ## [A] San Juan, Fernando Luis Ribas Dominicci Airport
340384 2022-11-27 17:44  29               TJNR 271644Z AUTO 04009KT 10SM BKN026 29/22 A3002 RMK AO2 T02940222 $ =  ## [A]
340437 2022-11-27 18:15  30 PR PR-U-A PSE TJPS 271715Z AUTO 15011KT 10SM RA CLR 30/23 A2996 RMK AO2 TSNO=  ## [A] Ponce, Mercedita Airport
340506 2022-11-27 17:56  29 PR PR-U-A SJU TJSJ 271656Z 07012KT 10SM SCT031 29/22 A3001 RMK AO2 SLP161 T02940222=  ## [A] San Juan, Luis Munoz Marin International Airport
341082 2021-02-04 23:00  27               TKON 042200Z 11011KT 9999 FEW018 27/23 Q1016=  ## [A]
------ Saint Kitts och Nevis:
341105 2022-11-27 18:00  29 KN KN-U-A SKB TKPK 271700Z 06015KT 9999 SCT019 29/24 Q1015=  ## [A] Basseterre, Robert L. Bradshaw International Airport
341107 2021-06-25 13:00  28               TKPM 251100Z 08014KT 9999 BKN020 28/25 Q1015=  ## [A]
341108 2022-11-27 17:00  29 KN KN-U-A NEV TKPN 271600Z 08013KT 9999 FEW017TCU 29/24 Q1016=  ## [A] Charlestown, Vance W. Amory International Airport
341114 2022-05-10 19:00  31               TKPT 101700Z 10015KT 9999 FEW014CB 31/23 Q1015=  ## [A]
341448 2022-01-01 00:00  26               TLCP 312300Z 08010KT 9999 -SHRA BKN024 26/22 Q1015 NOSIG=  ## [A]
------ Saint Lucia:
341773 2022-11-27 18:00  30 LC LC-02  SLU TLPC 271700Z 09009KT 9999 SCT024 30/24 Q1013 NOSIG=  ## [A] Castries, George F. L. Charles Airport
341782 2022-11-27 18:00  30 LC LC-11  UVF TLPL 271700Z 09019KT 9999 SCT026 30/23 Q1013 NOSIG=  ## [A] Vieux Fort, Hewanorra International Airport
342109 2020-01-31 10:00  26               TMCA 310900Z 08011KT 9999 FEW017 26/23 Q1013 NOSIG=  ## [A]
------ Aruba:
342785 2022-11-27 18:00  30 AW AW-U-A AUA TNCA 271700Z 07016KT 9999 SCT025 30/24 Q1013 NOSIG=  ## [A] Oranjestad, Queen Beatrix International Airport
------ Karibiska Nederländerna:
342786 2022-11-27 17:55  30 BQ BQ-U-A BON TNCB 271655Z 06015KT 030V090 9999 SCT021 30/23 Q1013=  ## [A] Kralendijk, Flamingo International Airport
------ Curacao:
342787 2022-11-27 18:00  28 CW CW-U-A CUR TNCC 271700Z 08010KT 9999 FEW022 28/23 Q1013 NOSIG=  ## [A] Willemstad, Hato International Airport
------ Karibiska Nederländerna:
342789 2022-11-27 17:55  29 BQ BQ-U-A EUX TNCE 271655Z AUTO 07014KT 040V100 //// // ///////// 29/23 Q1015 RE//=  ## [A] Sint Eustatius, F. D. Roosevelt Airport
------ Sint Maarten:
342797 2022-11-27 18:00  29 SX SX-U-A SXM TNCM 271700Z 07012KT 040V110 9999 SCT020 29/22 Q1016 NOSIG =  ## [A] Saint Martin, Princess Juliana International Airport
342798 2022-07-24 18:00  31               TNCN 241600Z 08010KT 040V110 9999 SCT018 31/24 Q1017 NOSIG =  ## [A]
342823 2022-05-23 23:00  29               TNDM 232100Z 07010KT 9999 SCT018 29/21 Q1017 NOSIG =  ## [A]
342925 2021-06-11 17:54 XXX               TNHK 111554Z COR 120T2 SET P0001 T02220211 $  ## [A]
344358 2021-08-06 17:00  30               TPKN 061500Z 09009KT 9999 FEW024 SCT048 30/24 Q1019=  ## [A]
344372 2020-09-14 07:38  31               TPLB 140538Z 22012KT 9000 VCSH FEW018TCU FEW020 BKN300 31/26 Q1007 RMK A2974 TCU W/ DSTNT PCPN W=  ## [A]
344422 2020-02-06 08:00  30               TPMZ 060700Z 26010KT 9999 FEW017 BKN300 30/25 Q1008 RMK A2977=  ## [A]
344490 2021-02-22 15:00  27               TPPP 221400Z 11009KT 9999 FEW024 27/20 Q1017 A3005=  ## [A]
344533 2022-09-03 22:00  28               TPRG 032000Z 21012KT 9999 -SHRA SCT014 BKN036 28/24 Q1011 RETS=  ## [A]
344541 2022-03-31 07:52  26               TPRO 310552Z 05009G14KT 4SM TSRA BKN014CB BKN100 OVC280 26/23 A2977 RMK OCNL LTGIC OHD TS E CB OHD AND ALQDS =  ## [A]
344553 2020-01-20 00:50  31               TPSA 192350Z 09010KT 10SM BKN08TCU BKN130 BKN300 31/25 A2983 RMK TCU NE =  ## [A]
------ Anguilla:
345156 2022-11-27 18:00  29 AI AI-U-A AXA TQPF 271700Z 09012KT 9999 SCT020 29/23 Q1016=  ## [A] The Valley, Clayton J Lloyd International Airport
345558 2020-10-23 22:00  18               TRER 232000Z 01003KT 350V050 CAVOK 18/M06 Q1018 NOSIG=  ## [A]
345599 2019-07-16 22:00  30               TRGG 162000Z 11010KT 9999 FEW020 30/24 Q1016=  ## [A]
345608 2022-10-31 18:00  29               TRGP 311700Z 10017KT 9999 SCT016 29/25 Q1014=  ## [A]
345807 2022-02-04 14:00  26               TROG 041300Z 10010KT 9999 SCT018 26/22 Q1018=  ## [A]
------ Montserrat:
345833 2022-11-27 18:00  28 MS MS-U-A MNI TRPG 271700Z 09014KT 9999 BKN018 28/24 Q1016=  ## [A] Gerald's Park, John A. Osborne Airport
345834 2019-11-07 22:00  27               TRPH 072100Z 09011KT 9999 FEW020 27/23 Q1014=  ## [A]
346806 2021-08-07 05:00  12               TTAR 070300Z 00000KT9999 SCT021 12/11 Q1023 NOSIG=  ## [A]
------ Trinidad och Tobago:
346856 2022-11-27 18:00  25 TT TT-WTO TAB TTCP 271700Z 10014KT 6000 -SHRA BKN014 25/24 Q1012 NOSIG=  ## [A] Scarborough, Tobago-Crown Point Airport
346976 2019-10-21 16:00  31               TTHF 211400Z 08011KT 060V120 9999 SCT026 31/13 Q1014 NOSIG=  ## [A]
347194 2022-11-27 18:00  24 TT TT-TUP POS TTPP 271700Z 00000KT 9999 -RA VCSH FEW002 SCT035 24/24 Q1012 NOSIG RMK JP ALL QUADS=  ## [A] Port of Spain, Piarco International Airport
347277 2019-11-15 22:00  19               TTSU 152100Z 00000KT 9999 FEW020 19/14 Q1017=  ## [A]
347320 2019-12-08 15:00  18               TTUL 081400Z AUTO VRB02KT NCD 18/14 Q1019=  ## [A]
------ Brittiska Jungfruöarna:
347864 2022-11-27 18:00  28 VG VG-U-A EIS TUPJ 271700Z 06007KT 10SM SCT019 28/25 A3001 RMK Q1016 VIS16KM=  ## [A] Road Town, Terrance B. Lettsome International Airport
------ Saint Vincent och Grenadinerna:
348609 2022-11-27 18:00  29 VC VC-U-A SVD TVSA 271700Z 06006KT 9999 VCSH BKN016 29/24 Q1013 NOSIG =  ## [A] Kingstown, Argyle International Airport
348630 2019-12-13 21:43  27 VC VC-04  SVD TVSV 132043Z 12005G18KT 4000 SHRA BKN014 27/23 Q1010=  ## [A] Kingstown, E. T. Joshua Airport
------ Bermuda:
349758 2022-11-27 17:55  22 BM BM-U-A BDA TXKF 271655Z 29009KT 260V330 9999 SCT033 22/14 Q1019 =  ## [A] Hamilton, L.F. Wade International International Airport
------ Kazakstan:
351521 2022-11-27 18:18 -14 KZ KZ-ALM ALA UAAA 271718Z 05001MPS 1000 R05L/P2000N R05R/P2000N BR SCT006 BKN100 M14/M15 Q1031 NOSIG RMK QBB190=  ## [A] Almaty, Almaty Airport
351528 2022-11-27 12:30 -16 KZ KZ-KAR BXH UAAH 271130Z 08008MPS CAVOK M16/M23 Q1041 NOSIG RMK QFE743/0991=  ## [A] Balkhash, Balkhash Airport
------ Kirgizistan:
351540 2022-11-27 14:30 -20 KG KG-C   --- UAAT 271330Z 06005MPS 9999 FEW200 M20/M23 Q1035 NOSIG RMK QFE724/0965=  ## [A] Ak Bashat village, Ak Bashat Airport
------ Kazakstan:
351575 2022-11-27 18:00 -29 KZ KZ-AKM TSE UACC 271700Z 07006MPS 9000 NSC M29/M33 Q1047 NOSIG RMK QFE753/1004=  ## [A] Astana, Astana International Airport
351583 2022-11-27 12:30 -24 KZ KZ-AKM KOV UACK 271130Z 11002MPS CAVOK M24/M28 Q1050 NOSIG RMK QFE763/1018=  ## [A] Kokshetau, Kokshetau Airport
351588 2022-11-27 12:30 -24 KZ KZ-SEV PPK UACP 271130Z 13004MPS CAVOK M24/M28 Q1053 NOSIG RMK QFE777/1036=  ## [A] Petropavlosk, Petropavlosk South Airport
351602 2022-11-27 18:00  -6 KZ KZ-ZHA DMB UADD 271700Z 02003MPS 9999 OVC012 M06/M12 Q1025 NOSIG RMK MT OBSC QFE712/0949=  ## [A] Taraz, Taraz Airport
351737 2022-11-27 18:00   4 KZ KZ-YUZ CIT UAII 271700Z 09003MPS CAVOK 04/M02 Q1018 NOSIG RMK QFE728/0971=  ## [A] Shymkent, Shymkent Airport
351748 2022-11-27 18:00   3               UAIT 271700Z 07013MPS CAVOK 03/M16 Q1019 NOSIG RMK QFE739/0986=  ## [A]
351784 2022-11-27 15:30 -11 KZ KZ-KAR DZN UAKD 271430Z 08009MPS CAVOK M11/M20 Q1037 NOSIG RMK QFE743/0991=  ## [A] Zhezkazgan, Zhezkazgan Airport
351791 2022-11-27 18:00 -27 KZ KZ-KAR KGF UAKK 271700Z 07005MPS CAVOK M27/M31 Q1043 NOSIG RMK QFE734/0979=  ## [A] Karaganda, Sary-Arka Airport
351899 2022-11-27 18:00  -6 KZ KZ-KZY KZO UAOO 271700Z 09015MPS CAVOK M06/M17 Q1025 NOSIG RMK QFE757/1009=  ## [A] Kzyl-Orda, Kzyl-Orda Southwest Airport
351980 2022-11-27 18:00  -5 KZ KZ-ZAP URA UARR 271700Z 07006MPS CAVOK M05/M12 Q1033 NOSIG RMK QFE772/1029=  ## [A] Uralsk, Uralsk Airport
351999 2022-11-27 18:00 -38 KZ KZ-VOS UKK UASK 271700Z VRB01MPS 5000 BR FEW010 M38/M42 Q1051 NOSIG RMK QFE762/1016=  ## [A] Ust Kamenogorsk, Ust-Kamennogorsk Airport
352004 2022-11-27 18:00 -30 KZ KZ-PAV PWQ UASP 271700Z 12002MPS CAVOK M30/M34 Q1056 NOSIG RMK QFE780/1041=  ## [A] Pavlodar, Pavlodar Airport
352007 2022-11-27 13:30 -29 KZ KZ-VOS PLX UASS 271230Z 32002MPS 0900 R08/P2000 FZFG SCT006 M29/M32 Q1054 NOSIG RMK QBB200 QFE769/1025=  ## [A] Semey, Semipalatinsk Airport
352019 2022-11-27 18:00   5 KZ KZ-MAN SCO UATE 271700Z 05003MPS 030V090 9999 OVC046 05/01 Q1019 NOSIG RMK QFE762/1017=  ## [A] Aktau, Aktau Airport
352021 2022-11-27 18:00  -1 KZ KZ-ATY GUW UATG 271700Z 09009MPS CAVOK M01/M10 Q1026 NOSIG RMK QFE771/1029=  ## [A] Atyrau, Atyrau Airport
352034 2022-11-27 18:00  -9 KZ KZ-AKT AKX UATT 271700Z 08006MPS CAVOK M09/M15 Q1035 NOSIG RMK QFE756/1009=  ## [A] Aktyubinsk, Aktobe Airport
352061 2022-11-27 18:00 -20 KZ KZ-KUS KSN UAUU 271700Z 07005MPS CAVOK M20/M25 Q1047 NOSIG RMK QFE768/1024=  ## [A] Kostanay, Kostanay West Airport
------ Azerbajdzjan:
352224 2022-11-27 18:00  12 AZ AZ-BA  GYD UBBB 271700Z 32022G32KT 9999 -RA SCT012 BKN025 12/10 Q1020 NOSIG=  ## [A] Baku, Heydar Aliyev International Airport
352228 2022-11-27 18:00   9               UBBF 271700Z AUTO 24004KT 9999 // ///////// 09/07 Q1020=  ## [A]
352229 2022-11-27 18:00  11 AZ AZ-GA  KVD UBBG 271700Z 28010KT 9999 BKN100 11/04 Q1019 NOSIG=  ## [A] Ganja, Ganja Airport
352234 2022-11-27 18:00  14 AZ AZ-LA  LLK UBBL 271700Z 22003KT 9999 BKN046 14/11 Q1021 NOSIG RMK MT OP=  ## [A] Lankaran, Lankaran International Airport
352236 2022-11-27 18:00   8 AZ AZ-NX  NAJ UBBN 271700Z 01006KT 8000 FEW036 SCT083 08/05 Q1020 NOSIG RMK MT OBSC QFE690=  ## [A] Nakhchivan, Nakhchivan Airport
352239 2022-11-27 18:00   8 AZ AZ-QAB GBB UBBQ 271700Z 11003KT 8000 OVC130 08/05 Q1019 NOSIG RMK MT OBSC=  ## [A] Gabala, Gabala International Airport
352247 2022-11-27 18:00   9 AZ AZ-ZAQ ZTU UBBY 271700Z 15006KT 9999 SCT100 09/08 Q1021 NOSIG RMK MT OP=  ## [A] Zaqatala, Zaqatala International Airport
352248 2022-11-27 18:00  10               UBBZ 271700Z AUTO 29006KT 9999 // ///////// 10/07 Q1021=  ## [A]
352305 2022-11-27 18:00  10 AZ AZ-YE  YLV UBEE 271700Z 25003KT CAVOK 10/06 Q1019 NOSIG=  ## [A] Yevlakh, Yevlakh Airport
352845 2019-12-07 04:00   1               UBYY 070300Z 32002KT CAVOK 01/M00 Q1028 R30/////// NOSIG =  ## [A]
353014 2022-11-27 18:00  -4               UCFL 271700Z 36004MPS 9999 FEW030 M04/M11 Q1020=  ## [A]
353015 2022-11-27 18:00  -7               UCFM 271700Z 05003MPS 9999 BKN016 M07/M13 Q1025 NOSIG=  ## [A]
353017 2022-11-27 18:00   3               UCFO 271700Z 16002MPS 0650 R12/P1500N FG FU NSC 03/01 Q1019 NOSIG=  ## [A]
353254 2021-11-26 03:32  19               UCOR 260232Z 21006KT 9999 BKN007 OVC070 19/18 Q1005 NOSIG=  ## [A]
------ Armenien:
354023 2022-11-27 18:00   1 AM AM-SH  LWN UDSG 271700Z 11004KT 9999 NSC 01/M03 Q1023 R02/CLRD70 NOSIG=  ## [A] Gyumri, Gyumri Shirak Airport
354198 2022-11-27 18:00   8 AM AM-ER  EVN UDYZ 271700Z 07003KT 9999 NSC 08/01 Q1020 R09/010070 NOSIG=  ## [A] Yerevan, Zvartnots International Airport
354251 2019-05-28 12:00  14               UEBA 281000Z 18007KT 9999 SCT013 BKN080 14/12 Q1013 NOSIG=  ## [A]
------ Ryssland:
354333 2022-11-27 18:00 -41 RU RU-SA  YKS UEEE 271700Z 00000MPS 0250 R23L/0750N FG VV002 M41/M45 Q1032 R23L/490155 NOSIG RMK QBB060 QFE765=  ## [A] Yakutsk, Yakutsk Airport
354681 2022-02-27 06:00 -15 RU RU-SA  ONK UERO 270500Z 29002MPS CAVOK M15/M19 Q1009 RMK QFE713=  ## [A] Olenyok, Olenyok Airport
354682 2022-11-27 18:00 -25 RU RU-SA  PYJ UERP 271700Z 24002MPS 9999 SCT027 BKN100 M25/M28 Q1015 NOSIG RMK QFE717=  ## [A] Yakutia, Polyarny Airport
354684 2022-11-27 18:00 -35 RU RU-SA  MJZ UERR 271700Z 22002MPS CAVOK M35/M38 Q1027 R25/490137 NOSIG RMK QFE739/0985=  ## [A] Mirny, Mirny Airport
355589 2022-11-27 18:00   8               UGAM 271700Z AUTO VRB01KT //// ////// 08/08 Q1024=  ## [A]
355630 2020-11-11 11:30  15               UGCB 111030Z 20008KT 170V230 9999 BKN024 OVC060 15/11 Q1026 R13/29//55 NOSIG=  ## [A]
------ Georgien:
355851 2022-11-27 18:00  10 GE GE-IM  KUT UGKO 271700Z 11002KT 9999 BKN052 10/09 Q1024 NOSIG=  ## [A] Kutaisi, Kopitnari Airport
355907 2022-11-27 18:00   3 GE GE-SZ  --- UGMS 271700Z AUTO 17003KT //// ////// 03/03 Q1024=  ## [A] Mestia, Mestia Queen Tamar Airport
356046 2022-11-27 18:00   9 GE GE-AJ  BUS UGSB 271700Z 12007KT CAVOK 09/08 Q1026 NOSIG=  ## [A] Batumi, Batumi International Airport
356072 2022-11-27 18:00  11 GE GE-TB  TBS UGTB 271700Z 31030G40KT CAVOK 11/04 Q1019 NOSIG=  ## [A] Tbilisi, Tbilisi International Airport
------ Ryssland:
356280 2022-11-27 18:00 -21 RU RU-AMU BQS UHBB 271700Z 26001MPS 9999 SCT033 M21/M23 Q1025 R36/420550 NOSIG RMK QFE751/1001=  ## [A] Blagoveschensk, Ignatyevo Airport
356442 2022-11-27 18:00 -14 RU RU-KHA KHV UHHH 271700Z 19002MPS 5000 -SHSN SCT040CB M14/M17 Q1023 R23R/820345 R23L/////// NOSIG RMK QFE761/1015=  ## [A] Khabarovsk, Khabarovsk-Novy Airport
356565 2022-11-27 18:00 -10 RU RU-CHU DYR UHMA 271700Z 10004MPS 9999 -SN BKN018 M10/M12 Q1035 R01/////// NOSIG RMK TDZ R01/10004G06MPS END R01/10005G07MPS QFE772/1030=  ## [A] Anadyr, Ugolny Airport
356568 2022-11-26 02:30  -9 RU RU-CHU PVS UHMD 260130Z 01007MPS 9999 DRSN FEW016 M09/M14 Q1013 RMK QBB500 QFE759/1012=  ## [A] Chukotka, Provideniya Bay Airport
356577 2022-11-27 18:00 -10 RU RU-MAG GDX UHMM 271700Z 31005MPS 3900 -SHSN VV008 M10/M14 Q1001 RMK QFE736 R28/18001MPS=  ## [A] Magadan, Sokol Airport
356658 2022-11-27 18:00   0 RU RU-KAM PKC UHPP 271700Z 33001MPS 2200 -SHSNRA VV004 00/00 Q0995 R16R/490331 NOSIG RMK QFE743/0991=  ## [A] Petropavlovsk-Kamchatsky, Yelizovo Airport
356739 2022-11-27 18:00  -6 RU RU-SAK UUS UHSS 271700Z 34002MPS 9999 NSC M06/M08 Q1020 R01/150065 NOSIG RMK QFE764/1019=  ## [A] Yuzhno-Sakhalinsk, Yuzhno-Sakhalinsk Airport
356847 2022-11-27 18:00  -3 RU RU-PRI VVO UHWW 271700Z 34002MPS 9999 BKN020CB M03/M10 Q1024 R25L/0///70 NOSIG RMK QFE767=  ## [A] Vladivostok, Vladivostok International Airport
356929 2022-11-27 18:00 -24 RU RU-CHI HTA UIAA 271700Z AUTO 08001MPS 9999 NCD M24/M27 Q1024 RMK QFE709/0946=  ## [A] Chita, Chita-Kadala Airport
356956 2022-11-27 18:00 -32 RU RU-IRK BTK UIBB 271700Z AUTO 23003MPS 9999 // ///042/// M32/M36 Q1041 RMK QFE737/0982=  ## [A] Bratsk, Bratsk Airport
357145 2022-11-27 18:00 -26 RU RU-IRK IKT UIII 271700Z 31008MPS 9000 FEW020 M26/M31 Q1043 R30/820350 NOSIG RMK QFE736/0982=  ## [A] Irkutsk, Irkutsk Airport
357469 2022-11-27 18:00 -21 RU RU-BU  UUD UIUU 271700Z 02002MPS 340V050 9999 -SHSN BKN027CB M21/M27 Q1036 R26/60D NOSIG RMK MT OBSC QFE732/0976=  ## [A] Ulan Ude, Ulan-Ude Airport (Mukhino)
------ Ukraina:
358308 2022-02-24 04:30   1 UA UA-32  KBP UKBB 240330Z 19001MPS 5000 -RA BR SCT008 BKN016 01/01 Q1020 TEMPO 1000 BR=  ## [A] Kiev, Boryspil International Airport
358362 2022-02-24 04:30   0 UA UA-12  DNK UKDD 240330Z 01003MPS 6000 NSC M00/M02 Q1020 NOSIG=  ## [A] Dnipropetrovsk, Dnipropetrovsk International Airport
358363 2022-02-24 12:00   8 UA UA-23  OZH UKDE 241100Z 34006MPS CAVOK 08/M05 Q1022 NOSIG=  ## [A] Zaporizhia, Zaporizhzhia International Airport
358376 2022-02-03 13:00   3 UA UA-12  KWG UKDR 031200Z 29002MPS CAVOK 03/M00 Q1009=  ## [A] Kryvyi Rih, Kryvyi Rih International Airport
358470 2022-02-24 19:30   1 UA UA-63  HRK UKHH 241830Z /////MPS //// NSC 01/M04 Q1024 NOSIG=  ## [A] Kharkiv, Kharkiv International Airport
358545 2021-08-06 09:55  21 UA UA-71  CKC UKKE 060755Z 19006MPS 9999 -SHRA SCT///CB 21/19 Q1006=  ## [A] Cherkasy, Cherkasy International Airport
358551 2022-02-26 16:00   6 UA UA-32  IEV UKKK 261500Z 36004MPS 320V030 9999 -RA NSC 06/M05 Q1026 NOSIG=  ## [A] Kiev, Kiev Zhuliany International Airport
358553 2022-02-24 17:00   3 UA UA-32  GML UKKM 241600Z AUTO 25001MPS 9999 // ///031/// 03/M00 Q1023=  ## [A] Kiev, Gostomel Airport
358575 2022-02-24 06:00   2 UA UA-26  IFO UKLI 240500Z 27004MPS 9999 SCT026CB BKN040 02/00 Q1024=  ## [A] Ivano-Frankivsk, Ivano-Frankivsk International Airport
358578 2022-03-12 20:00   1 UA UA-46  LWO UKLL 121900Z 32002MPS CAVOK 01/M11 Q1027 NOSIG=  ## [A] Lviv, Lviv International Airport
358580 2022-02-24 12:00   6 UA UA-77  CWC UKLN 241100Z 32004MPS 280V360 9999 SCT022CB 06/00 Q1025 NOSIG=  ## [A] Chernivtsi, Chernivtsi International Airport
358584 2022-02-24 12:30   4 UA UA-19  RWN UKLR 241130Z VRB01MPS 9999 SCT023CB SCT023 04/01 Q1023 NOSIG=  ## [A] Rivne, Rivne International Airport
358587 2022-03-17 03:00   3 UA UA-21  UDJ UKLU 170200Z 12002MPS 9999 NSC 03/02 Q1028 NOSIG=  ## [A] Uzhhorod, Uzhhorod International Airport
358652 2021-11-24 08:00   3 UA UA-65  KHE UKOH 240700Z 34005MPS 9999 SCT020 03/01 Q1026=  ## [A] Kherson, Kherson International Airport
358658 2022-02-24 06:00   0 UA UA-48  NLV UKON 240500Z 35003MPS CAVOK 00/M01 Q1021 NOSIG=  ## [A] Nikolayev, Mykolaiv International Airport
358659 2022-02-25 09:00   5 UA UA-51  ODS UKOO 250800Z 36003MPS CAVOK 05/M01 Q1018 NOSIG=  ## [A] Odessa, Odessa International Airport
358875 2022-02-01 13:30   0 UA UA-05  VIN UKWW 011230Z 28002MPS 250V320 9999 SCT040 M00/M07 Q1006 NOSIG=  ## [A] Vinnitsa, Vinnytsia/Gavyryshivka Airport
------ Ryssland:
358957 2022-11-27 18:00 -17 RU RU-ARK ARH ULAA 271700Z 16002MPS 130V210 CAVOK M17/M18 Q1040 R08/950345 NOSIG RMK QFE779/1039=  ## [A] Archangelsk, Talagi Airport
359251 2022-11-27 18:00  -5 RU RU-SPE LED ULLI 271700Z 11005MPS 9999 BKN009 OVC017 M05/M08 Q1034 R88/520542 NOSIG=  ## [A] St. Petersburg, Pulkovo Airport
359281 2022-11-27 18:00  -3 RU RU-MUR MMK ULMM 271700Z 20003MPS 9999 BKN013 M03/M04 Q1027 R13/450050 NOSIG RMK QFE763=  ## [A] Murmansk, Murmansk Airport
359335 2022-11-27 18:00  -2 RU RU-PSK PKV ULOO 271700Z 09002MPS 020V130 9999 SCT007 OVC015 M02/M04 Q1031 R01/820150 NOSIG RMK OBST OBSC QFE769=  ## [A] Pskov, Pskov Airport
359348 2022-11-27 18:00 -11 RU RU-KR  PES ULPB 271700Z AUTO VRB01MPS 9999 -SG ///012/// M11/M13 Q1037 RMK QFE774/1032=  ## [A] Petrozavodsk, Petrozavodsk Airport
359531 2022-11-27 18:00 -10               ULWC 271700Z 09002MPS 9999 OVC003 M10/M12 Q1040 R21/490154 NOSIG RMK QBB100 QFE769/1026=  ## [A]
------ Vitryssland:
359660 2022-11-27 14:00   0 BY BY-BR  BQT UMBB 271300Z 23002MPS 4200 -SN BR OVC031 M00/M01 Q1028 NOSIG=  ## [A] Brest, Brest Airport
359795 2022-11-27 18:00   0 BY BY-HO  GME UMGG 271700Z 03002MPS 1100 R10/P2000 SHSN BR BKN003 OVC015CB 00/M00 Q1027 TEMPO 0800 +SHSN RMK QBB100=  ## [A] Gomel, Gomel Airport
359849 2022-11-27 18:00  -2 BY BY-VI  VTB UMII 271700Z 07002MPS 1400 R05/P2000 SN OVC003 M02/M03 Q1028 TEMPO 1100 RMK QBB110=  ## [A] Vitebsk, Vitebsk Vostochny Airport
359855 2022-11-27 18:00  -2               UMIO 271700Z 09003MPS 1200 R05/P2000U SN BKN005 OVC024 M02/M02 Q1028 NOSIG RMK QBB150 QFE753/1004=  ## [A]
------ Ryssland:
359903 2022-11-27 18:00   1 RU RU-KGD KGD UMKK 271700Z 15001MPS 7000 NSC 01/01 Q1027 R24/290095 NOSIG RMK QFE769/1026=  ## [A] Kaliningrad, Khrabrovo Airport
------ Vitryssland:
359951 2022-11-27 14:00   0 BY BY-HR  GNA UMMG 271300Z 21002MPS 5000 BR OVC014 M00/M01 Q1029 NOSIG=  ## [A] Hrodna, Hrodna Airport
359963 2022-11-27 18:00  -3 BY BY-MI  MSQ UMMS 271700Z 35003MPS 5000 BR FEW007 OVC013 M03/M04 Q1027 NOSIG=  ## [A] Minsk, Minsk National Airport
360011 2022-11-27 14:00   0 BY BY-MA  MVQ UMOO 271300Z 06003MPS 1400 R31/1400 SNRA BR OVC005 M00/M01 Q1028 NOSIG RMK QBB150=  ## [A] Mogilev, Mogilev Airport
360166 2021-04-24 07:18  18               UMUN 240518Z 12006KT 9999 -TSRA FEW010 BKN026 FEW040CB 18/17 Q1013 TEMPO RA BR=  ## [A]
------ Ryssland:
360309 2022-11-27 18:00 -21 RU RU-KK  ABA UNAA 271700Z 16002MPS 7000 -SN OVC040 M21/M25 Q1053 R20/490142 NOSIG RMK QFE766=  ## [A] Abakan, Abakan Airport
360336 2022-11-27 18:00 -28 RU RU-ALT BAX UNBB 271700Z 00000MPS CAVOK M28/M32 Q1055 R24/910255 NOSIG RMK QFE768=  ## [A] Barnaul, Barnaul Airport
360417 2022-11-27 18:00 -29 RU RU-KEM KEJ UNEE 271700Z 18003MPS CAVOK M29/M32 Q1054 R23/450350 NOSIG RMK QFE767=  ## [A] Kemerovo, Kemerovo Airport
360580 2022-11-27 18:00 -26 RU RU-KYA KJA UNKL 271700Z 25003MPS CAVOK M26/M30 Q1049 R29/420150 NOSIG RMK QFE760=  ## [A] Krasnoyarsk, Yemelyanovo Airport
360666 2022-11-27 18:00 -28 RU RU-NVS OVB UNNT 271700Z 21002MPS CAVOK M28/M31 Q1058 R25/810160 R16/////// NOSIG RMK QFE783/1044=  ## [A] Novosibirsk, Tolmachevo Airport
360687 2022-11-27 18:00 -24 RU RU-OMS OMS UNOO 271700Z 13001MPS 8000 NSC M24/M28 Q1056 R07/810550 NOSIG RMK QFE783=  ## [A] Omsk, Omsk Central Airport
360822 2022-11-27 18:00 -27 RU RU-TOM TOF UNTT 271700Z 22005MPS 9999 SCT040CB M27/M30 Q1053 R21/////// NOSIG RMK QFE774=  ## [A] Tomsk, Bogashevo Airport
360903 2022-11-27 18:00 -28 RU RU-KEM NOZ UNWW 271700Z 17001MPS CAVOK M28/M31 Q1054 R19/410250 NOSIG RMK QFE763=  ## [A] Novokuznetsk, Spichenkovo Airport
361363 2022-11-27 18:00 -18 RU RU-KYA NSK UOOO 271700Z 17007MPS 0900 0800NE R19/2000D SN BLSN OVC004 M18/M20 Q1031 R19/39//37 NOSIG RMK QFE756/1009=  ## [A] Norilsk, Norilsk-Alykel Airport
363148 2022-04-06 09:00  11               URFF 060700Z 24006MPS CAVOK 11/02 Q1015 R19/090095 NOSIG=  ## [A]
363273 2022-11-27 18:00   7 RU RU-KDA AAQ URKA 271700Z 08001MPS 6000 BKN003 07/06 Q1024 R04/010070 TEMPO 1000 BR BKN002 RMK QBB110 OBST OBSC QFE764/1019=  ## [A] Anapa, Anapa Vityazevo Airport
363283 2022-11-27 18:00   7 RU RU-KDA KRR URKK 271700Z 34001MPS 4000 BR SCT010 BKN036 07/07 Q1024 R05R/290060 TEMPO 0500 -SHRA FG SCT001 BKN020CB RMK QFE765=  ## [A] Krasnodar, Krasnodar Pashkovsky International Airport
363331 2022-11-27 18:00   6 RU RU-CE  --- URMG 271700Z 34003MPS 9999 BKN013 06/06 Q1023 R26/290250 TEMPO 1000 SHRA BKN002 BKN020CB RMK QFE753/1004=  ## [A] Grozny, Khankala Air Base
363336 2022-11-27 18:00   7 RU RU-DA  MCX URML 271700Z 35007MPS 9999 -RA OVC007 07/06 Q1022 R32/290360 NOSIG RMK MT OBSC QFE766/1022=  ## [A] Makhachkala, Uytash Airport
363337 2022-11-27 18:00   6 RU RU-STA MRV URMM 271700Z 07003MPS 3700 -RA BR BKN002 OVC/// 06/06 Q1023 R12/290150 NOSIG RMK QBB070 MT OBSC OBST OBSC QFE739/0985=  ## [A] Mineralnyye Vody, Mineralnyye Vody Airport
363338 2022-11-27 18:00   7 RU RU-KB  NAL URMN 271700Z 08001MPS 0900 R24/1100 -SHRA FG VV002 07/07 Q1022 R24/250155 NOSIG RMK QBB060 MT OBSC OBST OBSC QFE730=  ## [A] Nalchik, Nalchik Airport
363339 2022-11-27 18:00   7 RU RU-SE  OGZ URMO 271700Z 23001MPS 6000 -SHRA SCT/// OVC020CB 07/07 Q1022 R27/290150 TEMPO 0500 FG BKN002 BKN020CB RMK QFE722/0962=  ## [A] Beslan, Beslan Airport
363344 2022-11-27 18:00   4 RU RU-STA STW URMT 271700Z 07003MPS 0100 R07/0300N -RA FG VV001 04/03 Q1023 R07/290150 NOSIG RMK QBB030 OBST OBSC QFE727=  ## [A] Stavropol, Stavropol Shpakovskoye Airport
363470 2022-11-27 18:00   2 RU RU-ROS ROV URRP 271700Z 09006MPS 4100 -DZ BR OVC002 02/02 Q1026 R05/190060 TEMPO 0200 -FZDZ FZFG BKN001 OVC010 RMK QBB080 OBST OBSC QFE765/1020=  ## [A] Rostov-on-Don, Platov International Airport
363499 2022-11-27 18:00  11 RU RU-KDA AER URSS 271700Z 33001MPS 9999 SCT050 BKN090 11/09 Q1024 R06/190065 R02/////// NOSIG RMK R02/07001MPS QFE767=  ## [A] Sochi, Sochi International Airport
363585 2022-11-27 18:00   1 RU RU-AST ASF URWA 271700Z 06004MPS 9999 BKN017 01/M02 Q1025 R09/190060 NOSIG RMK QFE771/1028=  ## [A] Astrakhan, Astrakhan Airport
363593 2022-11-27 18:00   0 RU RU-KL  ESL URWI 271700Z AUTO 06005MPS 2900 // ///002/// M00/M00 Q1025 RMK QBB070=  ## [A] Elista, Elista Airport
363607 2022-11-27 18:00  -2 RU RU-VGG VOG URWW 271700Z 09006MPS 9999 OVC008 M02/M03 Q1028 R06/010070 NOSIG RMK OBST OBSC=  ## [A] Volgograd, Volgograd International Airport
363743 2022-11-27 18:00 -17 RU RU-CHE CEK USCC 271700Z 13004MPS CAVOK M17/M21 Q1045 R09/420245 NOSIG RMK QFE763=  ## [A] Chelyabinsk, Chelyabinsk Balandino Airport
363753 2022-11-27 18:00 -15 RU RU-BA  MQF USCM 271700Z 08002MPS 9999 OVC040 M15/M19 Q1041 R36/850350 TEMPO 1000 SN BR VV003 RMK QFE741=  ## [A] Magnitogorsk, Magnitogorsk International Airport
363767 2022-11-27 18:00  -2 RU RU-YAN SBT USDA 271700Z AUTO 24002MPS 9999 ///004/// M02/M02 Q1028 RMK QFE770/1027=  ## [A] Sabetta, Sabetta International Airport
363878 2022-11-27 18:00 -24 RU RU-KHM HMA USHH 271700Z 19003MPS 9999 FEW005 M24/M28 Q1046 R24/350045 NOSIG=  ## [A] Khanty-Mansiysk, Khanty Mansiysk Airport
364040 2022-11-27 18:00 -22 RU RU-KHM NJC USNN 271700Z 25003MPS CAVOK M22/M25 Q1049 R21/420160 NOSIG RMK QFE781=  ## [A] Nizhnevartovsk, Nizhnevartovsk Airport
364094 2022-11-27 18:00  -9 RU RU-PER PEE USPP 271700Z 33001MPS 9999 -SN OVC019 M09/M11 Q1044 R21/490250 TEMPO 1100 SN BR BKN004 RMK QFE772=  ## [A] Perm, Bolshoye Savino Airport
364148 2022-11-27 18:00 -23 RU RU-KHM SGC USRR 271700Z 21004MPS CAVOK M23/M26 Q1048 R25/810260 NOSIG RMK QFE780=  ## [A] Surgut, Surgut Airport
364175 2022-11-27 18:00 -23 RU RU-SVE SVX USSS 271700Z 13001MPS CAVOK M23/M25 Q1045 R08R/81//60 NOSIG RMK QFE763/1017=  ## [A] Yekaterinburg, Koltsovo Airport
364200 2022-11-27 18:00 -22 RU RU-TYU TJM USTR 271700Z 18004MPS CAVOK M22/M25 Q1049 R21/CLRD65 R30/CLRD65 NOSIG=  ## [A] Tyumen, Roshchino International Airport
------ Turkmenistan:
364365 2022-11-27 18:00  11 TM TM-A   ASB UTAA 271700Z 29008KT 9999 SCT050 BKN100 11/04 Q1017 R88/70D NOSIG=  ## [A] Ashgabat, Ashgabat International Airport
364373 2020-02-22 14:00  17               UTAI 221300Z 10010KT CAVOK 17/07 Q1022 R88/CLRD70 NOSIG=  ## [A]
364375 2022-11-27 18:00  13 TM TM-B   KRW UTAK 271700Z 30006KT 9999 SCT010 BKN100 13/11 Q1016 R34L/CLRD70 NOSIG=  ## [A] Krasnovodsk, Turkmenbashi Airport
364377 2022-11-27 18:00  12 TM TM-M   MYP UTAM 271700Z 03004KT 6000 SCT230 12/02 Q1013 R88/CLRD70 NOSIG=  ## [A] Mary, Mary Airport
364384 2022-11-27 18:00   3 TM TM-D   TAZ UTAT 271700Z 05004KT CAVOK 03/M03 Q1019 R08/CLRD70 NOSIG=  ## [A] Da?oguz, Da?oguz Airport
364386 2022-11-27 18:00   9 TM TM-L   CRZ UTAV 271700Z 02006KT CAVOK 09/04 Q1014 R31/CLRD70 NOSIG=  ## [A] Türkmenabat, Turkmenabat Airport
------ Tadzjikistan:
364446 2022-11-27 18:00  10 TJ TJ-RR  DYU UTDD 271700Z 02002MPS 9000 NSC 10/01 Q1019 R09/D NOSIG RMK QFE695/0927=  ## [A] Dushanbe, Dushanbe Airport
364453 2022-11-27 18:00  13 TJ TJ-KT  TJU UTDK 271700Z 03003MPS 010V070 9999 NSC 13/03 Q1017 R01/09//70 RMK QFE705/0941=  ## [A] Kulyab, Kulob Airport
364454 2022-11-27 18:00   4 TJ TJ-SU  LBD UTDL 271700Z 07008MPS 0250 0150W R08/0600N FG VV001 04/04 Q1019 R08/19//60 NOSIG RMK QBB030 QFE725/0967=  ## [A] Khudzhand, Khudzhand Airport
364462 2022-11-27 18:00   9 TJ TJ-KT  KQT UTDT 271700Z 09001MPS 7000 FEW130 09/06 Q1016 R35/////// RMK QFE722/0963=  ## [A] Kurgan-Tyube, Qurghonteppa International Airport
364495 2022-11-26 08:30  11               UTFA 260730Z 26002KT 2300 BR NSC 11/05 Q1023 R88/09//70=  ## [A]
364500 2022-11-27 18:00   4               UTFF 271700Z VRB02KT 0050 FG VV001 04/03 Q1020 R18/CLRD70 RMK BASE130=  ## [A]
364508 2022-11-27 18:00   4               UTFN 271700Z 01002KT 0350 R28/1100N FG VV002 04/02 Q1021 R28/CLRD70 NOSIG RMK BASE200=  ## [A]
------ Uzbekistan:
364716 2022-11-27 18:00  -1 UZ UZ-QR  NCU UTNN 271700Z 04010KT CAVOK M01/M11 Q1020 R33/CLRD60 NOSIG=  ## [A] Nukus, Nukus Airport
364723 2022-11-27 18:00   2 UZ UZ-XO  UGC UTNU 271700Z 04012KT CAVOK 02/M05 Q1018 R31/CLRD70 NOSIG=  ## [A] Urgench, Urgench Airport
364833 2022-11-27 18:00   6 UZ UZ-NW  NVI UTSA 271700Z 13004KT 6000 NSC 06/02 Q1015 R25/CLRD70 NOSIG=  ## [A] Navoi, Navoi Airport
364834 2022-11-27 18:00   5 UZ UZ-BU  BHK UTSB 271700Z 34006KT 6000 NSC 05/03 Q1015 R01/CLRD70 NOSIG=  ## [A] Bukhara, Bukhara Airport
364840 2022-09-10 05:00  23 UZ UZ-QA  --- UTSH 100300Z 00000KT 9999 NSC 23/11 Q1012 R99/CLRD70=  ## [A] Shakhristabz, Shakhristabz Airport
364843 2022-11-27 18:00  11               UTSK 271700Z 07004KT 5000 BR NSC 11/05 Q1015 R16/CLRD70=  ## [A]
364851 2022-11-27 18:00   6 UZ UZ-SA  SKD UTSS 271700Z 10006KT 5000 BR NSC 06/03 Q1016 R09/70D NOSIG=  ## [A] Samarkand, Samarkand Airport
364852 2022-11-27 18:00  12 UZ UZ-SU  TMJ UTST 271700Z 02002KT CAVOK 12/02 Q1016 R25/CLRD70 NOSIG=  ## [A] Termez, Termez Airport
364878 2022-11-27 18:00   5 UZ UZ-TO  TAS UTTT 271700Z 00000KT 1900 R08L/P2000N BR NSC 05/04 Q1018 R08L/CLRD70 NOSIG=  ## [A] Tashkent, Tashkent International Airport
------ Ryssland:
365069 2022-11-27 18:00  -2 RU RU-KLU KLF UUBC 271700Z 07003MPS 030V090 4300 -SN OVC007 M02/M03 Q1031 R31/590230 NOSIG RMK QFE756/1008=  ## [A] Kaluga, Grabtsevo Airport
365082 2022-11-27 18:00  -1 RU RU-BRY BZK UUBP 271700Z AUTO 07003MPS 9999 -SG ///008 M01/M02 Q1028 RMK QFE753/1004=  ## [A] Bryansk, Bryansk Airport
365089 2022-11-27 18:00  -3 RU RU-MOS ZIA UUBW 271700Z 08006MPS 9999 OVC007 M03/M04 Q1035 R30/710255 NOSIG=  ## [A] Moscow, Zhukovsky International Airport
365122 2022-11-27 18:00  -3 RU RU-MOS DME UUDD 271700Z 09006MPS 9999 OVC006 M03/M05 Q1034 R14R/520240 NOSIG=  ## [A] Moscow, Domodedovo International Airport
365130 2022-11-27 18:00  -6 RU RU-YAR IAR UUDL 271700Z 08002MPS 9999 OVC007 M06/M06 Q1039 R23/850342 NOSIG RMK QFE771=  ## [A] , Tunoshna Airport
365149 2022-11-27 18:00  -4 RU RU-MOS SVO UUEE 271700Z 09007MPS 9000 -SN OVC008 M04/M06 Q1034 R06R/510140 R06C/510140 NOSIG=  ## [N] Moscow, Sheremetyevo International Airport
365257 2020-05-05 10:00  19               UUII 050800Z 15002MPS 110V200 CAVOK 19/14 Q1010 R26/090060 NOSIG RMK QFE742/0990=  ## [A]
365367 2022-11-27 18:00  -3 RU RU-MOS OSF UUMO 271700Z 10006MPS 8000 -SN OVC005 M03/M04 Q1034 R07/820345 NOSIG RMK QBB150 QFE760/1014=  ## [A] Moscow, Ostafyevo International Airport
365373 2021-03-07 00:00  21 RU RU-MOS CKL UUMU 062300Z 11004KT 9999 FEW030 21/13 Q1013 NOSIG=  ## [A] Moscow, Chkalovskiy Air Base
365406 2022-11-27 18:00   0 RU RU-BEL EGO UUOB 271700Z 09005MPS 9999 OVC006 00/M00 Q1027 R11/810360 NOSIG=  ## [A] Belgorod, Belgorod International Airport
365415 2022-11-27 18:00   0 RU RU-KRS URS UUOK 271700Z 12004MPS 9999 OVC008 00/M01 Q1027 R12/290050 NOSIG RMK QFE752/1003=  ## [A] Kursk, Kursk East Airport
365416 2022-11-27 18:00  -1 RU RU-LIP LPK UUOL 271700Z 10006MPS 9999 OVC007 M01/M01 Q1031 R15/2901// NOSIG=  ## [A] Lipetsk, Lipetsk Airport
365419 2022-11-27 18:00  -1 RU RU-VOR VOZ UUOO 271700Z 11004MPS 8000 OVC006 M01/M02 Q1030 R12/650245 NOSIG RMK QFE758=  ## [A] Voronezh, Voronezh International Airport
365635 2022-11-27 18:00  -3 RU RU-MOS VKO UUWW 271700Z 09006MPS 9000 OVC004 M03/M04 Q1033 R06/290045 TEMPO 2000 -FZDZ BR OVC002=  ## [A] Moscow, Vnukovo International Airport
365689 2022-11-27 18:00 -14 RU RU-KO  SCW UUYY 271700Z 00000MPS 4000 BR OVC005 M14/M15 Q1045 R18/39//45 NOSIG RMK QFE775/1034=  ## [A] Syktyvkar, Syktyvkar Airport
366555 2022-11-27 18:00  -4 RU RU-NIZ GOJ UWGG 271700Z 10003MPS 9999 OVC006 M04/M05 Q1039 R36R/410050 NOSIG=  ## [A] Nizhny Novgorod, Nizhny Novgorod Strigino International Airport
366656 2022-11-27 18:00  -7 RU RU-TA  KZN UWKD 271700Z 07003MPS 9999 OVC028 M07/M10 Q1040 R11/420140 NOSIG RMK QFE769/1026=  ## [A] Kazan, Kazan International Airport
366657 2022-11-27 18:00  -8 RU RU-TA  NBC UWKE 271700Z 04003MPS 9999 SCT005 BKN036 M08/M09 Q1040 R21/420345 NOSIG RMK OBST OBSC QFE763/1017=  ## [A] Nizhnekamsk, Begishevo Airport
366671 2022-11-27 18:00  -8 RU RU-CU  CSY UWKS 271700Z 09002MPS 9999 BKN010 M08/M09 Q1040 R06/950542 NOSIG RMK QFE764=  ## [A] Cheboksary, Cheboksary Airport
366690 2022-11-27 18:00  -7 RU RU-ULY ULV UWLL 271700Z 08004MPS 9999 BKN012 M07/M09 Q1038 R02/820242 NOSIG RMK QFE766/1021=  ## [A] Ulyanovsk, Ulyanovsk Baratayevka Airport
366701 2022-11-27 18:00  -7 RU RU-ULY ULY UWLW 271700Z 04004MPS 9999 OVC020 M07/M09 Q1038 R02/850545 NOSIG RMK QFE772/1029=  ## [A] Ulyanovsk, Ulyanovsk East Airport
366771 2022-11-27 18:00  -8 RU RU-ORE REN UWOO 271700Z 10007MPS CAVOK M08/M16 Q1038 R08/CLRD60 NOSIG RMK QFE767/1023=  ## [A] Orenburg, Orenburg Central Airport
366774 2022-11-27 18:00 -14 RU RU-ORE OSW UWOR 271700Z 04005MPS CAVOK M14/M17 Q1039 R07/910250 NOSIG RMK QFE754/1005=  ## [A] Orsk, Orsk Airport
366801 2022-11-27 18:00  -6 RU RU-MO  SKX UWPS 271700Z 07007MPS 9999 OVC007 M06/M08 Q1036 R02/550545 TEMPO OVC005 RMK QFE757=  ## [A] Saransk, Saransk Airport
366867 2022-11-27 18:00  -3               UWSG 271700Z 06006MPS 9999 BKN016 M03/M06 Q1034 R08/310065 NOSIG RMK QFE773/1031=  ## [A]
366879 2019-08-20 05:00  20 RU RU-SAR RTW UWSS 200300Z 33003MPS CAVOK 20/15 Q1018 R30/010095 NOSIG RMK QFE750=  ## [A] Saratov, Saratov Central Airport
366933 2022-11-27 18:00  -6 RU RU-BA  UFA UWUU 271700Z 08002MPS 9999 -SN OVC030 M06/M08 Q1040 R14R/490540 TEMPO 0800 +SN OVC006=  ## [A] Ufa, Ufa International Airport
366987 2022-11-27 18:00  -7 RU RU-SAM KUF UWWW 271700Z 05004MPS 9999 SCT033 M07/M11 Q1036 R15/410156 NOSIG RMK QFE765/1021=  ## [A] Samara, Kurumoch International Airport
------ Indien:
369104 2022-11-27 18:00  21 IN IN-GJ  AMD VAAH 271700Z 00000KT 4000 HZ NSC 21/15 Q1010 NOSIG=  ## [E] Ahmedabad, Sardar Vallabhbhai Patel International Airport
369117 2022-11-27 16:00  21 IN IN-MM  IXU VAAU 271500Z 00000KT 3000 HZ NSC 21/15 Q1011 NOSIG=  ## [E] Aurangabad, Aurangabad Airport
369118 2020-04-08 21:30  28               VAAV 081930Z 23008KT 4000 FU FEW080 28/18 Q1011 NOSIG=  ## [A]
369123 2019-09-13 16:00  29               VABA 131400Z 21004KT 3500 HZ SCT020 OVC080 29/26 Q1006=  ## [A]
369124 2022-11-27 18:00  28 IN IN-MM  BOM VABB 271700Z 19005KT 2500 FU NSC 28/18 Q1009 NOSIG=  ## [E] Mumbai, Chhatrapati Shivaji International Airport
369132 2022-11-27 17:30  19 IN IN-GJ  BHJ VABJ 271630Z VRB02KT 6000 SKC 19/12 Q1010 NOSIG=  ## [E] Bhuj, Bhuj Airport
369135 2020-04-22 08:00  32 IN IN-KA  IXG VABM 220600Z 27005KT CAVOK 32/15 Q1016=  ## [A] Belgaum, Belgaum Airport
369137 2022-11-27 16:00  23 IN IN-GJ  BDQ VABO 271500Z 07003KT 5000 HZ NSC 23/16 Q1009 NOSIG=  ## [E] Vadodara, Vadodara Airport
369138 2022-11-27 17:30  16 IN IN-MP  BHO VABP 271630Z 31002KT 6000 NSC 16/05 Q1012 NOSIG=  ## [E] Bhopal, Raja Bhoj International Airport
369144 2022-11-27 16:00  23 IN IN-GJ  BHU VABV 271500Z VRB02KT 4000 FU NSC 23/15 Q1009=  ## [A] Bhavnagar, Bhavnagar Airport
369188 2022-07-02 09:30  26 IN IN-DD  NMB VADN 020730Z 28005KT 3500 DZ FEW008 SCT018 FEW025CB OVC080 26/26 Q1001 NOSIG=  ## [A] , Daman Airport
369195 2022-11-27 12:30  29               VADU 271130Z 25007KT 6000 NSC 29/21 Q1007 NOSIG=  ## [A]
369308 2022-11-27 18:00  18 IN IN-MP  IDR VAID 271700Z 00000KT 4000 HZ NSC 18/08 Q1013 BECMG 3000 HZ=  ## [E] Indore, Devi Ahilyabai Holkar Airport
369332 2022-11-27 15:30  17 IN IN-MP  JLR VAJB 271430Z VRB02KT 3500 HZ NSC 17/13 Q1012 NOSIG=  ## [E] , Jabalpur Airport
369340 2022-11-27 13:30  27 IN IN-MM  --- VAJJ 271230Z 30005KT 3000 HZ FEW020 27/22 Q1007 NOSIG=  ## [A] Mumbai, Juhu Aerodrome
369342 2022-11-17 13:00  27               VAJL 171200Z 05007KT 7000 NSC 27/09 Q1012 NOSIG=  ## [A]
369343 2022-11-27 17:30  22 IN IN-GJ  JGA VAJM 271630Z VRB02KT 6000 SKC 22/14 Q1009 NOSIG=  ## [E] Jamnagar, Jamnagar Airport
369361 2022-11-27 07:30  30 IN IN-GJ  IXY VAKE 270630Z 12004KT 5000 FU NSC 30/07 Q1011 NOSIG=  ## [A] Kandla, Kandla Airport
369371 2019-05-07 05:00  32               VAKO 070300Z 27006KT 5000 HZ NSC 32/09 Q1006=  ## [A]
369372 2022-11-27 15:00  26 IN IN-MM  KLH VAKP 271400Z 26006KT 6000 HZ SCT100 26/20 Q1011=  ## [A] , Kolhapur Airport
369374 2022-05-18 16:00  35               VAKR 181400Z 28009KT 6000 NSC 35/12 Q1003 NOSIG=  ## [A]
369375 2022-11-27 10:00  31 IN IN-GJ  IXK VAKS 270900Z VRB03KT 5000 FU NSC 31/10 Q1009=  ## [A] , Keshod Airport
369400 2022-08-10 06:00  27               VALR 100400Z 02005KT 3000 BR FEW010 SCT016 BKN080 27/26 Q1005=  ## [A]
369449 2021-09-26 03:30  25               VANO 260130Z 34002KT 2000 BR FEW010 SCT018 BKN080 25/25 Q1006 NOSIG=  ## [A]
369450 2022-11-27 18:00  17 IN IN-MM  NAG VANP 271700Z 34002KT 2500 HZ NSC 17/13 Q1012 NOSIG=  ## [E] Naqpur, Dr. Babasaheb Ambedkar International Airport
369459 2022-08-17 10:30  28               VANY 170830Z 24011KT 5000 -RA SCT008 SCT010 FEW025CB OVC080 28/28 Q1001 TEMPO 2000 RA=  ## [A]
369478 2020-07-24 09:00  31               VAOR 230700Z 22007KT 9999 SCT030 SCT100 31/23 Q1009 NOSIG=  ## [A]
369480 2021-01-31 03:30  28               VAOT 310230Z 34004KT 5000 HZ FEW015 28/23 Q1012 NOSIG=  ## [A]
369486 2022-11-27 08:30  29 IN IN-MM  ISK VAOZ 270730Z 22005KT 6000 FEW040 29/14 Q1013 NOSIG=  ## [E] Nasik, Nashik Airport
369488 2021-09-05 17:00  25               VAPB 051500Z 23004KT 3000 -TS FEW018 FEW030CB SCT100 25/23 Q1007 NOSIG=  ## [A]
369501 2022-11-27 17:30  23 IN IN-MM  PNQ VAPO 271630Z 27004KT 5000 BR BKN250 23/19 Q1013 NOSIG=  ## [E] Pune, Pune Airport
369504 2022-11-27 08:00  31 IN IN-GJ  PBD VAPR 270700Z 34006KT 6000 NSC 31/06 Q1010 NOSIG=  ## [A] Porbandar, Porbandar Airport
369548 2020-10-01 11:00  34               VARJ 010900Z 02004KT 6000 SCT020 34/21 Q1007=  ## [A]
369549 2022-11-27 18:00  22 IN IN-GJ  RAJ VARK 271700Z 08002KT 6000 NSC 22/13 Q1010 NOSIG=  ## [A] Rajkot, Rajkot Airport
369550 2022-08-30 17:00  29               VARL 301500Z 32005KT 6000 FEW020 29/24 Q1008 NOSIG=  ## [A]
369554 2019-08-31 17:00  26 IN IN-CT  RPR VARP 311500Z 26003KT 3000 HZ FEW020 FEW030CB OVC080 26/25 Q1001=  ## [A] Raipur, Raipur Airport
369568 2022-11-27 12:30  28 IN IN-MM  SAG VASD 271130Z 03004KT 4000 HZ FEW080 28/14 Q1010 BECMG 3000=  ## [A] Shirdi, Shirdi Airport
369579 2021-12-10 01:30  20               VASO 100030Z 02003KT 3000 HZ NSC 20/17 Q1015 NOSIG=  ## [A]
369585 2022-11-27 18:00  21 IN IN-GJ  STV VASU 271700Z 06003KT 6000 NSC 21/11 Q1009 NOSIG=  ## [E] , Surat Airport
369620 2022-11-27 18:00  15 IN IN-RJ  UDR VAUD 271700Z 00000KT 4000 HZ NSC 15/10 Q1012 NOSIG=  ## [E] Udaipur, Maharana Pratap Airport
369637 2021-07-22 09:00 XXX               VAUU 220700Z HZ 2SCT010 SCT020 OVC080 NOSIG=  ## [A]
369644 2021-05-25 11:00  36               VAVB 250900Z 12012KT 5000 FU FEW025 36/26 Q1004 NOSIG=  ## [A]
369658 2019-08-04 11:00  29               VAVP 040900Z 18011KT 5000 -DZ/HZ SCT020 SCT025 BKN100 29/25 Q1000 NOSIG=  ## [A]
369761 2022-01-15 03:00  12               VAZO 150200Z 12003KT 1500 BR NSC 12/12 Q1018 TEMPO 1000 BR=  ## [A]
369787 2022-10-04 11:00  34               VBAO 040900Z 05005KT 6000 NSC 34/21 Q1007 NOSIG=  ## [A]
369788 2019-08-10 17:00  27               VBAP 101500Z 18005KT 6000 FEW020 SCT100 27/24 Q1003 NOSIG=  ## [A]
369794 2019-12-18 05:00  19               VBAV 180400Z 03007KT 1500 HZ NSC 19/13 Q1019=  ## [A]
------ Sri Lanka:
370483 2022-11-27 18:10  26 LK LK-1   CMB VCBI 271710Z 06004KT 020V120 9999 -SHRA SCT017 26/24 Q1010 NOSIG=  ## [E] Colombo, Bandaranaike International Colombo Airport
370503 2022-11-27 16:00  29 LK LK-1   RML VCCC 271500Z 00000KT 9999 SCT016 29/24 Q1008 A2979=  ## [A] Colombo, Colombo Ratmalana Airport
370788 2019-08-20 07:24  22               VCNB 200524Z AUTO 11003KT 10SM OVC060 22/19 A2994 RMK AO2 9 A2994 RMK AO2 T02160192=  ## [A]
370899 2022-11-27 16:10  24 LK LK-3   HRI VCRI 271510Z 02006KT 9000 -SHRA SCT018 FEW020CB 24/24 Q1010 NOSIG RMK N/W=  ## [A] , Mattala Rajapaksa International Airport
370903 2020-07-05 14:00  27               VCRMM 051200Z 26009KT 9999 FEW017 FEW018 CB BKN100 27/24 Q1007 CB SE,S TEMPO 4000 SHRA=  ## [X]
------ Kambodja:
371530 2022-11-27 18:00  28 KH KH-8   PNH VDPP 271700Z 19005KT 9000 TS SCT015 FEW017CB 28/26 Q1009 RMK CB:E/SE=  ## [A] Phnom Penh, Phnom Penh International Airport
371610 2022-11-27 17:30  26 KH KH-17  REP VDSR 271630Z 04003KT 010V100 9000 SCT015 26/25 Q1008=  ## [A] Siem Reap, Siem Reap International Airport
371614 2022-11-27 17:30  26 KH KH-18  KOS VDSV 271630Z 08003KT 9000 SCT015 26/25 Q1010=  ## [A] Sihanukville, Sihanoukville International Airport
371802 2022-11-27 17:30  16               VEAB 271630Z 00000KT 3000 BR SKC 16/14 Q1011 NOSIG=  ## [E]
371803 2022-08-17 10:30  21               VEAC 170830Z 07004KT 1500 -RABR SCT008 SCT012 FEW025TCU BKN025 21/19 Q1016 TEMPO 1000 TSRA=  ## [A]
------ Indien:
371820 2022-11-27 15:30  22 IN IN-TR  IXA VEAT 271430Z 00000KT 4000 BR FEW020 22/19 Q1009 NOSIG=  ## [E] Agartala, Agartala Airport
371830 2022-11-27 17:30  19 IN IN-WB  IXB VEBD 271630Z VRB01KT 5000 BR FEW030 19/16 Q1012 NOSIG=  ## [E] Siliguri, Bagdogra Airport
371835 2022-11-22 10:30  24 IN IN-ML  SHL VEBI 220930Z 35006KT 5000 HZ FEW020 SCT025 24/16 Q1012 NO SIG=  ## [A] Shillong, Shillong Airport
371840 2022-11-27 18:00  15               VEBN 271700Z 00000KT 2000 BR NSC 15/15 Q1011 NOSIG=  ## [E]
371841 2022-08-04 11:00  32               VEBO 040900Z 32005KT HZ SCT020 BKN080 32/26 Q1000 BECMG 5000 HZ=  ## [A]
371844 2022-08-17 10:30  35               VEBR 170830Z 28006KT 6000 SCT020 SCT030 35/25 Q1000 NOSIG=  ## [A]
371845 2022-11-27 18:00  18 IN IN-OR  BBI VEBS 271700Z 35002KT 3000 BR NSC 18/17 Q1012 NOSIG=  ## [E] Bhubaneswar, Biju Patnaik Airport
371847 2022-11-27 13:00  22               VEBU 271200Z 00000KT 5000 HZ NSC 22/14 Q1010 NOSIG=  ## [A]
371853 2022-08-17 10:30  34 IN IN-AS  --- VECA 170830Z VRB02KT 6000 SCT025 SCT100 34/26 Q1001 NOSIG=  ## [A] Dibrugarh, Chabua Air Force Station
371855 2022-11-27 18:00  22 IN IN-WB  CCU VECC 271700Z 33003KT 2800 HZ NSC 22/17 Q1009 NOSIG=  ## [E] Kolkata, Netaji Subhash Chandra Bose International Airport
371867 2022-11-27 13:00  22 IN IN-WB  COH VECO 271200Z 00000KT 5000 HZ NSC 22/18 Q1008=  ## [A] , Cooch Behar Airport
371876 2022-11-27 07:30  27               VECX 270630Z VRB02KT 1500 HZ SKC 27/15 Q1012 BECMG 2000=  ## [A]
371885 2022-11-27 13:30  20 IN IN-WB  RDP VEDG 271230Z 00000KT 2800 HZ NSC 20/15 Q1009 NOSIG=  ## [A] Durgapur, Kazi Nazrul Islam Airport
371893 2022-11-27 11:30  27               VEDO 271030Z 00000KT 4000 HZ SCT020 27/12 Q1010 NOSIG=  ## [A]
371902 2022-08-17 10:30  35 IN IN-WB  --- VEDX 170830Z 30013KT 6000 SCT020 FEW030TCU BKN100 35/26 Q1002 TEMPO 30015G25KT=  ## [A] , Kalaikunda Air Force Station
371967 2022-11-27 17:30  17 IN IN-UP  GOP VEGK 271630Z 00000KT 2500 BR SKC 17/16 Q1011 NOSIG=  ## [E] Gorakhpur, Gorakhpur Airport
371975 2021-04-19 13:00  40               VEGS 191100Z 29002KT 5000 HZ SCT020 40/06 Q1003=  ## [A]
371976 2022-11-27 18:00  19 IN IN-AS  GAU VEGT 261700Z 00000KT 3000 BR FEW020 19/18 Q1011 NOSIG=  ## [A] Guwahati, Lokpriya Gopinath Bordoloi International Airport
371981 2022-11-27 17:00  14 IN IN-BR  GAY VEGY 271600Z 00000KT 2000 BR NSC 14/12 Q1011=  ## [A] , Gaya Airport
372006 2022-11-27 07:30  28               VEHX 270630Z 13006KT 8000 FEW030 28/17 Q1010 NOSIG=  ## [A]
372021 2022-11-27 15:00  20 IN IN-MN  IMF VEIM 271400Z 25003KT 4000 BR FEW018 20/15 Q1013 NOSIG=  ## [E] Imphal, Imphal Airport
372042 2022-11-27 15:00  19 IN IN-OR  --- VEJH 271400Z 16002KT 3500 HZ NSC 19/16 Q1010=  ## [A] , Jharsuguda Airport
372052 2022-11-27 12:00  26               VEJR 271100Z 00000KT 5000 HZ NSC 26/07 Q1010=  ## [A]
372053 2022-11-27 13:00  22 IN IN-JH  IXW VEJS 271200Z 00000KT 4000 HZ NSC 22/16 Q1008=  ## [A] Jamshedpur, Sonari Airport
372054 2022-11-25 03:15  18 IN IN-AS  JRH VEJT 250215Z VRB01KT 3000 BR FEW015 18/16 Q1016 BECMG 5000=  ## [A] Jorhat, Jorhat Airport
372069 2022-11-27 14:00  20               VEKI 271300Z 00000KT 1500 BR NSC 20/16 Q1009 NOSIG=  ## [A]
372075 2022-11-27 13:00  25               VEKO 271200Z 32004KT 3000 HZ NSC 25/09 Q1010=  ## [E]
372081 2022-11-27 07:30  30 IN IN-AS  IXS VEKU 270630Z VRB02KT 6000 SKC 30/15 Q1010 NOSIG=  ## [A] Silchar, Silchar Airport
372102 2022-11-27 10:00  30 IN IN-MZ  AJL VELP 270900Z 21008KT 5000 HZ FEW018 SCT100 30/14 Q1009 NOSIG=  ## [A] Aizawl, Lengpui Airport
372104 2022-11-27 14:00  18 IN IN-AS  IXI VELR 271300Z 00000KT 6000 NSC 18/17 Q1010=  ## [A] Lilabari, North Lakhimpur Airport
372123 2020-04-18 20:00  30               VEMK 181800Z 13005KT 9999 TS FEW018 FEW019CB BKN260 30/24 Q1010 RETS CB N=  ## [X]
372126 2022-11-27 12:00  24 IN IN-AS  DIB VEMN 271100Z 00000KT 5000 HZ FEW025 24/16 Q1009 BECMG 3000 BR=  ## [E] Dibrugarh, Dibrugarh Airport
372130 2022-11-27 09:00  27 IN IN-NL  DMU VEMR 270800Z 09003KT 6000 FEW020 27/16 Q1009 NOSIG=  ## [A] Dimapur, Dimapur Airport
372198 2022-08-17 10:30  35 IN IN-WB  --- VEPH 170830Z 32007KT 6000 SCT020 FEW025TCU SCT025 FEW030CB 35/25 Q1002 TEMPO TS=  ## [A] , Panagarh Air Force Station
372210 2022-11-27 18:00  18 IN IN-BR  PAT VEPT 271700Z 00000KT 2200 BR NSC 18/15 Q1011 NOSIG=  ## [E] Patna, Lok Nayak Jayaprakash Airport
372211 2022-08-17 10:30  35 IN IN-BR  --- VEPU 170830Z 27005KT 6000 SCT020 35/26 Q1001 NOSIG=  ## [A] , Purnea Airport
372215 2022-11-27 10:00  19               VEPY 270900Z 20005KT 5000 HZ FEW020 19/12 Q1013 NOSIG=  ## [A]
372244 2022-11-27 13:00  23               VERB 271200Z 27002KT 1200 HZ NSC 23/16 Q1009=  ## [E]
372245 2022-11-27 18:00  14 IN IN-JH  IXR VERC 271700Z 00000KT 3000 BR NSC 14/12 Q1013 NOSIG=  ## [E] Ranchi, Birsa Munda Airport
372253 2021-03-21 08:00  36 IN IN-OR  RRK VERK 210700Z 27003KT 5000 HZ FEW100 36/16 Q1009=  ## [A] , Rourkela Airport
372258 2022-11-27 18:00  19               VERP 271700Z 36004KT 3000 HZ NSC 19/10 Q1011 NOSIG=  ## [E]
372263 2022-11-27 12:00  21 IN IN-AS  RUP VERU 271100Z 00000KT 5000 BR FEW020 21/21 Q1008 NOSIG=  ## [A] , Rupsi India Airport
372304 2022-11-27 09:00  27               VETJ 270800Z 23004KT 6000 FEW018 27/10 Q1008 NOSIG=  ## [A]
372320 2022-11-27 07:30  27 IN IN-AS  TEZ VETZ 270630Z 04007KT 6000 FEW025 27/13 Q1009 NOSIG=  ## [A] , Tezpur Airport
372372 2021-03-15 06:00  31 IN IN-AP  VTZ VEVZ 150500Z 06004KT 4000 HZ/FU FEW018 31/23 Q1013=  ## [A] Visakhapatnam, Vishakhapatnam Airport
------ Bangladesh:
373263 2022-11-10 16:00  24 BD BD-2   CGP VGEG 101500Z 11004KT 4000 HZ NSC 24/17 Q1013 NOSIG=  ## [A] Chittagong, Shah Amanat International Airport
373353 2022-11-27 18:00  25               VGHS 271700Z 00000KT 3500 HZ NSC 25/17 Q1010 NOSIG=  ## [E]
373645 2021-10-11 07:00  31 BD BD-6   ZYL VGSY 110500Z 08005KT 3500 HZ NSC 31/24 Q1005 NOSIG=  ## [A] Sylhet, Osmany International Airport
------ Hongkong:
374018 2022-11-27 18:00  26 HK HK-U-A HKG VHHH 271700Z 09009KT 9999 FEW010 SCT020 26/23 Q1011 NOSIG=  ## [A] Hong Kong, Hong Kong International Airport
------ Indien:
374511 2022-11-27 17:30  14 IN IN-UP  AGR VIAG 271630Z 00000KT 2500 BR SKC 14/12 Q1011 NOSIG=  ## [E] , Agra Airport
374517 2022-08-17 10:30  34 IN IN-HR  --- VIAM 170830Z 16009KT 6000 SCT020 SCT030 34/24 Q1004 TEMPO 14015G25KT -RA=  ## [A] , Ambala Air Force Station
374522 2022-11-27 18:00  13 IN IN-PB  ATQ VIAR 271700Z 00000KT 2200 BR NSC 13/11 Q1012 NOSIG=  ## [A] Amritsar, Sri Guru Ram Dass Jee International Airport
374527 2022-08-17 10:30  24 IN IN-JK  --- VIAW 170830Z 32006KT 6000 SCT020 FEW030TCU BKN090 24/19 Q1015 TEMPO -RA=  ## [A] , Awantipur Air Force Station
374528 2022-08-17 10:30  34 IN IN-PB  AIP VIAX 170830Z 16009KT 6000 SCT020 FEW030TCU BKN100 34/28 Q1003 TEMPO 15015G25KT=  ## [A] Adampur, Adampur Airport
374541 2022-08-17 10:30  29 IN IN-RJ  BKB VIBK 170830Z 13009KT 6000 -RA FEW010 SCT015 FEW030TCU BKN090 29/27 Q0998 TEMPO 14015G25KT 3000 BR=  ## [A] Bikaner, Nal Airport
374542 2022-08-17 10:30  36 IN IN-UP  --- VIBL 170830Z 27003KT 8000 SCT020 SCT030 36/27 Q1003 NOSIG=  ## [A] Lucknow, Bakshi Ka Talab Air Force Station
374548 2022-11-27 07:00  16 IN IN-HP  KUU VIBR 270600Z 00000KT 6000 FEW080 16/04 Q1015=  ## [E] , Kullu Manali Airport
374550 2022-08-17 10:30  32 IN IN-PB  BUP VIBT 170830Z 11014KT 6000 VCSH SCT015 SCT025 BKN090 32/26 Q1002 TEMPO -RA=  ## [A] , Bhatinda Air Force Station
374555 2022-11-27 07:30  25 IN IN-UP  BEK VIBY 270630Z 20003KT 3400 HZ SKC 25/13 Q1011 BECMG 5000=  ## [A] Bareilly, Bareilly Air Force Station
374563 2022-11-27 17:30  16 IN IN-CH  IXC VICG 271630Z VRB01KT 5000 BR SKC 16/13 Q1012 NOSIG=  ## [E] Chandigarh, Chandigarh Airport
374564 2021-03-13 19:00  17               VICH 131800Z 00000KT 4500 BR SCT040 17/14 Q1015 NOSIG=  ## [A]
374580 2021-11-01 01:30  16 IN IN-UP  KNU VICX 010030Z 00000KT 1000 BR 16/16 Q1014 BECMG 800=  ## [A] Kanpur, Kanpur Airport
374586 2022-11-27 13:00  23 IN IN-DL  --- VIDD 271200Z 00000KT 2000 FU NSC 23/13 Q1010 NOSIG=  ## [E] , Safdarjung Airport
374596 2022-11-27 15:00  15 IN IN-UL  DED VIDN 271400Z 05003KT 3000 BR NSC 15/11 Q1012=  ## [E] Dehradun, Dehradun Airport
374598 2022-11-27 18:00  16 IN IN-DL  DEL VIDP 271700Z 00000KT 2200 FU NSC 16/09 Q1012 NOSIG=  ## [N] New Delhi, Indira Gandhi International Airport
374606 2022-08-17 10:30  33 IN IN-UP  --- VIDX 170830Z 14010KT 6000 FEW020 SCT025 33/26 Q1004 NOSIG=  ## [A] , Hindon Air Force Station
374667 2022-11-27 09:00  24 IN IN-HP  DHM VIGG 270800Z 00000KT 6000 NSC 24/12 Q1013=  ## [A] , Kangra Airport
374678 2022-11-27 17:30  13 IN IN-MP  GWL VIGR 271630Z VRB02KT 5000 HZ SKC 13/09 Q1012 NOSIG=  ## [E] Gwalior, Gwalior Airport
374710 2022-08-17 10:30  34 IN IN-PB  --- VIHX 170830Z 14010KT 6000 SCT025 SCT100 34/28 Q1003 NOSIG=  ## [A] , Halwara Air Force Station
374753 2022-11-27 17:30  16 IN IN-RJ  JDH VIJO 271630Z VRB01KT 6000 SKC 16/07 Q1011 NOSIG=  ## [E] Jodhpur, Jodhpur Airport
374754 2022-11-27 18:00  16 IN IN-RJ  JAI VIJP 271700Z VRB03KT 2500 HZ NSC 16/09 Q1013 NOSIG=  ## [E] Jaipur, Jaipur International Airport
374756 2022-11-27 17:30  16 IN IN-RJ  JSA VIJR 271630Z 00000KT 6000 SKC 16/01 Q1011 NOSIG=  ## [E] , Jaisalmer Airport
374759 2022-11-27 17:30  14 IN IN-JK  IXJ VIJU 271630Z 01003KT 6000 SKC 14/12 Q1012 NOSIG=  ## [E] Jammu, Jammu Airport
374771 2022-06-20 06:30  21 IN IN-RJ  KQH VIKG 200430Z 21004KT 3000 -RA BKN030 OVC080 21/21 Q1005 NOSIG=  ## [A] Ajmer, Kishangarh Airport
374778 2021-04-11 09:30  34               VIKN 110730Z 24007KT 5000 SCT012 34/24 Q1010 NOSIG=  ## [A]
374779 2022-10-27 08:00  32 IN IN-RJ  KTU VIKO 270600Z 05002KT 4000M HZ NSC 32/14 Q1014 NOSIG=  ## [A] Kota, Kota Airport
374794 2022-11-25 09:00  26 IN IN-PB  LUH VILD 250800Z 00000KT 5000 HZ NSC 26/08 Q1017=  ## [A] , Ludhiana Airport
374798 2022-11-27 17:30  -4 IN IN-JK  IXL VILH 271630Z 00000KT 6000 SKC M04/M20 Q1025 NOSIG=  ## [E] Leh, Leh Kushok Bakula Rimpochee Airport
374801 2022-11-27 18:00  17 IN IN-UP  LKO VILK 271700Z 00000KT 2000 BR NSC 17/16 Q1011 NOSIG=  ## [E] Lucknow, Chaudhary Charan Singh International Airport
374905 2022-11-27 17:30  13 IN IN-PB  IXP VIPK 271630Z VRB01KT 5000 BR SKC 13/11 Q1013 NOSIG=  ## [E] Pathankot, Pathankot Airport
374914 2022-11-27 12:00  25 IN IN-UP  PGH VIPT 271100Z 26003KT 5000 HZ NSC 25/13 Q1010=  ## [E] Pantnagar, Pantnagar Airport
374918 2022-08-17 10:30  28               VIPX 170830Z 17010G20KT 6000 -RA BKN010 SCT025 FEW030CB BKN090 28/25 Q0996 TEMPO 4000 TSRA=  ## [A]
374948 2022-02-14 05:00   7 IN IN-UP  --- VIRB 140400Z 00000KT 5000 HZ FEW060 07/01 Q1017=  ## [A] , Fursatganj Airport
374979 2022-08-17 10:30  29               VISG 170830Z 08008KT 6000 SCT010 SCT012 FEW025TCU BKN090 29/26 Q1000 TEMPO 5000 -RA BKN010=  ## [A]
374985 2022-11-27 07:00  18 IN IN-HP  SLV VISM 270600Z 00000KT 6000 FEW080 18/01 Q1018=  ## [A] , Shimla Airport
374988 2022-11-27 07:30  24 IN IN-UP  --- VISP 270630Z 06004KT 4000 HZ SCT250 24/12 Q1012 NOSIG=  ## [A] , Sarsawa Air Force Station
374990 2022-11-27 17:30   6 IN IN-JK  SXR VISR 271630Z 23004KT 2000 FU SKC 06/M01 Q1020 NOSIG=  ## [E] Srinagar, Sheikh ul Alam Airport
374996 2022-08-17 10:30  30               VISX 170830Z 11009KT 5000 -RABR SCT015 SCT020 FEW030TCU BKN090 30/26 Q1001 TEMPO 15015G25KT BKN015=  ## [A]
375003 2022-08-17 10:30  25               VITE 170830Z 30013G23KT 6000 -RA SCT060 FEW070TCU BKN120 25/07 Q1021 TEMPO 33025G35KT=  ## [A]
375044 2022-11-27 07:30  25 IN IN-RJ  --- VIUT 270630Z VRB02KT 6000 SKC 25/03 Q1012 NOSIG=  ## [A] , Uttarlai Airport
375048 2022-08-17 10:30  32 IN IN-JK  --- VIUX 170830Z 26004KT 6000 SCT025 SCT090 32/26 Q1009 NOSIG=  ## [A] , Udhampur Air Force Station
375066 2022-08-24 23:00  25               VIVP 242100Z 24005KT 3000 BR SCT025 SCT100 25/23 Q1006 NOSIG=  ## [A]
375404 2022-05-22 04:00  31               VJIP 220200Z 30006KT 2500 DU NSC 31/21 Q0999 NOSIG=  ## [A]
------ Laos:
376820 2022-11-27 11:00  30 LA LA-LP  LPQ VLLB 271000Z 27004KT 9999 SCT020 BKN060 30/24 Q1006 NOSIG=  ## [A] Luang Phabang, Luang Phabang International Airport
376832 2022-11-27 12:00  25 LA LA-LM  LXG VLLN 271100Z 14002KT 8000 SCT020 25/24 Q1010 NOSIG=  ## [A] Luang Namtha, Luang Namtha Airport
376941 2022-11-27 12:00  30 LA LA-CH  PKZ VLPS 271100Z 14004KT 9999 FEW020 30/22 Q1008 NOSIG=  ## [A] Pakse, Pakse International Airport
377011 2022-11-27 11:00  28 LA LA-SV  ZVK VLSK 271000Z 18002KT 7000 SCT020 28/21 Q1009 NOSIG=  ## [A] , Savannakhet Airport
377098 2022-11-27 16:00  24 LA LA-VT  VTE VLVT 271500Z 22002KT 4000 BR BKN050 24/24 Q1010 NOSIG=  ## [A] Vientiane, Wattay International Airport
------ Macau:
377523 2022-11-27 18:00  25 MO MO-U-A MFM VMMC 271700Z 15003KT 9999 FEW008 SCT015 25/24 Q1011 NOSIG=  ## [A] Macau, Macau International Airport
------ Nepal:
378164 2022-11-27 18:00  12 NP NP-BA  KTM VNKT 271700Z 09004KT 8000 FEW020 12/09 Q1017 NOSIG=  ## [E] Kathmandu, Tribhuvan International Airport
378361 2020-03-25 12:50  29 NP NP-NA  SIF VNSI 251150Z 26003KT 7000 FEW015 SCT100 29/19 Q1007=  ## [A] Simara, Simara Airport
------ Indien:
378578 2022-11-27 16:00  25 IN IN-TN  --- VOAR 271500Z VRB02KT 3200 BR FEW018 BKN090 25/24 Q1010 NOSIG=  ## [A] , Arkonam Airport
378580 2022-11-27 08:30  32 IN IN-LD  AGX VOAT 270730Z 10004KT 6000 FEW015 32/24 Q1009 NOSIG=  ## [A] , Agatti Airport
378586 2021-11-21 11:30  27               VOAZ 211030Z 08010KT 6000 FEW020 SCT030 FEW030TCU BKN100 27/23 Q1012 TEMPO -RA=  ## [A]
378593 2022-11-27 18:00  22 IN IN-KA  --- VOBG 271700Z 11005KT 6000 FEW012 22/19 Q1015 NOSIG=  ## [A] Bangalore, HAL Airport
378598 2022-11-27 18:00  21 IN IN-KA  BLR VOBL 271700Z 07006KT 6000 SCT015 SCT080 21/20 Q1015 NOSIG=  ## [E] Bangalore, Kempegowda International Airport
378599 2022-11-27 15:00  24               VOBM 271400Z 27005KT 4000 -DZ BR SCT012 SCT080 24/21 Q1013=  ## [A]
378602 2019-10-21 03:30  25               VOBP 200130Z VRB02KT 4000 BR SCT010 FEW018TCU OVC090 25/24 Q1012 TEMPO 3000 RA=  ## [A]
378604 2022-08-17 10:30  30 IN IN-KA  --- VOBR 170830Z 23009KT 6000 SCT020 SCT025 30/23 Q1010 NOSIG=  ## [A] , Bidar Air Force Station
378610 2022-11-27 13:00  25               VOBX 271200Z 22004KT 6000 FEW016 SCT100 25/24 Q1007 NOSIG=  ## [A]
378612 2022-11-27 17:00  23 IN IN-AP  VGA VOBZ 271600Z 00000KT 3500 BR NSC 23/21 Q1009 NOSIG=  ## [A] , Vijayawada Airport
378614 2022-11-27 18:00  24 IN IN-TN  CJB VOCB 271700Z 21005KT 3000 BR FEW012 SCT080 24/22 Q1012 NOSIG=  ## [E] Coimbatore, Coimbatore International Airport
378615 2022-04-06 06:30  30 IN IN-KL  --- VOCC 060430Z VRB02KT 5000 HZ SCT016 SCT080 30/24 Q1014 NOSIG=  ## [A] Kochi, Willingdon Island Air Base
378621 2022-11-27 18:00  25 IN IN-KL  COK VOCI 271700Z 18003KT 4000 BR SCT012 SCT080 25/25 Q1009 NOSIG=  ## [E] Kochi, Cochin International Airport
378624 2022-11-27 18:00  23 IN IN-KL  CCJ VOCL 271700Z 07006KT 5000 BR FEW012 BKN080 23/22 Q1009 NOSIG=  ## [E] Calicut, Calicut International Airport
378627 2021-03-10 04:30  28               VOCO 100330Z 00000KT 4000 HZ NSC 28/20 Q1015 BECMG 4500 HZ=  ## [A]
378628 2022-11-27 12:30  29 IN IN-AP  CDP VOCP 271130Z 09006KT 5000 HZ FEW020 29/20 Q1007 NOSIG=  ## [A] Kadapa, Kadapa Airport
378636 2022-11-19 10:00  28 IN IN-AN  CBD VOCX 190900Z 18007KT 6000 FEW016 28/22 Q1006 NOSIG=  ## [A] , Car Nicobar Air Force Station
378638 2021-05-02 16:00  30               VOCZ 021400Z 23003KT 5000 BR FEW018 SCT090 30/26 Q1008 NOSIG=  ## [A]
378645 2022-08-17 10:30  31 IN IN-TG  --- VODG 170830Z 28011KT 6000 FEW020 SCT025 31/22 Q1009 NOSIG=  ## [A] Hyderabad, Dundigul Air Force Academy
378662 2022-11-26 07:00  30               VODX 260600Z VRB02KT 6000 FFEW018 SCT090 30/26 Q1008 NOSIG=  ## [A]
378718 2022-11-27 09:30  29               VOGB 270830Z 09004KT 6000 NSC 29/16 Q1010=  ## [A]
378731 2022-11-27 18:00  27               VOGO 271700Z VRB02KT 6000 FEW020 BKN090 27/25 Q1009 NOSIG=  ## [E]
378744 2022-11-27 17:00  23               VOHB 271600Z 30005KT 6000 SCT015 SCT080 23/21 Q1012=  ## [A]
378747 2020-09-16 17:00  23               VOHE 161500Z 26008KT 5000 BR SCT010 SCT015 FEW030CB OVC080 23/22 Q1009 NOSIG=  ## [A]
378753 2022-08-17 10:30  30 IN IN-TG  --- VOHK 170830Z 29010KT 6000 FEW020 SCT025 30/22 Q1010 NOSIG=  ## [A] , Hakimpet Airport
378761 2022-11-27 18:00  21 IN IN-TG  HYD VOHS 271700Z 11005KT 4000 HZ NSC 21/15 Q1014 NOSIG=  ## [E] Hyderabad, Rajiv Gandhi International Airport
378767 2022-11-27 17:00  21 IN IN-TG  BPM VOHY 271600Z VRB01KT 5000 HZ FEW020 21/13 Q1013 NOSIG=  ## [A] Hyderabad, Begumpet Airport
378816 2022-11-27 13:00  28               VOJV 271200Z 00000KT 5000 HZ FU FEW015 28/19 Q1010=  ## [A]
378819 2020-01-10 15:00  24               VOJY 101400Z 09003KT 5000 BR FEW015 24/21 Q1018 NOSIG=  ## [A]
378822 2020-10-08 16:30  27               VOKB 081430Z VRB01KT 3000 BR SCT004 SCT012 FEW025CB BKN080 27/26 Q1009 TEMPO 1500 RA BR=  ## [A]
378834 2022-11-27 18:00  26 IN IN-KL  CNN VOKN 271700Z 11002KT 3000 BR FEW006 SCT012 FEW025CB BKN080 26/24 Q1009 NOSIG=  ## [A] Kannur, Kannur International Airport
378841 2022-11-27 11:30  30               VOKU 271030Z 10004KT 5000 HZ FEW018 30/15 Q1009=  ## [A]
378874 2020-06-24 04:00  23               VOMB 240200Z 23004KT 9999 FEW008 SCT012 23/20 Q1012=  ## [A]
378876 2022-11-27 17:00  25 IN IN-TN  IXM VOMD 271600Z VRB02KT 4500 BR FEW020 SCT100 25/23 Q1011 NOSIG=  ## [E] Madurai, Madurai Airport
378884 2022-11-27 18:00  25 IN IN-KA  IXE VOML 271700Z 08002KT 5000 BR FEW012 BKN080 25/23 Q1009 NOSIG=  ## [A] Mangalore, Mangalore International Airport
378885 2022-11-27 18:00  28 IN IN-TN  MAA VOMM 271700Z 13004KT 3000 BR SCT020 SCT100 28/25 Q1009 NOSIG=  ## [E] Chennai, Chennai International Airport
378897 2022-11-27 15:00  23 IN IN-KA  MYQ VOMY 271400Z 00000KT 6000 SCT015 23/21 Q1012=  ## [A] Mysore, Mysore Airport
378902 2022-11-27 13:30  28               VOND 271230Z 32001KT 5000 HZ NSC 28/14 Q1009 NOSIG=  ## [A]
378931 2020-09-06 03:00  27               VOOG 060100Z VRB02KT 6000 FEW010 SCT014 BKN090 27/27 Q1005 NOSIG=  ## [A]
378938 2022-06-29 00:00  24               VOON 282200Z 32002KT 2500 -RA S CT004 SCT012 FEW025CB BKN8000 24/23 Q1007 NOSIG=  ## [A]
378950 2020-01-20 03:30  11               VOOZ 200230Z VRB01KT 4000 BR NSC 11/10 Q1019 BECMG 5000 BR=  ## [A]
378952 2022-11-27 18:00  25 IN IN-AN  IXZ VOPB 271700Z 00000KT 4500 BR FEW014 25/23 Q1009 NOSIG=  ## [A] Port Blair, Vir Savarkar International Airport
378953 2022-11-27 10:00  31 IN IN-TN  PNY VOPC 270900Z 11004KT 6000 SCT015 31/25 Q1009 NOSIG=  ## [A] Pondicherry, Pondicherry Airport
379018 2019-05-31 17:30  31               VORP 311530Z 20006KT 6000 SCT018 31/23 Q1006 NOSIG=  ## [A]
379027 2022-11-27 17:30  22 IN IN-AP  RJA VORY 271630Z 03006KT 3000 BR FEW020 22/21 Q1010 NOSIG=  ## [A] Rajahmundry, Rajahmundry Airport
379041 2022-11-27 08:00  28 IN IN-TN  SXV VOSM 270700Z 05004KT 4000 HZ SCT020 SCT100 28/21 Q1010 NOSIG=  ## [A] Salem, Salem Airport
379046 2022-11-26 11:00  31               VOSR 261000Z 24004KT 5000 HZ NSC 31/22 Q1008 NOSIG=  ## [A]
379052 2022-08-17 10:30  34 IN IN-TN  --- VOSX 170830Z 23010KT 6000 SCT030 SCT250 34/22 Q1008 NOSIG=  ## [A] Sulur, Coimbatore Air Force Station
379064 2022-08-17 10:30  35 IN IN-TN  TJV VOTJ 170830Z 20005KT 6000 SCT025 35/23 Q1006 NOSIG=  ## [A] Thanjavur, Tanjore Air Force Base
379065 2022-11-27 13:00  28               VOTK 271200Z VRB02KT 5000 HZ SCT020 FEW025TCU SCT100 28/22 Q1007 NOSIG=  ## [A]
379070 2022-11-27 17:30  26 IN IN-AP  TIR VOTP 271630Z 00000KT 2000 BR FEW020 26/24 Q1010 NOSIG=  ## [A] Tirupati, Tirupati Airport
379072 2022-11-27 18:00  26 IN IN-TN  TRZ VOTR 271700Z VRB01KT 3000 BR SCT016 BKN100 26/23 Q1010 NOSIG=  ## [E] Tiruchirappally, Tiruchirapally Civil Airport Airport
379076 2022-11-27 18:00  27 IN IN-KL  TRV VOTV 271700Z 05002KT 3000 BR SCT015 BKN080 27/24 Q1009 NOSIG=  ## [E] Thiruvananthapuram, Trivandrum International Airport
379078 2022-08-17 10:30  35 IN IN-TN  --- VOTX 170830Z 23004KT 6000 FEW020 SCT025 FEW025TCU 35/25 Q1005 TEMPO RA=  ## [A] Chennai, Tambaram Air Force Station
379107 2022-01-25 11:00  28               VOVA 251000Z 12010KT 4500 HZ FU FEW018 28/19 Q1008 NOSIG=  ## [A]
379108 2019-07-26 04:00  24               VOVB 260200Z 22005KT 5000 BR SCT012 SCT080 24/22 Q1012 NOSIG=  ## [A]
379121 2020-07-30 12:00  26               VOVO 301000Z 26008KT 3500 RA SCT006 SCT014 OVC080 26/26 Q1004 TEMPO 2500 RA=  ## [A]
379132 2022-11-27 18:00  20               VOVZ 271700Z VRB02KT 4000M BR FEW080 20/20 Q1010 NOSIG=  ## [E]
379176 2021-11-20 05:30  28               VOXR 200430Z 02004KT 5000 HZ SCT020 SCT025 28/24 Q1006 NOSIC=  ## [A]
379195 2022-08-17 10:30  32 IN IN-KA  --- VOYK 170830Z 24006KT 6000 SCT030 SCT250 32/23 Q1013 NOSIG=  ## [A] Yelahanka, Yelahanka Air Force Station
379254 2022-01-24 09:00  22               VPAR 240800Z 16004KT 5000 FU NSC 22/09 Q1013=  ## [A]
379443 2019-06-26 11:00  34               VPHY 260900Z 26006KT 6000 SCT015 SCT025 34/24 Q1007 NOSIG=  ## [A]
379644 2019-11-12 12:00  30               VPPR 121100Z 23005KT 6000 FEW020 SCT080 30/20 Q1010=  ## [A]
379932 2021-03-04 08:30  31               VQAT 040730Z 00000KT 6000 FEW015 31/24 Q1010 NOSIG=  ## [A]
------ Bhutan:
380320 2022-11-27 12:00  16 BT BT-11  PBH VQPR 271100Z 18008KT 9999 SKC 16/M00 Q1015=  ## [A] Paro, Paro Airport
380599 2019-06-15 08:00  32               VRAK 150600Z 18014KT 6000 SCT012 BKN080 32/26 Q1002=  ## [A]
380836 2019-09-23 20:00  26               VRM 231800Z 25016KT 8000 -RA SCT016TCU OVC090 26/24 Q1012 TEMPO 26015G28KT 3000 SHRA=  ## [X]
------ Maldiverna:
380907 2022-11-27 18:00  28 MV MV-01  GAN VRMG 271700Z 25010KT 9999 SCT017TCU BKN270 28/25 Q1009 NOSIG=  ## [X] Gan, Gan International Airport
380908 2022-11-27 18:00  28 MV MV-23  HAQ VRMH 271700Z 13005KT 9999 FEW018 28/24 Q1009=  ## [X] Haa Dhaalu Atoll, Hanimaadhoo Airport
380911 2022-11-27 18:00  28 MV MV-05  KDO VRMK 271700Z 23004KT 9999 FEW018 SCT270 28/24 Q1009=  ## [X] Kadhdhoo, Kadhdhoo Airport
380913 2022-11-27 18:00  27 MV MV-MLE MLE VRMM 271700Z VRB02KT 9999 FEW018 BKN270 27/24 Q1009 NOSIG=  ## [X] Malé, Malé International Airport
380920 2022-11-27 18:00  27 MV MV-28  KDM VRMT 271700Z 26004KT 9999 FEW018 27/24 Q1009=  ## [X] Huvadhu Atoll, Kaadedhdhoo Airport
380933 2020-01-01 02:00  25               VRNG 010100Z 06004KT 6000 -SHRA SCT016 SCT017CB 25/24 Q1011 CB N,S,W,NW,OVHD TEMPO 4000 SHRA=  ## [X]
381585 2021-01-24 18:00  25               VSMI 241700Z 09008KT 9999 SCT016 25/22 Q1011=  ## [A]
------ Thailand:
381970 2022-11-27 18:00  27 TH TH-10  DMK VTBD 271700Z 17003KT 9999 FEW020 27/27 Q1010 NOSIG=  ## [A] Bangkok, Don Mueang International Airport
381981 2022-11-27 12:00  27 TH TH-23  TDX VTBO 271100Z 03002KT 8000 FEW018CB BKN020 27/24 Q1008=  ## [A] , Trat Airport
381985 2022-11-27 18:00  28 TH TH-10  BKK VTBS 271700Z 18003KT 150V230 9000 FEW020 SCT080 28/24 Q1010 NOSIG=  ## [N] Bangkok, Suvarnabhumi Airport
381987 2022-11-27 18:00  27 TH TH-21  UTP VTBU 271700Z 17004KT 9999 FEW020 27/24 Q1010 NOSIG=  ## [A] Rayong, U-Tapao International Airport
381995 2022-11-27 18:00  24 TH TH-50  CNX VTCC 271700Z 25003KT 9999 FEW035 24/23 Q1011 NOSIG=  ## [A] Chiang Mai, Chiang Mai International Airport
382000 2022-11-27 12:00  28 TH TH-58  HGN VTCH 271100Z 11003KT 9999 FEW020CB SCT025 28/23 Q1008 NOSIG=  ## [A] , Mae Hong Son Airport
382004 2022-11-27 14:00  25 TH TH-52  LPT VTCL 271300Z 00000KT CAVOK 25/23 Q1010 NOSIG=  ## [A] , Lampang Airport
382006 2022-11-27 14:00  26 TH TH-55  NNT VTCN 271300Z 21003KT 9999 FEW040 26/24 Q1009 NOSIG=  ## [A] , Nan Airport
382008 2022-11-27 12:00  29 TH TH-54  PRH VTCP 271100Z 21004KT 9999 FEW035 29/24 Q1008 NOSIG=  ## [A] , Phrae Airport
382012 2022-11-27 18:00  23 TH TH-57  CEI VTCT 271700Z 32002KT 7000 FEW048 23/23 Q1011 NOSIG=  ## [A] Chiang Rai, Chiang Rai International Airport
382332 2022-11-27 12:00  26 TH TH-67  PHY VTPB 271100Z 01006KT 340V040 9000 SCT030 26/25 Q1008 NOSIG=  ## [A] , Phetchabun Airport
382338 2022-11-27 12:00  28 TH TH-76  HHQ VTPH 271100Z 10005KT 070V140 9999 FEW030 28/25 Q1008 NOSIG=  ## [A] Hua Hin, Hua Hin Airport
382343 2022-11-27 12:00  29 TH TH-63  MAQ VTPM 271100Z 22003KT 170V240 9999 FEW030 SCT090 29/23 Q1008 NOSIG=  ## [A] , Mae Sot Airport
382345 2022-11-27 12:00  29 TH TH-64  THS VTPO 271100Z VRB01KT CAVOK 29/24 Q1008 NOSIG=  ## [A] , Sukhothai Airport
382346 2022-11-27 16:00  26 TH TH-65  PHS VTPP 271500Z 09002KT CAVOK 26/24 Q1010 NOSIG=  ## [A] , Phitsanulok Airport
382350 2022-06-27 08:00  33 TH TH-63  TKT VTPT 270600Z /////KT 9999 FEW020TCU SCT026 33/23 Q1008 NOSIG=  ## [A] , Tak Airport
382410 2022-11-27 16:00  24 TH TH-84  URT VTSB 271500Z /////KT 8000 -TSRA FEW018CB SCT020 BKN100 24/24 Q1011 NOSIG=  ## [A] Surat Thani, Surat Thani Airport
382411 2022-11-27 12:00  27 TH TH-96  NAW VTSC 271100Z 00000KT 9999 FEW018 SCT100 27/24 Q1008 NOSIG=  ## [A] , Narathiwat Airport
382413 2022-11-27 12:00  26 TH TH-86  CJM VTSE 271100Z VRB01KT 9000 SCT020 BKN080 26/25 Q1007 NOSIG=  ## [A] , Chumphon Airport
382414 2022-11-27 16:00  28 TH TH-80  NST VTSF 271500Z 29003KT 250V350 9999 FEW016TCU SCT018 28/27 Q1010 NOSIG=  ## [A] Nakhon Si Thammarat, Nakhon Si Thammarat Airport
382415 2022-11-27 18:00  24 TH TH-81  KBV VTSG 271700Z 35003KT 320V040 9000 FEW020 24/23 Q1011 NOSIG=  ## [A] Krabi, Krabi Airport
382416 2020-05-13 13:00  31 TH TH-90  SGZ VTSH 131100Z 08012KT 9999 FEW018CB 31/26 Q1005 NOSIG=  ## [A] , Songkhla Airport
382419 2019-09-28 03:00  26 TH TH-94  PAN VTSK 280100Z 16004KT 8000 HZ SCT020 BKN300 26/21 Q1012=  ## [A] , Pattani Airport
382421 2022-11-27 16:00  28 TH TH-80  USM VTSM 271500Z 00000KT 9999 FEW020 28/26 Q1010 NOSIG=  ## [A] Na Thon (Ko Samui Island), Samui Airport
382424 2022-11-27 18:00  26 TH TH-83  HKT VTSP 271700Z VRB01KT 9999 FEW020 26/24 Q1010 NOSIG=  ## [A] Phuket, Phuket International Airport
382426 2022-11-27 12:00  27 TH TH-85  UNN VTSR 271100Z 00000KT 9999 SCT020 27/24 Q1008 NOSIG=  ## [A] , Ranong Airport
382427 2022-11-27 18:00  25 TH TH-90  HDY VTSS 271700Z 00000KT 9999 FEW020 25/24 Q1010 NOSIG=  ## [A] Hat Yai, Hat Yai International Airport
382428 2022-11-27 14:00  27 TH TH-92  TST VTST 271300Z 03003KT 330V070 9999 SCT030 27/24 Q1009 NOSIG=  ## [A] , Trang Airport
382435 2019-09-26 10:30  26               VTTA 260830Z 23005KT 190V290 9999 FEW030 26/17 Q1017=  ## [A]
382438 2019-11-23 17:00  22               VTTD 231600Z 21004KT 170V290 CAVOK 22/M06 Q1008=  ## [A]
382441 2019-11-24 00:00  15               VTTG 232300Z 30008KT 6000 FEW020 SCT030 15/08 Q1009 NOSIG=  ## [A]
382444 2019-09-14 10:00  28               VTTJ 140800Z 12011KT 080V140 9999 FEW023 28/18 Q1023=  ## [A]
382445 2019-11-19 10:00  15               VTTK 190900Z VRB02KT 9999 FEW023 15/05 Q1015=  ## [A]
382464 2022-11-27 16:00  25 TH TH-41  UTH VTUD 271500Z VRB01KT 9000 FEW030 25/23 Q1010 NOSIG=  ## [A] Udon Thani, Udon Thani Airport
382469 2022-11-27 17:00  25 TH TH-47  SNO VTUI 271600Z 36001KT 9999 SCT025 25/24 Q1010 NOSIG=  ## [A] , Sakon Nakhon Airport
382471 2022-11-27 18:00  24 TH TH-40  KKC VTUK 271700Z 29003KT 9000 FEW030 24/24 Q1011 NOSIG=  ## [A] Khon Kaen, Khon Kaen Airport
382472 2022-11-27 13:00  24 TH TH-42  LOE VTUL 271200Z 32003KT 9999 OVC030 24/24 Q1010 NOSIG=  ## [A] , Loei Airport
382475 2022-11-27 14:00  26 TH TH-31  BFV VTUO 271300Z 20001KT 9999 FEW020 26/26 Q1010 NOSIG=  ## [A] , Buri Ram Airport
382477 2022-11-27 15:00  24 TH TH-30  NAK VTUQ 271400Z 18002KT 9000 NSC 24/24 Q1010 NOSIG=  ## [A] , Nakhon Ratchasima Airport
382481 2022-11-27 18:00  25 TH TH-34  UBP VTUU 271700Z 00000KT 9000 NSC 25/25 Q1010 NOSIG=  ## [A] Ubon Ratchathani, Ubon Ratchathani Airport
382482 2022-11-27 15:00  25 TH TH-45  ROI VTUV 271400Z 00000KT CAVOK 25/24 Q1010 NOSIG=  ## [A] , Roi Et Airport
382483 2022-11-27 15:00  24 TH TH-48  KOP VTUW 271400Z 00000KT CAVOK 24/24 Q1010 NOSIG=  ## [A] , Nakhon Phanom Airport
382512 2019-05-21 02:00  20               VTVZ 210000Z 10019KT CAVOK 20/08 Q1015 NOSIG=  ## [A]
382913 2019-08-27 00:30  28               VULK 262230Z VRB02KT 2000 BR SCT100 28/27 Q1001 NOSIG=  ## [A]
------ Vietnam:
383353 2022-11-27 18:00  26 VN VN-61  HPH VVCI 271700Z 18006KT 140V210 9999 BKN013 BKN027 26/25 Q1008 NOSIG=  ## [A] Haiphong, Cat Bi International Airport
383362 2022-11-27 18:00  24 VN VN-34  CXR VVCR 271700Z 33002KT 9999 FEW015 24/24 Q1011 NOSIG=  ## [A] Nha Trang, Cam Ranh Airport
383364 2022-11-27 17:30  24 VN VN-02  VCA VVCT 271630Z 00000KT 9999 FEW013 24/24 Q1010 NOSIG=  ## [A] Can Tho, Can Tho International Airport
383384 2022-11-27 18:00  26 VN VN-60  DAD VVDN 271700Z 21001KT 9999 FEW015 26/25 Q1010 NOSIG=  ## [A] Da Nang, Da Nang International Airport
383617 2019-11-23 01:00  26               VVMM 230000Z 06008KT 9999 SCT018TCU BKN280 26/23 Q1009 NOSIG=  ## [X]
383632 2022-11-27 18:00  25 VN VN-15  HAN VVNB 271700Z 12007KT CAVOK 25/24 Q1008 NOSIG=  ## [A] Hanoi, Noi Bai International Airport
383684 2022-11-27 18:00  25 VN VN-56  HUI VVPB 271700Z 18003KT 9999 FEW015 SCT050 25/24 Q1010 NOSIG=  ## [A] Hue, Phu Bai Airport
383699 2022-11-27 18:00  25 VN VN-47  PQC VVPQ 271700Z VRB01KT 9999 SCT015 25/24 Q1010 NOSIG=  ## [A] Phu Quoc Island, Phu Quoc International Airport
383805 2022-11-27 18:00  27 VN VN-23  SGN VVTS 271700Z 13006KT 9999 SCT017 27/26 Q1010 NOSIG=  ## [A] Ho Chi Minh City, Tan Son Nhat International Airport
------ Myanmar:
385636 2022-11-27 12:30  28 MM MM-04  MDL VYMD 271130Z 00000KT 6000 SCT020 28/20 Q1007 NOSIG=  ## [A] Mandalay, Mandalay International Airport
385678 2022-11-27 13:00  29 MM MM-17  NMT VYNT 271200Z 24003KT 6000 SCT018 FEW025TCU SCT110 29/22 Q1008 NOSIG=  ## [A] Namtu, Namtu Airport
385969 2022-11-27 18:00  26 MM MM-06  RGN VYYY 271700Z 35002KT 6000 SCT018 SCT100 26/25 Q1010 NOSIG=  ## [A] Yangon, Yangon International Airport
------ Indonesien:
386673 2022-11-27 17:30  24 ID ID-SN  UPG WAAA 271630Z 10003KT 8000 FEW019 24/21 Q1009 NOSIG=  ## [A] Ujung Pandang-Celebes Island, Hasanuddin International Airport
386700 2022-11-24 22:00  25 ID ID-PA  BIK WABB 242100Z 04004KT 230V040 9000 SCT018 25/24 Q1011 RERA NOSIG=  ## [A] Biak-Supiori Island, Frans Kaisiepo Airport
386754 2022-11-27 18:00  27 ID ID-BA  DPS WADD 271700Z VRB01KT 9999 TS FEW016CB SCT016 27/25 Q1008 TEMPO TL1800 TS=  ## [A] Denpasar-Bali Island, Ngurah Rai (Bali) International Airport
386762 2022-11-27 18:00  25 ID ID-NB  LOP WADL 271700Z AUTO 33003KT 7000 FEW042 25/24 Q1009=  ## [A] Mataram, Lombok International Airport
386862 2020-05-05 15:00  26               WAHH 051300Z 00000KT 6000 FEW018 26/24 Q1010 NOSIG=  ## [A]
386871 2021-03-19 12:00  29               WAHQ 191100Z 21005KT 7000 SCT015 29/22 Q1006 NOSIG=  ## [A]
386873 2022-11-27 18:00  25               WAHS 271700Z AUTO VRB02KT 9000 SCT007 SCT065 BKN180 25/24 Q1009=  ## [A]
386916 2022-11-27 18:00  25 ID ID-PA  DJJ WAJJ 271700Z 29002KT 9999 FEW013 25/22 Q1007 NOSIG=  ## [A] Jayapura-Papua Island, Sentani International Airport
386943 2022-11-27 08:00  29 ID ID-PA  MKQ WAKK 270700Z 20006KT 9999 SCT016 29/24 Q1006 NOSIG=  ## [A] Merauke-Papua Island, Mopah Airport
386970 2022-11-27 18:00  26 ID ID-KI  BPN WALL 271700Z 31004KT 9000 FEW020 26/23 Q1009 NOSIG=  ## [A] Kotamadya Balikpapan, Sultan Aji Muhamad Sulaiman Airport
386997 2022-11-27 18:00  24 ID ID-SA  MDC WAMM 271700Z VRB01KT 9999 FEW020 24/23 Q1010 NOSIG=  ## [A] Manado-Celebes Island, Sam Ratulangi Airport
386998 2022-03-27 08:00  33 ID ID-SA  MNA WAMN 270600Z 35006KT 310V030 9999 FEW021 33/26 Q1008 NOSIG=  ## [A] Karakelong Island, Melangguane Airport
387024 2021-06-08 07:30  27               WANN 080530Z 08003KT 010V150 8000 -RA FEW018CB SCT019 27/25 Q1009 TEMPO TL0600 RA RMK CB IN APCH=  ## [A]
387051 2022-11-27 18:00  26 ID ID-KS  BDJ WAOO 271700Z AUTO 11001KT 7000 FEW045 26/25 Q1008=  ## [A] Banjarmasin-Borneo Island, Syamsudin Noor Airport
387078 2022-11-27 18:00  24 ID ID-MA  AMQ WAPP 271700Z 36005KT 9999 SCT018 24/23 Q1009 NOSIG=  ## [A] Ambon, Pattimura Airport,  Ambon
387105 2022-11-27 13:00  27               WAQQ 271200Z 05002KT 8000 FEW015 27/25 Q1009 NOSIG METAR =  ## [A]
387119 2020-01-10 07:00  32               WARE 100600Z 19010KT 9999 SCT017 32/24 Q1007 NOSIG=  ## [A]
387132 2022-11-27 18:00  25 ID ID-JI  SUB WARR 271700Z 24005KT 5000 HZ SCT020 25/25 Q1008 NOSIG=  ## [A] Surabaya, Juanda International Airport
387186 2022-11-27 13:00  26 ID ID-NT  KOE WATT 271200Z 11002KT 8000 BKN017 26/26 Q1009 NOSIG=  ## [A] Kupang-Timor Island, El Tari Airport
387321 2022-11-27 18:00  24               WAYY 271700Z 28003KT 8000 FEW016 24/24 Q1009 NOSIG=  ## [A]
------ Malaysia:
387506 2022-11-27 18:00  24 MY MY-13  BTU WBGB 271700Z 12003KT 030V200 9999 FEW016 24/23 Q1010=  ## [A] Bintulu, Bintulu Airport
387511 2022-11-27 18:00  24 MY MY-13  KCH WBGG 271700Z 00000KT 9999 SCT018 24/23 Q1009 NOSIG=  ## [A] Kuching, Kuching International Airport
387514 2021-02-25 08:00  31 MY MY-13  LMN WBGJ 250700Z 34006KT 290V030 9999 SCT016 31/25 Q1006=  ## [A] Limbang, Limbang Airport
387520 2021-02-25 09:00  33 MY MY-13  KPI WBGP 250800Z VRB03KT 9999 FEW017 33/21 Q1005=  ## [A] Kapit, Kapit Airport
387522 2022-11-27 18:00  25 MY MY-13  MYY WBGR 271700Z 12003KT 080V140 9999 SCT016 25/24 Q1009=  ## [A] Miri, Miri Airport
387523 2022-11-27 18:00  23 MY MY-13  SBW WBGS 271700Z 14003KT 100V160 9999 SCT016 23/23 Q1009=  ## [A] Sibu, Sibu Airport
387529 2022-11-27 18:00  24 MY MY-13  SGG WBGY 271700Z AUTO 00000KT //// // ////// 24/23 Q1009=  ## [A] Sri Aman, Simanggang Airport
387619 2022-11-27 18:00  24 MY MY-12  BKI WBKK 271700Z 12004KT 9999 FEW015 24/23 Q1009 NOSIG=  ## [A] Kota Kinabalu, Kota Kinabalu International Airport
387620 2022-11-27 18:00  25 MY MY-15  LBU WBKL 271700Z 00000KT 9999 FEW014 25/25 Q1009=  ## [A] Labuan, Labuan Airport
387627 2022-11-27 18:00  26 MY MY-12  SDK WBKS 271700Z VRB02KT 9999 FEW014 26/24 Q1009=  ## [A] Sandakan, Sandakan Airport
387628 2022-11-27 18:00  24 MY MY-12  KUD WBKT 271700Z VRB02KT 9999 FEW014 24/23 Q1009=  ## [A] Kudat, Kudat Airport
387631 2022-11-27 18:00  24 MY MY-12  TWU WBKW 271700Z 00000KT 9999 FEW016 24/23 Q1009=  ## [A] Tawau, Tawau Airport
387681 2021-02-25 09:00 XXX MY MY-13  MZV WBMU 250800Z VRB03KT 9999 X WBFCZQZX 250808 WMKKYMYX ?SAMS35 WMKK 25080 METAR =  ## [A] Mulu, Mulu Airport
------ Brunei:
387818 2022-11-27 18:00  25 BN BN-BM  BWN WBSB 271700Z 22004KT 9999 FEW014 BKN280 25/25 Q1009 NOSIG=  ## [A] Bandar Seri Begawan, Brunei International Airport
------ Indonesien:
392108 2022-11-27 18:00  26 ID ID-RI  PKU WIBB 271700Z AUTO 11002KT 9999 FEW021 SCT044 OVC060 26/25 Q1008=  ## [A] Pekanbaru-Sumatra Island, Sultan Syarif Kasim Ii (Simpang Tiga) Airport
392135 2022-08-09 10:00 XXX ID ID-JB  BDO WICC 090800Z METAR =  ## [A] Bandung-Java Island, Husein Sastranegara International Airport
392162 2022-11-27 18:00  25 ID ID-RI  BTH WIDD 271700Z 00000KT 9999 FEW014 25/24 Q1011 NOSIG=  ## [A] Batam Island, Hang Nadim International Airport
392172 2022-11-24 10:00  30 ID ID-RI  TNJ WIDN 240900Z 06010KT 9999 SCT017 30/24 Q1008 NOSIG=  ## [A] Tanjung Pinang-Bintan Island, Raja Haji Fisabilillah International Airport
392189 2022-11-27 18:00  24               WIEE 271700Z 35003KT 9999 SCT020 24/24 Q1010=  ## [A]
392270 2022-11-24 10:00  27 ID ID-JK  HLP WIHH 240900Z 24005KT 6000 SCT018 27/24 Q1007 RMK RA TO SW=  ## [A] Jakarta, Halim Perdanakusuma International Airport
392297 2022-11-27 18:00  27 ID ID-BT  CGK WIII 271700Z VRB03KT 5000 HZ FEW020 27/25 Q1009 NOSIG=  ## [N] Jakarta, Soekarno-Hatta International Airport
392378 2022-11-24 10:00  30               WILL 240900Z 17006KT 9999 SCT014 30/22 Q1007 NOSIG=  ## [A]
392405 2022-11-27 18:00  27 ID ID-SU  KNO WIMM 271700Z 20003KT 7000 SCT017 27/25 Q1009 NOSIG=  ## [A] , Kualanamu International Airport
392459 2022-11-27 18:00  24 ID ID-KB  PNK WIOO 271700Z AUTO 23001KT 9999 FEW019 OVC210 24/24 Q1009=  ## [A] Pontianak-Borneo Island, Supadio Airport
392472 2020-07-04 03:30  29               WIPB 040130Z 20003KT 7000 SCT010 29/24 Q1015=  ## [A]
392486 2022-11-27 18:00  26 ID ID-SS  PLM WIPP 271700Z 07004KT 9999 TS FEW010CB SCT010 26/26 Q1008 NOSIGRMK CB TO S=  ## [A] Palembang-Sumatra Island, Sultan Mahmud Badaruddin II Airport
393649 2019-12-15 11:25  23               WKII 151025Z 03010G20KT 4000 E 8000 TSRA FEW023CB BKN025 23/19 Q1018 NOSIG=  ## [A]
------ Malaysia:
394805 2022-11-27 18:00  25 MY MY-01  MEP WMAU 271700Z 29003KT 230V320 5000 -RA SCT025 25/24 Q1010=  ## [A] Mersing, Mersing Airport
394811 2022-11-27 18:00  25 MY MY-08  SWY WMBA 271700Z 00000KT 7000 -RA SCT031 25/24 Q1009=  ## [A] Sitiawan, Sitiawan Airport
395045 2022-11-27 18:00  25 MY MY-02  AOR WMKA 271700Z 00000KT 9999 FEW030 25/24 Q1009=  ## [A] Alor Satar, Sultan Abdul Halim Airport
395046 2022-11-27 18:00  25 MY MY-07  BWH WMKB 271700Z 00000KT 8000 FEW010 25/24 Q1009 NOSIG=  ## [A] Butterworth, Butterworth Airport
395047 2022-11-27 18:00  24 MY MY-03  KBR WMKC 271700Z VRB03KT 9999 FEW020 24/23 Q1010=  ## [A] Kota Baharu, Sultan Ismail Petra Airport
395048 2022-11-27 18:00  25 MY MY-06  KUA WMKD 271700Z 00000KT 9000 FEW005 25/23 Q1009 NOSIG=  ## [A] Kuantan, Kuantan Airport
395049 2022-11-27 18:00  24 MY MY-11  KTE WMKE 271700Z AUTO 00000KT //// // ////// 24/24 Q1009=  ## [A] Kerteh, Kerteh Airport
395053 2022-11-27 18:00  25 MY MY-08  IPH WMKI 271700Z 04003KT 010V080 7000 -RA FEW004 SCT024 25/24 Q1010=  ## [A] Ipoh, Sultan Azlan Shah Airport
395054 2022-11-27 18:00  24 MY MY-01  JHB WMKJ 271700Z 00000KT 9999 FEW012 24/23 Q1009=  ## [A] Johor Bahru, Senai International Airport
395055 2022-11-27 18:00  25 MY MY-14  KUL WMKK 271700Z 00000KT 9000 FEW010 25/24 Q1009 NOSIG=  ## [A] Kuala Lumpur, Kuala Lumpur International Airport
395056 2022-11-27 18:00  26 MY MY-02  LGK WMKL 271700Z VRB03KT 9999 FEW026 26/24 Q1010=  ## [A] Langkawi, Langkawi International Airport
395057 2022-11-27 18:00  24 MY MY-04  MKZ WMKM 271700Z VRB02KT 9999 FEW028 24/23 Q1010=  ## [A] Malacca, Malacca Airport
395058 2022-11-27 18:00  25 MY MY-11  TGG WMKN 271700Z 25003KT 9999 FEW022 25/24 Q1009=  ## [A] Kuala Terengganu, Sultan Mahmud Airport
395060 2022-11-27 18:00  26 MY MY-07  PEN WMKP 271700Z VRB01KT 8000 FEW025 26/23 Q1009 NOSIG=  ## [A] Penang, Penang International Airport
395253 2022-11-27 18:00  25 MY MY-10  SZB WMSA 271700Z 00000KT 5000 BR FEW005 25/24 Q1009=  ## [A] Subang, Sultan Abdul Aziz Shah International Airport
------ Singapore:
398856 2022-11-27 18:00  25 SG SG-04  QPG WSAP 271700Z 02003KT 9999 FEW016 BKN300 25/23 Q1009=  ## [A] , Paya Lebar Air Base
399320 2022-11-27 18:00  25 SG SG-02  XSP WSSL 271700Z VRB02KT 9999 FEW018 BKN300 25/24 Q1009=  ## [A] Seletar, Seletar Airport
399327 2022-11-27 18:00  25 SG SG-04  SIN WSSS 271700Z 33003KT 6000 FEW016 BKN300 25/24 Q1009 NOSIG=  ## [N] Singapore, Singapore Changi Airport
399399 2021-03-26 07:00  24               WSVM 260600Z 00000KT 9999 SCT080 24/22 Q1013=  ## [A]
------ Australien:
421851 2022-11-15 18:30  13 AU AU-WA  ALH YABA 151730Z AUTO 07011KT 9999 // BKN012 13/12 Q1011=  ## [A] Albany, Albany Airport
422138 2022-11-27 18:00  21 AU AU-QLD --- YAMB 271700Z AUTO 33005KT 9999 // BKN084 OVC105 21/18 Q1006=  ## [A] , RAAF Base Amberley
422273 2022-11-15 19:12  23 AU AU-WA  GYL YARG 151812Z AUTO 17006KT 9999 VCTS SCT021 SCT043 OVC051 23/21 Q1009 RETS=  ## [A] , Argyle Airport
422453 2022-11-13 09:00  31 AU AU-NT  AYQ YAYE 130800Z AUTO 25015G28KT 9999 // NCD 31/M07 Q1009=  ## [A] Ayers Rock, Ayers Rock Connellan Airport
422468 2022-11-27 18:00  16               YAYT 271700Z 09004KT CAVOK 16/M07 Q1015=  ## [A]
422514 2021-12-07 16:52   3 AU AU-WA  --- YBAN 071552Z AUTO 00000KT 10SM FEW009 SCT013 OVC025 03/M01 A3002 RMK AO2 SLP142 T00281006 $ =  ## [A] , Mount Barnet Airport
422519 2022-11-27 18:00  22 AU AU-NT  ASP YBAS 271700Z AUTO 11004KT 9999 // NCD 22/17 Q1010 RF00.0/000.0=  ## [A] Alice Springs, Alice Springs Airport
422540 2022-11-27 18:00  23 AU AU-QLD BNE YBBN 271700Z 35012KT CAVOK 23/18 Q1006=  ## [A] Brisbane, Brisbane International Airport
422559 2022-11-27 18:00  23 AU AU-QLD OOL YBCG 271700Z AUTO 34011KT 9999 // SCT095 23/19 Q1005 RF00.0/000.0=  ## [A] Gold Coast, Gold Coast Airport
422571 2022-11-27 18:00  25 AU AU-QLD CNS YBCS 271700Z AUTO 00000KT 9999 // SCT120 25/23 Q1006=  ## [A] Cairns, Cairns International Airport
422574 2022-11-15 13:08  19 AU AU-QLD CTL YBCV 151208Z AUTO 20005KT 9999 // NCD 19/07 Q1012=  ## [A] Charleville, Charleville Airport
422600 2022-11-15 04:57  28 AU AU-QLD BVI YBDV 150357Z AUTO 21015KT 9999 // NCD 28/05 Q1012=  ## [A] , Birdsville Airport
422691 2022-05-12 02:00  14 AU AU-NSW BHQ YBHI 120000Z AUTO 19006KT 4000 // OVC003 OVC009 14/14 Q1016=  ## [A] Broken Hill, Broken Hill Airport
422695 2022-11-27 18:00  26 AU AU-QLD HTI YBHM 271700Z AUTO 33004KT 9999 // NCD 26/22 Q1007 RF00.0/000.0=  ## [A] Hamilton Island, Hamilton Island Airport
422762 2020-12-20 04:12  12               YBKB 200312Z AUTO 00000KT 9SM BKN004 OVC008 12/12 A3004 RMK AO2 T01220117 $ =  ## [A]
422800 2022-11-27 18:00  12 AU AU-WA  BQB YBLN 271700Z AUTO 14009KT 9999 // NCD 12/09 Q1019 RF00.0/000.0=  ## [A] , Busselton Regional Airport
422813 2022-11-27 18:00  25 AU AU-QLD ISA YBMA 271700Z AUTO 04005KT 9999 // OVC100 25/21 Q1007 RF00.0/000.0=  ## [A] Mount Isa, Mount Isa Airport
422823 2022-05-12 02:00  23 AU AU-QLD MKY YBMK 120000Z AUTO 06011KT 3200 +RA BKN014 BKN030 BKN055 23/22 Q1011=  ## [A] Mackay, Mackay Airport
422839 2022-05-12 02:00  23 AU AU-NSW BNK YBNA 120000Z AUTO 07015KT 9999 // SCT031 BKN038 BKN049 23/17 Q1020=  ## [A] Ballina, Ballina Byron Gateway Airport
422875 2022-05-12 02:00  19 AU AU-QLD OKY YBOK 120000Z 09011KT 3000 -RA BKN008 OVC022 19/18 Q1018=  ## [A] , Oakey Airport
422904 2022-05-12 02:00  22 AU AU-QLD PPP YBPN 120000Z AUTO 20006KT 9999 -RA SCT077 OVC088 22/22 Q1011=  ## [A] Proserpine, Proserpine Whitsunday Coast Airport
422953 2022-11-27 18:00  23 AU AU-QLD ROK YBRK 271700Z AUTO 00000KT 9999 // NCD 23/18 Q1007 RF00.0/000.0=  ## [A] Rockhampton, Rockhampton Airport
422955 2022-11-27 18:00  28 AU AU-WA  BME YBRM 271700Z AUTO 32005KT 9999 // BKN017 BKN022 28/24 Q1006=  ## [A] Broome, Broome International Airport
422989 2022-11-27 18:00  21               YBSU 271700Z AUTO 35008KT 9999 // OVC100 21/20 Q1007 RF00.0/076.2=  ## [A]
423006 2022-11-27 18:00  22 AU AU-QLD TSV YBTL 271700Z AUTO 07005KT 9999 -RA SCT036 22/22 Q1007 RERA=  ## [A] Townsville, Townsville Airport
423024 2022-11-11 21:00  17 AU AU-QLD BDB YBUD 112000Z AUTO 00000KT 9999 // NCD 17/16 Q1014=  ## [A] Bundaberg, Bundaberg Airport
423088 2022-11-10 19:11  24 AU AU-QLD WEI YBWP 101811Z AUTO 14003KT 9999 // NCD 24/22 Q1009=  ## [A] Weipa, Weipa Airport
423095 2022-11-27 18:00  19 AU AU-QLD WTB YBWW 271700Z AUTO 36004KT 9999 // SCT050 SCT066 SCT075 19/16 Q1007=  ## [A] Toowoomba, Toowoomba Wellcamp Airport
423096 2022-10-24 10:19  25 AU AU-WA  BWB YBWX 240819Z AUTO 27017KT //// // ////// 25/16 Q1007=  ## [A] , Barrow Island Airport
423194 2022-11-13 11:22  22 AU AU-WA  CVQ YCAR 131022Z AUTO 20020G30KT 9999 // NCD 22/14 Q1011=  ## [A] Carnarvon, Carnarvon Airport
423195 2022-11-14 04:33  31 AU AU-NSW CSI YCAS 140333Z AUTO 35015G26KT //// // ////// 31/19 Q1004=  ## [A] , Casino Airport
423203 2022-11-16 02:33  17 AU AU-NSW CAZ YCBA 160133Z AUTO 24015G25KT 9999 // BKN061 17/03 Q1015=  ## [A] , Cobar Airport
423204 2022-11-16 02:30  13 AU AU-NSW COJ YCBB 160130Z AUTO 23015G26KT 9999 // OVC055 13/01 Q1012=  ## [A] , Coonabarabran Airport
423218 2022-11-13 10:00  24 AU AU-SA  CPD YCBP 130900Z AUTO 24023G36KT 9999 // SCT083 24/04 Q1009=  ## [A] , Coober Pedy Airport
423253 2022-11-13 18:30  23 AU AU-QLD CNJ YCCY 131730Z AUTO 11006KT 9999 // BKN007 BKN066 23/22 Q1009=  ## [A] Cloncurry, Cloncurry Airport
423275 2022-11-14 20:30  12 AU AU-SA  CED YCDU 141930Z AUTO 12005KT 5000 -DZ BR SCT013 SCT020 BKN029 12/12 Q1019=  ## [A] , Ceduna Airport
423325 2022-11-27 18:00  25               YCFS 271700Z AUTO 02006KT 9999 // NCD 25/16 Q1002 RF00.0/000.0=  ## [A]
423398 2022-11-27 18:00  26 AU AU-WA  DCN YCIN 271700Z AUTO 00000KT 9999 // SCT016 26/25 Q1005 RF00.0/004.4=  ## [A] , RAAF Base Curtin
423527 2022-11-14 05:30  25 AU AU-NSW CNB YCNM 140430Z AUTO 28016G27KT //// // ////// 25/11 Q1007=  ## [A] , Coonamble Airport
423553 2022-11-15 22:30   3 AU AU-NSW OOM YCOM 152130Z AUTO 21009KT 9999 // SCT005 BKN010 BKN020 03/03 Q1010=  ## [A] Cooma, Cooma Snowy Mountains Airport
423903 2022-11-14 23:29  27 AU AU-WA  DRB YDBY 142229Z AUTO 19009KT 9999 // SCT015 27/23 Q1008=  ## [A] , Derby Airport
424852 2022-11-15 18:05  21 AU AU-QLD EMD YEML 151705Z AUTO 24007KT 9999 // NCD 21/15 Q1008=  ## [A] Emerald, Emerald Airport
425012 2022-11-15 23:21  13 AU AU-WA  EPR YESP 152221Z AUTO 02015G25KT 9999 // NCD 13/08 Q1014=  ## [A] Esperance, Esperance Airport
425666 2022-11-27 18:00  11 AU AU-WA  FOS YFRT 271700Z AUTO 18005KT 9999 // NCD 11/09 Q1016 RF00.0/000.0=  ## [A] , Forrest Airport
425996 2022-11-27 18:00  16 AU AU-WA  GET YGEL 271700Z AUTO 14009KT 9999 // NCD 16/13 Q1012 RF00.0/000.0=  ## [A] Geraldton, Geraldton Airport
426016 2019-10-20 18:00  29               YGFF 201600Z 25011KT 9999 -SHRA SCT016TCU FEW019CB BKN150 29/26 A3000=  ## [A]
426024 2022-11-15 19:33  14 AU AU-NSW GFN YGFN 151833Z AUTO 00000KT 1600 BR SCT004 14/13 Q1007=  ## [A] , Grafton Airport
426167 2022-11-27 18:00  25 AU AU-QLD GLT YGLA 271700Z AUTO 02007KT 9999 // BKN028 BKN037 25/19 Q1007=  ## [A] Gladstone, Gladstone Airport
426379 2022-11-15 04:30  25 AU AU-NT  GTE YGTE 150330Z AUTO 17003KT 9999 TS BKN056 BKN094 BKN105 25/24 Q1009=  ## [A] Groote Eylandt, Groote Eylandt Airport
426382 2022-11-14 13:29  15 AU AU-NSW GFF YGTH 141229Z AUTO 23016KT 9999 DZ SCT023 BKN028 BKN040 15/14 Q1010=  ## [A] Griffith, Griffith Airport
426768 2022-11-27 18:00  25 AU AU-QLD HID YHID 271700Z AUTO 00000KT 9999 // NCD 25/25 Q1007 RF00.0/000.4=  ## [A] Horn Island, Horn Island Airport
427083 2022-11-13 19:07  22 AU AU-QLD HGD YHUG 131807Z AUTO 10007KT 9999 -SHRA SCT010 SCT100 22/22 Q1010=  ## [A] , Hughenden Airport
429051 2022-11-14 19:27  12 AU AU-QLD KGY YKRY 141827Z AUTO 17003KT 9999 // NCD 12/12 Q1010=  ## [A] , Kingaroy Airport
429367 2022-11-14 06:00  20 AU AU-SA  LGH YLEC 140500Z AUTO 23015G25KT 9999 // SCT050 20/06 Q1014=  ## [A] , Leigh Creek Airport
429451 2022-11-27 18:00  20 AU AU-NSW LDH YLHI 271700Z AUTO 03012KT 9999 // SCT020 SCT027 OVC043 20/17 Q1008=  ## [A] Lord Howe Island, Lord Howe Island Airport
429487 2022-11-16 01:09  27 AU AU-NSW LSY YLIS 160009Z AUTO 26015KT 9999 // BKN072 27/11 Q1007=  ## [A] Lismore, Lismore Airport
429707 2022-11-13 22:57  24 AU AU-QLD LRE YLRE 132157Z AUTO 15004KT 020V180 9999 // SCT006 24/22 Q1012=  ## [A] Longreach, Longreach Airport
429958 2022-11-27 18:00   8 AU AU-VIC AVV YMAV 271700Z AUTO 29008KT 9999 // SCT059 08/06 Q1007 RF00.0/000.2=  ## [A] Melbourne, Avalon Airport
429961 2022-11-14 07:09  15 AU AU-NSW ABX YMAY 140609Z AUTO 23013KT 220V290 8000 // SCT025 SCT035 BKN046 15/15 Q1004 RETS=  ## [A] Albury, Albury Airport
429982 2021-05-05 14:00  24 AU AU-VIC --- YMBT 051200Z 13004KT 9000 VCSH SCT019 BKN100 24/24 Q//// NOSIG=  ## [A] Mount Beauty, Mount Beauty Airport
430021 2022-11-16 03:34  14 AU AU-NSW DGE YMDG 160234Z AUTO 23017G27KT 9999 // SCT053 BKN066 OVC081 14/04 Q1011=  ## [A] Mudgee, Mudgee Airport
430048 2022-01-06 15:21   0               YMEH 061421Z AUTO 4SM -FZRA BR OVC013 00/00 A2981 RMK AO2 UPE1359FZRAB1359 P0001 I1001 T00000000 $ =  ## [A]
430051 2022-11-15 06:00  31 AU AU-WA  MKR YMEK 150500Z AUTO 08016G26KT 9999 // NCD 31/M02 Q1011=  ## [A] , Meekatharra Airport
430054 2022-11-16 02:22  10 AU AU-VIC MEB YMEN 160122Z AUTO 21022KT 150V240 9999 RA SCT031 BKN045 BKN057 10/06 Q1016=  ## [A] , Melbourne Essendon Airport
430058 2022-11-14 05:52  24 AU AU-NSW MIM YMER 140452Z AUTO 28015G26KT 9999 // BKN115 24/08 Q0996=  ## [A] Merimbula, Merimbula Airport
430120 2022-11-27 18:00   9 AU AU-TAS HBA YMHB 271700Z AUTO 35007KT 9999 // NCD 09/03 Q1000 RF00.0/000.2=  ## [A] Hobart, Hobart International Airport
430137 2022-01-03 07:16   0               YMHS 030616Z AUTO 13006KT 8SM BKN008 BKN021 OVC026 00/M02 A3006 RMK AO2 CIG 004V012 T00001022 =  ## [A]
430145 2022-11-14 07:00  19 AU AU-VIC MQL YMIA 140600Z AUTO 23016G27KT 9999 // SCT039 OVC070 19/09 Q1010=  ## [A] Mildura, Mildura Airport
430242 2022-11-27 18:00   4 AU AU-TAS LST YMLT 271700Z AUTO 34008KT 9999 // NCD 04/01 Q1002 RF00.0/001.0=  ## [A] Launceston, Launceston Airport
430260 2022-11-27 18:00   7 AU AU-VIC MEL YMML 271700Z 01005KT 9999 FEW022 07/05 Q1007=  ## [N] Melbourne, Melbourne International Airport
430318 2022-11-16 03:03  20 AU AU-NSW MRZ YMOR 160203Z AUTO 24019G29KT 9999 // NCD 20/01 Q1012=  ## [A] Moree, Moree Airport
430437 2022-11-15 04:32  11 AU AU-SA  MGB YMTG 150332Z AUTO 21016G26KT 9999 -RA SCT032 BKN041 OVC052 11/06 Q1016=  ## [A] , Mount Gambier Airport
430584 2020-07-18 01:00  25               YMYX 172300Z 32005KT CAVOK 25/18 Q1007 NOSIG=  ## [A]
430630 2022-11-16 02:10  15 AU AU-NSW NRA YNAR 160110Z AUTO 30015G31KT 170V300 9999 // SCT050 15/02 Q1015=  ## [A] Narrandera, Narrandera Airport
430645 2021-05-01 06:55  23               YNBG 010455Z AUTO 04007KT 10SM FEW018 23/22 A3006 RMK AO2 SLP177 T02280217 $ =  ## [A]
430656 2022-11-14 07:00  26 AU AU-NSW NAA YNBR 140600Z AUTO 27016G26KT 9999 // NCD 26/07 Q1007=  ## [A] Narrabri, Narrabri Airport
430824 2021-11-14 09:56  11               YNID 140856Z AUTO 27006KT 10SM CLR 11/M04 A3021 RMK AO2 SLP221 T01061044 50003 $ =  ## [A]
430937 2021-12-07 14:56   4               YNMM 071356Z 05005KT 10SM OVC024 04/M01 A3018 RMK AO2 SLP232 T00441006 =  ## [A]
430964 2022-06-18 21:37  30               YNNN 181937Z 02008KT 350V050 9999 FC SCT015CB BKN020 30/24 A2996=  ## [A]
431110 2022-01-01 09:52   7               YNTD 010852Z AUTO 36006KT 10SM CLR 07/03 A2990 RMK AO2 SLP125 T00720033 51025 CHINO N VISNO N $ =  ## [A]
431120 2022-11-15 07:15  29 AU AU-QLD NTN YNTN 150615Z AUTO 01007KT 9999 SHRA SCT056 SCT070 BKN091 29/24 Q1004 RETS=  ## [A] Normanton, Normanton Airport
431198 2022-11-16 03:51  30 AU AU-WA  ZNE YNWN 160251Z AUTO 34016G26KT 9999 // BKN051 30/15 Q1008=  ## [A] Newman, Newman Airport
431578 2022-11-14 00:30  17 AU AU-SA  OLP YOLD 132330Z AUTO 21019G31KT 9999 // SCT040 17/06 Q1016=  ## [A] Olympic Dam, Olympic Dam Airport
431968 2022-11-27 17:30  15 AU AU-SA  ADL YPAD 271630Z 21010KT 9999 FEW028 BKN055 15/08 Q1011=  ## [A] Adelaide, Adelaide International Airport
432005 2022-11-15 04:11  32 AU AU-WA  PBO YPBO 150311Z AUTO 03019G29KT 9999 // SCT077 32/06 Q1009=  ## [A] Paraburdoo, Paraburdoo Airport
------ Kokosöarna:
432019 2022-11-27 18:00  27 CC CC-U-A CCK YPCC 271700Z AUTO 14007KT 9999 // SCT042 BKN120 27/24 Q1010=  ## [A] Cocos (Keeling) Islands, Cocos (Keeling) Islands Airport
------ Australien:
432056 2022-11-27 18:02  25 AU AU-NT  DRW YPDN 271702Z AUTO 33017KT 320V030 5000 TSRA SCT007 BKN014 BKN020 25/24 Q1006=  ## [A] Darwin, Darwin International Airport
432069 2022-11-27 18:19  18 AU AU-WA  --- YPEA 271719Z AUTO 09015G29KT 9999 // NCD 18/08 Q1014=  ## [A] Bullsbrook, RAAF Base Pearce
432142 2022-11-27 18:00  27 AU AU-NT  GOV YPGV 271700Z AUTO 00000KT 9999 // NCD 27/24 Q1006 RF00.0/000.0=  ## [A] Nhulunbuy, Gove Airport
432218 2022-11-27 18:00  18 AU AU-WA  JAD YPJT 271700Z AUTO 10013KT 9999 // NCD 18/08 Q1016 RF00.0/000.0=  ## [A] Perth, Perth Jandakot Airport
432231 2022-11-27 18:00  17 AU AU-WA  KGI YPKG 271700Z AUTO 13014KT 9999 // NCD 17/08 Q1016 RF00.0/000.0=  ## [A] Kalgoorlie, Kalgoorlie Boulder Airport
432245 2022-11-27 18:00  26 AU AU-WA  KNX YPKU 271700Z AUTO 31005KT 9999 // NCD 26/25 Q1005 RF00.0/001.0=  ## [A] Kununurra, Kununurra Airport
432263 2022-11-27 18:00  22 AU AU-WA  LEA YPLM 271700Z AUTO 21016KT 9999 // NCD 22/17 Q1007 RF00.0/000.0=  ## [A] Exmouth, Learmonth Airport
432293 2022-11-14 05:00  31 AU AU-NSW PQQ YPMQ 140400Z AUTO 29017G29KT 9999 // SCT078 31/16 Q1001=  ## [A] Port Macquarie, Port Macquarie Airport
432358 2022-11-27 18:00  25 AU AU-WA  PHE YPPD 271700Z AUTO 36006KT 9999 // NCD 25/24 Q1005 RF00.0/000.0=  ## [A] Port Hedland, Port Hedland International Airport
432362 2022-11-27 18:00  18 AU AU-WA  PER YPPH 271700Z 12009KT CAVOK 18/08 Q1015=  ## [N] Perth, Perth International Airport
432472 2022-11-27 18:00  25 AU AU-NT  KTR YPTN 271700Z AUTO 00000KT 9999 // SCT053 BKN099 25/23 Q1006=  ## [A] , Tindal Airport
432554 2022-11-27 18:00  15 AU AU-SA  UMR YPWR 271700Z AUTO 20014KT 9999 // NCD 15/07 Q1012 RF00.0/000.0=  ## [A] Woomera, Woomera Airfield
------ Julön:
432575 2022-11-27 18:00  24 CX CX-U-A XCH YPXM 271700Z AUTO 13005KT 9999 // BKN012 BKN018 BKN027 24/23 Q1012=  ## [A] Christmas Island, Christmas Island Airport
------ Australien:
433632 2022-11-14 08:30  34 AU AU-QLD RCM YRMD 140730Z AUTO 20004KT 5000 HZ NCD 34/21 Q1007=  ## [A] , Richmond Airport
433800 2019-04-28 17:54  12               YRSP 281554Z AUTO VRB04KT 10SM OVC030 12/08 A2988 RMK AO2 SLP123 T01220078 $ =
434046 2022-11-27 18:21  10 AU AU-ACT CBR YSCB 271721Z AUTO 00000KT 9999 // BKN011 10/10 Q1005 RF00/0/000/0=  ## [A] Canberra, Canberra International Airport
434072 2021-12-29 16:53  -1               YSDB 291553Z AUTO 19020G30KT M1/4SM FG VV001 02/M01 A2976 RMK AO2 PK WND 21030/1553 SNE20 SLPNO P0000 T00171006 =  ## [A]
434091 2022-11-27 18:00  15 AU AU-NSW DBO YSDU 271700Z AUTO 20006KT 9999 // SCT085 15/12 Q1006 RF00.0/000.2=  ## [A] Dubbo, Dubbo City Regional Airport
------ Norfolkön:
434336 2022-11-27 18:00  16 NF NF-U-A NLK YSNF 271700Z AUTO 00000KT 9999 // SCT022 16/14 Q1013 RF00.0/000.2=  ## [A] Burnt Pine, Norfolk Island International Airport
------ Australien:
434353 2022-11-16 03:33  10 AU AU-NSW NOA YSNW 160233Z AUTO 17015G27KT 9999 -SHRA SCT020 BKN048 BKN058 10/08 Q1010=  ## [A] , Nowra Airport
434443 2022-11-27 18:15  18 AU AU-NSW XRH YSRI 271715Z AUTO 13005KT 9999 // BKN013 BKN019 OVC026 18/17 Q1004=  ## [A] Richmond, RAAF Base Richmond
434485 2022-11-27 18:00  18 AU AU-NSW SYD YSSY 271700Z 21013KT 9999 SCT012 BKN030 18/16 Q1004=  ## [N] Sydney, Sydney Kingsford Smith International Airport
434509 2022-11-27 18:00  19 AU AU-NSW TMW YSTW 271700Z AUTO 35007KT 9999 // SCT066 SCT100 19/15 Q1005=  ## [A] Tamworth, Tamworth Airport
434571 2022-11-13 03:30 XXX AU AU-NSW WGA YSWG 130230Z AUTO /////KT //// TS ////// ///// Q////=  ## [A] Wagga Wagga, Wagga Wagga City Airport
434778 2022-11-15 02:35  33 AU AU-WA  TEF YTEF 150135Z AUTO 07015G25KT //// // NCD 33/03 Q1010=  ## [A] , Telfer Airport
435017 2022-11-14 11:30  25 AU AU-NT  TCA YTNK 141030Z AUTO 35013KT 8000 // SCT064 OVC083 25/21 Q1011=  ## [A] Tennant Creek, Tennant Creek Airport
435115 2022-11-14 10:56  20 AU AU-NSW TRO YTRE 140956Z AUTO 18005KT 130V260 9999 // NCD 20/20 Q1005=  ## [A] Taree, Taree Airport
436872 2022-11-13 07:17  17 AU AU-VIC WGT YWGT 130617Z AUTO 19005KT //// // ////// 17/16 Q1000 RETS=  ## [A] , Wangaratta Airport
436879 2022-11-15 07:04  17 AU AU-SA  WYA YWHA 150604Z AUTO 17017G27KT 9999 // BKN063 17/06 Q1016=  ## [A] Whyalla, Whyalla Airport
436995 2022-11-27 18:09  19 AU AU-NSW NTL YWLM 271709Z AUTO 25010KT 6000 +TSRA SCT009 SCT015 BKN022 19/18 Q1004=  ## [A] Williamtown, Newcastle Airport
437291 2020-01-31 16:00  30               YWWW 311500Z 08004KT 9999 FEW045CB SCT050TCU 30/05 Q1019=  ## [A]
------ Kina:
440077 2022-11-27 18:00   6 CN CN-11  PEK ZBAA 271700Z 34003MPS CAVOK 06/M07 Q1014 NOSIG=  ## [N] Beijing, Beijing Capital International Airport
440080 2022-11-27 18:00   3 CN CN-13  PKX ZBAD 271700Z 29001MPS 9999 SCT020 03/01 Q1014 NOSIG=  ## [A] Beijing, Beijing Daxing International Airport
440266 2022-11-27 18:00  -3 CN CN-15  HET ZBHH 271700Z VRB01MPS CAVOK M03/M07 Q1014 NOSIG=  ## [A] Hohhot, Baita International Airport
440363 2021-05-26 11:00   9 CN CN-15  HLD ZBLA 260900Z 10006MPS 9999 -SHRA FEW033CB 09/04 Q0999 BECMG TL0930 18004MPS SHRA=  ## [A] Hailar, Dongshan Airport
440463 2019-06-11 19:00  23 CN CN-15  BAV ZBOW 111700Z 30002MPS CAVOK 23/12 Q1011 NOSIG=  ## [A] Baotou, Baotou Airport
440554 2022-11-27 18:00   3 CN CN-13  SJW ZBSJ 271700Z 34002MPS CAVOK 03/M02 Q1014 NOSIG=  ## [A] Shijiazhuang, Shijiazhuang Daguocun International Airport
440580 2022-11-27 18:00   3 CN CN-12  TSN ZBTJ 271700Z 00000MPS 4500 -RA BR BKN006 OVC033 03/02 Q1012 NOSIG=  ## [A] Tianjin, Tianjin Binhai International Airport
440714 2022-11-27 18:00   6 CN CN-14  TYN ZBYN 271700Z VRB01MPS 5000 BR FEW040 06/04 Q1013 NOSIG=  ## [A] Taiyuan, Taiyuan Wusu Airport
443559 2020-08-13 23:00  25 CN CN-43  DYG ZGDY 132100Z VRB01MPS 9999 SCT060 25/25 Q1006 NOSIG=  ## [A] Dayong, Dayong Airport
443619 2022-11-27 18:00  23 CN CN-44  CAN ZGGG 271700Z 07002MPS 6000 FEW011 OVC050 23/23 Q1010 NOSIG=  ## [N] Guangzhou, Guangzhou Baiyun International Airport
443639 2022-11-27 18:00  19 CN CN-43  CSX ZGHA 271700Z VRB01MPS CAVOK 19/18 Q1006 NOSIG=  ## [A] Changsha, Changsha Huanghua International Airport
443728 2022-11-27 18:00  25 CN CN-45  KWL ZGKL 271700Z 18005MPS 9999 BKN033 OVC050 25/22 Q1006 NOSIG=  ## [A] Guilin City, Guilin Liangjiang International Airport
443792 2019-08-23 13:00  32 CN CN-44  MXZ ZGMX 231100Z VRB01MPS 9999 BKN023 32/26 Q1004 NOSIG=  ## [A] Meixian, Meixian Airport
443808 2022-11-27 18:00  22 CN CN-45  NNG ZGNN 271700Z 00000MPS CAVOK 22/21 Q1008 NOSIG=  ## [A] Nanning, Nanning Wuxu Airport
443843 2022-11-27 18:00  21 CN CN-44  SWA ZGOW 271700Z VRB01MPS 5000 BR SCT011 OVC015 21/20 Q1013 NOSIG=  ## [A] Shantou, Jieyang Chaoshan International Airport
443950 2022-11-27 18:00  24 CN CN-44  SZX ZGSZ 271700Z 10002MPS 9000 -RA FEW020 BKN050 24/22 Q1011 NOSIG=  ## [A] Shenzhen, Shenzhen Bao'an International Airport
444187 2022-11-27 18:00   4 CN CN-41  CGO ZHCC 271700Z 01003MPS 3500 -RA BR SCT006 OVC017 04/03 Q1013 NOSIG=  ## [A] Zhengzhou, Zhengzhou Xinzheng International Airport
444322 2022-11-27 18:00  17 CN CN-42  WUH ZHHH 271700Z 09005MPS 7000 -RA OVC030 17/16 Q1007 BECMG TL1810 TSRA FEW030CB BKN040=  ## [A] Wuhan, Wuhan Tianhe International Airport
444443 2020-01-29 01:00   0 CN CN-41  LYA ZHLY 290000Z 27002MPS 4200 BR NSC M00/M03 Q1025 NOSIG=  ## [A] Luoyang, Luoyang Airport
445677 2022-11-27 18:00  25 CN CN-46  HAK ZJHK 271700Z 16002MPS 110V220 CAVOK 25/23 Q1010 NOSIG=  ## [A] Haikou, Haikou Meilan International Airport
445977 2022-11-27 18:00  25 CN CN-46  SYX ZJSY 271700Z 08002MPS CAVOK 25/23 Q1010 NOSIG=  ## [A] Sanya, Sanya Phoenix International Airport
------ Nordkorea:
446575 2021-08-24 20:00  23 KP KP-01  FNJ ZKPY 241800Z 15002MPS 7000 OVC027 23/21 Q1003 NOSIG=  ## [A] Pyongyang, Pyongyang Sunan International Airport
447004 2021-06-02 23:00   1               ZLGL 022100Z VRB01MPS 9999 -SNRA FEW016 SCT026 OVC080 01/M01 Q1033 NOSIG=  ## [A]
------ Kina:
447134 2022-11-27 18:00  -4 CN CN-62  LHW ZLLL 271700Z 04006MPS CAVOK M04/M10 Q1018 NOSIG=  ## [A] Lanzhou, Lanzhou Zhongchuan Airport
447337 2020-12-14 01:55   2               ZLTG 140055Z 15002KT 9999 FEW080 02/M05 A2898 RMK SDG/HDG=  ## [A]
447448 2020-01-25 05:00  -4 CN CN-63  XNN ZLXN 250400Z 31003MPS 5000 BR NSC M04/M11 Q1022 NOSIG=  ## [A] Xining, Xining Caojiabu Airport
447459 2022-11-27 18:00   8 CN CN-61  XIY ZLXY 271700Z 19003MPS 2500 BR OVC060 08/06 Q1014 NOSIG=  ## [A] Xi'an, Xi'an Xianyang International Airport
447575 2022-11-27 18:00 -22               ZMCK 271700Z 35005MPS 5000 SN OVC030 M22/M25 Q1017 NOSIG RMK QFE647.4 71 NT=  ## [A]
447774 2021-05-14 05:00   8               ZMKB 140300Z 36009MPS 9999 -RA FEW023 FEW030CB BKN033 08/06 Q1012 NOSIG RMK QFE658.0 85 MOP=  ## [A]
------ Mongoliet:
448034 2022-11-27 18:00 -22 MN MN-1   ULN ZMUB 271700Z 35005MPS 8000 -SN OVC030 M22/M27 Q1020 NOSIG RMK QFE657.2 63 NT=  ## [A] Ulan Bator, Chinggis Khaan International Airport
------ Kina:
449946 2022-11-27 18:00  11 CN CN-53  KMG ZPPP 271700Z 21005MPS CAVOK 11/08 Q1018 NOSIG=  ## [A] Kunming, Kunming Changshui International Airport
451581 2022-11-27 18:00  21 CN CN-35  XMN ZSAM 271700Z 09003MPS 7000 -RA FEW012 OVC020 21/19 Q1014 NOSIG=  ## [A] Xiamen, Xiamen Gaoqi International Airport
451627 2020-01-13 02:00   1 CN CN-32  CZX ZSCG 130100Z 00000MPS 1200 R11/1000D BR NSC 01/00 Q1025 NOSIG=  ## [A] Changzhou, Changzhou Benniu Airport
451634 2021-09-09 03:00  28 CN CN-36  KHN ZSCN 090100Z VRB01MPS CAVOK 28/24 Q1012 NOSIG=  ## [A] Nanchang, Nanchang Changbei International Airport
451724 2022-11-27 18:00  19 CN CN-35  FOC ZSFZ 271700Z 13001MPS 9999 OVC021 19/17 Q1014 NOSIG=  ## [A] Fuzhou, Fuzhou Changle International Airport
451753 2022-11-27 18:00  15 CN CN-33  HGH ZSHC 271700Z 00000MPS 6000 NSC 15/14 Q1013 NOSIG=  ## [A] Hangzhou, Hangzhou Xiaoshan International Airport
451816 2022-11-24 08:53  19 CN CN-37  TNA ZSJN 240753Z 23003MPS CAVOK 19/04 Q1014 NOSIG=  ## [A] Jinan, Yaoqiang Airport
451908 2022-11-27 18:00  16 CN CN-33  NGB ZSNB 271700Z 17001MPS 6000 SCT020 16/16 Q1014 NOSIG=  ## [A] Ningbo, Ningbo Lishe International Airport
451916 2022-11-27 18:00  16 CN CN-32  NKG ZSNJ 271700Z 08001MPS 8000 NSC 16/14 Q1011 NOSIG=  ## [A] Nanjing, Nanjing Lukou Airport
451926 2020-05-29 02:00  23               ZSNT 290000Z 13002MPS 100V170 2000 BR NSC 23/20 Q1013 NOSIG=  ## [A]
451938 2022-11-27 18:00  17 CN CN-34  HFE ZSOF 271700Z 14004MPS CAVOK 17/15 Q1010 NOSIG=  ## [A] Hefei, Hefei Luogang International Airport
451962 2022-11-27 18:00  19 CN CN-31  PVG ZSPD 271700Z 17007MPS 9999 SCT030 19/17 Q1013 NOSIG=  ## [N] Shanghai, Shanghai Pudong International Airport
451988 2022-11-27 18:00  16 CN CN-37  TAO ZSQD 271700Z 15005MPS 7000 SCT020 16/15 Q1010 NOSIG=  ## [A] Qingdao, Liuting Airport
452010 2019-11-02 10:00  24 CN CN-35  JJN ZSQZ 020900Z 07005MPS CAVOK 24/17 Q1014 NOSIG=  ## [A] Quanzhou, Quanzhou Jinjiang International Airport
452044 2021-05-28 11:00  29               ZSSH 280900Z 01003MPS CAVOK 29/08 Q1005 NOSIG=  ## [A]
452055 2022-11-27 18:00  18 CN CN-31  SHA ZSSS 271700Z 17005MPS CAVOK 18/16 Q1013 NOSIG=  ## [A] Shanghai, Shanghai Hongqiao International Airport
452086 2021-08-12 11:00  25 CN CN-34  TXN ZSTX 120900Z 22003MPS 9999 -RA FEW006 SCT016 OVC033 25/24 Q1005 NOSIG=  ## [A] Huangshan, Tunxi International Airport
452164 2021-08-12 11:00  28 CN CN-32  WUX ZSWX 120900Z VRB01MPS 9999 FEW033 28/26 Q1005 NOSIG=  ## [A] Wuxi, Sunan Shuofang International Airport
452166 2021-08-12 11:00  30 CN CN-33  WNZ ZSWZ 120900Z 31002MPS 220V030 9999 TS FEW016 SCT033 FEW033CB 30/25 Q1006 BECMG TL1000 -RA NSC=  ## [A] Wenzhou, Wenzhou Longwan International Airport
452192 2021-07-02 04:00  27 CN CN-32  XUZ ZSXZ 020200Z 06005MPS 8000 BKN020 27/24 Q1004 NOSIG=  ## [A] Xuzhou, Xuzhou Guanyin Airport
452206 2020-01-01 06:00   4 CN CN-32  YNZ ZSYN 010500Z 17003MPS 130V200 CAVOK 04/M03 Q1032 NOSIG=  ## [A] Yancheng, Yancheng Airport
452212 2022-09-17 12:00  23 CN CN-37  YNT ZSYT 171000Z 03002MPS CAVOK 23/20 Q1009 NOSIG=  ## [A] Yantai, Yantai Laishan Airport
452983 2022-11-27 18:00  17 CN CN-50  CKG ZUCK 271700Z VRB01MPS 6000 BKN040 17/14 Q1004 NOSIG=  ## [A] Chongqing, Chongqing Jiangbei International Airport
453019 2020-06-08 12:00  12               ZUDU 081000Z 00000KT 0050 FG OVC010 12/12 Q1016=  ## [A]
453101 2022-11-27 18:00  20 CN CN-52  KWE ZUGY 271700Z 20006MPS 9999 FEW030 20/16 Q1006 NOSIG=  ## [A] Guiyang, Longdongbao Airport
453420 2022-11-27 18:00  16               ZUTF 271700Z 27001MPS 6000 NSC 16/13 Q1006 NOSIG=  ## [A]
453461 2022-11-27 18:00  16 CN CN-51  CTU ZUUU 271700Z 30001MPS 5000 BR SCT040 16/12 Q1006 NOSIG=  ## [A] Chengdu, Chengdu Shuangliu International Airport
453521 2019-05-10 11:00  30 CN CN-51  XIC ZUXC 100900Z 18007MPS 9999 FEW050 30/09 Q1007 NOSIG=  ## [A] Xichang, Xichang Qingshan Airport
453595 2020-01-04 14:00   7 CN CN-52  ZYI ZUZY 041300Z VRB01MPS 8000 -RA SCT010 OVC030 07/07 Q1019 NOSIG=  ## [A] Zunyi, Zunyi Xinzhou Airport
454744 2021-01-11 18:55 -18               ZWSD 111755Z COR 01028G33KT 0200 SN BLSN VV003 M18/M21 A2883 RMK SLPNO GRID26028G33KT SDF/HDN=  ## [A]
454748 2022-11-27 18:00   6 CN CN-65  KHG ZWSH 271700Z AUTO 09004MPS 8000 // ///////// 06/M20 Q1019=  ## [A] Kashgar, Kashgar Airport
454867 2022-11-27 18:00 -18 CN CN-65  URC ZWWW 271700Z 25003MPS CAVOK M18/M20 Q1039 NOSIG=  ## [A] Ürümqi, Ürümqi Diwopu International Airport
455679 2022-11-27 18:00  -3 CN CN-22  CGQ ZYCC 271700Z VRB01MPS 6000 BKN020 M03/M04 Q1020 NOSIG=  ## [A] Changchun, Longjia Airport
455808 2022-11-27 18:00  -7 CN CN-23  HRB ZYHB 271700Z 04002MPS 9999 OVC020 M07/M09 Q1023 NOSIG=  ## [A] Harbin, Taiping Airport
456130 2022-11-27 18:00  13 CN CN-21  DLC ZYTL 271700Z 12004MPS 9999 SCT013 BKN023 13/11 Q1012 NOSIG=  ## [A] Dalian, Zhoushuizi Airport
456142 2022-11-27 18:00   2 CN CN-21  SHE ZYTX 271700Z 04004MPS 4000 -RA SCT010 OVC023 02/01 Q1018 NOSIG=  ## [A] Shenyang, Taoxian Airport
456259 2019-11-12 01:00   9 CN CN-21  YKH ZYYK 120000Z 17004MPS 9999 FEW040 09/00 Q1019 NOSIG=  ## [A] Yingkou, Yingkou Lanqi Airport
------ (okänt land):
[A] Chengdu, Chengdu Shuangliu International Airport